SQLite format 3@ %f>%f-)v?tablebuoy_nowbuoy_nowCREATE TABLE buoy_now ( STN, LAT, LON, YYYY, MM, DD, hh, minute, WDIR, WSPD, GST, WVHT, DPD, APD, MWD, PRES, PTDY, ATMP, WTMP, DEWP, VIS, TIDE, raw_text DEFAULT '', timestamp TIMESTAMP DEFAULT CURRENT_TIMESTAMP )j7tablebuoybuoyCREATE TABLE buoy ( STN, LAT, LON, YYYY, MM, DD, hh, minute, WDIR, WSPD, GST, WVHT, DPD, APD, MWD, PRES, PTDY, ATMP, WTMP, DEWP, VIS, TIDE, raw_text DEFAULT '', timestamp TIMESTAMP DEFAULT C   xph`XPH@80( xph`XPH@80( xph`XPH@80( -2#ɡb#n#"2"]J"a! !Ly 񡱻  ;1ࡱ*vϡntcebZRU&@A[桱t 0%աRz8@ġWibyoXfPRGf조}6 ۡ %JʡodSP^?0M򡰷X.<<ᡰRa+CСPu_U G d- 9 O Sg d S B5 硰7 L 1h ֡ {Y Pštj .YE]oHQUm7ܡ r&~ˡmp[V*_ m/HġM$E$ j7tablebuoybuoyCREATE TABLE buoy ( STN, LAT, LON, YYYY, MM, DD, hh, minute, WDIR, WSPD, GST, WVHT, DPD, APD, MWD, PRES, PTDY, ATMP, WTMP, DEWP, VIS, TIDE, raw_text DEFAULT '', timestamp TIMESTAMP DEFAULT CURRENT_TIMESTAMP )v?tablebuoy_nowbuoy_nowCREATE TABLE buoy_now ( STN, LAT, LON, YYYY, MM, DD, hh, minute, WDIR, WSPD, GST, WVHT, DPD, APD, MWD, PRES, PTDY, ATMP, WTMP, DEWP, VIS, TIDE, raw_text DEFAULT '', timestamp TIMESTAMP DEFAULT CURRENT_TIMESTAMP ) nnj}tablemetarmetarCREATE TABLE metar ( raw_text DEFAULT '', station_id, observation_time, latitude, longitude, temp_c, dewpoint_c, wind_dir_degrees, wind_speed_kt, wind_gust_kt, visibility_statute_mi, altim_in_hg, sea_level_pressure_mb, corrected, auto, auto_station, maintenance_indicator_on, no_signal, lightning_sensor_off, freezing_rain_sensor_off, present_weather_sensor_off, wx_string, sky_cover, cloud_base_ft_agl, flight_category, three_hr_pressure_tendency_mb, maxT_c, minT_c, maxT24hr_c, minT24hr_c, precip_in, pcp3hr_in, pcp6hr_in, pcp24hr_in, snow_in, vert_vis_ft, metar_type, elevation_m, timestamp TIMESTAMP DEFAULT CURRENT_TIMESTAMP ) ~ytoje_YSMGA;5/)# {uoic]WQKE?93-'! ysmga[UOIC=71+% 33; :987{6w5s4o3k2g1c0_/Z.V-R,N+J*F)B(>':&6%2$.#*"&!"  ~zvrnjfb^ZV R N J F B>:62.*&" ~zuqmiea]YUQMIEA=951-)%!߁ށ݁܁ ہ ځف}yuqmiea]YUQMIEA=951t;H!߰i?n޿j?>R )tablemetar_nowmetar_nowCREATE TABLE metar_now ( raw_text DEFAULT '', station_id, observation_time, latitude, longitude, temp_c, dewpoint_c, wind_dir_degrees, wind_speed_kt, wind_gust_kt, visibility_statute_mi, altim_in_hg, sea_level_pressure_mb, corrected, auto, auto_station, maintenance_indicator_on, no_signal, lightning_sensor_off, freezing_rain_sensor_off, present_weather_sensor_off, wx_string, sky_cover, cloud_base_ft_agl, flight_category, three_hr_pressure_tendency_mb, maxT_c, minT_c, maxT24hr_c, minT24hr_c, precip_in, pcp3hr_in, pcp6hr_in, pcp24hr_in, snow_in, vert_vis_ft, metar_type, elevation_m, timestamp TIMESTAMP DEFAULT CURRENT_TIMESTAMP )T tableshipship CREATE TABLE ship (day, dewpoint_c, gust, latitude, longitude, maxgst, sea_level_pressure_mb, station_id, temp_c, wind, raw_text DEFAULT '', timestamp TIMESTAMP DEFAULT CURRENT_TIMESTAMP )xxph`XPH@80( xph`XPH@80( xph`XPH@80(  ȁZǁLƁ?Ł2ā%Á ~q⿁d⾁W⽁I⼁;⻁.⺁!⹁⸁ⷁzⶁmⵁ`ⴁSⳁEⲁ5ⱁ%Ⰱ⯁ ⮁}⭁p⬁a⫁T⪁G⩁:⨁,⧁⦁⥁⤁w⣁h⢁Y⡁J⠁<⟁-➁❁✁⛁w⚁i♁[☁M◁?▁0╁"━Ⓛ⒁x⑁i␁[⏁M⎁>⍁/⌁"⋁⊁≁y∁l⇁_ↁQ⅁C℁5⃁(₁⁁ t~f}Y|L{?z1y$xw v|uo9ށ烁(/́[r/弁Ya{䫁JPr㚁M3ńˁIB| ~xrlf`ZTNHB<60*$ |   322/09-32.9-21.9156082202019-02-22 09:55:546     322/0917.0-70.7156062202019-02-22 09:55:547     322/09-41.9-50.0156032202019-02-22 09:55:54<     322/0915.4150.51011.9/////1102019-02-22 09:55:54=     322/09-21.2-12.61017.2149401102019-02-22 09:55:54=     322/09-30.9-50.81013.6149331102019-02-22 09:55:54=     322/09-30.4-26.11012.2149321102019-02-22 09:55:54=     322/09-28.7-25.31013.8149291102019-02-22 09:55:546     1"yk[M@2$zl^PB4& |naSE8*seWI;-t߂fނW݂H܂9ۂ*ڂق ؁}ׁmց]ՁNԁ>Ӂ.ҁ сЁxh[M>0  =uWFuindexi3buoyCREATE UNIQUE INDEX i3 ON buoy(STN,YYYY,MM,DD,hh,mm)F kindexi2metar_nowCREATE UNIQUE INDEX i2 ON metar_now(station_id)`tableship_nowship_now CREATE TABLE ship_now (day, dewpoint_c, gust, latitude, longitude, maxgst, sea_level_pressure_mb, station_id, temp_c, wind, raw_text DEFAULT '', timestamp TIMESTAMP DEFAULT CURRENT_TIMESTAMP )t;tablestationss`tableship_nowship_now CREATE TABLE ship_now (day, dewpoint_c, gust, latitude, longitude, maxgst, sea_level_pressure_mb, station_id, temp_c, wind, raw_text DEFAULT '', timestamp TIMESTAMP DEFAULT CURRENT_TIMESTAMP )t;tablestationsstations CREATE TABLE stations ( metar TEXT, wmob INT, wmos INT, city TEXT, state TEXT, country TEXT, latitude DOUBLE, longitude DOUBLE, elevation DOUBLE, x DOUBLE, y DOUBLE, z DOUBLE, humor TEXT, source TEXT )B[indexi_metarstations CREATE INDEX i_metar ON stations(metar) B~xrlf`ZTNHB<60*$ |vpjd^XRLF@:4.(" ztnhb\VPJD>82,& DD똈u뗈m떈e땈\딈S듈J뒈A둈8됈/돈&뎈덈댈 니늇y뉇o눇e뇇[놇R녇I넇@냇7낇.끇$뀇~}||r{hz^yTxIw?v5u+t!srqp~ounlmclZkQjHi?h6g-f$edcbav`m_d^[]R\J[BZ9Y0X'WVU TS{RrQiP`OWNOMGL>K6J.I'HGF EDzCqBiA`@X?O>F=><6;.:%987 65{4r3i2`1Y0Q/I.@-7,.+%*)( '&z%r$j#`S}~q q윝Ac뜐뛇yugYK=/!yk]OA3% }oaSE7) { KNBG KMSS KMJX KMAI < KLOT  KLAM KJFX_ KIGC ^ KHRL , KHCD KGPT KFYV KFGN S KESF  KECP KDNV KD19 z KCOS C KCEW KBUR KBIH KAWI c KALY1 K9W7 K87Q K62W K4A6c K36Y K25R K13A HSTR! HFFF7 GUMA GCLA FYWB FQLCV FLMP FCOG FAMM ETUNw ESSK4 EPSK ENHE EHMA EGSY[ EGDY EDSB EBLB DISSf DABC CYYU CYSK CYLK^ CYCQ CXOX CXBK CWVO CWRHZ CWMZ CWIU CWETCWAR4 KMJXp^L:(ucQ?- zhVD2 ~% ţ|DA $ %*%# A V" ЫMP! J KWX1 #쇡   ٦Z=  pq#a Ț  򆪲- +;>}i  Qz DNv* ̘\} ͽ\? = έщp#  ϔUZ _ "~~ :_A Ҵ2 h)L% > +v !%瀕W V/m# vfr &F:f T l9x# I Fw  ؒ'4z QWG PWM> ;h# E Nh5  ڽ =^-0 ܤv# 1}{ \Y%B ]x>0L # ac> ⚏ M rp#  ] ?UWsUy) ?by+( Jp^L:(tbP>,xfTB0 | } Wg| f> { y#8z [Jy )YG bx 笸@w O-v Μ u ufb+t  s Ӱ%lr i$ q /bh p E5xeo _L]n xnim z20@l ʢy@k Q@dj  1 i .7 ;h QpG"g }GdK f 雋`qxe ^* d ԭ߷A Tc عTb Ia , ` KVb_ t ͗^ ް !1] Ni~ \  [[  -p !Z 8HJ Y _wNX ū\4W Jir/V GVU >^#T NOAS %cgR RC( _Q 'P T63pO {2tf ?ҿt/( ە|0ie 笸@Ap^L:(tbP>,xfTB0 |! ?1mrOG ?ZZ ?߭PU^ ?=@! ?޷r! ?O=8 ?ᵇj ? KGSO= KFYM< KFEP; KEIR: KDPA9 KCWA8 KCKN7 KBWI6 KBHC5 KASD*4 KADMT3 K4A92 K0S9C1 GMMW 0 FNDU x/ ETND]. ENVRO- EIWF, EGPH+ EFHA* DRZR T)CYZP3( CYQK ' CYCK & CXBR x% CWPZ 2$ CWGT    6n1yAkindexi6shipCREATE UNIQUE INDEX i6 ON ship(station_id, day)Diindexi5ship_nowCREATE UNIQUE INDEX i5 ON ship_now(station_id)6 Kindexi_xstationsCREATE INDEX i_x ON stations(x)6 Kindexi_ystationsCREATE INDEX i_y ON stations(y)6 Kindexi_zstationsCREATE INDEX i_z ON stations(z)Q indexi1metarCREATE UNIQUE INDEX i1 ON metar(station_id, observation_time)F kindexi2metar_nowCREATE UNIQUE INDEX i2 ON metar_now(station_id)Fuindexi3buoyCREATE UNIQUE INDEX i3 ON buoy(STN,YYYY,MM,DD,hh,mm)=[indexi4buoy_nowCREATE UNIQUE INDEX i4 ON buoy_now(STN) ?yj\M?aWMC9/%{qg]SI?5+! wmcYOE;1' 42057T 42055S 42040R 42035Q 42020P 42019O 42012N 42003M 42002L 41690K 41606J 41159I 41117H 41115G 41113F 41112E 41110D 41108C 41064B 41056A 41053@ 41052? 41049> 41047= 41046< 41044; 41043: 410419 410408 410387 410376 410335 410294 410243 410132 410101 410090 41008/ 41004. 3ETB9- 3EMB9, 33970+ 33967* 33520) 33518( 32915' 32527& 32323% 32321$ 32320# 32319" 32318! 32317 32316 32315 32303 31705 31549 31539 31516 31514 31511 31500 22678 21 VCLM SDIA2C PCHM LWSD1 FSKM2r DBBT/ BIGM4 AMOUK30 63055g 62087! 51021 46069 41690K zdN8" t^H2lV@*zd4209921/21'`~4209722/00'k84208522/03'y4205722/02'r04204022/05'}4202022/08'4201921/11';4200321/14'F4160621/13'ES4111721/16'N^4111321/19'Ym4111021/22'd4106422/01'p4105322/03'x4104922/06'4104622/09'u4104421/12'?4104121/15'J>4103722/09'4103321/12'A]4102421/15'L4101021/18'U4100821/21'`q3FFA522/03'y3397022/08'/3394721/11'=3297521/15'L3282722/04'y3280722/02'r3254822/04'TKEA222/04'y^PTWW122/00'l6MVGF422/04'|ICAC121/18'VXELFA221/15'KC6XS721/17'TAMOUK6222/06'ow6310922/01'qP6211621/12'A$5102321/16'Pr4608021/18'U4204022/05'} ,4g,0&(e5   3SBPS 211000Z 28003KT 9999 SCT020 26/24 Q1014SBPS2019-02-21T10:00:00Z-16.43-39.0726.024.028036.2129.940945VFRMETAR51.02019-02-21 10:02:40:%(w5    3MHLC 211000Z 00000KT 9999 SKC 20/19 Q1009 A2980 NOSIGMHLC2019-02-21T10:00:00Z15.75-86.8520.019.0006.2129.793306TRUEVFRMETAR15.02019-02-21 10:02:40?$(}5    3MHLM 211000Z 23004KT 9999 FEW024 23/20 Q1010 A2983 NOSIGMHLM2019-02-21T10:00:00Z15.45-87.9323.020.023046.2129.822834TRUEVFRMETAR26.02019-02-21 10:02:40G#) 5    3MHTG 211000Z 00000KT 9999 SCT028 BKN080 19/14 Q1017 A3003 NOSIGMHTG2019-02-21T10:00:00Z14.07-87.2219.014.0006.2130.029528TRUEVFRMETAR1004.02019-02-21 10:02:40F") 5    3BKPR 211000Z 02009KT 9999 FEW040 09/M04 Q1027 NOSIG RMK 17010095BKPR2019-02-21T10:00:00Z42.5821.039.0-4.02096.2130.324802TRUEVFRMETAR576.02019-02-21 10:02:40 JI+)5     3KGHB 211000Z AUTO 15006KT 5SM BR OVC018 23/22 A2991 RMK A01KGHB2019-02-21T10:00:00Z27.83-91.9823.022.015065.029.911417TRUETRUEBRMVFRMETAR30.02019-02-21 10:02:40N*)5     3KCVW 211000Z AUTO 04010KT 3SM BR SCT006 OVC011 12/12 A2993 RMK A01KCVW2019-02-21T10:00:00Z29.78-93.312.012.040103.029.929134TRUETRUEBRMVFRMETAR1.02019-02-21 10:02:40`))95     3KGEV 211000Z AUTO 00000KT 1SM BR BKN002 OVC029 08/08 A3002 RMK AO2 VIS 1/4V5 T00810081KGEV2019-02-21T10:00:00Z36.43-81.428.18.1001.030.02067TRUETRUEBRLIFRMETAR969.02019-02-21 10:02:40&((Y5   3SBBV 211000Z 09009KT CAVOK 25/20 Q1012SBBV2019-02-21T10:00:00Z2.85-60.725.020.09096.2129.88189VFRMETAR140.02019-02-21 10:02:400'(e5    3MPTO 211000Z VRB02KT CAVOK 22/20 Q1009 NOSIGMPTO2019-02-21T10:00:00Z9.05-79.3722.020.0026.2129.793306TRUEVFRMETAR45.02019-02-21 10:02:40 6-b6)0(Y5   3SBCB 211000Z 26003KT CAVOK 26/25 Q1013SBCB2019-02-21T10:00:00Z-22.92-42.0826.025.026036.2129.911417VFRMETAR4.02019-02-21 10:02:40)/(Y5   3SBFI 211000Z 12007KT CAVOK 21/19 Q1012SBFI2019-02-21T10:00:00Z-25.6-54.4821.019.012076.2129.88189VFRMETAR243.02019-02-21 10:02:40H.)5     3KVOA 211000Z AUTO 16010KT 1SM BR OVC090 23/23 A2998 RMK A01KVOA2019-02-21T10:00:00Z29.23-87.7823.023.0160101.029.97933TRUETRUEBRIFRMETAR53.02019-02-21 10:02:40E-(5    3KVBS 211000Z AUTO 11019KT 10SM OVC007 13/12 A2992 RMK A01KVBS2019-02-21T10:00:00Z29.48-93.6313.012.01101910.029.920275TRUETRUEIFRMETAR31.02019-02-21 10:02:40M,) 5     3KGRY 211000Z AUTO 16015KT 2 1/2SM BR FEW060 23/22 A2992 RMK A01KGRY2019-02-21T10:00:00Z27.63-90.4523.022.0160152.529.920275TRUETRUEBRIFRMETAR58.02019-02-21 10:02:40 _O_25(e5    3MROC 211000Z 07007KT CAVOK 20/15 A2996 NOSIGMROC2019-02-21T10:00:00Z10.0-84.2220.015.07076.2129.958662TRUEVFRMETAR920.02019-02-21 10:02:40=4)5   3SBMQ 211000Z 34007KT 9999 SCT004 BKN027 BKN080 24/24 Q1012SBMQ2019-02-21T10:00:00Z0.05-51.0724.024.034076.2129.88189MVFRMETAR15.02019-02-21 10:02:4013(e5    3HSSS 211000Z 06005KT CAVOK 29/02 Q1014 NOSIGHSSS2019-02-21T10:00:00Z15.5832.5329.02.06056.2129.940945TRUEVFRMETAR380.02019-02-21 10:02:4082(q5    3WADL 211000Z VRB01KT 8000 SCT016 27/25 Q1011 NOSIGWADL2019-02-21T10:00:00Z-8.75116.2827.025.0014.9729.852362TRUEMVFRMETAR97.02019-02-21 10:02:40+1(_5   3GBYD 211000Z 34009KT 9000 NSC 25/07 Q1014GBYD2019-02-21T10:00:00Z13.33-16.6525.07.034095.5929.940945VFRMETAR36.02019-02-21 10:02:40 BE`B6:(s5   3SBMN 211000Z 22003KT 9999 SCT010 SCT060 25/24 Q1011SBMN2019-02-21T10:00:00Z-3.13-59.9725.024.022036.2129.852362VFRMETAR84.02019-02-21 10:02:40*9(Y5   3SBCY 211000Z 32005KT CAVOK 26/24 Q1012SBCY2019-02-21T10:00:00Z-15.65-56.1226.024.032056.2129.88189VFRMETAR182.02019-02-21 10:02:40,8(e5   3SBRF 211000Z 00000KT 9999 SCT023 27/23 Q1012SBRF2019-02-21T10:00:00Z-8.13-34.9227.023.0006.2129.88189VFRMETAR19.02019-02-21 10:02:40_7)A5  3BIIS 211000Z 25010G22KT 9999 FEW025 BKN030 08/01 Q0984 RMK 08 200 13G26 ARNARNES 140 17G23BIIS2019-02-21T10:00:00Z66.05-23.138.01.025010226.2129.055119MVFRMETAR3.02019-02-21 10:02:4056(s5   3SBPV 211000Z 18002KT 9999 SCT015 BKN100 23/22 Q1011SBPV2019-02-21T10:00:00Z-8.72-63.923.022.018026.2129.852362VFRMETAR88.02019-02-21 10:02:40 ?3v?.?(e5   3MDST 211000Z 13005KT 9999 SCT016 20/20 Q1018MDST2019-02-21T10:00:00Z19.4-70.620.020.013056.2130.059055VFRMETAR184.02019-02-21 10:02:408>(s5   3SBSP 211000Z 04002KT 7000 FEW006 BKN083 21/19 Q1018SBSP2019-02-21T10:00:00Z-23.62-46.6321.019.04024.3530.059055MVFRMETAR803.02019-02-21 10:02:40?=)5    3SBFZ 211000Z VRB01KT 9000 VCTS SCT020 FEW025CB SCT080 27/25 Q10 11SBFZ2019-02-21T10:00:00Z-3.77-38.5227.025.0015.59VCTSVFRMETAR25.02019-02-21 10:02:407<(q5    3OJAI 211000Z 03005KT 7000 BKN035 14/03 Q1019 NOSIGOJAI2019-02-21T10:00:00Z31.7236.014.03.03054.3530.088583TRUEMVFRMETAR730.02019-02-21 10:02:40G;) 5     3OJAM 211000Z 05004KT 5000 HZ SCT025TCU SCT030 12/03 Q1020 NOSIGOJAM2019-02-21T10:00:00Z31.9735.9712.03.05043.1130.11811TRUEHZMVFRMETAR773.02019-02-21 10:02:40 RLR:D(y5    3AGGH 211000Z 23002KT 9999 HZ FEW016 SCT300 25/24 Q1007AGGH2019-02-21T10:00:00Z-9.42160.0525.024.023026.2129.734253HZVFRMETAR9.02019-02-21 10:02:40;C({5    3KHSD 211000Z AUTO 12007KT 10SM CLR 02/M00 A3000 RMK A01KHSD2019-02-21T10:00:00Z35.6-97.722.00.0120710.030.0TRUETRUEVFRMETAR364.02019-02-21 10:02:404B(s5   3SBSL 211000Z 04006KT 9999 SCT017 SCT080 26/25 Q1011SBSL2019-02-21T10:00:00Z-2.6-44.2226.025.04066.2129.852362VFRMETAR53.02019-02-21 10:02:409A(q5    3MDPC 211000Z 08010KT 9999 FEW018 24/19 Q1018 NOSIGMDPC2019-02-21T10:00:00Z18.57-68.3724.019.080106.2130.059055TRUEVFRMETAR12.02019-02-21 10:02:40.@(e5   3MDSD 211000Z 03005KT 9999 FEW016 21/20 Q1017MDSD2019-02-21T10:00:00Z18.42-69.6721.020.03056.2130.029528VFRMETAR18.02019-02-21 10:02:40 "J~"?I)5   3SBCF 211000Z 24003KT 9000 FEW010 SCT030 BKN070 20/19 Q1020SBCF2019-02-21T10:00:00Z-19.63-43.9720.019.024035.5930.11811VFRMETAR828.02019-02-21 10:02:40CH(5    3KEDU 211000Z AUTO 35003KT 10SM FEW034 05/03 A2973 RMK AO1KEDU2019-02-21T10:00:00Z38.53-121.785.03.0350310.029.731298TRUETRUEVFRMETAR21.02019-02-21 10:02:40HG)5     3KFYM 211000Z AUTO 34008KT 4SM BR OVC003 08/08 A3007 RMK A01KFYM2019-02-21T10:00:00Z35.07-86.578.08.034084.030.070866TRUETRUEBRLIFRMETAR300.02019-02-21 10:02:40FF)5     3KPGV 211000Z AUTO 00000KT 3/4SM BR OVC002 05/05 A3009 RMK AO2KPGV2019-02-21T10:00:00Z35.62-77.45.05.0000.7530.088583TRUETRUEBRLIFRMETAR8.02019-02-21 10:02:400E(e5   3SBMO 211000Z 36004KT 9999 SCT020 25/23 Q1013SBMO2019-02-21T10:00:00Z-9.52-35.7725.023.036046.2129.911417VFRMETAR115.02019-02-21 10:02:40 XRX6N(s5   3FIMP 211000Z 06012KT 9999 FEW019 BKN250 31/25 Q1015FIMP2019-02-21T10:00:00Z-20.4257.6731.025.060126.2129.970472VFRMETAR57.02019-02-21 10:02:409M(s5   3SBCT 211000Z 12003KT 9999 SCT009 BKN030 18/18 Q1018SBCT2019-02-21T10:00:00Z-25.52-49.1718.018.012036.2130.059055MVFRMETAR908.02019-02-21 10:02:40>L)5   3FIMR 211000Z 09011KT 9999 FEW018 BKN050 BKN250 30/25 Q1015FIMR2019-02-21T10:00:00Z-19.7563.3730.025.090116.2129.970472VFRMETAR31.02019-02-21 10:02:405K(q5    3SVMG 211000Z /////KT 9999 FEW010 25/24 Q1013 NOSIGSVMG2019-02-21T10:00:00Z10.92-63.9725.024.06.2129.911417TRUEVFRMETAR23.02019-02-21 10:02:40(J(Y5   3SBUG 211000Z 08005KT CAVOK 21/19 Q1012SBUG2019-02-21T10:00:00Z-29.77-57.0221.019.08056.2129.88189VFRMETAR74.02019-02-21 10:02:40 87z8;S(}5   3SKCG 211000Z 14003KT 100V160 8000 NSC 25/23 A2978 RMK HZSKCG2019-02-21T10:00:00Z10.43-75.5225.023.014034.9729.778543MVFRMETAR1.02019-02-21 10:02:40;R)5   3SKLT 211000Z 00000KT 9999 SCT016 SCT080 BKN200 25/25 A2984SKLT2019-02-21T10:00:00Z-4.2-69.9325.025.0006.2129.840551VFRMETAR84.02019-02-21 10:02:40:Q(y5    3SKRG 211000Z 00000KT 4000 BR BKN007 SCT080 14/14 A3025SKRG2019-02-21T10:00:00Z6.17-75.4214.014.0002.4930.250984BRIFRMETAR2137.02019-02-21 10:02:407P(s5   3SKPE 211000Z 13003KT 9999 SCT014 SCT070 20/19 A3001SKPE2019-02-21T10:00:00Z4.82-75.7320.019.013036.2130.008858VFRMETAR1346.02019-02-21 10:02:40CO) 5    3UBBG 211000Z VRB02KT 9999 FEW100 08/M03 Q1017 R30/CLRD// NOSIGUBBG2019-02-21T10:00:00Z40.7346.328.0-3.0026.2130.029528TRUEVFRMETAR330.02019-02-21 10:02:40 :?:DX)5    3UBBB 211000Z 19018KT 9999 BKN023 09/04 Q1017 R88/CLRD// NOSIGUBBB2019-02-21T10:00:00Z40.4550.079.04.0190186.2130.029528TRUEMVFRMETAR-6.02019-02-21 10:02:40NW)5   3KINJ 211000Z AUTO 08008G14KT 10SM CLR 08/03 A2996 RMK AO2 T00780032KINJ2019-02-21T10:00:00Z32.08-97.17.83.28081410.029.958662TRUETRUEVFRSPECI209.02019-02-21 10:02:40(V(Y5   3SKBQ 211000Z 36006KT CAVOK 25/21 A2981SKBQ2019-02-21T10:00:00Z10.9-74.7725.021.036066.2129.811024VFRMETAR10.02019-02-21 10:02:403U(s5   3SKBO 211000Z 05004KT 9999 FEW017 SCT070 11/09 A3031SKBO2019-02-21T10:00:00Z4.7-74.1211.09.05046.2130.31004VFRMETAR2548.02019-02-21 10:02:40;T(y5    3SKCL 211000Z 15003KT 4000 BR FEW030 BKN120 21/19 A2996SKCL2019-02-21T10:00:00Z3.53-76.3721.019.015032.4929.958662BRIFRMETAR969.02019-02-21 10:02:40 iFi-](e5   3SVMI 211000Z 14001KT 9999 FEW016 25/23 Q1012SVMI2019-02-21T10:00:00Z10.58-67.025.023.014016.2129.88189VFRMETAR48.02019-02-21 10:02:400\(e5    3OEDF 211000Z 33008KT CAVOK 22/00 Q1021 NOSIGOEDF2019-02-21T10:00:00Z26.4749.822.00.033086.2130.147638TRUEVFRMETAR22.02019-02-21 10:02:402[(e5    3OEJN 211000Z 26010KT CAVOK 27/07 Q1015 NOSIGOEJN2019-02-21T10:00:00Z21.6839.1527.07.0260106.2129.970472TRUEVFRMETAR15.02019-02-21 10:02:406Z(m5    3OEMA 211000Z 22003KT 9000 NSC 21/M03 Q1017 NOSIGOEMA2019-02-21T10:00:00Z24.5539.721.0-3.022035.5930.029528TRUEVFRMETAR631.02019-02-21 10:02:404Y(g5    3OERK 211000Z 18008KT CAVOK 18/M04 Q1022 NOSIGOERK2019-02-21T10:00:00Z24.9546.7218.0-4.018086.2130.177166TRUEVFRMETAR612.02019-02-21 10:02:40 (Br(,b(e5   3SBKP 211000Z 11003KT 6000 FEW030 21/19 Q1016SBKP2019-02-21T10:00:00Z-23.0-47.1221.019.011033.7330.0MVFRMETAR661.02019-02-21 10:02:40=a)5   3SBEG 211000Z 11001KT 9999 FEW005 BKN008 BKN050 24/23 Q1011SBEG2019-02-21T10:00:00Z-3.02-60.0324.023.011016.2129.852362IFRMETAR2.02019-02-21 10:02:40O`)5    3WIII 211000Z 32004KT 7000 FEW018CB SCT020 28/24 Q1010 NOSIG RMK CB TO SWIII2019-02-21T10:00:00Z-6.13106.6728.024.032044.3529.822834TRUEMVFRMETAR8.02019-02-21 10:02:40J_) 5    3PKWA 211000Z AUTO 09012KT 10SM CLR 27/21 A2992 RMK AO2 T02700210PKWA2019-02-21T10:00:00Z8.72167.7227.021.0901210.029.920275TRUETRUEVFRMETAR8.02019-02-21 10:02:408^(s5   3SBRP 211000Z 12003KT 9999 FEW040 BKN100 21/20 Q1015SBRP2019-02-21T10:00:00Z-21.12-47.7721.020.012036.2129.970472VFRMETAR549.02019-02-21 10:02:40 F2nF6g(s5   3SBGL 211000Z 33003KT 9999 FEW020 BKN100 26/24 Q1013SBGL2019-02-21T10:00:00Z-22.82-43.2526.024.033036.2129.911417VFRMETAR6.02019-02-21 10:02:408f(u5    3OBBI 211000Z 31007KT 280V350 CAVOK 21/01 Q1021 NOSIGOBBI2019-02-21T10:00:00Z26.2750.6321.01.031076.2130.147638TRUEVFRMETAR2.02019-02-21 10:02:40(e(e5   3FQVL 211000Z 08008KT 9999 FEW020 30/23 Q1016FQVL2019-02-21T10:00:00Z-22.035.3230.023.08086.2130.0VFRMETAR21.02019-02-21 10:02:40>d(5    3SMJP 211000Z 09003KT 9999 FEW012 SCT025 23/23 Q1013 NOSIGSMJP2019-02-21T10:00:00Z5.45-55.1723.023.09036.2129.911417TRUEVFRMETAR16.02019-02-21 10:02:40Hc) 5     3SMZO 211000Z 08004KT 9999 VCSH SCT008 SCT030 26/24 Q1013 NOSIGSMZO2019-02-21T10:00:00Z5.82-55.1826.024.08046.2129.911417TRUEVCSHVFRMETAR10.02019-02-21 10:02:40 IFINl)5    3SEQM 211000Z 10002KT 9999 BKN030 BKN080 13/12 Q1025 NOSIG RMK A3028SEQM2019-02-21T10:00:00Z-0.12-78.3513.012.010026.2130.265747TRUEMVFRMETAR2400.02019-02-21 10:02:40Ik)5    3UBBL 211000Z 00000KT 9999 SCT029 09/03 Q1020 R33/CLRD// NOSIG RMK MT OPUBBL2019-02-21T10:00:00Z38.7548.829.03.0006.2130.11811TRUEVFRMETAR10.02019-02-21 10:02:40.j(e5   3MGMM 211000Z 00000KT CAVOK 21/21 Q1011 A2985MGMM2019-02-21T10:00:00Z16.97-89.8721.021.0006.2129.852362VFRMETAR123.02019-02-21 10:02:40 i(Y5   3MGHT 211000Z 00000KT 9999 BKN020 13/10MGHT2019-02-21T10:00:00Z15.32-91.513.010.0006.21MVFRMETAR1901.02019-02-21 10:02:404h(q5   3MGPB 211000Z 00000KT 9999 BKN017 23/22 Q1010 A2983MGPB2019-02-21T10:00:00Z15.72-88.5823.022.0006.2129.822834MVFRMETAR10.02019-02-21 10:02:40 +NuIp)5   3SPCL 211000Z 36004KT 270V030 9999 SCT015 BKN070 24/23 Q1012 RMK PP000SPCL2019-02-21T10:00:00Z-8.38-74.5824.023.036046.2129.88189VFRMETAR149.02019-02-21 10:02:40So)%5   3SPHO 211000Z 13001KT 9999 FEW030 BKN080 12/11 Q1027 RMK RA EN LA NOCHE PP005SPHO2019-02-21T10:00:00Z-13.17-74.2212.011.013016.2130.324802VFRMETAR2749.02019-02-21 10:02:40Wn)15   3SPHY 211000Z 19003KT 8000 SCT012 BKN050 06/03 Q1034 RMK BIRD HAZARD RWY03/21 PP000SPHY2019-02-21T10:00:00Z-13.7-73.356.03.019034.9730.531496MVFRMETAR3548.02019-02-21 10:02:40Om)5    3SPJR 211000Z 00000KT 8000 -RA BR SCT020 OVC033 13/12 Q1027 RMK PP010SPJR2019-02-21T10:00:00Z-7.12-78.4713.012.0004.9730.324802-RA BRMVFRMETAR2622.02019-02-21 10:02:40 6P6Tu)'5    3UBBN 211000Z 24004KT 9999 NSC 08/M08 Q1019 R14R/CLRD// NOSIG RMK MT OP QFE689UBBN2019-02-21T10:00:00Z39.1845.458.0-8.024046.2130.088583TRUEVFRMETAR873.02019-02-21 10:02:40At)5  3TLPL 211000Z 07020G34KT 9999 SCT022 BKN040 24/19 Q1016 TEMPO SHRATLPL2019-02-21T10:00:00Z13.75-60.9524.019.07020346.2130.0VFRMETAR3.02019-02-21 10:02:403s(s5   3SBGO 211000Z 15006KT 9999 FEW002 BKN100 21/20 Q1016SBGO2019-02-21T10:00:00Z-16.62-49.2221.020.015066.2130.0VFRMETAR747.02019-02-21 10:02:40:r(q5     3VABB 211000Z 26013KT 5000 HZ NSC 28/22 Q1013 NOSIGVABB2019-02-21T10:00:00Z19.172.8728.022.0260133.1129.911417TRUEHZMVFRMETAR8.02019-02-21 10:02:40*q(Y5   3SBPL 211000Z 13009KT CAVOK 27/20 Q1013SBPL2019-02-21T10:00:00Z-9.37-40.5727.020.013096.2129.911417VFRMETAR375.02019-02-21 10:02:40 .cRy)!5    3SEGU 211000Z 23005KT 9999 FEW010 BKN026 BKN100 26/25 Q1008 NOSIG RMK A2978SEGU2019-02-21T10:00:00Z-2.13-79.8726.025.023056.2129.763779TRUEMVFRMETAR9.02019-02-21 10:02:40:x(5   3SECU 211000Z AUTO 05004KT 340V070 ////NDV NCD 12/11 Q1025SECU2019-02-21T10:00:00Z-2.87-78.9712.011.050430.265747TRUEMETAR2531.02019-02-21 10:02:40Ew)5    3SBCG 211000Z 33008KT 0400 R06/0700 R24/P2000 FG VV002 22/22 Q10 13SBCG2019-02-21T10:00:00Z-20.47-54.6722.022.033080.25FGLIFR200METAR567.02019-02-21 10:02:40Lv)5    3UBBY 211000Z 29004KT 9999 FEW050 07/01 Q1020 R33/CLRD// NOSIG RMK MT OPUBBY2019-02-21T10:00:00Z41.5746.677.01.029046.2130.11811TRUEVFRMETAR390.02019-02-21 10:02:40 %A|%A~)5    3SCPQ 211000Z AUTO 19003KT //// R35///// -SHRA NCD 08/07 Q1015SCPQ2019-02-21T10:00:00Z-42.33-73.728.07.0190329.970472TRUE-SHRAMETAR5.02019-02-21 10:02:40C}(5    3SCIP 211000Z 10010KT 9999 SCT025 SCT060 21/19 Q1010 NOSIGSCIP2019-02-21T10:00:00Z-27.17-109.4321.019.0100106.2129.822834TRUEVFRMETAR69.02019-02-21 10:02:40A|)5    3OLBA 211000Z 26005KT 230V300 8000 SCT028 16/09 Q1022 NOSIGOLBA2019-02-21T10:00:00Z33.8235.4716.09.026054.9730.177166TRUEMVFRMETAR19.02019-02-21 10:02:40?{)5   3SEMT 211000Z 00000KT 9999 SCT023 BKN120 26/22 Q1009 RMK A2981SEMT2019-02-21T10:00:00Z-0.95-80.6726.022.0006.2129.793306VFRMETAR14.02019-02-21 10:02:409z(s5   3SELT 211000Z 12003KT 9999 FEW010 BKN030 11/10 Q1029SELT2019-02-21T10:00:00Z-0.92-78.6211.010.012036.2130.383858MVFRMETAR2785.02019-02-21 10:02:40 7:|79(s5    3SCCY 211000Z AUTO 21004KT 180V240 CAVOK 03/00 Q1013SCCY2019-02-21T10:00:00Z-45.57-72.13.00.021046.2129.911417TRUEVFRMETAR311.02019-02-21 10:02:40D)5    3SCRM 211000Z 16003KT 9999 FEW050 BKN066 M01/M05 Q0997 NOSIGSCRM2019-02-21T10:00:00Z-62.18-58.98-1.0-5.016036.2129.438976TRUEVFRMETAR45.02019-02-21 10:02:406(i5    3SCIC 211000Z AUTO 05007KT 9999 NCD 15/14 Q1013SCIC2019-02-21T10:00:00Z-34.97-71.2215.014.05076.2129.911417TRUEVFRMETAR242.02019-02-21 10:02:408(u5   3SCCH 211000Z AUTO VRB01KT 9999 ///////// 17/16 Q1013SCCH2019-02-21T10:00:00Z-36.57-72.0217.016.0016.2129.911417TRUEMETAR148.02019-02-21 10:02:40@)5   3SCTN 211000Z AUTO 08003KT 050V120 //// R/////// // NCD 10/09 Q1015SCTN2019-02-21T10:00:00Z-42.92-72.710.09.080329.970472TRUEMETAR4.02019-02-21 10:02:40 @M@@)5    3OMDB 211000Z 29007KT 250V350 9999 FEW045 22/11 Q1019 NOSIGOMDB2019-02-21T10:00:00Z25.2555.3722.011.029076.2130.088583TRUEVFRMETAR5.02019-02-21 10:02:40>)5    3OMDW 211000Z 28006KT 240V340 9999 FEW040 23/09 Q1020 NOSIGOMDW2019-02-21T10:00:00Z24.955.1723.09.028066.2130.11811TRUEVFRMETAR25.02019-02-21 10:02:40<)5   3OMFJ 211000Z 06010KT 020V080 7000 FEW025 24/12 Q1020 A3012OMFJ2019-02-21T10:00:00Z25.156.3224.012.060104.3530.11811MVFRMETAR28.02019-02-21 10:02:40;(u5    3SCBA 211000Z AUTO 31007KT 240V320 CAVOK 01/M02 Q1012SCBA2019-02-21T10:00:00Z-45.92-71.671.0-2.031076.2129.88189TRUEVFRMETAR524.02019-02-21 10:02:40-(e5   3SBJP 211000Z VRB02KT 9999 FEW020 27/24 Q1013SBJP2019-02-21T10:00:00Z-7.15-34.9527.024.0026.2129.911417VFRMETAR66.02019-02-21 10:02:40 SH S0 (e5   3SBTE 211000Z 35004KT 9999 BKN010 26/25 Q1011SBTE2019-02-21T10:00:00Z-5.03-42.8226.025.035046.2129.852362MVFRMETAR69.02019-02-21 10:02:407 (u5   3SAWH 211000Z 23013KT 9999 BKN040 BKN100 03/M01 Q1003SAWH2019-02-21T10:00:00Z-54.85-68.33.0-1.0230136.2129.616142VFRMETAR14.02019-02-21 10:02:408 (q5    3OMAA 211000Z 29011KT 9999 FEW045 22/10 Q1020 NOSIGOMAA2019-02-21T10:00:00Z24.4254.6322.010.0290116.2130.11811TRUEVFRMETAR27.02019-02-21 10:02:40> )5    3OMAD 211000Z 34008KT 310V030 9999 FEW045 21/09 Q1020 NOSIGOMAD2019-02-21T10:00:00Z24.4254.4721.09.034086.2130.11811TRUEVFRMETAR3.02019-02-21 10:02:402 (u5   3OMAL 211000Z VRB03KT CAVOK 22/06 Q1020 BECMG 33008KTOMAL2019-02-21T10:00:00Z24.2555.622.06.0036.2130.11811VFRMETAR262.02019-02-21 10:02:40 ;Su;B) 5   3SPRU 211000Z 13006KT 080V150 9999 SCT130 23/21 Q1009 RMK PP000SPRU2019-02-21T10:00:00Z-8.08-79.1223.021.013066.2129.793306VFRMETAR30.02019-02-21 10:02:403(m5   3SPSO 211000Z 08005KT CAVOK 21/19 Q1009 RMK PP000SPSO2019-02-21T10:00:00Z-13.73-76.2221.019.08056.2129.793306VFRMETAR10.02019-02-21 10:02:403(m5   3SPTN 211000Z VRB01KT CAVOK 21/14 Q1013 RMK PP000SPTN2019-02-21T10:00:00Z-18.07-70.2821.014.0016.2129.911417VFRMETAR458.02019-02-21 10:02:40X);5   3SPZO 211000Z /////KT 9999 FEW025 SCT040 BKN080 09/08 Q1033 RMK BIRD HAZARD RWY 28 PP000SPZO2019-02-21T10:00:00Z-13.55-71.979.08.06.2130.501968VFRMETAR3249.02019-02-21 10:02:40'(Y5   3LWOH 211000Z 16006KT CAVOK 07/01 Q1025LWOH2019-02-21T10:00:00Z41.1820.757.01.016066.2130.265747VFRMETAR761.02019-02-21 10:02:40 6Nr5(q5    3VOCB 211000Z 09010KT 7000 FEW015 34/11 Q1016 NOSIGVOCB2019-02-21T10:00:00Z11.0277.0334.011.090104.3530.0TRUEMVFRMETAR399.02019-02-21 10:02:40V)35   3SPHI 211000Z 03002KT 9999 FEW050 OVC080 24/23 Q1009 RMK BIRD HAZARD RWY 19/01 PP000SPHI2019-02-21T10:00:00Z-6.77-79.8224.023.03026.2129.793306VFRMETAR34.02019-02-21 10:02:40b)?5    3SPQT 211000Z 18003KT 9999 SCT010 BKN070 24/23 Q1011 NOSIG RMK PPTRZ BIRD HAZARD RWY 06/24SPQT2019-02-21T10:00:00Z-3.78-73.3224.023.018036.2129.852362TRUEVFRMETAR126.02019-02-21 10:02:40D)5   3SPQU 211000Z 10004KT 9999 SCT040 SCT070 10/10 Q1026 RMK PP000SPQU2019-02-21T10:00:00Z-16.33-71.5710.010.010046.2130.295275VFRMETAR2554.02019-02-21 10:02:40 >&j>0(c5    3SCVD 211000Z AUTO 09001KT CAVOK 07/07 Q1013SCVD2019-02-21T10:00:00Z-39.65-73.077.07.09016.2129.911417TRUEVFRMETAR14.02019-02-21 10:02:403(g5    3SCCI 211000Z 25008KT CAVOK 01/M03 Q1006 NOSIGSCCI2019-02-21T10:00:00Z-53.0-70.831.0-3.025086.2129.704725TRUEVFRMETAR37.02019-02-21 10:02:407(s5   3SBLO 211000Z 00000KT 9999 BKN030 SCT090 21/19 Q1015SBLO2019-02-21T10:00:00Z-23.32-51.1221.019.0006.2129.970472MVFRMETAR570.02019-02-21 10:02:406(s5   3SBVT 211000Z 31003KT 9999 SCT026 SCT030 26/25 Q1013SBVT2019-02-21T10:00:00Z-20.27-40.2726.025.031036.2129.911417VFRMETAR4.02019-02-21 10:02:40T)/5   3LUKK 211000Z 34017KT 320V020 9999 BKN038 08/M01 Q1020 R26/110095 TEMPO 31018G30KTLUKK2019-02-21T10:00:00Z46.9328.938.0-1.0340176.2130.11811VFRMETAR122.02019-02-21 10:02:40 ]2~]5 (o5    3SCAT 211000Z AUTO 13004KT 9999 // NCD 17/12 Q1016SCAT2019-02-21T10:00:00Z-27.27-70.7717.012.013046.2130.0TRUEVFRMETAR204.02019-02-21 10:02:40)(Y5   3SCDA 211000Z 16007KT CAVOK 20/15 Q1012SCDA2019-02-21T10:00:00Z-20.52-70.1720.015.016076.2129.88189VFRMETAR52.02019-02-21 10:02:401(e5   3SCSE 211000Z 20004KT 9999 BKN025 17/14 Q1015SCSE2019-02-21T10:00:00Z-29.92-71.217.014.020046.2129.970472MVFRMETAR146.02019-02-21 10:02:40.(e5   3SCQP 211000Z 00000KT 9999 OVC036 14/12 Q1013SCQP2019-02-21T10:00:00Z-38.92-72.6514.012.0006.2129.911417VFRMETAR97.02019-02-21 10:02:40H) 5    3SCTE 211000Z 17007KT 9999 FEW006 SCT030 OVC040 10/09 Q1014 NOSIGSCTE2019-02-21T10:00:00Z-41.42-73.0710.09.017076.2129.940945TRUEVFRMETAR86.02019-02-21 10:02:40 K2)%(Y5   3SBRB 211000Z 08003KT CAVOK 23/22 Q1011SBRB2019-02-21T10:00:00Z-10.0-67.7823.022.08036.2129.852362VFRMETAR143.02019-02-21 10:02:404$(e5    3SCFA 211000Z 09005KT CAVOK 17/15 Q1013 NOSIGSCFA2019-02-21T10:00:00Z-23.42-70.4217.015.09056.2129.911417TRUEVFRMETAR120.02019-02-21 10:02:40*#(Y5   3SCAR 211000Z 11003KT CAVOK 21/16 Q1011SCAR2019-02-21T10:00:00Z-18.35-70.3221.016.011036.2129.852362VFRMETAR59.02019-02-21 10:02:40)"(Y5   3SCCF 211000Z 12011KT CAVOK 09/05 Q1027SCCF2019-02-21T10:00:00Z-22.5-68.99.05.0120116.2130.324802VFRMETAR2312.02019-02-21 10:02:40/!(e5   3SCIE 211000Z 02003KT 8000 OVC005 17/17 Q1013SCIE2019-02-21T10:00:00Z-36.77-73.0717.017.02034.9729.911417IFRMETAR16.02019-02-21 10:02:40 yN(*(o5    3NCMR 211000Z AUTO 03001KT //// ////// ///// Q1006NCMR2019-02-21T10:00:00Z-19.85-157.730129.704725TRUEMETAR8.02019-02-21 10:02:400)(o5   3NCPY 211000Z AUTO 01005KT //// ////// 28/26 Q1010NCPY2019-02-21T10:00:00Z-9.02-158.0728.026.010529.822834TRUEMETAR2.02019-02-21 10:02:401((o5   3NCMH 211000Z AUTO 34009KT //// ////// 26/25 Q1009NCMH2019-02-21T10:00:00Z-10.38-161.026.025.0340929.793306TRUEMETAR0.02019-02-21 10:02:408'(u5   3NCRK 211000Z AUTO 34011G24KT //// ////// 27/24 Q1009NCRK2019-02-21T10:00:00Z-10.05-161.0827.024.0340112429.793306TRUEMETAR5.02019-02-21 10:02:40&(75  3NCPK 211000Z AUTO NILNCPK2019-02-21T10:00:00Z-10.88-165.82TRUEMETAR3.02019-02-21 10:02:40 /E/7/(s5   3NFTF 211000Z 11006KT 9999 FEW016 SCT280 26/23 Q1012NFTF2019-02-21T10:00:00Z-21.23-175.1526.023.011066.2129.88189VFRMETAR38.02019-02-21 10:02:40H.)5    3WSSS 211000Z 04012KT 010V080 9999 FEW020 BKN300 30/22 Q1010 NOSIGWSSS2019-02-21T10:00:00Z1.37103.9730.022.040126.2129.822834TRUEVFRMETAR16.02019-02-21 10:02:40F-)5     3OPST 211000Z 13004KT 4000 FU SCT040 SCT100 19/13 Q1016 NOSIG RH71OPST2019-02-21T10:00:00Z32.5374.3719.013.013042.4930.0TRUEFUIFRMETAR247.02019-02-21 10:02:409,(q5    3WAMM 211000Z 36005KT 8000 SCT021 26/24 Q1013 NOSIGWAMM2019-02-21T10:00:00Z1.55124.9226.024.036054.9729.911417TRUEMVFRMETAR80.02019-02-21 10:02:405+(s5   3WSSL 211000Z 04012KT 9999 FEW020 BKN300 31/23 Q1010WSSL2019-02-21T10:00:00Z1.42103.8731.023.040126.2129.822834VFRMETAR14.02019-02-21 10:02:40 KN KO4)5  !  3BIHN 211000Z 33010KT 9999 -RADZ BR FEW006 BKN012 OVC016 03/03 Q0995BIHN2019-02-21T10:00:00Z64.3-15.233.03.0330106.2129.379921-RA -DZ BRMVFRMETAR7.02019-02-21 10:02:40*3(i5   3OSDI 211000Z 25003KT 3000BR BKN030 10/06 Q1020OSDI2019-02-21T10:00:00Z33.4236.5210.06.0250330.11811BRMETAR605.02019-02-21 10:02:40>2)5   3OSLK 211000Z 26006KT 9999 FEW026TCU SCT030 BKN100 16/10 Q1020OSLK2019-02-21T10:00:00Z35.435.9516.010.026066.2130.11811VFRMETAR48.02019-02-21 10:02:4041(s5   3OSKL 211000Z 14006KT 7000 FEW026 BKN100 13/05 Q1020OSKL2019-02-21T10:00:00Z37.0341.213.05.014064.3530.11811MVFRMETAR455.02019-02-21 10:02:40,0(e5   3SBSV 211000Z VRB02KT 9999 FEW020 29/24 Q1013SBSV2019-02-21T10:00:00Z-12.9-38.3229.024.0026.2129.911417VFRMETAR6.02019-02-21 10:02:40 (*s(:9(q5    3FDSK 211000Z 18009KT 9999 BKN035 27/20 Q1019 NOSIGFDSK2019-02-21T10:00:00Z-26.3531.7227.020.018096.2130.088583TRUEVFRMETAR324.02019-02-21 10:02:40A8(5    3NFFN 211000Z 13004KT 9999 SCT028 SCT048 27/26 Q1010 NOSIGNFFN2019-02-21T10:00:00Z-17.75177.4527.026.013046.2129.822834TRUEVFRMETAR18.02019-02-21 10:02:40>7(y5    3SPJC 211000Z 19003KT CAVOK 23/21 Q1010 NOSIG RMK PP000SPJC2019-02-21T10:00:00Z-12.02-77.1223.021.019036.2129.822834TRUEVFRMETAR13.02019-02-21 10:02:4016(k5  3BIBD 211000Z 15011G27KT 9999 BKN045 07/02 Q0983BIBD2019-02-21T10:00:00Z65.63-23.557.02.015011276.2129.02559VFRMETAR6.02019-02-21 10:02:40P5)!5    3UBBQ 211000Z 32006KT 9999 SCT020 05/M00 Q1018 R34/CLRD// NOSIG RMK MT OBSCUBBQ2019-02-21T10:00:00Z40.8247.725.00.032066.2130.059055TRUEVFRMETAR338.02019-02-21 10:02:40 `2{`->(e5   3SBFN 211000Z 09004KT 9999 FEW017 29/25 Q1012SBFN2019-02-21T10:00:00Z-3.85-32.4229.025.09046.2129.88189VFRMETAR56.02019-02-21 10:02:40*=(o5    3NCAT 211000Z AUTO 02002KT //// ////// ///// Q1001NCAT2019-02-21T10:00:00Z-19.97-158.1220229.557087TRUEMETAR11.02019-02-21 10:02:402<(o5   3NCMG 211000Z AUTO 01001KT //// ////// 25/24 Q1002NCMG2019-02-21T10:00:00Z-21.92-157.9525.024.010129.586615TRUEMETAR41.02019-02-21 10:02:401;(o5   3NCMK 211000Z AUTO 01001KT //// ////// 27/27 Q1005NCMK2019-02-21T10:00:00Z-20.15-157.3827.027.010129.675198TRUEMETAR9.02019-02-21 10:02:40H:) 5    3ZMUB 211000Z VRB01MPS CAVOK M01/M20 Q1022 NOSIG RMK QFE658.8 20ZMUB2019-02-21T10:00:00Z47.83106.78-1.0-20.0026.2130.177166TRUEVFRMETAR1330.02019-02-21 10:02:40 <6~<OC)5   3YLHI 211000Z AUTO 09018G29KT 9999 // SCT017 BKN032 OVC066 25/21 Q1010YLHI2019-02-21T10:00:00Z-31.53159.0725.021.09018296.2129.822834TRUEVFRSPECI2.02019-02-21 10:02:409B(q5    3TBPB 211000Z 09019KT 9999 FEW022 25/19 Q1015 NOSIGTBPB2019-02-21T10:00:00Z13.07-59.4825.019.090196.2129.970472TRUEVFRMETAR52.02019-02-21 10:02:40(A(Y5   3SBCP 211000Z 32004KT CAVOK 25/23 Q1013SBCP2019-02-21T10:00:00Z-21.7-41.325.023.032046.2129.911417VFRMETAR11.02019-02-21 10:02:402@(k5   3SBNF 211000Z 29004KT 9999 FEW020TCU 23/20 Q1013SBNF2019-02-21T10:00:00Z-26.88-48.6523.020.029046.2129.911417VFRMETAR5.02019-02-21 10:02:40D?)5     3YSNF 211000Z AUTO 05012KT 3000 // OVC002 24/// Q1009 RF00.0/000.2YSNF2019-02-21T10:00:00Z-29.02167.9250121.8629.793306TRUELIFRSPECI109.02019-02-21 10:02:40 !R!1H(e5    3LZIB 211000Z 30008KT CAVOK 09/01 Q1027 NOSIGLZIB2019-02-21T10:00:00Z48.1717.229.01.030086.2130.324802TRUEVFRMETAR134.02019-02-21 10:02:40:G(w5    3LZKZ 211000Z 07003KT 040V110 CAVOK 02/M01 Q1025 NOSIGLZKZ2019-02-21T10:00:00Z48.6721.232.0-1.07036.2130.265747TRUEVFRMETAR232.02019-02-21 10:02:404F(q5   3OMRK 211000Z 33011KT 9999 SCT040 23/10 Q1020 A3012OMRK2019-02-21T10:00:00Z25.6255.9223.010.0330116.2130.11811VFRMETAR31.02019-02-21 10:02:406E(u5   3OMSJ 211000Z 30004KT 250V350 9999 SCT040 23/10 Q1019OMSJ2019-02-21T10:00:00Z25.3255.5223.010.030046.2130.088583VFRMETAR33.02019-02-21 10:02:40lD)U5     3TFFF 211000Z AUTO 08014KT 9999 FEW030 BKN036 BKN042 23/20 Q1017 TEMPO 10015G25KT 3000 SHRA SCT018TCUTFFF2019-02-21T10:00:00Z14.6-61.023.020.080146.2130.029528TRUEVFR1.5METAR5.02019-02-21 10:02:40 6maL)35     3KSBD 211000Z AUTO 11004KT 5SM RA SCT013 BKN022 OVC027 07/04 A2965 RMK AO2 T00650040KSBD2019-02-21T10:00:00Z34.08-117.256.54.011045.029.648623TRUETRUERAMVFRMETAR353.02019-02-21 10:02:40?K(y5    3KSQL 211000Z AUTO 34006KT 10SM CLR 08/00 A2973 RMK AO2KSQL2019-02-21T10:00:00Z37.52-122.258.00.0340610.029.731298TRUETRUEVFRMETAR1.02019-02-21 10:02:40CJ(5    3KSYM 211000Z AUTO 31004KT 10SM SCT015 04/01 A3010 RMK AO2KSYM2019-02-21T10:00:00Z38.22-83.584.01.0310410.030.100393TRUETRUEVFRMETAR313.02019-02-21 10:02:40DI)5    3FMMI 211000Z 29010KT 250V320 9999 BKN023 27/18 Q1020 NOSIGFMMI2019-02-21T10:00:00Z-18.847.4727.018.0290106.2130.11811TRUEMVFRMETAR1276.02019-02-21 10:02:40 {A{@P(u5   3YNBR 211000Z AUTO 15019G29KT 9999 // NCD 27/15 Q1010YNBR2019-02-21T10:00:00Z-30.32149.8327.015.015019296.2129.822834TRUEVFRSPECI240.02019-02-21 10:02:40NO)5    3KCVH 211000Z AUTO 00000KT 10SM SCT031 BKN039 OVC047 06/04 A2971 RMK A01KCVH2019-02-21T10:00:00Z36.9-121.426.04.00010.029.71063TRUETRUEVFRMETAR70.02019-02-21 10:02:40JN)5    3KETH 211000Z AUTO 25009KT 10SM OVC009 M10/M12 A2991 RMK AO2KETH2019-02-21T10:00:00Z45.78-96.55-10.0-12.0250910.029.911417TRUETRUEIFRMETAR313.02019-02-21 10:02:40M)5      3KRYY 211000Z AUTO VRB03KT 4SM -RA BR BKN004 BKN025 OVC060 06/06 A3005 RMK AO2 LTG DSNT N AND NE TSE0950B0952E0957 CIG 001V011 P0005KRYY2019-02-21T10:00:00Z34.02-84.66.06.0034.030.050198TRUETRUE-RA BRLIFR0.05SPECI317.02019-02-21 10:02:40 I@I-U(e5   3SBFL 211000Z 00000KT 9999 FEW025 23/21 Q1014SBFL2019-02-21T10:00:00Z-27.67-48.5323.021.0006.2129.940945VFRMETAR5.02019-02-21 10:02:407T(s5   3SBMA 211000Z 27002KT 9999 BKN012 SCT100 26/26 Q1012SBMA2019-02-21T10:00:00Z-5.37-49.1326.026.027026.2129.88189MVFRMETAR102.02019-02-21 10:02:40@S)5    3SBAR 211000Z 00000KT 9999 VCSH SCT015 FEW018TCU BKN070 25/23 Q1 013SBAR2019-02-21T10:00:00Z-10.97-37.0725.023.0006.21VCSHVFRMETAR9.02019-02-21 10:02:40;R(w5    3MGGT 211000Z 00000KT 5000 BR SCT010 17/16 Q1022 A3018MGGT2019-02-21T10:00:00Z14.57-90.5317.016.0003.1130.177166BRMVFRMETAR1509.02019-02-21 10:02:40:Q(s5    3LZTT 211000Z 26015KT 9999 FEW040 05/M03 Q1023 NOSIGLZTT2019-02-21T10:00:00Z49.0720.255.0-3.0260156.2130.206694TRUEVFRMETAR707.02019-02-21 10:02:40 P9uP.Z(e5   3SBNT 211000Z 16005KT 9999 FEW020 28/24 Q1012SBNT2019-02-21T10:00:00Z-5.92-35.2528.024.016056.2129.88189VFRMETAR49.02019-02-21 10:02:402Y(e5   3SCVM 211000Z 32005KT 9999 OVC013 17/16 Q1015SCVM2019-02-21T10:00:00Z-32.95-71.4817.016.032056.2129.970472MVFRMETAR141.02019-02-21 10:02:403X(e5    3SCEL 211000Z 00000KT CAVOK 15/13 Q1014 NOSIGSCEL2019-02-21T10:00:00Z-33.37-70.7715.013.0006.2129.940945TRUEVFRMETAR476.02019-02-21 10:02:40>W(u5    3LFVP 211000Z 31025KT 9999 BKN025 M11/M16 Q1015 NOSIGLFVP2019-02-21T10:00:00Z46.77-56.18-11.0-16.0310256.2129.970472TRUEMVFRMETAR8.02019-02-21 10:02:40AV(5    3SUMU 211000Z 19013KT 9999 FEW033 BKN200 25/20 Q1013 NOSIGSUMU2019-02-21T10:00:00Z-34.82-56.025.020.0190136.2129.911417TRUEVFRMETAR32.02019-02-21 10:02:40 1Ov1@_)5   3YTRE 211000Z AUTO 16010KT //// // BKN029 BKN036 OVC040 22/19 Q1016YTRE2019-02-21T10:00:00Z-31.88152.5222.019.01601030.0TRUEMETAR12.02019-02-21 10:02:409^(o5    3YWGT 211000Z AUTO 23013KT 9999 // NCD 24/07 Q1015YWGT2019-02-21T10:00:00Z-36.42146.324.07.0230136.2129.970472TRUEVFRMETAR153.02019-02-21 10:02:40:](o5    3YWHA 211000Z AUTO 19017KT 9999 // NCD 22/16 Q1018YWHA2019-02-21T10:00:00Z-33.07137.5222.016.0190176.2130.059055TRUEVFRMETAR13.02019-02-21 10:02:40S\)5     3YWLM 211000Z AUTO 11013KT 8000 -SHRA SCT032 SCT037 BKN041 22/18 Q1017YWLM2019-02-21T10:00:00Z-32.8151.8322.018.0110134.9730.029528TRUE-SHRAMVFRMETAR9.02019-02-21 10:02:40+[(_5   3SBPA 211000Z 10001KT 9000 NSC 22/21 Q1014SBPA2019-02-21T10:00:00Z-30.0-51.1722.021.010015.5929.940945VFRMETAR3.02019-02-21 10:02:40 ?Az?5d(k5    3GOBD 211000Z 04011KT 9000 NSC 25/01 Q1015 NOSIGGOBD2019-02-21T10:00:00Z14.67-17.0725.01.040115.5929.970472TRUEVFRMETAR88.02019-02-21 10:02:40;c(o5    3YSTW 211000Z AUTO 13017KT 9999 // NCD 24/15 Q1014YSTW2019-02-21T10:00:00Z-31.07150.8524.015.0130176.2129.940945TRUEVFRMETAR410.02019-02-21 10:02:409b(o5    3YSWG 211000Z AUTO 23005KT 9999 // NCD 26/04 Q1014YSWG2019-02-21T10:00:00Z-35.13147.4726.04.023056.2129.940945TRUEVFRMETAR213.02019-02-21 10:02:40Aa(s5     3YTEF 211000Z AUTO 18015KT 9999 SHRA NCD 28/17 Q1014YTEF2019-02-21T10:00:00Z-21.72122.2328.017.0180156.2129.940945TRUESHRAVFRMETAR296.02019-02-21 10:02:409`(o5    3YTNK 211000Z AUTO 13007KT 9999 // NCD 38/01 Q1008YTNK2019-02-21T10:00:00Z-19.63134.1838.01.013076.2129.763779TRUEVFRMETAR377.02019-02-21 10:02:40 &lRh)'5    3SOCA 211000Z AUTO 05008KT 9999 FEW027 SCT070 26/21 Q1013 TEMPO SHRA SCT015TCUSOCA2019-02-21T10:00:00Z4.82-52.3726.021.05086.2129.911417TRUEVFRMETAR9.02019-02-21 10:02:404g(e5    3VOML 211000Z 29012KT CAVOK 33/20 Q1011 NOSIGVOML2019-02-21T10:00:00Z12.9774.8833.020.0290126.2129.852362TRUEVFRMETAR103.02019-02-21 10:02:404f(k5    3GQPP 211000Z 02007KT 8000 NSC 17/08 Q1018 NOSIGGQPP2019-02-21T10:00:00Z20.92-17.0217.08.02074.9730.059055TRUEMVFRMETAR3.02019-02-21 10:02:40Te)/5   3FQPB 211000Z 12006KT 050V190 9999 FEW020 FEW025CB SCT100 30/25 Q1014 RMK CB TO SWFQPB2019-02-21T10:00:00Z-12.9740.530.025.012066.2129.940945VFRMETAR50.02019-02-21 10:02:40 KHl) 5     3LBGO 211000Z AUTO 34004KT 300V010 9999 BKN065 08/00 Q1026 NOSIGLBGO2019-02-21T10:00:00Z43.1525.728.00.034046.2130.295275TRUETRUEVFRMETAR86.02019-02-21 10:02:40/k(e5   3SBCR 211000Z 06002KT 9999 FEW020 26/26 Q1010SBCR2019-02-21T10:00:00Z-19.0-57.6726.026.06026.2129.822834VFRMETAR141.02019-02-21 10:02:40Gj)5    3TNCM 211000Z 07009KT 030V120 9999 FEW020 24/18 Q1018 A3008 NOSIG TNCM2019-02-21T10:00:00Z18.05-63.1224.018.07096.2130.059055TRUEVFRMETAR4.02019-02-21 10:02:40bi)=5     3TFFR 211000Z AUTO 09003KT 050V140 CAVOK 23/20 Q1017 TEMPO 10018G30KT 3000 SHRA SCT018TCUTFFR2019-02-21T10:00:00Z16.27-61.5323.020.09036.2130.029528TRUEVFR1.8METAR11.02019-02-21 10:02:40 D1wD+q(_5   3LBWB 211000Z 27004KT 9999 SKC 11/00 Q1024LBWB2019-02-21T10:00:00Z43.4228.1811.00.027046.2130.236221VFRMETAR201.02019-02-21 10:02:40Ap)5    3LBSF 211000Z 28006KT 260V340 9999 SCT046 07/M04 Q1026 NOSIGLBSF2019-02-21T10:00:00Z42.723.427.0-4.028066.2130.295275TRUEVFRMETAR530.02019-02-21 10:02:405o(q5    3LBWN 211000Z VRB04KT 9999 BKN049 11/01 Q1024 NOSIGLBWN2019-02-21T10:00:00Z43.2227.8211.01.0046.2130.236221TRUEVFRMETAR43.02019-02-21 10:02:404n(k5    3LBBG 211000Z 17005KT 9000 NSC 10/02 Q1025 NOSIGLBBG2019-02-21T10:00:00Z42.5727.5210.02.017055.5930.265747TRUEVFRMETAR28.02019-02-21 10:02:40Im)5     3LBPD 211000Z AUTO 27016KT 240V300 9999 NCD 13/M04 Q1025 NOSIGLBPD2019-02-21T10:00:00Z42.1324.813.0-4.0270166.2130.265747TRUETRUEVFRMETAR185.02019-02-21 10:02:40 gMg)v(Y5   3SBRJ 211000Z 36002KT CAVOK 27/25 Q1013SBRJ2019-02-21T10:00:00Z-22.88-43.1727.025.036026.2129.911417VFRMETAR3.02019-02-21 10:02:40Hu)5    3LHBP 211000Z 25007KT 220V280 9999 FEW040 BKN081 10/00 Q1027 NOSIGLHBP2019-02-21T10:00:00Z47.4219.2710.00.025076.2130.324802TRUEVFRMETAR185.02019-02-21 10:02:400t(g5   3LBPG 211000Z 25016KT 9999 FEW070 13/M04 Q1024LBPG2019-02-21T10:00:00Z42.2824.7213.0-4.0250166.2130.236221VFRMETAR58.02019-02-21 10:02:40-s(e5   3LBIA 211000Z 02004KT 9999 SCT040 12/02 Q1025LBIA2019-02-21T10:00:00Z42.4526.3512.02.02046.2130.265747VFRMETAR155.02019-02-21 10:02:40-r(a5   3LBPL 211000Z 27010KT 9999 SKC 11/M01 Q1026LBPL2019-02-21T10:00:00Z43.4524.511.0-1.0270106.2130.295275VFRMETAR101.02019-02-21 10:02:40 71l76{(s5   3SBSN 211000Z 15002KT 9999 FEW017 SCT100 25/24 Q1011SBSN2019-02-21T10:00:00Z-2.42-54.7825.024.015026.2129.852362VFRMETAR72.02019-02-21 10:02:40%z([5   3LDOS 211000Z VRB02KT CAVOK 11/M00 Q1028LDOS2019-02-21T10:00:00Z45.4718.8211.00.0026.2130.35433VFRMETAR89.02019-02-21 10:02:40Hy)5    3VHHH 211000Z 12009KT 100V170 9999 FEW010 SCT045 24/20 Q1015 NOSIGVHHH2019-02-21T10:00:00Z22.32113.9224.020.012096.2129.970472TRUEVFRMETAR9.02019-02-21 10:02:40?x)5   3LDDU 211000Z 20006KT 160V240 CAVOK 14/06 Q1026 TEMPO 26008KTLDDU2019-02-21T10:00:00Z42.5718.2714.06.020066.2130.295275VFRMETAR165.02019-02-21 10:02:40Iw) 5     3NWWW 211000Z AUTO VRB02KT 9999 BKN056 BKN066 30/21 Q1003 NOSIGNWWW2019-02-21T10:00:00Z-22.02166.2230.021.0026.2129.616142TRUETRUEVFRMETAR16.02019-02-21 10:02:40 xB/x1(g5    3OKBK 211000Z 00000KT CAVOK 21/M02 Q1021 NOSIGOKBK2019-02-21T10:00:00Z29.2247.9721.0-2.0006.2130.147638TRUEVFRMETAR55.02019-02-21 10:02:40.(e5   3FQCH 211000Z VRB02KT 9999 BKN015 28/20 Q1020FQCH2019-02-21T10:00:00Z-19.1533.4328.020.0026.2130.11811MVFRMETAR732.02019-02-21 10:02:40*~(Y5   3SBBR 211000Z 00000KT CAVOK 20/18 Q1018SBBR2019-02-21T10:00:00Z-15.87-47.9220.018.0006.2130.059055VFRMETAR1061.02019-02-21 10:02:40)}(_5   3LDRI 211000Z VRB03KT 8000 NSC 12/02 Q1027LDRI2019-02-21T10:00:00Z45.2214.5712.02.0034.9730.324802MVFRMETAR85.02019-02-21 10:02:408|(u5    3LDSP 211000Z 18003KT 130V210 CAVOK 14/01 Q1027 NOSIGLDSP2019-02-21T10:00:00Z43.5216.314.01.018036.2130.324802TRUEVFRMETAR21.02019-02-21 10:02:40 AW)5     3CYXS 210959Z AUTO 00000KT 1/8SM FZFG BKN001 M23/M25 A3015 RMK SLP272CYXS2019-02-21T09:59:00Z53.9-122.68-23.0-25.0000.1330.150591027.2TRUEFZFGLIFRSPECI691.02019-02-21 10:02:407(s5   3SBGR 211000Z 05004KT 7000 BKN005 BKN085 21/21 Q1017SBGR2019-02-21T10:00:00Z-23.42-46.4721.021.05044.3530.029528IFRMETAR750.02019-02-21 10:02:40;({5    3UBEE 211000Z 35004KT CAVOK 09/01 Q1019 R30/CLRD// NOSIGUBEE2019-02-21T10:00:00Z40.6347.159.01.035046.2130.088583TRUEVFRMETAR15.02019-02-21 10:02:409(u5    3LEMO 211000Z 24003KT 170V300 CAVOK 15/05 Q1026 NOSIGLEMO2019-02-21T10:00:00Z37.17-5.6215.05.024036.2130.295275TRUEVFRMETAR88.02019-02-21 10:02:40 \)'5     3CYTZ 210959Z AUTO 23015KT 8SM -RA BKN021 BKN027 OVC043 02/01 A2983 RMK SLP105CYTZ2019-02-21T09:59:00Z43.63-79.42.01.0230158.029.8287411010.5TRUE-RAMVFRSPECI77.02019-02-21 10:02:40W)5   3CYKF 210959Z AUTO 26018G23KT 9SM SCT022 OVC030 02/M02 A2982 RMK SLP112CYKF2019-02-21T09:59:00Z43.47-80.382.0-2.026018239.029.8198811011.2TRUEMVFRSPECI317.02019-02-21 10:02:406)95      3PAJC 210959Z AUTO 25019G32KT 2SM -SN FEW009 BKN030 OVC040 02/M02 A3005 RMK AO2 PK WND 23033/0911 RAB13E51SNE13B51 PRESRR SLP178 P0000 T00171017 FZRANOPAJC2019-02-21T09:59:00Z56.32-158.371.7-1.725019322.030.0501981017.8TRUETRUETRUE-SNIFR0.005SPECI15.02019-02-21 10:02:40 @"@\ )#5    3KNOZ 210959Z AUTO 14006KT 10SM BKN100 09/03 A2968 RMK AO2 SLP001 T00940033 KNOZ2019-02-21T09:59:00Z32.5-114.459.43.3140610.029.6811031000.1TRUETRUEVFRMETAR103.02019-02-21 10:02:40n )?5      3KNGU 210959Z 22008KT 5SM -RA BR BKN003 OVC007 05/05 A3003 RMK AO2 SLP170 P0004 T00500050 KNGU2019-02-21T09:59:00Z36.92-76.275.05.022085.030.0295281017.0TRUE-RA BRLIFR0.04METAR5.02019-02-21 10:02:40L )5     3KDVP 210959Z AUTO 27015KT 4SM BR CLR M16/M18 A2990 RMK AO2KDVP2019-02-21T09:59:00Z43.98-95.78-16.0-18.0270154.029.899607TRUETRUEBRMVFRMETAR495.02019-02-21 10:02:40)w5      3PAWM 210959Z AUTO 13019G27KT 2 1/2SM -SN BR FEW011 BKN019 OVC050 M04/M06 A2967 RMK AO2 PK WND 13027/0959 P0000 FZRANOPAWM2019-02-21T09:59:00Z64.68-163.42-4.0-6.013019272.529.66929TRUETRUETRUE-SN BRIFR0.005SPECI82.02019-02-21 10:02:40 =1#=`);5     3KCLT 210959Z 20003KT 1SM R18C/P6000FT BR OVC002 04/03 A3008 RMK AO2 SFC VIS 3 T00390033KCLT2019-02-21T09:59:00Z35.22-80.953.93.320031.030.079725TRUEBRLIFRSPECI220.02019-02-21 10:02:40)w5      3KEET 210959Z AUTO 00000KT 10SM VCTS -RA BKN002 BKN014 OVC031 14/14 A3000 RMK AO2 LTG DSNT ALQDS TSE59 P0001 T01440144KEET2019-02-21T09:59:00Z33.18-86.7814.414.40010.030.0TRUETRUEVCTS -RALIFR0.01SPECI173.02019-02-21 10:02:40c )=5     3KSLK 210959Z AUTO 23009KT 2 1/2SM BR BKN006 OVC011 M02/M02 A2969 RMK AO2 I1001 T10171022KSLK2019-02-21T09:59:00Z44.4-74.2-1.7-2.223092.529.68996TRUETRUEBRIFRSPECI498.02019-02-21 10:02:40` )-5     3KWMC 210959Z AUTO 03005KT 3/4SM BR BKN002 BKN024 M09/M11 A2963 RMK AO2 T10941106KWMC2019-02-21T09:59:00Z40.9-117.8-9.4-10.63050.7529.630905TRUETRUEBRLIFRSPECI1310.02019-02-21 10:02:40 D((%D[)5     3CYDN 210958Z AUTO 25006KT 9SM -SN FEW019 SCT120 M17/M19 A3001 RMK SLP193CYDN2019-02-21T09:58:00Z51.1-100.03-17.0-19.025069.030.0088581019.3TRUE-SNVFRSPECI305.02019-02-21 10:02:40})]5     3KEUF 210958Z AUTO 00000KT 5SM BR BKN006 BKN012 OVC017 21/21 A3003 RMK AO2 CIG 004V009 SLP166 T02110206 $KEUF2019-02-21T09:58:00Z31.95-85.1321.120.6005.030.0295281016.6TRUETRUETRUEBRIFRSPECI87.02019-02-21 10:02:40z)O5       3PATO 210959Z AUTO VRB04KT 2 1/2SM -SN BR BKN028 OVC039 M01/M03 A2976 RMK AO2 P0000 T10111033 TSNOPATO2019-02-21T09:59:00Z60.78-148.85-1.1-3.3042.529.760826TRUETRUETRUE-SN BRIFR0.005SPECI31.02019-02-21 10:02:40R)5     3KBTR 210959Z AUTO 03007KT 3SM BR OVC004 13/12 A2997 RMK AO2 T01280122KBTR2019-02-21T09:59:00Z30.53-91.1512.812.23073.029.970472TRUETRUEBRLIFRSPECI21.02019-02-21 10:02:40 f)'5    3KBIF 210958Z AUTO 04003KT 10SM BKN130 00/M13 A2976 RMK AO2 SLP061 T10011131 $KBIF2019-02-21T09:58:00Z31.85-106.38-0.1-13.140310.029.7608261006.1TRUETRUETRUEVFRMETAR1203.02019-02-21 10:02:40b)%5    3KTCM 210958Z AUTO 00000KT 10SM OVC020 00/00 A3004 RMK AO2 SLP179 T10011001 $KTCM2019-02-21T09:58:00Z47.12-122.47-0.1-0.10010.030.0413381017.9TRUETRUETRUEMVFRSPECI98.02019-02-21 10:02:40 )g5     3K1AM 210958Z AUTO 24007KT 2 1/4SM -SN BKN009 M10/M12 A2994 RMK AO2 VIS 2 1/4V3 CIG 009V024 SLP168 T11031117 $K1AM2019-02-21T09:58:00Z47.28-110.8-10.3-11.724072.2529.9409451016.8TRUETRUETRUE-SNIFRMETAR1219.02019-02-21 10:02:40 E"EW)5    3KROG 210958Z AUTO 07005KT 9SM CLR 01/M01 A3005 RMK AO2 SLP182 T00061011KROG2019-02-21T09:58:00Z36.37-94.080.6-1.17059.030.0501981018.2TRUETRUEVFRMETAR415.02019-02-21 10:02:40P)5    3KSAW 210958Z AUTO 00000KT 10SM OVC017 M07/M08 A2968 RMK AO2 T10671082KSAW2019-02-21T09:58:00Z46.35-87.4-6.7-8.20010.029.681103TRUETRUEMVFRMETAR372.02019-02-21 10:02:40a)%5      3KBIL 210958Z 26004KT 2SM -SN BR OVC028 M10/M11 A2989 RMK AO2 P0001 T11001111KBIL2019-02-21T09:58:00Z45.8-108.55-10.0-11.126042.029.890747TRUE-SN BRIFR0.01METAR1091.02019-02-21 10:02:40)5   3KVBG 210958Z AUTO 36020G27KT 10SM FEW023 SCT032 BKN043 BKN055 OVC100 09/04 A2972 RMK AO2 PK WND 30031/53 SLP068 T00850042 $KVBG2019-02-21T09:58:00Z34.73-120.588.54.2360202710.029.7194881006.8TRUETRUETRUEBKN5500VFRSPECI112.02019-02-21 10:02:40 6.6V)5     3KLWC 210958Z AUTO 00000KT 3SM BR FEW005 M10/M12 A3009 RMK AO2 T11001117KLWC2019-02-21T09:58:00Z39.02-95.22-10.0-11.7003.030.088583TRUETRUEBRMVFRSPECI253.02019-02-21 10:02:40){5      3KMEI 210958Z AUTO 35007KT 10SM VCTS -RA OVC020 12/10 A3004 RMK AO2 LTG DSNT NW-NE TSB43E58 SLP171 P0004 I1000 T01220100KMEI2019-02-21T09:58:00Z32.33-88.7512.210.0350710.030.0413381017.1TRUETRUEVCTS -RAMVFR0.04SPECI89.02019-02-21 10:02:40b)'5     3KMRH 210958Z AUTO 00000KT 1/4SM FG VV002 13/13 A3010 RMK AO2 SLP191 T01330133KMRH2019-02-21T09:58:00Z34.73-76.6513.313.3000.2530.1003931019.1TRUETRUEFGLIFR200SPECI3.02019-02-21 10:02:40d)/5      3PAMD 210958Z AUTO 18012KT 10SM -RA BKN012 BKN023 OVC027 03/02 A2966 RMK AO2 P0001PAMD2019-02-21T09:58:00Z59.43-146.33.02.01801210.029.660433TRUETRUE-RAMVFR0.01METAR14.02019-02-21 10:02:40 r9Sr[")5    3K9L2 210958Z AUTO 24012KT 10SM CLR 03/M01 A2958 RMK AO2 SLP018 T00331015K9L22019-02-21T09:58:00Z34.97-117.873.3-1.52401210.029.580711001.8TRUETRUEVFRSPECI701.02019-02-21 10:02:40`!)5    3KAFF 210958Z AUTO 34007KT 10SM CLR M15/M18 A2965 RMK AO2 SLP107 T11511178KAFF2019-02-21T09:58:00Z38.97-104.82-15.1-17.8340710.029.6486231010.7TRUETRUEVFRSPECI2003.02019-02-21 10:02:40V )5   3K0J4 210958Z AUTO 00000KT 10SM 21/20 A3004 RMK AO2 SLP169 T02110200 $K0J42019-02-21T09:58:00Z31.05-86.3221.120.00010.030.0413381016.9TRUETRUETRUESPECI96.02019-02-21 10:02:40e)?5     3KJFK 210958Z 34010KT 1SM R04R/P6000FT BR OVC004 01/01 A2991 RMK AO2 SFC VIS 5 T00110011 $KJFK2019-02-21T09:58:00Z40.63-73.771.11.1340101.029.911417TRUETRUEBRLIFRSPECI9.02019-02-21 10:02:40 T -@Tf&))5    3KCVS 210958Z AUTO 00000KT 10SM OVC120 M02/M13 A2979 RMK AO2 SLP087 T10181130 $KCVS2019-02-21T09:58:00Z34.37-103.32-1.8-13.00010.029.7903541008.7TRUETRUETRUEVFRMETAR1309.02019-02-21 10:02:40g%))5    3KCWN 210958Z AUTO 32003KT 10SM BKN230 M09/M14 A2959 RMK AO2 SLP985 T10901143 $KCWN2019-02-21T09:58:00Z38.75-104.85-9.0-14.3320310.029.589567998.5TRUETRUETRUEVFRMETAR2040.02019-02-21 10:02:40Z$)5    3KEDW 210958Z AUTO 24011KT 10SM CLR 02/02 A2957 RMK AO2 SLP017 T00170017KEDW2019-02-21T09:58:00Z34.88-117.871.71.72401110.029.5688971001.7TRUETRUEVFRMETAR702.02019-02-21 10:02:40m#)15     3K4MR 210958Z AUTO 23008KT 10SM OVC140 03/M14 A2977 RMK AO2 SLP070 T00261138 TSNO $K4MR2019-02-21T09:58:00Z34.3-103.82.6-13.8230810.029.7696861007.0TRUETRUETRUETRUEVFRMETAR1326.02019-02-21 10:02:40 j!DWjg*)75    3KLOR 210958Z AUTO 19005KT 10SM OVC006 21/21 A3003 RMK AO2 LTG DSNT N SLP151 T02120207KLOR2019-02-21T09:58:00Z31.35-85.7521.220.7190510.030.0295281015.1TRUETRUEIFRSPECI74.02019-02-21 10:02:40g))75    3KSXS 210958Z AUTO 20003KT 9SM OVC003 21/21 A3002 RMK AO2 LTG DSNT NW SLP165 T02090205KSXS2019-02-21T09:58:00Z31.37-85.8520.920.520039.030.020671016.5TRUETRUELIFRSPECI122.02019-02-21 10:02:40W()#5    3K1YT 210958Z AUTO 00000KT 10SM BKN055 M05/M09 A2997 RMK AO2 SLPNO T10541086K1YT2019-02-21T09:58:00Z46.67-120.45-5.4-8.60010.029.970472TRUETRUEVFRMETAR438.02019-02-21 10:02:40Y')5    3KBKF 210958Z 30004KT 10SM FEW220 M10/M14 A2971 RMK AO2A SLP087 T10961142KBKF2019-02-21T09:58:00Z39.72-104.75-9.6-14.2300410.029.710631008.7TRUEVFRMETAR1726.02019-02-21 10:02:40 **b.)/5    3KGRK 210958Z AUTO 13003KT 10SM BKN140 OVC170 07/02 A2992 RMK AO2 SLP131 T00700020KGRK2019-02-21T09:58:00Z31.07-97.837.02.0130310.029.9202751013.1TRUETRUEVFRSPECI309.02019-02-21 10:02:40`-)#5    3KFHU 210958Z AUTO 15009KT 10SM OVC110 04/M14 A2974 RMK AO2 SLP045 T00351137KFHU2019-02-21T09:58:00Z31.58-110.353.5-13.7150910.029.7401581004.5TRUETRUEVFRMETAR1438.02019-02-21 10:02:40f,)75    3KHEY 210958Z AUTO 22003KT 8SM OVC003 21/21 A3002 RMK AO2 LTG DSNT NW SLP166 T02110211KHEY2019-02-21T09:58:00Z31.35-85.6521.121.122038.030.020671016.6TRUETRUELIFRSPECI97.02019-02-21 10:02:40+)}5      3KHUA 210958Z AUTO 04008KT 2 1/4SM -RA BR OVC003 11/10 A3005 RMK AO2 VIS 2 1/4V3 LTG DSNT SW RAB54 SLP177 P0000 T01050103KHUA2019-02-21T09:58:00Z34.68-86.6810.510.34082.2530.0501981017.7TRUETRUE-RA BRLIFR0.005SPECI209.02019-02-21 10:02:40 77_2)5    3KHIF 210958Z AUTO 09010KT 10SM CLR M06/M11 A2962 RMK AO2 SLP052 T10651111KHIF2019-02-21T09:58:00Z41.12-111.97-6.5-11.1901010.029.6190951005.2TRUETRUEVFRMETAR1459.02019-02-21 10:02:40[1)5    3KGXF 210958Z AUTO 16008KT 9SM BKN095 11/01 A2968 RMK AO2 SLP046 T01110006KGXF2019-02-21T09:58:00Z32.87-112.7211.10.616089.029.6811031004.6TRUETRUEVFRMETAR262.02019-02-21 10:02:40~0)c5     3KGXA 210958Z AUTO 25009KT 10SM 3/55 BKN070 BKN085 01/ A2955 RMK AO2 PK WND 24089/02 SLP007 WND DATA ESTMD $KGXA2019-02-21T09:58:00Z34.57-117.671.0250910.029.5511821000.7TRUETRUETRUEVFRMETAR923.02019-02-21 10:02:40y/)O5     3KGFA 210958Z 35007KT 2 1/4SM -SN OVC019 M10/M10 A2999 RMK AO2A SLP230 ALSTG/SLP ESTMD T10961102 $KGFA2019-02-21T09:58:00Z47.5-111.17-9.6-10.235072.2529.9911421023.0TRUETRUE-SNIFRSPECI1075.02019-02-21 10:02:40 L $LR6) 5     3PWAK 210958Z AUTO 08008KT 9000 HZ CLR 25/19 A3001 RMK AO2 SLP169PWAK2019-02-21T09:58:00Z19.28166.6525.019.08085.5930.0088581016.9TRUETRUEHZVFRMETAR4.02019-02-21 10:02:40b5)%5    3KT70 210958Z AUTO 10008KT 10SM OVC055 10/02 A2983 RMK AO2 SLP097 T00990022 $KT702019-02-21T09:58:00Z29.12-100.489.92.2100810.029.8287411009.7TRUETRUETRUEVFRSPECI298.02019-02-21 10:02:40s4)A5      3KRIV 210958Z AUTO 19005KT 10SM RA BKN027 OVC033 05/05 A2962 RMK AO2 SLP032 P0007 T00520052KRIV2019-02-21T09:58:00Z33.87-117.275.25.2190510.029.6190951003.2TRUETRUERAMVFR0.07METAR469.02019-02-21 10:02:40u3)Y5    3KPOE 210958Z AUTO 01006KT 10SM BKN055 BKN080 OVC090 10/07 A2996 RMK AO2 LTG DSNT S-SW SLP147 T00970073KPOE2019-02-21T09:58:00Z31.05-93.29.77.310610.029.9586621014.7TRUETRUEVFRMETAR101.02019-02-21 10:02:40 3.3u:)=5     3K1OM 210958Z AUTO 33009KT 4SM -SN SCT009 BKN019 M10/M11 A2989 RMK AO2 SLP183 T10961114 $K1OM2019-02-21T09:58:00Z47.33-108.93-9.6-11.433094.029.8907471018.3TRUETRUETRUE-SNMVFRMETAR1086.02019-02-21 10:02:40_9)#5    3K1EM 210958Z AUTO 29003KT 4SM -SN M M11/M12 A2990 RMK AO2 SLPNO T11101120 $K1EM2019-02-21T09:58:00Z47.45-109.42-11.0-12.029034.029.899607TRUETRUETRUE-SNMETAR1116.02019-02-21 10:02:40l8)-5     3K1LM 210958Z AUTO 36021KT 1SM SN OVC015 M11/M12 A2982 RMK AO2 SLP191 T11101125 $K1LM2019-02-21T09:58:00Z46.7-109.73-11.0-12.5360211.029.8198811019.1TRUETRUETRUESNIFRMETAR1414.02019-02-21 10:02:40u7)=5      3PAFR 210958Z AUTO 03003KT 2SM -PL BR OVC007 M07/M08 A2976 RMK AO2 SLP090 P0000 T10691077PAFR2019-02-21T09:58:00Z61.27-149.65-6.9-7.73032.029.7608261009.0TRUETRUE-PL BRIFR0.005METAR115.02019-02-21 10:02:40 v=)55     3K1JM 210958Z AUTO 33013KT 4SM -SN BR OVC016 M10/M11 A2996 RMK AO2 SLP221 T11001110 $K1JM2019-02-21T09:58:00Z47.75-111.55-10.0-11.0330134.029.9586621022.1TRUETRUETRUE-SN BRMVFRMETAR1152.02019-02-21 10:02:40o<)15     3K1KM 210958Z AUTO 02015KT 10SM -SN OVC026 M10/M12 A2984 RMK AO2 SLP182 T10961120 $K1KM2019-02-21T09:58:00Z46.45-109.8-9.6-12.0201510.029.8405511018.2TRUETRUETRUE-SNMVFRMETAR1330.02019-02-21 10:02:40l;)55     3K1MM 210958Z AUTO 33009KT 1 7/8SM -SN BKN007 M11/M12 A2989 RMK AO2 SLPNO T11061119 $K1MM2019-02-21T09:58:00Z47.02-109.63-10.6-11.933091.8829.890747TRUETRUETRUE-SNIFRMETAR1256.02019-02-21 10:02:40 u@)55     3K1CM 210958Z AUTO 30016KT 3SM -SN BR OVC021 M11/M12 A2987 RMK AO2 SLP204 T11071121 $K1CM2019-02-21T09:58:00Z47.1-110.17-10.7-12.1300163.029.8700791020.4TRUETRUETRUE-SN BRMVFRMETAR1337.02019-02-21 10:02:40?)y5     3K1GM 210958Z AUTO 36016KT 2 1/2SM -SN FEW007 BKN015 M10/M11 A2990 RMK AO2 VIS 1 7/8V2 1/2 BKN V OVC SLP201 T11051115 $K1GM2019-02-21T09:58:00Z47.33-112.1-10.5-11.5360162.529.8996071020.1TRUETRUETRUE-SNIFRMETAR1311.02019-02-21 10:02:40>)]5    3K1FM 210958Z AUTO 01031G34KT 1/4SM +SN BR VV007 M12/M14 A2992 RMK AO2 PK WND 01034/35 SLP217 T11221136 $K1FM2019-02-21T09:58:00Z47.6-112.32-12.2-13.61031340.2529.9202751021.7TRUETRUETRUE+SN BRLIFR700METAR1116.02019-02-21 10:02:40 iDQibD)!5    3KLUF 210958Z AUTO 16006KT 10SM CLR 10/M03 A2968 RMK AO2 SLP048 T01001027 $KLUF2019-02-21T09:58:00Z33.52-112.3710.0-2.7160610.029.6811031004.8TRUETRUETRUEVFRMETAR332.02019-02-21 10:02:40mC)75    3PAFB 210958Z AUTO 00000KT 10SM BKN100 OVC130 M14/M17 A2993 RMK AO2 SLP149 T11431166 $PAFB2019-02-21T09:58:00Z64.83-147.62-14.3-16.60010.029.9291341014.9TRUETRUETRUEVFRMETAR137.02019-02-21 10:02:40UB)5    3RKSO 210958Z 27004KT 7SM CLR 02/M04 A3030 RMK AO2A SLP265 T00151036 $RKSO2019-02-21T09:58:00Z37.07127.021.5-3.627047.030.3011821026.5TRUETRUEVFRMETAR12.02019-02-21 10:02:40[A)#5    3KLGF 210958Z AUTO 23004KT 10SM OVC085 11/03 A2966 RMK AO2 SLPNO T01120029 $KLGF2019-02-21T09:58:00Z32.87-114.411.22.9230410.029.660433TRUETRUETRUEVFRMETAR132.02019-02-21 10:02:40 $$fH)#5    3KFCS 210958Z AUTO 34010KT 10SM CLR M10/M14 A2967 RMK AO2 SLP109 T11001138 $KFCS2019-02-21T09:58:00Z38.67-104.77-10.0-13.83401010.029.669291010.9TRUETRUETRUEVFRMETAR1789.02019-02-21 10:02:40zG)O5    3KGOV 210958Z AUTO 26012G19KT 10SM OVC034 M01/M06 A2976 RMK AO2 UPB0849E11 SLPNO P0000 T10081057 $KGOV2019-02-21T09:58:00Z44.68-84.73-0.8-5.7260121910.029.760826TRUETRUETRUEVFR0.005METAR353.02019-02-21 10:02:40hF)35    3KGRF 210958Z AUTO 00000KT 10SM SCT026 OVC038 00/00 A3004 RMK AO2 SLP179 T10051005 $KGRF2019-02-21T09:58:00Z47.07-122.57-0.5-0.50010.030.0413381017.9TRUETRUETRUEVFRMETAR92.02019-02-21 10:02:40|E)O5      3KINS 210958Z AUTO 08005KT 8SM -UP OVC008 00/00 A2955 RMK AO2 UPB42 SLP003 P0000 T00040001 RVRNO $KINS2019-02-21T09:58:00Z36.58-115.670.40.18058.029.5511821000.3TRUETRUETRUEUPIFR0.005METAR955.02019-02-21 10:02:40 P*BPlL)95     3KSLI 210958Z AUTO 26004KT 10SM FEW029 06/06 A2965 RMK AO2 RAE01 SLP044 P0000 T00640055KSLI2019-02-21T09:58:00Z33.77-118.036.45.5260410.029.6486231004.4TRUETRUEVFR0.005METAR11.02019-02-21 10:02:40bK)'5    3KSUU 210958Z AUTO 01007KT 10SM BKN130 01/M01 A2972 RMK AO2 SLP071 T00141012 $KSUU2019-02-21T09:58:00Z38.27-121.921.4-1.210710.029.7194881007.1TRUETRUETRUEVFRMETAR19.02019-02-21 10:02:40fJ)35    3KBAB 210958Z AUTO 01003KT 10SM BKN060 OVC090 05/02 A2971 RMK AO2 SLP064 T00450022 $KBAB2019-02-21T09:58:00Z39.12-121.424.52.210310.029.710631006.4TRUETRUETRUEVFRMETAR34.02019-02-21 10:02:40dI)'5    3KDMA 210958Z AUTO 19003KT 10SM FEW130 05/M08 A2974 RMK AO2 SLP059 T00541078 $KDMA2019-02-21T09:58:00Z32.17-110.875.4-7.8190310.029.7401581005.9TRUETRUETRUEVFRMETAR824.02019-02-21 10:02:40 \uPP)5     3KESN 210957Z AUTO 27004KT 3SM BR OVC002 02/01 A3003 RMK AO2 T00180013KESN2019-02-21T09:57:00Z38.8-76.071.81.327043.030.029528TRUETRUEBRLIFRSPECI22.02019-02-21 10:02:40WO)5    3OAIX 210958Z 23003KT 9999 CLR 03/00 A3011 RMK AO2A SLP173 T00291005 $OAIX2019-02-21T09:58:00Z34.9569.272.9-0.523036.2130.1092531017.3TRUETRUEVFRMETAR1492.02019-02-21 10:02:40aN)-5     3CYLW 210958Z AUTO 02004KT 350V050 9SM -SN BKN049 OVC065 M04/M05 A3009 RMK SLP215CYLW2019-02-21T09:58:00Z49.95-119.37-4.0-5.02049.030.0885831021.5TRUE-SNVFRSPECI430.02019-02-21 10:02:40M(W5   3MUCF 210958Z AUTO 07002KT 22/21 Q1016MUCF2019-02-21T09:58:00Z22.13-80.422.021.070230.0TRUEMETAR39.02019-02-21 10:02:40 Q2>QgT)+5     3PHNG 210957Z 00000KT 10SM CLR 19/17 A2997 RMK AO2 SLP143 T01890172 402440167 $ PHNG2019-02-21T09:57:00Z21.43-157.7718.917.20010.029.9704721014.3TRUETRUEVFR24.416.7METAR3.02019-02-21 10:02:40nS)35     3KNJM 210957Z AUTO 33005KT 1/4SM FG VV002 12/12 A3010 RMK AO2 SLP196 T01170117 PNO $KNJM2019-02-21T09:57:00Z34.67-77.0211.711.733050.2530.1003931019.6TRUETRUETRUEFGLIFR200METAR7.02019-02-21 10:02:40]R)5    3KNTD 210957Z AUTO 30010KT 10SM CLR 09/03 A2967 RMK AO2 SLP048 T00890028 $KNTD2019-02-21T09:57:00Z34.12-119.128.92.83001010.029.669291004.8TRUETRUETRUEVFRMETAR4.02019-02-21 10:02:40eQ)-5     3KEAR 210957Z AUTO 00000KT 10SM CLR M18/M20 A2998 RMK AO2 SLP187 T11831200 FZRANOKEAR2019-02-21T09:57:00Z40.72-99.0-18.3-20.00010.029.979331018.7TRUETRUETRUEVFRMETAR649.02019-02-21 10:02:40 A3AlX)A5    3CYQA 210957Z AUTO 26011G20KT 210V280 9SM UP SCT008 OVC012 01/M01 A2969 RMK ICG MISG SLP069CYQA2019-02-21T09:57:00Z44.97-79.281.0-1.026011209.029.689961006.9TRUEUPMVFRSPECI282.02019-02-21 10:02:40AW)5    3KMKC 210957Z 00000KT 7SM CLR M03/M06 A3009 RMK AO2 T10331056KMKC2019-02-21T09:57:00Z39.12-94.6-3.3-5.6007.030.088583TRUEVFRMETAR227.02019-02-21 10:02:40V)I5     3KFLG 210957Z AUTO 20016G24KT 1/2SM SN FZFG OVC006 M07/M08 A2954 RMK AO2 SLP013 P0002 T10671083KFLG2019-02-21T09:57:00Z35.13-111.67-6.7-8.320016240.529.539371001.3TRUETRUESN FZFGLIFR0.02METAR2134.02019-02-21 10:02:40zU)_5      3KIJD 210957Z AUTO 04006KT 3SM BR SCT005 BKN009 OVC025 M01/M01 A2989 RMK AO2 FZRAE57 P0000 I1000 T10061011KIJD2019-02-21T09:57:00Z41.75-72.18-0.6-1.14063.029.890747TRUETRUEBRIFR0.005METAR75.02019-02-21 10:02:40 E%DER\)5     3KCSG 210956Z AUTO 09003KT 3SM BR OVC005 16/15 A3003 RMK AO2 T01610150KCSG2019-02-21T09:56:00Z32.52-84.9516.115.09033.030.029528TRUETRUEBRIFRMETAR135.02019-02-21 10:02:40![)5      3KCTB 210956Z AUTO 35022KT 2SM UP BR FEW012 OVC075 M14/M17 A3001 RMK AO2 PK WND 35032/0934 UPB16SNE16B44E49 SLP223 P0000 T11441167KCTB2019-02-21T09:56:00Z48.6-112.37-14.4-16.7350222.030.0088581022.3TRUETRUEBR UPIFR0.005METAR1175.02019-02-21 10:02:40[Z)5    3KLTS 210956Z 12006KT 10SM BKN160 05/M02 A2992 RMK AO2A SLP131 T00451017 $KLTS2019-02-21T09:56:00Z34.67-99.274.5-1.7120610.029.9202751013.1TRUETRUEVFRSPECI420.02019-02-21 10:02:40UY)5     3CYIN 210957Z AUTO 28008KT 9SM -SN OVC033 M08/M13 A3003 RMK SLP223CYIN2019-02-21T09:57:00Z51.27-121.68-8.0-13.028089.030.0295281022.3TRUE-SNVFRSPECI1128.02019-02-21 10:02:40 ''e`)-5     3KFAM 210956Z AUTO 00000KT 10SM CLR M01/M03 A3011 RMK AO2 SLP201 T10111028 FZRANOKFAM2019-02-21T09:56:00Z37.77-90.42-1.1-2.80010.030.1092531020.1TRUETRUETRUEVFRMETAR288.02019-02-21 10:02:40w_)O5     3KEUL 210956Z AUTO 00000KT 10SM FEW012 SCT024 OVC050 M03/M04 A2977 RMK AO2 SLP101 T10331039 FZRANOKEUL2019-02-21T09:56:00Z43.62-116.62-3.3-3.90010.029.7696861010.1TRUETRUETRUEVFRMETAR740.02019-02-21 10:02:40j^)35     3KESC 210956Z AUTO 22009KT 10SM SCT055 M07/M08 A2975 RMK AO2 SLP102 T10671078 FZRANOKESC2019-02-21T09:56:00Z45.75-87.08-6.7-7.8220910.029.7490161010.2TRUETRUETRUEVFRMETAR187.02019-02-21 10:02:40{])E5       3KENV 210956Z AUTO 04009KT 9SM -SN OVC050 M04/M05 A2964 RMK AO2 SLP067 P0000 T10391050 FZRANOKENV2019-02-21T09:56:00Z40.72-114.02-3.9-5.04099.029.6397631006.7TRUETRUETRUE-SNVFR0.005METAR1292.02019-02-21 10:02:40 K"4Kcd)-5     3KKLS 210956Z AUTO 00000KT 10SM CLR M03/M04 A3005 RMK AO2 SLP180 T10281039 FZRANOKKLS2019-02-21T09:56:00Z46.12-122.9-2.8-3.90010.030.0501981018.0TRUETRUETRUEVFRMETAR5.02019-02-21 10:02:40hc)=5    3KCVX 210956Z AUTO 25015G22KT 7SM -SN SCT020 SCT026 BKN036 00/M03 A2979 RMK AO2 T00011026KCVX2019-02-21T09:56:00Z45.3-85.270.1-2.625015227.029.790354TRUETRUE-SNVFRMETAR204.02019-02-21 10:02:40Vb)5    3KARG 210956Z AUTO 03005KT 10SM CLR 03/01 A3013 RMK AO2 SLP205 T00280011KARG2019-02-21T09:56:00Z36.12-90.922.81.130510.030.1299211020.5TRUETRUEVFRMETAR83.02019-02-21 10:02:40|a)U5      3KFCI 210956Z AUTO 22007KT 10SM BKN006 OVC019 02/02 A3001 RMK AO2 RAE18 SLP182 P0000 T00220017 FZRANOKFCI2019-02-21T09:56:00Z37.4-77.522.21.7220710.030.0088581018.2TRUETRUETRUEIFR0.005METAR72.02019-02-21 10:02:40 0 g)a5       3KDVL 210956Z AUTO 33009KT 2 1/2SM -SN BR BKN030 OVC039 M12/M13 A2990 RMK AO2 SLP173 P0000 T11171133 FZRANOKDVL2019-02-21T09:56:00Z48.12-98.92-11.7-13.333092.529.8996071017.3TRUETRUETRUE-SN BRIFR0.005METAR443.02019-02-21 10:02:40Xf)5    3KDWU 210956Z AUTO 27006KT 10SM CLR 06/03 A3009 RMK AO2 SLP192 T00610028KDWU2019-02-21T09:56:00Z38.55-82.736.12.8270610.030.0885831019.2TRUETRUEVFRSPECI166.02019-02-21 10:02:40le)95     3KDYR 210956Z AUTO 02003KT 9SM OVC025 02/02 A3014 RMK AO2 SLP224 T00170017 FZRANO PNO $KDYR2019-02-21T09:56:00Z36.0-89.41.71.72039.030.1387791022.4TRUETRUETRUETRUEMVFRMETAR103.02019-02-21 10:02:40 _k)'5     3KCXY 210956Z AUTO 00000KT 4SM BR OVC004 00/M01 A2996 RMK AO2 SLP149 T00001006KCXY2019-02-21T09:56:00Z40.22-76.850.0-0.6004.029.9586621014.9TRUETRUEBRLIFRMETAR106.02019-02-21 10:02:40\j)'5    3KDAY 210956Z 26010KT 10SM FEW021 OVC025 02/M02 A3007 RMK AO2 SLP189 T00221022KDAY2019-02-21T09:56:00Z39.9-84.222.2-2.22601010.030.0708661018.9TRUEMVFRSPECI305.02019-02-21 10:02:40mi)35     3KGUC 210956Z AUTO 04007KT 10SM SCT120 M14/M18 A2964 RMK AO2 SLP113 T11391178 FZRANOKGUC2019-02-21T09:56:00Z38.52-106.92-13.9-17.840710.029.6397631011.3TRUETRUETRUEVFRMETAR2339.02019-02-21 10:02:40%h)5      3KGVQ 210956Z AUTO 27020G26KT 9SM UP BKN007 OVC012 02/01 A2982 RMK AO2 PK WND 25032/0902 UPB51 CIG 004V010 SLP128 P0000 T00220006 FZRANOKGVQ2019-02-21T09:56:00Z43.03-78.172.20.627020269.029.8198811012.8TRUETRUETRUEUPIFR0.005METAR278.02019-02-21 10:02:40  ! po);5     3KDIK 210956Z AUTO 28012KT 8SM OVC044 M17/M21 A2986 RMK AO2 SNE35 SLP171 P0000 T11721206KDIK2019-02-21T09:56:00Z46.8-102.8-17.2-20.6280128.029.8612211017.1TRUETRUEVFR0.005METAR788.02019-02-21 10:02:40en)+5     3KLBL 210956Z AUTO 11007KT 9SM CLR M05/M07 A2985 RMK AO2 SLP124 T10501067 FZRANOKLBL2019-02-21T09:56:00Z37.03-100.97-5.0-6.711079.029.849411012.4TRUETRUETRUEVFRMETAR879.02019-02-21 10:02:40m)u5      3KLCI 210956Z AUTO 05003KT 1/2SM FZFG OVC013 M07/M08 A2997 RMK AO2 SNB0859SNEMM SLP168 P0005 T10671078 PWINO FZRANO $KLCI2019-02-21T09:56:00Z43.57-71.42-6.7-7.85030.529.9704721016.8TRUETRUETRUETRUETRUEFZFGLIFR0.05METAR166.02019-02-21 10:02:40Yl)#5    3KOEB 210956Z AUTO 26015KT 10SM BKN027 BKN032 01/M03 A2996 RMK AO2 T00111027KOEB2019-02-21T09:56:00Z41.92-85.031.1-2.72601510.029.958662TRUETRUEMVFRMETAR292.02019-02-21 10:02:40 T$=GTms)55      3KEED 210956Z AUTO 29006KT 10SM -RA OVC038 09/04 A2962 RMK AO2 SLP020 P0001 T00890039KEED2019-02-21T09:56:00Z34.77-114.628.93.9290610.029.6190951002.0TRUETRUE-RAVFR0.01METAR302.02019-02-21 10:02:40pr)95      3KEKO 210956Z AUTO 06007KT 10SM -SN OVC050 M06/M09 A2956 RMK AO2 SLP036 P0002 T10611089KEKO2019-02-21T09:56:00Z40.82-115.78-6.1-8.960710.029.560041003.6TRUETRUE-SNVFR0.02METAR1547.02019-02-21 10:02:40aq)#5     3KEAU 210956Z AUTO 23008KT 6SM BR CLR M11/M13 A2987 RMK AO2 SLP131 T11111133KEAU2019-02-21T09:56:00Z44.87-91.47-11.1-13.323086.029.8700791013.1TRUETRUEBRVFRSPECI276.02019-02-21 10:02:40Vp)5   3KAMN 210956Z AUTO 25011G22KT 10SM OVC032 01/M04 A2987 RMK AO2 T00101045KAMN2019-02-21T09:56:00Z43.32-84.681.0-4.5250112210.029.870079TRUETRUEVFRMETAR230.02019-02-21 10:02:40 bv))5     3KLWS 210956Z AUTO 00000KT 5SM BR OVC013 M03/M04 A2993 RMK AO2 SLP153 T10331044KLWS2019-02-21T09:56:00Z46.37-117.02-3.3-4.4005.029.9291341015.3TRUETRUEBRMVFRMETAR438.02019-02-21 10:02:40 u) 5      3PAMY 210956Z AUTO 25020KT 9SM BKN044 M02/M03 A2978 RMK AO2 PK WND 25030/0942 UPE13B34E54SNB25E34 SLP086 P0000 T10221028 FZRANO $PAMY2019-02-21T09:56:00Z60.37-166.27-2.2-2.8250209.029.7785431008.6TRUETRUETRUETRUEVFR0.005METAR13.02019-02-21 10:02:40yt)O5   3KELZ 210956Z AUTO 28013G21KT 10SM OVC019 02/01 A2982 RMK AO2 PK WND 28026/0916 SLP122 T00220011 $KELZ2019-02-21T09:56:00Z42.1-77.982.21.1280132110.029.8198811012.2TRUETRUETRUEMVFRMETAR646.02019-02-21 10:02:40 \*?\]z)+5     3KMDT 210956Z 30003KT 4SM BR BKN003 OVC022 00/M01 A2995 RMK AO2 SLP146 T00001011KMDT2019-02-21T09:56:00Z40.2-76.770.0-1.130034.029.9498021014.6TRUEBRLIFRMETAR95.02019-02-21 10:02:40ey)75   3KMGN 210956Z AUTO 26011G21KT 10SM SCT021 SCT026 OVC032 00/M03 A2974 RMK AO2 T10051030KMGN2019-02-21T09:56:00Z45.43-84.92-0.5-3.0260112110.029.740158TRUETRUEVFRMETAR209.02019-02-21 10:02:40ex)-5     3KMOB 210956Z AUTO 24007KT 1 1/4SM BR OVC002 21/21 A2999 RMK AO2 SLP154 T02110206KMOB2019-02-21T09:56:00Z30.68-88.2521.120.624071.2529.9911421015.4TRUETRUEBRLIFRMETAR63.02019-02-21 10:02:40ew)75   3KMCD 210956Z AUTO 26013G22KT 7SM SCT010 BKN026 OVC033 M02/M03 A2970 RMK AO2 T10211026KMCD2019-02-21T09:56:00Z45.85-84.63-2.1-2.626013227.029.698818TRUETRUEMVFRSPECI226.02019-02-21 10:02:40 /EfX~)%5    3KNUQ 210956Z 34008KT 10SM BKN039 BKN048 08/02 A2973 RMK AO2 SLP070 T00780017KNUQ2019-02-21T09:56:00Z37.4-122.057.81.7340810.029.7312981007.0TRUEVFRSPECI12.02019-02-21 10:02:40Y})5    3KOFK 210956Z AUTO 00000KT 7SM CLR M21/M22 A2998 RMK AO2 SLP186 T12061222KOFK2019-02-21T09:56:00Z41.98-97.43-20.6-22.2007.029.979331018.6TRUETRUEVFRMETAR470.02019-02-21 10:02:40d|)75   3KMOP 210956Z AUTO 25012G21KT 10SM SCT029 SCT036 OVC042 01/M05 A2984 RMK AO2 T00071051KMOP2019-02-21T09:56:00Z43.62-84.730.7-5.1250122110.029.840551TRUETRUEVFRSPECI230.02019-02-21 10:02:40K{)5    3KMOX 210956Z AUTO 29008KT 10SM OVC004 M13/M14 A2987 RMK AO2KMOX2019-02-21T09:56:00Z45.57-95.97-13.0-14.0290810.029.870079TRUETRUELIFRMETAR344.02019-02-21 10:02:40 1ff))5     3KFSD 210956Z AUTO 27010KT 4SM BR SCT002 M16/M17 A2996 RMK AO2 SLP175 T11561172KFSD2019-02-21T09:56:00Z43.58-96.75-15.6-17.2270104.029.9586621017.5TRUETRUEBRMVFRMETAR436.02019-02-21 10:02:40\))5   3KOSC 210956Z AUTO 25014G18KT 10SM SCT031 OVC041 01/M02 A2977 RMK AO2 T00051025KOSC2019-02-21T09:56:00Z44.45-83.40.5-2.5250141810.029.769686TRUETRUEVFRSPECI193.02019-02-21 10:02:40E(}5    3KONA 210956Z AUTO 25005KT 10SM CLR M10/M12 A2996 RMK AO2KONA2019-02-21T09:56:00Z44.07-91.7-10.0-12.0250510.029.958662TRUETRUEVFRMETAR200.02019-02-21 10:02:40I)5    3KMZH 210956Z AUTO 20003KT 10SM OVC017 M08/M10 A2978 RMK AO2KMZH2019-02-21T09:56:00Z46.42-92.8-8.0-10.0200310.029.778543TRUETRUEMVFRMETAR328.02019-02-21 10:02:40 o+7So^)+5     3KHPN 210956Z 31006KT 4SM BR BKN004 BKN010 01/M01 A2987 RMK AO2 SLP125 T00061006KHPN2019-02-21T09:56:00Z41.07-73.70.6-0.631064.029.8700791012.5TRUEBRLIFRMETAR121.02019-02-21 10:02:40^)%5     3KGRD 210956Z AUTO 01005KT 1SM BR OVC002 03/03 A3009 RMK AO2 SLP193 T00330033KGRD2019-02-21T09:56:00Z34.25-82.153.33.31051.030.0885831019.3TRUETRUEBRLIFRMETAR185.02019-02-21 10:02:40n)95      3KGON 210956Z AUTO 36007KT 4SM -RA BR OVC005 03/03 A2983 RMK AO2 SLP102 P0001 T00330028KGON2019-02-21T09:56:00Z41.33-72.053.32.836074.029.8287411010.2TRUETRUE-RA BRIFR0.01METAR3.02019-02-21 10:02:40O)5    3KGHW 210956Z AUTO 27008KT 7SM BKN004 OVC012 M12/M13 A2985 RMK AO2KGHW2019-02-21T09:56:00Z45.63-95.32-12.0-13.027087.029.84941TRUETRUELIFRSPECI425.02019-02-21 10:02:40 . .W )5   3KOZW 210956Z AUTO 26011G17KT 10SM OVC022 01/M03 A2989 RMK AO2 T00141026KOZW2019-02-21T09:56:00Z42.62-83.971.4-2.6260111710.029.890747TRUETRUEMVFRMETAR293.02019-02-21 10:02:40F (}5    3KOVL 210956Z AUTO 26008KT 10SM CLR M16/M17 A2991 RMK AO2KOVL2019-02-21T09:56:00Z44.78-95.03-16.0-17.0260810.029.911417TRUETRUEVFRMETAR328.02019-02-21 10:02:40)g5     3KHWV 210956Z AUTO 34006KT 10SM OVC004 02/01 A2985 RMK AO2 RAB00E01UPB01E15 CIG 002V006 SLP110 P0000 T00170011KHWV2019-02-21T09:56:00Z40.82-72.871.71.1340610.029.849411011.0TRUETRUELIFR0.005SPECI21.02019-02-21 10:02:40) 5     3KHYA 210956Z AUTO 14007G20KT 1 3/4SM -RA BR OVC006 02/01 A2985 RMK AO2 RAE17B34SNB09E11B17E34 CIG 005V009 SLP108 P0002 T00220011KHYA2019-02-21T09:56:00Z41.67-70.272.21.11407201.7529.849411010.8TRUETRUE-RA BRIFR0.02SPECI22.02019-02-21 10:02:40 2fm)=5    3KRDM 210956Z AUTO 33009KT 3/4SM OVC018 M04/M06 A2987 RMK AO2 SFC VIS 10 SLP131 T10391061KRDM2019-02-21T09:56:00Z44.25-121.15-3.9-6.133090.7529.8700791013.1TRUETRUELIFRMETAR938.02019-02-21 10:02:40N ) 5     3KPWC 210956Z AUTO 00000KT 7SM -SN OVC017 M10/M12 A2984 RMK AO2KPWC2019-02-21T09:56:00Z46.72-94.37-10.0-12.0007.029.840551TRUETRUE-SNMVFRMETAR395.02019-02-21 10:02:40F (}5    3KPQN 210956Z AUTO 31009KT 10SM CLR M17/M18 A2991 RMK AO2KPQN2019-02-21T09:56:00Z43.97-96.32-17.0-18.0310910.029.911417TRUETRUEVFRMETAR529.02019-02-21 10:02:40H )5    3KOWX 210956Z AUTO 26017KT 10SM OVC028 01/M02 A3004 RMK AO1KOWX2019-02-21T09:56:00Z41.03-83.981.0-2.02601710.030.041338TRUETRUEMVFRSPECI233.02019-02-21 10:02:40  HdV)%5    3KSHV 210956Z 00000KT 10SM BKN090 OVC280 05/04 A3004 RMK AO2 SLP173 T00500044KSHV2019-02-21T09:56:00Z32.45-93.835.04.40010.030.0413381017.3TRUEVFRMETAR83.02019-02-21 10:02:40^))5    3KSFO 210956Z 33005KT 10SM FEW120 BKN150 08/02 A2973 RMK AO2 SLP066 T00830017 $KSFO2019-02-21T09:56:00Z37.62-122.378.31.7330510.029.7312981006.6TRUETRUEVFRMETAR3.02019-02-21 10:02:40R)5    3KSDF 210956Z 29006KT 10SM SCT250 03/01 A3012 RMK AO2 SLP200 T00330006KSDF2019-02-21T09:56:00Z38.18-85.733.30.6290610.030.1210631020.0TRUEVFRMETAR146.02019-02-21 10:02:40Z)!5    3KSBP 210956Z AUTO 10003KT 10SM FEW070 03/01 A2971 RMK AO2 SLP064 T00280011KSBP2019-02-21T09:56:00Z35.23-120.632.81.1100310.029.710631006.4TRUETRUEVFRMETAR59.02019-02-21 10:02:40 }1N}K)5    3KTOB 210956Z AUTO 25010KT 10SM SCT090 M15/M17 A2989 RMK AO2KTOB2019-02-21T09:56:00Z44.02-92.82-15.0-17.02501010.029.890747TRUETRUEVFRSPECI398.02019-02-21 10:02:40]))5   3KTEW 210956Z AUTO 26014G23KT 10SM SCT030 OVC035 02/M03 A2991 RMK AO2 T00151034KTEW2019-02-21T09:56:00Z42.57-84.421.5-3.4260142310.029.911417TRUETRUEVFRSPECI280.02019-02-21 10:02:40g);5   3KSLH 210956Z AUTO 26010G22KT 230V290 10SM SCT021 OVC042 M01/M04 A2970 RMK AO2 T10101042KSLH2019-02-21T09:56:00Z45.65-84.52-1.0-4.2260102210.029.698818TRUETRUEVFRMETAR195.02019-02-21 10:02:40\)%5     3KSLE 210956Z AUTO 34004KT 5SM BR OVC014 02/01 A2998 RMK AO2 SLP153 T00170006KSLE2019-02-21T09:56:00Z44.9-123.01.70.634045.029.979331015.3TRUETRUEBRMVFRSPECI59.02019-02-21 10:02:40 x*?axc)'5     3KVPZ 210956Z AUTO 25011KT 9SM CLR M01/M06 A3003 RMK AO2 SLP177 T10061061 TSNOKVPZ2019-02-21T09:56:00Z41.45-87.0-0.6-6.1250119.030.0295281017.7TRUETRUETRUEVFRSPECI231.02019-02-21 10:02:40X)5    3KUKI 210956Z AUTO 00000KT 10SM CLR 03/M01 A2976 RMK AO2 SLP076 T00281006KUKI2019-02-21T09:56:00Z39.12-123.22.8-0.60010.029.7608261007.6TRUETRUEVFRMETAR187.02019-02-21 10:02:40e)#5    3KTPH 210956Z AUTO 35008KT 10SM CLR M06/M11 A2953 RMK AO2 SLP011 T10611106 $KTPH2019-02-21T09:56:00Z38.05-117.08-6.1-10.6350810.029.5305121001.1TRUETRUETRUEVFRMETAR1652.02019-02-21 10:02:40P)5    3KTTF 210956Z AUTO 24009KT 10SM OVC034 02/M02 A2994 RMK AO2 T00171016KTTF2019-02-21T09:56:00Z41.93-83.421.7-1.6240910.029.940945TRUETRUEVFRSPECI188.02019-02-21 10:02:40 %@[F(}5    3KDXX 210956Z AUTO 28009KT 10SM CLR M14/M16 A2992 RMK AO2KDXX2019-02-21T09:56:00Z44.98-96.18-14.0-16.0280910.029.920275TRUETRUEVFRMETAR330.02019-02-21 10:02:40_)#5    3KDUG 210956Z AUTO 09004KT 10SM SCT120 01/M16 A2976 RMK AO2 SLP056 T00061161KDUG2019-02-21T09:56:00Z31.47-109.580.6-16.190410.029.7608261005.6TRUETRUEVFRSPECI1265.02019-02-21 10:02:40_)#5    3KWJF 210956Z AUTO 26016KT 10SM OVC080 03/M01 A2961 RMK AO2 SLP035 T00281011KWJF2019-02-21T09:56:00Z34.72-118.222.8-1.12601610.029.6102371003.5TRUETRUEVFRMETAR715.02019-02-21 10:02:40U)5   3KVLL 210956Z AUTO 23009G14KT 10SM OVC033 02/M03 A2992 RMK AO2 T00221031KVLL2019-02-21T09:56:00Z42.55-83.182.2-3.123091410.029.920275TRUETRUEVFRSPECI222.02019-02-21 10:02:40 !! o")=5    3KCGZ 210956Z AUTO 17005KT 10SM BKN075 OVC090 08/M04 A2974 RMK AO2 SLP070 T00831039 PNO $KCGZ2019-02-21T09:56:00Z32.95-111.778.3-3.9170510.029.7401581007.0TRUETRUETRUEVFRMETAR446.02019-02-21 10:02:40!)k5     3KCIU 210956Z AUTO 26011G18KT 10SM BKN018 M03/M04 A2966 RMK AO2 UPB12E17SNB0858E12 SLP071 P0000 T10331039 FZRANOKCIU2019-02-21T09:56:00Z46.25-84.47-3.3-3.9260111810.029.6604331007.1TRUETRUETRUEMVFR0.005METAR244.02019-02-21 10:02:40z )W5     3KGTR 210956Z AUTO 34005KT 10SM OVC009 08/07 A3008 RMK AO2 LTG DSNT SE RAB28E48 SLP188 P0000 T00830072KGTR2019-02-21T09:56:00Z33.45-88.578.37.2340510.030.0797251018.8TRUETRUEIFR0.005METAR80.02019-02-21 10:02:40Y)!5    3KGTU 210956Z AUTO 00000KT 10SM BKN065 07/04 A2996 RMK AO2 SLP146 T00720039KGTU2019-02-21T09:56:00Z30.68-97.687.23.90010.029.9586621014.6TRUETRUEVFRMETAR240.02019-02-21 10:02:40 %%j&)-5     3KMML 210956Z AUTO 25018KT 10SM CLR M15/M17 A2993 RMK AO2 SLP161 T11501172 FZRANOKMML2019-02-21T09:56:00Z44.45-95.82-15.0-17.22501810.029.9291341016.1TRUETRUETRUEVFRMETAR359.02019-02-21 10:02:40y%)?5       3KJAC 210956Z AUTO 02006KT 9SM -SN CLR M18/M20 A2969 RMK AO2 SLP150 P0000 T11781200 FZRANOKJAC2019-02-21T09:56:00Z43.62-110.73-17.8-20.02069.029.689961015.0TRUETRUETRUE-SNVFR0.005METAR1961.02019-02-21 10:02:40U$)5    3KNLC 210956Z AUTO 00000KT 10SM CLR 03/02 A2969 RMK AO2 SLP057 T00280017KNLC2019-02-21T09:56:00Z36.32-119.952.81.70010.029.689961005.7TRUETRUEVFRMETAR72.02019-02-21 10:02:40 #)Y5       3KCOD 210956Z AUTO 02005KT 4SM -SN BR SCT020 BKN049 M11/M12 A2980 RMK AO2 SLP148 P0000 T11061122 FZRANOKCOD2019-02-21T09:56:00Z44.52-109.02-10.6-12.22054.029.7992131014.8TRUETRUETRUE-SN BRMVFR0.005METAR1553.02019-02-21 10:02:40 ?/?L?*)_5     3KMBL 210956Z AUTO 24011G17KT 10SM OVC033 00/M06 A2984 RMK AO2 RAB10E16SNE10 SLP126 P0000 T00001056 FZRANOKMBL2019-02-21T09:56:00Z44.27-86.250.0-5.6240111710.029.8405511012.6TRUETRUETRUEVFR0.005METAR189.02019-02-21 10:02:40m));5      3KMJX 210956Z AUTO 28006KT 1 3/4SM BR OVC004 02/02 A2993 RMK AO2 SLP141 T00220022 FZRANOKMJX2019-02-21T09:56:00Z39.93-74.32.22.228061.7529.9291341014.1TRUETRUETRUEBRLIFRMETAR25.02019-02-21 10:02:40j()-5     3KMKT 210956Z AUTO 26011KT 10SM CLR M14/M16 A2993 RMK AO2 SLP154 T11391161 FZRANOKMKT2019-02-21T09:56:00Z44.22-93.92-13.9-16.12601110.029.9291341015.4TRUETRUETRUEVFRMETAR311.02019-02-21 10:02:40K')5      3KMKY 210956Z AUTO 08005KT 10SM FEW023 A3007 RMK AO2 SLPNO FZRANO $KMKY2019-02-21T09:56:00Z26.0-81.6780510.030.070866TRUETRUETRUETRUEVFRMETAR2.02019-02-21 10:02:40 A$"GA.)I5       3KMNM 210956Z AUTO 24009KT 9SM -SN OVC036 M02/M06 A2980 RMK AO2 SLP112 P0000 T10221056 FZRANO $KMNM2019-02-21T09:56:00Z45.12-87.62-2.2-5.624099.029.7992131011.2TRUETRUETRUETRUE-SNVFR0.005METAR191.02019-02-21 10:02:40U-)5   3KDUH 210956Z AUTO 25008G15KT 10SM OVC034 02/M02 A2997 RMK AO2 T00211020KDUH2019-02-21T09:56:00Z41.73-83.652.1-2.025081510.029.970472TRUETRUEVFRMETAR204.02019-02-21 10:02:40|,)[5     3KLZU 210956Z AUTO 08004KT 7SM OVC004 05/05 A3005 RMK AO2 LTG DSNT N AND NW RAE08 SLP193 P0000 T00500050KLZU2019-02-21T09:56:00Z33.98-83.975.05.08047.030.0501981019.3TRUETRUELIFR0.005METAR323.02019-02-21 10:02:40V+)5    3KM19 210956Z AUTO 03006KT 10SM CLR 01/01 A3012 RMK AO2 SLP207 T00110006KM192019-02-21T09:56:00Z35.65-91.171.10.630610.030.1210631020.7TRUETRUEVFRMETAR73.02019-02-21 10:02:40 9.9o2)C5      3KCVO 210956Z AUTO 00000KT 1/2SM FG OVC002 01/01 A2999 RMK AO2 SLP158 T00110006 FZRANO RVRNOKCVO2019-02-21T09:56:00Z44.5-123.271.10.6000.529.9911421015.8TRUETRUETRUEFGLIFRMETAR75.02019-02-21 10:02:40f1)+5     3KCWI 210956Z AUTO 25008KT 9SM CLR M09/M11 A3003 RMK AO2 SLP197 T10891106 FZRANOKCWI2019-02-21T09:56:00Z41.82-90.32-8.9-10.625089.030.0295281019.7TRUETRUETRUEVFRMETAR216.02019-02-21 10:02:40o0)75      3KDIJ 210956Z AUTO 00000KT 9SM -SN SCT004 M19/M21 A2969 RMK AO2 SLP132 P0000 T11891206KDIJ2019-02-21T09:56:00Z43.75-111.1-18.9-20.6009.029.689961013.2TRUETRUE-SNVFR0.005METAR1899.02019-02-21 10:02:40k/)-5     3BGTL 210956Z AUTO 10011KT 9999 CLR M26/M28 A2922 RMK AO2 SLP887 T12641284 TSNO $BGTL2019-02-21T09:56:00Z76.53-68.7-26.4-28.4100116.2129.220472988.7TRUETRUETRUETRUEVFRMETAR77.02019-02-21 10:02:40 S 9S`6)/5    3KBAD 210956Z AUTO 35004KT 10SM SCT090 SCT210 04/04 A3004 RMK AO2 SLP176 T00410035KBAD2019-02-21T09:56:00Z32.5-93.674.13.5350410.030.0413381017.6TRUETRUEVFRMETAR51.02019-02-21 10:02:40a5)#5     3KCOF 210956Z AUTO 13004KT 4SM BR CLR 19/19 A3009 RMK AO2 SLP194 T01900190 $KCOF2019-02-21T09:56:00Z28.23-80.619.019.013044.030.0885831019.4TRUETRUETRUEBRMVFRMETAR3.02019-02-21 10:02:40i4)-5     3KCOE 210956Z AUTO 02010KT 10SM CLR M07/M10 A2993 RMK AO2 SLP182 T10721100 FZRANOKCOE2019-02-21T09:56:00Z47.77-116.82-7.2-10.0201010.029.9291341018.2TRUETRUETRUEVFRMETAR707.02019-02-21 10:02:40k3)35     3KCVN 210956Z AUTO 00000KT 10SM BKN110 M02/M10 A2980 RMK AO2 SLP097 T10221100 FZRANOKCVN2019-02-21T09:56:00Z34.42-103.07-2.2-10.00010.029.7992131009.7TRUETRUETRUEVFRMETAR1284.02019-02-21 10:02:40 5kc:)+5     3KMVN 210956Z AUTO 00000KT 7SM CLR M03/M03 A3012 RMK AO2 SLP203 T10281033 FZRANOKMVN2019-02-21T09:56:00Z38.32-88.87-2.8-3.3007.030.1210631020.3TRUETRUETRUEVFRMETAR146.02019-02-21 10:02:40D9(}5    3KMWM 210956Z AUTO 21007KT 10SM CLR M16/M18 A2992 RMK AO2KMWM2019-02-21T09:56:00Z43.9-95.1-16.0-18.0210710.029.920275TRUETRUEVFRMETAR430.02019-02-21 10:02:40]8)5    3KFSI 210956Z AUTO 13004KT 10SM CLR 03/03 A2994 RMK AO2 SLP139 T00310031 $KFSI2019-02-21T09:56:00Z34.65-98.43.13.1130410.029.9409451013.9TRUETRUETRUEVFRMETAR362.02019-02-21 10:02:40b7)-5    3KDLF 210956Z AUTO 14006KT 10SM BKN210 08/01 A2987 RMK AO2 SLP112 T00780012 RVRNOKDLF2019-02-21T09:56:00Z29.37-100.777.81.2140610.029.8700791011.2TRUETRUEVFRMETAR330.02019-02-21 10:02:40 G 'GZ>)!5    3KMQY 210956Z AUTO 00000KT 10SM OVC018 06/04 A3013 RMK AO2 SLP167 T00560044KMQY2019-02-21T09:56:00Z36.02-86.525.64.40010.030.1299211016.7TRUETRUEMVFRMETAR166.02019-02-21 10:02:40f=)+5     3KMRF 210956Z AUTO 07004KT 10SM CLR 02/M07 A2984 RMK AO2 SLP086 T00171067 FZRANOKMRF2019-02-21T09:56:00Z30.37-104.021.7-6.770410.029.8405511008.6TRUETRUETRUEVFRMETAR1481.02019-02-21 10:02:40q<)?5      3KMSV 210956Z AUTO 29003KT 2 1/2SM BR OVC004 M03/M03 A2988 RMK AO2 SLP136 T10281033 FZRANOKMSV2019-02-21T09:56:00Z41.7-74.78-2.8-3.329032.529.8789371013.6TRUETRUETRUEBRLIFRMETAR428.02019-02-21 10:02:40p;)95    3KMTW 210956Z AUTO 25016G21KT 10SM OVC033 M04/M08 A2986 RMK AO2 SLP135 T10391078 FZRANOKMTW2019-02-21T09:56:00Z44.12-87.67-3.9-7.8250162110.029.8612211013.5TRUETRUETRUEVFRMETAR198.02019-02-21 10:02:40 5!5fB)-5     3PANA 210956Z AUTO 20008KT 10SM CLR M04/M05 A2984 RMK AO2 SLP104 T10441050 FZRANOPANA2019-02-21T09:56:00Z60.68-161.98-4.4-5.0200810.029.8405511010.4TRUETRUETRUEVFRMETAR5.02019-02-21 10:02:40kA)35     3PANI 210956Z AUTO 12005KT 10SM OVC012 M02/M03 A2982 RMK AO2 SLP067 T10221033 FZRANOPANI2019-02-21T09:56:00Z61.58-159.53-2.2-3.3120510.029.8198811006.7TRUETRUETRUEMVFRMETAR26.02019-02-21 10:02:40@)W5       3PANW 210956Z AUTO 33003KT 2 1/2SM BR OVC004 M02/M02 A2982 RMK AO2 SNE44 SLP115 P0001 T10221022 FZRANOPANW2019-02-21T09:56:00Z59.45-157.37-2.2-2.233032.529.8198811011.5TRUETRUETRUEBRLIFR0.01METAR92.02019-02-21 10:02:40`?)#5    3KTBN 210956Z AUTO 00000KT 10SM CLR M02/M02 A3009 RMK AO2 SLP202 T10171018 $KTBN2019-02-21T09:56:00Z37.72-92.12-1.7-1.80010.030.0885831020.2TRUETRUETRUEVFRMETAR353.02019-02-21 10:02:40  iF)35     3PALG 210956Z AUTO 00000KT 10SM OVC010 M02/M03 A2981 RMK AO2 SLP101 T10171028 FZRANOPALG2019-02-21T09:56:00Z61.53-160.33-1.7-2.80010.029.8110241010.1TRUETRUETRUEMVFRMETAR17.02019-02-21 10:02:40E)O5      3PAMB 210956Z AUTO 27009KT 10SM OVC095 M01/M02 A2987 RMK AO2 SNE25 SLP121 P0001 T10061017 FZRANO $PAMB2019-02-21T09:56:00Z58.98-159.05-0.6-1.7270910.029.8700791012.1TRUETRUETRUETRUEVFR0.01METAR16.02019-02-21 10:02:40D)Q5       3PAMH 210956Z AUTO 00000KT 9SM -SN OVC029 M11/M13 A2988 RMK AO2 SNB14 SLP873 P0000 T11111133 FZRANOPAMH2019-02-21T09:56:00Z63.9-152.32-11.1-13.3009.029.878937987.3TRUETRUETRUE-SNMVFR0.005METAR214.02019-02-21 10:02:40kC)35     3PAMK 210956Z AUTO 15012KT 10SM OVC049 M02/M04 A2972 RMK AO2 SLP068 T10221039 FZRANOPAMK2019-02-21T09:56:00Z63.48-162.12-2.2-3.91501210.029.7194881006.8TRUETRUETRUEVFRMETAR28.02019-02-21 10:02:40 O5OOzJ)Q5      3KSVN 210956Z 00000KT 3/8SM R10/2400V2600FT FG VV000 15/14 A3005 RMK AO2A SLP179 T01520144 FZRANO $KSVN2019-02-21T09:56:00Z32.02-81.1515.214.4000.3830.0501981017.9TRUETRUETRUEFGLIFR0METAR13.02019-02-21 10:02:40`I)%5     3KSZL 210956Z 17003KT 6SM BR OVC230 M03/M03 A3005 RMK AO2A SLP187 T10301031 $KSZL2019-02-21T09:56:00Z38.72-93.53-3.0-3.117036.030.0501981018.7TRUETRUEBRVFRMETAR265.02019-02-21 10:02:40XH)5    3KTIK 210956Z AUTO 11008KT 10SM CLR 02/00 A2999 RMK AO2 SLP167 T00150000KTIK2019-02-21T09:56:00Z35.42-97.371.50.0110810.029.9911421016.7TRUETRUEVFRMETAR394.02019-02-21 10:02:40gG)-5     3PAKI 210956Z AUTO 23015KT 10SM CLR M02/M03 A2984 RMK AO2 SLP108 T10221028 FZRANOPAKI2019-02-21T09:56:00Z59.93-164.03-2.2-2.82301510.029.8405511010.8TRUETRUETRUEVFRMETAR4.02019-02-21 10:02:40 N)e5      3PAOH 210956Z AUTO 00000KT 10SM BKN037 BKN050 OVC065 00/M01 A3002 RMK AO2 UPE10 SLP167 P0000 T00001006 FZRANOPAOH2019-02-21T09:56:00Z58.1-135.450.0-0.60010.030.020671016.7TRUETRUETRUEVFR0.005METAR9.02019-02-21 10:02:40qM)C5     3KGSB 210956Z 15003KT 3/4SM R26/4500V5000FT BR VV002 05/05 A3005 RMK AO2A SLP180 T00540050 $KGSB2019-02-21T09:56:00Z35.32-77.975.45.015030.7530.0501981018.0TRUETRUEBRLIFR200METAR33.02019-02-21 10:02:40L)a5     3KPOB 210956Z AUTO 26004KT 2 1/2SM BR OVC002 05/04 A3008 RMK AO2 VIS 2 1/2V3 VIS 2 RWY05 SLP190 T00470041 $KPOB2019-02-21T09:56:00Z35.17-79.024.74.126042.530.0797251019.0TRUETRUETRUEBRLIFRMETAR66.02019-02-21 10:02:40aK)%5    3KSKF 210956Z AUTO 04004KT 10SM OVC060 11/04 A2991 RMK AO2 SLP126 T01100042 $KSKF2019-02-21T09:56:00Z29.37-98.5711.04.240410.029.9114171012.6TRUETRUETRUEVFRMETAR210.02019-02-21 10:02:40 eQ)75     3KDAA 210956Z AUTO 00000KT 4SM BR FEW080 BKN180 01/00 A3000 RMK AO2 SLP163 T00051005 $KDAA2019-02-21T09:56:00Z38.72-77.170.5-0.5004.030.01016.3TRUETRUETRUEBRMVFRSPECI21.02019-02-21 10:02:40P) 5     3KADW 210956Z AUTO 00000KT 2 1/2SM BR OVC002 00/00 A2998 RMK AO2 VIS 2V2 1/2 VIS 1 1/2 RWY01L VIS 1 1/2 RWY01R SLP162 T00030002 $KADW2019-02-21T09:56:00Z38.82-76.870.30.2002.529.979331016.2TRUETRUETRUEBRLIFRSPECI86.02019-02-21 10:02:40+O)-5      3KCEF 210956Z AUTO 35005KT 10SM -FZDZ BKN005 OVC009 M02/M03 A2991 RMK AO2 FZDZE33FZDZB36E38FZDZB49E50FZDZB52 CIG 004 RWY05 SLP138 P0000 T10251035KCEF2019-02-21T09:56:00Z42.2-72.52-2.5-3.5350510.029.9114171013.8TRUETRUE-FZDZIFR0.005METAR75.02019-02-21 10:02:40 A*AcU)%5    3KGUS 210956Z AUTO 27009KT 10SM BKN200 00/00 A3004 RMK AO2 SLP183 T10011001 $KGUS2019-02-21T09:56:00Z40.63-86.15-0.1-0.1270910.030.0413381018.3TRUETRUETRUEVFRSPECI247.02019-02-21 10:02:40nT)G5    3KHOP 210956Z AUTO 32005KT 10SM SCT010 BKN016 05/05 A3009 RMK AO2 CIG 010V016 SLP193 T00470047KHOP2019-02-21T09:56:00Z36.67-87.54.74.7320510.030.0885831019.3TRUETRUEMVFRSPECI174.02019-02-21 10:02:40[S)!5    3KRND 210956Z AUTO 34003KT 10SM OVC055 09/05 A2993 RMK AO2 SLP133 T00920052KRND2019-02-21T09:56:00Z29.52-98.279.25.2340310.029.9291341013.3TRUETRUEVFRMETAR232.02019-02-21 10:02:40{R)I5      3KMGE 210956Z AUTO 00000KT 3SM +RA BR OVC003 06/06 A3006 RMK AO2 RAB31 SLP185 P0008 T00610057 $KMGE2019-02-21T09:56:00Z33.92-84.526.15.7003.030.0590551018.5TRUETRUETRUE+RA BRLIFR0.08METAR326.02019-02-21 10:02:40 r)<rDY)5      3KTTS 210956Z AUTO 17003KT 10SM CLR M M RMK AO2 SLPNO RVRNO PWINO $KTTS2019-02-21T09:56:00Z28.62-80.72170310.0TRUETRUETRUETRUEVFRMETAR3.02019-02-21 10:02:40gX)15     3KXNO 210956Z AUTO 00000KT 1 5/8SM BR OVC002 07/07 A3009 RMK AO2 SLP193 T00660066 $KXNO2019-02-21T09:56:00Z33.62-81.076.66.6001.6330.0885831019.3TRUETRUETRUEBRLIFRMETAR98.02019-02-21 10:02:40bW)#5    3KBLV 210956Z AUTO 28003KT 10SM CLR M01/M03 A3010 RMK AO2 SLP199 T10081032 $KBLV2019-02-21T09:56:00Z38.53-89.83-0.8-3.2280310.030.1003931019.9TRUETRUETRUEVFRSPECI138.02019-02-21 10:02:40iV)=5     3KDOV 210956Z 25004KT 5SM BR OVC004 01/01 A2997 RMK AO2A CIG 003 RWY19 SLP152 T00120011 $KDOV2019-02-21T09:56:00Z39.12-75.471.21.125045.029.9704721015.2TRUETRUEBRLIFRSPECI9.02019-02-21 10:02:40 }\)a5     3KWRI 210956Z AUTO 26004KT 2 3/4SM BR OVC003 01/01 A2990 RMK AO2 VIS 2 3/4V4 CIG 001 RWY18 SLP126 T00090008KWRI2019-02-21T09:56:00Z40.02-74.580.90.826042.7529.8996071012.6TRUETRUEBRLIFRMETAR41.02019-02-21 10:02:40d[)/5    3PAEI 210956Z 00000KT 10SM BKN085 OVC100 M16/M19 A2991 RMK AO2A SLP146 T11631190 $PAEI2019-02-21T09:56:00Z64.67-147.1-16.3-19.00010.029.9114171014.6TRUETRUEVFRMETAR167.02019-02-21 10:02:40OZ)u5     3KGTB 210956Z AUTO 23019G27KT 9SM -DZ BKN009 OVC015 03/02 A2974 RMK AO2 PK WND 20038/11 DZB27E29RAB29E39DZB39E45RAB45E55DZB55 CIG 009V011 CIG 006 RWY03 PRESRR SLP079 P0000 T00310015KGTB2019-02-21T09:56:00Z44.07-75.723.11.523019279.029.7401581007.9TRUETRUE-DZIFR0.005SPECI207.02019-02-21 10:02:40Y8q8@HPX`hpx (08@HPX`hpx (08@HPX`hpx&+05:?DI N!S"X#]&+05:?DI N!S"X#]$b%g&l'p(u)y*~+,- ./01 2%3*4/54697>8C9H:L;P_?d@hAlBqCvD{EFGH IJKLMN"O&P*Q.R2S6T:U=V@WDXHYLZP[T\X]\^`_d`gakbocsdvezf~ghi jklmno"p&Y88@HPX`hpx (08@HPX`hpx (08@HPX`hpxr.s2t6u:v>wBxFyJzN{Q|U}Yr.s2t6u:v>wBxFyJzN{Q|U}Y~\`dgjnqux{ !%),/258;>BFJNRVZ^bfjnrux{~  $'+/37;?CGK¡OáSġVšZơ^ǡbȡfɡjʡnˡr̡v O, OK`) 5    3ETAR 210956Z 00000KT 9999 BKN055 06/04 A3038 RMK AO2A SLP302 $ETAR2019-02-21T09:56:00Z49.427.586.04.0006.2130.3809051030.2TRUETRUEVFRMETAR238.02019-02-21 10:02:40_)Y5      3KNJK 210956Z AUTO 22018KT 10SM -RA BKN065 OVC090 12/02 A2968 RMK AO2 RAE14B44 SLP065 P0000 T01220022 $KNJK2019-02-21T09:56:00Z32.82-115.6712.22.22201810.029.6811031006.5TRUETRUETRUE-RAVFR0.005METAR-13.02019-02-21 10:02:40i^)-5   3KMTC 210956Z AUTO 24009G16KT 10SM OVC030 02/M01 A2989 RMK AO2 SLP132 T00231010 $KMTC2019-02-21T09:56:00Z42.62-82.822.3-1.024091610.029.8907471013.2TRUETRUETRUEMVFRMETAR177.02019-02-21 10:02:40_])5    3KRCA 210956Z AUTO 31006KT 10SM CLR M15/M17 A2986 RMK AO2 SLP173 T11531167KRCA2019-02-21T09:56:00Z44.13-103.08-15.3-16.7310610.029.8612211017.3TRUETRUEVFRMETAR999.02019-02-21 10:02:40 * gd)/5     3PAPM 210956Z AUTO 23010KT 8SM OVC018 00/M02 A2993 RMK AO2 SLP138 T00001017 FZRANOPAPM2019-02-21T09:56:00Z59.02-161.820.0-1.7230108.029.9291341013.8TRUETRUETRUEMVFRMETAR5.02019-02-21 10:02:40c) 5     3PAOU 210956Z AUTO 28026G30KT 10SM FEW040 01/M03 A3014 RMK AO2 PK WND 28030/0953 RAB18E27UPB27E30 SLP206 P0000 T00111033 FZRANOPAOU2019-02-21T09:56:00Z56.0-161.171.1-3.3280263010.030.1387791020.6TRUETRUETRUEVFR0.005METAR4.02019-02-21 10:02:40eb)+5     3KNDZ 210956Z AUTO 18005KT 1/4SM FG VV002 21/21 A3000 RMK AO2 SLP146 T02060206 $KNDZ2019-02-21T09:56:00Z30.7-87.0220.620.618050.2530.01014.6TRUETRUETRUEFGLIFR200METAR54.02019-02-21 10:02:40ea)35    3ETAD 210956Z AUTO 28003KT 9999 FEW029 BKN046 06/05 A3035 RMK AO2 SLP280 T00640046 $ETAD2019-02-21T09:56:00Z49.986.76.44.628036.2130.3513771028.0TRUETRUETRUEVFRMETAR365.02019-02-21 10:02:40 jg)35     3PAQH 210956Z AUTO 19009KT 10SM OVC060 M02/M02 A2990 RMK AO2 SLP125 T10171022 FZRANOPAQH2019-02-21T09:56:00Z59.75-161.85-1.7-2.2190910.029.8996071012.5TRUETRUETRUEVFRMETAR13.02019-02-21 10:02:40qf)A5     3PAPG 210956Z AUTO 27003KT 10SM BKN029 OVC037 M01/M01 A3015 RMK AO2 SLP213 T10061011 FZRANOPAPG2019-02-21T09:56:00Z56.82-132.97-0.6-1.1270310.030.150591021.3TRUETRUETRUEMVFRMETAR15.02019-02-21 10:02:40,e)%5      3PAPH 210956Z AUTO 28012G22KT 10SM UP FEW019 BKN045 OVC055 01/M01 A3003 RMK AO2 PK WND 27028/0943 RAB43E53UPB53 SLP172 P0000 T00061011 FZRANOPAPH2019-02-21T09:56:00Z56.95-158.620.6-1.1280122210.030.0295281017.2TRUETRUETRUEUPVFR0.005METAR29.02019-02-21 10:02:40 %j)5    3PAPN 210956Z AUTO 29021G24KT 9SM SCT021 BKN028 OVC065 01/M01 A2992 RMK AO2 PK WND 29028/0933 SLP134 T00111006 PWINO FZRANOPAPN2019-02-21T09:56:00Z57.58-157.571.1-0.629021249.029.9202751013.4TRUETRUETRUETRUEMVFRMETAR18.02019-02-21 10:02:40hi)+5     3PARC 210956Z AUTO 33003KT 8SM CLR M31/M33 A2992 RMK AO2 SLP228 T13061333 FZRANOPARC2019-02-21T09:56:00Z68.12-145.58-30.6-33.333038.029.9202751022.8TRUETRUETRUEVFRMETAR636.02019-02-21 10:02:40gh)-5     3PAPO 210956Z AUTO 09011KT 10SM CLR M13/M15 A2990 RMK AO2 SLP126 T11281150 FZRANOPAPO2019-02-21T09:56:00Z68.35-166.8-12.8-15.0901110.029.8996071012.6TRUETRUETRUEVFRMETAR6.02019-02-21 10:02:40 -%-rn)=5      3PATG 210956Z AUTO 27016KT 10SM FEW020 00/M02 A2991 RMK AO2 SLP227 P0002 T00001022 FZRANOPATG2019-02-21T09:56:00Z59.05-160.380.0-2.22701610.029.9114171022.7TRUETRUETRUEVFR0.02METAR4.02019-02-21 10:02:40qm)75     3PATQ 210956Z AUTO 05012KT 10SM CLR M24/M27 A3002 RMK AO2 SLP172 T12441267 FZRANO TSNOPATQ2019-02-21T09:56:00Z70.47-157.43-24.4-26.7501210.030.020671017.2TRUETRUETRUETRUEVFRMETAR29.02019-02-21 10:02:40al)-5     3KMYR 210956Z AUTO 33003KT 2 1/2SM BR OVC003 09/09 A3012 RMK AO2 SLP198 T00940089KMYR2019-02-21T09:56:00Z33.67-78.929.48.933032.530.1210631019.8TRUETRUEBRLIFRMETAR8.02019-02-21 10:02:40wk)E5     3PARS 210956Z AUTO 20005KT 10SM FEW040 M03/M05 A2978 RMK AO2 PRESRR SLP087 T10331050 FZRANO $PARS2019-02-21T09:56:00Z61.77-161.32-3.3-5.0200510.029.7785431008.7TRUETRUETRUETRUEVFRMETAR16.02019-02-21 10:02:40   oq)75     3PASK 210956Z AUTO 07019KT 10SM BKN100 M11/M14 A2994 RMK AO2 SLP135 T11111139 FZRANO $PASK2019-02-21T09:56:00Z66.6-160.0-11.1-13.9701910.029.9409451013.5TRUETRUETRUETRUEVFRMETAR8.02019-02-21 10:02:40ip)35     3PASL 210956Z AUTO 00000KT 10SM OVC010 M06/M07 A2987 RMK AO2 SLP111 T10611072 FZRANOPASL2019-02-21T09:56:00Z61.72-157.15-6.1-7.20010.029.8700791011.1TRUETRUETRUEMVFRMETAR55.02019-02-21 10:02:40 o)a5       3PASX 210956Z AUTO VRB05KT 1 1/2SM -SN BR BKN014 OVC019 M05/M06 A2981 RMK AO2 SLP103 P0000 T10501061 FZRANOPASX2019-02-21T09:56:00Z60.48-151.03-5.0-6.1051.529.8110241010.3TRUETRUETRUE-SN BRIFR0.005METAR32.02019-02-21 10:02:40 ! !bu)-5     3KOAJ 210956Z AUTO 32003KT 1 1/2SM BR OVC002 08/08 A3012 RMK AO2 SLP203 T00780078KOAJ2019-02-21T09:56:00Z34.82-77.627.87.832031.530.1210631020.3TRUETRUEBRLIFRMETAR29.02019-02-21 10:02:40_t)/5    3KOCH 210956Z AUTO 00000KT 10SM BKN075 BKN095 08/04 A3002 RMK AO2 SLP170 T00780044KOCH2019-02-21T09:56:00Z31.57-94.727.84.40010.030.020671017.0TRUETRUEVFRMETAR108.02019-02-21 10:02:40|s)I5      3PARY 210956Z AUTO 08013KT 9SM OVC045 M11/M16 A2988 RMK AO2 SNE55 SLP150 P0000 T11111161 FZRANOPARY2019-02-21T09:56:00Z64.73-155.47-11.1-16.180139.029.8789371015.0TRUETRUETRUEVFR0.005METAR199.02019-02-21 10:02:40 r)m5      3PASH 210956Z AUTO 10021KT 9SM OVC055 M07/M08 A2969 RMK AO2 PK WND 09032/0901 SNE47 SLP055 P0000 T10721083 FZRANOPASH2019-02-21T09:56:00Z66.27-166.08-7.2-8.3100219.029.689961005.5TRUETRUETRUEVFR0.005METAR2.02019-02-21 10:02:40 //ex)15    3KEFK 210956Z AUTO 16014G19KT 3SM -SN SCT010 OVC013 M06/M08 A2982 RMK AO2 T10651077KEFK2019-02-21T09:56:00Z44.88-72.23-6.5-7.716014193.029.819881TRUETRUE-SNMVFRMETAR284.02019-02-21 10:02:40tw)A5     3KEGE 210956Z AUTO 12004KT 10SM SCT055 OVC070 M11/M15 A2969 RMK AO2 SLP119 T11111150 FZRANOKEGE2019-02-21T09:56:00Z39.63-106.92-11.1-15.0120410.029.689961011.9TRUETRUETRUEVFRMETAR1993.02019-02-21 10:02:40fv)+5     3KOKK 210956Z AUTO 27011KT 10SM CLR 01/M02 A3005 RMK AO2 SLP185 T00061022 FZRANOKOKK2019-02-21T09:56:00Z40.53-86.070.6-2.22701110.030.0501981018.5TRUETRUETRUEVFRMETAR253.02019-02-21 10:02:40  {)W5      3KOTH 210956Z AUTO 14007KT 10SM OVC002 01/01 A2997 RMK AO2 UPE05RAB05E26 SLP149 P0000 T00060006 FZRANOKOTH2019-02-21T09:56:00Z43.42-124.250.60.6140710.029.9704721014.9TRUETRUETRUELIFR0.005METAR4.02019-02-21 10:02:40Iz)5    3KDYT 210956Z AUTO 27007KT 10SM OVC028 M05/M07 A2980 RMK AO2KDYT2019-02-21T09:56:00Z46.72-92.03-5.0-7.0270710.029.799213TRUETRUEMVFRMETAR186.02019-02-21 10:02:40!y)5       3KEEN 210956Z AUTO 00000KT 1 3/4SM -SN BR SCT005 OVC013 M04/M06 A2993 RMK AO2 UPB39E46SNE39B46 SLP156 P0000 T10441056 FZRANO $KEEN2019-02-21T09:56:00Z42.88-72.27-4.4-5.6001.7529.9291341015.6TRUETRUETRUETRUE-SN BRIFR0.005METAR149.02019-02-21 10:02:40 c)+5     3KPIB 210956Z AUTO 02005KT 9SM OVC003 12/12 A3002 RMK AO2 SLP165 P0001 T01220117KPIB2019-02-21T09:56:00Z31.47-89.3212.211.72059.030.020671016.5TRUETRUELIFR0.01METAR91.02019-02-21 10:02:40~)g5       3KPQI 210956Z AUTO 14006KT 1 1/4SM -SN BKN012 OVC018 M12/M15 A3001 RMK AO2 SNB07 SLP209 P0000 T11221150 FZRANOKPQI2019-02-21T09:56:00Z46.67-68.03-12.2-15.014061.2530.0088581020.9TRUETRUETRUE-SNIFR0.005METAR146.02019-02-21 10:02:40e})+5     3KOLU 210956Z AUTO 00000KT 7SM CLR M18/M20 A3003 RMK AO2 SLP197 T11781200 FZRANOKOLU2019-02-21T09:56:00Z41.45-97.32-17.8-20.0007.030.0295281019.7TRUETRUETRUEVFRMETAR440.02019-02-21 10:02:40|)E5       3KOTG 210956Z AUTO 24007KT 6SM -SN BR CLR M16/M18 A2994 RMK AO2 SLP174 P0000 T11611178 FZRANOKOTG2019-02-21T09:56:00Z43.63-95.57-16.1-17.824076.029.9409451017.4TRUETRUETRUE-SN BRVFR0.005METAR480.02019-02-21 10:02:40 ! )W5       3KSFZ 210956Z AUTO 02007KT 3SM UP BR BKN003 OVC007 M01/M01 A2988 RMK AO2 SLP069 P0006 T10061011 FZRANOKSFZ2019-02-21T09:56:00Z41.92-71.5-0.6-1.12073.029.8789371006.9TRUETRUETRUEBR UPLIFR0.06METAR134.02019-02-21 10:02:40)k5      3KSFM 210956Z AUTO 35004KT 1 1/4SM -SN BR OVC010 M06/M07 A2999 RMK AO2 CIG 009V012 SLP163 T10561067 FZRANO PNO $KSFM2019-02-21T09:56:00Z43.38-70.72-5.6-6.735041.2529.9911421016.3TRUETRUETRUETRUE-SN BRIFRMETAR74.02019-02-21 10:02:40Y)!5    3KOWB 210956Z AUTO 00000KT 10SM FEW033 03/02 A3012 RMK AO2 SLP214 T00280017KOWB2019-02-21T09:56:00Z37.72-87.172.81.70010.030.1210631021.4TRUETRUEVFRMETAR124.02019-02-21 10:02:40 X5XW)5    3KSGJ 210956Z AUTO 00000KT 7SM OVC075 19/19 A3011 RMK AO2 SLP193 T01940189KSGJ2019-02-21T09:56:00Z29.97-81.3219.418.9007.030.1092531019.3TRUETRUEVFRMETAR3.02019-02-21 10:02:40T)5    3KSGS 210956Z AUTO 24007KT 10SM BKN008 M11/M13 A2990 RMK AO2 T11151135KSGS2019-02-21T09:56:00Z44.87-93.03-11.5-13.5240710.029.899607TRUETRUEIFRMETAR250.02019-02-21 10:02:40R)5    3KSGT 210956Z AUTO 00000KT 7SM CLR 03/02 A3011 RMK AO2 SLP198 T00280022KSGT2019-02-21T09:56:00Z34.6-91.572.82.2007.030.1092531019.8TRUETRUEVFRSPECI68.02019-02-21 10:02:40)o5       3KSGU 210956Z AUTO 04004KT 1 1/4SM -SN BR FEW003 SCT008 OVC015 M01/M01 A2961 RMK AO2 SLP036 P0000 T10061011 FZRANOKSGU2019-02-21T09:56:00Z37.07-113.52-0.6-1.14041.2529.6102371003.6TRUETRUETRUE-SN BRIFR0.005METAR896.02019-02-21 10:02:40 J(AJq )15     3KSKX 210956Z AUTO 33004KT 10SM CLR M14/M16 A2972 RMK AO2 SLP113 T11441161 FZRANO $KSKX2019-02-21T09:56:00Z36.45-105.67-14.4-16.1330410.029.7194881011.3TRUETRUETRUETRUEVFRMETAR2161.02019-02-21 10:02:40a ))5     3KSLG 210956Z AUTO 08005KT 10SM CLR 02/00 A3006 RMK AO2 SLP182 T00170000 FZRANOKSLG2019-02-21T09:56:00Z36.2-94.471.70.080510.030.0590551018.2TRUETRUETRUEVFRSPECI300.02019-02-21 10:02:40m)35     3KSMN 210956Z AUTO 36010KT 10SM OVC075 M06/M09 A2978 RMK AO2 SLP122 T10611089 FZRANOKSMN2019-02-21T09:56:00Z45.12-113.87-6.1-8.93601010.029.7785431012.2TRUETRUETRUEVFRMETAR1233.02019-02-21 10:02:40_)#5    3KSGH 210956Z AUTO 28012KT 10SM OVC025 01/M01 A3006 RMK AO2 SLP191 T00111011KSGH2019-02-21T09:56:00Z39.83-83.831.1-1.12801210.030.0590551019.1TRUETRUEMVFRMETAR321.02019-02-21 10:02:40 r3MrU)5    3KTWM 210956Z AUTO 00000KT 10SM SCT017 BKN032 OVC080 M08/M11 A2973 RMK AO2KTWM2019-02-21T09:56:00Z47.03-91.75-8.0-11.00010.029.731298TRUETRUEVFRMETAR328.02019-02-21 10:02:40` ))5     3KSOP 210956Z AUTO 17004KT 1/2SM FG OVC002 04/04 A3007 RMK AO2 SLP203 T00390039KSOP2019-02-21T09:56:00Z35.22-79.43.93.917040.530.0708661020.3TRUETRUEFGLIFRSPECI141.02019-02-21 10:02:40b ))5     3KSRC 210956Z AUTO 34003KT 10SM CLR 00/00 A3012 RMK AO2 SLP208 T00000000 FZRANOKSRC2019-02-21T09:56:00Z35.22-91.730.00.0340310.030.1210631020.8TRUETRUETRUEVFRSPECI80.02019-02-21 10:02:40_ )+5   3KSJX 210956Z AUTO 25017G22KT 10SM BKN028 OVC039 M01/M04 A2973 RMK AO2 T10151036KSJX2019-02-21T09:56:00Z45.7-85.57-1.5-3.6250172210.029.731298TRUETRUEMVFRMETAR204.02019-02-21 10:02:40 |)U5       3KPVC 210956Z AUTO 15007KT 9SM UP OVC006 01/01 A2990 RMK AO2 RAE51UPB51 SLP124 P0011 T00110006 FZRANOKPVC2019-02-21T09:56:00Z42.07-70.221.10.615079.029.8996071012.4TRUETRUETRUEUPIFR0.11METAR2.02019-02-21 10:02:40o)95      3KPVG 210956Z AUTO 23009KT 6SM -RA BR OVC002 04/04 A3004 RMK AO2 SLP174 P0006 T00440044KPVG2019-02-21T09:56:00Z36.78-76.454.44.423096.030.0413381017.4TRUETRUE-RA BRLIFR0.06METAR7.02019-02-21 10:02:40)Q5       3KTVF 210956Z AUTO 33007KT 9SM -SN OVC060 M09/M09 A2985 RMK AO2 SNB51 SLP131 P0000 T10891094 FZRANOKTVF2019-02-21T09:56:00Z48.07-96.17-8.9-9.433079.029.849411013.1TRUETRUETRUE-SNVFR0.005METAR340.02019-02-21 10:02:40 ) .F))y5       3KRKD 210956Z AUTO 13010KT 1 1/4SM -SN BR OVC007 M02/M03 A3001 RMK AO2 CIG 004V010 PRESFR SLP164 P0002 T10221028 FZRANOKRKD2019-02-21T09:56:00Z44.07-69.08-2.2-2.8130101.2530.0088581016.4TRUETRUETRUE-SN BRIFR0.02METAR17.02019-02-21 10:02:40b))5   3KUCP 210956Z AUTO 26009G15KT 10SM OVC027 03/M01 A2998 RMK AO2 SLP178 T00331006KUCP2019-02-21T09:56:00Z41.03-80.423.3-0.626091510.029.979331017.8TRUETRUEMVFRMETAR327.02019-02-21 10:02:40W)5    3KPRX 210956Z AUTO 08005KT 10SM CLR 03/01 A3004 RMK AO2 SLP191 T00280011KPRX2019-02-21T09:56:00Z33.62-95.452.81.180510.030.0413381019.1TRUETRUEVFRMETAR167.02019-02-21 10:02:40o)?5      3KPTN 210956Z AUTO 04005KT 1SM BR BKN002 OVC018 14/14 A2996 RMK AO2 SLP145 P0001 T01440144KPTN2019-02-21T09:56:00Z29.72-91.3214.414.44051.029.9586621014.5TRUETRUEBRLIFR0.01METAR3.02019-02-21 10:02:40 R3KRs)A5     3KPVU 210956Z AUTO 33003KT 10SM FEW043 SCT050 M04/M09 A2964 RMK AO2 SLP059 T10441089 FZRANOKPVU2019-02-21T09:56:00Z40.22-111.72-4.4-8.9330310.029.6397631005.9TRUETRUETRUEVFRMETAR1369.02019-02-21 10:02:40b)/5    3KPWG 210956Z AUTO 10007KT 10SM FEW080 08/03 A2996 RMK AO2 PRESFR SLP161 T00780033KPWG2019-02-21T09:56:00Z31.47-97.327.83.3100710.029.9586621016.1TRUETRUEVFRMETAR180.02019-02-21 10:02:40e)-5     3KPWT 210956Z AUTO 00000KT 10SM CLR M03/M03 A3004 RMK AO2 SLP191 T10281033 FZRANOKPWT2019-02-21T09:56:00Z47.5-122.75-2.8-3.30010.030.0413381019.1TRUETRUETRUEVFRMETAR147.02019-02-21 10:02:40\))5   3KPZQ 210956Z AUTO 26011G22KT 10SM BKN031 OVC036 00/M04 A2972 RMK AO2 T00001041KPZQ2019-02-21T09:56:00Z45.4-83.820.0-4.1260112210.029.719488TRUETRUEVFRMETAR204.02019-02-21 10:02:40 %\_))5     3KUDG 210956Z AUTO 00000KT 3/4SM BR OVC002 05/05 A3011 RMK AO2 SLP202 T00500050KUDG2019-02-21T09:56:00Z34.45-79.885.05.0000.7530.1092531020.2TRUETRUEBRLIFRSPECI59.02019-02-21 10:02:40T)5    3KUNV 210956Z AUTO 20003KT 7SM SCT004 OVC010 00/00 A2991 RMK AO2 T00000000KUNV2019-02-21T09:56:00Z40.85-77.830.00.020037.029.911417TRUETRUEMVFRMETAR378.02019-02-21 10:02:40C(}5    3KROX 210956Z AUTO 30004KT 10SM CLR M08/M10 A2985 RMK AO2KROX2019-02-21T09:56:00Z48.85-95.7-8.0-10.0300410.029.84941TRUETRUEVFRMETAR323.02019-02-21 10:02:40U)5   3KRNP 210956Z AUTO 24011G16KT 10SM OVC037 02/M03 A2988 RMK AO2 T00211032KRNP2019-02-21T09:56:00Z43.0-84.132.1-3.2240111610.029.878937TRUETRUEVFRMETAR224.02019-02-21 10:02:40 " "b!))5     3KVBT 210956Z AUTO 07005KT 9SM CLR 01/M01 A3007 RMK AO2 SLP192 T00061011 FZRANOKVBT2019-02-21T09:56:00Z36.35-94.220.6-1.17059.030.0708661019.2TRUETRUETRUEVFRSPECI395.02019-02-21 10:02:40f )=5    3KVIS 210956Z AUTO 03003KT 10SM SCT048 BKN065 OVC085 06/04 A2969 RMK AO2 SLP062 T00610039KVIS2019-02-21T09:56:00Z36.32-119.46.13.930310.029.689961006.2TRUETRUEVFRMETAR89.02019-02-21 10:02:40)i5       3KRUT 210956Z AUTO 13012KT 6SM UP BR OVC015 M03/M04 A2985 RMK AO2 UPB54SNB45E54 SLP127 P0000 T10331044 FZRANO $KRUT2019-02-21T09:56:00Z43.52-72.95-3.3-4.4130126.029.849411012.7TRUETRUETRUETRUEBR UPMVFR0.005METAR240.02019-02-21 10:02:40k)35     3KSDY 210956Z AUTO 17003KT 10SM OVC044 M19/M22 A2996 RMK AO2 SLP203 T11941222 FZRANOKSDY2019-02-21T09:56:00Z47.7-104.2-19.4-22.2170310.029.9586621020.3TRUETRUETRUEVFRMETAR605.02019-02-21 10:02:40 {*P{O%)5    3KPMH 210956Z AUTO 29004KT 10SM OVC025 06/03 A3008 RMK AO2 T00600025KPMH2019-02-21T09:56:00Z38.83-82.856.02.5290410.030.079725TRUETRUEMVFRMETAR202.02019-02-21 10:02:40E$(}5    3KVVV 210956Z AUTO 28009KT 10SM CLR M13/M15 A2990 RMK AO2KVVV2019-02-21T09:56:00Z45.3-96.42-13.0-15.0280910.029.899607TRUETRUEVFRMETAR335.02019-02-21 10:02:40 #)a5       3KWVL 210956Z AUTO 01005KT 1 1/4SM -SN BR SCT007 OVC014 M07/M08 A2998 RMK AO2 SLP187 P0006 T10671083 FZRANOKWVL2019-02-21T09:56:00Z44.52-69.67-6.7-8.31051.2529.979331018.7TRUETRUETRUE-SN BRIFR0.06METAR101.02019-02-21 10:02:40P")5    3KCKC 210956Z AUTO 34005KT 10SM SCT055 OVC075 M09/M12 A2968 RMK AO2KCKC2019-02-21T09:56:00Z47.83-90.37-9.0-12.0340510.029.681103TRUETRUEVFRMETAR548.02019-02-21 10:02:40 j6jF)(}5    3KVWU 210956Z AUTO 35003KT 10SM CLR M10/M11 A2981 RMK AO2KVWU2019-02-21T09:56:00Z48.15-94.52-10.0-11.0350310.029.811024TRUETRUEVFRMETAR360.02019-02-21 10:02:40]()'5      3K6B0 210956Z AUTO 17004KT 4SM UP OVC005 M03/M04 A2985 RMK AO2 P0001 T10291036K6B02019-02-21T09:56:00Z43.98-73.1-2.9-3.617044.029.84941TRUETRUEUPIFR0.01METAR149.02019-02-21 10:02:40b')-5     3KYKN 210956Z AUTO 00000KT 10SM CLR M15/M17 A3000 RMK AO2 SLP197 T11501167 FZRANOKYKN2019-02-21T09:56:00Z42.92-97.37-15.0-16.70010.030.01019.7TRUETRUETRUEVFRMETAR398.02019-02-21 10:02:40y&)K5      3PAAK 210956Z AUTO 16011KT 10SM BKN032 OVC042 02/M04 A3024 RMK AO2 SLP242 P0002 T00221039 FZRANOPAAK2019-02-21T09:56:00Z52.22-174.22.2-3.91601110.030.2391741024.2TRUETRUETRUEVFR0.02METAR17.02019-02-21 10:02:40 -,)'5      3PACM 210956Z AUTO 21023G28KT 10SM UP BKN033 OVC039 M03/M05 A2966 RMK AO2 PK WND 21031/0916 UPB0858SNE0858B28E37 SLP040 P0000 T10281050 FZRANOPACM2019-02-21T09:56:00Z61.85-165.57-2.8-5.0210232810.029.6604331004.0TRUETRUETRUEUPVFR0.005METAR4.02019-02-21 10:02:40+)o5     3PADK 210956Z AUTO 19018G23KT 10SM OVC035 02/M03 A3008 RMK AO2 PK WND 19032/0935 SLP185 T00171033 400281011 FZRANOPADK2019-02-21T09:56:00Z51.88-176.651.7-3.3190182310.030.0797251018.5TRUETRUETRUEVFR2.8-1.1METAR4.02019-02-21 10:02:40*)_5       3PAFE 210956Z AUTO 10007KT 10SM -RA BKN043 OVC050 01/M01 A3013 RMK AO2 RAB40 SLP214 P0000 T00111011 FZRANOPAFE2019-02-21T09:56:00Z56.97-133.921.1-1.1100710.030.1299211021.4TRUETRUETRUE-RAVFR0.005METAR9.02019-02-21 10:02:40  /)m5       3PAGN 210956Z AUTO 10004KT 5SM -SN BR OVC030 01/00 A3009 RMK AO2 UPE37RAB27E36SNB37 SLP177 P0000 T00060000 FZRANOPAGN2019-02-21T09:56:00Z57.5-134.580.60.010045.030.0885831017.7TRUETRUETRUE-SN BRMVFR0.005METAR2.02019-02-21 10:02:40e.)-5     3PAFM 210956Z AUTO VRB03KT 10SM CLR M14/M18 A3002 RMK AO2 SLP180 T11441183 FZRANOPAFM2019-02-21T09:56:00Z67.1-157.85-14.4-18.30310.030.020671018.0TRUETRUETRUEVFRMETAR88.02019-02-21 10:02:40-)Y5       3PABV 210956Z AUTO 00000KT 3SM -SN BR SCT008 OVC026 M06/M07 A2982 RMK AO2 SLP106 P0001 T10611072 FZRANOPABV2019-02-21T09:56:00Z61.42-149.52-6.1-7.2003.029.8198811010.6TRUETRUETRUE-SN BRMVFR0.01METAR29.02019-02-21 10:02:40 vv>2)E5      3PAII 210956Z AUTO 29018G25KT 3SM -SN BR OVC007 00/M01 A2988 RMK AO2 PK WND 29027/0937 UPB07E13B34E36SNE07B13E34B36 CIG 005V012 SLP120 P0003 T00001006 FZRANOPAII2019-02-21T09:56:00Z58.18-157.380.0-0.629018253.029.8789371012.0TRUETRUETRUE-SN BRIFR0.03METAR30.02019-02-21 10:02:401)o5       3PAHX 210956Z AUTO 04005KT 10SM -SN BKN017 BKN025 OVC048 M07/M08 A2982 RMK AO2 SNB18 SLP098 P0000 T10671078 FZRANOPAHX2019-02-21T09:56:00Z62.7-159.57-6.7-7.840510.029.8198811009.8TRUETRUETRUE-SNMVFR0.005METAR24.02019-02-21 10:02:40+0)5       3PAGL 210956Z AUTO 12026KT 5SM BLSN BR FEW022 SCT027 OVC055 M04/M06 A2969 RMK AO2 PK WND 11032/0935 UPB34E36 SLP051 P0000 T10391061 FZRANOPAGL2019-02-21T09:56:00Z64.55-163.03-3.9-6.1120265.029.689961005.1TRUETRUETRUEBLSN BRMVFR0.005METAR8.02019-02-21 10:02:40 .5)15       3PAVA 210956Z AUTO 23022KT 7SM UP FEW018 BKN035 OVC060 M03/M04 A2969 RMK AO2 PK WND 24032/0858 UPB21E23B53SNE21B26E53 SLP140 P0000 T10281039 FZRANOPAVA2019-02-21T09:56:00Z61.53-165.6-2.8-3.9230227.029.689961014.0TRUETRUETRUEUPVFR0.005METAR23.02019-02-21 10:02:404)5      3PFCL 210956Z AUTO 27007KT 10SM SCT045 BKN060 OVC100 M01/M01 RMK AO2 UPB24E27SNE24B27E48 SLPNO P0001 T10111011 FZRANO TSNO $PFCL2019-02-21T09:56:00Z58.83-158.53-1.1-1.1270710.0TRUETRUETRUETRUETRUEVFR0.01METAR24.02019-02-21 10:02:403)a5       3PAZK 210956Z AUTO 02003KT 2 1/2SM -SN BR SCT030 OVC041 M14/M16 A2966 RMK AO2 SLP130 P0000 T11441161 FZRANOPAZK2019-02-21T09:56:00Z61.93-147.17-14.4-16.12032.529.6604331013.0TRUETRUETRUE-SN BRIFR0.005METAR1003.02019-02-21 10:02:40 z8)G5     3PFWS 210956Z AUTO 30005KT 1/2SM FG OVC003 00/00 A2984 RMK AO2 SLP110 T00000000 PWINO FZRANO $PFWS2019-02-21T09:56:00Z58.7-157.00.00.030050.529.8405511011.0TRUETRUETRUETRUETRUEFGLIFRMETAR49.02019-02-21 10:02:40r7)=5     3PPIT 210956Z AUTO 21013KT 10SM OVC043 M03/M04 A2981 RMK AO2 SLP094 T10331039 FZRANO TSNOPPIT2019-02-21T09:56:00Z60.9-162.43-3.3-3.92101310.029.8110241009.4TRUETRUETRUETRUEVFRMETAR4.02019-02-21 10:02:406)e5     3PAUN 210956Z AUTO 08021KT 10SM BKN042 BKN050 M07/M09 A2980 RMK AO2 PK WND 08027/0947 SLP095 T10671094 FZRANOPAUN2019-02-21T09:56:00Z63.88-160.8-6.7-9.4802110.029.7992131009.5TRUETRUETRUEVFRMETAR6.02019-02-21 10:02:40 h;)35     3PFKW 210956Z AUTO 21008KT 10SM FEW028 M05/M06 A2984 RMK AO2 SLP105 T10501056 FZRANOPFKW2019-02-21T09:56:00Z60.8-161.43-5.0-5.6210810.029.8405511010.5TRUETRUETRUEVFRMETAR8.02019-02-21 10:02:40:)]5    3PFNO 210956Z AUTO 03018G28KT 10SM OVC041 M09/M14 A2992 RMK AO2 PK WND 03028/0954 SLP131 T10891144 FZRANOPFNO2019-02-21T09:56:00Z66.82-161.02-8.9-14.430182810.029.9202751013.1TRUETRUETRUEVFRMETAR17.02019-02-21 10:02:409)e5     3PFSH 210956Z AUTO 14023KT 10SM SCT048 OVC060 M04/M07 A2976 RMK AO2 PK WND 14028/0925 SLP076 T10441072 FZRANOPFSH2019-02-21T09:56:00Z64.37-161.22-4.4-7.21402310.029.7608261007.6TRUETRUETRUEVFRMETAR7.02019-02-21 10:02:40 >)i5      3PAOO 210956Z AUTO 21018KT 9SM OVC046 M02/M03 RMK AO2 PK WND 22030/0905 SNB03E53 SLPNO P0000 T10171033 FZRANO $PAOO2019-02-21T09:56:00Z60.53-165.12-1.7-3.3210189.0TRUETRUETRUETRUEVFR0.005METAR18.02019-02-21 10:02:406=);5     3PAVC 210956Z AUTO 27024G30KT 10SM BKN027 BKN032 OVC050 01/M04 A3022 RMK AO2 PK WND 27030/0955 UPB02E18RAB04E05SNE02B18E37 SLP237 P0000 T00111039 FZRANOPAVC2019-02-21T09:56:00Z55.12-162.271.1-3.9270243010.030.2214571023.7TRUETRUETRUEMVFR0.005METAR47.02019-02-21 10:02:40<)_5      3PFEL 210956Z AUTO VRB05KT 10SM BKN023 OVC049 M04/M06 A2975 RMK AO2 SNB08E19 SLP074 P0000 T10391061 FZRANOPFEL2019-02-21T09:56:00Z64.62-162.27-3.9-6.10510.029.7490161007.4TRUETRUETRUEMVFR0.005METAR49.02019-02-21 10:02:40 &OcNB) 5   3KP60 210956Z AUTO 00000KT M20/M23 A2965 RMK AO1 SLP131 T12001228KP602019-02-21T09:56:00Z44.55-110.42-20.0-22.80029.6486231013.1TRUETRUEMETAR2388.02019-02-21 10:02:40fA)+5     3KNSE 210956Z AUTO 17005KT 1/4SM FG VV002 21/21 A3000 RMK AO2 SLP146 T02060206 $KNSE2019-02-21T09:56:00Z30.73-87.0220.620.617050.2530.01014.6TRUETRUETRUEFGLIFR200METAR61.02019-02-21 10:02:40Q@)5    3KCNB 210956Z AUTO 22007KT 10SM CLR M13/M16 A2993 RMK AO2 T11331157KCNB2019-02-21T09:56:00Z44.73-96.27-13.3-15.7220710.029.929134TRUETRUEVFRMETAR364.02019-02-21 10:02:40T?)5     3KDTL 210956Z AUTO 30003KT 4SM -SN BKN005 OVC008 M08/M09 A2983 RMK AO2KDTL2019-02-21T09:56:00Z46.82-95.87-8.0-9.030034.029.828741TRUETRUE-SNIFRMETAR426.02019-02-21 10:02:40 4fUF)5    3KSYN 210956Z AUTO 25006KT 10SM BKN011 M13/M15 A2990 RMK AO2 T11311153KSYN2019-02-21T09:56:00Z44.47-93.02-13.1-15.3250610.029.899607TRUETRUEMVFRMETAR280.02019-02-21 10:02:40BE(5    3KTGI 210956Z AUTO 21009KT 10SM OVC003 04/04 A3001 RMK AO1KTGI2019-02-21T09:56:00Z37.82-75.984.04.0210910.030.008858TRUETRUELIFRMETAR2.02019-02-21 10:02:40HD)5    3K04W 210956Z AUTO 27007KT 10SM OVC011 M06/M07 A2982 RMK AO2K04W2019-02-21T09:56:00Z46.02-92.9-6.0-7.0270710.029.819881TRUETRUEMVFRMETAR311.02019-02-21 10:02:40FC(}5    3KAEL 210956Z AUTO 24006KT 10SM CLR M14/M15 A2993 RMK AO2KAEL2019-02-21T09:56:00Z43.68-93.37-14.0-15.0240610.029.929134TRUETRUEVFRMETAR383.02019-02-21 10:02:40 K*6GKvJ)I5     3KMUI 210956Z AUTO 00000KT 2 1/4SM BR BKN003 OVC010 00/M01 A2995 RMK AO2 SLP150 T10041014 PNO $KMUI2019-02-21T09:56:00Z40.42-76.57-0.4-1.4002.2529.9498021015.0TRUETRUETRUEBRLIFRSPECI149.02019-02-21 10:02:40iI)+5     3KOFF 210956Z AUTO 00000KT 8SM CLR M18/M18 A3006 RMK AO2 SLP203 T11831185 TSNO $KOFF2019-02-21T09:56:00Z41.12-95.92-18.3-18.5008.030.0590551020.3TRUETRUETRUETRUEVFRSPECI319.02019-02-21 10:02:40nH)75     3KVOK 210956Z AUTO 23006KT 10SM CLR M09/M12 A2990 RMK AO2 SNE14 SLP142 P0000 T10871117KVOK2019-02-21T09:56:00Z43.92-90.27-8.7-11.7230610.029.8996071014.2TRUETRUEVFR0.005SPECI277.02019-02-21 10:02:40PG)5    3KI19 210956Z AUTO 28004KT 10SM OVC025 02/M01 A3009 RMK AO2 T00231012KI192019-02-21T09:56:00Z39.7-83.982.3-1.2280410.030.088583TRUETRUEMVFRSPECI289.02019-02-21 10:02:40 cA[crN)E5      3KNFE 210956Z AUTO VRB04KT 4SM -RA BR OVC002 08/07 A3005 RMK AO2 RAB41 SLP176 P0001 T00780072KNFE2019-02-21T09:56:00Z36.7-76.137.87.2044.030.0501981017.6TRUETRUE-RA BRLIFR0.01METAR5.02019-02-21 10:02:40`M)%5    3KNFL 210956Z AUTO 21003KT 10SM FEW050 M06/M07 A2963 RMK AO2 SLP017 T10561067KNFL2019-02-21T09:56:00Z39.42-118.7-5.6-6.7210310.029.6309051001.7TRUETRUEVFRMETAR1199.02019-02-21 10:02:40XL)5     3KNGP 210956Z AUTO 02011KT 10SM OVC026 16/ A2989 RMK AO2 SLP121 T0161 $KNGP2019-02-21T09:56:00Z27.68-97.2716.1201110.029.8907471012.1TRUETRUETRUEMVFRMETAR6.02019-02-21 10:02:40[K)%5     3KNCA 210956Z AUTO 00000KT 2SM BR OVC002 09/09 A3010 RMK AO2 SLP194 T00940089KNCA2019-02-21T09:56:00Z34.72-77.459.48.9002.030.1003931019.4TRUETRUEBRLIFRMETAR8.02019-02-21 10:02:40 6 $6hR)-5     3KMCF 210956Z AUTO 09006KT 10SM CLR 20/18 A3007 RMK AO2 SLP186 T01990180 FZRANO $KMCF2019-02-21T09:56:00Z27.85-82.5219.918.090610.030.0708661018.6TRUETRUETRUETRUEVFRMETAR4.02019-02-21 10:02:40vQ)K5     3KMMT 210956Z AUTO 00000KT 1/2SM R32/2800V4000FT FG VV002 06/06 A3009 RMK AO2 SLP193 T00590059 $KMMT2019-02-21T09:56:00Z33.92-80.785.95.9000.530.0885831019.3TRUETRUETRUEFGLIFR200METAR77.02019-02-21 10:02:40rP)M5     3KMXF 210956Z AUTO 00000KT 5/8SM R15/3000V4000FT BR BKN007 17/17 A3000 RMK AO2 SLP161 T01730171 $KMXF2019-02-21T09:56:00Z32.37-86.3717.317.1000.6330.01016.1TRUETRUETRUEBRLIFRMETAR51.02019-02-21 10:02:40bO)'5     3KNBC 210956Z AUTO 00000KT 1/2SM FG VV002 12/12 A3009 RMK AO2 SLP188 T01170117KNBC2019-02-21T09:56:00Z32.47-80.7211.711.7000.530.0885831018.8TRUETRUEFGLIFR200METAR12.02019-02-21 10:02:40 X^|pV)C5    3KNSI 210956Z AUTO 29021G29KT 10SM FEW033 09/ A2971 RMK AO2 PK WND 29030/0938 SLP058 T0094 $KNSI2019-02-21T09:56:00Z33.22-119.459.4290212910.029.710631005.8TRUETRUETRUEVFRMETAR154.02019-02-21 10:02:40\U))5      3KNRB 210956Z 16006KT 8SM -RA BKN035 BKN050 21/20 A3009 RMK AO2 P0000 T02060200KNRB2019-02-21T09:56:00Z30.38-81.4220.620.016068.030.088583TRUE-RAVFR0.005METAR5.02019-02-21 10:02:40tT)M5     3KHFF 210956Z AUTO 00000KT 3/8SM FG VV002 04/04 A3008 RMK AO2 RAB08E14SHRAB14E51 SLP204 T00380038KHFF2019-02-21T09:56:00Z35.02-79.53.83.8000.3830.0797251020.4TRUETRUEFGLIFR200METAR115.02019-02-21 10:02:40"S(_5   3KABH 210956Z AUTO 13004KT RMK AO2 SLPNO $KABH2019-02-21T09:56:00Z38.75-104.31304TRUETRUETRUEMETAR1840.02019-02-21 10:02:40 DpXZ)5    3KGNR 210956Z AUTO 15009KT M10/M14 A2988 RMK AO1 SLP146 P0009 T11001139KGNR2019-02-21T09:56:00Z45.47-69.55-10.0-13.9150929.8789371014.6TRUETRUE0.09METAR427.02019-02-21 10:02:40NY) 5   3K2WX 210956Z AUTO 29007KT M18/M21 A2984 RMK AO1 SLP167 T11781211K2WX2019-02-21T09:56:00Z45.6-103.55-17.8-21.1290729.8405511016.7TRUETRUEMETAR915.02019-02-21 10:02:40TX)5    3KNOG 210956Z AUTO 10SM OVC044 13/07 A2991 RMK AO2 SLP108 T01330067 $KNOG2019-02-21T09:56:00Z27.9-98.0513.36.710.029.9114171010.8TRUETRUETRUEVFRMETAR78.02019-02-21 10:02:40\W)!5    3KNXP 210956Z AUTO 25007KT 10SM OVC036 05/01 A2966 RMK AO2 SLP027 T00500006KNXP2019-02-21T09:56:00Z34.28-116.175.00.6250710.029.6604331002.7TRUETRUEVFRSPECI626.02019-02-21 10:02:40 z <jzj^)/5     3PHBK 210956Z AUTO 08004KT 10SM CLR 19/16 A2999 RMK AO2 SLP158 T01890156 402610183PHBK2019-02-21T09:56:00Z22.03-159.7818.915.680410.029.9911421015.8TRUETRUEVFR26.118.3SPECI8.02019-02-21 10:02:40L]) 5   3KGNA 210956Z AUTO 33006KT M05/M09 A2974 RMK AO1 SLP086 T10501089KGNA2019-02-21T09:56:00Z47.75-90.35-5.0-8.9330629.7401581008.6TRUETRUEMETAR185.02019-02-21 10:02:40K\) 5   3KP53 210956Z AUTO 24006KT M06/M08 A2971 RMK AO1 SLP070 T10561078KP532019-02-21T09:56:00Z46.42-86.65-5.6-7.8240629.710631007.0TRUETRUEMETAR187.02019-02-21 10:02:40m[);5    3KNRS 210956Z AUTO 27011KT 10SM FEW055 SCT075 12/06 A2974 RMK AO2 SLP070 T01170056 PNO $KNRS2019-02-21T09:56:00Z32.57-117.1211.75.62701110.029.7401581007.0TRUETRUETRUEVFRMETAR7.02019-02-21 10:02:40 n.Znb)5     3KMHS 210956Z AUTO 35008G20KT 310V040 2SM -SN FEW019 OVC025 M02/M05 A2970 RMK AO2 PK WND 35027/0937 SLP088 P0002 T10221050KMHS2019-02-21T09:56:00Z41.32-122.32-2.2-5.03508202.029.6988181008.8TRUETRUE-SNIFR0.02METAR1078.02019-02-21 10:02:40Ja) 5   3KNUC 210956Z AUTO BKN037 11/06 A2973 RMK AO2 SLP064 T01060056 $KNUC2019-02-21T09:56:00Z33.02-118.5710.65.629.7312981006.4TRUETRUETRUEMETAR55.02019-02-21 10:02:40N`) 5   3K8D3 210956Z AUTO 30009KT M14/M16 A2988 RMK AO1 SLP156 T11391156K8D32019-02-21T09:56:00Z45.67-96.98-13.9-15.6300929.8789371015.6TRUETRUEMETAR354.02019-02-21 10:02:40L_) 5   3KP28 210956Z AUTO 11004KT M04/M06 A2996 RMK AO1 SLP160 T10441061KP282019-02-21T09:56:00Z37.28-98.55-4.4-6.1110429.9586621016.0TRUETRUEMETAR469.02019-02-21 10:02:40  5_Vf)5    3KMQE 210956Z AUTO 35005KT M02/M02 A2989 RMK AO1 SLP140 P0004 T10171017KMQE2019-02-21T09:56:00Z42.22-71.12-1.7-1.7350529.8907471014.0TRUETRUE0.04METAR199.02019-02-21 10:02:40Pe) 5   3KD07 210956Z AUTO 29010KT M21/M22 A2990 RMK AO1 SLP191 T12061217KD072019-02-21T09:56:00Z45.03-102.02-20.6-21.72901029.8996071019.1TRUETRUEMETAR784.02019-02-21 10:02:40Pd) 5   3KSPD 210956Z AUTO 13009KT M11/M13 A2973 RMK AO1 SLP085 T11111128KSPD2019-02-21T09:56:00Z37.28-102.62-11.1-12.8130929.7312981008.5TRUETRUEMETAR1335.02019-02-21 10:02:40oc)C5    3KNID 210956Z AUTO 00000KT 10SM FEW055 BKN070 BKN110 02/M05 A2958 RMK AO2 SLP019 T00171050 $KNID2019-02-21T09:56:00Z35.67-117.671.7-5.00010.029.580711001.9TRUETRUETRUEVFRMETAR696.02019-02-21 10:02:40 K-BKqj)?5      3KNTU 210956Z 24009KT 2SM -RA BR OVC003 06/05 A3002 RMK AO2 RAB34 SLP169 P0001 T00610050 $KNTU2019-02-21T09:56:00Z36.82-76.026.15.024092.030.020671016.9TRUETRUE-RA BRLIFR0.01METAR7.02019-02-21 10:02:40ei)75    3K79J 210956Z AUTO 17003KT 7SM BKN007 23/21 A3001 RMK AO2 CIG 006V011 SLP159 T02280206K79J2019-02-21T09:56:00Z31.32-86.422.820.617037.030.0088581015.9TRUETRUEIFRSPECI94.02019-02-21 10:02:40dh)'5     3KNPA 210956Z AUTO 18005KT 1/4SM FG VV002 20/20 A2999 RMK AO2 SLP158 T02000200KNPA2019-02-21T09:56:00Z30.35-87.3220.020.018050.2529.9911421015.8TRUETRUEFGLIFR200METAR9.02019-02-21 10:02:40cg)35     3KPRN 210956Z AUTO 21004KT 5SM BR SCT004 BKN095 21/19 A3000 RMK AO2 SLP153 T02110189KPRN2019-02-21T09:56:00Z31.85-86.6221.118.921045.030.01015.3TRUETRUEBRMVFRMETAR138.02019-02-21 10:02:40 u2L]ubn)#5    3KEND 210956Z AUTO 09010KT 10SM CLR M01/M01 A2996 RMK AO2 SLP156 T10091009 $KEND2019-02-21T09:56:00Z36.32-97.92-0.9-0.9901010.029.9586621015.6TRUETRUETRUEVFRMETAR398.02019-02-21 10:02:40im)15     3KFBG 210956Z AUTO 28004KT 1 3/8SM BR OVC002 05/05 A3007 RMK AO2 SLP187 T00460046 $KFBG2019-02-21T09:56:00Z35.12-78.924.64.628041.3830.0708661018.7TRUETRUETRUEBRLIFRMETAR74.02019-02-21 10:02:40`l)#5     3KFRI 210956Z AUTO 04003KT 4SM BR CLR M10/M12 A3005 RMK AO2 SLP188 T10981117KFRI2019-02-21T09:56:00Z39.03-96.77-9.8-11.74034.030.0501981018.8TRUETRUEBRMVFRMETAR325.02019-02-21 10:02:40Hk)5   3MUGM 210956Z 01006KT 9999 FEW035 21/19 A3003 RMK SLP169 T02000194MUGM2019-02-21T09:56:00Z19.9-75.220.019.41066.2130.0295281016.9VFRMETAR17.02019-02-21 10:02:40   [r)!5    3PMDY 210956Z AUTO 00000KT CLR 16/14 A3010 RMK AO2 SLP192 T01610139 PWINO $PMDY2019-02-21T09:56:00Z28.22-177.3716.113.90030.1003931019.2TRUETRUETRUETRUEMETAR4.02019-02-21 10:02:40sq)G5     3KBIX 210956Z AUTO 00000KT 5/8SM R21/3500V4000FT BR VV001 19/19 A2997 RMK AO2 SLP152 T01890189KBIX2019-02-21T09:56:00Z30.42-88.9218.918.9000.6329.9704721015.2TRUETRUEBRLIFR100METAR10.02019-02-21 10:02:40ep)35    3KCBM 210956Z AUTO 00000KT 10SM BKN009 OVC090 09/07 A3008 RMK AO2 SLP189 T00850066 $KCBM2019-02-21T09:56:00Z33.63-88.458.56.60010.030.0797251018.9TRUETRUETRUEIFRMETAR67.02019-02-21 10:02:40o){5      3KEGI 210956Z AUTO 22003KT 1 1/4SM BR OVC002 20/20 A3001 RMK AO2 VIS 3/4V1 1/4 DZB34E35RAB35E54 SLP163 P0000 T02030203 $KEGI2019-02-21T09:56:00Z30.63-86.5220.320.322031.2530.0088581016.3TRUETRUETRUEBRLIFR0.005METAR59.02019-02-21 10:02:40  u)5     3PAKF 210956Z AUTO 28009G20KT 10SM FEW010 02/M05 A3025 RMK AO2 PK WND 26027/0902 RAB17E21B49E56SNB21E49 SLP243 P0000 T00171050 FZRANOPAKF2019-02-21T09:56:00Z54.85-163.421.7-5.028092010.030.2509841024.3TRUETRUETRUEVFR0.005METAR6.02019-02-21 10:02:406t)-5      3PAKH 210956Z AUTO 27022G29KT 4SM -SN BR BKN010 OVC014 02/01 A2982 RMK AO2 PK WND 28029/0953 RAB45E53 CIG 008V012 SLP099 P0004 T00170006 FZRANO $PAKH2019-02-21T09:56:00Z56.93-154.181.70.627022294.029.8198811009.9TRUETRUETRUETRUE-SN BRMVFR0.04METAR14.02019-02-21 10:02:40\s)5     3PHNY 210956Z AUTO 10005KT 10SM 18/ A3004 RMK AO2 SLP155 T0183 402220156PHNY2019-02-21T09:56:00Z20.77-156.9318.3100510.030.0413381015.5TRUETRUE22.215.6METAR399.02019-02-21 10:02:40 px)95    3PAIK 210956Z AUTO 09015G21KT 10SM FEW120 M09/M16 A2994 RMK AO2 SLP147 T10891156 FZRANOPAIK2019-02-21T09:56:00Z66.98-160.43-8.9-15.690152110.029.9409451014.7TRUETRUETRUEVFRMETAR51.02019-02-21 10:02:40bw))5     3PAIN 210956Z 00000KT 10SM OVC065 M16/M18 A2980 RMK AO2 SLP138 T11561183 FZRANOPAIN2019-02-21T09:56:00Z63.73-148.92-15.6-18.30010.029.7992131013.8TRUETRUEVFRMETAR524.02019-02-21 10:02:40v)I5       3PAJZ 210956Z AUTO 35003KT 8SM -SN OVC010 M02/M03 A2987 RMK AO2 SLP121 P0000 T10221028 FZRANO $PAJZ2019-02-21T09:56:00Z59.73-157.27-2.2-2.835038.029.8700791012.1TRUETRUETRUETRUE-SNMVFR0.005METAR82.02019-02-21 10:02:40 k{)35     3PAHL 210956Z AUTO 07011KT 10SM OVC070 M12/M16 A2994 RMK AO2 SLP151 T11171161 FZRANOPAHL2019-02-21T09:56:00Z65.7-156.35-11.7-16.1701110.029.9409451015.1TRUETRUETRUEVFRMETAR65.02019-02-21 10:02:40uz)G5      3PAHY 210956Z AUTO 00000KT 4SM BR BKN024 OVC100 00/M01 A3017 RMK AO2 SLP317 T00001006 FZRANO $PAHY2019-02-21T09:56:00Z55.2-132.830.0-0.6004.030.1712591031.7TRUETRUETRUETRUEBRMVFRMETAR1.02019-02-21 10:02:40y)m5      3PAIG 210956Z AUTO 28003KT 10SM BKN005 OVC031 M02/M02 A2980 RMK AO2 UPB48E53SNE48 SLP103 P0000 T10221022 FZRANO $PAIG2019-02-21T09:56:00Z59.32-155.9-2.2-2.2280310.029.7992131010.3TRUETRUETRUETRUEIFR0.005METAR28.02019-02-21 10:02:40  ~)a5       3PAGA 210956Z AUTO 09013KT 9SM -SN SCT021 BKN040 OVC095 M09/M12 A2992 RMK AO2 SLP137 P0000 T10891122 FZRANOPAGA2019-02-21T09:56:00Z64.73-156.93-8.9-12.290139.029.9202751013.7TRUETRUETRUE-SNVFR0.005METAR46.02019-02-21 10:02:40k})M5        3PAGM 210956Z AUTO 03019KT 2 1/2SM -SN BKN008 OVC020 A2925 RMK AO2 CIG 006V010 SLPNO P0000 FZRANOPAGM2019-02-21T09:56:00Z63.77-171.7330192.529.25TRUETRUETRUE-SNIFR0.005METAR8.02019-02-21 10:02:40|)[5       3PAGS 210956Z AUTO 12008KT 10SM UP BKN055 OVC070 02/00 A3002 RMK AO2 UPB32 SLP167 P0000 T00220000 FZRANOPAGS2019-02-21T09:56:00Z58.42-135.732.20.0120810.030.020671016.7TRUETRUETRUEUPVFR0.005METAR9.02019-02-21 10:02:40 )y5    3PABL 210956Z AUTO 11021G28KT 10SM BKN020 BKN028 OVC110 M09/M12 A2985 RMK AO2 PK WND 11029/0935 SLP110 T10941117 FZRANOPABL2019-02-21T09:56:00Z65.98-161.15-9.4-11.7110212810.029.849411011.0TRUETRUETRUEMVFRMETAR7.02019-02-21 10:02:40u)K5     3PADU 210956Z AUTO VRB03KT 10SM BKN042 OVC050 02/M04 A3032 RMK AO2 SLP272 T00221039 FZRANO PNO $PADU2019-02-21T09:56:00Z53.9-166.532.2-3.90310.030.3188971027.2TRUETRUETRUETRUEVFRMETAR4.02019-02-21 10:02:40F)S5      3PAEM 210956Z AUTO 18020G24KT 2 1/2SM -SN BR SCT009 BKN016 OVC026 M03/M04 A2964 RMK AO2 PK WND 19029/0927 VIS 1 3/4V3 UPB00E10SNE00B10 SLP095 P0000 T10281039 FZRANOPAEM2019-02-21T09:56:00Z62.78-164.48-2.8-3.918020242.529.6397631009.5TRUETRUETRUE-SN BRIFR0.005METAR3.02019-02-21 10:02:40 $#)K5       3PAWS 210956Z AUTO 32003KT 4SM -SN BR OVC028 M06/M07 A2980 RMK AO2 SLP107 P0000 T10561072 FZRANOPAWS2019-02-21T09:56:00Z61.57-149.53-5.6-7.232034.029.7992131010.7TRUETRUETRUE-SN BRMVFR0.005METAR107.02019-02-21 10:02:40{)W5     3PFKT 210956Z AUTO 09026KT 10SM OVC100 M04/M06 A2957 RMK AO2 PK WND 09034/0920 SLP015 T10391056 FZRANOPFKT2019-02-21T09:56:00Z65.33-166.47-3.9-5.6902610.029.5688971001.5TRUETRUETRUEVFRMETAR9.02019-02-21 10:02:40i)-5     3PFYU 210956Z AUTO 02003KT 10SM CLR M23/M26 A3007 RMK AO2 SLP209 T12331256 FZRANOPFYU2019-02-21T09:56:00Z66.57-145.27-23.3-25.620310.030.0708661020.9TRUETRUETRUEVFRMETAR131.02019-02-21 10:02:40g)-5     3PPIZ 210956Z AUTO 04013KT 10SM CLR M25/M28 A2999 RMK AO2 SLP159 T12501278 FZRANOPPIZ2019-02-21T09:56:00Z69.73-163.0-25.0-27.8401310.029.9911421015.9TRUETRUETRUEVFRMETAR8.02019-02-21 10:02:40  i )-5     3KHST 210956Z AUTO 12009KT 10SM CLR 25/21 A3006 RMK AO2 SLP183 T02450210 FZRANO $KHST2019-02-21T09:56:00Z25.47-80.3724.521.0120910.030.0590551018.3TRUETRUETRUETRUEVFRMETAR2.02019-02-21 10:02:40 )a5       3PAVD 210956Z AUTO 00000KT 2 1/2SM -SN BR SCT018 OVC026 M05/M06 A2981 RMK AO2 SLP120 P0000 T10501061 FZRANOPAVD2019-02-21T09:56:00Z61.13-146.25-5.0-6.1002.529.8110241012.0TRUETRUETRUE-SN BRIFR0.005METAR37.02019-02-21 10:02:40o)95     3PAWG 210956Z AUTO 09009KT 10SM OVC030 02/00 A3016 RMK AO2 SLP214 T00170000 FZRANO TSNOPAWG2019-02-21T09:56:00Z56.48-132.371.70.090910.030.1594491021.4TRUETRUETRUETRUEMVFRMETAR11.02019-02-21 10:02:40q)A5     3PAWN 210956Z AUTO 09009KT 10SM FEW085 OVC110 M07/M15 A2991 RMK AO2 SLP144 T10721150 FZRANOPAWN2019-02-21T09:56:00Z67.57-162.98-7.2-15.090910.029.9114171014.4TRUETRUETRUEVFRMETAR30.02019-02-21 10:02:40 =%D= )O5      3KSXT 210956Z AUTO VRB04KT 1/2SM SN FZFG VV002 M03/M04 A2976 RMK AO2 SNB00 SLP108 P0001 T10331044 KSXT2019-02-21T09:56:00Z42.6-123.37-3.3-4.4040.529.7608261010.8TRUETRUESN FZFGLIFR0.01200METAR1170.02019-02-21 10:02:40[ )5     3RKSG 210956Z 29005KT 3SM HZ CLR 03/M01 A3030 RMK AO2A SLP265 T00251006 $RKSG2019-02-21T09:56:00Z36.97127.022.5-0.629053.030.3011821026.5TRUETRUEHZMVFRMETAR16.02019-02-21 10:02:40p )A5    3RODN 210956Z AUTO 08011KT 10SM FEW029 BKN037 BKN050 22/19 A3003 RMK AO2 SLP175 T02210192 $RODN2019-02-21T09:56:00Z26.35127.7722.119.2801110.030.0295281017.5TRUETRUETRUEVFRMETAR45.02019-02-21 10:02:40_ )%5    3KNQI 210956Z AUTO 01006KT 10SM OVC032 15/08 A2989 RMK AO2 SLP119 T01500083 $KNQI2019-02-21T09:56:00Z27.5-97.8215.08.310610.029.8907471011.9TRUETRUETRUEVFRMETAR15.02019-02-21 10:02:40 qGXqa)%5    3KFTK 210956Z AUTO 30004KT 10SM SCT032 03/01 A3011 RMK AO2 SLP202 T00290014 $KFTK2019-02-21T09:56:00Z37.88-85.972.91.4300410.030.1092531020.2TRUETRUETRUEVFRSPECI230.02019-02-21 10:02:40i)C5      3KLFI 210956Z 27006KT 7SM -RA OVC005 04/04 A2998 RMK AO2A RAE45RAB49 SLPNO P0005 T00440044 $KLFI2019-02-21T09:56:00Z37.07-76.374.44.427067.029.97933TRUETRUE-RAIFR0.05SPECI3.02019-02-21 10:02:40Q)5    3KFKA 210956Z AUTO 22007KT 10SM CLR M13/M15 A2992 RMK AO2 T11321154KFKA2019-02-21T09:56:00Z43.68-92.17-13.2-15.4220710.029.920275TRUETRUEVFRMETAR389.02019-02-21 10:02:40\)95     3RCSS 210956Z 29004KT 250V330 9999 -RA FEW006 BKN015 BKN030 22/19 Q1016 NOSIG RMK A3003RCSS2019-02-21T09:56:00Z25.07121.5322.019.029046.2130.0TRUE-RAMVFRSPECI6.02019-02-21 10:02:40 `$5S`m)55     3RJTY 210956Z AUTO 02008KT 10SM OVC080 07/M04 A3014 RMK AO2 SLP215 T00741044 FZRANO $RJTY2019-02-21T09:56:00Z35.75139.337.4-4.420810.030.1387791021.5TRUETRUETRUETRUEVFRMETAR139.02019-02-21 10:02:40\)!5     3KWRB 210956Z 00000KT 1SM BR OVC002 11/11 A3006 RMK AO2A SLP182 T01100110 $KWRB2019-02-21T09:56:00Z32.62-83.5811.011.0001.030.0590551018.2TRUETRUEBRLIFRSPECI90.02019-02-21 10:02:40i)C5     3RKJK 210956Z 34010KT 6SM BR BKN200 03/00 A3028 RMK AO2A SLPNO ALSTG ESTMD T00310002 PWINO $RKJK2019-02-21T09:56:00Z35.9126.623.10.2340106.030.280512TRUETRUETRUEBRVFRMETAR9.02019-02-21 10:02:40V)5    3KFFO 210956Z 25008KT 10SM OVC027 02/M02 A3007 RMK AO2A SLP192 T00211021KFFO2019-02-21T09:56:00Z39.82-84.032.1-2.1250810.030.0708661019.2TRUEMVFRSPECI251.02019-02-21 10:02:40 E6_E) 5      3KANB 210956Z AUTO 00000KT 7SM VCTS -RA BKN009 BKN047 OVC090 12/11 A3005 RMK AO2 LTG DSNT NE AND SW AND W TSE56 P0001 T01170111KANB2019-02-21T09:56:00Z33.58-85.8511.711.1007.030.050198TRUETRUEVCTS -RAIFR0.01METAR183.02019-02-21 10:02:40Q) 5     3KAIT 210956Z AUTO 24004KT 10SM -SN OVC019 M09/M11 A2979 RMK AO2KAIT2019-02-21T09:56:00Z46.53-93.67-9.0-11.0240410.029.790354TRUETRUE-SNMVFRMETAR367.02019-02-21 10:02:40^)%5     3KADC 210956Z AUTO 25004KT 3SM -SN SCT017 BKN040 OVC050 M12/M13 A2982 RMK AO2KADC2019-02-21T09:56:00Z46.45-95.22-12.0-13.025043.029.819881TRUETRUE-SNMVFRMETAR418.02019-02-21 10:02:40`)%5    3ETIH 210956Z AUTO 25004KT 9999 FEW028 09/06 A3035 RMK AO2 SLP292 T00850060 $ETIH2019-02-21T09:56:00Z49.2211.828.56.025046.2130.3513771029.2TRUETRUETRUEVFRMETAR442.02019-02-21 10:02:40 &)5      3KBED 210956Z AUTO 33005KT 4SM -FZRA BR FEW005 BKN017 OVC023 M01/M02 A2993 RMK AO2 UPB40E55FZRAE28B55SNB28E40 SLP153 P0002 I1003 T10061022KBED2019-02-21T09:56:00Z42.47-71.3-0.6-2.233054.029.9291341015.3TRUETRUE-FZRA BRMVFR0.02METAR50.02019-02-21 10:02:40)s5     3KART 210956Z AUTO 22019G34KT 4SM -RA BR OVC012 03/02 A2976 RMK AO2 PK WND 23034/0956 RAB04 SLP083 P0000 T00280022 $KART2019-02-21T09:56:00Z43.98-76.032.82.222019344.029.7608261008.3TRUETRUETRUE-RA BRMVFR0.005METAR100.02019-02-21 10:02:40x)M5      3KAND 210956Z AUTO 09003KT 2 1/2SM -RA BR OVC005 05/04 A3004 RMK AO2 RAB04 SLP175 P0001 T00500044KAND2019-02-21T09:56:00Z34.5-82.725.04.49032.530.0413381017.5TRUETRUE-RA BRIFR0.01METAR239.02019-02-21 10:02:40 G &GY )'5     3KCAE 210956Z 00000KT 1SM BR OVC002 06/06 A3008 RMK AO2 SLP187 T00610061 RVRNOKCAE2019-02-21T09:56:00Z33.93-81.126.16.1001.030.0797251018.7TRUEBRLIFRMETAR70.02019-02-21 10:02:40t)=5     3KBZN 210956Z AUTO 16004KT 10SM OVC055 M12/M14 A2986 RMK AO2 SNE40 SLP172 P0000 T11171139KBZN2019-02-21T09:56:00Z45.78-111.17-11.7-13.9160410.029.8612211017.2TRUETRUEVFR0.005METAR1361.02019-02-21 10:02:40^)%5    3KBIH 210956Z AUTO 00000KT 10SM OVC075 M02/M07 A2958 RMK AO2 SLP013 T10171067KBIH2019-02-21T09:56:00Z37.37-118.35-1.7-6.70010.029.580711001.3TRUETRUEVFRMETAR1253.02019-02-21 10:02:40v)M5   3KBJJ 210956Z AUTO 27011G19KT 10SM OVC019 02/M01 A3001 RMK AO2 PK WND 27027/0910 SLP172 T00171011KBJJ2019-02-21T09:56:00Z40.87-81.881.7-1.1270111910.030.0088581017.2TRUETRUEMVFRMETAR343.02019-02-21 10:02:40 y?byc$)+5     3KEHR 210956Z AUTO 00000KT 10SM CLR 01/M01 A3014 RMK AO2 SLP218 T00061006 FZRANOKEHR2019-02-21T09:56:00Z37.82-87.670.6-0.60010.030.1387791021.8TRUETRUETRUEVFRMETAR117.02019-02-21 10:02:40W#)5    3KCEC 210956Z AUTO 04007KT 10SM CLR 02/01 A2990 RMK AO2 SLP126 T00220006KCEC2019-02-21T09:56:00Z41.77-124.222.20.640710.029.8996071012.6TRUETRUEVFRMETAR17.02019-02-21 10:02:40M") 5     3KCKN 210956Z AUTO 35007KT 7SM -SN OVC070 M08/M09 A2988 RMK AO2KCKN2019-02-21T09:56:00Z47.85-96.62-8.0-9.035077.029.878937TRUETRUE-SNVFRMETAR273.02019-02-21 10:02:40h!)75    3KCMX 210956Z AUTO 29012KT 10SM SCT008 BKN015 OVC019 M05/M07 A2966 RMK AO2 T10501072 $KCMX2019-02-21T09:56:00Z47.17-88.48-5.0-7.22901210.029.660433TRUETRUETRUEMVFRMETAR326.02019-02-21 10:02:40  ')s5      3KVPS 210956Z AUTO 00000KT 3/8SM R19/2000V2200FT FG VV001 20/20 A3001 RMK AO2 RAE19RAB46E50 SLP169 P0000 T01950195 $KVPS2019-02-21T09:56:00Z30.47-86.5219.519.5000.3830.0088581016.9TRUETRUETRUEFGLIFR0.005100METAR26.02019-02-21 10:02:40^&)5    3KXMR 210956Z AUTO 17004KT 10SM CLR 20/19 A3008 RMK AO2 SLP189 T01950188 $KXMR2019-02-21T09:56:00Z28.47-80.5719.518.8170410.030.0797251018.9TRUETRUETRUEVFRMETAR3.02019-02-21 10:02:40 %)e5      3PHSF 210956Z AUTO 13004KT 10SM CLR 09/05 A3033 RMK AO2 SLP157 WND DATA ESTMD T00850048 402320085 PWINO PNO $PHSF2019-02-21T09:56:00Z19.77-155.558.54.8130410.030.330711015.7TRUETRUETRUETRUEVFR23.28.5SPECI1887.02019-02-21 10:02:40 G<Go+)75     3KLHW 210956Z AUTO 00000KT 3/8SM FG VV001 15/15 A3005 RMK AO2 SLP179 T01540154 RVRNO $KLHW2019-02-21T09:56:00Z31.87-81.5715.415.4000.3830.0501981017.9TRUETRUETRUEFGLIFR100METAR14.02019-02-21 10:02:40Y*)5    3KLRF 210956Z AUTO 00000KT 10SM CLR M01/M01 A3008 RMK AO2 SLP190 T10071008KLRF2019-02-21T09:56:00Z34.92-92.15-0.7-0.80010.030.0797251019.0TRUETRUEVFRMETAR95.02019-02-21 10:02:40`))%5     3KOZR 210956Z AUTO 21004KT 3SM BR OVC003 21/21 A3003 RMK AO2 SLP169 T02120207KOZR2019-02-21T09:56:00Z31.28-85.7221.220.721043.030.0295281016.9TRUETRUEBRLIFRMETAR93.02019-02-21 10:02:40y()M5     3KPAM 210956Z AUTO 16011KT 3/4SM R14/3500V4500FT BR OVC002 20/20 A3001 RMK AO2 SLP165 T02040201 $KPAM2019-02-21T09:56:00Z30.07-85.5720.420.1160110.7530.0088581016.5TRUETRUETRUEBRLIFRMETAR5.02019-02-21 10:02:40 M$(7Md/)+5     3KAIZ 210956Z AUTO 28003KT 7SM CLR M01/M02 A3012 RMK AO2 SLP205 T10111022 FZRANOKAIZ2019-02-21T09:56:00Z38.1-92.53-1.1-2.228037.030.1210631020.5TRUETRUETRUEVFRMETAR265.02019-02-21 10:02:40k.)A5     3KAJO 210956Z AUTO 23007KT 9SM RA FEW032 BKN047 OVC060 08/06 A2964 RMK AO2 SLP054 T00780056KAJO2019-02-21T09:56:00Z33.9-117.67.85.623079.029.6397631005.4TRUETRUERAVFRMETAR163.02019-02-21 10:02:40v-)a5     3K2DP 210956Z AUTO 26005KT 2 1/2SM BR OVC002 11/11 A3009 RMK AO2 VIS 1 3/4V2 1/2 LTG DSNT N SLPNO T01050105K2DP2019-02-21T09:56:00Z35.68-75.910.510.526052.530.088583TRUETRUEBRLIFRMETAR3.02019-02-21 10:02:40V,)5    3KIAB 210956Z AUTO 07009KT 10SM CLR M02/M08 A3000 RMK AO2 SLP174 T10171080KIAB2019-02-21T09:56:00Z37.62-97.27-1.7-8.070910.030.01017.4TRUETRUEVFRMETAR418.02019-02-21 10:02:40 i6Mi^3)'5   3K9MN 210956Z AUTO 24008G15KT 210V270 10SM CLR M12/M14 A2992 RMK AO1 T11201141K9MN2019-02-21T09:56:00Z44.02-92.48-12.0-14.124081510.029.920275TRUETRUEVFRMETAR355.02019-02-21 10:02:40c2)75   3KACB 210956Z AUTO 23005G15KT 10SM SCT024 BKN029 OVC035 00/M04 A2979 RMK AO2 T00041037KACB2019-02-21T09:56:00Z44.98-85.20.4-3.723051510.029.790354TRUETRUEMVFRMETAR190.02019-02-21 10:02:40b1)/5     3KADF 210956Z AUTO 00000KT 10SM FEW002 01/01 A3010 RMK AO2 SLP198 T00110011 FZRANOKADF2019-02-21T09:56:00Z34.1-93.071.11.10010.030.1003931019.8TRUETRUETRUEVFRMETAR56.02019-02-21 10:02:40\0)!5    3KAFJ 210956Z AUTO 27010KT 10SM OVC018 04/02 A3002 RMK AO2 SLP174 T00440022KAFJ2019-02-21T09:56:00Z40.12-80.274.42.22701010.030.020671017.4TRUETRUEMVFRMETAR361.02019-02-21 10:02:40 E\I7)5    3K14Y 210956Z AUTO 26005KT 10SM OVC007 M10/M11 A2982 RMK AO2K14Y2019-02-21T09:56:00Z45.9-94.87-10.0-11.0260510.029.819881TRUETRUEIFRMETAR406.02019-02-21 10:02:40c6)75    3K1M4 210956Z AUTO VRB05KT 9SM OVC003 07/07 A3007 RMK AO2 CIG 003V008 SLP208 T00720067K1M42019-02-21T09:56:00Z34.28-87.67.26.7059.030.0708661020.8TRUETRUELIFRMETAR284.02019-02-21 10:02:40K5)5   3K4I3 210956Z AUTO 27012G23KT 10SM OVC017 01/00 A3004 RMK AO2K4I32019-02-21T09:56:00Z40.33-82.531.00.0270122310.030.041338TRUETRUEMVFRMETAR363.02019-02-21 10:02:40d4)-5     3K7N0 210956Z AUTO 35003KT 1 1/4SM BR OVC003 17/17 A2997 RMK AO2 SLP149 T01670167K7N02019-02-21T09:56:00Z29.95-90.0716.716.735031.2529.9704721014.9TRUETRUEBRLIFRMETAR0.02019-02-21 10:02:40 6-!6e;)+5     3KHNB 210956Z AUTO 29003KT 10SM CLR 00/M01 A3013 RMK AO2 SLP204 T00001011 FZRANOKHNB2019-02-21T09:56:00Z38.25-86.950.0-1.1290310.030.1299211020.4TRUETRUETRUEVFRMETAR161.02019-02-21 10:02:40:)Y5       3KHND 210956Z AUTO 3SM UP BR OVC002 00/M01 A2961 RMK AO2 UPB0857SNE0857 SLP038 P0001 T00001006 FZRANO $KHND2019-02-21T09:56:00Z35.98-115.130.0-0.63.029.6102371003.8TRUETRUETRUETRUEBR UPLIFR0.01METAR749.02019-02-21 10:02:40b9)/5    3KHYI 210956Z AUTO 35005KT 10SM BKN065 OVC090 09/05 A2995 RMK AO2 SLP137 T00890050KHYI2019-02-21T09:56:00Z29.88-97.878.95.0350510.029.9498021013.7TRUETRUEVFRMETAR182.02019-02-21 10:02:40e8)+5     3KHYS 210956Z AUTO 14004KT 8SM CLR M06/M07 A2997 RMK AO2 SLP167 T10611067 FZRANOKHYS2019-02-21T09:56:00Z38.85-99.27-6.1-6.714048.029.9704721016.7TRUETRUETRUEVFRMETAR609.02019-02-21 10:02:40 D DC?({5    3KHCO 210956Z AUTO 33008KT 7SM CLR M09/M10 A2989 RMK AO2KHCO2019-02-21T09:56:00Z48.75-96.93-9.0-10.033087.029.890747TRUETRUEVFRMETAR250.02019-02-21 10:02:40n>)35     3KHDN 210956Z AUTO 10009KT 10SM BKN042 M11/M15 A2965 RMK AO2 SLP104 T11111150 FZRANOKHDN2019-02-21T09:56:00Z40.47-107.22-11.1-15.0100910.029.6486231010.4TRUETRUETRUEVFRMETAR2012.02019-02-21 10:02:40b=)35     3KHEF 210956Z AUTO 00000KT 7SM SN OVC009 00/M01 A3000 RMK AO2 SLP171 T00001011 PNO $KHEF2019-02-21T09:56:00Z38.72-77.520.0-1.1007.030.01017.1TRUETRUETRUESNIFRMETAR59.02019-02-21 10:02:40<)}5      3KHEZ 210956Z AUTO 34005KT 4SM TS BR FEW019 BKN043 OVC060 10/09 A3004 RMK AO2 LTG DSNT ALQDS TSB47 SLP178 P0019 T01000089KHEZ2019-02-21T09:56:00Z31.62-91.310.08.934054.030.0413381017.8TRUETRUETS BRMVFR0.19METAR83.02019-02-21 10:02:40 R(8WRC)a5     3KLPC 210956Z AUTO 29008KT 10SM FEW030 SCT049 BKN060 08/04 A2972 RMK AO2 RAE02B29E42 SLP068 P0002 T00830044KLPC2019-02-21T09:56:00Z34.67-120.478.34.4290810.029.7194881006.8TRUETRUEVFR0.02METAR27.02019-02-21 10:02:40[B)!5    3KLRD 210956Z AUTO 08004KT 10SM OVC055 15/06 A2988 RMK AO2 SLP128 T01500056KLRD2019-02-21T09:56:00Z27.55-99.4715.05.680410.029.8789371012.8TRUETRUEVFRMETAR155.02019-02-21 10:02:40jA)-5     3KGXY 210956Z AUTO 02008KT 10SM CLR M11/M16 A2977 RMK AO2 SLP125 T11061156 FZRANOKGXY2019-02-21T09:56:00Z40.42-104.62-10.6-15.620810.029.7696861012.5TRUETRUETRUEVFRMETAR1420.02019-02-21 10:02:40R@)5    3KGYL 210956Z AUTO 23008KT 7SM BKN007 M15/M17 A2990 RMK AO2 T11511168KGYL2019-02-21T09:56:00Z44.77-94.08-15.1-16.823087.029.899607TRUETRUEIFRMETAR302.02019-02-21 10:02:40 M/JMwG)O5     3KDRA 210956Z AUTO 05003KT 9SM BKN037 OVC080 01/M02 A2956 RMK AO2 SNB09E55 SLP001 P0000 T00061017 KDRA2019-02-21T09:56:00Z36.62-116.030.6-1.75039.029.560041000.1TRUETRUEVFR0.005METAR1006.02019-02-21 10:02:40_F)%5    3KINW 210956Z AUTO VRB04KT 10SM SCT110 M01/M07 A2964 RMK AO2 SLP029 T10061072KINW2019-02-21T09:56:00Z35.03-110.72-0.6-7.20410.029.6397631002.9TRUETRUEVFRMETAR1490.02019-02-21 10:02:40iE)95     3KISP 210956Z AUTO 34006KT 10SM OVC004 02/02 A2985 RMK AO2 RAE14 SLP108 P0000 T00170017KISP2019-02-21T09:56:00Z40.8-73.11.71.7340610.029.849411010.8TRUETRUELIFR0.005METAR43.02019-02-21 10:02:40\D)5    3KDYS 210956Z 13011KT 10SM BKN180 08/M05 A2987 RMK AO2A SLP104 T00801048 $KDYS2019-02-21T09:56:00Z32.42-99.838.0-4.81301110.029.8700791010.4TRUETRUEVFRMETAR545.02019-02-21 10:02:40 ''fK)-5     3KITH 210956Z AUTO 18008KT 10SM OVC017 01/00 A2984 RMK AO2 SLP116 P0002 T00110000KITH2019-02-21T09:56:00Z42.47-76.451.10.0180810.029.8405511011.6TRUETRUEMVFR0.02METAR335.02019-02-21 10:02:40{J)E5      3KIWD 210956Z AUTO 25014KT 7SM -SN OVC010 M06/M07 A2973 RMK AO2 SLP087 T10561072 FZRANO PNO $KIWD2019-02-21T09:56:00Z46.52-90.12-5.6-7.2250147.029.7312981008.7TRUETRUETRUETRUE-SNMVFRMETAR375.02019-02-21 10:02:40I)Y5    3KJHW 210956Z AUTO 26016G24KT 10SM OVC015 01/00 A2988 RMK AO2 PK WND 25033/0901 SLP140 T00110000 FZRANOKJHW2019-02-21T09:56:00Z42.13-79.271.10.0260162410.029.8789371014.0TRUETRUETRUEMVFRMETAR525.02019-02-21 10:02:40aH)-5     3KJRB 210956Z AUTO 27004KT 9SM OVC007 02/01 A2992 RMK AO2 SLP132 T00170006 FZRANOKJRB2019-02-21T09:56:00Z40.7-74.021.70.627049.029.9202751013.2TRUETRUETRUEIFRMETAR7.02019-02-21 10:02:40 ]%F]cO))5     3KBVX 210956Z AUTO 32003KT 10SM CLR 02/01 A3012 RMK AO2 SLP201 T00170011 FZRANOKBVX2019-02-21T09:56:00Z35.73-91.651.71.1320310.030.1210631020.1TRUETRUETRUEVFRMETAR141.02019-02-21 10:02:40YN)!5    3KILE 210956Z AUTO 00000KT 10SM BKN075 07/04 A2995 RMK AO2 SLP163 T00670039KILE2019-02-21T09:56:00Z31.07-97.676.73.90010.029.9498021016.3TRUETRUEVFRMETAR258.02019-02-21 10:02:40\M))5   3KIRS 210956Z AUTO 28010G14KT 10SM SCT025 SCT031 01/M04 A2996 RMK AO2 T00101039KIRS2019-02-21T09:56:00Z41.8-85.431.0-3.9280101410.029.958662TRUETRUEVFRMETAR282.02019-02-21 10:02:40sL)G5     3KISM 210956Z AUTO 00000KT 1 3/4SM BR CLR 19/19 A3011 RMK AO2 VIS 1/2V5 SLP196 T01940189 PNO $KISM2019-02-21T09:56:00Z28.28-81.4319.418.9001.7530.1092531019.6TRUETRUETRUEBRIFRMETAR25.02019-02-21 10:02:40 k@^kmS);5      3KBLM 210956Z AUTO 27006KT 2 1/2SM BR OVC003 02/01 A2991 RMK AO2 SLP135 T00170011 FZRANOKBLM2019-02-21T09:56:00Z40.17-74.121.71.127062.529.9114171013.5TRUETRUETRUEBRLIFRMETAR48.02019-02-21 10:02:40\R)5    3KBMI 210956Z AUTO 25008KT 10SM CLR M02/M03 A3007 RMK AO2 SLP189 T10171028KBMI2019-02-21T09:56:00Z40.47-88.92-1.7-2.8250810.030.0708661018.9TRUETRUEVFRMETAR267.02019-02-21 10:02:40XQ)5    3KBOK 210956Z AUTO 04003KT 10SM CLR 02/00 A2990 RMK AO2 SLP142 T00170000KBOK2019-02-21T09:56:00Z42.07-124.281.70.040310.029.8996071014.2TRUETRUEVFRMETAR140.02019-02-21 10:02:40\P)!5    3KBTP 210956Z AUTO 25008KT 10SM OVC020 04/02 A2997 RMK AO2 SLP166 T00390017KBTP2019-02-21T09:56:00Z40.77-79.953.91.7250810.029.9704721016.6TRUETRUEMVFRMETAR380.02019-02-21 10:02:40 V)}5       3KBHB 210956Z AUTO 00000KT 1SM -SN BR BKN007 OVC014 M05/M06 A3004 RMK AO2 CIG 005V011 SLP178 P0008 T10501056 FZRANO RVRNOKBHB2019-02-21T09:56:00Z44.45-68.37-5.0-5.6001.030.0413381017.8TRUETRUETRUE-SN BRIFR0.08METAR26.02019-02-21 10:02:40{U)Q5     3KBID 210956Z AUTO 14013G21KT 6SM BR BKN003 OVC008 05/04 A2982 RMK AO2 RAE44 SLP101 P0001 T00500044KBID2019-02-21T09:56:00Z41.17-71.585.04.414013216.029.8198811010.1TRUETRUEBRLIFR0.01METAR33.02019-02-21 10:02:40T)E5       3KBKX 210956Z AUTO 23005KT 4SM -SN BR CLR M18/M19 A2994 RMK AO2 SLP190 P0000 T11781194 FZRANOKBKX2019-02-21T09:56:00Z44.28-96.82-17.8-19.423054.029.9409451019.0TRUETRUETRUE-SN BRMVFR0.005METAR502.02019-02-21 10:02:40 =/Lc= Z)5       3KASH 210956Z AUTO 04003KT 2 1/2SM -SN BR BKN005 OVC012 M03/M03 A2996 RMK AO2 UPB05E09SNE05B09 SLP156 P0000 T10331033 FZRANO $KASH2019-02-21T09:56:00Z42.78-71.52-3.3-3.34032.529.9586621015.6TRUETRUETRUETRUE-SN BRIFR0.005METAR61.02019-02-21 10:02:40cY)+5     3KAWO 210956Z AUTO 00000KT 8SM CLR M04/M04 A3007 RMK AO2 SLP187 T10391044 FZRANOKAWO2019-02-21T09:56:00Z48.17-122.17-3.9-4.4008.030.0708661018.7TRUETRUETRUEVFRMETAR42.02019-02-21 10:02:40]X))5   3KBAX 210956Z AUTO 26013G19KT 10SM BKN031 OVC040 01/M02 A2981 RMK AO2 T00141016KBAX2019-02-21T09:56:00Z43.78-82.981.4-1.6260131910.029.811024TRUETRUEVFRMETAR234.02019-02-21 10:02:40KW)5    3KBDH 210956Z AUTO 25007KT 10SM OVC011 M16/M17 A2991 RMK AO2KBDH2019-02-21T09:56:00Z45.12-95.13-16.0-17.0250710.029.911417TRUETRUEMVFRMETAR247.02019-02-21 10:02:40 : :`^)#5     3CYLL 210956Z AUTO 32005KT 6SM -SN OVC028 M15/M17 A3009 RMK ICG INTMT SLP247CYLL2019-02-21T09:56:00Z53.32-110.07-15.0-17.032056.030.0885831024.7TRUE-SNMVFRSPECI669.02019-02-21 10:02:40q]);5     3KJMS 210956Z AUTO 32011KT 9SM FEW025 M13/M14 A2988 RMK AO2 SNE07 SLP149 P0000 T11281139KJMS2019-02-21T09:56:00Z46.93-98.67-12.8-13.9320119.029.8789371014.9TRUETRUEVFR0.005METAR455.02019-02-21 10:02:40e\)=5    3KAQV 210956Z AUTO 03003KT 10SM SCT060 BKN075 OVC110 08/06 A2998 RMK AO2 SLP154 T00780061KAQV2019-02-21T09:56:00Z31.4-93.37.86.130310.029.979331015.4TRUETRUEVFRMETAR111.02019-02-21 10:02:40x[)U5     3ROTM 210956Z 08011KT 10SM SCT016 BKN021 OVC030 21/21 A3004 RMK AO2 SLP160 STNPR29740 P0000 T02110211ROTM2019-02-21T09:56:00Z26.27127.7521.121.1801110.030.0413381016.0TRUEMVFR0.005METAR75.02019-02-21 10:02:40 p@Vp`b)%5    3ETIK 210956Z AUTO 24008KT 9999 OVC055 09/08 A3035 RMK AO2 SLP289 T00920078 $ETIK2019-02-21T09:56:00Z49.4710.379.27.824086.2130.3513771028.9TRUETRUETRUEVFRMETAR325.02019-02-21 10:02:40da)35    3ETOU 210956Z AUTO 00000KT 9999 FEW046 OVC065 06/02 A3037 RMK AO2 SLP292 T00560022 $ETOU2019-02-21T09:56:00Z50.038.325.62.2006.2130.3690951029.2TRUETRUETRUEVFRMETAR141.02019-02-21 10:02:40W`)5     3CZPC 210956Z AUTO 16010KT 3SM -SN OVC014 M14/M16 A3006 RMK SLP255CZPC2019-02-21T09:56:00Z49.52-114.0-14.0-16.0160103.030.0590551025.5TRUE-SNMVFRSPECI1190.02019-02-21 10:02:40]_)!5    3CYZE 210956Z AUTO 26025G32KT 5SM BR FEW019 OVC038 M00/M02 A2966 RMK SLP054CYZE2019-02-21T09:56:00Z45.87-82.570.0-2.026025325.029.6604331005.4TRUEBRMVFRSPECI193.02019-02-21 10:02:40 $f)c5      3KLGD 210956Z AUTO 31013KT 10SM FEW035 OVC047 M03/M07 A2984 RMK AO2 SNB0859E44 SLP247 P0000 T10331067 FZRANOKLGD2019-02-21T09:56:00Z45.27-118.0-3.3-6.73101310.029.8405511024.7TRUETRUETRUEVFR0.005METAR827.02019-02-21 10:02:40je)A5     3KJAX 210956Z 16005KT 8SM SCT032 BKN060 21/21 A3008 RMK AO2 RAB20E53 SLP185 P0001 T02060206KJAX2019-02-21T09:56:00Z30.5-81.6820.620.616058.030.0797251018.5TRUEVFR0.01METAR10.02019-02-21 10:02:40ld);5    3KEKQ 210956Z AUTO 02010KT 10SM BKN033 OVC040 06/04 A3012 RMK AO2 SLP231 T00610039 PNO $KEKQ2019-02-21T09:56:00Z36.85-84.856.13.9201010.030.1210631023.1TRUETRUETRUEVFRMETAR294.02019-02-21 10:02:40tc)K5     3ETIC 210956Z AUTO 00000KT 9999 BKN029 04/04 A3033 RMK AO2 CIG 029V090 SLP293 T00440044 FZRANO $ETIC2019-02-21T09:56:00Z49.711.934.44.4006.2130.330711029.3TRUETRUETRUETRUEMVFRMETAR415.02019-02-21 10:02:40 C3Cjj)-5     3KFRM 210956Z AUTO 26011KT 10SM CLR M16/M17 A2996 RMK AO2 SLP172 T11561172 FZRANOKFRM2019-02-21T09:56:00Z43.63-94.42-15.6-17.22601110.029.9586621017.2TRUETRUETRUEVFRMETAR354.02019-02-21 10:02:40Vi)5   3KFPK 210956Z AUTO 25014G21KT 10SM OVC034 01/M04 A2991 RMK AO2 T00071045KFPK2019-02-21T09:56:00Z42.57-84.820.7-4.5250142110.029.911417TRUETRUEVFRMETAR272.02019-02-21 10:02:40lh)15      3KFOD 210956Z AUTO 22007KT 6SM BR CLR M16/M17 A3001 RMK AO2 SLP215 T11561172 FZRANOKFOD2019-02-21T09:56:00Z42.53-94.17-15.6-17.222076.030.0088581021.5TRUETRUETRUEBRVFRMETAR355.02019-02-21 10:02:40yg)K5       3KLEW 210956Z AUTO 35003KT 1SM -SN BR OVC010 M07/M08 A3000 RMK AO2 SLP176 P0001 T10671078 FZRANOKLEW2019-02-21T09:56:00Z44.03-70.27-6.7-7.835031.030.01017.6TRUETRUETRUE-SN BRIFR0.01METAR88.02019-02-21 10:02:40 X(XJn)5    3KFFM 210956Z AUTO 32003KT 10SM OVC005 M11/M12 A2987 RMK AO2KFFM2019-02-21T09:56:00Z46.28-96.15-11.0-12.0320310.029.870079TRUETRUEIFRMETAR361.02019-02-21 10:02:40hm)/5     3KFKL 210956Z AUTO 27011KT 10SM OVC027 02/01 A2993 RMK AO2 SLP151 T00220011 FZRANOKFKL2019-02-21T09:56:00Z41.37-79.872.21.12701110.029.9291341015.1TRUETRUETRUEMVFRMETAR469.02019-02-21 10:02:40sl)=5      3KFLP 210956Z AUTO 06003KT 6SM BR CLR M02/M02 A3009 RMK AO2 SLP195 T10171022 FZRANO PNO $KFLP2019-02-21T09:56:00Z36.28-92.58-1.7-2.26036.030.0885831019.5TRUETRUETRUETRUEBRVFRMETAR219.02019-02-21 10:02:40kk)-5     3KFNL 210956Z AUTO 36008KT 10SM CLR M11/M16 A2976 RMK AO2 SLP108 T11111156 FZRANOKFNL2019-02-21T09:56:00Z40.45-105.02-11.1-15.6360810.029.7608261010.8TRUETRUETRUEVFRMETAR1529.02019-02-21 10:02:40 {E|{{r)Q5   3KJXN 210956Z AUTO 25011G25KT 10SM OVC033 01/M04 A2992 RMK AO2 PK WND 24026/0900 SLP142 T00111044 $KJXN2019-02-21T09:56:00Z42.27-84.471.1-4.4250112510.029.9202751014.2TRUETRUETRUEVFRMETAR305.02019-02-21 10:02:40Cq({5    3K21D 210956Z AUTO 24006KT 7SM -SN M11/M12 A2989 RMK AO2K21D2019-02-21T09:56:00Z45.0-92.85-11.0-12.024067.029.890747TRUETRUE-SNMETAR285.02019-02-21 10:02:40Hp) 5   3KD39 210956Z AUTO 28007KT 10SM M11/M12 A2985 RMK AO2 T11091121KD392019-02-21T09:56:00Z45.7-94.93-10.9-12.1280710.029.84941TRUETRUEMETAR380.02019-02-21 10:02:40go)-5     3KGBD 210956Z AUTO 11005KT 10SM CLR M06/M07 A2997 RMK AO2 SLP163 T10561067 FZRANOKGBD2019-02-21T09:56:00Z38.35-98.87-5.6-6.7110510.029.9704721016.3TRUETRUETRUEVFRMETAR575.02019-02-21 10:02:40 **mv)=5      3KLAS 210956Z 00000KT 2SM -SN BR SCT003 OVC011 01/00 A2959 RMK AO2 SLP023 P0001 T00110000KLAS2019-02-21T09:56:00Z36.07-115.171.10.0002.029.5895671002.3TRUE-SN BRIFR0.01METAR636.02019-02-21 10:02:40Lu)5     3KFSE 210956Z AUTO 33004KT 7SM -SN CLR M11/M12 A2983 RMK AO2KFSE2019-02-21T09:56:00Z47.58-95.77-11.0-12.033047.029.828741TRUETRUE-SNVFRMETAR389.02019-02-21 10:02:40t)5      3KGAD 210956Z AUTO 10004KT 4SM RA BR OVC003 09/09 A3004 RMK AO2 LTG DSNT ALQDS TSB15E30 CIG 002V006 SLP177 P0011 T00890089KGAD2019-02-21T09:56:00Z33.97-86.078.98.910044.030.0413381017.7TRUETRUERA BRLIFR0.11METAR173.02019-02-21 10:02:40rs)?5      3KGAI 210956Z AUTO 26003KT 1 1/4SM BR OVC003 M01/M01 A2998 RMK AO2 SLP184 T10061011 FZRANOKGAI2019-02-21T09:56:00Z39.17-77.17-0.6-1.126031.2529.979331018.4TRUETRUETRUEBRLIFRMETAR165.02019-02-21 10:02:40 ""Rz)5    3KISQ 210956Z AUTO 25006KT 10SM OVC044 M04/M07 A2972 RMK AO2 T10421072KISQ2019-02-21T09:56:00Z45.97-86.17-4.2-7.2250610.029.719488TRUETRUEVFRMETAR209.02019-02-21 10:02:40y)}5   !   3KEKY 210956Z AUTO 33004KT 4SM VCTS RA BR OVC002 14/14 A3002 RMK AO2 LTG DSNT ALQDS TSE02B07E52B56 SLP183 P0013 T01440144KEKY2019-02-21T09:56:00Z33.32-86.9314.414.433044.030.020671018.3TRUETRUEVCTS RA BRLIFR0.13METAR213.02019-02-21 10:02:40x)Q5       3KGDV 210956Z AUTO 00000KT 9SM -SN OVC043 M16/M19 A2992 RMK AO2 SNB53 SLP187 P0000 T11561189 FZRANOKGDV2019-02-21T09:56:00Z47.12-104.78-15.6-18.9009.029.9202751018.7TRUETRUETRUE-SNVFR0.005METAR749.02019-02-21 10:02:40[w)5    3KLNR 210956Z AUTO 26007KT 9SM CLR M08/M11 A2996 RMK AO2 SLP151 T10781111KLNR2019-02-21T09:56:00Z43.22-90.18-7.8-11.126079.029.9586621015.1TRUETRUEVFRMETAR217.02019-02-21 10:02:40 Y,YM~) 5     3KCQM 210955Z AUTO 00000KT 7SM -SN BKN060 M12/M13 A2976 RMK AO2KCQM2019-02-21T09:55:00Z47.82-92.68-12.0-13.0007.029.760826TRUETRUE-SNVFRSPECI404.02019-02-21 10:02:40E})5    3KMYP 210956Z AUTO BKN016 BKN100 M16/M19 A2961 RMK AO2 PWINOKMYP2019-02-21T09:56:00Z38.48-106.32-16.0-19.029.610237TRUETRUETRUEMETAR3667.02019-02-21 10:02:40|)Y5       3KGPZ 210956Z AUTO 00000KT 5SM -SN BR SCT024 BKN110 M14/M16 A2979 RMK AO2 SLP119 P0000 T11391156 FZRANOKGPZ2019-02-21T09:56:00Z47.22-93.52-13.9-15.6005.029.7903541011.9TRUETRUETRUE-SN BRMVFR0.005METAR413.02019-02-21 10:02:40u{)Q5     3TJSJ 210956Z 14004KT 10SM FEW033 SCT043 SCT060 23/19 A3008 RMK AO2 RAB08E18 SLP186 P0000 T02280194TJSJ2019-02-21T09:56:00Z18.43-66.0222.819.4140410.030.0797251018.6TRUEVFR0.005METAR21.02019-02-21 10:02:40 -bh)=5     3KELO 210955Z AUTO 00000KT 1 3/4SM -SN SCT019 BKN024 OVC031 M11/M12 A2973 RMK AO2 VIS 1V3KELO2019-02-21T09:55:00Z47.82-91.82-11.0-12.0001.7529.731298TRUETRUE-SNIFRMETAR443.02019-02-21 10:02:40S)!5    3KERV 210955Z AUTO 00000KT 10SM BKN060 BKN070 04/02 A2993 RMK AO2 T00360016KERV2019-02-21T09:55:00Z29.98-99.083.61.60010.029.929134TRUETRUEVFRMETAR510.02019-02-21 10:02:40E)5    3KERY 210955Z AUTO 10SM OVC010 M04/M05 A2967 RMK AO2 T10401052KERY2019-02-21T09:55:00Z46.3-85.45-4.0-5.210.029.66929TRUETRUEMVFRMETAR265.02019-02-21 10:02:40M) 5     3KCQF 210955Z AUTO 16003KT M1/4SM FG OVC002 20/20 A2999 RMK AO2KCQF2019-02-21T09:55:00Z30.47-87.8820.020.016030.2529.991142TRUETRUEFGLIFRMETAR28.02019-02-21 10:02:40 2jE(}5    3KEVU 210955Z AUTO 28006KT 10SM CLR M07/M13 A3007 RMK AO2KEVU2019-02-21T09:55:00Z40.35-94.92-7.0-13.0280610.030.070866TRUETRUEVFRMETAR349.02019-02-21 10:02:40M)5    3KF05 210955Z AUTO 17005KT 10SM CLR 06/M01 A2993 RMK AO1 T00561006KF052019-02-21T09:55:00Z34.23-99.285.6-0.6170510.029.929134TRUETRUEVFRMETAR386.02019-02-21 10:02:40B(5    3KBRY 210955Z AUTO 33003KT 10SM BKN032 03/00 A3010 RMK AO1KBRY2019-02-21T09:55:00Z37.82-85.53.00.0330310.030.100393TRUETRUEVFRSPECI204.02019-02-21 10:02:40H)5     3KCKI 210955Z AUTO 00000KT 3/4SM BR OVC003 06/06 A3010 RMK AO2KCKI2019-02-21T09:55:00Z33.72-79.856.06.0000.7530.100393TRUETRUEBRLIFRSPECI21.02019-02-21 10:02:40 /cO )5    3KFEP 210955Z AUTO 24008KT 10SM CLR M06/M09 A3001 RMK AO2 T10641091KFEP2019-02-21T09:55:00Z42.25-89.58-6.4-9.1240810.030.008858TRUETRUEVFRMETAR262.02019-02-21 10:02:40W )5     3KARV 210955Z AUTO 27005KT 4SM -SN OVC012 M04/M05 A2971 RMK AO2 T10401055KARV2019-02-21T09:55:00Z45.92-89.72-4.0-5.527054.029.71063TRUETRUE-SNMVFRMETAR496.02019-02-21 10:02:40F) 5    3KF46 210955Z AUTO 10009KT 10SM CLR 06/02 A3000 RMK AO2 T00610021KF462019-02-21T09:55:00Z32.93-96.436.12.1100910.030.0TRUETRUEVFRMETAR176.02019-02-21 10:02:40K)5    3KF17 210955Z AUTO 05003KT 10SM OVC080 05/04 A3002 RMK AO2 T00500044KF172019-02-21T09:55:00Z31.83-94.155.04.450310.030.02067TRUETRUEVFRMETAR97.02019-02-21 10:02:40 .^;(y5    3KMAW 210955Z AUTO 00000KT 10SM CLR 01/01 A3013 RMK AO2KMAW2019-02-21T09:55:00Z36.6-90.01.01.00010.030.129921TRUETRUEVFRMETAR90.02019-02-21 10:02:40H )5     3KMNI 210955Z AUTO 00000KT 3/4SM BR OVC003 06/06 A3009 RMK AO2KMNI2019-02-21T09:55:00Z33.58-80.226.06.0000.7530.088583TRUETRUEBRLIFRMETAR32.02019-02-21 10:02:40J ) 5     3KGGE 210955Z AUTO 00000KT 1 3/4SM BR OVC003 09/08 A3011 RMK AO2KGGE2019-02-21T09:55:00Z33.32-79.329.08.0001.7530.109253TRUETRUEBRLIFRSPECI12.02019-02-21 10:02:40L )5     3KS32 210955Z AUTO 32010KT 6SM -SN CLR M10/M11 A2988 RMK AO2KS322019-02-21T09:55:00Z47.42-98.1-10.0-11.0320106.029.878937TRUETRUE-SNVFRSPECI684.02019-02-21 10:02:40 1V{T)5     3KBNL 210955Z AUTO 00000KT 3/4SM BR OVC003 08/08 A3008 RMK AO2 LTG DSNT NWKBNL2019-02-21T09:55:00Z33.25-81.388.08.0000.7530.079725TRUETRUEBRLIFRMETAR75.02019-02-21 10:02:40U)5     3KD57 210955Z AUTO 29008KT 10SM OVC065 M15/M18 A2991 RMK AO2 PWINOKD572019-02-21T09:55:00Z46.82-101.87-15.0-18.0290810.029.911417TRUETRUETRUEVFRSPECI637.02019-02-21 10:02:40U) 5     3KGAF 210955Z AUTO 33012KT 4SM BR CLR M10/M11 A2992 RMK AO2 PWINOKGAF2019-02-21T09:55:00Z48.4-97.37-10.0-11.0330124.029.920275TRUETRUETRUEBRMVFRSPECI252.02019-02-21 10:02:40I)5     3KM25 210955Z AUTO 00000KT 1/4SM FG OVC002 02/02 A3012 RMK AO2KM252019-02-21T09:55:00Z36.77-88.582.02.0000.2530.121063TRUETRUEFGLIFRMETAR160.02019-02-21 10:02:40 -UG)5     3KJNX 210955Z AUTO 22003KT 5SM BR OVC003 04/04 A3007 RMK AO2KJNX2019-02-21T09:55:00Z35.53-78.384.04.022035.030.070866TRUETRUEBRLIFRMETAR50.02019-02-21 10:02:40O)5    3KRCX 210955Z AUTO 23009KT 7SM OVC014 M06/M08 A2981 RMK AO2 T10581080KRCX2019-02-21T09:55:00Z45.5-91.0-5.8-8.023097.029.811024TRUETRUEMVFRSPECI377.02019-02-21 10:02:40R)5   3KSDC 210955Z AUTO 26010G19KT 10SM BKN018 OVC027 04/01 A2981 RMK AO2KSDC2019-02-21T09:55:00Z43.23-77.124.01.0260101910.029.811024TRUETRUEMVFRSPECI129.02019-02-21 10:02:40M)5    3KVTI 210955Z AUTO 24007KT 7SM CLR M09/M11 A3002 RMK AO2 T10901110KVTI2019-02-21T09:55:00Z42.22-92.02-9.0-11.024077.030.02067TRUETRUEVFRSPECI255.02019-02-21 10:02:40 DvM)5    3KCVB 210955Z AUTO 00000KT 10SM OVC060 11/03 A2994 RMK AO2 T01090029KCVB2019-02-21T09:55:00Z29.35-98.8510.92.90010.029.940945TRUETRUEVFRMETAR235.02019-02-21 10:02:40H) 5    3KJXI 210955Z AUTO 00000KT 10SM CLR 02/02 A3004 RMK AO2 T00220019KJXI2019-02-21T09:55:00Z32.7-94.952.21.90010.030.041338TRUETRUEVFRMETAR127.02019-02-21 10:02:40H)5     3KFDW 210955Z AUTO 11003KT 1SM BR OVC003 04/04 A3006 RMK AO1KFDW2019-02-21T09:55:00Z34.32-81.124.04.011031.030.059055TRUETRUEBRLIFRSPECI176.02019-02-21 10:02:40h)?5      3KIPJ 210955Z AUTO 00000KT 3SM RA SCT005 BKN010 OVC017 04/04 A3004 RMK AO2 P0003 T00360036KIPJ2019-02-21T09:55:00Z35.48-81.173.63.6003.030.041338TRUETRUERAMVFR0.03METAR267.02019-02-21 10:02:40  H])15     3KJYL 210955Z AUTO 00000KT 1/2SM FG OVC002 11/11 A3009 RMK AO2 LTG DSNT W T01050105KJYL2019-02-21T09:55:00Z32.65-81.610.510.5000.530.088583TRUETRUEFGLIFRMETAR57.02019-02-21 10:02:40?)5    3KJYO 210955Z AUTO 00000KT 1/4SM OVC002 00/00 A3000 RMK AO2KJYO2019-02-21T09:55:00Z39.07-77.570.00.0000.2530.0TRUETRUELIFRMETAR119.02019-02-21 10:02:40R)5    3KDUX 210955Z AUTO 14009KT 10SM CLR M04/M13 A2978 RMK AO2 T10411128KDUX2019-02-21T09:55:00Z35.85-102.02-4.1-12.8140910.029.778543TRUETRUEVFRMETAR1129.02019-02-21 10:02:40Z)-5     3KCTY 210955Z AUTO 00000KT 1 1/2SM BR BKN014 OVC080 17/17 A3008 RMK AO2 T01680167KCTY2019-02-21T09:55:00Z29.63-83.116.816.7001.530.079725TRUETRUEBRIFRMETAR13.02019-02-21 10:02:40 =il")M5     3KLQK 210955Z AUTO 31003KT 2SM -RA SCT003 BKN007 OVC016 05/05 A3005 RMK AO2 VIS 1 1/2V4 T00530053KLQK2019-02-21T09:55:00Z34.82-82.75.35.331032.030.050198TRUETRUE-RAIFRSPECI309.02019-02-21 10:02:40^!)+5     3KLNL 210955Z AUTO 27007KT 7SM -SN BKN015 OVC021 M04/M06 A2971 RMK AO2 T10451065KLNL2019-02-21T09:55:00Z46.15-89.22-4.5-6.527077.029.71063TRUETRUE-SNMVFRSPECI520.02019-02-21 10:02:40N )5    3KIFA 210955Z AUTO 22008KT 7SM CLR M13/M14 A3002 RMK AO2 T11301144KIFA2019-02-21T09:55:00Z42.47-93.27-13.0-14.422087.030.02067TRUETRUEVFRSPECI347.02019-02-21 10:02:40=(y5    3KJSV 210955Z AUTO 00000KT 10SM CLR 02/00 A3007 RMK AO2KJSV2019-02-21T09:55:00Z35.43-94.82.00.00010.030.070866TRUETRUEVFRMETAR161.02019-02-21 10:02:40 <bY&)#5     3KDLP 210955Z AUTO 09004KT 1/4SM FG BKN003 BKN009 OVC015 22/22 A2994 RMK A01KDLP2019-02-21T09:55:00Z29.12-89.5522.022.09040.2529.940945TRUETRUEFGLIFRMETAR36.02019-02-21 10:02:40K%)5     3KDSF 210955Z AUTO 14011KT 2 1/2SM BR CLR 23/22 A2996 RMK A01KDSF2019-02-21T09:55:00Z28.35-88.2723.022.0140112.529.958662TRUETRUEBRIFRMETAR130.02019-02-21 10:02:40T$)5    3KL18 210955Z AUTO 23010KT 10SM SCT029 SCT036 SCT047 07/05 A2968 RMK AO2KL182019-02-21T09:55:00Z33.35-117.257.05.02301010.029.681103TRUETRUEVFRMETAR216.02019-02-21 10:02:40>#(y5    3KINF 210955Z AUTO 00000KT 10SM CLR 18/18 A3009 RMK AO2KINF2019-02-21T09:55:00Z28.8-82.3218.018.00010.030.088583TRUETRUEVFRSPECI15.02019-02-21 10:02:40 8FZM*)5    3KAPY 210955Z AUTO 00000KT 10SM OVC060 15/05 A2989 RMK AO2 T01480051KAPY2019-02-21T09:55:00Z26.97-99.2514.85.10010.029.890747TRUETRUEVFRMETAR129.02019-02-21 10:02:40f))+5   3KANJ 210955Z AUTO 27010G16KT 10SM OVC013 M03/M06 A2965 RMK AO2 SLP049 T10331056KANJ2019-02-21T09:55:00Z46.47-84.37-3.3-5.6270101610.029.6486231004.9TRUETRUEMVFRMETAR218.02019-02-21 10:02:40l()E5     3KAJR 210955Z AUTO 00000KT 4SM +VCTSRA OVC010 07/07 A3004 RMK AO2 LTG DSNT SE AND S T00660066KAJR2019-02-21T09:55:00Z34.5-83.556.66.6004.030.041338TRUETRUEVCTS +RAMVFRMETAR441.02019-02-21 10:02:40B'(}5     3KDED 210955Z AUTO 00000KT 7SM BR CLR 19/19 A3010 RMK AO2KDED2019-02-21T09:55:00Z29.07-81.2819.019.0007.030.100393TRUETRUEBRVFRMETAR24.02019-02-21 10:02:40 &VK.) 5    3KENL 210955Z AUTO 30004KT 10SM CLR 01/00 A3010 RMK AO2 T00051005KENL2019-02-21T09:55:00Z38.52-89.10.5-0.5300410.030.100393TRUETRUEVFRMETAR163.02019-02-21 10:02:40O-)5    3KEHA 210955Z AUTO 16009KT 10SM CLR M06/M06 A2978 RMK AO2 T10611065KEHA2019-02-21T09:55:00Z37.0-101.9-6.1-6.5160910.029.778543TRUETRUEVFRMETAR1099.02019-02-21 10:02:40J,)5     3KEIR 210955Z AUTO 00000KT 1/4SM FG OVC003 20/20 A2992 RMK A01KEIR2019-02-21T09:55:00Z28.63-91.4820.020.0000.2529.920275TRUETRUEFGLIFRMETAR28.02019-02-21 10:02:40T+)5     3KEBA 210955Z AUTO 00000KT 1 1/4SM BR OVC003 06/05 A3009 RMK AO2 T00560050KEBA2019-02-21T09:55:00Z34.1-82.825.65.0001.2530.088583TRUETRUEBRLIFRMETAR184.02019-02-21 10:02:40 (Vr:2(y5    3KF44 210955Z AUTO 08003KT 10SM CLR 05/03 A3000 RMK AO2KF442019-02-21T09:55:00Z32.17-95.835.03.080310.030.0TRUETRUEVFRMETAR135.02019-02-21 10:02:40^1)'5     3KF70 210955Z AUTO 15005KT 10SM SCT015 BKN022 OVC026 06/05 A2966 RMK AO1 P0002KF702019-02-21T09:55:00Z33.57-117.136.05.0150510.029.660433TRUETRUEMVFR0.02METAR412.02019-02-21 10:02:40L0) 5    3KETN 210955Z AUTO 13003KT 10SM CLR 05/00 A2992 RMK AO2 T00511002KETN2019-02-21T09:55:00Z32.42-98.825.1-0.2130310.029.920275TRUETRUEVFRMETAR446.02019-02-21 10:02:40R/)5     3KEZZ 210955Z AUTO 26004KT 7SM BR CLR M06/M07 A3009 RMK AO2 T10611070KEZZ2019-02-21T09:55:00Z39.72-94.28-6.1-7.026047.030.088583TRUETRUEBRVFRMETAR317.02019-02-21 10:02:40 v/Xtvx6)U5      3KMDQ 210955Z AUTO 35012KT 2 1/2SM DZ BR OVC005 09/08 A3007 RMK A02 LTG DSNT S AND SW P0001 T00870084KMDQ2019-02-21T09:55:00Z34.87-86.558.78.4350122.530.070866TRUETRUEDZ BRIFR0.01METAR230.02019-02-21 10:02:40^5)#5     3KLYO 210955Z AUTO 13005KT 1/4SM FZFG OVC002 M09/M10 A2999 RMK AO2 T10941104KLYO2019-02-21T09:55:00Z38.35-98.23-9.4-10.413050.2529.991142TRUETRUEFZFGLIFRMETAR515.02019-02-21 10:02:40Q4)5    3KLXN 210955Z AUTO 30003KT 10SM CLR M19/M21 A2995 RMK AO2 T11871213KLXN2019-02-21T09:55:00Z40.78-99.77-18.7-21.3300310.029.949802TRUETRUEVFRMETAR734.02019-02-21 10:02:40K3) 5    3KF00 210955Z AUTO 10004KT 10SM CLR 03/02 A3003 RMK AO2 T00330015KF002019-02-21T09:55:00Z33.62-96.183.31.5100410.030.029528TRUETRUEVFRMETAR188.02019-02-21 10:02:40 *iK:)5    3KMWA 210955Z AUTO 00000KT 7SM CLR M02/M02 A3013 RMK AO2 T10201022KMWA2019-02-21T09:55:00Z37.77-89.02-2.0-2.2007.030.129921TRUETRUEVFRMETAR144.02019-02-21 10:02:40N9)5     3KMQS 210955Z AUTO 00000KT 1/2SM FZFG OVC001 M00/M00 A2993 RMK AO2KMQS2019-02-21T09:55:00Z39.98-75.870.00.0000.529.929134TRUETRUEFZFGLIFRMETAR201.02019-02-21 10:02:40;8(w5    3KMEZ 210955Z AUTO 00000KT 7SM CLR 00/00 A3007 RMK AO2KMEZ2019-02-21T09:55:00Z34.55-94.20.00.0007.030.070866TRUETRUEVFRMETAR329.02019-02-21 10:02:40P7) 5     3KMJQ 210955Z AUTO 26007KT 3SM -SN OVC001 M16/M18 A2994 RMK AO2KMJQ2019-02-21T09:55:00Z43.63-94.97-16.0-18.026073.029.940945TRUETRUE-SNLIFRMETAR441.02019-02-21 10:02:40 )KP>)5    3KMWO 210955Z AUTO 25007KT 10SM OVC027 03/M01 A3011 RMK AO2 T00261012KMWO2019-02-21T09:55:00Z39.53-84.42.6-1.2250710.030.109253TRUETRUEMVFRMETAR198.02019-02-21 10:02:40C=(5    3KN03 210955Z AUTO 22008KT 10SM OVC017 01/01 A2982 RMK AO2KN032019-02-21T09:55:00Z42.6-76.221.01.0220810.029.819881TRUETRUEMVFRSPECI366.02019-02-21 10:02:40X<)5      3KOGS 210955Z AUTO 00000KT 1 1/4SM BR OVC004 M03/M03 A2972 RMK AO2 P0001KOGS2019-02-21T09:55:00Z44.67-75.47-3.0-3.0001.2529.719488TRUETRUEBRLIFR0.01METAR91.02019-02-21 10:02:40Q;)5    3KMRT 210955Z AUTO 27009KT 10SM OVC024 02/M02 A3005 RMK AO2 T00151019KMRT2019-02-21T09:55:00Z40.22-83.351.5-1.9270910.030.050198TRUETRUEMVFRMETAR312.02019-02-21 10:02:40 0bMB)5    3KFET 210955Z AUTO 00000KT 7SM CLR M14/M16 A3004 RMK AO2 T11441164KFET2019-02-21T09:55:00Z41.45-96.52-14.4-16.4007.030.041338TRUETRUEVFRMETAR367.02019-02-21 10:02:40GA) 5     3KONP 210955Z AUTO 07005KT 1 3/4SM BR BKN001 00/00 A3000 RMK AO2KONP2019-02-21T09:55:00Z44.57-124.030.00.07051.7530.0TRUETRUEBRLIFRMETAR48.02019-02-21 10:02:40H@) 5    3KOSA 210955Z AUTO 00000KT 10SM CLR 03/01 A3006 RMK AO1 T00290011KOSA2019-02-21T09:55:00Z33.1-94.972.91.10010.030.059055TRUETRUEVFRSPECI111.02019-02-21 10:02:40J?) 5    3KOKM 210955Z AUTO 06003KT 10SM CLR 01/00 A3005 RMK AO2 T00130000KOKM2019-02-21T09:55:00Z35.67-95.951.30.060310.030.050198TRUETRUEVFRMETAR220.02019-02-21 10:02:40 p/CppzF)]5      3KFKN 210955Z AUTO 23003KT 7SM VCTSRA BKN003 OVC025 04/03 A3005 RMK AO2 LTG DSNT E AND SE P0005 T00360034KFKN2019-02-21T09:55:00Z36.7-76.93.63.423037.030.050198TRUETRUEVCTSRALIFR0.05METAR12.02019-02-21 10:02:40ME)5    3KFOA 210955Z AUTO 30003KT 10SM CLR 01/M01 A3012 RMK AO2 T00121010KFOA2019-02-21T09:55:00Z38.67-88.451.2-1.0300310.030.121063TRUETRUEVFRMETAR144.02019-02-21 10:02:40fD);5     3KFHB 210955Z AUTO 18007KT 10SM BKN039 BKN045 OVC050 21/20 A3008 RMK AO2 P0001 T02110204KFHB2019-02-21T09:55:00Z30.62-81.4721.120.4180710.030.079725TRUETRUEVFR0.01METAR5.02019-02-21 10:02:40KC) 5    3KFGX 210955Z AUTO 29006KT 10SM CLR 02/01 A3010 RMK AO2 T00220011KFGX2019-02-21T09:55:00Z38.55-83.752.21.1290610.030.100393TRUETRUEVFRMETAR278.02019-02-21 10:02:40 +_JJ) 5    3KGDJ 210955Z AUTO 11004KT 10SM CLR 07/03 A2998 RMK AO2 T00660031KGDJ2019-02-21T09:55:00Z32.45-97.826.63.1110410.029.97933TRUETRUEVFRMETAR237.02019-02-21 10:02:40FI)5     3KGCM 210955Z AUTO 07004KT 7SM CLR 01/00 A3007 RMK AO2 TSNOKGCM2019-02-21T09:55:00Z36.3-95.481.00.07047.030.070866TRUETRUETRUEVFRMETAR221.02019-02-21 10:02:40FH(}5    3KFXY 210955Z AUTO 22006KT 10SM CLR M13/M15 A2997 RMK AO2KFXY2019-02-21T09:55:00Z43.23-93.62-13.0-15.0220610.029.970472TRUETRUEVFRMETAR375.02019-02-21 10:02:40OG)5     3KGBK 210955Z AUTO 11010KT 6SM BR BKN010 BKN014 23/22 A2988 RMK A01KGBK2019-02-21T09:55:00Z27.2-92.223.022.0110106.029.878937TRUETRUEBRMVFRMETAR59.02019-02-21 10:02:40 0XLN) 5    3KHHV 210955Z AUTO 13013KT 7SM FEW005 OVC021 22/22 A2984 RMK A01KHHV2019-02-21T09:55:00Z26.93-94.6822.022.0130137.029.840551TRUETRUEMVFRMETAR25.02019-02-21 10:02:40=M(y5    3KGOP 210955Z AUTO 00000KT 10SM CLR 06/03 A2997 RMK AO2KGOP2019-02-21T09:55:00Z31.42-97.86.03.00010.029.970472TRUETRUEVFRMETAR276.02019-02-21 10:02:40RL)5    3KGRN 210955Z AUTO 31003KT 10SM CLR M20/M23 A2984 RMK AO2 T12001226KGRN2019-02-21T09:55:00Z42.8-102.17-20.0-22.6310310.029.840551TRUETRUEVFRSPECI1086.02019-02-21 10:02:40JK)5    3KGIC 210955Z AUTO 03003KT 10SM OVC013 M06/M06 A2980 RMK AO1KGIC2019-02-21T09:55:00Z45.95-116.12-6.0-6.030310.029.799213TRUETRUEMVFRMETAR1009.02019-02-21 10:02:40  F~CR(}5     3KGUL 210955Z AUTO 17009KT 6SM BR CLR 23/21 A2989 RMK A01KGUL2019-02-21T09:55:00Z27.3-93.5323.021.017096.029.890747TRUETRUEBRVFRMETAR30.02019-02-21 10:02:40BQ({5    3KHAE 210955Z AUTO 22004KT 10SM CLR 00/M03 A3010 RMK AO2KHAE2019-02-21T09:55:00Z39.73-91.450.0-3.0220410.030.100393TRUETRUEVFRMETAR234.02019-02-21 10:02:40TP)5    3KHCD 210955Z AUTO 25007KT 10SM BKN008 M16/M18 A2990 RMK AO2 T11581177KHCD2019-02-21T09:55:00Z44.87-94.38-15.8-17.7250710.029.899607TRUETRUEIFRMETAR323.02019-02-21 10:02:40ZO))5     3KHDC 210955Z AUTO 00000KT 3SM BR OVC004 13/13 A2997 RMK AO2 LTG DSNT NE AND NWKHDC2019-02-21T09:55:00Z30.52-90.4213.013.0003.029.970472TRUETRUEBRLIFRMETAR13.02019-02-21 10:02:40 ,]VV)5    3KI35 210955Z AUTO 23004KT 5SM BKN010 OVC014 11/10 A3003 RMK AO2 T01100101KI352019-02-21T09:55:00Z36.87-83.3711.010.123045.030.029528TRUETRUEMVFRMETAR473.02019-02-21 10:02:40KU) 5    3KHQZ 210955Z AUTO 10006KT 10SM CLR 06/02 A3001 RMK AO1 T00600020KHQZ2019-02-21T09:55:00Z32.75-96.536.02.0100610.030.008858TRUETRUEVFRMETAR136.02019-02-21 10:02:40IT) 5    3KHHW 210955Z AUTO 00000KT 10SM CLR 03/02 A3004 RMK AO2 T00310017KHHW2019-02-21T09:55:00Z34.03-95.553.11.70010.030.041338TRUETRUEVFRMETAR144.02019-02-21 10:02:40NS)5    3KHJH 210955Z AUTO 00000KT 10SM CLR M15/M17 A3002 RMK AO2 T11531168KHJH2019-02-21T09:55:00Z40.15-97.58-15.3-16.80010.030.02067TRUETRUEVFRSPECI447.02019-02-21 10:02:40 0iQZ)5     3KPLU 210955Z AUTO 00000KT 5SM BR BKN031 OVC065 M01/M01 A3004 RMK AO2KPLU2019-02-21T09:55:00Z47.1-122.28-1.0-1.0005.030.041338TRUETRUEBRMVFRSPECI164.02019-02-21 10:02:40LY)5    3KPEQ 210955Z AUTO 00000KT 10SM CLR 08/M02 A2977 RMK AO2 T00831020KPEQ2019-02-21T09:55:00Z31.38-103.528.3-2.00010.029.769686TRUETRUEVFRMETAR797.02019-02-21 10:02:40AX(5    3KPCD 210955Z AUTO 10SM CLR 00/M02 A3013 RMK AO2 T10041021KPCD2019-02-21T09:55:00Z37.87-89.87-0.4-2.110.030.129921TRUETRUEVFRMETAR113.02019-02-21 10:02:40JW) 5    3KOUN 210955Z AUTO 09006KT 10SM CLR 02/00 A2998 RMK AO2 T00201004KOUN2019-02-21T09:55:00Z35.25-97.472.0-0.490610.029.97933TRUETRUEVFRMETAR357.02019-02-21 10:02:40 -[O^)5    3KPPA 210955Z AUTO 13008KT 10SM CLR M01/M04 A2983 RMK AO2 T10071043KPPA2019-02-21T09:55:00Z35.62-101.0-0.7-4.3130810.029.828741TRUETRUEVFRMETAR989.02019-02-21 10:02:40P])5    3KPMV 210955Z AUTO 26005KT 10SM CLR M09/M11 A3005 RMK AO2 T10861115KPMV2019-02-21T09:55:00Z40.95-95.92-8.6-11.5260510.030.050198TRUETRUEVFRMETAR367.02019-02-21 10:02:40L\)5    3KPOY 210955Z AUTO 31012KT 10SM SCT075 M12/M15 A2977 RMK AO2KPOY2019-02-21T09:55:00Z44.87-108.8-12.0-15.03101210.029.769686TRUETRUEVFRMETAR1552.02019-02-21 10:02:40M[)5    3KPMU 210955Z AUTO 00000KT 10SM CLR M01/M01 A3008 RMK AO2 LTG DSNT SEKPMU2019-02-21T09:55:00Z34.37-89.9-1.0-1.00010.030.079725TRUETRUEVFRMETAR67.02019-02-21 10:02:40Y8(8@HPX`hpx (08@HPX`hpx (08@HPX`hpxΡ~ϡСѡ ҡӡԡա֡ס"ء&١*Ρ~ϡСѡ ҡӡԡա֡ס"ء&١*ڡ.ۡ2ܡ6ݡ:ޡ>ߡB࡯FᡯJ⡯N㡯R䡯V塯Z桯^衯b顯fꡯj롯n졯rvz~𡯱񡯱򡯱 󡯱#'+/37;?CGKOSW[_c g k o s w{ #'+/37;? C!G"K#O$S%W&['_ 0ZMb)5    3KRYW 210955Z AUTO 10005KT 10SM OVC060 09/00 A2994 RMK AO2 T00910000KRYW2019-02-21T09:55:00Z30.5-97.979.10.0100510.029.940945TRUETRUEVFRSPECI376.02019-02-21 10:02:40Ia) 5    3KPSN 210955Z AUTO 04005KT 10SM CLR 07/05 A3001 RMK AO2 T00780047KPSN2019-02-21T09:55:00Z31.78-95.77.84.740510.030.008858TRUETRUEVFRMETAR129.02019-02-21 10:02:40P`)5    3KPVB 210955Z AUTO 24011KT 10SM CLR M07/M09 A2997 RMK AO1 T10751088KPVB2019-02-21T09:55:00Z42.68-90.43-7.5-8.82401110.029.970472TRUETRUEVFRSPECI313.02019-02-21 10:02:40J_) 5    3KPVJ 210955Z AUTO 02005KT 10SM CLR 03/01 A2999 RMK AO2 T00330006KPVJ2019-02-21T09:55:00Z34.72-97.223.30.620510.029.991142TRUETRUEVFRMETAR295.02019-02-21 10:02:40 .OMf)5    3KRAS 210955Z AUTO 01007KT 10SM OVC022 14/10 A2991 RMK AO2 T01450097KRAS2019-02-21T09:55:00Z27.82-97.0814.59.710710.029.911417TRUETRUEMVFRMETAR2.02019-02-21 10:02:40>e(y5    3KRKR 210955Z AUTO 00000KT 10SM CLR 00/00 A3008 RMK AO2KRKR2019-02-21T09:55:00Z35.02-94.620.00.00010.030.079725TRUETRUEVFRMETAR138.02019-02-21 10:02:40Yd))5     3KRLD 210955Z AUTO 00000KT 4SM BR SCT055 SCT120 M04/M05 A3002 RMK AO2 T10441048KRLD2019-02-21T09:55:00Z46.3-119.3-4.4-4.8004.030.02067TRUETRUEBRMVFRMETAR120.02019-02-21 10:02:40Lc)5    3KRWV 210955Z AUTO 03003KT 10SM OVC070 08/04 A2996 RMK AO2 T00830040KRWV2019-02-21T09:55:00Z30.52-96.78.34.030310.029.958662TRUETRUEVFRMETAR119.02019-02-21 10:02:40 Q}Tj)5    3KSBS 210955Z AUTO 00000KT 10SM OVC050 M14/M16 A2964 RMK AO1 T11451163KSBS2019-02-21T09:55:00Z40.52-106.87-14.5-16.30010.029.639763TRUETRUEVFRMETAR2096.02019-02-21 10:02:40Ni)5    3KS52 210955Z AUTO 00000KT 10SM CLR M09/M11 A3002 RMK AO2 T10871106KS522019-02-21T09:55:00Z48.38-120.15-8.7-10.60010.030.02067TRUETRUEVFRMETAR520.02019-02-21 10:02:40Bh({5    3KRZL 210955Z AUTO 26007KT 10SM CLR 00/M02 A3006 RMK AO2KRZL2019-02-21T09:55:00Z40.95-87.180.0-2.0260710.030.059055TRUETRUEVFRMETAR213.02019-02-21 10:02:40ag)15     3KPXE 210955Z AUTO 07003KT 3/4SM BR OVC002 12/12 A3007 RMK AO2 LTG DSNT N T01170116KPXE2019-02-21T09:55:00Z32.52-83.7711.711.67030.7530.070866TRUETRUEBRLIFRMETAR127.02019-02-21 10:02:40 7dLn)5    3KSNL 210955Z AUTO 10008KT 10SM CLR 02/M01 A3002 RMK AO2 T00171010KSNL2019-02-21T09:55:00Z35.35-96.951.7-1.0100810.030.02067TRUETRUEVFRMETAR327.02019-02-21 10:02:40Mm)5    3KSNK 210955Z AUTO 17005KT 10SM CLR 06/M06 A2986 RMK AO2 T00551056KSNK2019-02-21T09:55:00Z32.7-100.955.5-5.6170510.029.861221TRUETRUEVFRSPECI741.02019-02-21 10:02:40`l)35     3KSEF 210955Z AUTO 11004KT 2SM BR SCT005 BKN013 OVC018 18/18 A3009 RMK AO2 T01780178KSEF2019-02-21T09:55:00Z27.45-81.3517.817.811042.030.088583TRUETRUEBRIFRMETAR19.02019-02-21 10:02:40]k)'5     3KSEE 210955Z AUTO 13005KT 10SM SCT033 SCT070 BKN075 08/07 A2972 RMK AO2 P0001KSEE2019-02-21T09:55:00Z32.82-116.978.07.0130510.029.719488TRUETRUEVFR0.01SPECI117.02019-02-21 10:02:40 )`Tr)5    3KTMT 210955Z AUTO 22006KT 10SM OVC033 M14/M17 A2958 RMK AO2 T11451168KTMT2019-02-21T09:55:00Z39.47-117.2-14.5-16.8220610.029.58071TRUETRUEVFRMETAR1748.02019-02-21 10:02:40Uq)%5     3KTNB 210955Z AUTO 00000KT 2SM BR SCT060 SCT070 07/07 A3001 RMK AO2 T00670067KTNB2019-02-21T09:55:00Z36.2-81.656.76.7002.030.008858TRUETRUEBRIFRMETAR911.02019-02-21 10:02:40Cp({5    3KSOA 210955Z AUTO 18004KT 10SM CLR 08/M01 A2992 RMK AO2KSOA2019-02-21T09:55:00Z30.58-100.658.0-1.0180410.029.920275TRUETRUEVFRMETAR652.02019-02-21 10:02:40Qo)5    3KSUN 210955Z AUTO 31007KT 10SM SCT070 OVC090 M12/M15 A2969 RMK AO2KSUN2019-02-21T09:55:00Z43.5-114.28-12.0-15.0310710.029.68996TRUETRUEVFRSPECI1620.02019-02-21 10:02:40 .qBv(}5    3KTVI 210955Z AUTO 20007KT 7SM OVC004 20/20 A3006 RMK AO2KTVI2019-02-21T09:55:00Z30.9-83.8820.020.020077.030.059055TRUETRUELIFRMETAR80.02019-02-21 10:02:40Lu)5    3KT82 210955Z AUTO 00000KT 10SM BKN060 05/01 A2993 RMK AO2 T00500010KT822019-02-21T09:55:00Z30.25-98.925.01.00010.029.929134TRUETRUEVFRMETAR517.02019-02-21 10:02:407t(s5     3KTMA 210955Z AUTO 17007KT 10SM OVC005 A3004 RMK AO2KTMA2019-02-21T09:55:00Z31.43-83.48170710.030.041338TRUETRUEIFRMETAR109.02019-02-21 10:02:40Ls)5     3KTMK 210955Z AUTO 05003KT 2SM BR CLR 00/M01 A3002 RMK AO2 VIS 1V5KTMK2019-02-21T09:55:00Z45.42-123.820.0-1.05032.030.02067TRUETRUEBRIFRMETAR11.02019-02-21 10:02:40 +Fp_z)+5      3KVJI 210955Z AUTO 00000KT 1 3/4SM BR OVC003 07/07 A3003 RMK AO2 P0002 T00650065KVJI2019-02-21T09:55:00Z36.67-82.026.56.5001.7530.029528TRUETRUEBRLIFR0.02METAR631.02019-02-21 10:02:40Py)5     3KVAF 210955Z AUTO 15016KT 2SM BR BKN005 OVC022 22/21 A2983 RMK A01KVAF2019-02-21T09:55:00Z27.35-94.6322.021.0150162.029.828741TRUETRUEBRIFRSPECI46.02019-02-21 10:02:40_x)15   3KUXL 210955Z AUTO 05010G14KT 10SM OVC016 13/09 A2996 RMK AO2 LTG DSNT NE T01300085KUXL2019-02-21T09:55:00Z30.13-93.3813.08.550101410.029.958662TRUETRUEMVFRMETAR4.02019-02-21 10:02:40Ow)5    3KTXW 210955Z AUTO 07005KT 10SM OVC024 14/11 A2986 RMK AO2 T01420106KTXW2019-02-21T09:55:00Z26.18-97.9714.210.670510.029.861221TRUETRUEMVFRMETAR21.02019-02-21 10:02:40 .a~);5     3KW99 210955Z AUTO 00000KT 2 1/2SM BR SCT001 BKN040 OVC047 00/00 A2996 RMK AO2 T00001001KW992019-02-21T09:55:00Z39.0-79.150.0-0.1002.529.958662TRUETRUEBRIFRSPECI293.02019-02-21 10:02:40I})5    3KW81 210955Z AUTO 21003KT 10SM OVC015 01/00 A3000 RMK AO1 T00070000KW812019-02-21T09:55:00Z37.18-78.10.70.0210310.030.0TRUETRUEMVFRMETAR129.02019-02-21 10:02:40!|([5    3KVQT 210955Z AUTO VRB03KT A2991 RMK A01KVQT2019-02-21T09:55:00Z28.27-92.270329.911417TRUETRUESPECI25.02019-02-21 10:02:40L{) 5    3KW22 210955Z AUTO 28012KT 10SM FEW007 OVC013 10/09 A2998 RMK AO2KW222019-02-21T09:55:00Z39.0-80.2710.09.02801210.029.97933TRUETRUEMVFRSPECI499.02019-02-21 10:02:40 <lsJ) 5    3KDVO 210955Z AUTO 33007KT 10SM FEW100 FEW120 06/02 A2975 RMK AO2KDVO2019-02-21T09:55:00Z38.15-122.556.02.0330710.029.749016TRUETRUEVFRSPECI1.02019-02-21 10:02:40s)Q5     3KDZJ 210955Z AUTO 33004KT 10SM BKN016 OVC040 13/13 A3003 RMK AO2 LTG DSNT S THRU W P0004 T01310125KDZJ2019-02-21T09:55:00Z34.85-84.013.112.5330410.030.029528TRUETRUEMVFR0.04METAR582.02019-02-21 10:02:40J)5     3KXPY 210955Z AUTO 13005KT 1/4SM FG OVC002 20/20 A2995 RMK A01KXPY2019-02-21T09:55:00Z29.12-90.220.020.013050.2529.949802TRUETRUEFGLIFRMETAR2.02019-02-21 10:02:40>(}5    3KXBP 210955Z AUTO 10SM CLR 04/03 A2999 RMK AO2 T00400025KXBP2019-02-21T09:55:00Z33.18-97.834.02.510.029.991142TRUETRUEVFRMETAR260.02019-02-21 10:02:40 45s4>) 5   3EBBE 210955Z 24004KT 9999 SCT150 09/05 Q1028 BLU BLU TEMPO WHTEBBE2019-02-21T09:55:00Z50.754.779.05.024046.2130.35433VFRMETAR127.02019-02-21 10:02:404(u5   3EBBL 210955Z 22007KT 8000 BKN160 09/06 Q1027 BLU BLUEBBL2019-02-21T09:55:00Z51.175.479.06.022074.9730.324802MVFRMETAR64.02019-02-21 10:02:40;(}5    3EBCV 210955Z AUTO 22009KT 8000 BKN091/// 09/07 Q1028 BLUEBCV2019-02-21T09:55:00Z50.573.829.07.022094.9730.35433TRUEMVFRMETAR63.02019-02-21 10:02:40<(}5    3EBDT 210955Z AUTO 21004KT 9000 BKN150/// 10/06 Q1027 BLUEBDT2019-02-21T09:55:00Z51.025.0710.06.021045.5930.324802TRUEVFRMETAR54.02019-02-21 10:02:40E)5   3EBFN 210955Z 20006KT 6000 BKN060 BKN180 08/06 Q1027 WHT BLU TEMPO WHTEBFN2019-02-21T09:55:00Z51.072.638.06.020063.7330.324802MVFRMETAR9.02019-02-21 10:02:40 ?bF (}5    3KCBK 210955Z AUTO 14005KT 10SM CLR M07/M11 A2990 RMK AO2KCBK2019-02-21T09:55:00Z39.43-101.05-7.0-11.0140510.029.899607TRUETRUEVFRMETAR971.02019-02-21 10:02:40@ (}5    3KCDH 210955Z AUTO 00000KT 10SM CLR M00/M01 A3008 RMK AO2KCDH2019-02-21T09:55:00Z33.62-92.770.0-1.00010.030.079725TRUETRUEVFRMETAR35.02019-02-21 10:02:40W )5   3KCFS 210955Z AUTO 23012G16KT 10SM OVC029 02/M01 A2984 RMK AO2 T00151013KCFS2019-02-21T09:55:00Z43.47-83.451.5-1.3230121610.029.840551TRUETRUEMVFRMETAR214.02019-02-21 10:02:40;)5   3EBFS 210955Z 21009KT 9999 SCT030 SCT220 09/05 Q1028 BLU BLUEBFS2019-02-21T09:55:00Z50.224.659.05.021096.2130.35433VFRMETAR299.02019-02-21 10:02:40 ~#W~S)5     3KCKP 210955Z AUTO 00000KT 5SM BR CLR M17/M18 A3001 RMK AO2 T11691178KCKP2019-02-21T09:55:00Z42.73-95.55-16.9-17.8005.030.008858TRUETRUEBRMVFRMETAR374.02019-02-21 10:02:40F)5    3KCLS 210955Z AUTO 00000KT 10SM OVC035 M01/M01 A3005 RMK AO2KCLS2019-02-21T09:55:00Z46.68-122.98-1.0-1.00010.030.050198TRUETRUEVFRMETAR54.02019-02-21 10:02:40r )M5      3KCMD 210955Z AUTO 33003KT 3/4SM BR OVC001 10/10 A3007 RMK AO2 LTG DSNT E THRU SW P0001 T00980095KCMD2019-02-21T09:55:00Z34.27-86.859.89.533030.7530.070866TRUETRUEBRLIFR0.01METAR294.02019-02-21 10:02:40_ )5    3KCAO 210955Z AUTO 24008KT 10SM CLR M06/M13 A2973 RMK AO2 SLP083 T10611128KCAO2019-02-21T09:55:00Z36.45-103.15-6.1-12.8240810.029.7312981008.3TRUETRUEVFRMETAR1514.02019-02-21 10:02:40 S{H)5     3K4S2 210955Z AUTO 00000KT 3SM BR CLR M04/M05 A3003 RMK AO2K4S22019-02-21T09:55:00Z45.68-121.55-4.0-5.0003.030.029528TRUETRUEBRMVFRMETAR192.02019-02-21 10:02:40R)5      3KSPA 210955Z AUTO 00000KT 2SM -RA OVC003 03/03 A3007 RMK AO2 P0001KSPA2019-02-21T09:55:00Z34.92-81.933.03.0002.030.070866TRUETRUE-RALIFR0.01SPECI303.02019-02-21 10:02:40=(y5    3KSIK 210955Z AUTO 03003KT 10SM CLR 02/01 A3013 RMK AO2KSIK2019-02-21T09:55:00Z36.9-89.572.01.030310.030.129921TRUETRUEVFRSPECI96.02019-02-21 10:02:40d)#5    3KCNK 210955Z AUTO 15003KT 10SM CLR M11/M12 A3001 RMK AO2 SLP181 T11061122 $KCNK2019-02-21T09:55:00Z39.55-97.65-10.6-12.2150310.030.0088581018.1TRUETRUETRUEVFRSPECI447.02019-02-21 10:02:40 %MJ) 5    3KMKN 210955Z AUTO 14005KT 10SM CLR 05/02 A2994 RMK AO2 T00500017KMKN2019-02-21T09:55:00Z31.92-98.65.01.7140510.029.940945TRUETRUEVFRMETAR423.02019-02-21 10:02:40G)5     3KMKS 210955Z AUTO 00000KT 1/2SM FG OVC002 09/09 A3010 RMK AO2KMKS2019-02-21T09:55:00Z33.18-80.039.09.0000.530.100393TRUETRUEFGLIFRMETAR23.02019-02-21 10:02:40R)5     3KMLJ 210955Z AUTO 00000KT 3SM BR OVC003 08/08 A3008 RMK AO2 LTG DSNT NWKMLJ2019-02-21T09:55:00Z33.15-83.238.08.0003.030.079725TRUETRUEBRLIFRMETAR117.02019-02-21 10:02:40U)5    3KMMH 210955Z AUTO 26006KT 10SM OVC041 M09/M12 A2951 RMK AO2 T10951117KMMH2019-02-21T09:55:00Z37.62-118.82-9.5-11.7260610.029.509842TRUETRUEVFRMETAR2173.02019-02-21 10:02:40 z<`z`)'5      3KMDZ 210955Z AUTO 25008KT 5SM -SN OVC014 M08/M10 A2979 RMK AO2 T10801103 TSNOKMDZ2019-02-21T09:55:00Z45.1-90.3-8.0-10.325085.029.790354TRUETRUETRUE-SNMVFRMETAR448.02019-02-21 10:02:40V)5     3KMFV 210955Z AUTO 26006KT 1 1/4SM BR OVC003 04/04 A3001 RMK AO2 T00360035KMFV2019-02-21T09:55:00Z37.63-75.773.63.526061.2530.008858TRUETRUEBRLIFRMETAR15.02019-02-21 10:02:40C(}5    3KMGC 210955Z AUTO 25008KT 10SM CLR M01/M05 A3003 RMK AO2KMGC2019-02-21T09:55:00Z41.7-86.82-1.0-5.0250810.030.029528TRUETRUEVFRMETAR200.02019-02-21 10:02:40u)M5   3KMKG 210955Z AUTO 26018G27KT 10SM FEW025 00/M06 A2992 RMK AO2 PK WND 26027/0950 SLP140 T00001061KMKG2019-02-21T09:55:00Z43.17-86.230.0-6.1260182710.029.9202751014.0TRUETRUEVFRMETAR191.02019-02-21 10:02:40 3cj)Q5     3KDRI 210955Z AUTO 12003KT 10SM TS SCT060 BKN070 OVC080 11/08 A3000 RMK AO2 LTG DSNT ALQS T01050083KDRI2019-02-21T09:55:00Z30.83-93.3310.58.3120310.030.0TRUETRUETSVFRMETAR63.02019-02-21 10:02:40=(y5    3KDUA 210955Z AUTO 00000KT 10SM CLR 01/00 A3004 RMK AO2KDUA2019-02-21T09:55:00Z33.95-96.41.00.00010.030.041338TRUETRUEVFRMETAR213.02019-02-21 10:02:40J) 5    3KLXY 210955Z AUTO 09007KT 10SM CLR 07/03 A2997 RMK AO2 T00710026KLXY2019-02-21T09:55:00Z31.63-96.527.12.690710.029.970472TRUETRUEVFRMETAR166.02019-02-21 10:02:40G) 5    3KLZZ 210955Z AUTO 00000KT 10SM CLR 06/02 A2993 RMK AO2 T00570021KLZZ2019-02-21T09:55:00Z31.1-98.25.72.10010.029.929134TRUETRUEVFRMETAR371.02019-02-21 10:02:40 /O}K#) 5    3KMNZ 210955Z AUTO 14005KT 10SM CLR 06/02 A2994 RMK AO2 T00560021KMNZ2019-02-21T09:55:00Z31.67-98.155.62.1140510.029.940945TRUETRUEVFRMETAR396.02019-02-21 10:02:40L")5    3KDLO 210955Z AUTO 00000KT 10SM OVC031 05/03 A2970 RMK AO2 T00470027KDLO2019-02-21T09:55:00Z35.75-119.234.72.70010.029.698818TRUETRUEVFRMETAR96.02019-02-21 10:02:40Z!))5     3KDNN 210955Z AUTO 00000KT 10SM RA OVC012 09/08 A3007 RMK AO2 LTG DSNT SE AND WKDNN2019-02-21T09:55:00Z34.72-84.879.08.00010.030.070866TRUETRUERAMVFRMETAR216.02019-02-21 10:02:40K )5    3KDNV 210955Z AUTO 26008KT 10SM CLR 00/M02 A3004 RMK AO2 T00001023KDNV2019-02-21T09:55:00Z40.2-87.60.0-2.3260810.030.041338TRUETRUEVFRMETAR212.02019-02-21 10:02:40 BzN')5     3KCZL 210955Z AUTO 00000KT 7SM -RA SCT003 BKN007 08/08 A3008 RMK AO2KCZL2019-02-21T09:55:00Z34.47-84.938.08.0007.030.079725TRUETRUE-RAIFRMETAR195.02019-02-21 10:02:40B&(5    3KCZT 210955Z AUTO 00000KT 10SM OVC060 11/02 A2989 RMK AO2KCZT2019-02-21T09:55:00Z28.52-99.8211.02.00010.029.890747TRUETRUEVFRMETAR183.02019-02-21 10:02:40V%)5    3KDLH 210955Z 31006KT 10SM OVC018 M07/M09 A2974 RMK AO2 SLP097 T10671094KDLH2019-02-21T09:55:00Z46.85-92.2-6.7-9.4310610.029.7401581009.7TRUEMVFRMETAR435.02019-02-21 10:02:40\$)75    3KMNE 210955Z AUTO 00000KT 10SM SCT095 03/03 A3006 RMK AO2 LTG DSNT E AND SE T00320030KMNE2019-02-21T09:55:00Z32.65-93.33.23.00010.030.059055TRUETRUEVFRMETAR85.02019-02-21 10:02:40 .]h+)A5     3KCPK 210955Z AUTO 23005KT 3SM -TSRA OVC002 05/05 A3006 RMK AO2 LTG DSNT W AND NW T00510046KCPK2019-02-21T09:55:00Z36.67-76.325.14.623053.030.059055TRUETRUE-TSRALIFRMETAR6.02019-02-21 10:02:40O*) 5     3KCWA 210955Z AUTO 25013KT 7SM -SN OVC017 M07/M09 A2982 RMK AO2KCWA2019-02-21T09:55:00Z44.78-89.67-7.0-9.0250137.029.819881TRUETRUE-SNMVFRMETAR389.02019-02-21 10:02:40K)) 5    3KCWC 210955Z AUTO 14006KT 10SM CLR 05/02 A2997 RMK AO2 T00490015KCWC2019-02-21T09:55:00Z33.85-98.484.91.5140610.029.970472TRUETRUEVFRMETAR305.02019-02-21 10:02:40L()5    3KCXU 210955Z AUTO 00000KT 5SM OVC004 21/20 A3003 RMK AO1 T02120202KCXU2019-02-21T09:55:00Z31.22-84.2321.220.2005.030.029528TRUETRUELIFRMETAR53.02019-02-21 10:02:40 IoC/(}5     3KCLK 210955Z AUTO 10SM CLR 01/M01 A2994 RMK AO2 PNO TSNOKCLK2019-02-21T09:55:00Z35.53-98.931.0-1.010.029.940945TRUETRUETRUEVFRMETAR492.02019-02-21 10:02:40T.)5    3KC35 210955Z AUTO 25009KT 10SM BKN019 M08/M11 A2992 RMK AO2 T10781111KC352019-02-21T09:55:00Z43.53-89.98-7.8-11.1250910.029.920275TRUETRUEMVFRSPECI276.02019-02-21 10:02:40H-) 5     3EHLW 210955Z AUTO 24011KT 1900 -DZ BKN003 OVC004 08/08 Q1023 YLOEHLW2019-02-21T09:55:00Z53.225.758.08.0240111.1830.206694TRUE-DZLIFRMETAR2.02019-02-21 10:02:40c,)35    3KANK 210955Z AUTO 24006KT 10SM SCT043 SCT060 BKN065 M08/M13 A2973 RMK AO1 T10801133KANK2019-02-21T09:55:00Z38.53-106.05-8.0-13.3240610.029.731298TRUETRUEVFRSPECI2293.02019-02-21 10:02:40 4aI3) 5   3KOIN 210955Z AUTO 00000KT 10SM M11/M13 A2996 RMK AO1 T11141135KOIN2019-02-21T09:55:00Z39.83-100.53-11.4-13.50010.029.958662TRUETRUESPECI824.02019-02-21 10:02:40D2(}5    3KMPZ 210955Z AUTO 26007KT 10SM CLR M05/M06 A3007 RMK AO2KMPZ2019-02-21T09:55:00Z40.95-91.52-5.0-6.0260710.030.070866TRUETRUEVFRMETAR224.02019-02-21 10:02:40M1)5    3KMQB 210955Z AUTO 23008KT 7SM CLR M02/M03 A3009 RMK AO2 T10221031KMQB2019-02-21T09:55:00Z40.52-90.65-2.2-3.123087.030.088583TRUETRUEVFRMETAR215.02019-02-21 10:02:40F0(}5    3KMVE 210955Z AUTO 29005KT 10SM CLR M15/M18 A2992 RMK AO2KMVE2019-02-21T09:55:00Z44.97-95.72-15.0-18.0290510.029.920275TRUETRUEVFRMETAR315.02019-02-21 10:02:40 3e7)]5      3KMEH 210955Z AUTO 00000KT 1 3/4SM -SN BR OVC008 M07/M09 A2979 RMK AO2 CIG 007V012 SLP126 P0001 T10671089KMEH2019-02-21T09:55:00Z45.52-118.42-6.7-8.9001.7529.7903541012.6TRUETRUE-SN BRIFR0.01METAR1136.02019-02-21 10:02:40D6(}5    3K2V5 210955Z AUTO 00000KT 10SM CLR M12/M15 A2985 RMK AO2K2V52019-02-21T09:55:00Z40.1-102.25-12.0-15.00010.029.84941TRUETRUEVFRSPECI1118.02019-02-21 10:02:40H5)5     3KX07 210955Z AUTO 00000KT 1/2SM FG OVC003 19/19 A3011 RMK A01KX072019-02-21T09:55:00Z27.9-81.6219.019.0000.530.109253TRUETRUEFGLIFRMETAR39.02019-02-21 10:02:40G4)5     3KLRY 210955Z AUTO 00000KT 4SM BR CLR M05/M06 A3011 RMK AO2KLRY2019-02-21T09:55:00Z38.62-94.35-5.0-6.0004.030.109253TRUETRUEBRMVFRSPECI279.02019-02-21 10:02:40 -LC;(5    3KRID 210955Z AUTO 26009KT 10SM SCT025 00/00 A3007 RMK AO2KRID2019-02-21T09:55:00Z39.75-84.850.00.0260910.030.070866TRUETRUEVFRMETAR348.02019-02-21 10:02:406:(q5      3KRAW 210955Z AUTO 00000KT 3SM BR CLR A3010 RMK AO2KRAW2019-02-21T09:55:00Z38.35-93.35003.030.100393TRUETRUEBRMVFRSPECI285.02019-02-21 10:02:40[9)%5     3KPSO 210955Z AUTO 06003KT 1 1/2SM -SN OVC008 M08/M09 A2967 RMK AO2 T10851086KPSO2019-02-21T09:55:00Z37.28-107.05-8.5-8.66031.529.66929TRUETRUE-SNIFRMETAR2334.02019-02-21 10:02:40M8)5    3KPTT 210955Z AUTO 09004KT 10SM CLR M05/M07 A2996 RMK AO2 T10491074KPTT2019-02-21T09:55:00Z37.7-98.75-4.9-7.490410.029.958662TRUETRUEVFRMETAR595.02019-02-21 10:02:40 *OsK?)5     3KHZD 210955Z AUTO 00000KT 1/4SM FG VV002 00/00 A3009 RMK A01KHZD2019-02-21T09:55:00Z36.08-88.470.00.0000.2530.088583TRUETRUEFGLIFR200METAR151.02019-02-21 10:02:40V>)5    3KD55 210955Z AUTO 33008KT 7SM SCT002 BKN010 OVC055 M12/M12 A2987 RMK AO2KD552019-02-21T09:55:00Z48.75-98.4-12.0-12.033087.029.870079TRUETRUEMVFRMETAR491.02019-02-21 10:02:40U=)5    3KCLI 210955Z AUTO 24010KT 10SM OVC021 M06/M10 A2984 RMK AO2 T10571100KCLI2019-02-21T09:55:00Z44.62-88.73-5.7-10.02401010.029.840551TRUETRUEMVFRMETAR250.02019-02-21 10:02:40P<)5    3KBRG 210955Z AUTO 00000KT 10SM CLR M04/M11 A2972 RMK AO2 T10431110KBRG2019-02-21T09:55:00Z34.65-106.83-4.3-11.00010.029.719488TRUETRUEVFRMETAR1585.02019-02-21 10:02:40 />gMC)5    3KGZS 210955Z AUTO 36008KT 330V040 10SM OVC011 07/06 A3009 RMK A01KGZS2019-02-21T09:55:00Z35.15-87.057.06.0360810.030.088583TRUETRUEMVFRMETAR209.02019-02-21 10:02:40QB)5    3KHDE 210955Z AUTO 17005KT 10SM CLR M15/M16 A2996 RMK AO2 T11471156KHDE2019-02-21T09:55:00Z40.45-99.32-14.7-15.6170510.029.958662TRUETRUEVFRMETAR705.02019-02-21 10:02:40kA)G5     3KHLX 210955Z AUTO 27003KT 1 3/4SM BKN006 OVC014 09/08 A3002 RMK AO2 VIS 1/2V5 T00850079 PWINOKHLX2019-02-21T09:55:00Z36.77-80.828.57.927031.7530.02067TRUETRUETRUEIFRMETAR834.02019-02-21 10:02:40K@)5    3KHWY 210955Z AUTO 00000KT 10SM OVC006 01/00 A2998 RMK AO2 T00100000KHWY2019-02-21T09:55:00Z38.58-77.721.00.00010.029.97933TRUETRUEIFRMETAR103.02019-02-21 10:02:40 2dRG)5     3KIDP 210955Z AUTO 03005KT 4SM BR CLR M03/M03 A3008 RMK AO2 T10251033KIDP2019-02-21T09:55:00Z37.17-95.78-2.5-3.33054.030.079725TRUETRUEBRMVFRMETAR251.02019-02-21 10:02:40IF) 5     3KGKT 210955Z AUTO 00000KT 2 1/2SM BR OVC014 09/09 A3004 RMK A01KGKT2019-02-21T09:55:00Z35.85-83.539.09.0002.530.041338TRUETRUEBRIFRMETAR309.02019-02-21 10:02:40HE) 5    3KGLE 210955Z AUTO 09006KT 10SM CLR 04/02 A3002 RMK AO2 T00370015KGLE2019-02-21T09:55:00Z33.65-97.23.71.590610.030.02067TRUETRUEVFRMETAR256.02019-02-21 10:02:40HD)5    3KGOO 210955Z AUTO 36003KT 10SM FEW065 M01/M02 A2963 RMK AO1KGOO2019-02-21T09:55:00Z39.22-121.0-1.0-2.0360310.029.630905TRUETRUEVFRMETAR962.02019-02-21 10:02:40 &SzMK)5    3KJAS 210955Z AUTO 05003KT 10SM OVC060 11/08 A3001 RMK AO2 T01060078KJAS2019-02-21T09:55:00Z30.88-94.0310.67.850310.030.008858TRUETRUEVFRMETAR65.02019-02-21 10:02:40SJ)5    3KJAU 210955Z AUTO VRB03KT 10SM SCT015 BKN021 OVC029 12/11 A3006 RMK A01KJAU2019-02-21T09:55:00Z36.33-84.1712.011.00310.030.059055TRUETRUEMVFRMETAR360.02019-02-21 10:02:40MI)5   3KI23 210955Z AUTO 27012G16KT 10SM BKN022 02/M02 A3007 RMK AO1KI232019-02-21T09:55:00Z39.57-83.422.0-2.0270121610.030.070866TRUETRUEMVFRMETAR299.02019-02-21 10:02:40TH)5    3KIBM 210955Z AUTO 00000KT 10SM SCT120 M15/M18 A2978 RMK AO2 T11481179KIBM2019-02-21T09:55:00Z41.18-103.68-14.8-17.90010.029.778543TRUETRUEVFRMETAR1501.02019-02-21 10:02:40 :cLO) 5    3KIFP 210955Z AUTO 23003KT 10SM FEW035 BKN044 08/02 A2963 RMK AO2KIFP2019-02-21T09:55:00Z35.15-114.578.02.0230310.029.630905TRUETRUEVFRMETAR212.02019-02-21 10:02:40ON)5    3KIKK 210955Z AUTO 26006KT 10SM CLR M01/M04 A3006 RMK AO2 T10081044KIKK2019-02-21T09:55:00Z41.07-87.85-0.8-4.4260610.030.059055TRUETRUEVFRMETAR192.02019-02-21 10:02:40QM)5    3KIMM 210955Z AUTO 00000KT 10SM BKN028 BKN038 BKN047 20/20 A3006 RMK AO2KIMM2019-02-21T09:55:00Z26.43-81.420.020.00010.030.059055TRUETRUEMVFRMETAR12.02019-02-21 10:02:40@L(y5    3KIOB 210955Z AUTO 29005KT 10SM CLR 02/02 A3011 RMK AO2KIOB2019-02-21T09:55:00Z38.05-83.982.02.0290510.030.109253TRUETRUEVFRMETAR311.02019-02-21 10:02:40 H+VKS)5    3KAID 210955Z AUTO 00000KT 10SM CLR 00/M02 A3006 RMK AO2 T00021020KAID2019-02-21T09:55:00Z40.12-85.620.2-2.00010.030.059055TRUETRUEVFRSPECI280.02019-02-21 10:02:40OR)5     3K2C8 210955Z AUTO 33011KT 4SM BR SCT011 M10/M12 A2991 RMK AO2K2C82019-02-21T09:55:00Z48.78-97.63-10.0-12.0330114.029.911417TRUETRUEBRMVFRMETAR272.02019-02-21 10:02:40Q)5     3EHGR 210955Z AUTO 22007KT 180V270 6000 BR FEW078 SCT087 BKN096 09/07 Q1026 WHT 21008KT 4500 BR SCT030 SCT060 BKN100 BECMG 6000 NSWEHGR2019-02-21T09:55:00Z51.574.929.07.022073.7330.295275TRUEBR BRSCT3000MVFR-0.8METAR13.02019-02-21 10:02:402P(q5      3KJKA 210955Z 18007KT 1/2SM FG OVC003 A2999 RMK AO2KJKA2019-02-21T09:55:00Z30.28-87.6718070.529.991142TRUEFGLIFRMETAR5.02019-02-21 10:02:40 2HvLW)5   3KMWC 210955Z AUTO 24014G19KT 10SM CLR M05/M10 A2994 RMK AO2KMWC2019-02-21T09:55:00Z43.12-88.03-5.0-10.0240141910.029.940945TRUETRUEVFRMETAR227.02019-02-21 10:02:40LV)5   3KANQ 210955Z AUTO 25009G17KT 10SM OVC029 00/M03 A2997 RMK AO2KANQ2019-02-21T09:55:00Z41.63-85.080.0-3.025091710.029.970472TRUETRUEMVFRSPECI303.02019-02-21 10:02:40dU)35     3KAJZ 210955Z AUTO 07005KT 1 3/4SM -SN BKN006 OVC014 M03/M04 A2966 RMK AO2 T10301045KAJZ2019-02-21T09:55:00Z38.78-108.07-3.0-4.57051.7529.660433TRUETRUE-SNIFRSPECI1583.02019-02-21 10:02:40HT) 5     3EHDL 210955Z AUTO 23010KT 180V300 8000 BR OVC046 09/06 Q1025 BLUEHDL2019-02-21T09:55:00Z52.075.879.06.0230104.9730.265747TRUEBRMVFRMETAR52.02019-02-21 10:02:40 )[L[)5    3KLCG 210955Z AUTO 20004KT 10SM CLR M18/M22 A3000 RMK AO2 T11851217KLCG2019-02-21T09:55:00Z42.25-96.98-18.5-21.7200410.030.0TRUETRUEVFRMETAR436.02019-02-21 10:02:40AZ(5    3KJWN 210955Z AUTO 00000KT 10SM SCT028 04/03 A3010 RMK A01KJWN2019-02-21T09:55:00Z36.18-86.884.03.00010.030.100393TRUETRUEVFRMETAR151.02019-02-21 10:02:40HY(}5    3KJTC 210955Z AUTO 21017KT 10SM CLR M02/M15 A2963 RMK AO2KJTC2019-02-21T09:55:00Z34.13-109.32-2.0-15.02101710.029.630905TRUETRUEVFRMETAR2150.02019-02-21 10:02:40QX)5     3KPTS 210955Z AUTO 00000KT 3SM BR CLR M02/M02 A3007 RMK AO2 T10181023KPTS2019-02-21T09:55:00Z37.45-94.73-1.8-2.3003.030.070866TRUETRUEBRMVFRMETAR290.02019-02-21 10:02:40 .BkL_)5    3KLKU 210955Z AUTO 00000KT 10SM SCT003 00/00 A3002 RMK AO2 T00011001KLKU2019-02-21T09:55:00Z38.02-77.970.1-0.10010.030.02067TRUETRUEVFRMETAR150.02019-02-21 10:02:40Q^)5    3KLCK 210955Z AUTO 27006KT 10SM OVC023 02/M01 A3007 RMK AO2 T00211007KLCK2019-02-21T09:55:00Z39.82-82.922.1-0.7270610.030.070866TRUETRUEMVFRMETAR227.02019-02-21 10:02:40f])=5     3KJZP 210955Z AUTO 22003KT 1 3/4SM +RA OVC005 08/08 A3008 RMK AO2 VIS 3/4V5 T00800080 PNOKJZP2019-02-21T09:55:00Z34.45-84.478.08.022031.7530.079725TRUETRUE+RAIFRMETAR468.02019-02-21 10:02:40L\)5    3KK88 210955Z AUTO 00000KT 4SM CLR M04/M04 A3007 RMK AO1 T10391039KK882019-02-21T09:55:00Z37.87-95.38-3.9-3.9004.030.070866TRUETRUEMVFRMETAR309.02019-02-21 10:02:40 1\Nc)5    3KA39 210955Z AUTO 15007KT 10SM SCT050 OVC090 09/M04 A2977 RMK AO2KA392019-02-21T09:55:00Z32.98-111.929.0-4.0150710.029.769686TRUETRUEVFRMETAR396.02019-02-21 10:02:40Hb)5     3KBKN 210955Z AUTO 07005KT 5SM BR CLR M02/M02 A3004 RMK AO2KBKN2019-02-21T09:55:00Z36.75-97.35-2.0-2.07055.030.041338TRUETRUEBRMVFRMETAR314.02019-02-21 10:02:40Oa)5    3K9V9 210955Z AUTO 00000KT 10SM CLR M17/M18 A2997 RMK AO2 T11731184K9V92019-02-21T09:55:00Z43.77-99.32-17.3-18.40010.029.970472TRUETRUEVFRMETAR519.02019-02-21 10:02:40I`) 5    3KLNC 210955Z AUTO 00000KT 10SM CLR 05/02 A3001 RMK AO2 T00460023KLNC2019-02-21T09:55:00Z32.58-96.724.62.30010.030.008858TRUETRUEVFRSPECI153.02019-02-21 10:02:40 #:nBg({5    3KBBD 210955Z AUTO 14006KT 10SM CLR 07/M01 A2989 RMK AO2KBBD2019-02-21T09:55:00Z31.18-99.327.0-1.0140610.029.890747TRUETRUEVFRMETAR557.02019-02-21 10:02:40Ff)5     3KBBG 210955Z AUTO 00000KT 5SM BR CLR M02/M02 A3007 RMK AO2KBBG2019-02-21T09:55:00Z36.53-93.2-2.0-2.0005.030.070866TRUETRUEBRMVFRMETAR397.02019-02-21 10:02:40ce)15      3KBCB 210955Z AUTO 29003KT 4SM BR SCT025 OVC046 01/01 A3004 RMK AO2 P0002 T00120012KBCB2019-02-21T09:55:00Z37.22-80.421.21.229034.030.041338TRUETRUEBRMVFR0.02METAR650.02019-02-21 10:02:40Wd)!5    3KA08 210955Z AUTO 32004KT 10SM BKN004 OVC012 13/13 A3001 RMK AO2 T01320132KA082019-02-21T09:55:00Z32.52-87.3813.213.2320410.030.008858TRUETRUELIFRMETAR69.02019-02-21 10:02:40 Ngk)=5     3KALX 210955Z AUTO 00000KT 1/2SM TS FG OVC001 15/15 A3002 RMK AO2 LTG DSNT ALQS T01500147KALX2019-02-21T09:55:00Z32.92-85.9715.014.7000.530.02067TRUETRUETS FGLIFRMETAR209.02019-02-21 10:02:40=j(y5    3KAQR 210955Z AUTO 00000KT 10SM CLR 02/02 A3004 RMK AO2KAQR2019-02-21T09:55:00Z34.4-96.152.02.00010.030.041338TRUETRUEVFRMETAR189.02019-02-21 10:02:40Ji)5    3KASL 210955Z AUTO 00000KT 5SM BKN085 02/01 A3006 RMK AO1 T00190011KASL2019-02-21T09:55:00Z32.52-94.31.91.1005.030.059055TRUETRUEMVFRMETAR109.02019-02-21 10:02:40\h)+5     3KAVK 210955Z AUTO 08005KT 2 1/2SM BR FEW001 SCT021 BKN049 M06/M05 A2997 RMK AO2KAVK2019-02-21T09:55:00Z36.77-98.67-6.0-5.08052.529.970472TRUETRUEBRIFRMETAR449.02019-02-21 10:02:40 -\Lo) 5    3KBGF 210955Z AUTO VRB06G11KT 2SM BR OVC004 10/09 A3007 RMK A01KBGF2019-02-21T09:55:00Z35.18-86.0710.09.006112.030.070866TRUETRUEBRLIFRMETAR299.02019-02-21 10:02:40-n(a5    3KBGE 210955Z 7SM 22/20 A3003 RMK AO2 PWINOKBGE2019-02-21T09:55:00Z30.97-84.6322.020.07.030.029528TRUETRUEMETAR43.02019-02-21 10:02:40Km) 5     3KBFW 210955Z AUTO 00000KT 5SM -SN OVC080 M08/M09 A2973 RMK AO2KBFW2019-02-21T09:55:00Z47.25-91.4-8.0-9.0005.029.731298TRUETRUE-SNMVFRMETAR331.02019-02-21 10:02:40Ml)5    3KAAA 210955Z AUTO 24003KT 10SM CLR 00/M01 A3009 RMK AO2 T00021012KAAA2019-02-21T09:55:00Z40.17-89.330.2-1.2240310.030.088583TRUETRUEVFRMETAR182.02019-02-21 10:02:40 -X>s(w5    3KOJA 210955Z AUTO 12004KT 7SM CLR 00/00 A2995 RMK AO2KOJA2019-02-21T09:55:00Z35.55-98.670.00.012047.029.949802TRUETRUEVFRMETAR490.02019-02-21 10:02:40Dr(5    3KOLE 210955Z AUTO 26006KT 10SM OVC011 00/00 A2984 RMK AO2KOLE2019-02-21T09:55:00Z42.23-78.370.00.0260610.029.840551TRUETRUEMVFRMETAR651.02019-02-21 10:02:40Oq)5    3KOLG 210955Z AUTO 23003KT 10SM BKN013 OVC039 M08/M09 A2978 RMK AO1KOLG2019-02-21T09:55:00Z46.3-91.82-8.0-9.0230310.029.778543TRUETRUEMVFRMETAR336.02019-02-21 10:02:40Mp) 5     3KOBE 210955Z AUTO 00000KT 10SM SCT060 20/20 A3008 RMK AO2 P0001KOBE2019-02-21T09:55:00Z27.27-80.8520.020.00010.030.079725TRUETRUEVFR0.01METAR11.02019-02-21 10:02:40 !V:w)5   3OAHR 210955Z VRB03KT 9999 FEW020 06/00 Q1026 RMK A3031 BLUOAHR2019-02-21T09:55:00Z34.2262.226.00.0036.2130.295275VFRMETAR964.02019-02-21 10:02:40Pv)5    3KLUM 210955Z AUTO 22006KT 10SM CLR M13/M16 A2988 RMK AO2 T11311158KLUM2019-02-21T09:55:00Z44.9-91.87-13.1-15.8220610.029.878937TRUETRUEVFRSPECI273.02019-02-21 10:02:40Eu)5     3KMHL 210955Z AUTO 00000KT 5SM BR CLR M02/M03 A3011 RMK AO2KMHL2019-02-21T09:55:00Z39.1-93.2-2.0-3.0005.030.109253TRUETRUEBRMVFRSPECI237.02019-02-21 10:02:40Yt)5     3KOEO 210955Z AUTO 24008KT 5SM -SN OVC010 M11/M13 A2990 RMK AO2 T11121126KOEO2019-02-21T09:55:00Z45.32-92.7-11.2-12.624085.029.899607TRUETRUE-SNMVFRMETAR275.02019-02-21 10:02:40 4mO{)5    3KI68 210955Z AUTO 28005KT 10SM OVC023 03/02 A3009 RMK AO1 T00250016KI682019-02-21T09:55:00Z39.47-84.252.51.6280510.030.088583TRUETRUEMVFRMETAR274.02019-02-21 10:02:40Iz)5     3KHXD 210955Z AUTO 03004KT 1/4SM FG OVC001 13/13 A3009 RMK AO2KHXD2019-02-21T09:55:00Z32.22-80.713.013.03040.2530.088583TRUETRUEFGLIFRSPECI6.02019-02-21 10:02:40Ay(y5    3KPLD 210955Z AUTO 26012KT 10SM CLR 01/00 A3004 RMK AO2KPLD2019-02-21T09:55:00Z40.45-84.981.00.02601210.030.041338TRUETRUEVFRSPECI282.02019-02-21 10:02:40Fx)5     3KEOE 210955Z AUTO 00000KT 2SM BR OVC003 04/04 A3010 RMK AO2KEOE2019-02-21T09:55:00Z34.32-81.634.04.0002.030.100393TRUETRUEBRLIFRMETAR174.02019-02-21 10:02:40 (SxB)5    3KEFT 210955Z AUTO 10SM CLR M06/M09 A2995 RMK AO2 T10621095KEFT2019-02-21T09:55:00Z42.62-89.6-6.2-9.510.029.949802TRUETRUEVFRMETAR331.02019-02-21 10:02:40U~)!5     3KOQN 210955Z AUTO 00000KT 1 1/2SM BR OVC002 00/00 A2993 RMK AO2 LTG DSNT SKOQN2019-02-21T09:55:00Z39.98-75.580.00.0001.529.929134TRUETRUEBRLIFRMETAR142.02019-02-21 10:02:40O})5    3KJHN 210955Z AUTO 14009KT 7SM CLR M04/M06 A2979 RMK AO2 T10361062KJHN2019-02-21T09:55:00Z37.58-101.73-3.6-6.214097.029.790354TRUETRUEVFRSPECI1013.02019-02-21 10:02:40R|)5   3KIDI 210955Z AUTO 28013G19KT 10SM BKN014 OVC020 05/05 A2997 RMK A01KIDI2019-02-21T09:55:00Z40.62-79.085.05.0280131910.029.970472TRUETRUEMVFRMETAR429.02019-02-21 10:02:40 TA(u5   3KECS 210955Z AUTO 36008KT 10SM M15/M18 A2982 RMK AO2KECS2019-02-21T09:55:00Z43.88-104.32-15.0-18.0360810.029.819881TRUETRUEMETAR1273.02019-02-21 10:02:40D(5    3KECU 210955Z AUTO 14007KT 10SM FEW043 08/00 A2992 RMK AO2KECU2019-02-21T09:55:00Z29.95-100.178.00.0140710.029.920275TRUETRUEVFRMETAR725.02019-02-21 10:02:40B(5    3KEDC 210955Z AUTO 35004KT 10SM OVC065 08/04 A2996 RMK AO2KEDC2019-02-21T09:55:00Z30.4-97.578.04.0350410.029.958662TRUETRUEVFRMETAR189.02019-02-21 10:02:40^)/5     3KEDN 210955Z AUTO 19004KT 4SM BR OVC004 21/21 A3003 RMK AO2 LTG DSNT SE T02060206KEDN2019-02-21T09:55:00Z31.3-85.920.620.619044.030.029528TRUETRUEBRLIFRMETAR110.02019-02-21 10:02:40 !O{W)#5    3KONZ 210955Z AUTO 24006KT 10SM BKN029 OVC034 02/M01 A2993 RMK AO2 T00181014KONZ2019-02-21T09:55:00Z42.1-83.151.8-1.4240610.029.929134TRUETRUEMVFRMETAR180.02019-02-21 10:02:40N)5    3KOOA 210955Z AUTO 23009KT 7SM CLR M11/M12 A3007 RMK AO2 T11121125KOOA2019-02-21T09:55:00Z41.23-92.5-11.2-12.523097.030.070866TRUETRUEVFRMETAR256.02019-02-21 10:02:40L)5    3KDZB 210955Z AUTO 00000KT 10SM OVC065 08/04 A2993 RMK AO2 T00750036KDZB2019-02-21T09:55:00Z30.53-98.377.53.60010.029.929134TRUETRUEVFRMETAR334.02019-02-21 10:02:40Y)%5    3KEAT 210955Z AUTO 29005KT 10SM OVC060 M04/M07 A3000 RMK AO2 SLP174 T10441072KEAT2019-02-21T09:55:00Z47.4-120.2-4.4-7.2290510.030.01017.4TRUETRUEVFRMETAR377.02019-02-21 10:02:40 -Gg^ )5    3KPHP 210955Z AUTO 28006KT 10SM CLR M18/M20 A2996 RMK AO2 SLP186 T11781200KPHP2019-02-21T09:55:00Z44.05-101.6-17.8-20.0280610.029.9586621018.6TRUETRUEVFRMETAR672.02019-02-21 10:02:40Z )!5     3KPIM 210955Z AUTO 00000KT 1/4SM OVC002 15/15 A3004 RMK AO2 T01530148 PWINOKPIM2019-02-21T09:55:00Z32.83-84.8815.314.8000.2530.041338TRUETRUETRUELIFRMETAR275.02019-02-21 10:02:40` )'5    3KPOV 210955Z AUTO 25014G20KT 10SM OVC018 01/M02 A2998 RMK AO2 T00131020 PWINOKPOV2019-02-21T09:55:00Z41.22-81.251.3-2.0250142010.029.97933TRUETRUETRUEMVFRMETAR365.02019-02-21 10:02:40M)5    3KPPQ 210955Z AUTO 25008KT 10SM CLR 00/M02 A3011 RMK AO2 T00001020KPPQ2019-02-21T09:55:00Z39.63-90.780.0-2.0250810.030.109253TRUETRUEVFRMETAR216.02019-02-21 10:02:40 %R}N)5    3KLNQ 210955Z AUTO 00000KT 1/4SM OVC001 15/14 A2997 RMK AO2 T01490135KLNQ2019-02-21T09:55:00Z29.35-89.4314.913.5000.2529.970472TRUETRUELIFRMETAR1.02019-02-21 10:02:40O)5    3KPRS 210955Z AUTO 36005KT 10SM CLR 10/M02 A2982 RMK AO2 T01011023KPRS2019-02-21T09:55:00Z29.63-104.3510.1-2.3360510.029.819881TRUETRUEVFRMETAR896.02019-02-21 10:02:40M )5    3KOWP 210955Z AUTO 11007KT 10SM CLR 03/M01 A3005 RMK AO2 T00301006KOWP2019-02-21T09:55:00Z36.18-96.153.0-0.6110710.030.050198TRUETRUEVFRMETAR272.02019-02-21 10:02:40U )!5    3KPEZ 210955Z AUTO 04003KT 10SM BKN070 OVC080 11/05 A2993 RMK AO2 T01050048KPEZ2019-02-21T09:55:00Z28.95-98.5210.54.840310.029.929134TRUETRUEVFRMETAR132.02019-02-21 10:02:40 z(EYzY)5     3KBJI 210955Z AUTO 32004KT 4SM -SN SCT033 M10/M11 A2979 RMK AO2 T11011112KBJI2019-02-21T09:55:00Z47.5-94.92-10.1-11.232044.029.790354TRUETRUE-SNMVFRMETAR420.02019-02-21 10:02:40f)E5    3KBMT 210955Z AUTO 05008KT 10SM BKN032 OVC040 12/10 A2994 RMK AO2 LTG DSNT NE AND E T01220095KBMT2019-02-21T09:55:00Z30.07-94.2212.29.550810.029.940945TRUETRUEVFRMETAR10.02019-02-21 10:02:40])75    3KBQP 210955Z AUTO 00000KT 10SM OVC110 06/06 A3006 RMK AO2 LTG DSNT E THRU S T00600057KBQP2019-02-21T09:55:00Z32.75-91.886.05.70010.030.059055TRUETRUEVFRMETAR51.02019-02-21 10:02:40R)5    3KBXK 210955Z AUTO 10005KT 10SM FEW060 BKN080 OVC090 08/00 A2971 RMK AO1KBXK2019-02-21T09:55:00Z33.42-112.688.00.0100510.029.71063TRUETRUEVFRMETAR315.02019-02-21 10:02:40 /`H)5    3KCDD 210955Z AUTO 00000KT 10SM SCT042 M16/M17 A2980 RMK AO2KCDD2019-02-21T09:55:00Z48.27-92.48-16.0-17.00010.029.799213TRUETRUEVFRMETAR341.02019-02-21 10:02:40O)5    3KCDI 210955Z AUTO 28005KT 10SM OVC022 04/01 A3005 RMK AO2 T00410011KCDI2019-02-21T09:55:00Z39.97-81.584.11.1280510.030.050198TRUETRUEMVFRMETAR244.02019-02-21 10:02:40I) 5    3KBYL 210955Z AUTO 33005KT 10SM BKN006 OVC011 07/07 A3009 RMK AO1KBYL2019-02-21T09:55:00Z36.8-84.27.07.0330510.030.088583TRUETRUEIFRMETAR359.02019-02-21 10:02:40K) 5    3KC83 210955Z AUTO 28008KT 10SM BKN050 OVC055 06/03 A2970 RMK AO2KC832019-02-21T09:55:00Z37.83-121.626.03.0280810.029.698818TRUETRUEVFRSPECI24.02019-02-21 10:02:40 0^T)!5    3KCFD 210955Z AUTO 06004KT 10SM SCT070 SCT110 08/05 A2997 RMK AO2 T00760049KCFD2019-02-21T09:55:00Z30.72-96.337.64.960410.029.970472TRUETRUEVFRSPECI112.02019-02-21 10:02:40G)5     3KCFE 210955Z 10SM -SN OVC014 M14/M16 A2990 RMK AO2 T11411160KCFE2019-02-21T09:55:00Z45.17-93.85-14.1-16.010.029.899607TRUE-SNMVFRMETAR295.02019-02-21 10:02:40L)5    3KCHK 210955Z AUTO 11005KT 10SM CLR 02/M01 A2994 RMK AO2 T00211007KCHK2019-02-21T09:55:00Z35.1-97.972.1-0.7110510.029.940945TRUETRUEVFRMETAR351.02019-02-21 10:02:40J) 5    3KCCB 210955Z AUTO 00000KT 10SM BKN041 OVC047 06/04 A2962 RMK AO2KCCB2019-02-21T09:55:00Z34.12-117.686.04.00010.029.619095TRUETRUEVFRMETAR440.02019-02-21 10:02:40 JwW)5   3KTKC 210955Z AUTO 26011G18KT 10SM CLR M14/M16 A2992 RMK AO2 T11421162KTKC2019-02-21T09:55:00Z44.25-95.62-14.2-16.2260111810.029.920275TRUETRUEVFRMETAR408.02019-02-21 10:02:40M)5    3KSLO 210955Z AUTO 30006KT 10SM CLR 02/M01 A3011 RMK AO2 T00171010KSLO2019-02-21T09:55:00Z38.65-88.971.7-1.0300610.030.109253TRUETRUEVFRMETAR175.02019-02-21 10:02:40K) 5    3KSLR 210955Z AUTO 10004KT 10SM CLR 04/03 A3005 RMK AO2 T00420030KSLR2019-02-21T09:55:00Z33.17-95.624.23.0100410.030.050198TRUETRUEVFRMETAR149.02019-02-21 10:02:40_)-5      3KLUX 210955Z AUTO 00000KT 1 1/4SM BR OVC002 03/03 A3009 RMK AO2 LTG DSNT W P0001KLUX2019-02-21T09:55:00Z34.5-81.953.03.0001.2530.088583TRUETRUEBRLIFR0.01SPECI213.02019-02-21 10:02:40 1nP#)5    3KTZR 210955Z AUTO 28006KT 10SM OVC023 02/M01 A3006 RMK AO2 T00181015KTZR2019-02-21T09:55:00Z39.9-83.131.8-1.5280610.030.059055TRUETRUEMVFRMETAR276.02019-02-21 10:02:40P")5    3KSYF 210955Z AUTO 00000KT 10SM CLR M11/M14 A2987 RMK AO2 T11151142KSYF2019-02-21T09:55:00Z39.77-101.8-11.5-14.20010.029.870079TRUETRUEVFRSPECI1025.02019-02-21 10:02:40=!(u5   3KSZT 210955Z AUTO 03013KT 10SM M05/M08 A2996 RMK AO2KSZT2019-02-21T09:55:00Z48.3-116.57-5.0-8.0301310.029.958662TRUETRUEMETAR648.02019-02-21 10:02:40I (}5    3KTBX 210955Z AUTO 31018KT 10SM CLR M15/M18 A2970 RMK AO2KTBX2019-02-21T09:55:00Z43.47-108.23-15.0-18.03101810.029.698818TRUETRUEVFRMETAR2225.02019-02-21 10:02:40 ,EX')5     3KTKV 210955Z AUTO 25006KT 5SM -SN OVC012 M06/M08 A2976 RMK AO2 T10631084KTKV2019-02-21T09:55:00Z45.47-89.82-6.3-8.425065.029.760826TRUETRUE-SNMVFRMETAR453.02019-02-21 10:02:40=&(y5    3KTQH 210955Z AUTO 00000KT 10SM CLR 01/00 A3006 RMK AO2KTQH2019-02-21T09:55:00Z35.93-95.01.00.00010.030.059055TRUETRUEVFRSPECI266.02019-02-21 10:02:40a%)#5      3KTSP 210955Z AUTO 27009KT 1SM -SN BKN003 OVC011 M02/M02 A2957 RMK AO2 P0008KTSP2019-02-21T09:55:00Z35.13-118.43-2.0-2.027091.029.568897TRUETRUE-SNLIFR0.08METAR1220.02019-02-21 10:02:40N$)5    3KTYQ 210955Z AUTO 26008KT 10SM CLR 00/M02 A3006 RMK AO2 T10051020KTYQ2019-02-21T09:55:00Z40.03-86.25-0.5-2.0260810.030.059055TRUETRUEVFRMETAR281.02019-02-21 10:02:40 ':gG+)5    3KUBE 210955Z AUTO 22007KT 7SM OVC010 M09/M11 A2981 RMK AO2KUBE2019-02-21T09:55:00Z45.5-91.98-9.0-11.022077.029.811024TRUETRUEMVFRMETAR379.02019-02-21 10:02:40M*)5    3KPTB 210955Z AUTO 21003KT 10SM OVC005 02/01 A3003 RMK AO2 T00200010KPTB2019-02-21T09:55:00Z37.17-77.522.01.0210310.030.029528TRUETRUEIFRMETAR59.02019-02-21 10:02:40g))E5      3KPUJ 210955Z AUTO 00000KT 2 1/2SM +TSRA BKN004 BKN008 OVC012 06/ A3004 RMK AO2 LTG DSNT ALQSKPUJ2019-02-21T09:55:00Z33.92-84.936.0002.530.041338TRUETRUE+TSRALIFRMETAR393.02019-02-21 10:02:40S()5    3KU68 210955Z AUTO 30005KT 10SM BKN055 OVC070 M10/M12 A2983 RMK AO2KU682019-02-21T09:55:00Z44.92-108.45-10.0-12.0300510.029.828741TRUETRUEVFRMETAR1247.02019-02-21 10:02:40 8WN/)5    3KPYX 210955Z AUTO 13007KT 7SM CLR M03/M05 A2983 RMK AO2 T10301046KPYX2019-02-21T09:55:00Z36.42-100.75-3.0-4.613077.029.828741TRUETRUEVFRMETAR889.02019-02-21 10:02:40G.)5     3KRBW 210955Z AUTO 00000KT 1/2SM FG OVC003 08/08 A3010 RMK AO2KRBW2019-02-21T09:55:00Z32.92-80.638.08.0000.530.100393TRUETRUEFGLIFRMETAR31.02019-02-21 10:02:40[-)#5    3KRCV 210955Z AUTO 25003KT 7SM SCT033 OVC041 M12/M14 A2966 RMK AO2 T11201141KRCV2019-02-21T09:55:00Z37.72-106.35-12.0-14.125037.029.660433TRUETRUEVFRMETAR2424.02019-02-21 10:02:40B,(5    3KRGA 210955Z AUTO 00000KT 10SM BKN020 04/03 A3010 RMK AO2KRGA2019-02-21T09:55:00Z37.63-84.334.03.00010.030.100393TRUETRUEMVFRMETAR305.02019-02-21 10:02:40 \O3)5    3KUNI 210955Z AUTO 32005KT 10SM OVC028 05/05 A3006 RMK AO2 T00480045KUNI2019-02-21T09:55:00Z39.22-82.234.84.5320510.030.059055TRUETRUEMVFRMETAR193.02019-02-21 10:02:40M2)5    3KUVA 210955Z AUTO 08005KT 10SM OVC060 10/04 A2992 RMK AO2 T00950038KUVA2019-02-21T09:55:00Z29.22-99.759.53.880510.029.920275TRUETRUEVFRMETAR287.02019-02-21 10:02:40:1(q5    3KUYF 210955Z AUTO 10SM OVC023 01/M01 A3005 RMK AO2KUYF2019-02-21T09:55:00Z39.93-83.471.0-1.010.030.050198TRUETRUEMVFRMETAR330.02019-02-21 10:02:40^0))5    3KRNO 210955Z 16003KT 10SM BKN045 BKN065 M04/M07 A2962 RMK AO2 SLP039 T10391072KRNO2019-02-21T09:55:00Z39.5-119.77-3.9-7.2160310.029.6190951003.9TRUEVFRMETAR1342.02019-02-21 10:02:40 5i|L7)5   3KUES 210955Z AUTO 25012G18KT 10SM CLR M06/M10 A2994 RMK AO2KUES2019-02-21T09:55:00Z43.05-88.25-6.0-10.0250121810.029.940945TRUETRUEVFRMETAR278.02019-02-21 10:02:40g6)35   3KUGN 210955Z AUTO 27009G17KT 240V310 8SM CLR M03/M09 A2997 RMK AO2 SLP162 T10331089KUGN2019-02-21T09:55:00Z42.42-87.87-3.3-8.92709178.029.9704721016.2TRUETRUEVFRMETAR222.02019-02-21 10:02:40F5(}5    3KULM 210955Z AUTO 25010KT 10SM CLR M17/M19 A2993 RMK AO2KULM2019-02-21T09:55:00Z44.32-94.5-17.0-19.02501010.029.929134TRUETRUEVFRMETAR308.02019-02-21 10:02:40E4(}5    3KULS 210955Z AUTO 15015KT 10SM CLR M04/M06 A2980 RMK AO2KULS2019-02-21T09:55:00Z37.6-101.37-4.0-6.01501510.029.799213TRUETRUEVFRSPECI936.02019-02-21 10:02:40 R'VSR{;)S5      3KSCD 210955Z AUTO 11004KT 5SM +VCTSDZ OVC004 15/15 A3004 RMK AO2 LTG DSNT W THRU NE P0001 T01470147KSCD2019-02-21T09:55:00Z33.17-86.314.714.711045.030.041338TRUETRUEVCTS +DZLIFR0.01METAR173.02019-02-21 10:02:40}:)[5     3KSCK 210955Z AUTO 36005KT 10SM SCT027 BKN046 BKN065 06/02 A2970 RMK AO2 RAB07E18 SLP058 P0000 T00610022KSCK2019-02-21T09:55:00Z37.88-121.226.12.2360510.029.6988181005.8TRUETRUEVFR0.005METAR10.02019-02-21 10:02:40K9) 5    3KSEP 210955Z AUTO 12004KT 10SM CLR 06/01 A2997 RMK AO2 T00560011KSEP2019-02-21T09:55:00Z32.22-98.175.61.1120410.029.970472TRUETRUEVFRMETAR402.02019-02-21 10:02:40S8)5     3KSEZ 210955Z AUTO 14009KT 2 1/2SM -SN OVC005 M01/M02 A2964 RMK AO2KSEZ2019-02-21T09:55:00Z34.85-111.78-1.0-2.014092.529.639763TRUETRUE-SNIFRMETAR1473.02019-02-21 10:02:40 NuM?)5    3KRSV 210955Z AUTO 00000KT 10SM CLR M01/M02 A3012 RMK AO2 T10101019KRSV2019-02-21T09:55:00Z39.02-87.65-1.0-1.90010.030.121063TRUETRUEVFRMETAR141.02019-02-21 10:02:40S>)5    3KSAA 210955Z AUTO 17008KT 10SM BKN080 OVC090 M11/M16 A2964 RMK AO2KSAA2019-02-21T09:55:00Z41.45-106.83-11.0-16.0170810.029.639763TRUETRUEVFRMETAR2138.02019-02-21 10:02:40J=) 5    3KSAR 210955Z AUTO 00000KT 10SM CLR 00/00 A3013 RMK AO2 T10051005KSAR2019-02-21T09:55:00Z38.15-89.7-0.5-0.50010.030.129921TRUETRUEVFRMETAR164.02019-02-21 10:02:40\<)%5     3KSAZ 210955Z AUTO 27004KT 7SM -SN SCT037 BKN046 OVC065 M12/M13 A2982 RMK AO2KSAZ2019-02-21T09:55:00Z46.37-94.8-12.0-13.027047.029.819881TRUETRUE-SNVFRMETAR392.02019-02-21 10:02:40 BdLC) 5    3KVNC 210955Z AUTO 11005KT 10SM BKN023 OVC028 21/21 A3007 RMK AO2KVNC2019-02-21T09:55:00Z27.07-82.4321.021.0110510.030.070866TRUETRUEMVFRSPECI6.02019-02-21 10:02:40XB)#5      3KCJR 210955Z AUTO 00000KT 4SM BR OVC005 01/00 A2999 RMK AO2 P0001 T00070000KCJR2019-02-21T09:55:00Z38.53-77.870.70.0004.029.991142TRUETRUEBRIFR0.01METAR97.02019-02-21 10:02:40QA)5    3KRQB 210955Z AUTO 26012KT 10SM OVC038 00/M05 A2983 RMK AO2 T10011047KRQB2019-02-21T09:55:00Z43.72-85.5-0.1-4.72601210.029.828741TRUETRUEVFRMETAR302.02019-02-21 10:02:40a@);5     3KRSN 210955Z AUTO 00000KT 5SM BR BKN100 04/03 A3008 RMK AO2 LTG DSNT E AND SE T00350028KRSN2019-02-21T09:55:00Z32.52-92.583.52.8005.030.079725TRUETRUEBRMVFRMETAR95.02019-02-21 10:02:40 8^MG)5    3KPEA 210955Z AUTO 22005KT 7SM CLR M08/M10 A3008 RMK AO2 T10851104KPEA2019-02-21T09:55:00Z41.4-92.95-8.5-10.422057.030.079725TRUETRUEVFRMETAR270.02019-02-21 10:02:40NF)5    3KP08 210955Z AUTO 16004KT 10SM FEW060 OVC070 08/M03 A2976 RMK AO2KP082019-02-21T09:55:00Z32.93-111.438.0-3.0160410.029.760826TRUETRUEVFRMETAR481.02019-02-21 10:02:40TE)5     3KPBX 210955Z AUTO 33009KT 3SM -RA OVC004 09/09 A3004 RMK AO2 T00900090KPBX2019-02-21T09:55:00Z37.57-82.579.09.033093.030.041338TRUETRUE-RALIFRMETAR449.02019-02-21 10:02:40BD({5    3KOZS 210955Z AUTO 28004KT 10SM CLR 00/M01 A3010 RMK AO2KOZS2019-02-21T09:55:00Z37.97-92.680.0-1.0280410.030.100393TRUETRUEVFRMETAR324.02019-02-21 10:02:40 .eMK)5    3KW96 210955Z AUTO 22004KT 10SM OVC004 02/02 A3001 RMK AO1 T00210021KW962019-02-21T09:55:00Z37.5-77.122.12.1220410.030.008858TRUETRUELIFRMETAR37.02019-02-21 10:02:40>J(y5    3KWDG 210955Z AUTO 09005KT 7SM CLR 00/M01 A2998 RMK AO2KWDG2019-02-21T09:55:00Z36.37-97.770.0-1.09057.029.97933TRUETRUEVFRMETAR356.02019-02-21 10:02:40CI({5    3KWWR 210955Z AUTO 10011KT 7SM CLR M02/M04 A2992 RMK AO2KWWR2019-02-21T09:55:00Z36.45-99.52-2.0-4.0100117.029.920275TRUETRUEVFRMETAR667.02019-02-21 10:02:40LH)5    3KXSA 210955Z AUTO 21004KT 10SM OVC005 02/02 A3001 RMK AO2 T00220020KXSA2019-02-21T09:55:00Z37.87-76.92.22.0210410.030.008858TRUETRUEIFRMETAR42.02019-02-21 10:02:40 ,eZO)-5    3KW13 210955Z AUTO 08003KT 5SM SCT047 SCT055 BKN065 02/02 A2995 RMK AO1 T00200019KW132019-02-21T09:55:00Z38.08-78.952.01.98035.029.949802TRUETRUEMVFRMETAR443.02019-02-21 10:02:40YN)-5     3KW31 210955Z AUTO 00000KT 10SM BKN004 OVC010 01/01 A3000 RMK AO1 P0002 T00060006KW312019-02-21T09:55:00Z36.95-78.180.60.60010.030.0TRUETRUELIFR0.02METAR162.02019-02-21 10:02:40AM(5    3KW63 210955Z AUTO 18003KT 10SM OVC009 02/02 A3002 RMK AO1KW632019-02-21T09:55:00Z36.6-78.552.02.0180310.030.02067TRUETRUEIFRMETAR129.02019-02-21 10:02:40NL)5    3KW75 210955Z AUTO 19004KT 2 1/2SM OVC002 02/02 A3001 RMK AO1 T00230023KW752019-02-21T09:55:00Z37.6-76.452.32.319042.530.008858TRUETRUELIFRMETAR9.02019-02-21 10:02:40 -aKS) 5    3KPRG 210955Z AUTO 27007KT 10SM CLR 01/00 A3009 RMK AO2 T00081003KPRG2019-02-21T09:55:00Z39.7-87.670.8-0.3270710.030.088583TRUETRUEVFRMETAR199.02019-02-21 10:02:40SR) 5     3KPNA 210955Z AUTO 30006KT 10SM SCT012 M27/M30 A2966 RMK AO2 TSNOKPNA2019-02-21T09:55:00Z42.8-109.8-27.0-30.0300610.029.660433TRUETRUETRUEVFRMETAR2160.02019-02-21 10:02:40FQ)5    3KPCW 210955Z AUTO 27013KT 10SM OVC031 02/M01 A2998 RMK AO2KPCW2019-02-21T09:55:00Z41.52-82.872.0-1.02701310.029.97933TRUETRUEVFRMETAR178.02019-02-21 10:02:40MP) 5     3KPHT 210955Z AUTO 34006KT 1 3/4SM BR OVC003 03/03 A3011 RMK A01KPHT2019-02-21T09:55:00Z36.33-88.383.03.034061.7530.109253TRUETRUEBRLIFRMETAR177.02019-02-21 10:02:40 }"GW}TW)%5     3KLDJ 210955Z AUTO 00000KT 5SM BR SCT003 OVC009 01/00 A2992 RMK AO2 T00050000KLDJ2019-02-21T09:55:00Z40.62-74.250.50.0005.029.920275TRUETRUEBRIFRSPECI7.02019-02-21 10:02:40jV)?5      3K1P1 210955Z AUTO 00000KT 1 1/2SM -SN SCT006 OVC025 M06/M07 A2997 RMK AO2 P0004 T10631071K1P12019-02-21T09:55:00Z43.78-71.75-6.3-7.1001.529.970472TRUETRUE-SNIFR0.04SPECI154.02019-02-21 10:02:40UU)5     3K1S5 210955Z AUTO 00000KT 4SM BR OVC002 M09/M09 A3001 RMK AO2 T10881095K1S52019-02-21T09:55:00Z46.33-119.97-8.8-9.5004.030.008858TRUETRUEBRLIFRSPECI234.02019-02-21 10:02:40XT)5      3KPTD 210955Z AUTO 00000KT 1 3/4SM BR OVC010 M02/M03 A2973 RMK AO2 P0004KPTD2019-02-21T09:55:00Z44.68-74.95-2.0-3.0001.7529.731298TRUETRUEBRIFR0.04METAR144.02019-02-21 10:02:40 MO[)5    3KDYA 210955Z AUTO 33004KT 10SM OVC006 11/11 A3004 RMK AO2 T01100110KDYA2019-02-21T09:55:00Z32.47-87.9511.011.0330410.030.041338TRUETRUEIFRMETAR34.02019-02-21 10:02:40DZ(}5    3KEOK 210955Z AUTO 24009KT 10SM CLR M03/M04 A3008 RMK AO2KEOK2019-02-21T09:55:00Z40.47-91.42-3.0-4.0240910.030.079725TRUETRUEVFRSPECI205.02019-02-21 10:02:40GY)5     3KGLY 210955Z AUTO 00000KT 3SM BR CLR M03/M03 A3010 RMK AO2KGLY2019-02-21T09:55:00Z38.35-93.68-3.0-3.0003.030.100393TRUETRUEBRMVFRMETAR251.02019-02-21 10:02:40`X)'5     3KHZE 210955Z AUTO 24006KT 8SM SCT007 BKN055 OVC065 M15/M16 A2996 RMK AO2 TSNOKHZE2019-02-21T09:55:00Z47.28-101.58-15.0-16.024068.029.958662TRUETRUETRUEVFRSPECI553.02019-02-21 10:02:40 *RR_)5    3KSEM 210955Z AUTO 33005KT 5SM -DZ 17/16 A3001 RMK AO2 LTG DSNT W AND NWKSEM2019-02-21T09:55:00Z32.35-86.9817.016.033055.030.008858TRUETRUE-DZSPECI51.02019-02-21 10:02:40K^)5     3KRKW 210955Z AUTO 31004KT 3/4SM BR OVC007 09/09 A3004 RMK A01KRKW2019-02-21T09:55:00Z35.92-84.689.09.031040.7530.041338TRUETRUEBRLIFRMETAR508.02019-02-21 10:02:40R])5    3KPVW 210955Z AUTO 18008KT 10SM BKN120 03/M07 A2981 RMK AO2 T00321070KPVW2019-02-21T09:55:00Z34.17-101.723.2-7.0180810.029.811024TRUETRUEVFRMETAR1028.02019-02-21 10:02:40P\)5     3KDCM 210955Z AUTO 00000KT 1SM BR OVC003 03/03 A3009 RMK AO2 LTG DSNT WKDCM2019-02-21T09:55:00Z34.78-81.23.03.0001.030.088583TRUETRUEBRLIFRMETAR200.02019-02-21 10:02:40 7]~Lc)5    3KRPJ 210955Z AUTO 25007KT 7SM CLR M06/M08 A3002 RMK AO2 T10621076KRPJ2019-02-21T09:55:00Z41.88-89.08-6.2-7.625077.030.02067TRUETRUEVFRMETAR238.02019-02-21 10:02:40Yb)5    3KRTS 210955Z AUTO 34006KT 10SM FEW004 SCT032 OVC055 M08/M11 A2959 RMK AO2KRTS2019-02-21T09:55:00Z39.67-119.88-8.0-11.0340610.029.589567TRUETRUEVFRMETAR1540.02019-02-21 10:02:40Ta)5      3KRZR 210955Z AUTO 00000KT 1 3/4SM BR OVC005 10/10 A3002 RMK A01 P0001KRZR2019-02-21T09:55:00Z35.22-84.810.010.0001.7530.02067TRUETRUEBRIFR0.01METAR263.02019-02-21 10:02:40C`(}5    3KS39 210955Z AUTO 32009KT 10SM CLR M05/M07 A2985 RMK AO2KS392019-02-21T09:55:00Z44.28-120.9-5.0-7.0320910.029.84941TRUETRUEVFRMETAR991.02019-02-21 10:02:40 |#LN|Lg) 5     3KSCX 210955Z AUTO 36008KT 1 1/2SM BR OVC003 07/06 A3006 RMK A01KSCX2019-02-21T09:55:00Z36.45-84.587.06.036081.530.059055TRUETRUEBRLIFRMETAR471.02019-02-21 10:02:40xf)]5      3KSFQ 210955Z AUTO 00000KT 5SM -TSRA BKN002 OVC050 05/05 A3004 RMK AO2 LTG DSNT E THRU SW P0004 T00470047KSFQ2019-02-21T09:55:00Z36.68-76.64.74.7005.030.041338TRUETRUE-TSRALIFR0.04METAR22.02019-02-21 10:02:40Qe)5      3KRNC 210955Z AUTO 36007KT 3SM BR OVC004 07/06 A3009 RMK A01 P0001KRNC2019-02-21T09:55:00Z35.7-85.857.06.036073.030.088583TRUETRUEBRLIFR0.01METAR315.02019-02-21 10:02:40Wd))5    3KRNV 210955Z AUTO 02007KT 10SM BKN110 04/04 A3008 RMK AO2 LTG DSNT E T00400040KRNV2019-02-21T09:55:00Z33.77-90.754.04.020710.030.079725TRUETRUEVFRMETAR41.02019-02-21 10:02:40 -ZNk)5    3KSWW 210955Z AUTO 16009KT 10SM CLR 08/M04 A2988 RMK AO2 T00791041KSWW2019-02-21T09:55:00Z32.47-100.477.9-4.1160910.029.878937TRUETRUEVFRMETAR727.02019-02-21 10:02:40Kj)5   3KSYI 210955Z AUTO 36010G15KT 10SM OVC011 07/05 A3009 RMK A01KSYI2019-02-21T09:55:00Z35.57-86.457.05.0360101510.030.088583TRUETRUEMVFRMETAR245.02019-02-21 10:02:40Mi)5    3KT20 210955Z AUTO 00000KT 10SM OVC060 11/06 A2993 RMK AO2 T01050062KT202019-02-21T09:55:00Z29.52-97.4710.56.20010.029.929134TRUETRUEVFRSPECI108.02019-02-21 10:02:40Mh)5    3KTAZ 210955Z AUTO 27008KT 10SM CLR 00/M02 A3009 RMK AO2 T00011016KTAZ2019-02-21T09:55:00Z39.53-89.330.1-1.6270810.030.088583TRUETRUEVFRMETAR190.02019-02-21 10:02:40 s2^|so)o5      3K0R4 210955Z AUTO 02007KT 10SM -TSRA SCT018 BKN075 OVC090 10/09 A3001 RMK AO2 LTG DSNT SW THRU NE P0014 T01000090K0R42019-02-21T09:55:00Z31.57-91.510.09.020710.030.008858TRUETRUE-TSRAVFR0.14METAR17.02019-02-21 10:02:40\n))5   3KSJS 210955Z AUTO 32008G15KT 280V340 10SM OVC013 08/06 A3006 RMK AO2 T00780063KSJS2019-02-21T09:55:00Z37.75-82.637.86.332081510.030.059055TRUETRUEMVFRMETAR372.02019-02-21 10:02:40Nm)5   3KSRB 210955Z AUTO VRB05G11KT 10SM BKN006 OVC010 07/06 A3008 RMK A01KSRB2019-02-21T09:55:00Z36.05-85.537.06.0051110.030.079725TRUETRUEIFRMETAR313.02019-02-21 10:02:40Hl)5     3KSRE 210955Z AUTO 09005KT 5SM HZ FEW060 03/M01 A3002 RMK AO2KSRE2019-02-21T09:55:00Z35.27-96.683.0-1.09055.030.02067TRUETRUEHZMVFRMETAR312.02019-02-21 10:02:40 @uSs)5     3KTBR 210955Z AUTO 00000KT 1/2SM FG OVC002 10/10 A3008 RMK AO2 T01040104KTBR2019-02-21T09:55:00Z32.48-81.7310.410.4000.530.079725TRUETRUEFGLIFRMETAR57.02019-02-21 10:02:40Er)5     3K0A9 210955Z AUTO 00000KT 6SM BR OVC005 09/09 A3003 RMK AO2K0A92019-02-21T09:55:00Z36.37-82.179.09.0006.030.029528TRUETRUEBRIFRMETAR486.02019-02-21 10:02:40Qq)5    3K0E0 210955Z AUTO 02003KT 10SM CLR M12/M14 A2973 RMK AO2 T11251142K0E02019-02-21T09:55:00Z34.98-106.0-12.5-14.220310.029.731298TRUETRUEVFRMETAR1890.02019-02-21 10:02:40cp)75     3K0R0 210955Z AUTO 35003KT 10SM RA OVC004 12/12 A3005 RMK AO2 LTG DSNT N AND NE AND SWK0R02019-02-21T09:55:00Z31.3-89.8212.012.0350310.030.050198TRUETRUERALIFRMETAR81.02019-02-21 10:02:40 JJw)5     3K2LS 210955Z AUTO 05004KT 1/4SM FG OVC002 19/19 A2996 RMK AO2K2LS2019-02-21T09:55:00Z29.42-90.319.019.05040.2529.958662TRUETRUEFGLIFRMETAR-2.02019-02-21 10:02:40Cv(5    3K2M2 210955Z AUTO 36009KT 10SM OVC009 06/04 A3008 RMK A01K2M22019-02-21T09:55:00Z35.23-87.256.04.0360910.030.079725TRUETRUEIFRMETAR286.02019-02-21 10:02:40Fu)5     3K33N 210955Z AUTO 26004KT 1SM BR OVC003 01/01 A2997 RMK A01K33N2019-02-21T09:55:00Z39.22-75.61.01.026041.029.970472TRUETRUEBRLIFRMETAR17.02019-02-21 10:02:40dt)E5    3K3F3 210955Z AUTO 00000KT 10SM BKN075 BKN095 05/05 A3006 RMK AO2 LTG DSNT E AND SE T00510046K3F32019-02-21T09:55:00Z32.07-93.775.14.60010.030.059055TRUETRUEVFRMETAR96.02019-02-21 10:02:40 $Q}Q{)5    3K1A6 210955Z AUTO 32005KT 10SM OVC016 11/11 A3005 RMK AO2 T01090109K1A62019-02-21T09:55:00Z36.62-83.7310.910.9320510.030.050198TRUETRUEMVFRMETAR352.02019-02-21 10:02:40Nz)5    3K1H2 210955Z AUTO 22003KT 10SM CLR 00/M01 A3012 RMK AO2 T10011012K1H22019-02-21T09:55:00Z39.07-88.53-0.1-1.2220310.030.121063TRUETRUEVFRMETAR179.02019-02-21 10:02:40My)5     3K2A0 210955Z AUTO 00000KT 4SM BR BKN006 OVC013 10/09 A3005 RMK A01K2A02019-02-21T09:55:00Z35.48-84.9310.09.0004.030.050198TRUETRUEBRIFRMETAR219.02019-02-21 10:02:40Vx)5     3K2I0 210955Z AUTO 00000KT 1 3/4SM BR VV007 03/03 A3012 RMK AO2 T00310030K2I02019-02-21T09:55:00Z37.35-87.43.13.0001.7530.121063TRUETRUEBRLIFR700METAR134.02019-02-21 10:02:40 *TyE)5   3K3L4 210955Z AUTO 05010G16KT 7SM OVC005 13/13 A2994 RMK A01K3L42019-02-21T09:55:00Z29.8-92.813.013.05010167.029.940945TRUETRUEIFRMETAR2.02019-02-21 10:02:40U~)5     3K3N8 210955Z AUTO 00000KT 5SM -SN CLR M10/M11 A2983 RMK AO2 T11021112K3N82019-02-21T09:55:00Z47.25-95.88-10.2-11.2005.029.828741TRUETRUE-SNMVFRMETAR383.02019-02-21 10:02:40P})5     3K3S8 210955Z AUTO 00000KT 1/4SM FZFG OVC002 M01/M01 A2991 RMK AO2K3S82019-02-21T09:55:00Z42.5-123.4-1.0-1.0000.2529.911417TRUETRUEFZFGLIFRMETAR343.02019-02-21 10:02:40P|)5    3K19S 210955Z AUTO 13010KT 10SM CLR M06/M09 A2985 RMK AO2 T10611087K19S2019-02-21T09:55:00Z37.48-100.83-6.1-8.71301010.029.84941TRUETRUEVFRMETAR886.02019-02-21 10:02:40 4UxQ)5    3KY23 210955Z AUTO 23005KT 7SM OVC013 M09/M11 A2984 RMK AO2 T10921111KY232019-02-21T09:55:00Z45.3-91.63-9.2-11.123057.029.840551TRUETRUEMVFRMETAR322.02019-02-21 10:02:40W)5   3KY31 210955Z AUTO 25010G19KT 10SM OVC029 00/M04 A2978 RMK AO2 T00001041KY312019-02-21T09:55:00Z44.25-84.180.0-4.1250101910.029.778543TRUETRUEMVFRMETAR269.02019-02-21 10:02:40Y)5    3K46U 210955Z AUTO 00000KT 10SM BKN016 BKN020 BKN080 M18/M20 A2972 RMK A01K46U2019-02-21T09:55:00Z43.18-111.05-18.0-20.00010.029.719488TRUETRUEMVFRSPECI1717.02019-02-21 10:02:40F(}5    3K3K3 210955Z AUTO 10010KT 10SM CLR M06/M08 A2982 RMK AO2K3K32019-02-21T09:55:00Z38.0-101.75-6.0-8.01001010.029.819881TRUETRUEVFRMETAR1013.02019-02-21 10:02:40 "PE(5    3K5T9 210955Z AUTO 12006KT 10SM OVC060 11/01 A2989 RMK A01K5T92019-02-21T09:55:00Z28.85-100.5211.01.0120610.029.890747TRUETRUEVFRMETAR270.02019-02-21 10:02:40D(}5    3K65S 210955Z AUTO 00000KT 10SM CLR M11/M12 A2999 RMK AO2K65S2019-02-21T09:55:00Z48.73-116.3-11.0-12.00010.029.991142TRUETRUEVFRMETAR713.02019-02-21 10:02:40L)5    3K6R3 210955Z AUTO 04003KT 10SM OVC050 11/08 A2995 RMK AO2 T01050076K6R32019-02-21T09:55:00Z30.35-95.010.57.640310.029.949802TRUETRUEVFRMETAR46.02019-02-21 10:02:40X)5    3K6S0 210955Z AUTO 26006KT 10SM FEW024 BKN035 OVC043 M10/M12 A2985 RMK A01K6S02019-02-21T09:55:00Z45.8-109.97-10.0-12.0260610.029.84941TRUETRUEVFRMETAR1363.02019-02-21 10:02:40 :Tu )S5       3K4A9 210955Z AUTO 10003KT 2 1/2SM -RA BR OVC003 09/ A3003 RMK AO2 LTG DSNT E AND SW P0003 T0092////K4A92019-02-21T09:55:00Z34.47-85.729.210032.530.029528TRUETRUE-RA BRLIFR0.03METAR267.02019-02-21 10:02:40: (q5   3K54A 210955Z AUTO 11003KT 10SM 20/20 A3006 RMK AO2K54A2019-02-21T09:55:00Z26.85-82.2520.020.0110310.030.059055TRUETRUEMETAR14.02019-02-21 10:02:40` )75    3K5A6 210955Z AUTO 35003KT 10SM BKN090 06/06 A3008 RMK AO2 LTG DSNT E THRU S T00570057K5A62019-02-21T09:55:00Z33.47-89.735.75.7350310.030.079725TRUETRUEVFRMETAR111.02019-02-21 10:02:40@(5    3K5C1 210955Z AUTO 00000KT 10SM OVC050 07/02 A2994 RMK AO1K5C12019-02-21T09:55:00Z29.72-98.77.02.00010.029.940945TRUETRUEVFRMETAR423.02019-02-21 10:02:40 *]M) 5     3KTEX 210955Z AUTO 00000KT 3SM -SN OVC012 M09/M11 A2956 RMK AO2KTEX2019-02-21T09:55:00Z37.95-107.9-9.0-11.0003.029.56004TRUETRUE-SNMVFRMETAR2769.02019-02-21 10:02:40Q)5    3KTFP 210955Z AUTO 01005KT 10SM OVC026 15/09 A2990 RMK AO2 T01450091 PNOKTFP2019-02-21T09:55:00Z27.92-97.2214.59.110510.029.899607TRUETRUEMVFRMETAR6.02019-02-21 10:02:40G )5   3KTHA 210955Z AUTO 35008G14KT 9SM OVC005 07/06 A3008 RMK A01KTHA2019-02-21T09:55:00Z35.38-86.257.06.03508149.030.079725TRUETRUEIFRMETAR331.02019-02-21 10:02:40P )5    3KTIF 210955Z AUTO 00000KT 10SM CLR M16/M18 A2989 RMK AO2 T11641180KTIF2019-02-21T09:55:00Z41.97-100.57-16.4-18.00010.029.890747TRUETRUEVFRMETAR892.02019-02-21 10:02:40 (RhA(5    3KVKS 210955Z AUTO VRB04KT 10SM OVC070 10/09 A3005 RMK A01KVKS2019-02-21T09:55:00Z32.23-90.9310.09.00410.030.050198TRUETRUEVFRMETAR32.02019-02-21 10:02:40d)55      3K8A0 210955Z AUTO 00000KT 2 1/2SM -RA BKN014 BKN027 OVC080 10/09 A3003 RMK AO2 P0012K8A02019-02-21T09:55:00Z34.23-86.2510.09.0002.530.029528TRUETRUE-RAIFR0.12METAR315.02019-02-21 10:02:40P)5    3K9A5 210955Z AUTO 00000KT 1 3/4SM OVC003 08/08 A3009 RMK AO2 T00750075K9A52019-02-21T09:55:00Z34.68-85.287.57.5001.7530.088583TRUETRUELIFRMETAR237.02019-02-21 10:02:40R)5    3KTCY 210955Z AUTO 30007KT 10SM FEW065 SCT075 BKN100 06/02 A2970 RMK A01KTCY2019-02-21T09:55:00Z37.68-121.436.02.0300710.029.698818TRUETRUEVFRMETAR59.02019-02-21 10:02:40 1cJ)5   3KUSE 210955Z AUTO 25014G19KT 10SM OVC031 02/01 A2997 RMK AO2KUSE2019-02-21T09:55:00Z41.62-84.132.01.0250141910.029.970472TRUETRUEVFRMETAR238.02019-02-21 10:02:40F)5     3KUTA 210955Z AUTO 00000KT 1/4SM FG 00/00 A3012 RMK AO2 TSNOKUTA2019-02-21T09:55:00Z34.68-90.350.00.0000.2530.121063TRUETRUETRUEFGMETAR59.02019-02-21 10:02:40H) 5    3KVBW 210955Z AUTO 00000KT 3SM CLR 01/01 A2994 RMK AO1 T00050005KVBW2019-02-21T09:55:00Z38.37-78.970.50.5003.029.940945TRUETRUEMVFRMETAR355.02019-02-21 10:02:40I)5     3KVDI 210955Z AUTO 00000KT 3/4SM BR OVC003 13/12 A3007 RMK AO2KVDI2019-02-21T09:55:00Z32.2-82.3713.012.0000.7530.070866TRUETRUEBRLIFRMETAR84.02019-02-21 10:02:40 1iP)5    3KY51 210955Z AUTO 24009KT 10SM CLR M10/M11 A2990 RMK AO1 T11031111KY512019-02-21T09:55:00Z43.58-90.9-10.3-11.1240910.029.899607TRUETRUEVFRSPECI394.02019-02-21 10:02:40])15    3PAUT 210955Z AUTO 23010KT 10SM SCT040 BKN050 BKN060 01/M03 A3029 RMK AO2 T00051031PAUT2019-02-21T09:55:00Z54.15-165.60.5-3.12301010.030.28937TRUETRUEVFRMETAR25.02019-02-21 10:02:40B(}5    3KGPC 210955Z AUTO 00000KT 10SM CLR M01/M02 A3009 RMK AO2KGPC2019-02-21T09:55:00Z39.63-86.82-1.0-2.00010.030.088583TRUETRUEVFRMETAR257.02019-02-21 10:02:40I)5     3KUCY 210955Z AUTO 00000KT 1/4SM FG BKN003 01/01 A3012 RMK A01KUCY2019-02-21T09:55:00Z36.38-88.981.01.0000.2530.121063TRUETRUEFGLIFRMETAR104.02019-02-21 10:02:40 ,IrV)5      3KGCY 210955Z AUTO 18004KT 1 1/2SM BR OVC003 10/09 A3004 RMK A01 P0003KGCY2019-02-21T09:55:00Z36.2-82.8210.09.018041.530.041338TRUETRUEBRLIFR0.03METAR490.02019-02-21 10:02:40Q)5    3KPCZ 210955Z AUTO 23010KT 10SM CLR M05/M10 A2987 RMK AO2 T10551101KPCZ2019-02-21T09:55:00Z44.33-89.02-5.5-10.12301010.029.870079TRUETRUEVFRSPECI252.02019-02-21 10:02:40])#5     3KRUG 210955Z AUTO 29004KT 4SM BR BKN024 BKN034 OVC041 M15/M16 A2991 RMK AO2KRUG2019-02-21T09:55:00Z48.38-100.02-15.0-16.029044.029.911417TRUETRUEBRMVFRSPECI472.02019-02-21 10:02:40N) 5     3KSTF 210955Z AUTO 36003KT 10SM OVC008 07/06 A3009 RMK AO2 PWINOKSTF2019-02-21T09:55:00Z33.43-88.857.06.0360310.030.088583TRUETRUETRUEIFRSPECI102.02019-02-21 10:02:40  OzQ#)5     3KFWC 210955Z AUTO 00000KT 4SM BR CLR M02/M02 A3012 RMK AO1 T10171017KFWC2019-02-21T09:55:00Z38.38-88.42-1.7-1.7004.030.121063TRUETRUEBRMVFRMETAR133.02019-02-21 10:02:40O")5     3KFYE 210955Z AUTO 00000KT M1/4SM FZFG OVC001 M00/M00 A3010 RMK A01KFYE2019-02-21T09:55:00Z35.2-89.380.00.0000.2530.100393TRUETRUEFZFGLIFRMETAR133.02019-02-21 10:02:40K!)5    3KFYJ 210955Z AUTO 22003KT 5SM OVC004 03/03 A3003 RMK AO1 T00270027KFYJ2019-02-21T09:55:00Z37.52-76.772.72.722035.030.029528TRUETRUELIFRMETAR7.02019-02-21 10:02:40Z )5     3KFZG 210955Z AUTO 20004KT 10SM OVC006 21/21 A3006 RMK AO2 T02100207 PWINOKFZG2019-02-21T09:55:00Z31.68-83.2721.020.7200410.030.059055TRUETRUETRUEIFRMETAR111.02019-02-21 10:02:40 ']P')5    3KFCH 210955Z AUTO 00000KT 10SM BKN038 BKN043 OVC050 04/04 A2968 RMK A01KFCH2019-02-21T09:55:00Z36.72-119.824.04.00010.029.681103TRUETRUEVFRMETAR85.02019-02-21 10:02:40L&) 5    3KFOT 210955Z AUTO 27004KT 10SM BKN020 OVC027 03/03 A2985 RMK AO1KFOT2019-02-21T09:55:00Z40.55-124.133.03.0270410.029.84941TRUETRUEMVFRMETAR120.02019-02-21 10:02:40D%(5    3KFTN 210955Z AUTO 09004KT 10SM OVC055 14/02 A2988 RMK A01KFTN2019-02-21T09:55:00Z28.22-100.0214.02.090410.029.878937TRUETRUEVFRMETAR236.02019-02-21 10:02:40S$)5     3KFVX 210955Z AUTO 21003KT 10SM BKN007 01/01 A3000 RMK AO2 P0002 T00070005KFVX2019-02-21T09:55:00Z37.35-78.420.70.5210310.030.0TRUETRUEIFR0.02METAR125.02019-02-21 10:02:40 DiI+)5    3KETB 210955Z AUTO 25008KT 10SM OVC021 M05/M08 A2990 RMK AO2KETB2019-02-21T09:55:00Z43.42-88.13-5.0-8.0250810.029.899607TRUETRUEMVFRMETAR270.02019-02-21 10:02:40U*)5     3KEZF 210955Z AUTO 00000KT 10SM BKN085 01/01 A2999 RMK AO2 P0001 T00080008KEZF2019-02-21T09:55:00Z38.27-77.450.80.80010.029.991142TRUETRUEVFR0.01METAR26.02019-02-21 10:02:40S))5    3KF45 210955Z AUTO 14004KT 10SM SCT021 BKN029 OVC048 23/22 A3008 RMK AO2KF452019-02-21T09:55:00Z26.85-80.2223.022.0140410.030.079725TRUETRUEMVFRMETAR7.02019-02-21 10:02:40]()#5     3KFBR 210955Z AUTO 03003KT 1/2SM FZFG OVC002 M16/M17 A2963 RMK AO2 T11621174KFBR2019-02-21T09:55:00Z41.4-110.4-16.2-17.43030.529.630905TRUETRUEFZFGLIFRMETAR2144.02019-02-21 10:02:40 'KV/)!5    3KEBG 210955Z AUTO 35003KT 10SM BKN019 OVC025 16/10 A2988 RMK AO2 T01580096KEBG2019-02-21T09:55:00Z26.45-98.1315.89.6350310.029.878937TRUETRUEMVFRMETAR24.02019-02-21 10:02:40D.(5    3KEDJ 210955Z AUTO 27007KT 10SM OVC024 00/00 A3003 RMK AO1KEDJ2019-02-21T09:55:00Z40.37-83.820.00.0270710.030.029528TRUETRUEMVFRMETAR342.02019-02-21 10:02:40V-)5    3KEKS 210955Z AUTO 00000KT 9SM BKN042 BKN048 OVC075 M19/M22 A2983 RMK AO2KEKS2019-02-21T09:55:00Z45.27-111.65-19.0-22.0009.029.828741TRUETRUEVFRMETAR1641.02019-02-21 10:02:40S,)5     3KELA 210955Z AUTO 05008KT 10SM -DZ OVC048 11/08 A2993 RMK AO2 T01100077KELA2019-02-21T09:55:00Z29.6-96.3211.07.750810.029.929134TRUETRUE-DZVFRMETAR56.02019-02-21 10:02:40 7cS3)5      3KDKX 210955Z AUTO 00000KT 3/4SM BR OVC004 09/09 A3004 RMK A01 P0004KDKX2019-02-21T09:55:00Z35.97-83.879.09.0000.7530.041338TRUETRUEBRLIFR0.04METAR254.02019-02-21 10:02:40J2) 5    3KDUC 210955Z AUTO 10007KT 10SM CLR 03/02 A2998 RMK AO2 T00330015KDUC2019-02-21T09:55:00Z34.47-97.973.31.5100710.029.97933TRUETRUEVFRMETAR339.02019-02-21 10:02:40N1)5    3KE11 210955Z AUTO 16006KT 10SM CLR 06/M03 A2981 RMK AO2 T00631029KE112019-02-21T09:55:00Z32.33-102.536.3-2.9160610.029.811024TRUETRUEVFRMETAR967.02019-02-21 10:02:40C0(5    3KE16 210955Z AUTO 30004KT 10SM OVC025 07/03 A2973 RMK AO2KE162019-02-21T09:55:00Z37.08-121.67.03.0300410.029.731298TRUETRUEMVFRMETAR86.02019-02-21 10:02:40 0`M7)5    3KCUH 210955Z AUTO 11003KT 10SM CLR 00/M02 A3003 RMK AO2 T00031016KCUH2019-02-21T09:55:00Z35.95-96.770.3-1.6110310.030.029528TRUETRUEVFRMETAR279.02019-02-21 10:02:40U6)5     3KCXE 210955Z AUTO 00000KT 10SM OVC004 02/02 A3002 RMK AO1 P0003 T00180018KCXE2019-02-21T09:55:00Z36.78-78.51.81.80010.030.02067TRUETRUELIFR0.03METAR153.02019-02-21 10:02:40J5) 5     3KCXW 210955Z AUTO 04005KT M1/4SM FG OVC002 00/00 A3008 RMK A01KCXW2019-02-21T09:55:00Z35.02-92.550.00.04050.2530.079725TRUETRUEFGLIFRMETAR84.02019-02-21 10:02:40J4)5    3KDKB 210955Z AUTO 25010KT 10SM CLR M04/M07 A3000 RMK AO2 T10431069KDKB2019-02-21T09:55:00Z41.93-88.7-4.3-6.92501010.030.0TRUETRUEVFRMETAR279.02019-02-21 10:02:40  =mF;(}5    3PPNU 210955Z AUTO 33005KT 10SM CLR M20/M24 A3004 RMK AO1PPNU2019-02-21T09:55:00Z70.42-150.03-20.0-24.0330510.030.041338TRUETRUEVFRMETAR27.02019-02-21 10:02:40J:)5    3KCOM 210955Z AUTO 00000KT 10SM CLR 05/M01 A2992 RMK AO2 T00501015KCOM2019-02-21T09:55:00Z31.83-99.45.0-1.50010.029.920275TRUETRUEVFRMETAR517.02019-02-21 10:02:40J9)5    3KCRX 210955Z AUTO 00000KT 10SM CLR 05/04 A3010 RMK AO2 LTG DSNT SEKCRX2019-02-21T09:55:00Z34.92-88.65.04.00010.030.100393TRUETRUEVFRMETAR130.02019-02-21 10:02:40m8)M5     3KCTJ 210955Z AUTO 18003KT 1SM +RA BKN005 OVC017 08/08 A3009 RMK AO2 LTG DSNT NE AND SE T00790077KCTJ2019-02-21T09:55:00Z33.63-85.157.97.718031.030.088583TRUETRUE+RAIFRMETAR354.02019-02-21 10:02:40 )ZtP?)5    3KSXU 210955Z AUTO 00000KT 10SM CLR M05/M12 A2976 RMK AO2 T10531117KSXU2019-02-21T09:55:00Z34.93-104.65-5.3-11.70010.029.760826TRUETRUEVFRMETAR1460.02019-02-21 10:02:40`>)/5     3KWDR 210955Z AUTO 00000KT 2SM VCTSDZ OVC003 06/05 A3008 RMK AO2 LTG DSNT W AND NWKWDR2019-02-21T09:55:00Z33.98-83.676.05.0002.030.079725TRUETRUEVCTSDZLIFRMETAR287.02019-02-21 10:02:40I=) 5    3KXNX 210955Z AUTO 00000KT 10SM FEW016 SCT029 03/03 A3014 RMK A01KXNX2019-02-21T09:55:00Z36.38-86.423.03.00010.030.138779TRUETRUEVFRMETAR178.02019-02-21 10:02:40Q<)5    3PAAD 210955Z AUTO 25012KT 10SM CLR M24/M26 A3003 RMK AO2 T12411264PAAD2019-02-21T09:55:00Z70.13-146.28-24.1-26.42501210.030.029528TRUETRUEVFRMETAR8.02019-02-21 10:02:40 )Rey4o(q5   3KDKR 210955Z AUTO 00000KT 10SM 07/05 A3002 RMK AO2KDKR2019-02-21T09:55:00Z31.3-95.47.05.00010.030.02067TRUETRUEMETAR106.02019-02-21 10:02:40fn)=5     3KDQH 210955Z AUTO 21006KT 5SM BR BKN003 OVC017 20/20 A3006 RMK AO2 LTG DSNT NW T02010198KDQH2019-02-21T09:55:00Z31.48-82.8720.119.821065.030.059055TRUETRUEBRLIFRMETAR78.02019-02-21 10:02:40Sm)'5    3EHQE 210955Z AUTO 20022KT 7000 FEW002 BKN012 OVC016 08/08 Q1023 REDZ W///H///EHQE2019-02-21T09:55:00Z52.924.158.08.0200224.3530.206694TRUEMVFRMETAR50.02019-02-21 10:02:40;??@CAGBKCODSEWF[G_HcIgJkKoLsMwO{PQRS TUVWXY#Z'[+\/]2^6_:`>aBbFcJdNeRfVgZh^ibjfkjlnmrnvozp~qrs tuvwxy"z&{*|.}2~6:>BF +VR{)5    3KBMC 210955Z AUTO 00000KT 10SM OVC075 M07/M11 A2967 RMK AO1 T10711108KBMC2019-02-21T09:55:00Z41.55-112.07-7.1-10.80010.029.66929TRUETRUEVFRMETAR1288.02019-02-21 10:02:40?z(y5    3KBWD 210955Z AUTO 15006KT 10SM CLR 07/00 A2994 RMK AO1KBWD2019-02-21T09:55:00Z31.8-98.957.00.0150610.029.940945TRUETRUEVFRMETAR423.02019-02-21 10:02:40Oy)5    3KC09 210955Z AUTO 25007KT 10SM CLR M02/M05 A3004 RMK AO2 T10201051KC092019-02-21T09:55:00Z41.43-88.42-2.0-5.1250710.030.041338TRUETRUEVFRMETAR178.02019-02-21 10:02:40Ox)5    3KC75 210955Z AUTO 23005KT 10SM CLR M01/M05 A3006 RMK AO2 T10141050KC752019-02-21T09:55:00Z41.02-89.38-1.4-5.0230510.030.059055TRUETRUEVFRMETAR173.02019-02-21 10:02:40 0XO)5    3KALN 210955Z AUTO 27005KT 10SM CLR M01/M02 A3011 RMK AO2 T10121020KALN2019-02-21T09:55:00Z38.88-90.03-1.2-2.0270510.030.109253TRUETRUEVFRMETAR166.02019-02-21 10:02:40F~(}5    3KATW 210955Z AUTO 25012KT 10SM CLR M05/M11 A2984 RMK AO2KATW2019-02-21T09:55:00Z44.27-88.52-5.0-11.02501210.029.840551TRUETRUEVFRMETAR280.02019-02-21 10:02:40R})5     3KBHC 210955Z AUTO 00000KT 2SM BR OVC003 18/18 A3006 RMK AO2 LTG DSNT NWKBHC2019-02-21T09:55:00Z31.72-82.418.018.0002.030.059055TRUETRUEBRLIFRMETAR61.02019-02-21 10:02:40J|) 5    3KBKD 210955Z AUTO 00000KT 10SM CLR 07/00 A2993 RMK AO2 T00691002KBKD2019-02-21T09:55:00Z32.72-98.886.9-0.20010.029.929134TRUETRUEVFRMETAR392.02019-02-21 10:02:40 4cU)5     3K2J5 210955Z AUTO 34004KT 2SM OVC003 09/09 A3008 RMK AO2 PWINO T00900089K2J52019-02-21T09:55:00Z32.9-81.979.08.934042.030.079725TRUETRUETRUELIFRMETAR72.02019-02-21 10:02:40B(}5    3K3AU 210955Z AUTO 09005KT 10SM CLR M03/M07 A3002 RMK AO2K3AU2019-02-21T09:55:00Z37.67-97.08-3.0-7.090510.030.02067TRUETRUEVFRMETAR405.02019-02-21 10:02:40K) 5    3K5M9 210955Z AUTO 33003KT 10SM CLR 01/01 A3012 RMK AO2 T00140014K5M92019-02-21T09:55:00Z37.33-88.121.41.4330310.030.121063TRUETRUEVFRMETAR199.02019-02-21 10:02:40F(}5    3KAFO 210955Z AUTO 00000KT 10SM CLR M25/M28 A2966 RMK AO2KAFO2019-02-21T09:55:00Z42.72-110.95-25.0-28.00010.029.660433TRUETRUEVFRMETAR1897.02019-02-21 10:02:40 |#Ji|g);5     3KW78 210955Z AUTO 28003KT 10SM SCT005 SCT009 OVC014 03/02 A3004 RMK AO1 P0001 T00260020KW782019-02-21T09:55:00Z36.68-78.852.62.0280310.030.041338TRUETRUEMVFR0.01METAR129.02019-02-21 10:02:40[)5     3KY49 210955Z AUTO 26003KT 10SM -SN OVC120 M11/M12 A2980 RMK AO2 T11101122KY492019-02-21T09:55:00Z47.13-94.65-11.0-12.2260310.029.799213TRUETRUE-SNVFRMETAR416.02019-02-21 10:02:40S)5     3K17J 210955Z AUTO 22005KT 4SM BR OVC002 21/21 A3003 RMK AO2 T02120210K17J2019-02-21T09:55:00Z31.07-84.9221.221.022054.030.029528TRUETRUEBRLIFRMETAR45.02019-02-21 10:02:40W)#5      3K2J3 210955Z AUTO 00000KT 1 1/2SM -RA BR OVC002 09/ A3008 RMK AO2 T0085////K2J32019-02-21T09:55:00Z32.98-82.388.5001.530.079725TRUETRUE-RA BRLIFRMETAR100.02019-02-21 10:02:40 >iP )5     3KTOC 210955Z AUTO 00000KT 5SM +RA OVC014 07/06 A3005 RMK AO2 T00650060KTOC2019-02-21T09:55:00Z34.6-83.36.56.0005.030.050198TRUETRUE+RAMVFRMETAR304.02019-02-21 10:02:40< (w5    3KUOX 210955Z AUTO 00000KT 8SM CLR 00/00 A3011 RMK AO2KUOX2019-02-21T09:55:00Z34.38-89.530.00.0008.030.109253TRUETRUEVFRMETAR137.02019-02-21 10:02:40O )5    3KVYS 210955Z AUTO 24008KT 10SM CLR M03/M06 A3005 RMK AO2 T10281065KVYS2019-02-21T09:55:00Z41.35-89.15-2.8-6.5240810.030.050198TRUETRUEVFRMETAR199.02019-02-21 10:02:40<(m5    3KW43 210955Z AUTO 10SM CLR M17/M20 A2982 RMK AO2KW432019-02-21T09:55:00Z44.67-104.57-17.0-20.010.029.819881TRUETRUEVFRMETAR1300.02019-02-21 10:02:40 ,Z|X)5     3KRZN 210955Z AUTO 25006KT 4SM -SN OVC010 M07/M08 A2983 RMK AO2 T10671082KRZN2019-02-21T09:55:00Z45.82-92.37-6.7-8.225064.029.828741TRUETRUE-SNMVFRMETAR301.02019-02-21 10:02:40X)5   3KSTE 210955Z AUTO 24010G17KT 7SM OVC016 M09/M11 A2986 RMK AO2 T10861114KSTE2019-02-21T09:55:00Z44.55-89.53-8.6-11.424010177.029.861221TRUETRUEMVFRMETAR338.02019-02-21 10:02:40L )5    3KT35 210955Z AUTO 00000KT 10SM OVC070 07/04 A2996 RMK AO2 T00670042KT352019-02-21T09:55:00Z30.88-96.976.74.20010.029.958662TRUETRUEVFRMETAR123.02019-02-21 10:02:40N )5    3KTIP 210955Z AUTO 27006KT 10SM CLR 00/M01 A3007 RMK AO2 T10011015KTIP2019-02-21T09:55:00Z40.28-88.15-0.1-1.5270610.030.070866TRUETRUEVFRMETAR225.02019-02-21 10:02:40 1VpH)5   3KRCR 210955Z AUTO 26008G14KT 10SM CLR 01/M03 A3004 RMK AO2KRCR2019-02-21T09:55:00Z41.07-86.181.0-3.026081410.030.041338TRUETRUEVFRMETAR241.02019-02-21 10:02:40`)75     3KREG 210955Z AUTO 00000KT 2 1/2SM BR OVC002 14/14 A2995 RMK AO2 LTG DSNT NW T01370137KREG2019-02-21T09:55:00Z30.17-90.9313.713.7002.529.949802TRUETRUEBRLIFRMETAR4.02019-02-21 10:02:40U)%5     3KRMN 210955Z AUTO 00000KT 3SM BR SCT004 BKN080 01/01 A3003 RMK AO2 T00060006KRMN2019-02-21T09:55:00Z38.4-77.450.60.6003.030.029528TRUETRUEBRMVFRMETAR65.02019-02-21 10:02:40I) 5    3KRPH 210955Z AUTO 00000KT 10SM CLR 05/02 A2993 RMK AO2 T00520017KRPH2019-02-21T09:55:00Z33.12-98.555.21.70010.029.929134TRUETRUEVFRMETAR342.02019-02-21 10:02:40 HuB({5    3KOZA 210955Z AUTO 16008KT 10SM CLR 07/M01 A2989 RMK AO2KOZA2019-02-21T09:55:00Z30.73-101.27.0-1.0160810.029.890747TRUETRUEVFRSPECI726.02019-02-21 10:02:40M)5    3KPNT 210955Z AUTO 00000KT 10SM CLR M01/M02 A3006 RMK AO2 T10071016KPNT2019-02-21T09:55:00Z40.92-88.62-0.7-1.60010.030.059055TRUETRUEVFRSPECI201.02019-02-21 10:02:40O)5    3KPPO 210955Z AUTO 26011KT 10SM CLR M01/M05 A3002 RMK AO2 T10111050KPPO2019-02-21T09:55:00Z41.57-86.73-1.1-5.02601110.030.02067TRUETRUEVFRSPECI248.02019-02-21 10:02:40])35     3KPSK 210955Z AUTO 00000KT 4SM BR SCT029 SCT034 BKN047 01/01 A3002 RMK AO2 T00120012KPSK2019-02-21T09:55:00Z37.12-80.671.21.2004.030.02067TRUETRUEBRMVFRSPECI642.02019-02-21 10:02:40 &&UM)5    3KMZZ 210955Z AUTO 27009KT 10SM CLR 01/M02 A3006 RMK AO2 T00051016KMZZ2019-02-21T09:55:00Z40.48-85.680.5-1.6270910.030.059055TRUETRUEVFRSPECI262.02019-02-21 10:02:40K) 5    3KOLY 210955Z AUTO 00000KT 10SM CLR 00/00 A3013 RMK AO2 T10011001KOLY2019-02-21T09:55:00Z38.72-88.18-0.1-0.10010.030.129921TRUETRUEVFRSPECI147.02019-02-21 10:02:40z)U5     3KOPL 210955Z AUTO 04006G14KT 5SM VCTS BR OVC011 10/09 A2997 RMK AO2 LTG DSNT N AND W P0014 T01010091KOPL2019-02-21T09:55:00Z30.55-92.110.19.1406145.029.970472TRUETRUEVCTS BRMVFR0.14SPECI23.02019-02-21 10:02:40T)5     3KOPN 210955Z AUTO 00000KT 1/4SM FG OVC003 09/07 A3008 RMK AO2 LTG DSNT NKOPN2019-02-21T09:55:00Z32.95-84.279.07.0000.2530.079725TRUETRUEFGLIFRSPECI243.02019-02-21 10:02:40 6aF)5   3KMDD 210955Z AUTO 16007KT 10SM 08/M02 A2983 RMK AO2 T00811020KMDD2019-02-21T09:55:00Z32.03-102.18.1-2.0160710.029.828741TRUETRUESPECI854.02019-02-21 10:02:40K)5    3KMDS 210955Z AUTO 29009KT 10SM BKN002 M17/M17 A2993 RMK AO2KMDS2019-02-21T09:55:00Z44.02-97.08-17.0-17.0290910.029.929134TRUETRUELIFRSPECI524.02019-02-21 10:02:40O)5     3KMMU 210955Z AUTO 00000KT 4SM BR OVC009 00/00 A2991 RMK AO2 LTG DSNT SKMMU2019-02-21T09:55:00Z40.78-74.420.00.0004.029.911417TRUETRUEBRIFRSPECI57.02019-02-21 10:02:40D(}5    3KMYZ 210955Z AUTO 00000KT 10SM CLR M10/M11 A3004 RMK AO2KMYZ2019-02-21T09:55:00Z39.85-96.63-10.0-11.00010.030.041338TRUETRUEVFRSPECI319.02019-02-21 10:02:40 s*Resl#)A5      3KJCA 210955Z AUTO 09003KT 2SM OVC003 05/05 A3006 RMK AO2 LTG DSNT NW P0003 PWINO T00500048KJCA2019-02-21T09:55:00Z34.18-83.575.04.89032.030.059055TRUETRUETRUELIFR0.03SPECI290.02019-02-21 10:02:40g")=5     3KLGC 210955Z AUTO 34003KT 3/4SM BR OVC003 12/12 A3005 RMK AO2 LTG DSNT N AND W T01190115KLGC2019-02-21T09:55:00Z33.0-85.0711.911.534030.7530.050198TRUETRUEBRLIFRSPECI211.02019-02-21 10:02:40R!)5     3KLWB 210955Z AUTO 00000KT 2 1/2SM BR OVC005 01/01 A3001 RMK AO2 T00130012KLWB2019-02-21T09:55:00Z37.87-80.41.31.2002.530.008858TRUETRUEBRIFRSPECI702.02019-02-21 10:02:40P )5     3KM30 210955Z AUTO 00000KT 4SM BR CLR 00/M01 A3014 RMK AO2 T10051006KM302019-02-21T09:55:00Z37.18-88.75-0.5-0.6004.030.138779TRUETRUEBRMVFRSPECI117.02019-02-21 10:02:40 ,Xw[')5     3KHSG 210955Z AUTO 33006KT 3SM -SN OVC024 M10/M12 A2979 RMK AO2 T10961120KHSG2019-02-21T09:55:00Z43.72-108.38-9.6-12.033063.029.790354TRUETRUE-SNMVFRSPECI1494.02019-02-21 10:02:40[&)#5      3KHTO 210955Z AUTO 33005KT 5SM BR OVC003 04/04 A2982 RMK AO2 P0001 T00410038KHTO2019-02-21T09:55:00Z40.95-72.254.13.833055.029.819881TRUETRUEBRLIFR0.01SPECI17.02019-02-21 10:02:40N%)5    3KI63 210955Z AUTO 24008KT 10SM CLR M01/M03 A3009 RMK AO2 T10111032KI632019-02-21T09:55:00Z39.98-90.8-1.1-3.2240810.030.088583TRUETRUEVFRSPECI223.02019-02-21 10:02:40N$)5    3KIJX 210955Z AUTO 24008KT 10SM CLR 00/M02 A3010 RMK AO2 T10021022KIJX2019-02-21T09:55:00Z39.77-90.25-0.2-2.2240810.030.100393TRUETRUEVFRSPECI190.02019-02-21 10:02:40 $SO+)5    3KGBG 210955Z AUTO 23005KT 10SM CLR M03/M05 A3006 RMK AO2 T10351050KGBG2019-02-21T09:55:00Z40.93-90.43-3.5-5.0230510.030.059055TRUETRUEVFRSPECI233.02019-02-21 10:02:40N*)5    3KGNC 210955Z AUTO 17007KT 10SM CLR 06/M03 A2985 RMK AO2 T00611026KGNC2019-02-21T09:55:00Z32.68-102.656.1-2.6170710.029.84941TRUETRUEVFRSPECI1010.02019-02-21 10:02:40K))5    3KHBV 210955Z AUTO 00000KT 7SM OVC065 11/06 A2989 RMK AO2 T01070063KHBV2019-02-21T09:55:00Z27.35-98.7310.76.3007.029.890747TRUETRUEVFRSPECI202.02019-02-21 10:02:40V()5   3KHHG 210955Z AUTO 27012G17KT 10SM SCT027 00/M04 A3003 RMK AO2 T00041041KHHG2019-02-21T09:55:00Z40.85-85.450.4-4.1270121710.030.029528TRUETRUEVFRSPECI246.02019-02-21 10:02:40 5%*5o/)35     3PAIM 210955Z AUTO VRB05KT 10SM CLR M15/M18 A2991 RMK AO2 SLP172 T11471178 411041190PAIM2019-02-21T09:55:00Z66.0-153.7-14.7-17.80510.029.9114171017.2TRUETRUEVFR-10.4-19.0METAR389.02019-02-21 10:02:40o.)35     3PALU 210955Z AUTO 12004KT 10SM CLR M12/M13 A2994 RMK AO2 SLP139 T11201135 410551129PALU2019-02-21T09:55:00Z68.88-166.1-12.0-13.5120410.029.9409451013.9TRUETRUEVFR-5.5-12.9METAR3.02019-02-21 10:02:40-)U5     3PASV 210955Z AUTO 35003KT 10SM SCT015 SCT021 BKN140 M04/M05 A2973 RMK AO2 SLP094 T10371050 410201116PASV2019-02-21T09:55:00Z61.1-155.57-3.7-5.0350310.029.7312981009.4TRUETRUEVFR-2.0-11.6METAR484.02019-02-21 10:02:40U,)+5   3FJDG 210955Z VRB04KT 9999 FEW022 SCT040 SCT080 32/27 A2986 RMK SLP108 T03170274FJDG2019-02-21T09:55:00Z-7.3272.4231.727.4046.2129.8612211010.8VFRMETAR3.02019-02-21 10:02:40 2)o5    3EHKD 210955Z AUTO 23013KT 4100 BR BKN006 BKN008 BKN012 08/08 Q1024 YLO 22010KT 6000 BKN012 TEMPO 3000 RADZ BKN007EHKD2019-02-21T09:55:00Z52.924.778.08.0230132.5530.236221TRUEBRBKN1200IFRMETAR14.02019-02-21 10:02:40q1)/5    3PACZ 210955Z AUTO 23031G36KT 2 1/2SM -SN BR OVC014 M04/M05 A2961 RMK AO2 SLP035 $PACZ2019-02-21T09:55:00Z61.78-166.03-4.0-5.023031362.529.6102371003.5TRUETRUETRUE-SN BRIFRMETAR146.02019-02-21 10:02:400)q5    3PAEH 210955Z AUTO 26017G24KT 160V330 10SM OVC015 00/M02 A2994 RMK AO2 PK WND 22026/0931 SLP146 T00021017 400281030PAEH2019-02-21T09:55:00Z58.65-162.070.2-1.7260172410.029.9409451014.6TRUETRUEMVFR2.8-3.0METAR161.02019-02-21 10:02:40 ?~U6)5     3KEZM 210955Z AUTO 00000KT 2 1/2SM BR OVC002 14/14 A3008 RMK AO2 T01360136KEZM2019-02-21T09:55:00Z32.22-83.1313.613.6002.530.079725TRUETRUEBRLIFRMETAR93.02019-02-21 10:02:40;5(w5    3KFWB 210955Z AUTO 05003KT 7SM CLR 00/00 A3006 RMK AO2KFWB2019-02-21T09:55:00Z36.7-93.40.00.05037.030.059055TRUETRUEVFRMETAR406.02019-02-21 10:02:40P4)5     3RCMQ 210955Z 36008KT 0400 R36/0650D FG VV002 19/18 Q1016 NOSIG RMK A3003RCMQ2019-02-21T09:55:00Z24.27120.6219.018.036080.2530.0TRUEFGLIFR200SPECI5.02019-02-21 10:02:40e3)C5     3EHEH 210955Z AUTO 23008KT 7000 BR OVC055 08/06 Q1027 WHT 23007KT 5000 BR NSC BECMG 7000 NSWEHEH2019-02-21T09:55:00Z51.455.388.06.023084.3530.324802TRUEBR BRMVFRMETAR22.02019-02-21 10:02:40 9gH:(}5    3KDUB 210955Z AUTO 28007KT 10SM CLR M18/M22 A2962 RMK AO2KDUB2019-02-21T09:55:00Z43.55-109.68-18.0-22.0280710.029.619095TRUETRUEVFRMETAR2224.02019-02-21 10:02:40B9(5    3KDVK 210955Z AUTO 00000KT 10SM OVC023 04/02 A3010 RMK AO2KDVK2019-02-21T09:55:00Z37.58-84.774.02.00010.030.100393TRUETRUEMVFRMETAR312.02019-02-21 10:02:40L8)5    3KELK 210955Z AUTO 11006KT 10SM CLR 01/M02 A2990 RMK AO2 T00121020KELK2019-02-21T09:55:00Z35.43-99.41.2-2.0110610.029.899607TRUETRUEVFRMETAR610.02019-02-21 10:02:40A7({5    3KEQA 210955Z AUTO 11006KT 10SM CLR 00/M06 A3002 RMK AO2KEQA2019-02-21T09:55:00Z37.78-96.820.0-6.0110610.030.02067TRUETRUEVFRMETAR420.02019-02-21 10:02:40 2ZM>)5    3KLUL 210955Z AUTO 02003KT 10SM OVC005 12/12 A3002 RMK AO2 T01200120KLUL2019-02-21T09:55:00Z31.67-89.1712.012.020310.030.02067TRUETRUEIFRMETAR73.02019-02-21 10:02:40I=) 5    3KMCJ 210955Z AUTO VRB06G11KT 6SM HZ OVC038 13/08 A2991 RMK A01KMCJ2019-02-21T09:55:00Z29.72-95.413.08.006116.029.911417TRUETRUEHZVFRMETAR69.02019-02-21 10:02:40R<)%5    3EBLB 210955Z AUTO 23003KT 8000 FEW012/// SCT068/// BKN150/// 07/05 Q1027 BLUEBLB2019-02-21T09:55:00Z50.476.177.05.023034.9730.324802TRUEMVFRMETAR570.02019-02-21 10:02:40H;)5    3KDTA 210955Z AUTO 07004KT 10SM OVC037 M05/M06 A2960 RMK AO1KDTA2019-02-21T09:55:00Z39.38-112.5-5.0-6.070410.029.601377TRUETRUEVFRMETAR1402.02019-02-21 10:02:40 /_PB)5    3KCMY 210955Z AUTO 24006KT 10SM CLR M09/M11 A2993 RMK AO2 T10911115KCMY2019-02-21T09:55:00Z43.97-90.73-9.1-11.5240610.029.929134TRUETRUEVFRMETAR256.02019-02-21 10:02:40BA) 5   3K06C 210955Z AUTO 25007KT 10SM M04/M07 A3000 RMK AO2 T10361074K06C2019-02-21T09:55:00Z41.98-88.1-3.6-7.4250710.030.0TRUETRUEMETAR244.02019-02-21 10:02:40J@) 5    3K0F2 210955Z AUTO 14004KT 10SM CLR 05/03 A2997 RMK AO2 T00510026K0F22019-02-21T09:55:00Z33.6-97.785.12.6140410.029.970472TRUETRUEVFRMETAR336.02019-02-21 10:02:40K?)5     3K0VG 210955Z AUTO 00000KT 1/4SM FG OVC002 10/10 A3004 RMK AO2K0VG2019-02-21T09:55:00Z36.65-83.2210.010.0000.2530.041338TRUETRUEFGLIFRMETAR430.02019-02-21 10:02:40 ,`>F(y5    3KADH 210955Z AUTO 06003KT 10SM CLR 02/01 A3001 RMK AO2KADH2019-02-21T09:55:00Z34.8-96.672.01.060310.030.008858TRUETRUEVFRMETAR308.02019-02-21 10:02:40KE) 5    3KADM 210955Z AUTO 12005KT 10SM CLR 05/02 A3001 RMK AO2 T00480023KADM2019-02-21T09:55:00Z34.28-97.024.82.3120510.030.008858TRUETRUEVFRMETAR232.02019-02-21 10:02:40FD) 5    3KADS 210955Z AUTO 10009KT 10SM CLR 07/02 A3000 RMK AO2 T00650015KADS2019-02-21T09:55:00Z32.97-96.826.51.5100910.030.0TRUETRUEVFRMETAR196.02019-02-21 10:02:40NC)5    3KAEG 210955Z AUTO 00000KT 10SM CLR M06/M09 A2970 RMK AO2 T10561086KAEG2019-02-21T09:55:00Z35.13-106.8-5.6-8.60010.029.698818TRUETRUEVFRMETAR1779.02019-02-21 10:02:40  <zNJ)5    3K7W4 210955Z AUTO 22003KT 10SM OVC007 00/00 A2999 RMK AO1 T00030000K7W42019-02-21T09:55:00Z37.97-77.750.30.0220310.029.991142TRUETRUEIFRMETAR106.02019-02-21 10:02:40N(y5    3K4O4 210955Z AUTO 00000KT 10SM CLR 02/01 A3006 RMK AO2K4O42019-02-21T09:55:00Z33.92-94.872.01.00010.030.059055TRUETRUEVFRMETAR144.02019-02-21 10:02:40>M(y5    3K4S1 210955Z AUTO 07009KT 10SM CLR 01/01 A2992 RMK AO1K4S12019-02-21T09:55:00Z42.42-124.421.01.070910.029.920275TRUETRUEVFRMETAR5.02019-02-21 10:02:40ML)5    3K66R 210955Z AUTO 05006KT 10SM OVC050 12/05 A2994 RMK AO2 T01170052K66R2019-02-21T09:55:00Z29.65-96.5211.75.250610.029.940945TRUETRUEVFRMETAR74.02019-02-21 10:02:40NK) 5     3K74V 210955Z AUTO 00000KT 4SM -SN OVC016 M08/M10 A2969 RMK AO2K74V2019-02-21T09:55:00Z40.28-110.05-8.0-10.0004.029.68996TRUETRUE-SNMVFRMETAR1576.02019-02-21 10:02:40 'VpKR)5   3K2G9 210955Z AUTO 29013G21KT 10SM OVC010 05/05 A2991 RMK AO2K2G92019-02-21T09:55:00Z40.03-79.025.05.0290132110.029.911417TRUETRUEMVFRMETAR693.02019-02-21 10:02:40`Q)-5   3K3D2 210955Z AUTO 24010G17KT 210V270 10SM OVC042 M03/M06 A2977 RMK AO2 T10301059K3D22019-02-21T09:55:00Z45.13-87.18-3.0-5.9240101710.029.769686TRUETRUEVFRMETAR234.02019-02-21 10:02:40KP)5    3K3T5 210955Z AUTO 00000KT 10SM OVC065 12/07 A2993 RMK AO2 T01150070K3T52019-02-21T09:55:00Z29.9-96.9511.57.00010.029.929134TRUETRUEVFRMETAR99.02019-02-21 10:02:40SO)5     3K40J 210955Z AUTO 15005KT 3SM BR OVC003 20/19 A3007 RMK AO2 T01970192K40J2019-02-21T09:55:00Z30.07-83.5719.719.215053.030.070866TRUETRUEBRLIFRMETAR13.02019-02-21 10:02:40 -lVV)5     3K13K 210955Z AUTO 36003KT 3 1/2SM BR CLR M06/M07 A3006 RMK AO2 T10601067K13K2019-02-21T09:55:00Z37.85-96.3-6.0-6.736033.530.059055TRUETRUEBRMVFRMETAR369.02019-02-21 10:02:40UU)5    3K18H 210955Z AUTO 14013G24KT 3SM BR BKN010 OVC013 24/22 A2985 RMK A01K18H2019-02-21T09:55:00Z26.13-92.0324.022.014013243.029.84941TRUETRUEBRMVFRMETAR10.02019-02-21 10:02:40;T(y5    3K1F0 210955Z AUTO 12003KT 10SM CLR 05/01 A3000 RMK AO2K1F02019-02-21T09:55:00Z34.15-97.125.01.0120310.030.0TRUETRUEVFRMETAR257.02019-02-21 10:02:40MS)5    3K1K1 210955Z AUTO 09005KT 10SM CLR M05/M07 A3002 RMK AO2 T10501068K1K12019-02-21T09:55:00Z37.77-97.12-5.0-6.890510.030.02067TRUETRUEVFRMETAR416.02019-02-21 10:02:40 .YuQZ)5    3KANW 210955Z AUTO 27005KT 10SM CLR M17/M19 A2992 RMK AO2 T11701186KANW2019-02-21T09:55:00Z42.57-100.0-17.0-18.6270510.029.920275TRUETRUEVFRMETAR789.02019-02-21 10:02:40^Y)-5     3KARM 210955Z AUTO 02004KT 10SM BKN038 OVC044 11/09 A2993 RMK AO2 P0002 T01130085KARM2019-02-21T09:55:00Z29.25-96.1511.38.520410.029.929134TRUETRUEVFR0.02METAR31.02019-02-21 10:02:40OX)5    3KAHQ 210955Z AUTO 00000KT 7SM SCT110 M15/M16 A3005 RMK AO2 T11531165KAHQ2019-02-21T09:55:00Z41.23-96.6-15.3-16.5007.030.050198TRUETRUEVFRMETAR374.02019-02-21 10:02:40LW)5    3K11R 210955Z AUTO 00000KT 10SM OVC065 11/07 A2996 RMK AO2 T01070070K11R2019-02-21T09:55:00Z30.22-96.3710.77.00010.029.958662TRUETRUEVFRMETAR94.02019-02-21 10:02:40 5gM^)5    3KAVQ 210955Z AUTO 18006KT 10SM CLR 07/M06 A2974 RMK AO2 T00671063KAVQ2019-02-21T09:55:00Z32.4-111.226.7-6.3180610.029.740158TRUETRUEVFRMETAR619.02019-02-21 10:02:40K])5    3KAUH 210955Z AUTO 21005KT 10SM CLR M16/M17 A3000 RMK AO2 T11581174KAUH2019-02-21T09:55:00Z40.88-98.0-15.8-17.4210510.030.0TRUETRUEVFRMETAR550.02019-02-21 10:02:40H\)5     3KARW 210955Z AUTO 00000KT 1/2SM FG OVC002 11/11 A3008 RMK AO2KARW2019-02-21T09:55:00Z32.42-80.6311.011.0000.530.079725TRUETRUEFGLIFRMETAR4.02019-02-21 10:02:40E[(}5     3KATP 210955Z AUTO 14017KT 3SM BR CLR 23/23 A2993 RMK A01KATP2019-02-21T09:55:00Z27.2-90.0323.023.0140173.029.929134TRUETRUEBRMVFRMETAR62.02019-02-21 10:02:40 )PtEb)5   3KBDG 210955Z AUTO 00000KT 1SM M05/M05 A2969 RMK AO1 T10501052KBDG2019-02-21T09:55:00Z37.58-109.47-5.0-5.2001.029.68996TRUETRUEMETAR1788.02019-02-21 10:02:40Va)5     3KAZE 210955Z AUTO 00000KT 1 1/4SM BR OVC003 17/15 A3005 RMK AO2 T01660153KAZE2019-02-21T09:55:00Z31.88-82.6516.615.3001.2530.050198TRUETRUEBRLIFRMETAR78.02019-02-21 10:02:40S`)5     3KAYS 210955Z AUTO 00000KT 1/4SM HZ OVC002 18/15 A3006 RMK AO2 T01810154KAYS2019-02-21T09:55:00Z31.25-82.418.115.4000.2530.059055TRUETRUEHZLIFRMETAR46.02019-02-21 10:02:40Q_)5    3KAUN 210955Z AUTO 00000KT 10SM FEW037 SCT046 OVC100 01/01 A2968 RMK A01KAUN2019-02-21T09:55:00Z38.95-121.081.01.00010.029.681103TRUETRUEVFRMETAR467.02019-02-21 10:02:40 2baf)35    3KBQX 210955Z AUTO 07018G24KT 1 1/2SM BR FEW005 OVC014 16/14 A2987 RMK A01 VIS 3/4V5KBQX2019-02-21T09:55:00Z28.5-95.7216.014.07018241.529.870079TRUETRUEBRIFRMETAR34.02019-02-21 10:02:40Pe)5    3KBIE 210955Z AUTO 09003KT 10SM CLR M14/M16 A3005 RMK AO2 T11431161KBIE2019-02-21T09:55:00Z40.28-96.75-14.3-16.190310.030.050198TRUETRUEVFRMETAR403.02019-02-21 10:02:40Jd)5    3KBBB 210955Z AUTO 30008KT 10SM OVC006 M14/M16 A2989 RMK AO2KBBB2019-02-21T09:55:00Z45.32-95.65-14.0-16.0300810.029.890747TRUETRUEIFRMETAR317.02019-02-21 10:02:40Hc)5     3KBBP 210955Z AUTO 00000KT 3/4SM BR OVC002 04/04 A3009 RMK AO2KBBP2019-02-21T09:55:00Z34.62-79.734.04.0000.7530.088583TRUETRUEBRLIFRMETAR45.02019-02-21 10:02:40 +T}Bj(}5    3KBVS 210955Z AUTO 02003KT 10SM CLR M00/M02 A3007 RMK A01KBVS2019-02-21T09:55:00Z48.47-122.420.0-2.020310.030.070866TRUETRUEVFRMETAR43.02019-02-21 10:02:40Qi)5    3KBTA 210955Z AUTO 24004KT 10SM CLR M12/M13 A3003 RMK AO2 T11161133KBTA2019-02-21T09:55:00Z41.42-96.12-11.6-13.3240410.030.029528TRUETRUEVFRMETAR396.02019-02-21 10:02:40Qh)5     3KBIJ 210955Z AUTO 00000KT 4SM BR OVC002 20/19 A3004 RMK AO2 LTG DSNT NWKBIJ2019-02-21T09:55:00Z31.4-84.920.019.0004.030.041338TRUETRUEBRLIFRMETAR65.02019-02-21 10:02:40Og)5    3KBKT 210955Z AUTO 23005KT 10SM OVC004 01/01 A2999 RMK AO1 T00130013KBKT2019-02-21T09:55:00Z37.07-77.951.31.3230510.029.991142TRUETRUELIFRMETAR134.02019-02-21 10:02:40 ,WLn)5     3KCIR 210955Z AUTO 00000KT 4SM BR CLR 00/00 A3013 RMK AO2 T00000000KCIR2019-02-21T09:55:00Z37.07-89.220.00.0004.030.129921TRUETRUEBRMVFRMETAR98.02019-02-21 10:02:40Om)5    3KC29 210955Z AUTO 24006KT 10SM CLR M06/M09 A2994 RMK AO1 T10601095KC292019-02-21T09:55:00Z43.12-89.53-6.0-9.5240610.029.940945TRUETRUEVFRMETAR283.02019-02-21 10:02:40Ol)5    3KC65 210955Z AUTO 26009KT 10SM BKN026 BKN031 M01/M01 A3001 RMK A01KC652019-02-21T09:55:00Z41.37-86.3-1.0-1.0260910.030.008858TRUETRUEMVFRMETAR244.02019-02-21 10:02:40Nk)5    3KBVN 210955Z AUTO 00000KT 10SM CLR M19/M20 A2998 RMK AO2 T11861202KBVN2019-02-21T09:55:00Z41.73-98.05-18.6-20.20010.029.97933TRUETRUEVFRMETAR551.02019-02-21 10:02:40 9mHr)5     3KLKR 210955Z AUTO 00000KT 1/2SM FG OVC002 03/03 A3008 RMK AO2KLKR2019-02-21T09:55:00Z34.72-80.853.03.0000.530.079725TRUETRUEFGLIFRSPECI149.02019-02-21 10:02:40Qq)5    3KMCX 210955Z AUTO 27006KT 10SM SCT024 00/M03 A3005 RMK AO2 T10011027KMCX2019-02-21T09:55:00Z40.72-86.77-0.1-2.7270610.030.050198TRUETRUEVFRSPECI206.02019-02-21 10:02:40Fp)5    3KCEY 210955Z AUTO 33005KT 1/4SM OVC001 02/02 A3011 RMK AO1KCEY2019-02-21T09:55:00Z36.67-88.372.02.033050.2530.109253TRUETRUELIFRMETAR176.02019-02-21 10:02:40Ao(5    3KCIC 210955Z AUTO 00000KT 10SM BKN090 02/00 A2974 RMK AO1KCIC2019-02-21T09:55:00Z39.78-121.832.00.00010.029.740158TRUETRUEVFRMETAR73.02019-02-21 10:02:40 3`Fv)5    3KCCA 210955Z AUTO 00000KT 10SM OVC002 M02/M02 A3011 RMK AO2KCCA2019-02-21T09:55:00Z35.6-92.45-2.0-2.00010.030.109253TRUETRUELIFRSPECI157.02019-02-21 10:02:40Eu)5     3KDYB 210955Z AUTO 00000KT 1SM BR OVC002 08/08 A3010 RMK AO1KDYB2019-02-21T09:55:00Z33.07-80.288.08.0001.030.100393TRUETRUEBRLIFRSPECI18.02019-02-21 10:02:40Mt)5    3KJSO 210955Z AUTO 08004KT 10SM BKN080 06/04 A3001 RMK AO2 T00650043KJSO2019-02-21T09:55:00Z31.87-95.226.54.380410.030.008858TRUETRUEVFRSPECI206.02019-02-21 10:02:40Gs)5     3KLBO 210955Z AUTO 00000KT 5SM BR CLR M01/M02 A3009 RMK AO2KLBO2019-02-21T09:55:00Z37.65-92.65-1.0-2.0005.030.088583TRUETRUEBRMVFRSPECI403.02019-02-21 10:02:40 6YuPz)5    3KAFK 210955Z AUTO 19006KT 10SM CLR M12/M15 A3007 RMK AO2 T11161152KAFK2019-02-21T09:55:00Z40.6-95.85-11.6-15.2190610.030.070866TRUETRUEVFRMETAR354.02019-02-21 10:02:40^y)#5    3KAIG 210955Z AUTO 26013G17KT 7SM -SN OVC016 M06/M09 A2976 RMK AO2 T10651086KAIG2019-02-21T09:55:00Z45.15-89.12-6.5-8.626013177.029.760826TRUETRUE-SNMVFRMETAR464.02019-02-21 10:02:40Wx)%5    3KAJG 210955Z AUTO 00000KT 10SM CLR 00/M01 A3012 RMK AO2 LTG DSNT S T10011008KAJG2019-02-21T09:55:00Z38.62-87.73-0.1-0.80010.030.121063TRUETRUEVFRMETAR131.02019-02-21 10:02:40Dw({5    3K96D 210955Z AUTO 32011KT 5SM -SN M11/M11 A2992 RMK AO2K96D2019-02-21T09:55:00Z48.93-97.9-11.0-11.0320115.029.920275TRUETRUE-SNSPECI290.02019-02-21 10:02:40 Two~)Q5     3K5R8 210955Z AUTO 01003KT 10SM VCTS BKN037 OVC043 10/08 A2996 RMK AO2 LTG DSNT W THRU NE T00950075K5R82019-02-21T09:55:00Z30.43-93.479.57.510310.029.958662TRUETRUEVCTSVFRMETAR24.02019-02-21 10:02:40W})'5    3K6A2 210955Z AUTO 00000KT 1/4SM OVC001 07/06 A3006 RMK AO2 LTG DSNT W THRU NEK6A22019-02-21T09:55:00Z33.23-84.277.06.0000.2530.059055TRUETRUELIFRMETAR292.02019-02-21 10:02:40B|(5    3KAAS 210955Z AUTO 00000KT 10SM BKN027 03/03 A3014 RMK AO1KAAS2019-02-21T09:55:00Z37.35-85.323.03.00010.030.138779TRUETRUEMVFRMETAR281.02019-02-21 10:02:40^{)5    3KAAT 210955Z AUTO 17003KT 10SM CLR M08/M09 A2966 RMK AO2 SLP067 T10781094KAAT2019-02-21T09:55:00Z41.48-120.57-7.8-9.4170310.029.6604331006.7TRUETRUEVFRMETAR1331.02019-02-21 10:02:40 (PjN)5    3K3LF 210955Z AUTO 28006KT 10SM CLR 00/M02 A3011 RMK AO2 T10021017K3LF2019-02-21T09:55:00Z39.17-89.67-0.2-1.7280610.030.109253TRUETRUEVFRMETAR210.02019-02-21 10:02:40`)95    3K3R7 210955Z AUTO 03009KT 10SM OVC013 11/10 A2996 RMK AO2 LTG DSNT W THRU NE T01080096K3R72019-02-21T09:55:00Z30.25-92.6710.89.630910.029.958662TRUETRUEMVFRMETAR7.02019-02-21 10:02:40R)5    3K4R5 210955Z AUTO 26004KT 10SM OVC007 M04/M06 A2977 RMK AO2 T10451057K4R52019-02-21T09:55:00Z46.78-90.77-4.5-5.7260410.029.769686TRUETRUEIFRMETAR198.02019-02-21 10:02:40R)5    3K4V0 210955Z AUTO 09006KT 10SM OVC110 M07/M10 A2965 RMK AO2 T10681096K4V02019-02-21T09:55:00Z40.1-108.77-6.8-9.690610.029.648623TRUETRUEVFRMETAR1608.02019-02-21 10:02:40 "ad)=5     3K18A 210955Z AUTO 00000KT 3SM -RA BKN003 OVC009 05/05 A3006 RMK AO2 LTG DSNT E T00500050K18A2019-02-21T09:55:00Z34.35-83.135.05.0003.030.059055TRUETRUE-RALIFRMETAR271.02019-02-21 10:02:40U)5     3K1A9 210955Z AUTO 00000KT 1 1/2SM BR OVC003 17/17 A3001 RMK AO2 T01700170K1A92019-02-21T09:55:00Z32.43-86.5217.017.0001.530.008858TRUETRUEBRLIFRMETAR69.02019-02-21 10:02:40;(5     3K28J 210955Z AUTO 15003KT 8SM BKN070 OVC075 A3009 RMK AO2K28J2019-02-21T09:55:00Z29.65-81.5815038.030.088583TRUETRUEVFRMETAR15.02019-02-21 10:02:40X)5   3K2P2 210955Z AUTO 23014G19KT 10SM OVC043 M02/M04 A2977 RMK AO2 T10201041K2P22019-02-21T09:55:00Z45.38-86.92-2.0-4.1230141910.029.769686TRUETRUEVFRMETAR199.02019-02-21 10:02:40 :eB ({5    3KI67 210955Z AUTO 24003KT 10SM CLR 02/M01 A3010 RMK AO1KI672019-02-21T09:55:00Z39.25-84.782.0-1.0240310.030.100393TRUETRUEVFRMETAR178.02019-02-21 10:02:40J ) 5   3KI75 210955Z AUTO 21007KT 10SM M11/M12 A3006 RMK AO2 T11101125KI752019-02-21T09:55:00Z41.05-93.68-11.0-12.5210710.030.059055TRUETRUEMETAR339.02019-02-21 10:02:40O)5    3KIGQ 210955Z AUTO 25008KT 10SM CLR M02/M05 A3004 RMK AO2 T10161053KIGQ2019-02-21T09:55:00Z41.53-87.53-1.6-5.3250810.030.041338TRUETRUEVFRMETAR188.02019-02-21 10:02:40@)5    3K0V4 210955Z AUTO 4SM BKN004 01/01 A3002 RMK AO1 T00130012K0V42019-02-21T09:55:00Z37.15-79.021.31.24.030.02067TRUETRUELIFRMETAR182.02019-02-21 10:02:40 'Zc);5     3KHUM 210955Z AUTO 04004KT 1SM BR OVC001 18/17 A2995 RMK AO2 LTG DSNT N AND NW T01750174KHUM2019-02-21T09:55:00Z29.57-90.6717.517.44041.029.949802TRUETRUEBRLIFRMETAR3.02019-02-21 10:02:40H )5    3KHVE 210955Z AUTO 01004KT 10SM OVC018 M03/M05 A2967 RMK AO2KHVE2019-02-21T09:55:00Z38.42-110.7-3.0-5.010410.029.66929TRUETRUEMVFRMETAR1350.02019-02-21 10:02:40G )5     3KHVS 210955Z AUTO 00000KT 1/2SM FG OVC002 04/04 A3009 RMK AO2KHVS2019-02-21T09:55:00Z34.4-80.124.04.0000.530.088583TRUETRUEFGLIFRMETAR111.02019-02-21 10:02:40S )5   3KHYX 210955Z AUTO 24013G18KT 10SM SCT028 OVC037 02/M02 A2986 RMK AO2KHYX2019-02-21T09:55:00Z43.43-83.872.0-2.0240131810.029.861221TRUETRUEVFRMETAR183.02019-02-21 10:02:40 DpN)5    3KHQG 210955Z AUTO 15009KT 7SM CLR M06/M07 A2982 RMK AO2 T10601070KHQG2019-02-21T09:55:00Z37.17-101.37-6.0-7.015097.029.819881TRUETRUEVFRMETAR956.02019-02-21 10:02:40N) 5    3KHRX 210955Z AUTO 20010KT 7SM CLR 02/M09 A2980 RMK AO2 T00201090KHRX2019-02-21T09:55:00Z34.87-102.332.0-9.0200107.029.799213TRUETRUEVFRMETAR1154.02019-02-21 10:02:40Q)5     3KHSB 210955Z AUTO 00000KT 5SM BR CLR M01/M01 A3014 RMK AO2 T10121012KHSB2019-02-21T09:55:00Z37.82-88.55-1.2-1.2005.030.138779TRUETRUEBRMVFRMETAR121.02019-02-21 10:02:40_)%5    3KHSP 210955Z AUTO 27014G20KT M1/4SM +SN OVC001 08/08 A2996 RMK AO2 T00830083KHSP2019-02-21T09:55:00Z37.95-79.828.38.327014200.2529.958662TRUETRUE+SNLIFRMETAR1156.02019-02-21 10:02:40 3Pnh)C5     3KHMP 210955Z AUTO 12005KT 1/2SM FG OVC002 05/04 A3006 RMK AO2 LTG DSNT NW THRU NE T00450040KHMP2019-02-21T09:55:00Z33.38-84.334.54.012050.530.059055TRUETRUEFGLIFRMETAR269.02019-02-21 10:02:40\)/5    3KHMZ 210955Z AUTO 00000KT 10SM BKN005 BKN022 OVC029 00/00 A2994 RMK AO2 T10011005KHMZ2019-02-21T09:55:00Z40.08-78.52-0.1-0.50010.029.940945TRUETRUEIFRMETAR354.02019-02-21 10:02:40])5    3KHON 210955Z AUTO 27009KT 10SM CLR M19/M22 A2998 RMK AO2 SLP181 T11941217KHON2019-02-21T09:55:00Z44.38-98.23-19.4-21.7270910.029.979331018.1TRUETRUEVFRMETAR390.02019-02-21 10:02:40G(}5    3KHPT 210955Z AUTO 24012KT 10SM CLR M13/M17 A2999 RMK AO2KHPT2019-02-21T09:55:00Z42.58-93.23-13.0-17.02401210.029.991142TRUETRUEVFRMETAR358.02019-02-21 10:02:40 .YW)5    3KHCR 210955Z AUTO 00000KT 10SM SCT033 BKN041 OVC050 M08/M12 A2961 RMK AO2KHCR2019-02-21T09:55:00Z40.48-111.43-8.0-12.00010.029.610237TRUETRUEVFRMETAR1706.02019-02-21 10:02:40<(w5    3KHFJ 210955Z AUTO 09005KT 7SM CLR 00/00 A3005 RMK AO2KHFJ2019-02-21T09:55:00Z36.9-94.020.00.09057.030.050198TRUETRUEVFRMETAR401.02019-02-21 10:02:40O)5    3KHFY 210955Z AUTO 27004KT 10SM CLR M01/M01 A3008 RMK AO2 T10081013KHFY2019-02-21T09:55:00Z39.63-86.08-0.8-1.3270410.030.079725TRUETRUEVFRMETAR251.02019-02-21 10:02:40L)5    3KHHF 210955Z AUTO 13004KT 7SM CLR M01/M03 A2987 RMK AO2 T10101026KHHF2019-02-21T09:55:00Z35.9-100.4-1.0-2.613047.029.870079TRUETRUEVFRMETAR712.02019-02-21 10:02:40 ,SyL)5   3KGWB 210955Z AUTO 25013G19KT 10SM OVC029 01/M02 A3001 RMK AO2KGWB2019-02-21T09:55:00Z41.3-85.071.0-2.0250131910.030.008858TRUETRUEMVFRMETAR269.02019-02-21 10:02:40T)!5    3KGYB 210955Z AUTO 00000KT 10SM SCT060 BKN110 12/07 A2996 RMK AO2 T01150067KGYB2019-02-21T09:55:00Z30.17-96.9811.56.70010.029.958662TRUETRUEVFRMETAR148.02019-02-21 10:02:40S)5     3KGYI 210955Z AUTO 12008KT 10SM CLR 06/01 A3002 RMK AO2 T00600010 TSNOKGYI2019-02-21T09:55:00Z33.72-96.676.01.0120810.030.02067TRUETRUETRUEVFRMETAR228.02019-02-21 10:02:40N)5    3KGYY 210955Z AUTO 24007KT 10SM CLR 00/M06 A3004 RMK AO2 T10011058KGYY2019-02-21T09:55:00Z41.62-87.42-0.1-5.8240710.030.041338TRUETRUEVFRMETAR180.02019-02-21 10:02:40 t1KtQ")5    3KLHM 210955Z AUTO 10004KT 10SM SCT038 BKN044 OVC050 04/03 A2971 RMK AO1KLHM2019-02-21T09:55:00Z38.92-121.354.03.0100410.029.71063TRUETRUEVFRMETAR37.02019-02-21 10:02:40`!)5    3KLIC 210955Z AUTO 13003KT 10SM CLR M12/M14 A2972 RMK AO2 SLP102 T11171144KLIC2019-02-21T09:55:00Z39.27-103.67-11.7-14.4130310.029.7194881010.2TRUETRUEVFRMETAR1630.02019-02-21 10:02:40h )35    3KLLJ 210955Z AUTO 00000KT 10SM SCT042 OVC080 M12/M16 A2970 RMK AO2 SLP103 T11221156KLLJ2019-02-21T09:55:00Z44.52-114.22-12.2-15.60010.029.6988181010.3TRUETRUEVFRMETAR1536.02019-02-21 10:02:40[)15    3KLNA 210955Z AUTO 13013KT SCT020 SCT026 BKN033 24/21 A3009 RMK AO2 T02430205 PWINOKLNA2019-02-21T09:55:00Z26.6-80.0224.320.51301330.088583TRUETRUETRUEMETAR11.02019-02-21 10:02:40 @|H&)5    3KIKT 210955Z AUTO VRB06G12KT 2SM BR CLR 23/23 A2997 RMK A01KIKT2019-02-21T09:55:00Z28.52-88.2823.023.006122.029.970472TRUETRUEBRIFRMETAR25.02019-02-21 10:02:40>%(y5    3KIMS 210955Z AUTO 00000KT 10SM CLR 00/00 A3012 RMK AO1KIMS2019-02-21T09:55:00Z38.75-85.470.00.00010.030.121063TRUETRUEVFRMETAR250.02019-02-21 10:02:40Y$)15    3KIER 210955Z AUTO 00000KT 10SM CLR 06/06 A3003 RMK AO2 LTG DSNT SE AND S T00610056KIER2019-02-21T09:55:00Z31.73-93.16.15.60010.030.029528TRUETRUEVFRMETAR37.02019-02-21 10:02:40[#)%5     3KTVY 210955Z AUTO 00000KT 7SM -SN SCT029 SCT035 OVC085 M04/M07 A2965 RMK AO2KTVY2019-02-21T09:55:00Z40.62-112.35-4.0-7.0007.029.648623TRUETRUE-SNVFRMETAR1317.02019-02-21 10:02:40 uA;u@*(5    3KIZA 210955Z AUTO 00000KT 10SM SCT095 03/01 A2969 RMK AO2KIZA2019-02-21T09:55:00Z34.6-120.073.01.00010.029.68996TRUETRUEVFRMETAR205.02019-02-21 10:02:40))]5     3KNKX 210955Z 25010KT 10SM BKN028 BKN041 OVC090 10/05 A2971 RMK AO2 RAE02B37E51 SLP056 P0002 T01000050 $ KNKX2019-02-21T09:55:00Z32.87-117.1310.05.02501010.029.710631005.6TRUETRUEMVFR0.02METAR146.02019-02-21 10:02:40V()5    3KLUV 210955Z AUTO 19014KT 10SM SCT080 BKN095 OVC120 06/M05 A2984 RMK AO2KLUV2019-02-21T09:55:00Z32.75-101.926.0-5.01901410.029.840551TRUETRUEVFRSPECI912.02019-02-21 10:02:40]')/5    3KJAQ 210955Z AUTO 35007KT 10SM SCT007 BKN010 OVC039 02/02 A2966 RMK AO1 T00150015KJAQ2019-02-21T09:55:00Z38.37-120.81.51.5350710.029.660433TRUETRUEMVFRMETAR512.02019-02-21 10:02:40 m+BmO.)5    3KIKG 210955Z AUTO 35004KT 10SM OVC031 14/10 A2991 RMK AO2 T01410103KIKG2019-02-21T09:55:00Z27.55-98.0314.110.3350410.029.911417TRUETRUEVFRMETAR40.02019-02-21 10:02:40c-)75   3KIKW 210955Z AUTO 26008G19KT 10SM SCT025 SCT030 OVC039 02/M03 A2984 RMK AO2 T00171030KIKW2019-02-21T09:55:00Z43.67-84.271.7-3.026081910.029.840551TRUETRUEVFRMETAR194.02019-02-21 10:02:40n,)A5    3KINL 210955Z AUTO 31003KT 10SM FEW006 SCT032 OVC100 M11/M12 A2980 RMK AO2 SLP116 T11111117KINL2019-02-21T09:55:00Z48.57-93.4-11.1-11.7310310.029.7992131011.6TRUETRUEVFRMETAR360.02019-02-21 10:02:40[+)5    3KIRK 210955Z AUTO 27005KT 10SM CLR M04/M08 A3009 RMK AO2 SLP203 T10391078KIRK2019-02-21T09:55:00Z40.1-92.55-3.9-7.8270510.030.0885831020.3TRUETRUEVFRSPECI293.02019-02-21 10:02:40 +6fN2)5    3KBPG 210955Z AUTO 15012KT 10SM CLR 08/M03 A2985 RMK AO2 T00781035KBPG2019-02-21T09:55:00Z32.22-101.527.8-3.51501210.029.84941TRUETRUEVFRMETAR784.02019-02-21 10:02:40J1)5     3KBQK 210955Z AUTO 20004KT 1/2SM FG OVC003 19/18 A3008 RMK AO2KBQK2019-02-21T09:55:00Z31.25-81.4719.018.020040.530.079725TRUETRUEFGLIFRMETAR8.02019-02-21 10:02:40o0)K5      3KBXA 210955Z AUTO 02004KT 5SM BR OVC005 15/13 A2999 RMK AO2 LTG DSNT NW THRU NE P0001 T01470131KBXA2019-02-21T09:55:00Z30.82-89.8714.713.12045.029.991142TRUETRUEBRIFR0.01METAR36.02019-02-21 10:02:40O/)5    3KBYY 210955Z AUTO 04007KT 10SM OVC022 13/10 A2990 RMK AO2 T01400100KBYY2019-02-21T09:55:00Z28.97-95.8714.010.040710.029.899607TRUETRUEMVFRMETAR14.02019-02-21 10:02:40 7dM6)5    3KBEA 210955Z AUTO 05005KT 10SM OVC046 15/05 A2992 RMK AO2 T01450051KBEA2019-02-21T09:55:00Z28.37-97.7814.55.150510.029.920275TRUETRUEVFRMETAR82.02019-02-21 10:02:40N5)5    3KBEC 210955Z AUTO 10007KT 10SM CLR M03/M07 A3001 RMK AO2 T10281075KBEC2019-02-21T09:55:00Z37.7-97.22-2.8-7.5100710.030.008858TRUETRUEVFRMETAR429.02019-02-21 10:02:40M4)5    3KBKS 210955Z AUTO 02005KT 10SM OVC028 15/09 A2989 RMK AO1 T01450086KBKS2019-02-21T09:55:00Z27.2-98.1214.58.620510.029.890747TRUETRUEMVFRMETAR34.02019-02-21 10:02:40C3(}5    3KBPC 210955Z AUTO 06005KT 10SM CLR M03/M06 A2985 RMK AO2KBPC2019-02-21T09:55:00Z35.88-101.03-3.0-6.060510.029.84941TRUETRUEVFRMETAR845.02019-02-21 10:02:40 *QL:)5    3KAXS 210955Z AUTO 11006KT 10SM CLR 04/M01 A2994 RMK AO2 T00401006KAXS2019-02-21T09:55:00Z34.7-99.334.0-0.6110610.029.940945TRUETRUEVFRMETAR437.02019-02-21 10:02:40J9) 5   3KAXX 210955Z AUTO 00000KT 10SM M18/M20 A2968 RMK AO2 T11821200KAXX2019-02-21T09:55:00Z36.42-105.28-18.2-20.00010.029.681103TRUETRUEMETAR2548.02019-02-21 10:02:40S8)5     3KAZC 210955Z AUTO 11006KT 1 1/4SM -SN OVC012 M02/M02 A2958 RMK AO2KAZC2019-02-21T09:55:00Z36.97-113.02-2.0-2.011061.2529.58071TRUETRUE-SNIFRMETAR1486.02019-02-21 10:02:40P7)5    3KBCK 210955Z AUTO 22005KT 10SM CLR M10/M13 A2990 RMK AO2 T10981128KBCK2019-02-21T09:55:00Z44.25-90.85-9.8-12.8220510.029.899607TRUETRUEVFRMETAR255.02019-02-21 10:02:40 -@wZ>)5    3KAST 210955Z AUTO 13003KT 10SM CLR M01/M01 A3002 RMK AO2 SLP166 T10061011KAST2019-02-21T09:55:00Z46.15-123.88-0.6-1.1130310.030.020671016.6TRUETRUEVFRMETAR3.02019-02-21 10:02:40C=({5    3KASW 210955Z AUTO 26010KT 10SM CLR 00/M04 A3001 RMK AO2KASW2019-02-21T09:55:00Z41.27-85.830.0-4.02601010.030.008858TRUETRUEVFRMETAR259.02019-02-21 10:02:40g<);5     3KAVC 210955Z AUTO 20005KT 10SM BKN010 BKN028 OVC060 03/03 A3007 RMK AO2 P0004 T00270027KAVC2019-02-21T09:55:00Z36.68-78.032.72.7200510.030.070866TRUETRUEMVFR0.04METAR135.02019-02-21 10:02:40M;)5    3KAXH 210955Z AUTO 05007KT 10SM OVC034 13/09 A2993 RMK AO2 T01250091KAXH2019-02-21T09:55:00Z29.52-95.4812.59.150710.029.929134TRUETRUEVFRMETAR21.02019-02-21 10:02:40 FxTB)5   3K57C 210955Z AUTO 26012G17KT 10SM CLR M05/M10 A2995 RMK AO2 T10551097K57C2019-02-21T09:55:00Z42.8-88.37-5.5-9.7260121710.029.949802TRUETRUEVFRMETAR262.02019-02-21 10:02:40QA) 5     3K5H4 210955Z AUTO 31012KT 3SM -SN OVC032 M13/M14 A2992 RMK AO2K5H42019-02-21T09:55:00Z47.78-99.93-13.0-14.0310123.029.920275TRUETRUE-SNMVFRMETAR490.02019-02-21 10:02:40H@)5      3KCNI 210955Z AUTO 00000KT 1 1/4SM -RA BKN003 OVC007 A3008 RMK AO2KCNI2019-02-21T09:55:00Z34.32-84.42001.2530.079725TRUETRUE-RALIFRMETAR372.02019-02-21 10:02:404?(u5    3KASN 210955Z AUTO 12/12 RMK AO2 T01180118 PWINO TSNOKASN2019-02-21T09:55:00Z33.57-86.0511.811.8TRUETRUETRUETRUEMETAR162.02019-02-21 10:02:40 3KfWF)5      3K42J 210955Z AUTO 10003KT 1 1/4SM BR OVC002 18/18 A3008 RMK A01 TSNOK42J2019-02-21T09:55:00Z29.85-82.0518.018.010031.2530.079725TRUETRUETRUEBRLIFRMETAR60.02019-02-21 10:02:40_E)%5     3K46D 210955Z AUTO 30010KT 5SM -SN BKN017 BKN024 OVC031 M12/M14 A2992 RMK AO2K46D2019-02-21T09:55:00Z47.45-99.15-12.0-14.0300105.029.920275TRUETRUE-SNMVFRMETAR490.02019-02-21 10:02:40bD)55     3K4A6 210955Z AUTO 00000KT 3/4SM -DZ BKN003 OVC013 11/11 A3005 RMK AO2 LTG DSNT SE-SWK4A62019-02-21T09:55:00Z34.68-86.011.011.0000.7530.050198TRUETRUE-DZLIFRMETAR198.02019-02-21 10:02:40GC)5     3K4M9 210955Z AUTO 00000KT 10SM CLR 02/02 A3013 RMK AO2 PWINOK4M92019-02-21T09:55:00Z36.4-90.652.02.00010.030.129921TRUETRUETRUEVFRMETAR90.02019-02-21 10:02:40 "AgIJ) 5     3K22N 210955Z AUTO 00000KT 2 1/2SM BR OVC004 00/00 A2993 RMK AO2K22N2019-02-21T09:55:00Z40.8-75.770.00.0002.529.929134TRUETRUEBRLIFRMETAR163.02019-02-21 10:02:40TI)5     3K24J 210955Z AUTO 00000KT 5SM BR SCT004 SCT008 SCT024 19/19 A3007 RMK A01K24J2019-02-21T09:55:00Z30.3-83.0319.019.0005.030.070866TRUETRUEBRMVFRMETAR32.02019-02-21 10:02:40[H)5     3K2D5 210955Z AUTO 28009KT 10SM BKN006 OVC013 M16/M18 A2990 RMK AO2 PWINOK2D52019-02-21T09:55:00Z46.17-98.08-16.0-18.0280910.029.899607TRUETRUETRUEIFRMETAR407.02019-02-21 10:02:40XG)5    3K33V 210955Z AUTO 00000KT 10SM SCT060 SCT070 OVC110 M17/M21 A2962 RMK AO1K33V2019-02-21T09:55:00Z40.75-106.28-17.0-21.00010.029.619095TRUETRUEVFRMETAR2484.02019-02-21 10:02:40 (W_N)'5     3K06D 210955Z AUTO 34009KT 10SM -SN FEW003 SCT049 BKN075 M13/M14 A2988 RMK AO2K06D2019-02-21T09:55:00Z48.88-99.62-13.0-14.0340910.029.878937TRUETRUE-SNVFRMETAR556.02019-02-21 10:02:40PM) 5     3K08D 210955Z AUTO 29008KT 10SM -SN OVC037 M17/M19 A2990 RMK AO2K08D2019-02-21T09:55:00Z48.3-102.4-17.0-19.0290810.029.899607TRUETRUE-SNVFRMETAR684.02019-02-21 10:02:40KL) 5    3K0S9 210955Z AUTO 29005KT 10SM FEW024 BKN036 04/01 A3007 RMK AO2K0S92019-02-21T09:55:00Z48.05-122.824.01.0290510.030.070866TRUETRUEVFRMETAR33.02019-02-21 10:02:40RK)5    3K20U 210955Z AUTO 26006KT 10SM BKN060 OVC075 M18/M20 A2989 RMK AO2K20U2019-02-21T09:55:00Z46.93-103.98-18.0-20.0260610.029.890747TRUETRUEVFRMETAR840.02019-02-21 10:02:40 0[QR)5     3EHBK 210955Z AUTO 27007KT 220V310 9999 SCT022 OVC026 10/07 Q1027 NOSIGEHBK2019-02-21T09:55:00Z50.925.7710.07.027076.2130.324802TRUETRUEMVFRMETAR116.02019-02-21 10:02:40RQ)5     3KZPH 210955Z AUTO 00000KT 2SM CLR 18/18 A3010 RMK AO2 T01840181 PWINOKZPH2019-02-21T09:55:00Z28.23-82.1518.418.1002.030.100393TRUETRUETRUEIFRSPECI26.02019-02-21 10:02:40OP)5    3KJKJ 210955Z AUTO 31006KT 7SM BKN047 OVC050 M10/M12 A2988 RMK AO2KJKJ2019-02-21T09:55:00Z46.83-96.67-10.0-12.031067.029.878937TRUETRUEVFRMETAR280.02019-02-21 10:02:40JO) 5     3KJGG 210955Z AUTO 00000KT 10SM OVC005 03/03 A3002 RMK AO1 P0002KJGG2019-02-21T09:55:00Z37.23-76.723.03.00010.030.02067TRUETRUEIFR0.02METAR15.02019-02-21 10:02:40 ~&\~XV)+5   3RJOI 210955Z 09011KT 9999 FEW020 BKN030 BKN045 10/02 A3021 RMK SLP230 T01000017RJOI2019-02-21T09:55:00Z34.13132.2210.01.790116.2130.2096461023.0MVFRMETAR2.02019-02-21 10:02:40DU(}5    3KJYR 210955Z AUTO 21009KT 10SM CLR M17/M18 A3002 RMK AO2KJYR2019-02-21T09:55:00Z40.9-97.62-17.0-18.0210910.030.02067TRUETRUEVFRMETAR509.02019-02-21 10:02:40gT)+5     3KNBG 210955Z AUTO 00000KT 1/2SM FG VV006 18/18 A2995 RMK AO2 SLP142 T01780178 $KNBG2019-02-21T09:55:00Z29.82-90.0217.817.8000.529.9498021014.2TRUETRUETRUEFGLIFR600METAR1.02019-02-21 10:02:40gS)+5   3KNFG 210955Z AUTO 25008G16KT 10SM FEW035 10/04 A2968 RMK AO2 SLP050 T01000044 $KNFG2019-02-21T09:55:00Z33.28-117.3310.04.425081610.029.6811031005.0TRUETRUETRUEVFRMETAR24.02019-02-21 10:02:40 \ 5\SZ)5   3KCIN 210955Z AUTO 28006G11KT 8SM FEW021 OVC045 M12/M13 A3002 RMK AO2KCIN2019-02-21T09:55:00Z42.03-94.77-12.0-13.02806118.030.02067TRUETRUEVFRMETAR375.02019-02-21 10:02:40OY)5    3KCFJ 210955Z AUTO 25004KT 10SM CLR M01/M02 A3006 RMK AO2 T10061020KCFJ2019-02-21T09:55:00Z39.98-86.92-0.6-2.0250410.030.059055TRUETRUEVFRMETAR244.02019-02-21 10:02:40TX)5     3CYQV 210955Z AUTO 34005KT 7SM -SN OVC009 M19/M22 A2998 RMK SLP204CYQV2019-02-21T09:55:00Z51.27-102.47-19.0-22.034057.029.979331020.4TRUE-SNIFRSPECI498.02019-02-21 10:02:40W)k5      3PATC 210955Z AUTO 10017KT 10SM -FZRA OVC035 M04/M06 A2953 RMK AO2 SNB0934E0938 SLP005 P0000 T10451057 410421125PATC2019-02-21T09:55:00Z65.57-167.92-4.5-5.71001710.029.5305121000.5TRUETRUE-FZRAVFR-4.2-12.50.005METAR83.02019-02-21 10:02:40 <cO^)5    3KJOT 210955Z AUTO 23007KT 10SM CLR M01/M04 A3005 RMK AO2 T10081045KJOT2019-02-21T09:55:00Z41.52-88.18-0.8-4.5230710.030.050198TRUETRUEVFRMETAR177.02019-02-21 10:02:40F])5     3KJDD 210955Z AUTO 00000KT 10SM CLR 02/01 A3002 RMK AO2 TSNOKJDD2019-02-21T09:55:00Z32.75-95.52.01.00010.030.02067TRUETRUETRUEVFRMETAR132.02019-02-21 10:02:40S\)5     3KJFZ 210955Z AUTO 25009KT 4SM -DZ OVC003 10/10 A3003 RMK AO2 T00960095KJFZ2019-02-21T09:55:00Z37.07-81.89.69.525094.030.029528TRUETRUE-DZLIFRMETAR809.02019-02-21 10:02:40>[(y5    3KCGC 210955Z AUTO 00000KT 10SM CLR 17/17 A3008 RMK AO2KCGC2019-02-21T09:55:00Z28.87-82.5717.017.00010.030.079725TRUETRUEVFRMETAR3.02019-02-21 10:02:40 =m)c(e5   3MUHA 210955Z 06002KT 9000 FEW030 20/20 Q1016MUHA2019-02-21T09:55:00Z22.97-82.4220.020.06025.5930.0VFRMETAR64.02019-02-21 10:02:40Ab(y5    3KCLW 210955Z AUTO 13003KT 10SM CLR 21/19 A3007 RMK AO2KCLW2019-02-21T09:55:00Z27.98-82.7521.019.0130310.030.070866TRUETRUEVFRMETAR22.02019-02-21 10:02:40Va)5   3KLDM 210955Z AUTO 25014G18KT 10SM OVC030 00/M05 A2986 RMK AO2 T00001050KLDM2019-02-21T09:55:00Z43.97-86.40.0-5.0250141810.029.861221TRUETRUEMVFRMETAR197.02019-02-21 10:02:40J`)5    3KLHB 210955Z AUTO 00000KT 10SM OVC075 09/05 A2998 RMK AO2 T00860053KLHB2019-02-21T09:55:00Z30.87-96.628.65.30010.029.97933TRUETRUEVFRMETAR87.02019-02-21 10:02:40=_(y5    3KCKM 210955Z AUTO 35006KT 3/4SM BR 02/02 A3009 RMK A01KCKM2019-02-21T09:55:00Z34.3-90.522.02.035060.7530.088583TRUETRUEBRMETAR53.02019-02-21 10:02:40 ;tUg)5   3KFKS 210955Z AUTO 27012G20KT 10SM OVC043 00/M06 A2982 RMK AO2 T00001064KFKS2019-02-21T09:55:00Z44.63-86.20.0-6.4270122010.029.819881TRUETRUEVFRMETAR193.02019-02-21 10:02:40Qf)5    3KFLY 210955Z AUTO 00000KT 10SM CLR M11/M15 A2966 RMK AO2 T11081149KFLY2019-02-21T09:55:00Z38.95-104.57-10.8-14.90010.029.660433TRUETRUEVFRMETAR2096.02019-02-21 10:02:40Ae(}5    3KFRR 210955Z AUTO 08004KT 3SM SCT002 00/00 A2996 RMK AO1KFRR2019-02-21T09:55:00Z38.92-78.250.00.08043.029.958662TRUETRUEMVFRMETAR216.02019-02-21 10:02:40?d({5    3KFRH 210955Z AUTO 00000KT 10SM CLR 01/M03 A3011 RMK AO1KFRH2019-02-21T09:55:00Z38.5-86.631.0-3.00010.030.109253TRUETRUEVFRMETAR241.02019-02-21 10:02:40 #POk)5    3KOXD 210955Z AUTO 29005KT 10SM OVC024 02/00 A3008 RMK AO2 T00161005KOXD2019-02-21T09:55:00Z39.5-84.781.6-0.5290510.030.079725TRUETRUEMVFRMETAR317.02019-02-21 10:02:40Kj)5    3KVER 210955Z AUTO 00000KT 7SM CLR M01/M01 A3011 RMK AO2 T10071006KVER2019-02-21T09:55:00Z38.95-92.68-0.7-0.6007.030.109253TRUETRUEVFRMETAR218.02019-02-21 10:02:40Mi) 5     3KFGN 210955Z AUTO 33006KT 10SM UP OVC025 M08/M09 A2983 RMK AO2KFGN2019-02-21T09:55:00Z49.32-94.9-8.0-9.0330610.029.828741TRUETRUEUPMVFRMETAR328.02019-02-21 10:02:40Wh)5     3KFKR 210955Z AUTO 29010KT 10SM CLR 02/M01 A3007 RMK AO2 T00151015 TSNOKFKR2019-02-21T09:55:00Z40.27-86.571.5-1.52901010.030.070866TRUETRUETRUEVFRMETAR262.02019-02-21 10:02:40 :kDo) 5    3KJWY 210955Z AUTO 00000KT 10SM CLR 05/03 A3000 RMK AO2 T00510030KJWY2019-02-21T09:55:00Z32.45-96.925.13.00010.030.0TRUETRUEVFRSPECI217.02019-02-21 10:02:40an)35     3K54J 210955Z AUTO 20004KT 1/2SM FG OVC002 21/20 A3003 RMK AO2 LTG DSNT NW T02050203K54J2019-02-21T09:55:00Z30.73-86.1520.520.320040.530.029528TRUETRUEFGLIFRMETAR88.02019-02-21 10:02:40Im) 5     3KHYW 210955Z AUTO 00000KT 1 1/2SM BR OVC002 07/07 A3011 RMK AO2KHYW2019-02-21T09:55:00Z33.83-79.127.07.0001.530.109253TRUETRUEBRLIFRMETAR11.02019-02-21 10:02:40@l(y5    3KMER 210955Z AUTO 34004KT 10SM CLR 04/04 A2970 RMK AO1KMER2019-02-21T09:55:00Z37.38-120.574.04.0340410.029.698818TRUETRUEVFRMETAR57.02019-02-21 10:02:40 4ICs) 5    3KFWS 210955Z AUTO 00000KT 10SM CLR 04/01 A3000 RMK AO2 T00390014KFWS2019-02-21T09:55:00Z32.57-97.33.91.40010.030.0TRUETRUEVFRMETAR208.02019-02-21 10:02:408r(q5    3KFWZ 210955Z AUTO 01005KT 10SM CLR M15/M20 RMK AO2KFWZ2019-02-21T09:55:00Z42.52-108.78-15.0-20.010510.0TRUETRUEVFRMETAR2588.02019-02-21 10:02:40eq)?5     3KGAO 210955Z AUTO 00000KT 1/4SM FG OVC003 19/18 A2995 RMK AO2 LTG DSNT N AND NW T01920176KGAO2019-02-21T09:55:00Z29.45-90.2719.217.6000.2529.949802TRUETRUEFGLIFRMETAR1.02019-02-21 10:02:40Fp(}5    3KCNC 210955Z AUTO 26007KT 10SM CLR M10/M11 A3006 RMK AO2KCNC2019-02-21T09:55:00Z41.02-93.37-10.0-11.0260710.030.059055TRUETRUEVFRMETAR320.02019-02-21 10:02:40 (UIw)5    3KLJF 210955Z AUTO 23003KT 10SM SCT018 M16/M17 A2989 RMK AO2KLJF2019-02-21T09:55:00Z45.1-94.52-16.0-17.0230310.029.890747TRUETRUEVFRMETAR348.02019-02-21 10:02:40Nv)5     3KLCQ 210955Z AUTO 00000KT 4SM BR SCT019 OVC060 17/17 A3008 RMK AO2KLCQ2019-02-21T09:55:00Z30.18-82.5817.017.0004.030.079725TRUETRUEBRMVFRMETAR61.02019-02-21 10:02:40Mu)5     3KL35 210955Z AUTO 26003KT 1SM SN OVC012 M06/M07 A2948 RMK AO2KL352019-02-21T09:55:00Z34.27-116.85-6.0-7.026031.029.480314TRUETRUESNIFRMETAR2059.02019-02-21 10:02:40Rt)5    3KLAM 210955Z AUTO 16003KT 10SM CLR M06/M12 A2968 RMK AO2 T10591124KLAM2019-02-21T09:55:00Z35.87-106.27-5.9-12.4160310.029.681103TRUETRUEVFRMETAR2179.02019-02-21 10:02:40 +Ox>{(y5    3KCPT 210955Z AUTO 07007KT 10SM CLR 05/02 A2998 RMK AO2KCPT2019-02-21T09:55:00Z32.35-97.435.02.070710.029.97933TRUETRUEVFRMETAR260.02019-02-21 10:02:40Qz) 5     3KCMR 210955Z AUTO 17010KT 1/4SM -SN OVC003 M06/M08 A2954 RMK AO2KCMR2019-02-21T09:55:00Z35.3-112.2-6.0-8.0170100.2529.53937TRUETRUE-SNLIFRMETAR2036.02019-02-21 10:02:40Vy)5   3KLNN 210955Z AUTO 26014G25KT 10SM OVC023 02/M02 A2998 RMK AO1 T00201025KLNN2019-02-21T09:55:00Z41.67-81.372.0-2.5260142510.029.97933TRUETRUEMVFRMETAR191.02019-02-21 10:02:40Ox) 5     3KLNP 210955Z AUTO 26003KT 1 1/4SM BR OVC003 11/11 A3003 RMK AO2KLNP2019-02-21T09:55:00Z36.97-82.5211.011.026031.2530.029528TRUETRUEBRLIFRMETAR817.02019-02-21 10:02:40 1jH)5     3KLRO 210955Z AUTO 00000KT 1/4SM FG OVC001 11/11 A3010 RMK AO2KLRO2019-02-21T09:55:00Z32.9-79.7811.011.0000.2530.100393TRUETRUEFGLIFRMETAR4.02019-02-21 10:02:40R~)5    3KLRU 210955Z AUTO 23003KT 10SM CLR M01/M11 A2977 RMK AO2 T10081110KLRU2019-02-21T09:55:00Z32.27-106.92-0.8-11.0230310.029.769686TRUETRUEVFRMETAR1358.02019-02-21 10:02:40A}(}5     3KLUA 210955Z AUTO 00000KT 4SM BR CLR 01/01 A2995 RMK AO2KLUA2019-02-21T09:55:00Z38.67-78.51.01.0004.029.949802TRUETRUEBRMVFRMETAR275.02019-02-21 10:02:40I|) 5    3KLUD 210955Z AUTO 11006KT 7SM CLR 05/03 A2997 RMK AO2 T00520025KLUD2019-02-21T09:55:00Z33.25-97.585.22.511067.029.970472TRUETRUEVFRMETAR319.02019-02-21 10:02:40 4je)#5    3KGPI 210955Z AUTO 04015KT 10SM CLR M11/M13 A2997 RMK AO2 SLP192 T11061133 $KGPI2019-02-21T09:55:00Z48.32-114.25-10.6-13.3401510.029.9704721019.2TRUETRUETRUEVFRMETAR908.02019-02-21 10:02:40E(}5    3KCXP 210955Z AUTO 00000KT 10SM CLR M09/M10 A2960 RMK AO2KCXP2019-02-21T09:55:00Z39.18-119.73-9.0-10.00010.029.601377TRUETRUEVFRMETAR1435.02019-02-21 10:02:40D({5    3KD50 210955Z AUTO 27009KT 8SM CLR M21/M22 A2994 RMK AO2KD502019-02-21T09:55:00Z48.93-103.3-21.0-22.027098.029.940945TRUETRUEVFRMETAR595.02019-02-21 10:02:40F(}5    3KCSQ 210955Z AUTO 24006KT 10SM CLR M12/M13 A3007 RMK AO2KCSQ2019-02-21T09:55:00Z41.02-94.37-12.0-13.0240610.030.070866TRUETRUEVFRMETAR394.02019-02-21 10:02:40 ?i]))5   3KD95 210955Z AUTO 26011G21KT 10SM SCT029 OVC036 02/M04 A2987 RMK AO2 T00201036KD952019-02-21T09:55:00Z43.07-83.272.0-3.6260112110.029.870079TRUETRUEVFRMETAR255.02019-02-21 10:02:40S)5    3KGCD 210955Z AUTO 00000KT 10SM OVC027 M04/M07 A2979 RMK AO2 T10451072KGCD2019-02-21T09:55:00Z44.38-118.97-4.5-7.20010.029.790354TRUETRUEMVFRMETAR1127.02019-02-21 10:02:40P)5     3KGLW 210955Z AUTO 00000KT 3SM BR BKN012 02/02 A3011 RMK AO2 T00190019KGLW2019-02-21T09:55:00Z37.03-85.951.91.9003.030.109253TRUETRUEBRMVFRMETAR218.02019-02-21 10:02:40;(w5    3KGMJ 210955Z AUTO 00000KT 7SM CLR 01/00 A3007 RMK AO2KGMJ2019-02-21T09:55:00Z36.6-94.731.00.0007.030.070866TRUETRUEVFRMETAR254.02019-02-21 10:02:40 2UP ) 5     3KANE 210955Z AUTO 24010KT 7SM -SN OVC008 M10/M12 A2987 RMK AO2KANE2019-02-21T09:55:00Z45.15-93.22-10.0-12.0240107.029.870079TRUETRUE-SNIFRMETAR278.02019-02-21 10:02:40E ({5    3KALM 210955Z AUTO 17006KT 10SM CLR 01/M14 A2978 RMK AO2KALM2019-02-21T09:55:00Z32.82-105.971.0-14.0170610.029.778543TRUETRUEVFRMETAR1279.02019-02-21 10:02:40W )#5    3KIWA 210955Z AUTO 14006KT 10SM BKN075 OVC090 07/M01 A2975 RMK AO2 T00731012KIWA2019-02-21T09:55:00Z33.3-111.657.3-1.2140610.029.749016TRUETRUEVFRSPECI412.02019-02-21 10:02:40H)5     3KCQW 210955Z AUTO 00000KT 1/4SM FG OVC002 04/04 A3009 RMK AO2KCQW2019-02-21T09:55:00Z34.72-79.954.04.0000.2530.088583TRUETRUEFGLIFRMETAR73.02019-02-21 10:02:40 4ic)=5     3KAPS 210955Z AUTO 00000KT 2SM BR OVC003 16/15 A2997 RMK AO2 LTG DSNT NE AND NW T01550145KAPS2019-02-21T09:55:00Z30.08-90.5815.514.5002.029.970472TRUETRUEBRLIFRMETAR2.02019-02-21 10:02:40Q)5      3KAQX 210955Z AUTO 00000KT 1/4SM FG OVC002 09/09 A3008 RMK AO2 TSNOKAQX2019-02-21T09:55:00Z32.98-81.279.09.0000.2530.079725TRUETRUETRUEFGLIFRMETAR49.02019-02-21 10:02:40E ({5    3KATS 210955Z AUTO 15006KT 10SM CLR 04/M14 A2978 RMK AO2KATS2019-02-21T09:55:00Z32.85-104.474.0-14.0150610.029.778543TRUETRUEVFRMETAR1081.02019-02-21 10:02:40F (}5    3KAUM 210955Z AUTO 23006KT 10SM CLR M13/M17 A2993 RMK AO2KAUM2019-02-21T09:55:00Z43.67-92.92-13.0-17.0230610.029.929134TRUETRUEVFRMETAR375.02019-02-21 10:02:40 BgJ) 5    3KGPM 210955Z AUTO 10005KT 10SM CLR 07/01 A3001 RMK AO2 T00720013KGPM2019-02-21T09:55:00Z32.7-97.057.21.3100510.030.008858TRUETRUEVFRMETAR180.02019-02-21 10:02:40U)-5    3EHGG 210955Z AUTO 24013KT 9999 OVC010 09/06 Q1023 BECMG 5000 -RADZ SCT004 BKN006EHGG2019-02-21T09:55:00Z53.126.579.06.0240136.2130.206694TRUEMVFRMETAR4.02019-02-21 10:02:40I)5    3EHRD 210955Z AUTO 23006KT 200V270 9999 FEW041 10/07 Q1026 TEMPO 5000EHRD2019-02-21T09:55:00Z51.954.4510.07.023066.2130.295275TRUEVFRMETAR-5.02019-02-21 10:02:40i)M5    3EHAM 210955Z 24010KT 200V280 6000 -RADZ FEW017 SCT022 BKN038 10/08 Q1025 BECMG BKN015 TEMPO 4000EHAM2019-02-21T09:55:00Z52.324.7810.08.0240103.7330.265747-RA -DZMVFRMETAR9.02019-02-21 10:02:40 3ZE)5    3KAXV 210955Z AUTO 25009KT 10SM OVC027 02/M01 A3003 RMK AO2KAXV2019-02-21T09:55:00Z40.5-84.32.0-1.0250910.030.029528TRUETRUEMVFRMETAR279.02019-02-21 10:02:40O)5    3KBDN 210955Z AUTO 34009KT 10SM FEW007 BKN013 M05/M06 A2985 RMK AO2KBDN2019-02-21T09:55:00Z44.1-121.2-5.0-6.0340910.029.84941TRUETRUEMVFRMETAR1055.02019-02-21 10:02:40S)5     3KBNW 210955Z AUTO 25008KT 6SM BR FEW042 FEW070 M12/M12 A3002 RMK AO2KBNW2019-02-21T09:55:00Z42.03-93.83-12.0-12.025086.030.02067TRUETRUEBRVFRMETAR354.02019-02-21 10:02:40G)5     3KBOW 210955Z AUTO 00000KT 5SM BR OVC003 18/17 A3009 RMK AO2KBOW2019-02-21T09:55:00Z27.93-81.7718.017.0005.030.088583TRUETRUEBRLIFRMETAR39.02019-02-21 10:02:40 *`R)5    3KBVU 210955Z AUTO 04003KT 10SM FEW042 SCT050 OVC065 01/00 A2962 RMK AO2KBVU2019-02-21T09:55:00Z35.95-114.871.00.040310.029.619095TRUETRUEVFRMETAR671.02019-02-21 10:02:40N)5    3KBUU 210955Z AUTO 25008KT 10SM CLR M06/M09 A2996 RMK AO2 T10581095KBUU2019-02-21T09:55:00Z42.68-88.3-5.8-9.5250810.029.958662TRUETRUEVFRMETAR237.02019-02-21 10:02:40D(}5    3KAWG 210955Z AUTO 25008KT 10SM CLR M07/M08 A3007 RMK AO2KAWG2019-02-21T09:55:00Z41.27-91.67-7.0-8.0250810.030.070866TRUETRUEVFRMETAR230.02019-02-21 10:02:40P)5     3KAXA 210955Z AUTO 26011KT 9SM CLR M15/M15 A2996 RMK AO2 PWINOKAXA2019-02-21T09:55:00Z43.07-94.27-15.0-15.0260119.029.958662TRUETRUETRUEVFRMETAR372.02019-02-21 10:02:40 1hR)5    3KJFX 210955Z AUTO 00000KT VCTS 12/12 A3005 RMK AO2 LTG DSNT SE-SW PWINOKJFX2019-02-21T09:55:00Z33.9-87.3212.012.00030.050198TRUETRUETRUEVCTSSPECI148.02019-02-21 10:02:40C(}5    3KJVL 210955Z AUTO 24008KT 10SM CLR M04/M08 A2998 RMK AO2KJVL2019-02-21T09:55:00Z42.62-89.05-4.0-8.0240810.029.97933TRUETRUEVFRMETAR246.02019-02-21 10:02:40H)5   3KJVW 210955Z AUTO 09004KT 10SM 10/10 A3003 RMK AO2 LTG DSNT ALQDSKJVW2019-02-21T09:55:00Z32.3-90.4210.010.090410.030.029528TRUETRUESPECI76.02019-02-21 10:02:40{)]5    3KBYS 210955Z AUTO 13003KT 10SM SCT043 BKN100 BKN120 03/M02 A2959 RMK AO2 SLP040 WND DATA ESTMD T00341019KBYS2019-02-21T09:55:00Z35.28-116.623.4-1.9130310.029.5895671004.0TRUETRUEVFRMETAR716.02019-02-21 10:02:40 )GS#)5     3KJZI 210955Z AUTO 34003KT 1/4SM FG OVC001 11/11 A3009 RMK AO2 PWINOKJZI2019-02-21T09:55:00Z32.7-80.011.011.034030.2530.088583TRUETRUETRUEFGLIFRSPECI6.02019-02-21 10:02:40?"(}5    3KKY8 210955Z AUTO 00000KT 9SM SCT037 02/02 A3012 RMK A01KKY82019-02-21T09:55:00Z37.95-86.872.02.0009.030.121063TRUETRUEVFRSPECI126.02019-02-21 10:02:40\!)'5     3KL08 210955Z AUTO 04007KT 10SM FEW035 BKN042 BKN050 08/03 A2963 RMK AO2 P0001KL082019-02-21T09:55:00Z33.27-116.328.03.040710.029.630905TRUETRUEVFR0.01METAR159.02019-02-21 10:02:40Q )5    3KJYM 210955Z AUTO 26006KT 10SM OVC025 01/M04 A2993 RMK AO2 T00101036KJYM2019-02-21T09:55:00Z41.92-84.581.0-3.6260610.029.929134TRUETRUEMVFRMETAR360.02019-02-21 10:02:40 ;jV')5   3KLWA 210955Z AUTO 25015G20KT 10SM OVC031 01/M04 A2997 RMK AO2 T00071045KLWA2019-02-21T09:55:00Z42.35-86.250.7-4.5250152010.029.970472TRUETRUEVFRMETAR203.02019-02-21 10:02:40Q&)5    3KLMO 210955Z AUTO 01004KT 10SM CLR M07/M16 A2977 RMK AO2 T10721158KLMO2019-02-21T09:55:00Z40.17-105.17-7.2-15.810410.029.769686TRUETRUEVFRMETAR1541.02019-02-21 10:02:40K%) 5    3KLBE 210955Z AUTO 26007KT 10SM FEW016 OVC024 06/06 A2997 RMK AO2KLBE2019-02-21T09:55:00Z40.27-79.46.06.0260710.029.970472TRUETRUEMVFRMETAR361.02019-02-21 10:02:40?$(5    3KL52 210955Z AUTO 00000KT 10SM SCT110 04/03 A2972 RMK A01KL522019-02-21T09:55:00Z35.1-120.624.03.00010.029.719488TRUETRUEVFRMETAR4.02019-02-21 10:02:40 9UD+(}5    3KDEH 210955Z AUTO VRB06KT 10SM CLR M11/M11 A2994 RMK AO2KDEH2019-02-21T09:55:00Z43.27-91.72-11.0-11.00610.029.940945TRUETRUEVFRMETAR353.02019-02-21 10:02:40C*(}5    3KMQJ 210955Z AUTO 25005KT 10SM CLR M01/M01 A3008 RMK AO1KMQJ2019-02-21T09:55:00Z39.85-85.9-1.0-1.0250510.030.079725TRUETRUEVFRMETAR263.02019-02-21 10:02:40^))%5     3KD60 210955Z AUTO 27005KT 6SM -SN SCT008 BKN026 BKN033 M20/M21 A2991 RMK AO2KD602019-02-21T09:55:00Z48.38-102.9-20.0-21.027056.029.911417TRUETRUE-SNMVFRMETAR693.02019-02-21 10:02:40A(({5    3KLRJ 210955Z AUTO 00000KT 7SM CLR M18/M19 A3001 RMK AO2KLRJ2019-02-21T09:55:00Z42.77-96.2-18.0-19.0007.030.008858TRUETRUEVFRMETAR365.02019-02-21 10:02:40 !PI/)5     3KDNS 210955Z AUTO 00000KT 4SM BR CLR M13/M14 A3004 RMK AO2KDNS2019-02-21T09:55:00Z41.97-95.37-13.0-14.0004.030.041338TRUETRUEBRMVFRMETAR388.02019-02-21 10:02:40D.({5    3KDNA 210955Z AUTO 18003KT 10SM CLR 00/M13 A2978 RMK AO2KDNA2019-02-21T09:55:00Z31.88-106.70.0-13.0180310.029.778543TRUETRUEVFRMETAR1253.02019-02-21 10:02:40K-)5   3KDLZ 210955Z AUTO 26004G08KT 10SM OVC024 01/M01 A3005 RMK AO2KDLZ2019-02-21T09:55:00Z40.28-83.121.0-1.02604810.030.050198TRUETRUEMVFRMETAR289.02019-02-21 10:02:40Y,)5   3KDLL 210955Z AUTO 26012G17KT 10SM SCT018 M08/M11 A2991 RMK AO2 T10771111KDLL2019-02-21T09:55:00Z43.52-89.77-7.7-11.1260121710.029.911417TRUETRUEVFRMETAR299.02019-02-21 10:02:40 ~1X~T3)5     3KFIN 210955Z AUTO 13003KT 1/2SM FG BKN010 18/17 A3010 RMK AO2 T01760174KFIN2019-02-21T09:55:00Z29.47-81.217.617.413030.530.100393TRUETRUEFGLIFRMETAR10.02019-02-21 10:02:40S2)5     3KFFL 210955Z AUTO 24007KT 10SM FEW230 M07/M10 A3006 RMK AO2 PWINOKFFL2019-02-21T09:55:00Z41.03-91.97-7.0-10.0240710.030.059055TRUETRUETRUEVFRMETAR244.02019-02-21 10:02:40d1)75   3KFFX 210955Z AUTO 26012G17KT 10SM BKN024 BKN030 OVC036 00/M04 A2989 RMK AO2 T00001045KFFX2019-02-21T09:55:00Z43.43-86.00.0-4.5260121710.029.890747TRUETRUEMVFRMETAR236.02019-02-21 10:02:40_0)-5   3KDRM 210955Z AUTO 26007G17KT 210V270 10SM OVC012 M01/M03 A2968 RMK AO2 T10101030KDRM2019-02-21T09:55:00Z46.0-83.75-1.0-3.026071710.029.681103TRUETRUEMVFRMETAR204.02019-02-21 10:02:40 'VT7)5    3KGNT 210955Z AUTO 17006KT 10SM OVC100 M04/M10 A2968 RMK AO2 T10391105KGNT2019-02-21T09:55:00Z35.17-107.9-3.9-10.5170610.029.681103TRUETRUEVFRMETAR1987.02019-02-21 10:02:40Q6)5    3KGDB 210955Z AUTO 24008KT 10SM CLR M18/M20 A2994 RMK AO2 T11841202KGDB2019-02-21T09:55:00Z44.75-95.55-18.4-20.2240810.029.940945TRUETRUEVFRMETAR319.02019-02-21 10:02:40K5) 5   3KFMM 210955Z AUTO 10011KT 10SM M10/M15 A2977 RMK AO2 T10971155KFMM2019-02-21T09:55:00Z40.33-103.8-9.7-15.51001110.029.769686TRUETRUEMETAR1393.02019-02-21 10:02:40S4)5    3KFMH 210955Z AUTO 15013G19KT 2 1/2SM -DZ OVC004 01/01 A2986 RMK AO2KFMH2019-02-21T09:55:00Z41.63-70.521.01.015013192.529.861221TRUETRUE-DZLIFRMETAR40.02019-02-21 10:02:40 7aD;(}5    3KFSW 210955Z AUTO 25004KT 10SM CLR M03/M06 A3008 RMK AO2KFSW2019-02-21T09:55:00Z40.67-91.32-3.0-6.0250410.030.079725TRUETRUEVFRMETAR221.02019-02-21 10:02:40P:)5     3KHEG 210955Z AUTO 00000KT 1 1/2SM BR SCT016 OVC055 20/20 A3011 RMK AO2KHEG2019-02-21T09:55:00Z30.28-81.820.020.0001.530.109253TRUETRUEBRIFRMETAR27.02019-02-21 10:02:40P9)5   3KHAI 210955Z AUTO 27009G16KT 10SM CLR 00/M05 A2998 RMK AO2 T00001053KHAI2019-02-21T09:55:00Z41.97-85.60.0-5.327091610.029.97933TRUETRUEVFRMETAR251.02019-02-21 10:02:40C8(y5    3KGWR 210955Z AUTO 28013KT 5SM BR M15/M17 A2989 RMK A01KGWR2019-02-21T09:55:00Z46.22-97.65-15.0-17.0280135.029.890747TRUETRUEBRMETAR386.02019-02-21 10:02:40 JfF?(}5    3KCCY 210955Z AUTO 24011KT 10SM CLR M13/M15 A2998 RMK AO2KCCY2019-02-21T09:55:00Z43.07-92.62-13.0-15.02401110.029.97933TRUETRUEVFRMETAR343.02019-02-21 10:02:40^>)+5     3KCDA 210955Z AUTO 11005KT 2SM -SN SCT017 OVC029 M07/M08 A2987 RMK AO2 T10741081KCDA2019-02-21T09:55:00Z44.57-72.02-7.4-8.111052.029.870079TRUETRUE-SNIFRMETAR363.02019-02-21 10:02:40H=)5     3KCDN 210955Z AUTO 00000KT 1/4SM FG OVC002 05/05 A3010 RMK AO2KCDN2019-02-21T09:55:00Z34.28-80.575.05.0000.2530.100393TRUETRUEFGLIFRMETAR92.02019-02-21 10:02:40b<)15    3KFSO 210955Z AUTO 17010G16KT 7SM -SN BKN031 OVC036 M02/M04 A2978 RMK AO2 T10201038KFSO2019-02-21T09:55:00Z44.93-73.1-2.0-3.817010167.029.778543TRUETRUE-SNVFRMETAR70.02019-02-21 10:02:40 5^xXC)5    3KBWW 210955Z AUTO 32008KT 10SM FEW044 SCT050 OVC065 M19/M21 A2975 RMK AO2KBWW2019-02-21T09:55:00Z46.17-103.3-19.0-21.0320810.029.749016TRUETRUEVFRMETAR910.02019-02-21 10:02:40`B)%5    3KCAD 210955Z AUTO 25011G16KT 10SM -SN OVC024 M01/M06 A2978 RMK AO2 T10121058KCAD2019-02-21T09:55:00Z44.27-85.42-1.2-5.8250111610.029.778543TRUETRUE-SNMVFRMETAR398.02019-02-21 10:02:40QA) 5     3KCAV 210955Z AUTO 24010KT 4SM BR CLR M16/M17 A3000 RMK AO2 PWINOKCAV2019-02-21T09:55:00Z42.75-93.77-16.0-17.0240104.030.0TRUETRUETRUEBRMVFRMETAR354.02019-02-21 10:02:40E@(}5    3KCBF 210955Z AUTO 24005KT 10SM CLR M09/M10 A3005 RMK AO2KCBF2019-02-21T09:55:00Z41.27-95.77-9.0-10.0240510.030.050198TRUETRUEVFRMETAR382.02019-02-21 10:02:40 1YHG)5     3KADU 210955Z AUTO 00000KT 5SM BR CLR M14/M16 A3004 RMK AO2KADU2019-02-21T09:55:00Z41.7-94.92-14.0-16.0005.030.041338TRUETRUEBRMVFRMETAR392.02019-02-21 10:02:40TF)5    3KAEJ 210955Z AUTO 00000KT 10SM OVC060 M12/M16 A2965 RMK AO2 T11231160KAEJ2019-02-21T09:55:00Z38.82-106.12-12.3-16.00010.029.648623TRUETRUEVFRMETAR2422.02019-02-21 10:02:40RE)5     3KAIB 210955Z AUTO 00000KT 7SM UP SCT025 OVC033 M05/M06 A2965 RMK AO2KAIB2019-02-21T09:55:00Z38.23-108.57-5.0-6.0007.029.648623TRUETRUEUPVFRMETAR1811.02019-02-21 10:02:40ID)5     3KAIO 210955Z AUTO 00000KT 4SM BR CLR M17/M17 A3006 RMK AO2KAIO2019-02-21T09:55:00Z41.38-95.03-17.0-17.0004.030.059055TRUETRUEBRMVFRMETAR360.02019-02-21 10:02:40 ,TAK(5    3K6S2 210955Z AUTO 00000KT 10SM SCT002 00/00 A2997 RMK AO2K6S22019-02-21T09:55:00Z43.98-124.120.00.00010.029.970472TRUETRUEVFRMETAR16.02019-02-21 10:02:40>J(s5   3K7L2 210955Z AUTO 25008KT 8SM M21/M24 A2995 RMK AO2K7L22019-02-21T09:55:00Z46.22-100.25-21.0-24.025088.029.949802TRUETRUEMETAR543.02019-02-21 10:02:40RI)5    3K82C 210955Z AUTO 26007KT 7SM BKN020 M07/M11 A2990 RMK AO2 T10751109K82C2019-02-21T09:55:00Z43.83-90.13-7.5-10.926077.029.899607TRUETRUEMVFRMETAR276.02019-02-21 10:02:40NH)5     3K9D7 210955Z AUTO 31005KT 4SM BR OVC075 M12/M12 A2992 RMK AO2K9D72019-02-21T09:55:00Z48.48-99.23-12.0-12.031054.029.920275TRUETRUEBRMVFRMETAR452.02019-02-21 10:02:40 1auFO) 5     3EHVL 210955Z AUTO 23014KT 7000 BR FEW006 OVC021 08/08 Q1023 WHTEHVL2019-02-21T09:55:00Z53.234.928.08.0230144.3530.206694TRUEBRMVFRMETAR5.02019-02-21 10:02:40fN)K5     3EHWO 210955Z AUTO 22006KT 200V260 6000 BR FEW083 SCT088 BKN100 09/06 Q1026 WHT 24007KT 6000 NSCEHWO2019-02-21T09:55:00Z51.454.329.06.022063.7330.295275TRUEBRMVFRMETAR17.02019-02-21 10:02:40JM)5   3K6B9 210955Z AUTO 20008G15KT 10SM OVC019 02/01 A2980 RMK AO2K6B92019-02-21T09:55:00Z42.92-76.432.01.020081510.029.799213TRUETRUEMVFRMETAR316.02019-02-21 10:02:40IL)5     3K6L4 210955Z AUTO 32008KT 2SM BR OVC003 10/10 A3002 RMK AO2K6L42019-02-21T09:55:00Z37.85-81.9210.010.032082.030.02067TRUETRUEBRLIFRMETAR508.02019-02-21 10:02:40 4{QS)5     3KVQQ 210955Z AUTO 00000KT 1/4SM FG BKN008 OVC014 20/20 A3009 RMK AO2KVQQ2019-02-21T09:55:00Z30.22-81.8820.020.0000.2530.088583TRUETRUEFGLIFRMETAR25.02019-02-21 10:02:40XR)5    3KWWD 210955Z AUTO 29009KT 7SM OVC002 03/02 A2997 RMK AO2 SLP152 T00280022KWWD2019-02-21T09:55:00Z39.02-74.922.82.229097.029.9704721015.2TRUETRUELIFRMETAR7.02019-02-21 10:02:403Q(u5   3TXKF 210955Z VRB02KT 9999 FEW036 FEW110 13/08 Q1027 TXKF2019-02-21T09:55:00Z32.37-64.6813.08.0026.2130.324802VFRMETAR6.02019-02-21 10:02:40FP) 5     3EHVK 210955Z AUTO 23007KT 200V260 7000 BR OVC050 09/07 Q1026 WHTEHVK2019-02-21T09:55:00Z51.635.79.07.023074.3530.295275TRUEBRMVFRMETAR21.02019-02-21 10:02:40 8^JW)5     3KTNU 210955Z AUTO 28007KT 6SM BR CLR M11/M11 A3004 RMK AO2KTNU2019-02-21T09:55:00Z41.67-93.02-11.0-11.028076.030.041338TRUETRUEBRVFRMETAR290.02019-02-21 10:02:40CV(5    3KTPF 210955Z AUTO 11004KT 10SM BKN100 21/21 A3009 RMK AO2KTPF2019-02-21T09:55:00Z27.92-82.4521.021.0110410.030.088583TRUETRUEVFRMETAR3.02019-02-21 10:02:40TU)5      3KUKT 210955Z AUTO 00000KT 2 1/2SM BR OVC003 00/00 A2993 RMK A01 P0005KUKT2019-02-21T09:55:00Z40.43-75.380.00.0002.529.929134TRUETRUEBRLIFR0.05METAR160.02019-02-21 10:02:40BT(}5     3KVDF 210955Z AUTO 00000KT 5SM BR CLR 17/17 A3009 RMK AO2KVDF2019-02-21T09:55:00Z28.02-82.3317.017.0005.030.088583TRUETRUEBRMVFRMETAR7.02019-02-21 10:02:40 3oA[(5    3KSUA 210955Z AUTO 00000KT 10SM SCT050 23/20 A3011 RMK AO2KSUA2019-02-21T09:55:00Z27.18-80.2223.020.00010.030.109253TRUETRUEVFRMETAR6.02019-02-21 10:02:40>Z(y5    3KSUZ 210955Z AUTO 00000KT 10SM CLR 02/02 A3007 RMK A01KSUZ2019-02-21T09:55:00Z34.58-92.482.02.00010.030.070866TRUETRUEVFRSPECI119.02019-02-21 10:02:40>Y(y5    3KTKX 210955Z AUTO 04007KT 10SM CLR 04/02 A3011 RMK AO2KTKX2019-02-21T09:55:00Z36.22-90.024.02.040710.030.109253TRUETRUEVFRMETAR80.02019-02-21 10:02:40GX)5   3KTME 210955Z AUTO 08005G11KT 10SM OVC050 11/10 A2995 RMK AO2KTME2019-02-21T09:55:00Z29.8-95.911.010.08051110.029.949802TRUETRUEVFRMETAR51.02019-02-21 10:02:40 LC_({5    3KSLB 210955Z AUTO 28011KT 7SM CLR M14/M15 A2998 RMK AO2KSLB2019-02-21T09:55:00Z42.6-95.22-14.0-15.0280117.029.97933TRUETRUEVFRMETAR454.02019-02-21 10:02:40;^(w5     3KSMS 210955Z AUTO 1/2SM BR OVC003 06/06 A3010 RMK AO2KSMS2019-02-21T09:55:00Z34.0-80.376.06.00.530.100393TRUETRUEBRLIFRMETAR56.02019-02-21 10:02:40J]) 5     3KSNC 210955Z AUTO 36006KT 2 1/2SM BR OVC001 01/00 A2985 RMK AO2KSNC2019-02-21T09:55:00Z41.38-72.51.00.036062.529.84941TRUETRUEBRLIFRMETAR127.02019-02-21 10:02:40^\)%5   3KSOW 210955Z AUTO 20021G33KT 10SM FEW025 BKN033 OVC041 M03/M10 A2964 RMK AO2KSOW2019-02-21T09:55:00Z34.27-110.0-3.0-10.0200213310.029.639763TRUETRUEVFRMETAR1954.02019-02-21 10:02:40Y88@HPX`hpx (08@HPX`hpx (08@HPX`hpxNRVZ^cgkosw{NRVZ^cgkosw{ #'+/37;?CGKOSW[_cgkosw{ #'+/37;?¡CáGġJšNơRǡVȡZɡ^ʡbˡf̡j͡nΡrϡuСxѡ|ҡӡԡա ֡סء١ڡ ۡ$ܡ(ݡ, 0f4c(q5   3KRZT 210955Z 30011G14KT OVC028 03/00 A3008 RMK AO2KRZT2019-02-21T09:55:00Z39.43-83.023.00.0300111430.079725TRUEMETAR221.02019-02-21 10:02:40Wb)5    3KS25 210955Z AUTO 25005KT 8SM FEW007 SCT011 BKN018 M16/M18 A2994 RMK AO2KS252019-02-21T09:55:00Z47.8-103.25-16.0-18.025058.029.940945TRUETRUEMVFRMETAR644.02019-02-21 10:02:40Da(}5    3KSDA 210955Z AUTO 00000KT 10SM CLR M17/M18 A3009 RMK AO2KSDA2019-02-21T09:55:00Z40.75-95.42-17.0-18.00010.030.088583TRUETRUEVFRMETAR296.02019-02-21 10:02:40J`)5    3KSHL 210955Z AUTO 24004KT 10SM FEW002 M17/M17 A2996 RMK AO2KSHL2019-02-21T09:55:00Z43.22-95.82-17.0-17.0240410.029.958662TRUETRUEVFRMETAR432.02019-02-21 10:02:40 &TWg)5     3KROS 210955Z AUTO 23006KT 7SM -SN OVC009 M08/M10 A2984 RMK AO2 T10811100KROS2019-02-21T09:55:00Z45.7-92.95-8.1-10.023067.029.840551TRUETRUE-SNIFRMETAR281.02019-02-21 10:02:40Mf)5     3KRRT 210955Z AUTO 31005KT 10SM -SN CLR M08/M10 A2984 RMK AO2KRRT2019-02-21T09:55:00Z48.93-95.33-8.0-10.0310510.029.840551TRUETRUE-SNVFRMETAR327.02019-02-21 10:02:40Le)5     3KRVL 210955Z AUTO 00000KT 2 1/2SM BR OVC002 M00/M00 A2994 RMK A01KRVL2019-02-21T09:55:00Z40.68-77.630.00.0002.529.940945TRUETRUEBRLIFRMETAR250.02019-02-21 10:02:40Td)5   3KRYV 210955Z AUTO 23009G14KT 10SM CLR M06/M10 A2993 RMK AO2 T10631096KRYV2019-02-21T09:55:00Z43.17-88.72-6.3-9.623091410.029.929134TRUETRUEVFRMETAR254.02019-02-21 10:02:40 !Ln4k(k5   3KRDK 210955Z AUTO 00000KT M16/M17 A3008 RMK AO2KRDK2019-02-21T09:55:00Z41.02-95.27-16.0-17.00030.079725TRUETRUEMETAR318.02019-02-21 10:02:40Xj)+5    3KRFI 210955Z AUTO 00000KT 10SM OVC080 04/04 A3004 RMK AO2 LTG DSNT SE T00440039KRFI2019-02-21T09:55:00Z32.15-94.854.43.90010.030.041338TRUETRUEVFRMETAR135.02019-02-21 10:02:40Oi) 5     3KRGK 210955Z AUTO 28007KT 7SM -SN SCT012 M11/M15 A2991 RMK AO2KRGK2019-02-21T09:55:00Z44.58-92.48-11.0-15.028077.029.911417TRUETRUE-SNVFRMETAR239.02019-02-21 10:02:40Yh)5     3KRNH 210955Z AUTO 24006KT 5SM -SN OVC007 M12/M14 A2986 RMK AO2 T11201142KRNH2019-02-21T09:55:00Z45.15-92.53-12.0-14.224065.029.861221TRUETRUE-SNIFRMETAR304.02019-02-21 10:02:40 4c}No)5    3KPHN 210955Z AUTO 25005KT 10SM BKN029 OVC035 02/M02 A2989 RMK AO2KPHN2019-02-21T09:55:00Z42.92-82.522.0-2.0250510.029.890747TRUETRUEMVFRMETAR198.02019-02-21 10:02:40`n)+5      3KPLR 210955Z AUTO 07004KT 3SM BR BKN002 BKN014 OVC030 12/12 A3002 RMK A01 P0024KPLR2019-02-21T09:55:00Z33.57-86.2512.012.07043.030.02067TRUETRUEBRLIFR0.24SPECI148.02019-02-21 10:02:40Km) 5     3KPNM 210955Z AUTO 00000KT 5SM -SN OVC006 M11/M12 A2985 RMK AO2KPNM2019-02-21T09:55:00Z45.57-93.6-11.0-12.0005.029.84941TRUETRUE-SNIFRMETAR298.02019-02-21 10:02:40Fl)5    3KRCE 210955Z AUTO 11013KT 10SM SCT050 02/M00 A2997 RMK AO2KRCE2019-02-21T09:55:00Z35.48-97.822.00.01101310.029.970472TRUETRUEVFRSPECI413.02019-02-21 10:02:40 /mDs(}5    3KOXV 210955Z AUTO 22008KT 10SM CLR M09/M09 A3006 RMK AO2KOXV2019-02-21T09:55:00Z41.28-93.12-9.0-9.0220810.030.059055TRUETRUEVFRMETAR283.02019-02-21 10:02:40Rr)5    3KPAN 210955Z AUTO VRB06G14KT 1SM -SN OVC003 M03/M04 A2967 RMK AO2KPAN2019-02-21T09:55:00Z34.25-111.33-3.0-4.006141.029.66929TRUETRUE-SNLIFRMETAR1572.02019-02-21 10:02:40TR|)[5    3KBUF 210954Z 24019G25KT 10SM FEW008 OVC028 02/01 A2986 RMK AO2 PK WND 25026/0940 SLP120 P0001 T00170006KBUF2019-02-21T09:54:00Z42.93-78.731.70.6240192510.029.8612211012.0TRUEMVFR0.01METAR211.02019-02-21 10:02:40d))5   3KAPN 210954Z AUTO 26011G20KT 10SM OVC029 01/M04 A2973 RMK AO2 SLP076 T00111039KAPN2019-02-21T09:54:00Z45.07-83.571.1-3.9260112010.029.7312981007.6TRUETRUEMVFRMETAR210.02019-02-21 10:02:40U)5    3KAPC 210954Z AUTO 00000KT 10SM CLR 02/01 A2973 RMK AO2 SLP059 T00220006KAPC2019-02-21T09:54:00Z38.2-122.282.20.60010.029.7312981005.9TRUETRUEVFRMETAR13.02019-02-21 10:02:40a)#5     3KALO 210954Z AUTO 26010KT 6SM HZ CLR M10/M13 A3001 RMK AO2 SLP176 T11001128KALO2019-02-21T09:54:00Z42.55-92.4-10.0-12.8260106.030.0088581017.6TRUETRUEHZVFRMETAR264.02019-02-21 10:02:40 3 3E#(}5    3KBDU 210954Z AUTO 00000KT 10SM CLR M08/M16 A2973 RMK AO2KBDU2019-02-21T09:54:00Z40.03-105.23-8.0-16.00010.029.731298TRUETRUEVFRMETAR1612.02019-02-21 10:02:40")g5      3KBFL 210954Z AUTO 30006KT 10SM -RA SCT028 BKN036 OVC047 06/03 A2969 RMK AO2 RAE0856B43 SLP053 P0000 T00560028KBFL2019-02-21T09:54:00Z35.43-119.055.62.8300610.029.689961005.3TRUETRUE-RAVFR0.005METAR151.02019-02-21 10:02:40!)s5      3KBOS 210954Z 35008KT 2SM -FZDZ BR SCT006 BKN014 OVC021 01/M01 A2994 RMK AO2 FZRAE18FZDZB18 SLP137 P0004 T00061011 $KBOS2019-02-21T09:54:00Z42.37-71.020.6-1.135082.029.9409451013.7TRUETRUE-FZDZ BRIFR0.04METAR6.02019-02-21 10:02:40\ )!5   3KBTV 210954Z 17015G23KT 10SM OVC038 M02/M04 A2981 RMK AO2 SLP098 T10171039KBTV2019-02-21T09:54:00Z44.47-73.15-1.7-3.9170152310.029.8110241009.8TRUEVFRMETAR105.02019-02-21 10:02:40 J!ECJs')E5      3KBUY 210954Z AUTO 18005KT 2 1/2SM BR OVC005 04/03 A3003 RMK AO2 RAE42 SLP173 P0000 T00390028KBUY2019-02-21T09:54:00Z36.05-79.473.92.818052.530.0295281017.3TRUETRUEBRIFR0.005METAR180.02019-02-21 10:02:40|&)_5     3KAVL 210954Z AUTO 00000KT 7SM FEW004 FEW009 OVC070 07/07 A3003 RMK AO2 RAE04B37E47 SLP171 P0000 T00720067KAVL2019-02-21T09:54:00Z35.43-82.537.26.7007.030.0295281017.1TRUETRUEVFR0.005METAR670.02019-02-21 10:02:40V%)5     3KAVP 210954Z 23004KT 2SM BR OVC002 01/00 A2989 RMK AO2 SLP130 T00060000KAVP2019-02-21T09:54:00Z41.33-75.720.60.023042.029.8907471013.0TRUEBRLIFRSPECI291.02019-02-21 10:02:40Y$)-5     3KBDL 210954Z 01006KT 6SM BR SCT004 BKN010 OVC015 M02/M04 A2991 RMK AO2 T10221039KBDL2019-02-21T09:54:00Z41.93-72.68-2.2-3.91066.029.911417TRUEBRMVFRMETAR60.02019-02-21 10:02:40 *, +)y5     3PGSN 210954Z 05016KT 4SM RA BR FEW018 SCT023 BKN035 24/22 A2991 RMK AO2 PK WND 06026/0944 RAB45 SLP148 T02440222 PNO $PGSN2019-02-21T09:54:00Z15.12145.7224.422.250164.029.9114171014.8TRUETRUERA BRMVFRMETAR65.02019-02-21 10:02:40x*)M5   3KJST 210954Z AUTO 27014G22KT 7SM OVC003 05/04 A2990 RMK AO2 PK WND 26028/0926 SLP145 T00500039 $KJST2019-02-21T09:54:00Z40.32-78.835.03.927014227.029.8996071014.5TRUETRUETRUELIFRMETAR694.02019-02-21 10:02:40`))'5     3KRSP 210954Z AUTO 6SM BR SCT014 OVC021 01/01 A2990 RMK AO2 SLP150 T00060006 $KRSP2019-02-21T09:54:00Z39.65-77.470.60.66.029.8996071015.0TRUETRUETRUEBRMVFRMETAR561.02019-02-21 10:02:40j()?5     3KBWI 210954Z 00000KT 4SM BR SCT004 BKN085 OVC250 M01/M01 A2998 RMK AO2 SLP153 T10061006 $KBWI2019-02-21T09:54:00Z39.17-76.68-0.6-0.6004.029.979331015.3TRUETRUEBRMVFRMETAR59.02019-02-21 10:02:40 w/)E5      3KNKT 210954Z 29006KT 1/8SM -RA BR VV002 12/12 A3011 RMK AO2 SFC VIS 1 SLP193 P0000 T01170117KNKT2019-02-21T09:54:00Z34.9-76.8811.711.729060.1330.1092531019.3TRUE-RA BRLIFR0.005200METAR9.02019-02-21 10:02:40g.)?5    3KBKB 210954Z AUTO VRB04KT 10SM BKN060 OVC080 10/08 A2995 RMK AO2 TSE0855 SLP172 T01000078KBKB2019-02-21T09:54:00Z31.0-92.9210.07.80410.029.9498021017.2TRUETRUEVFRMETAR94.02019-02-21 10:02:40v-)=5      3PHMK 210954Z AUTO 32004KT 10SM CLR 19/18 A3000 RMK AO2 SLP162 T01940183 402610183 TSNO $PHMK2019-02-21T09:54:00Z21.15-157.119.418.3320410.030.01016.2TRUETRUETRUETRUEVFR26.118.3METAR141.02019-02-21 10:02:40v,)?5      3PHOG 210954Z AUTO 00000KT 10SM OVC021 23/22 A2999 RMK AO2 SLP159 T02280217 402780172 TSNOPHOG2019-02-21T09:54:00Z20.9-156.4322.821.70010.029.9911421015.9TRUETRUETRUEMVFR27.817.2METAR12.02019-02-21 10:02:40 A=`A3) 5      3KLWM 210954Z AUTO 36004KT 1 1/4SM UP BR FEW006 OVC013 M04/M05 A2998 RMK AO2 UPE05B16E18B48SNB05E16B18E48 SLP153 P0002 T10391050KLWM2019-02-21T09:54:00Z42.72-71.13-3.9-5.036041.2529.979331015.3TRUETRUEBR UPIFR0.02METAR54.02019-02-21 10:02:40W2)5    3KLNK 210954Z 00000KT 8SM CLR M15/M17 A3006 RMK AO2 SLP201 I1000 T11501172KLNK2019-02-21T09:54:00Z40.85-96.77-15.0-17.2008.030.0590551020.1TRUEVFRMETAR364.02019-02-21 10:02:40W1)5    3KLEX 210954Z AUTO 31004KT 10SM CLR 03/00 A3010 RMK AO2 SLP193 T00280000KLEX2019-02-21T09:54:00Z38.03-84.62.80.0310410.030.1003931019.3TRUETRUEVFRMETAR300.02019-02-21 10:02:40`0)!5    3KLAF 210954Z AUTO 26007KT 10SM CLR 00/M03 A3007 RMK AO2 SLP186 T00001033 $KLAF2019-02-21T09:54:00Z40.42-86.930.0-3.3260710.030.0708661018.6TRUETRUETRUEVFRMETAR182.02019-02-21 10:02:40 W#60WS7)5    3KDSM 210954Z 28006KT 7SM CLR M10/M12 A3006 RMK AO2 SLP191 T11001117KDSM2019-02-21T09:54:00Z41.53-93.67-10.0-11.728067.030.0590551019.1TRUEVFRMETAR295.02019-02-21 10:02:406)Q5      3KMOT 210954Z AUTO 24006KT 5SM -SN BKN050 OVC070 M14/M17 A2991 RMK AO2 SNB44 SLP168 P0000 T11391167KMOT2019-02-21T09:54:00Z48.25-101.27-13.9-16.724065.029.9114171016.8TRUETRUE-SNMVFR0.005METAR519.02019-02-21 10:02:40g5)/5      3KMIV 210954Z AUTO 27005KT 4SM BR OVC003 01/01 A2996 RMK AO2 SLP144 T00110006 TSNOKMIV2019-02-21T09:54:00Z39.37-75.081.10.627054.029.9586621014.4TRUETRUETRUEBRLIFRMETAR23.02019-02-21 10:02:40W4)5    3KLYH 210954Z AUTO 20008KT 10SM CLR 01/01 A2999 RMK AO2 SLP163 T00060006KLYH2019-02-21T09:54:00Z37.32-79.20.60.6200810.029.9911421016.3TRUETRUEVFRMETAR295.02019-02-21 10:02:40 y!4OyP;)5    3KEIK 210954Z AUTO 00000KT 10SM CLR M09/M15 A2980 RMK AO2 T10941146KEIK2019-02-21T09:54:00Z40.02-105.05-9.4-14.60010.029.799213TRUETRUEVFRMETAR1564.02019-02-21 10:02:40_:)%5     3KECG 210954Z AUTO 23010KT 2SM BR OVC002 08/07 A3006 RMK AO2 SLP178 T00780067KECG2019-02-21T09:54:00Z36.27-76.187.86.7230102.030.0590551017.8TRUETRUEBRLIFRMETAR11.02019-02-21 10:02:40g9)+5     3KDYL 210954Z AUTO 30003KT 5SM BR OVC003 00/M01 A2993 RMK AO2 SLP142 T00001006 $KDYL2019-02-21T09:54:00Z40.33-75.120.0-0.630035.029.9291341014.2TRUETRUETRUEBRLIFRMETAR117.02019-02-21 10:02:40Y8)!5    3KDSV 210954Z AUTO VRB04KT 10SM OVC025 05/01 A2985 RMK AO2 SLP122 T00500006KDSV2019-02-21T09:54:00Z42.57-77.725.00.60410.029.849411012.2TRUETRUEMVFRMETAR198.02019-02-21 10:02:40 R<\R?)_5      3KFFZ 210954Z AUTO 14008KT 10SM -RA BKN033 BKN043 OVC060 08/M02 A2972 RMK AO2 RAB37 SLP053 P0000 T00831017KFFZ2019-02-21T09:54:00Z33.47-111.728.3-1.7140810.029.7194881005.3TRUETRUE-RAVFR0.005METAR424.02019-02-21 10:02:40Z>)5    3KEUG 210954Z AUTO 35006KT 9SM OVC009 02/00 A2997 RMK AO2 SLP150 T00170000KEUG2019-02-21T09:54:00Z44.13-123.221.70.035069.029.9704721015.0TRUETRUEIFRMETAR114.02019-02-21 10:02:40V=)5    3KEVV 210954Z AUTO 00000KT 10SM CLR 01/00 A3014 RMK AO2 SLP209 T00060000KEVV2019-02-21T09:54:00Z38.05-87.520.60.00010.030.1387791020.9TRUETRUEVFRMETAR117.02019-02-21 10:02:40b<)-5     3KEWN 210954Z AUTO 29003KT 1 3/4SM BR OVC002 09/09 A3011 RMK AO2 SLP197 T00890089KEWN2019-02-21T09:54:00Z35.07-77.058.98.929031.7530.1092531019.7TRUETRUEBRLIFRMETAR3.02019-02-21 10:02:40 ..^C)5    3KGCK 210954Z AUTO 12008KT 10SM CLR M07/M13 A2984 RMK AO2 SLP123 T10671128KGCK2019-02-21T09:54:00Z37.92-100.72-6.7-12.8120810.029.8405511012.3TRUETRUEVFRMETAR877.02019-02-21 10:02:40B)Y5      3KGCN 210954Z AUTO 17009KT 3SM -SN BR BKN011 BKN019 OVC033 M06/M08 A2955 RMK AO2 SLP017 P0001 T10611078KGCN2019-02-21T09:54:00Z35.95-112.15-6.1-7.817093.029.5511821001.7TRUETRUE-SN BRMVFR0.01METAR2016.02019-02-21 10:02:40kA)=5    3KGED 210954Z AUTO 27006KT 10SM OVC005 04/04 A2998 RMK AO2 CIG 004V009 SLP152 T00440044 $KGED2019-02-21T09:54:00Z38.68-75.374.44.4270610.029.979331015.2TRUETRUETRUEIFRMETAR19.02019-02-21 10:02:40l@)C5    3KFIG 210954Z AUTO 20003KT 9SM OVC010 01/01 A2990 RMK AO2 CIG 007V013 SLP142 I1003 T00060006KFIG2019-02-21T09:54:00Z41.05-78.420.60.620039.029.8996071014.2TRUETRUEMVFRMETAR462.02019-02-21 10:02:40 X3XUG)5    3KIND 210954Z 25006KT 10SM FEW050 M01/M04 A3008 RMK AO2 SLP191 T10111039KIND2019-02-21T09:54:00Z39.72-86.3-1.1-3.9250610.030.0797251019.1TRUEVFRMETAR241.02019-02-21 10:02:40]F)#5    3KIMT 210954Z AUTO 30003KT 9SM BKN023 M06/M08 A2971 RMK AO2 SLP080 T10561078KIMT2019-02-21T09:54:00Z45.82-88.12-5.6-7.830039.029.710631008.0TRUETRUEMVFRMETAR349.02019-02-21 10:02:40hE);5   3KFWA 210954Z 26014G20KT 10SM BKN022 BKN026 OVC210 02/M01 A3002 RMK AO2 SLP174 T00171011KFWA2019-02-21T09:54:00Z40.98-85.181.7-1.1260142010.030.020671017.4TRUEMVFRMETAR248.02019-02-21 10:02:40vD)C5     3KFZY 210954Z AUTO 21007KT 170V230 10SM OVC020 03/M01 A2980 RMK AO2 SLP097 P0004 T00281011 $KFZY2019-02-21T09:54:00Z43.35-76.382.8-1.1210710.029.7992131009.7TRUETRUETRUEMVFR0.04METAR138.02019-02-21 10:02:40 [J)5    3KCCU 210954Z AUTO 16012KT 10SM SCT021 SCT037 OVC049 M14/M19 A2948 RMK AO2KCCU2019-02-21T09:54:00Z39.48-106.15-14.0-19.01601210.029.480314TRUETRUEVFRMETAR3680.02019-02-21 10:02:40vI)G5      3KCEU 210954Z AUTO 00000KT 5SM -RA BR BKN003 OVC014 05/05 A3006 RMK AO2 SLP182 P0011 T00500050KCEU2019-02-21T09:54:00Z34.67-82.885.05.0005.030.0590551018.2TRUETRUE-RA BRLIFR0.11METAR268.02019-02-21 10:02:40H)k5      3KINT 210954Z AUTO 22003KT 9SM -RA FEW005 SCT008 OVC014 03/02 A3005 RMK AO2 UPB29E42RAB42 SLP180 P0001 T00280022KINT2019-02-21T09:54:00Z36.13-80.222.82.222039.030.0501981018.0TRUETRUE-RAMVFR0.01SPECI291.02019-02-21 10:02:40 T2TXN)5    3KAAO 210954Z AUTO 07003KT 9SM CLR M04/M07 A3002 RMK AO2 SLP179 T10441072KAAO2019-02-21T09:54:00Z37.75-97.22-4.4-7.27039.030.020671017.9TRUETRUEVFRMETAR434.02019-02-21 10:02:40XM)5    3KACY 210954Z 28007KT 10SM OVC003 02/02 A2994 RMK AO2 SLP137 T00220022 $KACY2019-02-21T09:54:00Z39.45-74.572.22.2280710.029.9409451013.7TRUETRUELIFRMETAR23.02019-02-21 10:02:40cL)-5     3KAKH 210954Z AUTO 19003KT 1 1/4SM BR OVC003 04/03 A3006 RMK AO2 SLP185 T00440028KAKH2019-02-21T09:54:00Z35.2-81.154.42.819031.2530.0590551018.5TRUETRUEBRLIFRMETAR243.02019-02-21 10:02:40K)O5      3KCAR 210954Z AUTO 07004KT 1SM -SN VV018 M13/M17 A2999 RMK AO2 SNB33 PRESFR SLP172 P0000 T11331172KCAR2019-02-21T09:54:00Z46.87-68.02-13.3-17.27041.029.9911421017.2TRUETRUE-SNLIFR0.0051800METAR191.02019-02-21 10:02:40 &VOR)5    3PGUM 210954Z 05012KT 10SM CLR 26/25 A2989 RMK AO2 SLP114 T02560250PGUM2019-02-21T09:54:00Z13.48144.825.625.0501210.029.8907471011.4TRUEVFRMETAR91.02019-02-21 10:02:40:Q({5   3KDMH 210954Z AUTO 01/M01 A2998 RMK AO1 SLP152 T00111006KDMH2019-02-21T09:54:00Z39.28-76.621.1-0.629.979331015.2TRUETRUEMETAR5.02019-02-21 10:02:40JP) 5   3K12N 210954Z AUTO 00000KT M01/M01 A2991 RMK AO1 SLP139 T10061011K12N2019-02-21T09:54:00Z41.02-74.73-0.6-1.10029.9114171013.9TRUETRUEMETAR177.02019-02-21 10:02:40TO)5    3KMTP 210954Z AUTO 00000KT 06/06 A2982 RMK AO1 SLP098 P0003 T00560056 $KMTP2019-02-21T09:54:00Z41.07-71.925.65.60029.8198811009.8TRUETRUETRUE0.03METAR2.02019-02-21 10:02:40 4!)E4 V)w5      3KVSF 210954Z AUTO 00000KT 2 1/2SM BR BKN005 OVC013 M05/M06 A2993 RMK AO2 FZRAE0857B30E45 SLP145 P0001 I1002 T10501056KVSF2019-02-21T09:54:00Z43.35-72.52-5.0-5.6002.529.9291341014.5TRUETRUEBRIFR0.01METAR175.02019-02-21 10:02:40^U)#5    3KVTA 210954Z AUTO 27007KT 10SM OVC020 03/M01 A3004 RMK AO2 SLP179 T00331006KVTA2019-02-21T09:54:00Z40.02-82.473.3-0.6270710.030.0413381017.9TRUETRUEMVFRMETAR268.02019-02-21 10:02:40rT)E5      3KWAL 210954Z AUTO 26008KT 6SM -RA BR OVC003 04/03 A3000 RMK AO2 RAB11 SLP156 P0000 T00390033KWAL2019-02-21T09:54:00Z37.93-75.473.93.326086.030.01015.6TRUETRUE-RA BRLIFR0.005METAR14.02019-02-21 10:02:40YS)5    3KWLD 210954Z AUTO 10007KT 8SM CLR M02/M06 A3002 RMK AO2 SLP175 T10221056KWLD2019-02-21T09:54:00Z37.17-97.03-2.2-5.610078.030.020671017.5TRUETRUEVFRMETAR350.02019-02-21 10:02:40 q2Sq\Z)5    3KTQE 210954Z AUTO 15007KT 7SM CLR M18/M19 A3005 RMK AO2 SLP194 T11831189KTQE2019-02-21T09:54:00Z41.77-96.18-18.3-18.915077.030.0501981019.4TRUETRUEVFRMETAR312.02019-02-21 10:02:40YY)5    3KUIN 210954Z AUTO 24007KT 9SM CLR M01/M04 A3009 RMK AO2 SLP196 T10111044KUIN2019-02-21T09:54:00Z39.95-91.2-1.1-4.424079.030.0885831019.6TRUETRUEVFRMETAR234.02019-02-21 10:02:40bX))5     3KUZA 210954Z AUTO 20003KT 3/4SM BR OVC002 03/03 A3008 RMK AO2 SLP194 T00330033KUZA2019-02-21T09:54:00Z34.98-81.053.33.320030.7530.0797251019.4TRUETRUEBRLIFRMETAR202.02019-02-21 10:02:40`W)-5     3KVAY 210954Z AUTO 00000KT 2 1/2SM BR OVC002 01/01 A2994 RMK AO2 SLP137 T00110006KVAY2019-02-21T09:54:00Z39.93-74.831.10.6002.529.9409451013.7TRUETRUEBRLIFRMETAR15.02019-02-21 10:02:40 e1Qef^)75    3KSLC 210954Z 18007KT 10SM BKN055 BKN080 BKN120 M03/M06 A2964 RMK AO2 SLP048 T10331061KSLC2019-02-21T09:54:00Z40.77-111.97-3.3-6.1180710.029.6397631004.8TRUEVFRMETAR1286.02019-02-21 10:02:40Z])5    3KSUS 210954Z AUTO 00000KT 10SM CLR M01/M03 A3011 RMK AO2 SLP202 T10111028KSUS2019-02-21T09:54:00Z38.65-90.65-1.1-2.80010.030.1092531020.2TRUETRUEVFRMETAR141.02019-02-21 10:02:40c\)/5     3KSYR 210954Z 21009KT 10SM OVC024 03/01 A2981 RMK AO2 RAE38 SLP097 P0000 T00330006KSYR2019-02-21T09:54:00Z43.12-76.13.30.6210910.029.8110241009.7TRUEMVFR0.005METAR127.02019-02-21 10:02:40`[)5    3KTAD 210954Z AUTO 31008KT 10SM CLR M11/M13 A2968 RMK AO2 SLP071 T11061133KTAD2019-02-21T09:54:00Z37.27-104.33-10.6-13.3310810.029.6811031007.1TRUETRUEVFRMETAR1756.02019-02-21 10:02:40 w;^wab)%5   3KSBN 210954Z AUTO 24015G22KT 10SM CLR M01/M06 A3001 RMK AO2 SLP169 T10111056KSBN2019-02-21T09:54:00Z41.7-86.32-1.1-5.6240152210.030.0088581016.9TRUETRUEVFRMETAR237.02019-02-21 10:02:40Wa)5    3KSBY 210954Z AUTO 27009KT 9SM OVC005 04/04 A2999 RMK AO2 SLP158 T00390039KSBY2019-02-21T09:54:00Z38.33-75.53.93.927099.029.9911421015.8TRUETRUEIFRMETAR19.02019-02-21 10:02:40Z`)5    3KSET 210954Z AUTO 32006KT 10SM CLR 00/M02 A3011 RMK AO2 SLP198 T00001017KSET2019-02-21T09:54:00Z38.93-90.430.0-1.7320610.030.1092531019.8TRUETRUEVFRSPECI134.02019-02-21 10:02:40__)5    3KSJN 210954Z AUTO 19003KT 10SM CLR M04/M11 A2965 RMK AO2 SLP031 T10391111KSJN2019-02-21T09:54:00Z34.52-109.38-3.9-11.1190310.029.6486231003.1TRUETRUEVFRMETAR1745.02019-02-21 10:02:40 r@Yraf)/5     3KRIC 210954Z 22008KT 10SM OVC006 03/01 A3002 RMK AO2 RAE09 SLP171 P0000 T00280011KRIC2019-02-21T09:54:00Z37.52-77.322.81.1220810.030.020671017.1TRUEIFR0.005METAR50.02019-02-21 10:02:40ae)%5    3KRKS 210954Z AUTO 09003KT 10SM OVC075 M14/M18 A2962 RMK AO2 SLP103 T11441183KRKS2019-02-21T09:54:00Z41.6-109.07-14.4-18.390310.029.6190951010.3TRUETRUEVFRMETAR2060.02019-02-21 10:02:40Wd)%5    3KROA 210954Z 01007KT 10SM BKN040 BKN150 01/00 A3002 RMK AO2 SLP173 T00110000KROA2019-02-21T09:54:00Z37.32-79.971.10.010710.030.020671017.3TRUEVFRMETAR362.02019-02-21 10:02:40]c)5    3KRST 210954Z AUTO 25012KT 10SM CLR M14/M16 A2990 RMK AO2 SLP150 T11441156KRST2019-02-21T09:54:00Z43.9-92.5-14.4-15.62501210.029.8996071015.0TRUETRUEVFRMETAR403.02019-02-21 10:02:40 U)/=Ubj))5     3KPTW 210954Z AUTO 31003KT 2SM BR OVC002 M01/M01 A2995 RMK AO2 SLP142 T10061006KPTW2019-02-21T09:54:00Z40.23-75.55-0.6-0.631032.029.9498021014.2TRUETRUEBRLIFRMETAR92.02019-02-21 10:02:40li)?5    3KRBL 210954Z AUTO 33009KT 10SM FEW080 FEW090 SCT110 04/M01 A2975 RMK AO2 SLP074 T00441011KRBL2019-02-21T09:54:00Z40.15-122.254.4-1.1330910.029.7490161007.4TRUETRUEVFRMETAR104.02019-02-21 10:02:40th)O5    3KRDG 210954Z AUTO 00000KT 1 1/2SM BKN003 OVC007 00/00 A2994 RMK AO2 SFC VIS 10 SLP146 T00000000 $KRDG2019-02-21T09:54:00Z40.37-75.970.00.0001.529.9409451014.6TRUETRUETRUELIFRMETAR109.02019-02-21 10:02:40Qg)5    3KRFD 210954Z 24005KT 8SM BKN250 M05/M09 A3002 RMK AO2 SLP173 T10501089KRFD2019-02-21T09:54:00Z42.2-89.1-5.0-8.924058.030.020671017.3TRUEVFRMETAR221.02019-02-21 10:02:40 ~7Z~Vn)5    3KPHL 210954Z 25005KT 7SM OVC004 01/01 A2996 RMK AO2 SLP144 T00110006 $KPHL2019-02-21T09:54:00Z39.87-75.231.10.625057.029.9586621014.4TRUETRUELIFRMETAR18.02019-02-21 10:02:40Wm)5    3KPIA 210954Z 23006KT 7SM CLR M02/M03 A3007 RMK AO2 SLP190 T10171033 $KPIA2019-02-21T09:54:00Z40.67-89.68-1.7-3.323067.030.0708661019.0TRUETRUEVFRMETAR205.02019-02-21 10:02:40Xl)5    3KPNE 210954Z AUTO 29004KT 9SM OVC005 02/00 A2996 RMK AO2 SLP146 T00170000KPNE2019-02-21T09:54:00Z40.08-75.021.70.029049.029.9586621014.6TRUETRUEIFRMETAR28.02019-02-21 10:02:40ek)55     3KPSF 210954Z AUTO 00000KT 6SM BR OVC005 M03/M05 A2985 RMK AO2 SLP124 I1001 T10331050KPSF2019-02-21T09:54:00Z42.43-73.28-3.3-5.0006.029.849411012.4TRUETRUEBRIFRMETAR355.02019-02-21 10:02:40 \r)%5    3KOLM 210954Z AUTO 00000KT 10SM BKN042 M01/M02 A3005 RMK AO2 SLP177 T10111022KOLM2019-02-21T09:54:00Z46.97-122.9-1.1-2.20010.030.0501981017.7TRUETRUEVFRMETAR58.02019-02-21 10:02:40`q)#5    3KOLS 210954Z AUTO 14006KT 10SM SCT110 04/M11 A2975 RMK AO2 SLP048 T00391106KOLS2019-02-21T09:54:00Z31.42-110.853.9-10.6140610.029.7490161004.8TRUETRUEVFRMETAR1184.02019-02-21 10:02:40p)q5      3KORH 210954Z AUTO 03006KT 3SM -FZRA BR BKN002 OVC010 M03/M04 A2987 RMK AO2 FZRAE03B38 SLP130 P0002 I1003 T10331044KORH2019-02-21T09:54:00Z42.27-71.87-3.3-4.43063.029.8700791013.0TRUETRUE-FZRA BRLIFR0.02METAR304.02019-02-21 10:02:40o)_5     3KPHF 210954Z AUTO 27012G15KT 8SM -RA OVC005 04/03 A3005 RMK AO2 CIG 004V009 PRESRR SLP174 P0005 T00390033KPHF2019-02-21T09:54:00Z37.13-76.53.93.327012158.030.0501981017.4TRUETRUE-RAIFR0.05METAR12.02019-02-21 10:02:40  u)c5     3KMRY 210954Z AUTO 28015G21KT 10SM -RA FEW030 BKN060 OVC100 09/04 A2972 RMK AO2 RAB52 SLP078 P0000 T00890039KMRY2019-02-21T09:54:00Z36.58-121.858.93.9280152110.029.7194881007.8TRUETRUE-RAVFR0.005METAR66.02019-02-21 10:02:40 t)q5      3KMVL 210954Z AUTO 16005KT 6SM BR OVC024 M06/M07 A2985 RMK AO2 UPB34E42FZRAB42E52SNE08 SLP121 P0000 I1001 T10561067KMVL2019-02-21T09:54:00Z44.53-72.62-5.6-6.716056.029.849411012.1TRUETRUEBRMVFR0.005METAR234.02019-02-21 10:02:40_s)/5    3KOFP 210954Z AUTO 21006KT 10SM BKN008 BKN085 03/01 A3002 RMK AO2 SLP168 T00280011KOFP2019-02-21T09:54:00Z37.7-77.432.81.1210610.030.020671016.8TRUETRUEIFRSPECI62.02019-02-21 10:02:40 _x)'5     3KIPT 210954Z AUTO 00000KT 6SM BR OVC010 00/M01 A2993 RMK AO2 SLP140 T00001006KIPT2019-02-21T09:54:00Z41.25-76.920.0-0.6006.029.9291341014.0TRUETRUEBRMVFRMETAR164.02019-02-21 10:02:40xw)?5      3KIZG 210954Z AUTO 00000KT 3/4SM -SN BR VV009 M07/M08 A2999 RMK AO2 SLP163 P0004 T10721083KIZG2019-02-21T09:54:00Z43.98-70.95-7.2-8.3000.7529.9911421016.3TRUETRUE-SN BRLIFR0.04900METAR135.02019-02-21 10:02:40v)5      3KJAN 210954Z 00000KT 8SM -RA FEW035 BKN060 OVC100 10/08 A3006 RMK AO2 LTG DSNT SE AND S RAB05 PRESRR SLP180 P0002 T01000083 $KJAN2019-02-21T09:54:00Z32.32-90.0810.08.3008.030.0590551018.0TRUETRUE-RAVFR0.02METAR91.02019-02-21 10:02:40  w|)I5      3KIGM 210954Z AUTO 23008KT 4SM -SN BR FEW006 FEW018 OVC027 01/M01 A2957 RMK AO2 P0000 T00111006KIGM2019-02-21T09:54:00Z35.25-113.931.1-0.623084.029.568897TRUETRUE-SN BRMVFR0.005METAR1032.02019-02-21 10:02:40]{)#5    3KILN 210954Z AUTO 30008KT 10SM OVC023 02/M02 A3007 RMK AO2 SLP200 T00221017KILN2019-02-21T09:54:00Z39.43-83.82.2-1.7300810.030.0708661020.0TRUETRUEMVFRMETAR322.02019-02-21 10:02:40 z)g5       3PAHN 210954Z AUTO 29011KT 2 1/2SM -SN BR OVC010 M03/M04 A2998 RMK AO2 CIG 008V015 SLP156 P0000 T10331044 TSNOPAHN2019-02-21T09:54:00Z59.25-135.52-3.3-4.4290112.529.979331015.6TRUETRUETRUE-SN BRIFR0.005METAR5.02019-02-21 10:02:40wy)W5      3PAKN 210954Z 28006KT 3SM R12/2600V3000FT BR OVC005 01/00 A2979 RMK AO2 SNE0857 SLP090 P0001 T00060000PAKN2019-02-21T09:54:00Z58.68-156.650.60.028063.029.7903541009.0TRUEBRIFR0.01METAR17.02019-02-21 10:02:40 h"%AhS)!5    3KMEM 210954Z 00000KT 9SM FEW050 02/02 A3011 RMK AO2 SLP197 I1000 T00170017KMEM2019-02-21T09:54:00Z35.07-89.981.71.7009.030.1092531019.7TRUEVFRMETAR86.02019-02-21 10:02:40^)%5    3KMGJ 210954Z AUTO 00000KT 10SM OVC012 M01/M01 A2989 RMK AO2 SLP126 T10111011KMGJ2019-02-21T09:54:00Z41.52-74.27-1.1-1.10010.029.8907471012.6TRUETRUEMVFRMETAR108.02019-02-21 10:02:40w~)a5    3PTTP 210954Z 06006KT 15SM -SHRA BKN017TCU BKN130 OVC300 27/25 A2987 RMK SHRAB48 TCU ALQDS SLP115 T02720250PTTP2019-02-21T09:54:00Z6.97158.2227.225.060615.029.8700791011.5-SHRAMVFRMETAR2.02019-02-21 10:02:40X})5    3KHWD 210954Z AUTO 32008KT 10SM CLR 08/01 A2972 RMK AO2 SLP075 T00780006KHWD2019-02-21T09:54:00Z37.67-122.127.80.6320810.029.7194881007.5TRUETRUEVFRMETAR21.02019-02-21 10:02:40 p 2Vp`)35    3KOAK 210953Z 32004KT 10SM FEW050 FEW120 OVC150 08/02 A2973 RMK AO2 SLP067 T00780017KOAK2019-02-21T09:53:00Z37.72-122.237.81.7320410.029.7312981006.7TRUEVFRSPECI26.02019-02-21 10:02:40V)5    3KSBA 210953Z AUTO 24003KT 10SM CLR 07/02 A2969 RMK AO2 SLP053 T00720022KSBA2019-02-21T09:53:00Z34.43-119.857.22.2240310.029.689961005.3TRUETRUEVFRMETAR3.02019-02-21 10:02:40h)=5    3KUTS 210953Z AUTO 06005KT 10SM BKN060 BKN075 OVC100 07/06 A2997 RMK AO2 SLP145 T00720061KUTS2019-02-21T09:53:00Z30.75-95.587.26.160510.029.9704721014.5TRUETRUEVFRSPECI104.02019-02-21 10:02:40Z)5    3KOVS 210953Z AUTO 24006KT 9SM CLR M07/M12 A2998 RMK AO2 SLP162 T10721117KOVS2019-02-21T09:53:00Z43.15-90.68-7.2-11.724069.029.979331016.2TRUETRUEVFRSPECI202.02019-02-21 10:02:40 ];[]x);5      3KOLF 210953Z AUTO 24006KT 4SM -SN OVC022 M13/M16 A2996 RMK AO2 SLP196 P0000 T11281161 $KOLF2019-02-21T09:53:00Z48.1-105.58-12.8-16.124064.029.9586621019.6TRUETRUETRUE-SNMVFR0.005SPECI604.02019-02-21 10:02:40Z)5    3KOTM 210953Z AUTO 25008KT 9SM CLR M08/M10 A3007 RMK AO2 SLP191 T10781100KOTM2019-02-21T09:53:00Z41.1-92.45-7.8-10.025089.030.0708661019.1TRUETRUEVFRSPECI256.02019-02-21 10:02:40[)!5    3KPIL 210953Z AUTO 34005KT 10SM OVC018 15/12 A2985 RMK AO2 SLP107 T01500122KPIL2019-02-21T09:53:00Z26.17-97.3315.012.2340510.029.849411010.7TRUETRUEMVFRSPECI5.02019-02-21 10:02:40^)#5     3KBVO 210953Z AUTO 00000KT 5SM BR CLR M01/M03 A3007 RMK AO2 SLP183 T10111033KBVO2019-02-21T09:53:00Z36.77-96.02-1.1-3.3005.030.0708661018.3TRUETRUEBRMVFRMETAR210.02019-02-21 10:02:40 (nl )G5    3KNUI 210953Z AUTO 23006KT 10SM BKN005 OVC060 04/02 A2999 RMK AO2 CIG 004V009 SLP156 T00390017KNUI2019-02-21T09:53:00Z38.15-76.433.91.7230610.029.9911421015.6TRUETRUEIFRMETAR7.02019-02-21 10:02:40` )%5    3KSDB 210953Z AUTO 36004KT 10SM SCT035 M02/M04 A2958 RMK AO2 SLP015 T10221039KSDB2019-02-21T09:53:00Z34.75-118.72-2.2-3.9360410.029.580711001.5TRUETRUEVFRMETAR1377.02019-02-21 10:02:404 (m5    3KP92 210953Z AUTO 05004KT A2993 RMK AO1 SLP136 $KP922019-02-21T09:53:00Z29.57-91.5350429.9291341013.6TRUETRUETRUESPECI1.02019-02-21 10:02:40R )5     3KXVG 210953Z AUTO 00000KT 10SM -SN SCT060 120 M15/M17 A2980 RMK AO2KXVG2019-02-21T09:53:00Z46.98-94.2-15.0-17.00010.029.799213TRUETRUE-SNVFRSPECI407.02019-02-21 10:02:40 ^5T^p)K5     3KNIP 210953Z 00000KT 5SM BR FEW002 SCT013 BKN070 21/21 A3009 RMK AO2 SLP186 VIS S 2 T02060206 $KNIP2019-02-21T09:53:00Z30.22-81.6720.620.6005.030.0885831018.6TRUETRUEBRMVFRMETAR7.02019-02-21 10:02:40[)!5    3TJNR 210953Z AUTO 07007KT 10SM FEW060 23/18 A3009 RMK AO2 SLP190 T02280178TJNR2019-02-21T09:53:00Z18.25-65.6322.817.870710.030.0885831019.0TRUETRUEVFRMETAR12.02019-02-21 10:02:40`)#5    3KMWT 210953Z AUTO 00000KT 10SM CLR M01/M02 A3005 RMK AO2 SLP181 T10061017 $KMWT2019-02-21T09:53:00Z34.55-93.58-0.6-1.70010.030.0501981018.1TRUETRUETRUEVFRSPECI214.02019-02-21 10:02:40_ )5    3KCQC 210953Z AUTO 22014KT 10SM CLR M06/M16 A2970 RMK AO2 SLP070 T10561156KCQC2019-02-21T09:53:00Z35.0-105.67-5.6-15.62201410.029.6988181007.0TRUETRUEVFRMETAR2160.02019-02-21 10:02:40 M6+MX)5    3KPNC 210953Z AUTO 07004KT 9SM CLR M01/M04 A3001 RMK AO2 SLP168 T10061039KPNC2019-02-21T09:53:00Z36.73-97.1-0.6-3.97049.030.0088581016.8TRUETRUEVFRSPECI308.02019-02-21 10:02:40)e5      3KPMP 210953Z AUTO 12015KT 9SM -RA FEW030 SCT040 BKN049 25/21 A3008 RMK AO2 RAE0855B53 SLP186 P0000 T02500206KPMP2019-02-21T09:53:00Z26.25-80.1225.020.6120159.030.0797251018.6TRUETRUE-RAVFR0.005SPECI6.02019-02-21 10:02:40[)5    3KPMD 210953Z AUTO 24008KT 10SM CLR 02/M02 A2960 RMK AO2 SLP024 T00171017KPMD2019-02-21T09:53:00Z34.63-118.081.7-1.7240810.029.6013771002.4TRUETRUEVFRSPECI780.02019-02-21 10:02:40c)/5    3KOQT 210953Z AUTO 00000KT 10SM SCT014 OVC029 11/11 A3004 RMK AO2 SLP174 T01110111KOQT2019-02-21T09:53:00Z36.02-84.2311.111.10010.030.0413381017.4TRUETRUEMVFRMETAR277.02019-02-21 10:02:40 K /8Kg)35    3KPRB 210953Z AUTO 00000KT 10SM SCT032 BKN120 01/01 A2970 RMK AO2 SLP058 T00110011 $KPRB2019-02-21T09:53:00Z35.67-120.631.11.10010.029.6988181005.8TRUETRUETRUEVFRMETAR245.02019-02-21 10:02:40q)C5      3KPOU 210953Z AUTO 00000KT 4SM BR OVC004 00/M01 A2992 RMK AO2 SNE0856 SLP129 P0000 T00001011KPOU2019-02-21T09:53:00Z41.63-73.880.0-1.1004.029.9202751012.9TRUETRUEBRLIFR0.005METAR46.02019-02-21 10:02:40U)5    3KPOF 210953Z AUTO 00000KT 10SM CLR 01/00 A3012 RMK AO2 SLP202 T00110000KPOF2019-02-21T09:53:00Z36.77-90.321.10.00010.030.1210631020.2TRUETRUEVFRMETAR99.02019-02-21 10:02:40p)G5     3KPNS 210953Z AUTO 20004KT 1/4SM R17/2000V3000FT FG VV002 21/20 A3000 RMK AO2 SLP161 T02110200KPNS2019-02-21T09:53:00Z30.48-87.1821.120.020040.2530.01016.1TRUETRUEFGLIFR200SPECI38.02019-02-21 10:02:40 %#%x)K5      3KPSX 210953Z AUTO 01008KT 10SM -RA OVC024 14/11 A2989 RMK AO2 RAE0859B52 SLP121 P0000 T01390106KPSX2019-02-21T09:53:00Z28.72-96.2513.910.610810.029.8907471012.1TRUETRUE-RAMVFR0.005SPECI5.02019-02-21 10:02:40p)G5     3KPSP 210953Z AUTO 00000KT 10SM BKN038 OVC055 09/06 A2963 RMK AO2 RAE53 SLP034 P0001 T00890061KPSP2019-02-21T09:53:00Z33.82-116.58.96.10010.029.6309051003.4TRUETRUEVFR0.01SPECI135.02019-02-21 10:02:40d)15    3KPSC 210953Z AUTO 35004KT 7SM SCT050 BKN120 M06/M07 A3002 RMK AO2 SLP168 T10561067KPSC2019-02-21T09:53:00Z46.27-119.12-5.6-6.735047.030.020671016.8TRUETRUEVFRSPECI121.02019-02-21 10:02:40w)=5      3KPRC 210953Z AUTO 14006KT 4SM -SN BR OVC019 M02/M03 A2960 RMK AO2 SLP013 P0001 T10171028KPRC2019-02-21T09:53:00Z34.65-112.42-1.7-2.814064.029.6013771001.3TRUETRUE-SN BRMVFR0.01METAR1524.02019-02-21 10:02:40 1061 )U5      3KRAL 210953Z AUTO 00000KT 10SM -RA BKN035 BKN042 OVC055 07/06 A2964 RMK AO2 SLP029 P0012 T00670056 $KRAL2019-02-21T09:53:00Z33.95-117.456.75.60010.029.6397631002.9TRUETRUETRUE-RAVFR0.12SPECI252.02019-02-21 10:02:40t)I5   3KRAC 210953Z AUTO 26012G23KT 10SM CLR M04/M09 A2996 RMK AO2 PK WND 28026/0856 SLP155 T10391094KRAC2019-02-21T09:53:00Z42.77-87.82-3.9-9.4260122310.029.9586621015.5TRUETRUEVFRSPECI203.02019-02-21 10:02:40Y)5    3KPWA 210953Z AUTO 11010KT 8SM CLR 03/M01 A2999 RMK AO2 SLP158 T00281006KPWA2019-02-21T09:53:00Z35.53-97.652.8-0.6110108.029.9911421015.8TRUETRUEVFRSPECI397.02019-02-21 10:02:40k)75   3KPTK 210953Z AUTO 26012G17KT 10SM BKN025 OVC029 01/M02 A2987 RMK AO2 SLP127 T00111022KPTK2019-02-21T09:53:00Z42.67-83.421.1-2.2260121710.029.8700791012.7TRUETRUEMVFRMETAR299.02019-02-21 10:02:40 o$5Uo`$)%5    3KRIL 210953Z AUTO 16003KT 10SM OVC042 M06/M09 A2967 RMK AO2 SLP074 T10561089KRIL2019-02-21T09:53:00Z39.53-107.73-5.6-8.9160310.029.669291007.4TRUETRUEVFRMETAR1678.02019-02-21 10:02:40Z#)5    3KRDD 210953Z AUTO 32004KT 10SM CLR 04/M01 A2974 RMK AO2 SLP072 T00391006KRDD2019-02-21T09:53:00Z40.52-122.33.9-0.6320410.029.7401581007.2TRUETRUEVFRMETAR155.02019-02-21 10:02:40i")95    3KRBG 210953Z AUTO 34004KT 10SM OVC010 02/01 A2994 RMK AO2 CIG 008V012 SLP141 T00220006KRBG2019-02-21T09:53:00Z43.23-123.352.20.6340410.029.9409451014.1TRUETRUEMVFRMETAR154.02019-02-21 10:02:40V!)5   3KRBD 210953Z AUTO 10004KT 10SM 04/02 A2998 RMK AO2 SLP151 T00440022 $KRBD2019-02-21T09:53:00Z32.68-96.874.42.2100410.029.979331015.1TRUETRUETRUEMETAR203.02019-02-21 10:02:40 I8FIw()C5      3KBPI 210953Z AUTO 00000KT 4SM -SN OVC015 M19/M22 A2965 RMK AO2 SNB09 SLP125 P0000 T11891217KBPI2019-02-21T09:53:00Z42.58-110.1-18.9-21.7004.029.6486231012.5TRUETRUE-SNMVFR0.005SPECI2117.02019-02-21 10:02:40l')95     3KBOI 210953Z 19004KT 10SM OVC024 M02/M05 A2974 RMK AO2 SNB25E34 SLP089 P0000 T10221050KBOI2019-02-21T09:53:00Z43.57-116.23-2.2-5.0190410.029.7401581008.9TRUEMVFR0.005METAR875.02019-02-21 10:02:40[&)!5    3KRKP 210953Z AUTO 34005KT 10SM OVC024 14/09 A2991 RMK AO2 SLP128 T01390089KRKP2019-02-21T09:53:00Z28.08-97.0513.98.9340510.029.9114171012.8TRUETRUEMVFRSPECI6.02019-02-21 10:02:40a%)%5    3KRIW 210953Z AUTO 04009KT 10SM BKN070 M13/M17 A2971 RMK AO2 SLP117 T11281167KRIW2019-02-21T09:53:00Z43.07-108.47-12.8-16.740910.029.710631011.7TRUETRUEVFRSPECI1697.02019-02-21 10:02:40 f0Pfd,))5     3KBRD 210953Z AUTO 25004KT 4SM BR OVC021 M11/M13 A2981 RMK AO2 SLP119 T11061128KBRD2019-02-21T09:53:00Z46.4-94.13-10.6-12.825044.029.8110241011.9TRUETRUEBRMVFRSPECI372.02019-02-21 10:02:40Z+)5    3KBRL 210953Z AUTO 25006KT 9SM CLR M04/M07 A3006 RMK AO2 SLP188 T10391072KBRL2019-02-21T09:53:00Z40.77-91.13-3.9-7.225069.030.0590551018.8TRUETRUEVFRMETAR211.02019-02-21 10:02:40c*)/5    3KBRO 210953Z AUTO 35003KT 10SM FEW010 OVC024 14/14 A2986 RMK AO2 SLP111 T01440139KBRO2019-02-21T09:53:00Z25.92-97.4214.413.9350310.029.8612211011.1TRUETRUEMVFRMETAR7.02019-02-21 10:02:40a))'5     3KBPK 210953Z AUTO 00000KT 10SM CLR 01/M01 A3007 RMK AO2 SLP185 T00111011 TSNOKBPK2019-02-21T09:53:00Z36.37-92.471.1-1.10010.030.0708661018.5TRUETRUETRUEVFRMETAR280.02019-02-21 10:02:40 A(Aa0)/5    3KBWG 210953Z AUTO 00000KT 10SM SCT012 OVC025 05/04 A3011 RMK AO2 SLP196 T00500039KBWG2019-02-21T09:53:00Z36.97-86.425.03.90010.030.1092531019.6TRUETRUEMVFRSPECI168.02019-02-21 10:02:40b/)%5    3KBTM 210953Z AUTO 14003KT 10SM OVC046 M17/M20 A2980 RMK AO2 SLP170 T11721200KBTM2019-02-21T09:53:00Z45.97-112.5-17.2-20.0140310.029.7992131017.0TRUETRUEVFRSPECI1688.02019-02-21 10:02:40q.)G5    3KBTL 210953Z AUTO 25014KT 10SM OVC024 01/M04 A2994 RMK AO2 PK WND 26028/0900 SLP146 T00061039KBTL2019-02-21T09:53:00Z42.32-85.230.6-3.92501410.029.9409451014.6TRUETRUEMVFRSPECI290.02019-02-21 10:02:40s-)G5     3KBPT 210953Z AUTO 04010KT 10SM BKN026 OVC032 12/09 A2992 RMK AO2 RAE09 SLP132 P0000 T01220094KBPT2019-02-21T09:53:00Z29.95-94.0312.29.4401010.029.9202751013.2TRUETRUEMVFR0.005METAR5.02019-02-21 10:02:40 ::^4)#5    3KCAG 210953Z AUTO 05008KT 9SM OVC035 M09/M13 A2965 RMK AO2 SLP093 T10891128KCAG2019-02-21T09:53:00Z40.5-107.52-8.9-12.85089.029.6486231009.3TRUETRUEVFRSPECI1887.02019-02-21 10:02:40`3)5    3KBYG 210953Z AUTO 29006KT 10SM CLR M12/M17 A2977 RMK AO2 SLP133 T11221167KBYG2019-02-21T09:53:00Z44.38-106.72-12.2-16.7290610.029.7696861013.3TRUETRUEVFRSPECI1497.02019-02-21 10:02:40d2)75    3KBUR 210953Z 00000KT 10SM BKN060 BKN075 OVC090 07/06 A2963 RMK AO2 SLP029 T00670056 $KBUR2019-02-21T09:53:00Z34.2-118.376.75.60010.029.6309051002.9TRUETRUEVFRMETAR217.02019-02-21 10:02:40 1)o5      3KBVY 210953Z AUTO 12004KT 1SM -SN BR BKN004 OVC010 01/M01 A2994 RMK AO2 UPE15RAB06E11SNB15 SLP137 P0009 T00061011KBVY2019-02-21T09:53:00Z42.58-70.920.6-1.112041.029.9409451013.7TRUETRUE-SN BRLIFR0.09SPECI28.02019-02-21 10:02:40 22*2r8)A5      3KCRE 210953Z AUTO 00000KT 1SM BR VV003 09/09 A3010 RMK AO1 RAB20E40 SLP192 P0000 T00890089KCRE2019-02-21T09:53:00Z33.82-78.728.98.9001.030.1003931019.2TRUETRUEBRLIFR0.005300METAR10.02019-02-21 10:02:407)U5      3KCDC 210953Z AUTO 04004KT 7SM -SN BKN013 OVC020 M06/M08 A2951 RMK AO2 SNB46 SLP013 P0000 T10611078 $KCDC2019-02-21T09:53:00Z37.7-113.1-6.1-7.84047.029.5098421001.3TRUETRUETRUE-SNMVFR0.005SPECI1714.02019-02-21 10:02:40a6)/5    3KCCR 210953Z AUTO 34003KT 10SM FEW075 SCT100 06/02 A2973 RMK AO2 SLP052 T00610017KCCR2019-02-21T09:53:00Z38.0-122.056.11.7340310.029.7312981005.2TRUETRUEVFRMETAR11.02019-02-21 10:02:40a5)%5    3KBYI 210953Z AUTO 08010KT 10SM FEW042 M09/M12 A2969 RMK AO2 SLP085 T10941122KBYI2019-02-21T09:53:00Z42.55-113.77-9.4-12.2801010.029.689961008.5TRUETRUEVFRMETAR1264.02019-02-21 10:02:40 n:On[<)5    3KCNM 210953Z AUTO 13003KT 10SM CLR 05/M08 A2977 RMK AO2 SLP057 T00501083KCNM2019-02-21T09:53:00Z32.33-104.255.0-8.3130310.029.7696861005.7TRUETRUEVFRMETAR985.02019-02-21 10:02:40e;)35     3KCNO 210953Z AUTO 00000KT 5SM BR SCT013 OVC044 06/06 A2965 RMK AO2 SLP041 T00610061KCNO2019-02-21T09:53:00Z33.98-117.626.16.1005.029.6486231004.1TRUETRUEBRMVFRMETAR207.02019-02-21 10:02:40[:)!5    3KCOT 210953Z AUTO 09006KT 10SM OVC070 12/04 A2990 RMK AO2 SLP122 T01220044KCOT2019-02-21T09:53:00Z28.45-99.2212.24.490610.029.8996071012.2TRUETRUEVFRMETAR140.02019-02-21 10:02:40_9)5    3KCPR 210953Z AUTO 31007KT 10SM CLR M16/M18 A2973 RMK AO2 SLP131 T11611178KCPR2019-02-21T09:53:00Z42.9-106.47-16.1-17.8310710.029.7312981013.1TRUETRUEVFRMETAR1621.02019-02-21 10:02:40 f)H[fo@)A5    3KCKB 210953Z AUTO 27008KT 10SM FEW019 SCT024 BKN060 11/08 A2997 RMK AO2 SLP147 T01110078 $KCKB2019-02-21T09:53:00Z39.3-80.2211.17.8270810.029.9704721014.7TRUETRUETRUEVFRSPECI360.02019-02-21 10:02:40g?)=5    3KCLL 210953Z AUTO 06009KT 10SM FEW090 BKN110 09/06 A2993 RMK AO2 PRESFR SLP134 T00940056KCLL2019-02-21T09:53:00Z30.58-96.379.45.660910.029.9291341013.4TRUETRUEVFRSPECI96.02019-02-21 10:02:40[>)5    3KCLM 210953Z AUTO 22006KT 10SM CLR M01/M02 A3010 RMK AO2 SLP194 T10061017KCLM2019-02-21T09:53:00Z48.12-123.5-0.6-1.7220610.030.1003931019.4TRUETRUEVFRMETAR85.02019-02-21 10:02:40Q=)5    3KCMI 210953Z 25007KT 7SM CLR M01/M02 A3007 RMK AO2 SLP189 T10061017KCMI2019-02-21T09:53:00Z40.03-88.27-0.6-1.725077.030.0708661018.9TRUEVFRSPECI228.02019-02-21 10:02:40 6 6XD)5    3KCGI 210953Z AUTO 00000KT 10SM CLR 00/M01 A3012 RMK AO2 SLP202 T00001011KCGI2019-02-21T09:53:00Z37.23-89.580.0-1.10010.030.1210631020.2TRUETRUEVFRSPECI102.02019-02-21 10:02:40qC)E5     3KCHA 210953Z AUTO 21005KT 3SM BR FEW004 OVC009 09/07 A3008 RMK AO2 PRESRR SLP185 T00890072 $KCHA2019-02-21T09:53:00Z35.03-85.28.97.221053.030.0797251018.5TRUETRUETRUEBRIFRSPECI210.02019-02-21 10:02:40iB)-5     3KCHO 210953Z AUTO 18004KT 10SM BR BKN003 02/M01 A2995 RMK AO2 SLP146 T00171006 $KCHO2019-02-21T09:53:00Z38.13-78.451.7-0.6180410.029.9498021014.6TRUETRUETRUEBRLIFRSPECI192.02019-02-21 10:02:40A)U5      3KCHS 210953Z 13003KT 3/4SM R15/P6000FT -DZ BR VV003 10/10 A3009 RMK AO2 DZB42 SLP189 P0000 T01000100KCHS2019-02-21T09:53:00Z32.9-80.0310.010.013030.7530.0885831018.9TRUE-DZ BRLIFR0.005300METAR13.02019-02-21 10:02:40 L-L[H)5    3KCDS 210953Z AUTO 15008KT 10SM CLR 05/M06 A2989 RMK AO2 SLP116 T00501061KCDS2019-02-21T09:53:00Z34.43-100.285.0-6.1150810.029.8907471011.6TRUETRUEVFRSPECI594.02019-02-21 10:02:40bG)75    3KCDW 210953Z AUTO 00000KT 7SM OVC008 00/00 A2992 RMK AO2 CIG 004V010 SLP139 T00000000KCDW2019-02-21T09:53:00Z40.88-74.280.00.0007.029.9202751013.9TRUETRUEIFRMETAR64.02019-02-21 10:02:40dF)'5     3KCEW 210953Z AUTO 19004KT 1/2SM FG VV001 21/20 A3003 RMK AO2 SLP166 T02060200KCEW2019-02-21T09:53:00Z30.78-86.5220.620.019040.530.0295281016.6TRUETRUEFGLIFR100SPECI55.02019-02-21 10:02:40{E)M5      3KCEZ 210953Z AUTO 29004KT 1 1/2SM -SN BKN018 OVC026 M04/M07 A2965 RMK AO2 SLP055 P0000 T10441072KCEZ2019-02-21T09:53:00Z37.3-108.63-4.4-7.229041.529.6486231005.5TRUETRUE-SNIFR0.005METAR1797.02019-02-21 10:02:40 S/PSwL)W5     3KHGR 210953Z AUTO 17003KT 2 1/2SM BR BKN025 BKN029 OVC034 01/M01 A2996 RMK AO2 SLP162 I1002 T00111011KHGR2019-02-21T09:53:00Z39.7-77.731.1-1.117032.529.9586621016.2TRUETRUEBRIFRMETAR224.02019-02-21 10:02:40YK)!5    3KHHR 210953Z AUTO 00000KT 10SM FEW095 08/05 A2966 RMK AO2 SLP044 T00830050KHHR2019-02-21T09:53:00Z33.92-118.338.35.00010.029.6604331004.4TRUETRUEVFRMETAR18.02019-02-21 10:02:40fJ)15    3KHIB 210953Z AUTO 29003KT 8SM SCT070 OVC090 M13/M14 A2975 RMK AO2 SLP104 T11281144KHIB2019-02-21T09:53:00Z47.38-92.83-12.8-14.429038.029.7490161010.4TRUETRUEVFRSPECI412.02019-02-21 10:02:40_I)5    3KCDR 210953Z AUTO 26004KT 10SM CLR M16/M18 A2987 RMK AO2 SLP173 T11611178KCDR2019-02-21T09:53:00Z42.83-103.1-16.1-17.8260410.029.8700791017.3TRUETRUEVFRSPECI1010.02019-02-21 10:02:40 P2P\P)!5    3KHBG 210953Z AUTO 36006KT 10SM OVC005 13/13 A3001 RMK AO2 SLP160 T01330128KHBG2019-02-21T09:53:00Z31.27-89.2513.312.8360610.030.0088581016.0TRUETRUEIFRSPECI44.02019-02-21 10:02:40YO)5    3KHBR 210953Z AUTO 08007KT 10SM CLR 01/M02 A2993 RMK AO2 SLP136 T00061022KHBR2019-02-21T09:53:00Z34.98-99.050.6-2.280710.029.9291341013.6TRUETRUEVFRSPECI473.02019-02-21 10:02:40eN)+5    3KHEI 210953Z AUTO 30004KT 10SM CLR M22/M24 A2989 RMK AO2 SLP186 I1000 T12221244KHEI2019-02-21T09:53:00Z46.02-102.65-22.2-24.4300410.029.8907471018.6TRUETRUEVFRMETAR828.02019-02-21 10:02:40~M)[5      3KHFD 210953Z AUTO 34006KT 4SM BR OVC004 M02/M03 A2992 RMK AO2 FZRAB0859E27 SLP131 P0001 I1003 T10171028KHFD2019-02-21T09:53:00Z41.73-72.65-1.7-2.834064.029.9202751013.1TRUETRUEBRLIFR0.01SPECI4.02019-02-21 10:02:40 E 1WE T)w5      3KGVL 210953Z AUTO VRB03KT 8SM VCTS BKN003 OVC007 06/06 A3007 RMK AO2 LTG DSNT W-N RAE26 PRESRR SLP186 P0002 T00560056KGVL2019-02-21T09:53:00Z34.27-83.835.65.6038.030.0708661018.6TRUETRUEVCTSLIFR0.02SPECI386.02019-02-21 10:02:40TS)5    3KGWO 210953Z AUTO 00000KT 10SM CLR 05/04 A3009 RMK AO2 SLP189 T00500039KGWO2019-02-21T09:53:00Z33.5-90.085.03.90010.030.0885831018.9TRUETRUEVFRSPECI44.02019-02-21 10:02:40iR)?5    3KGZH 210953Z AUTO 17005KT 7SM FEW018 SCT050 BKN060 22/20 A3000 RMK AO2 SLP157 T02170200 $KGZH2019-02-21T09:53:00Z31.42-87.0521.720.017057.030.01015.7TRUETRUETRUEVFRSPECI78.02019-02-21 10:02:40ZQ)5    3KHAO 210953Z AUTO 29003KT 10SM CLR 01/M02 A3010 RMK AO2 SLP199 T00061017KHAO2019-02-21T09:53:00Z39.37-84.520.6-1.7290310.030.1003931019.9TRUETRUEVFRMETAR188.02019-02-21 10:02:40 y:WyXX)%5    3KDFW 210953Z 10004KT 10SM BKN180 BKN300 04/02 A2997 RMK AO2 SLP147 T00390017KDFW2019-02-21T09:53:00Z32.9-97.023.91.7100410.029.9704721014.7TRUEVFRSPECI174.02019-02-21 10:02:40]W)5    3KDGW 210953Z AUTO 00000KT 10SM CLR M14/M17 A2978 RMK AO2 SLP142 T11391167KDGW2019-02-21T09:53:00Z42.8-105.38-13.9-16.70010.029.7785431014.2TRUETRUEVFRMETAR1499.02019-02-21 10:02:40^V)%5    3KGUP 210953Z AUTO 00000KT 10SM OVC055 M03/M08 A2966 RMK AO2 SLP065 T10331083KGUP2019-02-21T09:53:00Z35.52-108.8-3.3-8.30010.029.6604331006.5TRUETRUEVFRSPECI1971.02019-02-21 10:02:40\U)5    3KGUY 210953Z AUTO 11003KT 10SM CLR M04/M07 A2981 RMK AO2 SLP098 T10391072KGUY2019-02-21T09:53:00Z36.68-101.5-3.9-7.2110310.029.8110241009.8TRUETRUEVFRSPECI948.02019-02-21 10:02:40 z!3YzY\)5     3KDEQ 210953Z AUTO 00000KT 5SM BR CLR 01/01 A3007 RMK AO2 SLP180 T00110011KDEQ2019-02-21T09:53:00Z34.05-94.41.11.1005.030.0708661018.0TRUETRUEBRMVFRMETAR106.02019-02-21 10:02:40T[)5    3KDET 210953Z 27012KT 10SM OVC035 02/M03 A2991 RMK AO2 SLP135 T00221033KDET2019-02-21T09:53:00Z42.4-83.022.2-3.32701210.029.9114171013.5TRUEVFRSPECI190.02019-02-21 10:02:40hZ)15    3KDEW 210953Z AUTO 32005KT 10SM BKN095 M13/M14 A2994 RMK AO2 SLP172 I1000 T11281144KDEW2019-02-21T09:53:00Z47.97-117.43-12.8-14.4320510.029.9409451017.2TRUETRUEVFRSPECI674.02019-02-21 10:02:40YY)#5    3KDFI 210953Z AUTO 25007KT 10SM OVC030 02/M03 A3000 RMK AO2 SLP166 T00171028KDFI2019-02-21T09:53:00Z41.33-84.431.7-2.8250710.030.01016.6TRUETRUEMVFRSPECI219.02019-02-21 10:02:40 @"#@@z`)U5     3KDAN 210953Z AUTO 24003KT 10SM FEW005 BKN013 OVC023 03/02 A3003 RMK AO2 RAE25 SLP166 P0002 T00280022KDAN2019-02-21T09:53:00Z36.57-79.332.82.2240310.030.0295281016.6TRUETRUEMVFR0.02METAR175.02019-02-21 10:02:40]_)#5     3KDBQ 210953Z AUTO 26009KT 6SM BR CLR M09/M12 A2998 RMK AO2 SLP167 T10941117KDBQ2019-02-21T09:53:00Z42.4-90.7-9.4-11.726096.029.979331016.7TRUETRUEBRVFRSPECI326.02019-02-21 10:02:40y^)E5      3KDCU 210953Z AUTO 34010KT 2SM -RA BR OVC004 09/09 A3008 RMK AO2 RAB40 SLP184 P0000 T00890089KDCU2019-02-21T09:53:00Z34.65-86.958.98.9340102.030.0797251018.4TRUETRUE-RA BRLIFR0.005METAR176.02019-02-21 10:02:40X])5    3KDEN 210953Z 27008KT 10SM SCT220 M09/M12 A2971 RMK AO2 SLP085 T10891122KDEN2019-02-21T09:53:00Z39.85-104.65-8.9-12.2270810.029.710631008.5TRUEVFRMETAR1640.02019-02-21 10:02:40 Z.JZjd)A5     3KCXO 210953Z AUTO 00000KT 9SM OVC050 09/08 A2998 RMK AO2 RAB0857E12 SLP149 P0001 T00940083KCXO2019-02-21T09:53:00Z30.35-95.429.48.3009.029.979331014.9TRUETRUEVFR0.01METAR75.02019-02-21 10:02:40^c)5    3KCYS 210953Z AUTO 28005KT 10SM CLR M13/M17 A2971 RMK AO2 SLP124 T11281172KCYS2019-02-21T09:53:00Z41.15-104.8-12.8-17.2280510.029.710631012.4TRUETRUEVFRSPECI1868.02019-02-21 10:02:40Tb)5     3KDAB 210953Z 00000KT 4SM BR FEW008 18/18 A3010 RMK AO2 SLP192 T01830183KDAB2019-02-21T09:53:00Z29.18-81.0718.318.3004.030.1003931019.2TRUEBRMVFRMETAR9.02019-02-21 10:02:40ra)Y5    3KDAL 210953Z 13007KT 10SM SCT170 BKN230 BKN300 07/02 A3000 RMK AO2 SLP158 VIRGA OHD-E-S-SW T00720017 $KDAL2019-02-21T09:53:00Z32.85-96.857.21.7130710.030.01015.8TRUETRUEVFRSPECI158.02019-02-21 10:02:40 q1PqYh)5    3KCSM 210953Z AUTO 12009KT 10SM CLR 01/M02 A2992 RMK AO2 SLP136 T00061022KCSM2019-02-21T09:53:00Z35.35-99.20.6-2.2120910.029.9202751013.6TRUETRUEVFRMETAR588.02019-02-21 10:02:40[g)!5    3KCSV 210953Z AUTO 35005KT 10SM OVC005 08/08 A3005 RMK AO2 SLP173 T00830078KCSV2019-02-21T09:53:00Z35.95-85.088.37.8350510.030.0501981017.3TRUETRUEIFRMETAR570.02019-02-21 10:02:40_f)-5     3KCUB 210953Z AUTO 00000KT 2 1/2SM BR OVC002 07/06 A3010 RMK AO2 SLP193 T00670056KCUB2019-02-21T09:53:00Z33.97-81.06.75.6002.530.1003931019.3TRUETRUEBRLIFRMETAR56.02019-02-21 10:02:40de)#5    3KCUT 210953Z AUTO 00000KT 10SM CLR M16/M19 A2973 RMK AO2 SLP143 T11561189 $KCUT2019-02-21T09:53:00Z43.73-103.62-15.6-18.90010.029.7312981014.3TRUETRUETRUEVFRSPECI1725.02019-02-21 10:02:40 :$54:tl)Q5     3KHJO 210953Z AUTO 00000KT 10SM BKN050 OVC070 06/04 A2969 RMK AO2 RAB0858E20 SLP055 P0001 T00610039KHJO2019-02-21T09:53:00Z36.32-119.626.13.90010.029.689961005.5TRUETRUEVFR0.01SPECI74.02019-02-21 10:02:40{k)Y5     3KCRG 210953Z AUTO 15003KT 8SM SCT025 BKN032 OVC060 21/21 A3009 RMK AO2 RAB14E44 SLP188 P0001 T02060206KCRG2019-02-21T09:53:00Z30.33-81.5220.620.615038.030.0885831018.8TRUETRUEVFR0.01METAR13.02019-02-21 10:02:40ij)=5    3KCRQ 210953Z AUTO 27009KT 10SM SCT033 BKN055 OVC070 12/06 A2969 RMK AO2 SLP051 T01170056KCRQ2019-02-21T09:53:00Z33.13-117.2811.75.6270910.029.689961005.1TRUETRUEVFRSPECI99.02019-02-21 10:02:40Vi)5    3KCRS 210953Z AUTO 07005KT 10SM CLR 07/03 A2999 RMK AO2 SLP156 T00670033KCRS2019-02-21T09:53:00Z32.03-96.46.73.370510.029.9911421015.6TRUETRUEVFRMETAR133.02019-02-21 10:02:40 <' &<dp)#5    3KABR 210953Z AUTO 29008KT 10SM CLR M16/M18 A2994 RMK AO2 SLP167 T11561178 $KABR2019-02-21T09:53:00Z45.45-98.42-15.6-17.8290810.029.9409451016.7TRUETRUETRUEVFRMETAR397.02019-02-21 10:02:40_o)%5     3KABY 210953Z AUTO 21005KT 5SM BR OVC004 21/20 A3005 RMK AO2 SLP175 T02110200KABY2019-02-21T09:53:00Z31.53-84.221.120.021055.030.0501981017.5TRUETRUEBRLIFRMETAR58.02019-02-21 10:02:40n)5     3KACK 210953Z AUTO 14020G26KT 2 1/2SM -SN BR OVC008 03/02 A2985 RMK AO2 PK WND 14032/0903 CIG 006V012 SLP109 P0001 T00280022KACK2019-02-21T09:53:00Z41.25-70.072.82.214020262.529.849411010.9TRUETRUE-SN BRIFR0.01SPECI16.02019-02-21 10:02:40Sm)5    3KHIO 210953Z AUTO 00000KT 8SM CLR M02/M03 A3000 RMK AO2 SLP162 T10171028KHIO2019-02-21T09:53:00Z45.55-122.95-1.7-2.8008.030.01016.2TRUETRUEVFRSPECI68.02019-02-21 10:02:40 Y+:Y[t)5    3KHSI 210953Z AUTO 00000KT 10SM CLR M16/M18 A2999 RMK AO2 SLP191 T11561178KHSI2019-02-21T09:53:00Z40.6-98.43-15.6-17.80010.029.9911421019.1TRUETRUEVFRSPECI591.02019-02-21 10:02:40ks)15     3KHSV 210953Z AUTO 33006KT 2 1/2SM BR OVC003 10/10 A3006 RMK AO2 SLP178 T01000100 $KHSV2019-02-21T09:53:00Z34.65-86.7810.010.033062.530.0590551017.8TRUETRUETRUEBRLIFRSPECI191.02019-02-21 10:02:40fr)+5   3KHTL 210953Z AUTO 25012G19KT 10SM OVC024 M01/M05 A2978 RMK AO2 SLP101 T10111050KHTL2019-02-21T09:53:00Z44.35-84.67-1.1-5.0250121910.029.7785431010.1TRUETRUEMVFRSPECI351.02019-02-21 10:02:40cq)'5     3KAAF 210953Z AUTO 17005KT 1/4SM FG VV002 19/18 A3002 RMK AO2 SLP166 T01890183KAAF2019-02-21T09:53:00Z29.73-85.0318.918.317050.2530.020671016.6TRUETRUEFGLIFR200SPECI5.02019-02-21 10:02:40 D9Dox)K5     3KHOU 210953Z 04004KT 10SM OVC036 13/09 A2992 RMK AO2 LTG DSNT W RAB19E42 SLP137 P0001 T01330094KHOU2019-02-21T09:53:00Z29.63-95.2813.39.440410.029.9202751013.7TRUEVFR0.01SPECI36.02019-02-21 10:02:40Vw)5    3KHQM 210953Z AUTO 05005KT 9SM CLR 00/M01 A3006 RMK AO2 SLP181 T00001011KHQM2019-02-21T09:53:00Z46.97-123.930.0-1.15059.030.0590551018.1TRUETRUEVFRSPECI7.02019-02-21 10:02:40yv)O5     3KHRI 210953Z AUTO 25006KT 7SM BKN035 OVC055 M02/M04 A2999 RMK AO2 SNB09E40 SLP161 P0000 T10221044KHRI2019-02-21T09:53:00Z45.83-119.27-2.2-4.425067.029.9911421016.1TRUETRUEVFR0.005METAR195.02019-02-21 10:02:40fu)/5     3KHRO 210953Z AUTO 29003KT 4SM BR CLR M02/M03 A3006 RMK AO2 SLP185 I1000 T10221028KHRO2019-02-21T09:53:00Z36.27-93.15-2.2-2.829034.030.0590551018.5TRUETRUEBRMVFRSPECI417.02019-02-21 10:02:40 Z0;Z[|)5    3KHLC 210953Z AUTO 00000KT 10SM CLR M09/M11 A2995 RMK AO2 SLP165 T10891111KHLC2019-02-21T09:53:00Z39.37-99.83-8.9-11.10010.029.9498021016.5TRUETRUEVFRSPECI669.02019-02-21 10:02:40o{)K5   3KHLG 210953Z AUTO 26014G21KT 10SM OVC021 04/00 A3000 RMK AO2 PK WND 27026/0924 SLP169 T00390000KHLG2019-02-21T09:53:00Z40.17-80.653.90.0260142110.030.01016.9TRUETRUEMVFRMETAR372.02019-02-21 10:02:40bz)%5    3KHLN 210953Z AUTO 25007KT 10SM FEW050 M10/M13 A2993 RMK AO2 SLP205 T11001133KHLN2019-02-21T09:53:00Z46.6-111.98-10.0-13.3250710.029.9291341020.5TRUETRUEVFRSPECI1182.02019-02-21 10:02:40by)'5     3KHOT 210953Z AUTO 23003KT 1/2SM FG VV001 01/00 A3007 RMK AO2 SLP183 T00060000KHOT2019-02-21T09:53:00Z34.48-93.10.60.023030.530.0708661018.3TRUETRUEFGLIFR100SPECI162.02019-02-21 10:02:40 22])5    3KAIA 210953Z AUTO 00000KT 10SM CLR M17/M19 A2982 RMK AO2 SLP148 T11721189KAIA2019-02-21T09:53:00Z42.05-102.8-17.2-18.90010.029.8198811014.8TRUETRUEVFRMETAR1196.02019-02-21 10:02:40`)#5     3KHKA 210953Z AUTO 02005KT 4SM BR CLR 02/01 A3013 RMK AO2 SLP204 T00170006 $KHKA2019-02-21T09:53:00Z35.93-89.831.70.62054.030.1299211020.4TRUETRUETRUEBRMVFRSPECI78.02019-02-21 10:02:40~)e5     3KHKS 210953Z AUTO 14007KT 10SM BKN065 OVC085 10/09 A3006 RMK AO2 LTG DSNT SE RAB02E45 SLP175 P0013 T01000089KHKS2019-02-21T09:53:00Z32.33-90.2210.08.9140710.030.0590551017.5TRUETRUEVFR0.13SPECI108.02019-02-21 10:02:40w})O5     3KHKY 210953Z AUTO 00000KT 8SM OVC006 03/03 A3002 RMK AO2 UPE0855RAB14E30 SLP162 P0000 T00330033 $KHKY2019-02-21T09:53:00Z35.75-81.383.33.3008.030.020671016.2TRUETRUETRUEIFR0.005SPECI354.02019-02-21 10:02:40 ]#=]Z)35    3KAEX 210953Z 06004KT 10SM OVC065 10/07 A3000 RMK AO2 LTG DSNT E-SW SLP161 T01000072KAEX2019-02-21T09:53:00Z31.33-92.5710.07.260410.030.01016.1TRUEVFRMETAR27.02019-02-21 10:02:40`)35    3KAFW 210953Z 10004KT 10SM FEW160 SCT210 BKN300 07/02 A2997 RMK AO2 SLP149 T00720022KAFW2019-02-21T09:53:00Z32.97-97.327.22.2100410.029.9704721014.9TRUEVFRSPECI233.02019-02-21 10:02:40j)A5   3KAGC 210953Z 27009G20KT 10SM OVC020 04/02 A2997 RMK AO2 PK WND 27026/0930 SLP163 T00390017KAGC2019-02-21T09:53:00Z40.35-79.923.91.727092010.029.9704721016.3TRUEMVFRMETAR389.02019-02-21 10:02:40g)=5     3KAGS 210953Z AUTO 00000KT 2SM BR OVC005 08/08 A3008 RMK AO2 CIG 002V007 SLP187 T00830078KAGS2019-02-21T09:53:00Z33.37-81.978.37.8002.030.0797251018.7TRUETRUEBRIFRMETAR44.02019-02-21 10:02:40 q:Tq])%5    3KMTJ 210953Z AUTO 00000KT 10SM OVC070 M05/M08 A2965 RMK AO2 SLP052 T10501078KMTJ2019-02-21T09:53:00Z38.5-107.9-5.0-7.80010.029.6486231005.2TRUETRUEVFRMETAR1750.02019-02-21 10:02:40`)5    3KAKO 210953Z AUTO 11012KT 10SM CLR M08/M14 A2977 RMK AO2 SLP116 T10831144KAKO2019-02-21T09:53:00Z40.17-103.22-8.3-14.41101210.029.7696861011.6TRUETRUEVFRMETAR1421.02019-02-21 10:02:40T)5    3KACV 210953Z AUTO VRB04KT 10SM CLR 03/02 A2985 RMK AO2 SLP116 T00330017KACV2019-02-21T09:53:00Z40.98-124.13.31.70410.029.849411011.6TRUETRUEVFRSPECI67.02019-02-21 10:02:40f)-5     3KADG 210953Z AUTO 27008KT 10SM OVC031 01/M03 A2996 RMK AO2 SLP154 T00111033 TSNOKADG2019-02-21T09:53:00Z41.87-84.081.1-3.3270810.029.9586621015.4TRUETRUETRUEVFRSPECI241.02019-02-21 10:02:40  c )-5     3KMSP 210953Z 26007KT 6SM BR BKN017 OVC200 M13/M14 A2990 RMK AO2 SLP140 T11281139KMSP2019-02-21T09:53:00Z44.88-93.23-12.8-13.926076.029.8996071014.0TRUEBRMVFRMETAR265.02019-02-21 10:02:40 )5      3KMSS 210953Z AUTO 00000KT 2SM -FZRA BR FEW004 OVC009 M03/M04 A2975 RMK AO2 UPB07E10FZRAB42SNE07 SLP081 P0000 I1002 T10331039KMSS2019-02-21T09:53:00Z44.93-74.85-3.3-3.9002.029.7490161008.1TRUETRUE-FZRA BRIFR0.005METAR66.02019-02-21 10:02:40r )G5      3KMSY 210953Z 01003KT 1/2SM FG VV002 16/16 A2996 RMK AO2 RAB29E38 SLP148 P0000 T01610161 RVRNOKMSY2019-02-21T09:53:00Z30.0-90.2516.116.11030.529.9586621014.8TRUEFGLIFR0.005200METAR5.02019-02-21 10:02:40b )/5    3KMTH 210953Z AUTO 14007KT 10SM FEW021 SCT046 27/22 A3005 RMK AO2 SLP174 T02670217KMTH2019-02-21T09:53:00Z24.73-81.0526.721.7140710.030.0501981017.4TRUETRUEVFRMETAR2.02019-02-21 10:02:40 X;KXm)=5     3KMPO 210953Z AUTO 26009KT 1 1/2SM BR OVC002 M01/M01 A2984 RMK AO2 SLP130 I1001 T10061006KMPO2019-02-21T09:53:00Z41.13-75.38-0.6-0.626091.529.8405511013.0TRUETRUEBRLIFRMETAR577.02019-02-21 10:02:40j);5     3KMRB 210953Z AUTO 34004KT 1 1/2SM BR OVC002 00/M01 A2997 RMK AO2 SLP155 I1000 T00001006KMRB2019-02-21T09:53:00Z39.4-77.980.0-0.634041.529.9704721015.5TRUETRUEBRLIFRMETAR164.02019-02-21 10:02:40[)5    3KMSN 210953Z AUTO 24006KT 8SM CLR M07/M11 A2994 RMK AO2 SLP148 T10671106KMSN2019-02-21T09:53:00Z43.13-89.35-6.7-10.624068.029.9409451014.8TRUETRUEVFRSPECI261.02019-02-21 10:02:40^ )5    3KMSO 210953Z AUTO 31004KT 10SM CLR M13/M15 A2992 RMK AO2 SLP180 T11281150KMSO2019-02-21T09:53:00Z46.92-114.1-12.8-15.0310410.029.9202751018.0TRUETRUEVFRSPECI975.02019-02-21 10:02:40 H.IH{)Y5     3KMMK 210953Z AUTO VRB05KT 9SM SCT004 OVC013 M01/M02 A2990 RMK AO2 FZRAE03 SLP125 P0000 I1000 T10061017KMMK2019-02-21T09:53:00Z41.52-72.83-0.6-1.7059.029.8996071012.5TRUETRUEMVFR0.005METAR31.02019-02-21 10:02:40_))5    3KMMV 210953Z AUTO 36004KT 10SM CLR 00/M01 A2999 RMK AO2 SLP157 I1000 T00001011KMMV2019-02-21T09:53:00Z45.2-123.130.0-1.1360410.029.9911421015.7TRUETRUEVFRMETAR48.02019-02-21 10:02:40e)'5    3KMNN 210953Z AUTO 27011KT 10SM OVC026 02/M03 A3003 RMK AO2 SLP178 T00171028 $KMNN2019-02-21T09:53:00Z40.62-83.071.7-2.82701110.030.0295281017.8TRUETRUETRUEMVFRMETAR301.02019-02-21 10:02:40a)/5    3KMOD 210953Z AUTO 01004KT 10SM FEW050 SCT095 06/02 A2970 RMK AO2 SLP057 T00560017KMOD2019-02-21T09:53:00Z37.62-120.955.61.710410.029.6988181005.7TRUETRUEVFRMETAR29.02019-02-21 10:02:40 L":Lh)35    3KASE 210953Z AUTO 00000KT 10SM BKN060 OVC080 M13/M17 A2957 RMK AO2 SLP042 T11281167KASE2019-02-21T09:53:00Z39.23-106.87-12.8-16.70010.029.5688971004.2TRUETRUEVFRMETAR2354.02019-02-21 10:02:40b)%5    3KMLS 210953Z AUTO 22007KT 10SM OVC040 M18/M19 A2992 RMK AO2 SLP188 T11831194KMLS2019-02-21T09:53:00Z46.43-105.88-18.3-19.4220710.029.9202751018.8TRUETRUEVFRSPECI801.02019-02-21 10:02:40r)95      3KMLT 210953Z AUTO 00000KT 3/4SM -SN VV011 M08/M11 A3002 RMK AO2 SLP179 P0005 T10831111KMLT2019-02-21T09:53:00Z45.65-68.7-8.3-11.1000.7530.020671017.9TRUETRUE-SNLIFR0.051100METAR123.02019-02-21 10:02:40`)/5    3KMLU 210953Z AUTO 04004KT 10SM FEW085 OVC110 07/06 A3005 RMK AO2 SLP175 T00720061KMLU2019-02-21T09:53:00Z32.52-92.037.26.140410.030.0501981017.5TRUETRUEVFRMETAR29.02019-02-21 10:02:40 p/MpW)5    3KAPF 210953Z AUTO 09005KT 10SM CLR 21/20 A3006 RMK AO2 SLP176 T02110200KAPF2019-02-21T09:53:00Z26.15-81.7721.120.090510.030.0590551017.6TRUETRUEVFRMETAR3.02019-02-21 10:02:40\)!5    3KARA 210953Z AUTO 04008KT 10SM OVC003 13/12 A2996 RMK AO2 SLP143 T01280122KARA2019-02-21T09:53:00Z30.03-91.8812.812.240810.029.9586621014.3TRUETRUELIFRMETAR18.02019-02-21 10:02:40d)'5    3KARB 210953Z AUTO 23011KT 10SM OVC031 02/M03 A2992 RMK AO2 SLP139 T00171028 $KARB2019-02-21T09:53:00Z42.22-83.731.7-2.82301110.029.9202751013.9TRUETRUETRUEVFRMETAR251.02019-02-21 10:02:40a)#5     3KASD 210953Z AUTO 36005KT 1SM BR VV002 16/15 A2997 RMK AO2 SLP147 T01560150KASD2019-02-21T09:53:00Z30.35-89.8215.615.036051.029.9704721014.7TRUETRUEBRLIFR200METAR9.02019-02-21 10:02:40 i$9Qib )#5     3KAMW 210953Z AUTO 24006KT 4SM BR CLR M16/M17 A3004 RMK AO2 SLP186 T11561167KAMW2019-02-21T09:53:00Z41.98-93.62-15.6-16.724064.030.0413381018.6TRUETRUEBRMVFRMETAR279.02019-02-21 10:02:40b))5   3KAOH 210953Z AUTO 26012G20KT 10SM OVC026 02/M03 A3002 RMK AO2 SLP174 T00171028KAOH2019-02-21T09:53:00Z40.7-84.021.7-2.8260122010.030.020671017.4TRUETRUEMVFRSPECI296.02019-02-21 10:02:40e)15    3KAOO 210953Z AUTO 00000KT 7SM OVC015 01/M01 A2991 RMK AO2 SLP146 I1000 T00061006 $KAOO2019-02-21T09:53:00Z40.3-78.320.6-0.6007.029.9114171014.6TRUETRUETRUEMVFRMETAR455.02019-02-21 10:02:40V)5    3KAPA 210953Z 29005KT 10SM CLR M08/M14 A2970 RMK AO2 SLP100 T10831144KAPA2019-02-21T09:53:00Z39.57-104.85-8.3-14.4290510.029.6988181010.0TRUEVFRSPECI1775.02019-02-21 10:02:40 E *%EZ$)!5    3KALI 210953Z AUTO 05007KT 10SM OVC035 14/07 A2990 RMK AO2 SLP122 T01390067KALI2019-02-21T09:53:00Z27.73-98.0213.96.750710.029.8996071012.2TRUETRUEVFRSPECI53.02019-02-21 10:02:40#)S5      3KALW 210953Z AUTO 16003KT 1 1/2SM -SN BR BKN017 OVC028 M03/M04 A2996 RMK AO2 SLP161 P0002 T10281044KALW2019-02-21T09:53:00Z46.1-118.28-2.8-4.416031.529.9586621016.1TRUETRUE-SN BRIFR0.02SPECI363.02019-02-21 10:02:40]")5    3KAMA 210953Z AUTO 18013KT 10SM CLR 04/M08 A2979 RMK AO2 SLP075 T00391083KAMA2019-02-21T09:53:00Z35.22-101.723.9-8.31801310.029.7903541007.5TRUETRUEVFRMETAR1093.02019-02-21 10:02:40m!)95     3KAMG 210953Z AUTO 17008KT 1 1/2SM BR OVC002 19/19 A3004 RMK AO2 SLP172 T01940189 PNO $KAMG2019-02-21T09:53:00Z31.53-82.519.418.917081.530.0413381017.2TRUETRUETRUEBRLIFRMETAR59.02019-02-21 10:02:40 6 6b()'5     3KNEW 210953Z AUTO 00000KT 1/4SM FG VV002 16/16 A2997 RMK AO2 SLP140 T01610156KNEW2019-02-21T09:53:00Z30.05-90.0316.115.6000.2529.9704721014.0TRUETRUEFGLIFR200METAR3.02019-02-21 10:02:40Z')5    3KODO 210953Z AUTO 18008KT 10SM CLR 08/M04 A2983 RMK AO2 SLP079 T00831039KODO2019-02-21T09:53:00Z31.92-102.48.3-3.9180810.029.8287411007.9TRUETRUEVFRSPECI902.02019-02-21 10:02:40&)5     3KMVY 210953Z AUTO 16009G17KT 3SM -RA BR OVC006 02/02 A2984 RMK AO2 PK WND 15027/0859 RAB01E31B52SNE01B31E52 SLP104 P0001 T00220022KMVY2019-02-21T09:53:00Z41.4-70.622.22.21609173.029.8405511010.4TRUETRUE-RA BRIFR0.01METAR16.02019-02-21 10:02:40Z%)5    3KMTO 210953Z AUTO 28009KT 10SM CLR 00/M02 A3008 RMK AO2 SLP191 T00001017KMTO2019-02-21T09:53:00Z39.47-88.270.0-1.7280910.030.0797251019.1TRUETRUEVFRMETAR214.02019-02-21 10:02:40 P"7Pa,)'5     3KOGB 210953Z AUTO 00000KT 3/4SM BR VV003 07/07 A3009 RMK AO2 SLP188 T00720067KOGB2019-02-21T09:53:00Z33.47-80.857.26.7000.7530.0885831018.8TRUETRUEBRLIFR300METAR59.02019-02-21 10:02:40X+)5    3KMWL 210953Z AUTO 12006KT 10SM CLR 04/02 A2994 RMK AO2 SLP135 T00440017KMWL2019-02-21T09:53:00Z32.78-98.074.41.7120610.029.9409451013.5TRUETRUEVFRMETAR284.02019-02-21 10:02:40*)k5      3KMYF 210953Z AUTO 26007KT 9SM -RA FEW030 SCT048 BKN060 09/05 A2972 RMK AO2 RAB0855E05B41 SLP062 P0001 T00940050KMYF2019-02-21T09:53:00Z32.82-117.139.45.026079.029.7194881006.2TRUETRUE-RAVFR0.01SPECI136.02019-02-21 10:02:40X))!5    3KMYV 210953Z AUTO 00000KT 10SM FEW049 05/02 A2974 RMK AO2 SLP074 T00500022KMYV2019-02-21T09:53:00Z39.1-121.575.02.20010.029.7401581007.4TRUETRUEVFRSPECI21.02019-02-21 10:02:40 B&$B\0)5    3KPUB 210953Z AUTO 00000KT 10SM CLR M09/M12 A2972 RMK AO2 SLP086 T10891122KPUB2019-02-21T09:53:00Z38.28-104.5-8.9-12.20010.029.7194881008.6TRUETRUEVFRMETAR1420.02019-02-21 10:02:40|/)Q5     3KPUC 210953Z AUTO 00000KT 10SM SCT032 BKN047 M11/M11 A2959 RMK AO2 SNB30E38 SLP084 P0000 T11061111KPUC2019-02-21T09:53:00Z39.62-110.75-10.6-11.10010.029.5895671008.4TRUETRUEVFR0.005METAR2091.02019-02-21 10:02:40r.);5     3KPUW 210953Z AUTO 32003KT 1/2SM FZFG VV003 M07/M08 A2989 RMK AO2 SLP154 I1001 T10671078KPUW2019-02-21T09:53:00Z46.75-117.12-6.7-7.832030.529.8907471015.4TRUETRUEFZFGLIFR300SPECI773.02019-02-21 10:02:40\-)5    3KODX 210953Z AUTO 31005KT 8SM CLR M21/M25 A2995 RMK AO2 SLP185 T12111250KODX2019-02-21T09:53:00Z41.62-98.95-21.1-25.031058.029.9498021018.5TRUETRUEVFRSPECI631.02019-02-21 10:02:40 _,F_a4))5    3KATY 210953Z AUTO 24008KT 9SM CLR M19/M22 A2988 RMK AO2 SLP160 I1000 T11891217KATY2019-02-21T09:53:00Z44.9-97.15-18.9-21.724089.029.8789371016.0TRUETRUEVFRMETAR532.02019-02-21 10:02:40`3)%5    3KASX 210953Z AUTO 24009KT 10SM OVC012 M06/M07 A2978 RMK AO2 SLP097 T10561072KASX2019-02-21T09:53:00Z46.55-90.92-5.6-7.2240910.029.7785431009.7TRUETRUEMVFRSPECI251.02019-02-21 10:02:40g2)75     3KOJC 210953Z AUTO 00000KT 2 1/2SM BR CLR M06/M06 A3007 RMK AO2 SLP192 I1001 T10561056KOJC2019-02-21T09:53:00Z38.85-94.73-5.6-5.6002.530.0708661019.2TRUETRUEBRIFRMETAR326.02019-02-21 10:02:40a1)%5    3KOGD 210953Z AUTO 21004KT 10SM SCT095 M07/M12 A2963 RMK AO2 SLP058 T10721122KOGD2019-02-21T09:53:00Z41.2-112.02-7.2-12.2210410.029.6309051005.8TRUETRUEVFRSPECI1353.02019-02-21 10:02:40 W1@Wc8))5   3KAZO 210953Z AUTO 25013G20KT 10SM OVC032 01/M05 A2996 RMK AO2 SLP154 T00061050KAZO2019-02-21T09:53:00Z42.23-85.550.6-5.0250132010.029.9586621015.4TRUETRUEVFRSPECI272.02019-02-21 10:02:40k7)=5    3KAXN 210953Z AUTO 27007KT 8SM BKN005 OVC010 M10/M13 A2983 RMK AO2 SLP128 I1000 T11001133KAXN2019-02-21T09:53:00Z45.87-95.4-10.0-13.327078.029.8287411012.8TRUETRUEIFRSPECI433.02019-02-21 10:02:40P6)5    3KAUS 210953Z 00000KT 10SM OVC065 08/06 A2995 RMK AO2 SLP140 T00830056KAUS2019-02-21T09:53:00Z30.18-97.688.35.60010.029.9498021014.0TRUEVFRSPECI166.02019-02-21 10:02:40s5)?5      3KAUG 210953Z AUTO 00000KT 3/4SM -SN BR VV011 M06/M07 A3000 RMK AO2 SLP165 P0007 T10611072KAUG2019-02-21T09:53:00Z44.32-69.8-6.1-7.2000.7530.01016.5TRUETRUE-SN BRLIFR0.071100SPECI109.02019-02-21 10:02:40 ##l<)G5    3KBFD 210953Z AUTO 27009KT 10SM BKN005 OVC011 02/01 A2985 RMK AO2 CIG 002V008 SLP128 T00170006KBFD2019-02-21T09:53:00Z41.8-78.631.70.6270910.029.849411012.8TRUETRUEIFRSPECI647.02019-02-21 10:02:40|;)E5      3KBCE 210953Z AUTO 14005KT 1 1/4SM -SN BR OVC022 M09/M11 A2950 RMK AO2 SLP004 P0000 T10941106KBCE2019-02-21T09:53:00Z37.7-112.15-9.4-10.614051.2529.5009841000.4TRUETRUE-SN BRIFR0.005SPECI2312.02019-02-21 10:02:40d:)+5    3KBBW 210953Z AUTO 15003KT 10SM CLR M19/M22 A2992 RMK AO2 SLP177 I1000 T11941217KBBW2019-02-21T09:53:00Z41.43-99.63-19.4-21.7150310.029.9202751017.7TRUETRUEVFRSPECI776.02019-02-21 10:02:40y9)I5      3KBAF 210953Z AUTO 01007KT 6SM SN BR SCT006 OVC011 M04/M05 A2992 RMK AO2 SLP139 P0000 T10391050KBAF2019-02-21T09:53:00Z42.17-72.72-3.9-5.01076.029.9202751013.9TRUETRUESN BRMVFR0.005METAR83.02019-02-21 10:02:40 i=Ki\@)!5    3KBGM 210953Z AUTO 21007KT 8SM OVC003 00/M01 A2982 RMK AO2 SLP116 T00001006KBGM2019-02-21T09:53:00Z42.22-75.980.0-0.621078.029.8198811011.6TRUETRUELIFRSPECI490.02019-02-21 10:02:40l?)=5      3KBFM 210953Z 00000KT 1/2SM -RA FG VV002 19/19 A3000 RMK AO2 RAB42 SLP158 P0001 T01890189KBFM2019-02-21T09:53:00Z30.62-88.0718.918.9000.530.01015.8TRUE-RA FGLIFR0.01200SPECI20.02019-02-21 10:02:40X>)%5    3KBFI 210953Z 04004KT 10SM BKN023 BKN029 04/00 A3005 RMK AO2 SLP174 T00440000KBFI2019-02-21T09:53:00Z47.55-122.324.40.040410.030.0501981017.4TRUEMVFRMETAR4.02019-02-21 10:02:40_=)5    3KBFF 210953Z AUTO 03003KT 10SM CLR M13/M15 A2983 RMK AO2 SLP141 T11281150KBFF2019-02-21T09:53:00Z41.87-103.58-12.8-15.030310.029.8287411014.1TRUETRUEVFRSPECI1203.02019-02-21 10:02:40 tC)M5   3KBIV 210953Z AUTO 26017G28KT 10SM BKN035 00/M05 A2994 RMK AO2 PK WND 25032/0900 SLP146 T00001050KBIV2019-02-21T09:53:00Z42.75-86.10.0-5.0260172810.029.9409451014.6TRUETRUEVFRSPECI208.02019-02-21 10:02:40B)o5      3KBGR 210953Z 12003KT 1/2SM R15/4000V6000FT SN FZFG VV007 M07/M08 A3003 RMK AO2 SLP173 SNINCR 2/11 P0011 T10671078KBGR2019-02-21T09:53:00Z44.8-68.82-6.7-7.812030.530.0295281017.3TRUESN FZFGLIFR0.1111.0700SPECI57.02019-02-21 10:02:40A)5      3KBHM 210953Z 00000KT 10SM -TSRA BKN004 OVC008CB 13/13 A3004 RMK AO2 LTG DSNT ALQDS SLP171 OCNL LTG ALQDS TS ALQDS MOV NE P0012 T01330128KBHM2019-02-21T09:53:00Z33.57-86.7513.312.80010.030.0413381017.1TRUE-TSRALIFR0.12SPECI197.02019-02-21 10:02:40Y898@HPX`hpx (08@HPX`hpx (08@HPX`hpxߡ4࡯8ᡯ<⡯@㡯D䡯H塯L桯P硯T衯X顯\ꡯ`ߡ4࡯8ᡯ<⡯@㡯D䡯H塯L桯P硯T衯X顯\ꡯ`롯d졯hlpt𡯸x񡯸|򡯹󡯹  $(,048<@CGKOS W [ _ c gkosw{ #'+/ 3!6":#=$A%E&I'M(Q)U*Y+],a-e.i/m0q1u2x3|4567 8 y0RySG)5    3KFFT 210953Z AUTO 00000KT 8SM CLR 01/00 A3009 RMK AO2 SLP191 T00110000KFFT2019-02-21T09:53:00Z38.18-84.91.10.0008.030.0885831019.1TRUETRUEVFRMETAR236.02019-02-21 10:02:40XF)5    3KFHR 210953Z AUTO 35006KT 10SM CLR 04/01 A3009 RMK AO2 SLP191 T00440006KFHR2019-02-21T09:53:00Z48.52-123.034.40.6350610.030.0885831019.1TRUETRUEVFRMETAR32.02019-02-21 10:02:40cE)%5   3KFLD 210953Z AUTO 24012G19KT 10SM CLR M06/M11 A2990 RMK AO2 SLP135 T10611106KFLD2019-02-21T09:53:00Z43.77-88.48-6.1-10.6240121910.029.8996071013.5TRUETRUEVFRMETAR240.02019-02-21 10:02:40aD)35    3KFLL 210953Z 14012KT 10SM SCT024 BKN040 BKN050 25/23 A3007 RMK AO2 SLP182 T02500228KFLL2019-02-21T09:53:00Z26.07-80.1525.022.81401210.030.0708661018.2TRUEVFRMETAR3.02019-02-21 10:02:40 c%Ec\K)5    3KFCM 210953Z AUTO 25006KT 7SM CLR M13/M16 A2989 RMK AO2 SLP136 T11331156KFCM2019-02-21T09:53:00Z44.83-93.47-13.3-15.625067.029.8907471013.6TRUETRUEVFRSPECI280.02019-02-21 10:02:40ZJ)5    3KFDR 210953Z AUTO 10007KT 10SM CLR 03/M01 A2991 RMK AO2 SLP125 T00281011KFDR2019-02-21T09:53:00Z34.35-98.982.8-1.1100710.029.9114171012.5TRUETRUEVFRMETAR386.02019-02-21 10:02:40ZI)#5    3KFDY 210953Z AUTO 25014KT 10SM OVC028 02/M02 A3000 RMK AO2 SLP162 T00221017KFDY2019-02-21T09:53:00Z41.02-83.672.2-1.72501410.030.01016.2TRUETRUEMVFRSPECI247.02019-02-21 10:02:40uH)E5      3KFFC 210953Z AUTO 12003KT 3/4SM BR OVC002 08/08 A3005 RMK AO2 RAE0856 SLP180 P0000 T00830078KFFC2019-02-21T09:53:00Z33.35-84.578.37.812030.7530.0501981018.0TRUETRUEBRLIFR0.005METAR262.02019-02-21 10:02:40 g'BEgXO)5    3KEYW 210953Z AUTO 13009KT 10SM CLR 26/22 A3004 RMK AO2 SLP173 T02560222KEYW2019-02-21T09:53:00Z24.55-81.7525.622.2130910.030.0413381017.3TRUETRUEVFRMETAR5.02019-02-21 10:02:40wN)G5      3KFAR 210953Z 31008KT 2 1/2SM -SN BR OVC050 M09/M11 A2988 RMK AO2 SNB03 SLP135 P0000 T10941106KFAR2019-02-21T09:53:00Z46.93-96.82-9.4-10.631082.529.8789371013.5TRUE-SN BRIFR0.005METAR277.02019-02-21 10:02:40_M)35    3KFAT 210953Z 00000KT 10SM FEW010 BKN045 OVC060 06/03 A2968 RMK AO2 SLP051 T00560033KFAT2019-02-21T09:53:00Z36.78-119.725.63.30010.029.6811031005.1TRUEVFRSPECI104.02019-02-21 10:02:40SL)5     3KFAY 210953Z VRB03KT 2SM BR OVC003 05/05 A3007 RMK AO2 SLP177 T00500050KFAY2019-02-21T09:53:00Z34.98-78.885.05.0032.030.0708661017.7TRUEBRLIFRMETAR55.02019-02-21 10:02:40 I!.I_S)5    3KBNO 210953Z AUTO 32013KT 10SM CLR M07/M11 A2972 RMK AO2 SLP090 T10721106KBNO2019-02-21T09:53:00Z43.6-118.95-7.2-10.63201310.029.7194881009.0TRUETRUEVFRSPECI1264.02019-02-21 10:02:40bR)%5    3KEVW 210953Z AUTO 08007KT 10SM OVC065 M16/M18 A2957 RMK AO2 SLP079 T11561178KEVW2019-02-21T09:53:00Z41.27-111.03-15.6-17.880710.029.5688971007.9TRUETRUEVFRMETAR2177.02019-02-21 10:02:40Q)e5      3KEWB 210953Z AUTO 11005KT 3SM UP BR OVC004 01/01 A2986 RMK AO2 RAE01B26E40UPB01E26B40 SLP112 P0001 T00110011KEWB2019-02-21T09:53:00Z41.68-70.951.11.111053.029.8612211011.2TRUETRUEBR UPLIFR0.01SPECI23.02019-02-21 10:02:40YP)5    3KEYE 210953Z AUTO 27004KT 10SM CLR 00/M03 A3007 RMK AO2 SLP188 T00001033KEYE2019-02-21T09:53:00Z39.83-86.30.0-3.3270410.030.0708661018.8TRUETRUEVFRSPECI248.02019-02-21 10:02:40 *IjYW)5    3KBKV 210953Z AUTO 13006KT 10SM CLR 20/18 A3008 RMK AO2 SLP185 T02000183KBKV2019-02-21T09:53:00Z28.47-82.4520.018.3130610.030.0797251018.5TRUETRUEVFRMETAR20.02019-02-21 10:02:40YV)5    3KBLI 210953Z AUTO 33005KT 10SM CLR 00/M04 A3008 RMK AO2 SLP197 T00001039KBLI2019-02-21T09:53:00Z48.8-122.530.0-3.9330510.030.0797251019.7TRUETRUEVFRSPECI50.02019-02-21 10:02:40[U)!5    3KBMQ 210953Z AUTO 14003KT 10SM FEW065 08/01 A2995 RMK AO2 SLP138 T00830011KBMQ2019-02-21T09:53:00Z30.73-98.238.31.1140310.029.9498021013.8TRUETRUEVFRSPECI389.02019-02-21 10:02:40PT)5    3KBNA 210953Z 00000KT 10SM SCT017 07/03 A3012 RMK AO2 SLP197 T00670033KBNA2019-02-21T09:53:00Z36.12-86.686.73.30010.030.1210631019.7TRUEVFRMETAR210.02019-02-21 10:02:40 E #EX[)5    3KFMY 210953Z AUTO 12006KT 10SM CLR 21/19 A3006 RMK AO2 SLP180 T02060194KFMY2019-02-21T09:53:00Z26.58-81.8720.619.4120610.030.0590551018.0TRUETRUEVFRMETAR4.02019-02-21 10:02:40uZ)M5   3KFNT 210953Z AUTO 26017G24KT 10SM OVC038 02/M04 A2988 RMK AO2 PK WND 27028/0857 SLP127 T00171044KFNT2019-02-21T09:53:00Z42.97-83.751.7-4.4260172410.029.8789371012.7TRUETRUEVFRMETAR233.02019-02-21 10:02:40hY))5    3KBKE 210953Z AUTO 25003KT 10SM OVC021 M04/M07 A2979 RMK AO2 SLP110 T10391067 $KBKE2019-02-21T09:53:00Z44.85-117.82-3.9-6.7250310.029.7903541011.0TRUETRUETRUEMVFRMETAR1024.02019-02-21 10:02:40nX)A5    3KBKL 210953Z 24015KT 10SM OVC024 02/M02 A2999 RMK AO2 PK WND 25026/0934 SLP160 T00221017 $KBKL2019-02-21T09:53:00Z41.53-81.672.2-1.72401510.029.9911421016.0TRUETRUEMVFRSPECI184.02019-02-21 10:02:40 h+6hH_)5    3KFOZ 210953Z AUTO 00000KT 10SM OVC060 M11/M12 A2982 RMK AO2KFOZ2019-02-21T09:53:00Z47.77-93.65-11.0-12.00010.029.819881TRUETRUEVFRSPECI411.02019-02-21 10:02:40o^)?5     3KFOE 210953Z AUTO 00000KT 3/4SM BR CLR M10/M11 A3006 RMK AO2 SLP190 I1000 T11001111 RVRNOKFOE2019-02-21T09:53:00Z38.93-95.65-10.0-11.1000.7530.0590551019.0TRUETRUEBRLIFRMETAR320.02019-02-21 10:02:40b])-5     3KFLO 210953Z AUTO 14003KT 1 1/2SM BR OVC003 06/06 A3009 RMK AO2 SLP188 T00610061KFLO2019-02-21T09:53:00Z34.18-79.736.16.114031.530.0885831018.8TRUETRUEBRLIFRMETAR44.02019-02-21 10:02:40g\)35    3KFMN 210953Z AUTO 09009KT 10SM SCT090 BKN110 M03/M07 A2965 RMK AO2 SLP062 T10331067KFMN2019-02-21T09:53:00Z36.75-108.23-3.3-6.790910.029.6486231006.2TRUETRUEVFRSPECI1685.02019-02-21 10:02:40 < 89<wc)S5      3KFTY 210953Z 00000KT 3SM -RA BR OVC005 07/07 A3005 RMK AO2 LTG DSNT N AND NW SLP177 P0009 T00670067KFTY2019-02-21T09:53:00Z33.78-84.526.76.7003.030.0501981017.7TRUE-RA BRIFR0.09METAR263.02019-02-21 10:02:40yb)Q5      3KFUL 210953Z AUTO 00000KT 10SM -RA FEW040 SCT049 BKN060 09/06 A2965 RMK AO2 SLP039 P0000 T00890061KFUL2019-02-21T09:53:00Z33.87-117.988.96.10010.029.6486231003.9TRUETRUE-RAVFR0.005METAR35.02019-02-21 10:02:40Na)5    3KFTW 210953Z 11004KT 10SM CLR 06/03 A2998 RMK AO2 SLP152 T00560028KFTW2019-02-21T09:53:00Z32.83-97.375.62.8110410.029.979331015.2TRUEVFRSPECI214.02019-02-21 10:02:40n`);5     3KFOK 210953Z AUTO 33008KT 8SM OVC004 03/02 A2985 RMK AO2 RAE38 SLP109 P0001 T00330022 $KFOK2019-02-21T09:53:00Z40.85-72.623.32.233088.029.849411010.9TRUETRUETRUELIFR0.01SPECI33.02019-02-21 10:02:40 "wg)C5      3KFVE 210953Z AUTO 10006KT 5SM -SN OVC032 M13/M19 A2995 RMK AO2 SNB49 SLP161 P0000 T11281189KFVE2019-02-21T09:53:00Z47.28-68.3-12.8-18.910065.029.9498021016.1TRUETRUE-SNMVFR0.005METAR301.02019-02-21 10:02:40f)[5      3KDHN 210953Z AUTO 19005KT 4SM BR OVC005 22/20 A3006 RMK AO2 RAB12E36 CIG 003V008 SLP175 P0000 T02170200KDHN2019-02-21T09:53:00Z31.32-85.4521.720.019054.030.0590551017.5TRUETRUEBRIFR0.005METAR113.02019-02-21 10:02:40]e)5    3KDHT 210953Z AUTO 00000KT 10SM CLR M04/M12 A2977 RMK AO2 SLP081 T10391117KDHT2019-02-21T09:53:00Z36.02-102.55-3.9-11.70010.029.7696861008.1TRUETRUEVFRMETAR1217.02019-02-21 10:02:40ud)M5   3KDKK 210953Z AUTO 24017G25KT 10SM OVC026 02/M01 A2991 RMK AO2 PK WND 25029/0928 SLP134 T00221006KDKK2019-02-21T09:53:00Z42.5-79.282.2-0.6240172510.029.9114171013.4TRUETRUEMVFRSPECI202.02019-02-21 10:02:40 d5Pdfk)/5      3KDNL 210953Z AUTO 00000KT 2SM BR OVC002 08/07 A3008 RMK AO2 SLP184 T00780067 TSNOKDNL2019-02-21T09:53:00Z33.47-82.037.86.7002.030.0797251018.4TRUETRUETRUEBRLIFRMETAR130.02019-02-21 10:02:40_j)5    3KDMN 210953Z AUTO 30004KT 10SM CLR M06/M17 A2976 RMK AO2 SLP066 T10561167KDMN2019-02-21T09:53:00Z32.27-107.72-5.6-16.7300410.029.7608261006.6TRUETRUEVFRSPECI1311.02019-02-21 10:02:40`i))5     3KDLS 210953Z AUTO 00000KT 6SM BR OVC060 M01/M03 A3004 RMK AO2 SLP175 T10061028KDLS2019-02-21T09:53:00Z45.62-121.17-0.6-2.8006.030.0413381017.5TRUETRUEBRVFRSPECI71.02019-02-21 10:02:40_h)5    3KDLN 210953Z AUTO 08004KT 10SM CLR M16/M17 A2979 RMK AO2 SLP156 T11561167KDLN2019-02-21T09:53:00Z45.25-112.55-15.6-16.780410.029.7903541015.6TRUETRUEVFRSPECI1591.02019-02-21 10:02:40 ["A[`o)'5     3KDTS 210953Z AUTO 00000KT 1/2SM FG VV002 19/19 A3001 RMK AO2 SLP162 T01940189KDTS2019-02-21T09:53:00Z30.4-86.4719.418.9000.530.0088581016.2TRUETRUEFGLIFR200METAR5.02019-02-21 10:02:40[n)5    3KDTW 210953Z 25011KT 10SM OVC035 02/M03 A2993 RMK AO2 SLP142 T00221033 $KDTW2019-02-21T09:53:00Z42.23-83.332.2-3.32501110.029.9291341014.2TRUETRUEVFRSPECI195.02019-02-21 10:02:40Ym)5    3KDRT 210953Z AUTO 11006KT 10SM CLR 08/02 A2987 RMK AO2 SLP108 T00830017KDRT2019-02-21T09:53:00Z29.37-100.928.31.7110610.029.8700791010.8TRUETRUEVFRSPECI313.02019-02-21 10:02:40yl)E5      3KDRO 210953Z AUTO 09006KT 1 1/2SM -SN BR OVC014 M08/M08 A2966 RMK AO2 SLP097 P0002 T10781083KDRO2019-02-21T09:53:00Z37.15-107.77-7.8-8.39061.529.6604331009.7TRUETRUE-SN BRIFR0.02SPECI2035.02019-02-21 10:02:40 v'H`vds)15    3KDVT 210953Z AUTO 15005KT 10SM BKN055 OVC070 09/M04 A2971 RMK AO2 SLP052 T00891044KDVT2019-02-21T09:53:00Z33.68-112.078.9-4.4150510.029.710631005.2TRUETRUEVFRSPECI443.02019-02-21 10:02:40br)%5    3KDUJ 210953Z AUTO 27014KT 10SM OVC023 02/00 A2989 RMK AO2 SLP137 T00220000 $KDUJ2019-02-21T09:53:00Z41.17-78.92.20.02701410.029.8907471013.7TRUETRUETRUEMVFRSPECI554.02019-02-21 10:02:40Yq)!5    3KDTN 210953Z AUTO 04004KT 10SM SCT095 06/04 A3005 RMK AO2 SLP176 T00560039KDTN2019-02-21T09:53:00Z32.55-93.755.63.940410.030.0501981017.6TRUETRUEVFRMETAR53.02019-02-21 10:02:40Sp)5    3KDTO 210953Z AUTO 00000KT 10SM CLR 06/02 A2998 RMK AO2 SLP152 T00560022KDTO2019-02-21T09:53:00Z33.2-97.25.62.20010.029.979331015.2TRUETRUEVFRSPECI196.02019-02-21 10:02:40  gw)35    3KEEO 210953Z AUTO 00000KT 10SM BKN065 OVC080 M08/M12 A2961 RMK AO2 SLP061 T10831122KEEO2019-02-21T09:53:00Z40.05-107.88-8.3-12.20010.029.6102371006.1TRUETRUEVFRMETAR1930.02019-02-21 10:02:40iv)35     3KECP 210953Z AUTO 14006KT 3/4SM BR VV002 21/21 A3002 RMK AO2 SLP176 T02110206 RVRNOKECP2019-02-21T09:53:00Z30.35-85.821.120.614060.7530.020671017.6TRUETRUEBRLIFR200METAR21.02019-02-21 10:02:40eu)15    3KDXR 210953Z AUTO 00000KT 7SM OVC005 00/M01 A2989 RMK AO2 SLP126 I1000 T00001011 $KDXR2019-02-21T09:53:00Z41.37-73.480.0-1.1007.029.8907471012.6TRUETRUETRUEIFRMETAR139.02019-02-21 10:02:40t)5      3KDWH 210953Z AUTO 03009KT 10SM -RA FEW036 OVC055 11/09 A2994 RMK AO2 LTG DSNT SW RAB27 TSB19E36 PRESFR SLP137 P0022 T01060089KDWH2019-02-21T09:53:00Z30.07-95.5510.68.930910.029.9409451013.7TRUETRUE-RAVFR0.22SPECI46.02019-02-21 10:02:40 g?Pgc{)/5     3KEMP 210953Z AUTO 00000KT 3SM BR CLR M07/M08 A3005 RMK AO2 SLP190 I1000 T10721083KEMP2019-02-21T09:53:00Z38.33-96.2-7.2-8.3003.030.0501981019.0TRUETRUEBRMVFRSPECI367.02019-02-21 10:02:40iz)55     3KELN 210953Z AUTO VRB03KT 5SM HZ FEW065 M08/M12 A2996 RMK AO2 SLP164 I1000 T10781117KELN2019-02-21T09:53:00Z47.03-120.53-7.8-11.7035.029.9586621016.4TRUETRUEHZMVFRSPECI519.02019-02-21 10:02:40Zy)#5    3KELM 210953Z AUTO 00000KT 10SM OVC015 02/M01 A2985 RMK AO2 SLP116 T00171006KELM2019-02-21T09:53:00Z42.15-76.91.7-0.60010.029.849411011.6TRUETRUEMVFRSPECI302.02019-02-21 10:02:40[x)'5    3KELD 210953Z AUTO 00000KT 10SM CLR 01/01 A3007 RMK AO2 SLP181 I1001 T00060006KELD2019-02-21T09:53:00Z33.22-92.820.60.60010.030.0708661018.1TRUETRUEVFRMETAR81.02019-02-21 10:02:40 L#?Lm)K5    3KESF 210953Z AUTO 06003KT 10SM BKN065 OVC095 10/09 A3002 RMK AO2 LTG DSNT E-SW SLP163 T01000089KESF2019-02-21T09:53:00Z31.4-92.2810.08.960310.030.020671016.3TRUETRUEVFRMETAR28.02019-02-21 10:02:40^~)%5    3KEPH 210953Z AUTO 00000KT 10SM BKN060 M09/M12 A2996 RMK AO2 SLP164 T10941122KEPH2019-02-21T09:53:00Z47.3-119.52-9.4-12.20010.029.9586621016.4TRUETRUEVFRMETAR383.02019-02-21 10:02:40_})%5     3KEQY 210953Z AUTO 27005KT 1SM BR OVC002 03/02 A3007 RMK AO2 SLP203 T00330022KEQY2019-02-21T09:53:00Z35.02-80.623.32.227051.030.0708661020.3TRUETRUEBRLIFRMETAR212.02019-02-21 10:02:40r|)E5    3KENW 210953Z AUTO 26014KT 9SM CLR M03/M08 A2996 RMK AO2 PK WND 26026/0858 SLP153 T10331078 $KENW2019-02-21T09:53:00Z42.6-87.93-3.3-7.8260149.029.9586621015.3TRUETRUETRUEVFRMETAR219.02019-02-21 10:02:40 W?UWx)Q5     3KHVR 210953Z AUTO 36004KT 6SM BR SCT027 SCT038 OVC075 M13/M14 A3002 RMK AO2 SLP221 I1000 T11281139KHVR2019-02-21T09:53:00Z48.55-109.77-12.8-13.936046.030.020671022.1TRUETRUEBRVFRMETAR787.02019-02-21 10:02:40d)75    3KFRG 210953Z AUTO 35006KT 7SM OVC005 01/01 A2987 RMK AO2 CIG 004V008 SLP115 T00110006KFRG2019-02-21T09:53:00Z40.73-73.421.10.635067.029.8700791011.5TRUETRUEIFRSPECI21.02019-02-21 10:02:40T)5    3KFSM 210953Z AUTO 00000KT 9SM CLR 02/01 A3008 RMK AO2 SLP185 T00220006KFSM2019-02-21T09:53:00Z35.33-94.372.20.6009.030.0797251018.5TRUETRUEVFRMETAR140.02019-02-21 10:02:40a)#5   3KFST 210953Z AUTO 15010G19KT 10SM CLR 08/M02 A2980 RMK AO2 SLP062 T00831017KFST2019-02-21T09:53:00Z30.92-102.928.3-1.7150101910.029.7992131006.2TRUETRUEVFRMETAR918.02019-02-21 10:02:40 &"-(&|)[5   3KHZY 210953Z AUTO 27015G27KT 10SM BKN020 OVC025 02/M01 A2997 RMK AO2 PK WND 27027/0950 SLP156 T00221011KHZY2019-02-21T09:53:00Z41.78-80.72.2-1.1270152710.029.9704721015.6TRUETRUEMVFRMETAR276.02019-02-21 10:02:40)U5      3KHYR 210953Z AUTO VRB05KT 2SM -SN BR OVC009 M06/M07 A2978 RMK AO2 CIG 007V012 SLP103 P0000 T10561067KHYR2019-02-21T09:53:00Z46.02-91.45-5.6-6.7052.029.7785431010.3TRUETRUE-SN BRIFR0.005METAR370.02019-02-21 10:02:40o)?5     3KHWO 210953Z AUTO 13010KT 10SM SCT038 24/21 A3009 RMK AO2 RAB10E24 SLP188 P0000 T02440206KHWO2019-02-21T09:53:00Z26.0-80.2324.420.61301010.030.0885831018.8TRUETRUEVFR0.005SPECI2.02019-02-21 10:02:40X)5    3KHVN 210953Z AUTO 35008KT 7SM OVC010 02/00 A2987 RMK AO2 SLP114 T00170000KHVN2019-02-21T09:53:00Z41.27-72.871.70.035087.029.8700791011.4TRUETRUEMVFRMETAR4.02019-02-21 10:02:40 B#$B\ )5    3KICT 210953Z 10007KT 10SM SCT220 M02/M07 A3001 RMK AO2 SLP171 T10171067 $KICT2019-02-21T09:53:00Z37.65-97.43-1.7-6.7100710.030.0088581017.1TRUETRUEVFRSPECI407.02019-02-21 10:02:40y )i5    3KIAH 210953Z 01008KT 10SM OVC050 12/08 A2994 RMK AO2 SLP138 OCNL LTGIC DSNT SW W CB DSNT SW W MOV NE T01220083KIAH2019-02-21T09:53:00Z30.0-95.3712.28.310810.029.9409451013.8TRUEVFRMETAR36.02019-02-21 10:02:40^ )5    3KICR 210953Z AUTO 28006KT 10SM CLR M14/M19 A2995 RMK AO2 SLP181 T11441189KICR2019-02-21T09:53:00Z43.38-99.85-14.4-18.9280610.029.9498021018.1TRUETRUEVFRMETAR621.02019-02-21 10:02:40s)95      3KIAG 210953Z AUTO 23015KT 10SM -RA OVC032 02/01 A2985 RMK AO2 SLP123 P0000 T00220006 $KIAG2019-02-21T09:53:00Z43.12-78.932.20.62301510.029.849411012.3TRUETRUETRUE-RAVFR0.005METAR182.02019-02-21 10:02:40 I*I[)5    3KINK 210953Z AUTO 14015KT 10SM CLR 08/M03 A2977 RMK AO2 SLP060 T00831028KINK2019-02-21T09:53:00Z31.78-103.28.3-2.81401510.029.7696861006.0TRUETRUEVFRMETAR855.02019-02-21 10:02:40_)5    3KIML 210953Z AUTO 32004KT 10SM CLR M17/M21 A2988 RMK AO2 SLP166 T11671206KIML2019-02-21T09:53:00Z40.52-101.62-16.7-20.6320410.029.8789371016.6TRUETRUEVFRMETAR998.02019-02-21 10:02:40 )c5      3KILM 210953Z AUTO 31003KT 1SM R35/6000VP6000FT BR OVC002 09/09 A3010 RMK AO2 RAE0858 SLP191 P0000 T00940089KILM2019-02-21T09:53:00Z34.27-77.99.48.931031.030.1003931019.1TRUETRUEBRLIFR0.005SPECI9.02019-02-21 10:02:40e )+5    3KIDA 210953Z AUTO 02005KT 10SM CLR M14/M16 A2974 RMK AO2 SLP133 I1000 T11391156KIDA2019-02-21T09:53:00Z43.52-112.07-13.9-15.620510.029.7401581013.3TRUETRUEVFRSPECI1453.02019-02-21 10:02:40 9+/9p);5     3KIXD 210953Z AUTO 00000KT 1/4SM FZFG VV002 M07/M07 A3007 RMK AO2 SLP194 I1001 T10721072KIXD2019-02-21T09:53:00Z38.82-94.88-7.2-7.2000.2530.0708661019.4TRUETRUEFZFGLIFR200SPECI342.02019-02-21 10:02:40v)?5      3KIWI 210953Z AUTO 00000KT 3/4SM -SN BR VV008 M04/M04 A3002 RMK AO2 SLP166 P0006 T10391044KIWI2019-02-21T09:53:00Z43.97-69.72-3.9-4.4000.7530.020671016.6TRUETRUE-SN BRLIFR0.06800METAR20.02019-02-21 10:02:40`)5    3KITR 210953Z AUTO 13012KT 10SM CLR M07/M12 A2980 RMK AO2 SLP116 T10721117KITR2019-02-21T09:53:00Z39.23-102.28-7.2-11.71301210.029.7992131011.6TRUETRUEVFRMETAR1279.02019-02-21 10:02:40i)55   3KIPL 210953Z AUTO 24011G19KT 10SM BKN065 OVC085 09/03 A2966 RMK AO2 SLP042 T00940033KIPL2019-02-21T09:53:00Z32.83-115.589.43.3240111910.029.6604331004.2TRUETRUEVFRMETAR-17.02019-02-21 10:02:40 U!B8U])-5    3KJKL 210953Z AUTO 10SM BKN010 BKN014 OVC022 06/06 A3006 RMK AO2 SLP179 T00610056KJKL2019-02-21T09:53:00Z37.6-83.326.15.610.030.0590551017.9TRUETRUEMVFRSPECI416.02019-02-21 10:02:40)[5      3KJER 210953Z AUTO 05018KT 2 1/2SM -SN BKN035 BKN048 OVC055 M07/M10 A2970 RMK AO2 SLP087 P0000 T10721100KJER2019-02-21T09:53:00Z42.72-114.45-7.2-10.050182.529.6988181008.7TRUETRUE-SNIFR0.005METAR1222.02019-02-21 10:02:40Y)5    3KJEF 210953Z AUTO 13003KT 7SM CLR M01/M03 A3013 RMK AO2 SLP198 T10111033KJEF2019-02-21T09:53:00Z38.6-92.15-1.1-3.313037.030.1299211019.8TRUETRUEVFRSPECI168.02019-02-21 10:02:40Y)!5    3KJBR 210953Z AUTO 04008KT 10SM BKN032 04/03 A3011 RMK AO2 SLP198 T00390028KJBR2019-02-21T09:53:00Z35.83-90.653.92.840810.030.1092531019.8TRUETRUEVFRSPECI79.02019-02-21 10:02:40 T#?Te)35    3KONO 210953Z AUTO 00000KT 10SM FEW024 OVC055 M03/M06 A2981 RMK AO2 SLP114 T10281056KONO2019-02-21T09:53:00Z44.02-117.02-2.8-5.60010.029.8110241011.4TRUETRUEVFRMETAR667.02019-02-21 10:02:40^)#5    3KOMK 210953Z AUTO 36015KT 10SM OVC100 00/M06 A3002 RMK AO2 SLP178 T00001056KOMK2019-02-21T09:53:00Z48.47-119.520.0-5.63601510.030.020671017.8TRUETRUEVFRMETAR395.02019-02-21 10:02:40s)Q5   3KLAN 210953Z 24019G25KT 10SM SCT029 OVC035 01/M04 A2991 RMK AO2 PK WND 26030/0915 SLP136 T00111044KLAN2019-02-21T09:53:00Z42.78-84.581.1-4.4240192510.029.9114171013.6TRUEVFRMETAR264.02019-02-21 10:02:40^)5    3KLAA 210953Z AUTO 08007KT 10SM CLR M09/M11 A2975 RMK AO2 SLP096 T10891111KLAA2019-02-21T09:53:00Z38.07-102.68-8.9-11.180710.029.7490161009.6TRUETRUEVFRMETAR1119.02019-02-21 10:02:40 ( (^)#5    3KOSH 210953Z AUTO 23007KT 7SM SCT025 M06/M11 A2987 RMK AO2 SLP132 T10611106KOSH2019-02-21T09:53:00Z43.97-88.55-6.1-10.623077.029.8700791013.2TRUETRUEVFRMETAR248.02019-02-21 10:02:40i);5     3KORL 210953Z AUTO 00000KT 1 1/4SM BR CLR 19/19 A3010 RMK AO2 VIS 3/4V3 SLP195 T01940194KORL2019-02-21T09:53:00Z28.55-81.3319.419.4001.2530.1003931019.5TRUETRUEBRIFRMETAR37.02019-02-21 10:02:40)[5     3KOPF 210953Z AUTO 14013KT 10SM BKN022 BKN036 BKN060 24/21 A3008 RMK AO2 RAB00E26 SLP187 P0000 T02440211KOPF2019-02-21T09:53:00Z25.92-80.2824.421.11401310.030.0797251018.7TRUETRUEMVFR0.005METAR16.02019-02-21 10:02:40y)U5      3KONT 210953Z 00000KT 4SM RA BR SCT012 BKN016 OVC043 07/06 A2963 RMK AO2 RAB28 SLP035 P0002 T00720056KONT2019-02-21T09:53:00Z34.05-117.587.25.6004.029.6309051003.5TRUERA BRMVFR0.02SPECI274.02019-02-21 10:02:40 R5*RR#)5    3KHUF 210953Z 26004KT 10SM CLR M01/M02 A3010 RMK AO2 SLP196 T10061022KHUF2019-02-21T09:53:00Z39.45-87.3-0.6-2.2260410.030.1003931019.6TRUEVFRMETAR179.02019-02-21 10:02:40")[5      3KHUL 210953Z AUTO 15003KT 1/2SM SN FZFG VV010 M11/M12 A3000 RMK AO2 SNB07 PRESFR SLP172 P0001 T11061122KHUL2019-02-21T09:53:00Z46.12-67.8-10.6-12.215030.530.01017.2TRUETRUESN FZFGLIFR0.011000METAR150.02019-02-21 10:02:40`!)%5     3KOVE 210953Z AUTO 35003KT 10SM CLR 03/01 A2974 RMK AO2 SLP074 T00330011 TSNOKOVE2019-02-21T09:53:00Z39.5-121.623.31.1350310.029.7401581007.4TRUETRUETRUEVFRMETAR58.02019-02-21 10:02:40_ )#5    3KOSU 210953Z AUTO 27011KT 10SM OVC021 02/M02 A3005 RMK AO2 SLP183 T00171017KOSU2019-02-21T09:53:00Z40.08-83.081.7-1.72701110.030.0501981018.3TRUETRUEMVFRMETAR280.02019-02-21 10:02:40 f2Mefy')U5     3KRNM 210953Z AUTO 25009KT 10SM FEW026 FEW038 SCT065 07/04 A2969 RMK AO2 RAE28 SLP050 P0002 T00670039KRNM2019-02-21T09:53:00Z33.03-116.926.73.9250910.029.689961005.0TRUETRUEVFR0.02METAR427.02019-02-21 10:02:40b&)15    3KRNT 210953Z AUTO 00000KT 10SM BKN026 BKN042 02/M01 A3005 RMK AO2 SLP180 T00171006KRNT2019-02-21T09:53:00Z47.5-122.221.7-0.60010.030.0501981018.0TRUETRUEMVFRSPECI21.02019-02-21 10:02:40_%)%5    3KRQE 210953Z AUTO 00000KT 10SM OVC055 M05/M08 A2965 RMK AO2 SLP032 T10501083KRQE2019-02-21T09:53:00Z35.65-109.07-5.0-8.30010.029.6486231003.2TRUETRUEVFRMETAR2055.02019-02-21 10:02:40H$)5    3KORB 210953Z AUTO 00000KT 10SM SCT046 M11/M12 A2974 RMK AO2KORB2019-02-21T09:53:00Z48.02-92.87-11.0-12.00010.029.740158TRUETRUEVFRMETAR397.02019-02-21 10:02:40 d+)/5    3KPKB 210953Z AUTO 29010KT 10SM FEW016 OVC021 06/02 A3008 RMK AO2 SLP187 T00560022KPKB2019-02-21T09:53:00Z39.35-81.425.62.22901010.030.0797251018.7TRUETRUEMVFRMETAR262.02019-02-21 10:02:40h*)35    3KPKD 210953Z AUTO 27004KT 10SM BKN017 OVC055 M12/M13 A2980 RMK AO2 SLP121 T11221133KPKD2019-02-21T09:53:00Z46.9-95.07-12.2-13.3270410.029.7992131012.1TRUETRUEMVFRMETAR442.02019-02-21 10:02:40))O5       3KRME 210953Z AUTO 11006KT 4SM BR OVC016 00/00 A2983 RMK AO2 UPE03 SLP105 P0000 T00000000 FZRANO $KRME2019-02-21T09:53:00Z43.22-75.40.00.011064.029.8287411010.5TRUETRUETRUETRUEBRMVFR0.005METAR154.02019-02-21 10:02:40()e5      3KRMG 210953Z AUTO 00000KT 9SM VCTS -RA OVC010 08/07 A3006 RMK AO2 LTG DSNT E-SW RAB19 SLP176 P0001 T00830067KRMG2019-02-21T09:53:00Z34.35-85.178.36.7009.030.0590551017.6TRUETRUEVCTS -RAMVFR0.01METAR193.02019-02-21 10:02:40 d0Ode/)15    3KPHD 210953Z AUTO 29008KT 10SM BKN023 OVC028 03/M01 A3003 RMK AO2 SLP176 T00331006KPHD2019-02-21T09:53:00Z40.47-81.423.3-0.6290810.030.0295281017.6TRUETRUEMVFRMETAR272.02019-02-21 10:02:40[.)!5    3KPIE 210953Z AUTO 14005KT 10SM FEW070 21/18 A3007 RMK AO2 SLP181 T02060183KPIE2019-02-21T09:53:00Z27.92-82.6820.618.3140510.030.0708661018.1TRUETRUEVFRSPECI4.02019-02-21 10:02:40e-)+5    3KPIH 210953Z AUTO 05005KT 10SM CLR M14/M16 A2972 RMK AO2 SLP110 I1000 T11391156KPIH2019-02-21T09:53:00Z42.92-112.57-13.9-15.650510.029.7194881011.0TRUETRUEVFRMETAR1359.02019-02-21 10:02:40_,)5    3KPIR 210953Z AUTO 30009KT 10SM CLR M18/M19 A2996 RMK AO2 SLP184 T11781194KPIR2019-02-21T09:53:00Z44.38-100.28-17.8-19.4300910.029.9586621018.4TRUETRUEVFRMETAR526.02019-02-21 10:02:40 L# LN3)5    3KPDX 210953Z 16003KT 8SM OVC006 02/01 A3003 RMK AO2 SLP167 T00220006KPDX2019-02-21T09:53:00Z45.6-122.622.20.616038.030.0295281016.7TRUEIFRMETAR7.02019-02-21 10:02:40_2)#5    3KPEO 210953Z AUTO 21011KT 10SM OVC022 02/M01 A2981 RMK AO2 SLP105 T00171006KPEO2019-02-21T09:53:00Z42.65-77.051.7-0.62101110.029.8110241010.5TRUETRUEMVFRMETAR256.02019-02-21 10:02:401)y5       3KPGA 210953Z AUTO 00000KT 1 1/4SM -SN BR SCT004 OVC020 M01/M02 A2960 RMK AO2 SNB0859E01B27 SLP032 P0000 T10111022 TSNOKPGA2019-02-21T09:53:00Z36.92-111.45-1.1-2.2001.2529.6013771003.2TRUETRUETRUE-SN BRIFR0.005METAR1307.02019-02-21 10:02:40W0)5    3KPGD 210953Z AUTO 13006KT 10SM CLR 19/18 A3007 RMK AO2 SLP184 T01940183KPGD2019-02-21T09:53:00Z26.92-82.019.418.3130610.030.0708661018.4TRUETRUEVFRSPECI7.02019-02-21 10:02:40 f6)75    3KPBI 210953Z 13011KT 10SM FEW018 SCT037 SCT050 24/20 A3009 RMK AO2 SLP189 T02440200 $KPBI2019-02-21T09:53:00Z26.68-80.124.420.01301110.030.0885831018.9TRUETRUEVFRMETAR6.02019-02-21 10:02:40 5)k5      3KPDK 210953Z AUTO 11003KT 1 3/4SM -RA BR OVC004 06/05 A3005 RMK AO2 LTG DSNT NW-NE RAB28 SLP184 P0002 T00560050KPDK2019-02-21T09:53:00Z33.88-84.35.65.011031.7530.0501981018.4TRUETRUE-RA BRLIFR0.02METAR302.02019-02-21 10:02:404)}5      3KPDT 210953Z AUTO 29007KT 4SM -SN BR BKN008 BKN015 OVC024 M03/M04 A2994 RMK AO2 SNB01 CIG 006V010 SLP148 P0000 T10281044KPDT2019-02-21T09:53:00Z45.7-118.83-2.8-4.429074.029.9409451014.8TRUETRUE-SN BRIFR0.005SPECI462.02019-02-21 10:02:40 b?bW:)5    3KPAE 210953Z AUTO 00000KT 9SM CLR 01/M01 A3003 RMK AO2 SLP175 T00061006KPAE2019-02-21T09:53:00Z47.92-122.280.6-0.6009.030.0295281017.5TRUETRUEVFRMETAR180.02019-02-21 10:02:40V9)5    3KPAH 210953Z AUTO 00000KT 7SM CLR 00/M02 A3012 RMK AO2 SLP200 T00001017KPAH2019-02-21T09:53:00Z37.07-88.770.0-1.7007.030.1210631020.0TRUETRUEVFRMETAR119.02019-02-21 10:02:40X8)!5    3KPBF 210953Z AUTO 00000KT 10SM SCT001 01/00 A3010 RMK AO2 SLP191 T00060000KPBF2019-02-21T09:53:00Z34.18-91.930.60.00010.030.1003931019.1TRUETRUEVFRMETAR62.02019-02-21 10:02:407)[5      3KPBG 210953Z AUTO 16015KT 10SM UP BKN036 OVC044 M03/M04 A2978 RMK AO2 UPE0857B23 SLP086 P0000 T10281044KPBG2019-02-21T09:53:00Z44.65-73.47-2.8-4.41601510.029.7785431008.6TRUETRUEUPVFR0.005METAR72.02019-02-21 10:02:40  =)a5       3KLKV 210953Z AUTO 01010KT 8SM -SN FEW015 SCT023 BKN028 M07/M08 A2968 RMK AO2 SLP086 P0000 T10721083 FZRANOKLKV2019-02-21T09:53:00Z42.17-120.4-7.2-8.310108.029.6811031008.6TRUETRUETRUE-SNMVFR0.005SPECI1441.02019-02-21 10:02:40 <)y5      3KOWD 210953Z AUTO 34006KT 4SM BR BKN006 OVC010 01/M02 A2993 RMK AO2 UPB03E13FZRAE03B13E48 SLP135 P0000 I1003 T00061017KOWD2019-02-21T09:53:00Z42.18-71.170.6-1.734064.029.9291341013.5TRUETRUEBRIFR0.005METAR19.02019-02-21 10:02:40;)_5      3KOXB 210953Z AUTO 27010KT 10SM -RA BKN007 OVC018 06/06 A2997 RMK AO2 RAB0858E17B50 SLP149 P0000 T00610056KOXB2019-02-21T09:53:00Z38.32-75.126.15.62701010.029.9704721014.9TRUETRUE-RAIFR0.005METAR3.02019-02-21 10:02:40 B$BBzA)E5      3KCNY 210953Z AUTO 14005KT 1 1/2SM -SN BR OVC025 M05/M06 A2963 RMK AO2 SLP059 P0001 T10501056KCNY2019-02-21T09:53:00Z38.77-109.75-5.0-5.614051.529.6309051005.9TRUETRUE-SN BRIFR0.01SPECI1390.02019-02-21 10:02:40\@)5    3KCPS 210953Z AUTO 20003KT 10SM CLR M01/M03 A3012 RMK AO2 SLP202 T10111033KCPS2019-02-21T09:53:00Z38.57-90.15-1.1-3.3200310.030.1210631020.2TRUETRUEVFRSPECI126.02019-02-21 10:02:40r?)M5     3KGFL 210953Z AUTO 00000KT 2SM BR OVC005 M04/M05 A2987 RMK AO2 CIG 004V009 SLP126 I1002 T10391050KGFL2019-02-21T09:53:00Z43.33-73.62-3.9-5.0002.029.8700791012.6TRUETRUEBRIFRMETAR103.02019-02-21 10:02:40^>)#5     3KJLN 210953Z AUTO 07004KT 3SM BR CLR M01/M02 A3007 RMK AO2 SLP187 T10061017KJLN2019-02-21T09:53:00Z37.15-94.5-0.6-1.77043.030.0708661018.7TRUETRUEBRMVFRSPECI299.02019-02-21 10:02:40 D7DmE)=5     3KSAV 210953Z AUTO 00000KT 1/4SM R10/1400FT FG VV002 14/14 A3008 RMK AO2 SLP185 T01390139KSAV2019-02-21T09:53:00Z32.12-81.213.913.9000.2530.0797251018.5TRUETRUEFGLIFR200METAR14.02019-02-21 10:02:40]D)5    3KSAF 210953Z AUTO 02004KT 10SM CLR M08/M11 A2970 RMK AO2 SLP067 T10781111KSAF2019-02-21T09:53:00Z35.62-106.1-7.8-11.120410.029.6988181006.7TRUETRUEVFRMETAR1930.02019-02-21 10:02:40}C)]5      3KSAC 210953Z AUTO 06008KT 10SM -RA FEW034 BKN045 OVC085 05/03 A2973 RMK AO2 RAB38 SLP067 P0001 T00500028KSAC2019-02-21T09:53:00Z38.5-121.55.02.860810.029.7312981006.7TRUETRUE-RAVFR0.01METAR11.02019-02-21 10:02:40]B)5    3KRSL 210953Z AUTO 16010KT 10SM CLR M05/M07 A2996 RMK AO2 SLP165 T10501072KRSL2019-02-21T09:53:00Z38.87-98.82-5.0-7.21601010.029.9586621016.5TRUETRUEVFRSPECI567.02019-02-21 10:02:40 V3:V^I)#5    3KSDL 210953Z AUTO 13005KT 10SM OVC065 09/M04 A2972 RMK AO2 SLP056 T00941039KSDL2019-02-21T09:53:00Z33.62-111.929.4-3.9130510.029.7194881005.6TRUETRUEVFRMETAR447.02019-02-21 10:02:40sH)G5     3KSDM 210953Z AUTO 27008KT 10SM FEW027 SCT070 09/06 A2973 RMK AO2 RAE00 SLP065 P0000 T00940056KSDM2019-02-21T09:53:00Z32.58-117.09.45.6270810.029.7312981006.5TRUETRUEVFR0.005METAR159.02019-02-21 10:02:40ZG)%5    3KSEA 210953Z 02006KT 10SM BKN020 BKN080 03/00 A3003 RMK AO2 SLP179 T00330000KSEA2019-02-21T09:53:00Z47.45-122.323.30.020610.030.0295281017.9TRUEMVFRMETAR136.02019-02-21 10:02:40gF)55     3KSEG 210953Z AUTO 21004KT 5SM BR BKN009 OVC017 00/M02 A2995 RMK AO2 SLP146 T00001017KSEG2019-02-21T09:53:00Z40.82-76.870.0-1.721045.029.9498021014.6TRUETRUEBRIFRMETAR134.02019-02-21 10:02:40 f!>\fpM)A5    3KGEY 210953Z AUTO 31008KT 10SM BKN060 BKN070 OVC090 M09/M12 A2983 RMK AO2 SLP149 T10891122KGEY2019-02-21T09:53:00Z44.52-108.08-8.9-12.2310810.029.8287411014.9TRUETRUEVFRMETAR1191.02019-02-21 10:02:40\L)!5    3KRSW 210953Z AUTO 10004KT 10SM FEW026 19/19 A3007 RMK AO2 SLP179 T01940189KRSW2019-02-21T09:53:00Z26.53-81.7519.418.9100410.030.0708661017.9TRUETRUEVFRSPECI10.02019-02-21 10:02:40]K)5    3KRTN 210953Z AUTO 06006KT 10SM CLR M13/M17 A2969 RMK AO2 SLP082 T11281167KRTN2019-02-21T09:53:00Z36.73-104.5-12.8-16.760610.029.689961008.2TRUETRUEVFRSPECI1936.02019-02-21 10:02:40YJ)5    3KSFB 210953Z AUTO 16004KT 10SM CLR 20/20 A3010 RMK AO2 SLP190 T02000200KSFB2019-02-21T09:53:00Z28.77-81.2220.020.0160410.030.1003931019.0TRUETRUEVFRSPECI17.02019-02-21 10:02:40 K<1K`Q)5    3KGCC 210953Z AUTO 18004KT 10SM CLR M18/M20 A2981 RMK AO2 SLP159 T11831200KGCC2019-02-21T09:53:00Z44.33-105.55-18.3-20.0180410.029.8110241015.9TRUETRUEVFRMETAR1320.02019-02-21 10:02:40P)M5      3KGFK 210953Z AUTO 33012KT 5SM -SN BR OVC055 M10/M12 A2989 RMK AO2 SNB02 SLP139 P0000 T11001122 $KGFK2019-02-21T09:53:00Z47.95-97.18-10.0-12.2330125.029.8907471013.9TRUETRUETRUE-SN BRMVFR0.005SPECI258.02019-02-21 10:02:40YO)5    3KGEZ 210953Z AUTO 23005KT 10SM CLR 01/M03 A3009 RMK AO2 SLP193 T00061028KGEZ2019-02-21T09:53:00Z39.58-85.80.6-2.8230510.030.0885831019.3TRUETRUEVFRSPECI245.02019-02-21 10:02:40_N))5    3KGEG 210953Z 03003KT 10SM FEW130 SCT190 M10/M12 A2991 RMK AO2 SLP159 T11001117KGEG2019-02-21T09:53:00Z47.62-117.53-10.0-11.730310.029.9114171015.9TRUEVFRSPECI735.02019-02-21 10:02:40 @!&@`U)/5    3KFWN 210953Z AUTO 00000KT 10SM BKN013 OVC019 00/00 A2990 RMK AO2 SLP130 T00000000KFWN2019-02-21T09:53:00Z41.2-74.630.00.00010.029.8996071013.0TRUETRUEMVFRSPECI133.02019-02-21 10:02:40uT)G5      3KFXE 210953Z 12010KT 9SM -RA FEW025 BKN043 24/22 A3007 RMK AO2 RAB51 SLP186 P0000 T02440222 $KFXE2019-02-21T09:53:00Z26.2-80.1824.422.2120109.030.0708661018.6TRUETRUE-RAVFR0.005SPECI6.02019-02-21 10:02:40vS)Q5     3KFYV 210953Z AUTO 00000KT 1 3/4SM BR BKN002 M02/M03 A3005 RMK AO2 VIS 3/4V4 SLP181 I1000 T10221033KFYV2019-02-21T09:53:00Z36.02-94.17-2.2-3.3001.7530.0501981018.1TRUETRUEBRLIFRSPECI379.02019-02-21 10:02:40]R)!5     3KGAG 210953Z AUTO 11009KT 4SM HZ CLR 01/M04 A2989 RMK AO2 SLP126 T00061039KGAG2019-02-21T09:53:00Z36.3-99.770.6-3.911094.029.8907471012.6TRUETRUEHZMVFRSPECI668.02019-02-21 10:02:40 &#<&Y)u5      3KSGR 210953Z AUTO 06005KT 10SM VCTS -RA OVC042 14/08 A2992 RMK AO2 LTG DSNT SW AND W RAE02B42 SLP134 P0000 T01390083KSGR2019-02-21T09:53:00Z29.62-95.6513.98.360510.029.9202751013.4TRUETRUEVCTS -RAVFR0.005METAR2.02019-02-21 10:02:40aX)+5    3KSHN 210953Z AUTO 24003KT 10SM CLR M03/M04 A3002 RMK AO2 SLP173 I1000 T10331044KSHN2019-02-21T09:53:00Z47.23-123.13-3.3-4.4240310.030.020671017.3TRUETRUEVFRMETAR82.02019-02-21 10:02:40_W)5    3KSHR 210953Z AUTO 30005KT 10SM CLR M12/M15 A2985 RMK AO2 SLP164 T11221150KSHR2019-02-21T09:53:00Z44.77-106.97-12.2-15.0300510.029.849411016.4TRUETRUEVFRSPECI1202.02019-02-21 10:02:40rV)C5     3KSIY 210953Z AUTO 00000KT 10SM OVC019 M02/M02 A2979 RMK AO2 SNB05E45 SLP111 P0001 T10171022KSIY2019-02-21T09:53:00Z41.77-122.47-1.7-2.20010.029.7903541011.1TRUETRUEMVFR0.01METAR807.02019-02-21 10:02:40 J+IJy])I5      3KGSP 210953Z AUTO 15005KT 2SM RA BR SCT003 OVC012 04/04 A3005 RMK AO2 SLP177 P0010 T00440039 $KGSP2019-02-21T09:53:00Z34.9-82.224.43.915052.030.0501981017.7TRUETRUETRUERA BRIFR0.1SPECI287.02019-02-21 10:02:40\\)!5    3KSJC 210953Z AUTO 33010KT 10SM BKN043 08/02 A2972 RMK AO2 SLP064 T00780022KSJC2019-02-21T09:53:00Z37.37-121.927.82.23301010.029.7194881006.4TRUETRUEVFRSPECI24.02019-02-21 10:02:40i[)75     3KSLN 210953Z AUTO 11003KT 2 1/2SM BR CLR M08/M09 A3003 RMK AO2 SLP183 I1000 T10781089KSLN2019-02-21T09:53:00Z38.78-97.65-7.8-8.911032.530.0295281018.3TRUETRUEBRIFRSPECI385.02019-02-21 10:02:40`Z))5    3KSFF 210953Z AUTO 00000KT 9SM CLR M09/M10 A2995 RMK AO2 SLP165 I1001 T10891100KSFF2019-02-21T09:53:00Z47.68-117.32-8.9-10.0009.029.9498021016.5TRUETRUEVFRMETAR609.02019-02-21 10:02:40 N!9Nea)+5   3KGRB 210953Z AUTO 24012G21KT 10SM BKN028 M02/M08 A2985 RMK AO2 SLP117 T10221083KGRB2019-02-21T09:53:00Z44.48-88.13-2.2-8.3240122110.029.849411011.7TRUETRUEMVFRSPECI208.02019-02-21 10:02:40b`))5    3KGRI 210953Z AUTO 21004KT 8SM CLR M18/M20 A2999 RMK AO2 SLP195 I1000 T11781200KGRI2019-02-21T09:53:00Z40.97-98.32-17.8-20.021048.029.9911421019.5TRUETRUEVFRSPECI561.02019-02-21 10:02:40u_)M5   3KGRR 210953Z AUTO 25019G26KT 10SM OVC038 01/M05 A2991 RMK AO2 PK WND 24028/0940 SLP136 T00061050KGRR2019-02-21T09:53:00Z42.88-85.520.6-5.0250192610.029.9114171013.6TRUETRUEVFRSPECI237.02019-02-21 10:02:40^^))5   3KGSH 210953Z AUTO 25015G23KT 10SM SCT030 00/M03 A3000 RMK AO2 SLP166 T00001033KGSH2019-02-21T09:53:00Z41.53-85.780.0-3.3250152310.030.01016.6TRUETRUEVFRSPECI252.02019-02-21 10:02:40 ?/B?}e)S5      3KGMU 210953Z AUTO 16006KT 4SM RA BR BKN012 BKN048 OVC090 06/05 A3005 RMK AO2 SLP179 P0012 T00560050KGMU2019-02-21T09:53:00Z34.85-82.355.65.016064.030.0501981017.9TRUETRUERA BRMVFR0.12SPECI315.02019-02-21 10:02:40gd)75     3KGNV 210953Z AUTO 00000KT 1/4SM FG BKN006 OVC065 19/17 A3011 RMK AO2 SLP192 T01890172KGNV2019-02-21T09:53:00Z29.7-82.2818.917.2000.2530.1092531019.2TRUETRUEFGLIFRSPECI45.02019-02-21 10:02:40]c)%5     3KGOK 210953Z AUTO 11007KT 6SM HZ CLR 01/M02 A3000 RMK AO2 SLP165 T00111017 $KGOK2019-02-21T09:53:00Z35.85-97.41.1-1.711076.030.01016.5TRUETRUETRUEHZVFRSPECI324.02019-02-21 10:02:40hb)35     3KGPT 210953Z AUTO 00000KT 1/2SM FG VV003 19/19 A2996 RMK AO2 SLP146 T01940194 RVRNOKGPT2019-02-21T09:53:00Z30.42-89.0819.419.4000.529.9586621014.6TRUETRUEFGLIFR300SPECI14.02019-02-21 10:02:40 //[i)5    3KGKY 210953Z AUTO 08006KT 10SM CLR 08/02 A2998 RMK AO2 SLP150 T00780017 $KGKY2019-02-21T09:53:00Z32.67-97.17.81.780610.029.979331015.0TRUETRUETRUEVFRMETAR192.02019-02-21 10:02:40nh)15     3KGLD 210953Z AUTO 00000KT 10SM CLR M11/M14 A2984 RMK AO2 SLP137 T11061144 FZRANO $KGLD2019-02-21T09:53:00Z39.37-101.7-10.6-14.40010.029.8405511013.7TRUETRUETRUETRUEVFRSPECI1113.02019-02-21 10:02:40Xg)!5    3KGLH 210953Z AUTO 04004KT 10SM BKN110 04/03 A3006 RMK AO2 SLP189 T00440033KGLH2019-02-21T09:53:00Z33.5-90.984.43.340410.030.0590551018.9TRUETRUEVFRSPECI45.02019-02-21 10:02:40f)5     3KGLR 210953Z AUTO 27016G28KT 4SM -SN BKN022 OVC028 M02/M05 A2973 RMK AO2 PK WND 25029/0927 SNE41B53 SLP085 P0000 T10221050KGLR2019-02-21T09:53:00Z45.02-84.68-2.2-5.027016284.029.7312981008.5TRUETRUE-SNMVFR0.005SPECI407.02019-02-21 10:02:40 5,5qm);5     3KGGW 210953Z AUTO 32009KT 8SM OVC055 M13/M17 A2993 RMK AO2 SNE33 SLP194 P0000 T11331172KGGW2019-02-21T09:53:00Z48.22-106.62-13.3-17.232098.029.9291341019.4TRUETRUEVFR0.005SPECI694.02019-02-21 10:02:40^l)%5     3KGIF 210953Z AUTO 08003KT 6SM BR FEW007 20/19 A3010 RMK AO2 SLP191 T02000189KGIF2019-02-21T09:53:00Z28.07-81.7520.018.98036.030.1003931019.1TRUETRUEBRVFRSPECI43.02019-02-21 10:02:40rk)A5     3KGJT 210953Z AUTO 08004KT 8SM BKN041 M03/M06 A2965 RMK AO2 SNB03E49 SLP059 P0000 T10331056KGJT2019-02-21T09:53:00Z39.12-108.52-3.3-5.68048.029.6486231005.9TRUETRUEVFR0.005METAR1475.02019-02-21 10:02:40rj)?5    3KGKJ 210953Z AUTO 28013G20KT 10SM BKN010 OVC029 02/00 A2993 RMK AO2 SLP147 T00170000 TSNOKGKJ2019-02-21T09:53:00Z41.63-80.221.70.0280132010.029.9291341014.7TRUETRUETRUEMVFRSPECI428.02019-02-21 10:02:40 f%5Sfgq)75      3KSMF 210953Z 09012KT 10SM -RA OVC050 05/03 A2973 RMK AO2 RAB35 SLP065 P0000 T00500028KSMF2019-02-21T09:53:00Z38.7-121.65.02.8901210.029.7312981006.5TRUE-RAVFR0.005METAR6.02019-02-21 10:02:40\p)%5     3KSMQ 210953Z AUTO 00000KT 4SM BR OVC011 01/00 A2992 RMK AO2 SLP135 T00060000KSMQ2019-02-21T09:53:00Z40.62-74.670.60.0004.029.9202751013.5TRUETRUEBRMVFRSPECI30.02019-02-21 10:02:40jo)=5    3KSNA 210953Z AUTO 26005KT 10SM FEW029 BKN044 OVC060 11/04 A2966 RMK AO2 SLP042 T01060044KSNA2019-02-21T09:53:00Z33.67-117.8710.64.4260510.029.6604331004.2TRUETRUEVFRMETAR16.02019-02-21 10:02:40Un)5    3KGGG 210953Z AUTO 00000KT 10SM CLR 04/04 A3002 RMK AO2 SLP167 T00390039KGGG2019-02-21T09:53:00Z32.38-94.723.93.90010.030.020671016.7TRUETRUEVFRSPECI107.02019-02-21 10:02:40 @3W@u){5       3PADE 210953Z AUTO 09024KT 8SM FEW027 BKN041 OVC070 M09/ A2975 RMK AO2 PK WND 10034/0902 UPE16 SLP076 P0000 T1089 TSNO $PADE2019-02-21T09:53:00Z66.07-162.77-8.990248.029.7490161007.6TRUETRUETRUETRUEVFR0.005SPECI5.02019-02-21 10:02:40Vt)5    3PADQ 210953Z 29006KT 10SM OVC110 01/01 A2967 RMK AO2 SLP049 T00110011 $PADQ2019-02-21T09:53:00Z57.75-152.51.11.1290610.029.669291004.9TRUETRUEVFRMETAR34.02019-02-21 10:02:40[s)5    3KSBM 210953Z AUTO 25016KT 9SM CLR M05/M09 A2988 RMK AO2 SLP129 T10501094KSBM2019-02-21T09:53:00Z43.78-87.85-5.0-9.4250169.029.8789371012.9TRUETRUEVFRMETAR232.02019-02-21 10:02:40fr))5     3PAEG 210953Z AUTO 00000KT 10SM CLR M22/M24 A2994 RMK AO2 SLP165 T12221244 TSNOPAEG2019-02-21T09:53:00Z64.78-141.15-22.2-24.40010.029.9409451016.5TRUETRUETRUEVFRSPECI268.02019-02-21 10:02:40 cx)'5    3PABT 210953Z 34004KT 10SM SCT220 M23/M26 A3004 RMK AO2 SLP197 T12331261 PNO $PABT2019-02-21T09:53:00Z66.92-151.52-23.3-26.1340410.030.0413381019.7TRUETRUEVFRMETAR195.02019-02-21 10:02:40/w)#5      3PACD 210953Z AUTO 26016G29KT 5SM -SN BR FEW032 SCT040 SCT050 M01/M03 A3020 RMK AO2 PK WND 28032/0943 UPE02SNB46 SLP228 P0000 T10061028 TSNOPACD2019-02-21T09:53:00Z55.2-162.72-0.6-2.826016295.030.2007871022.8TRUETRUETRUE-SN BRMVFR0.005METAR30.02019-02-21 10:02:40gv)15      3PACV 210953Z 07005KT 2SM -SN BR OVC018 01/M01 A2976 RMK AO2 SLP078 P0001 T00111006PACV2019-02-21T09:53:00Z60.5-145.471.1-0.67052.029.7608261007.8TRUE-SN BRIFR0.01SPECI12.02019-02-21 10:02:40 J0+J[|)!5    3KTLH 210953Z AUTO 17005KT 10SM OVC006 21/21 A3004 RMK AO2 SLP170 T02060206KTLH2019-02-21T09:53:00Z30.4-84.3520.620.6170510.030.0413381017.0TRUETRUEIFRMETAR19.02019-02-21 10:02:40{)O5       3PAAQ 210953Z AUTO 00000KT 2 1/2SM -SN BR OVC032 M07/M08 A2978 RMK AO2 SLP090 P0000 T10671078 TSNOPAAQ2019-02-21T09:53:00Z61.6-149.08-6.7-7.8002.529.7785431009.0TRUETRUETRUE-SN BRIFR0.005SPECI73.02019-02-21 10:02:40]z)'5    3PABE 210953Z 21010KT 10SM FEW029 M04/M05 A2984 RMK AO2 SLP107 I1000 T10441050PABE2019-02-21T09:53:00Z60.78-161.83-4.4-5.02101010.029.8405511010.7TRUEVFRMETAR41.02019-02-21 10:02:40gy))5     3PABI 210953Z AUTO 14005KT 10SM CLR M13/M16 A2986 RMK AO2 SLP155 T11281161 TSNOPABI2019-02-21T09:53:00Z64.0-145.72-12.8-16.1140510.029.8612211015.5TRUETRUETRUEVFRMETAR386.02019-02-21 10:02:40 c(AGc^)#5    3KTDZ 210953Z AUTO 25010KT 10SM OVC032 02/M02 A2999 RMK AO2 SLP159 T00221022KTDZ2019-02-21T09:53:00Z41.57-83.482.2-2.22501010.029.9911421015.9TRUETRUEVFRSPECI189.02019-02-21 10:02:40t)O5     3KTHV 210953Z AUTO 00000KT 3SM BR BKN003 OVC024 M01/M01 A2996 RMK AO2 CIG 002V007 SLP151 T10061011KTHV2019-02-21T09:53:00Z39.92-76.88-0.6-1.1003.029.9586621015.1TRUETRUEBRLIFRSPECI144.02019-02-21 10:02:40a~)/5    3KTIW 210953Z AUTO 04004KT 10SM FEW025 OVC036 04/01 A3005 RMK AO2 SLP177 T00390006KTIW2019-02-21T09:53:00Z47.27-122.583.90.640410.030.0501981017.7TRUETRUEVFRMETAR89.02019-02-21 10:02:40R})5    3KTKI 210953Z AUTO 05004KT 10SM CLR 04/01 A3000 RMK AO2 SLP167 T00390011KTKI2019-02-21T09:53:00Z33.18-96.583.91.150410.030.01016.7TRUETRUEVFRMETAR179.02019-02-21 10:02:40 W)5    3KSWO 210953Z AUTO 09008KT 8SM CLR 01/M03 A3001 RMK AO2 SLP164 T00111028KSWO2019-02-21T09:53:00Z36.17-97.081.1-2.89088.030.0088581016.4TRUETRUEVFRSPECI290.02019-02-21 10:02:40^)5    3KTCC 210953Z AUTO 24003KT 10SM CLR M06/M12 A2975 RMK AO2 SLP072 T10561117KTCC2019-02-21T09:53:00Z35.18-103.6-5.6-11.7240310.029.7490161007.2TRUETRUEVFRMETAR1235.02019-02-21 10:02:40:)G5      3KTCL 210953Z AUTO 27007KT 2 1/2SM +TSRA BR SCT006 BKN018 OVC048 12/11 A3008 RMK AO2 VIS 1 1/2V5 LTG DSNT NE AND SE AND SW TSB34 PRESRR SLP183 P0015 T01220106KTCL2019-02-21T09:53:00Z33.22-87.6212.210.627072.530.0797251018.3TRUETRUE+TSRA BRIFR0.15SPECI49.02019-02-21 10:02:40])5    3KTCS 210953Z AUTO 18010KT 10SM CLR 01/M13 A2971 RMK AO2 SLP035 T00111128KTCS2019-02-21T09:53:00Z33.23-107.271.1-12.81801010.029.710631003.5TRUETRUEVFRSPECI1469.02019-02-21 10:02:40 =+&=c))5     3KSTC 210953Z AUTO 25009KT 5SM BR OVC005 M09/M11 A2984 RMK AO2 SLP132 T10941106KSTC2019-02-21T09:53:00Z45.55-94.05-9.4-10.625095.029.8405511013.2TRUETRUEBRIFRSPECI314.02019-02-21 10:02:40)M5     3KSTJ 210953Z AUTO 00000KT M1/4SM FZFG VV002 M14/M14 A3010 RMK AO2 SLP205 I1001 T11441144 RVRNO $KSTJ2019-02-21T09:53:00Z39.77-94.92-14.4-14.4000.2530.1003931020.5TRUETRUETRUEFZFGLIFR200SPECI247.02019-02-21 10:02:40k);5    3KSTP 210953Z AUTO 25003KT 7SM BKN008 M12/M14 A2991 RMK AO2 CIG 008V011 SLP140 T11171144KSTP2019-02-21T09:53:00Z44.93-93.05-11.7-14.425037.029.9114171014.0TRUETRUEIFRSPECI219.02019-02-21 10:02:40^)5    3KSTS 210953Z AUTO 33010KT 10SM CLR 04/01 A2972 RMK AO2 SLP058 T00440011 $KSTS2019-02-21T09:53:00Z38.5-122.824.41.13301010.029.7194881005.8TRUETRUETRUEVFRMETAR39.02019-02-21 10:02:40 j2Uje )+5    3KSPW 210953Z AUTO 25014KT 10SM CLR M15/M17 A2997 RMK AO2 SLP174 I1000 T11501172KSPW2019-02-21T09:53:00Z43.17-95.22-15.0-17.22501410.029.9704721017.4TRUETRUEVFRSPECI403.02019-02-21 10:02:40W )5    3KSRQ 210953Z AUTO 09004KT 10SM CLR 19/18 A3005 RMK AO2 SLP175 T01890183KSRQ2019-02-21T09:53:00Z27.4-82.5718.918.390410.030.0501981017.5TRUETRUEVFRSPECI18.02019-02-21 10:02:40[ )!5    3KSSF 210953Z AUTO 06003KT 10SM OVC060 12/02 A2992 RMK AO2 SLP127 T01170022KSSF2019-02-21T09:53:00Z29.33-98.4711.72.260310.029.9202751012.7TRUETRUEVFRMETAR176.02019-02-21 10:02:40g )75     3KSSI 210953Z AUTO VRB03KT 3/4SM BR BKN008 BKN100 18/17 A3007 RMK AO2 SLP183 T01780167KSSI2019-02-21T09:53:00Z31.15-81.3817.816.7030.7530.0708661018.3TRUETRUEBRLIFRSPECI6.02019-02-21 10:02:40 z=XzX)!5    3KSNS 210953Z AUTO 00000KT 10SM FEW048 05/02 A2972 RMK AO2 SLP071 T00500017KSNS2019-02-21T09:53:00Z36.67-121.65.01.70010.029.7194881007.1TRUETRUEVFRMETAR30.02019-02-21 10:02:40_)5    3KSNY 210953Z AUTO 31006KT 10SM CLR M15/M17 A2981 RMK AO2 SLP147 T11501172KSNY2019-02-21T09:53:00Z41.1-102.98-15.0-17.2310610.029.8110241014.7TRUETRUEVFRSPECI1307.02019-02-21 10:02:40Y)5    3KSPB 210953Z AUTO 34004KT 10SM CLR 02/M01 A3002 RMK AO2 SLP165 T00221011KSPB2019-02-21T09:53:00Z45.77-122.872.2-1.1340410.030.020671016.5TRUETRUEVFRMETAR14.02019-02-21 10:02:40^ )5    3KSPG 210953Z AUTO 12008KT 10SM CLR 21/19 A3006 RMK AO2 SLP178 T02110194 $KSPG2019-02-21T09:53:00Z27.77-82.6321.119.4120810.030.0590551017.8TRUETRUETRUEVFRSPECI2.02019-02-21 10:02:40 )U5       3PAIL 210953Z AUTO 36005KT 3SM -SN BR FEW021 OVC029 M02/M02 A2980 RMK AO2 SLP094 P0000 T10171022 TSNOPAIL2019-02-21T09:53:00Z59.75-154.92-1.7-2.236053.029.7992131009.4TRUETRUETRUE-SN BRMVFR0.005SPECI49.02019-02-21 10:02:40q)G5      3PAJN 210953Z 09010KT 7SM -SN SCT008 BKN030 OVC041 01/M01 A3005 RMK AO2 SLP175 P0001 T00111006PAJN2019-02-21T09:53:00Z58.35-134.581.1-0.690107.030.0501981017.5TRUE-SNMVFR0.01METAR5.02019-02-21 10:02:40)O5       3PAEN 210953Z AUTO 01013KT 1 3/4SM -SN BR OVC027 M05/M07 A2979 RMK AO2 SLP090 P0000 T10501067 TSNOPAEN2019-02-21T09:53:00Z60.57-151.25-5.0-6.710131.7529.7903541009.0TRUETRUETRUE-SN BRIFR0.005SPECI27.02019-02-21 10:02:40 n)35     3PAMC 210953Z AUTO 00000KT 10SM OVC016 M09/M09 A2988 RMK AO2 SLP127 T10891094 TSNO $PAMC2019-02-21T09:53:00Z62.97-155.62-8.9-9.40010.029.8789371012.7TRUETRUETRUETRUEMVFRMETAR103.02019-02-21 10:02:40z)O5      3PAMR 210953Z 36007KT 2SM -SN BR SCT008 SCT015 OVC030 M06/M08 A2980 RMK AO2 SLP095 P0000 T10611078PAMR2019-02-21T09:53:00Z61.22-149.85-6.1-7.836072.029.7992131009.5TRUE-SN BRIFR0.005SPECI41.02019-02-21 10:02:40i)55      3PANC 210953Z 36011KT 2 1/2SM -SN OVC029 M05/M08 A2980 RMK AO2 SLP095 P0001 T10501078PANC2019-02-21T09:53:00Z61.17-150.0-5.0-7.8360112.529.7992131009.5TRUE-SNIFR0.01METAR38.02019-02-21 10:02:40)I5       3PAHO 210953Z AUTO 05010KT 1SM -SN BR VV012 M02/M03 A2971 RMK AO2 SLP063 P0003 T10221028 TSNO $PAHO2019-02-21T09:53:00Z59.63-151.47-2.2-2.850101.029.710631006.3TRUETRUETRUETRUE-SN BRLIFR0.031200METAR28.02019-02-21 10:02:40 //c)+5     3PAKT 210953Z AUTO 14003KT 10SM OVC006 01/00 A3019 RMK AO2 SLP224 T00060000 TSNOPAKT2019-02-21T09:53:00Z55.35-131.70.60.0140310.030.1889761022.4TRUETRUETRUEIFRSPECI28.02019-02-21 10:02:40c)+5     3PAKW 210953Z AUTO 00000KT 10SM OVC030 01/01 A3014 RMK AO2 SLP208 T00060006 TSNOPAKW2019-02-21T09:53:00Z55.58-133.070.60.60010.030.1387791020.8TRUETRUETRUEMVFRSPECI15.02019-02-21 10:02:40y)G5      3PALH 210953Z 01009KT 2SM -SN BR OVC033 M06/M08 A2982 RMK AO2 SNB0859 SLP097 P0000 T10611078 $PALH2019-02-21T09:53:00Z61.18-149.97-6.1-7.81092.029.8198811009.7TRUETRUE-SN BRIFR0.005SPECI22.02019-02-21 10:02:40 k)55     3PAOR 210953Z 12004KT 2SM -SN BR BKN030 OVC040 M12/M14 A2983 RMK AO2 SLP153 T11171139PAOR2019-02-21T09:53:00Z62.97-141.93-11.7-13.912042.029.8287411015.3TRUE-SN BRIFRMETAR523.02019-02-21 10:02:40k)/5     3PANN 210953Z AUTO 32004KT 10SM OVC085 M12/M15 A2989 RMK AO2 SLP135 T11171150 TSNOPANN2019-02-21T09:53:00Z64.55-149.08-11.7-15.0320410.029.8907471013.5TRUETRUETRUEVFRMETAR110.02019-02-21 10:02:40/)+5       3PAOM 210953Z AUTO 12017KT 1 1/4SM -SN BR SCT010 BKN019 OVC029 M03/M03 A2956 RMK AO2 PK WND 12026/0927 VIS 3/4V2 1/2 SLP010 P0001 T10331033 TSNOPAOM2019-02-21T09:53:00Z64.5-165.43-3.3-3.3120171.2529.560041001.0TRUETRUETRUE-SN BRIFR0.01METAR11.02019-02-21 10:02:40 S7NSu!)K5     3PAOT 210953Z AUTO 10022KT 9SM CLR M09/M13 A2985 RMK AO2 PK WND 10031/0930 SLP108 T10891133 TSNOPAOT2019-02-21T09:53:00Z66.87-162.58-8.9-13.3100229.029.849411010.8TRUETRUETRUEVFRMETAR3.02019-02-21 10:02:40c )%5    3KLAR 210953Z AUTO 20004KT 10SM OVC100 M16/M19 A2963 RMK AO2 SLP101 T11561194KLAR2019-02-21T09:53:00Z41.32-105.67-15.6-19.4200410.029.6309051010.1TRUETRUEVFRMETAR2216.02019-02-21 10:02:40W)5    3KLAW 210953Z AUTO 09006KT 10SM CLR 03/01 A2996 RMK AO2 SLP144 T00330011KLAW2019-02-21T09:53:00Z34.55-98.423.31.190610.029.9586621014.4TRUETRUEVFRSPECI337.02019-02-21 10:02:40f)75    3KLAX 210953Z 12003KT 10SM FEW025 FEW040 BKN080 08/05 A2966 RMK AO2 SLP040 T00830050 $KLAX2019-02-21T09:53:00Z33.93-118.388.35.0120310.029.6604331004.0TRUETRUEVFRMETAR46.02019-02-21 10:02:40 ;O9%(}5    3KLCH 210953Z AUTO A2994 RMK AO2 LTG DSNT NW SLP148 PWINOKLCH2019-02-21T09:53:00Z30.13-93.2229.9409451014.8TRUETRUETRUESPECI4.02019-02-21 10:02:40f$)55     3KLEB 210953Z AUTO 00000KT 3SM BR OVC016 M05/M07 A2992 RMK AO2 SLP144 I1001 T10501072KLEB2019-02-21T09:53:00Z43.63-72.3-5.0-7.2003.029.9202751014.4TRUETRUEBRMVFRMETAR171.02019-02-21 10:02:40Y#)5    3KLEE 210953Z AUTO 17004KT 10SM CLR 21/19 A3010 RMK AO2 SLP191 T02060194KLEE2019-02-21T09:53:00Z28.82-81.8220.619.4170410.030.1003931019.1TRUETRUEVFRMETAR23.02019-02-21 10:02:40`")/5    3KLFK 210953Z AUTO 04005KT 10SM SCT090 BKN110 07/05 A2999 RMK AO2 SLP153 T00720050KLFK2019-02-21T09:53:00Z31.23-94.757.25.040510.029.9911421015.3TRUETRUEVFRMETAR88.02019-02-21 10:02:40 g<Lg_))5    3KLHX 210953Z AUTO 12005KT 10SM CLR M07/M10 A2974 RMK AO2 SLP084 T10721100KLHX2019-02-21T09:53:00Z38.05-103.52-7.2-10.0120510.029.7401581008.4TRUETRUEVFRMETAR1277.02019-02-21 10:02:40j()95    3KLBB 210953Z 18014KT 10SM BKN100 BKN180 OVC250 07/M06 A2983 RMK AO2 SLP083 T00671056 $KLBB2019-02-21T09:53:00Z33.67-101.826.7-5.61801410.029.8287411008.3TRUETRUEVFRMETAR993.02019-02-21 10:02:40]')5    3KLBF 210953Z AUTO 00000KT 10SM CLR M18/M21 A2992 RMK AO2 SLP177 T11781206KLBF2019-02-21T09:53:00Z41.12-100.67-17.8-20.60010.029.9202751017.7TRUETRUEVFRMETAR847.02019-02-21 10:02:40[&)!5    3KLBX 210953Z AUTO 05007KT 10SM OVC022 13/10 A2991 RMK AO2 SLP127 T01330100KLBX2019-02-21T09:53:00Z29.12-95.4713.310.050710.029.9114171012.7TRUETRUEMVFRMETAR6.02019-02-21 10:02:40 t<Wt]-)5    3KMCW 210953Z AUTO 25011KT 8SM CLR M13/M15 A2997 RMK AO2 SLP166 T11331150KMCW2019-02-21T09:53:00Z43.15-93.33-13.3-15.0250118.029.9704721016.6TRUETRUEVFRMETAR369.02019-02-21 10:02:40_,)%5    3KLFT 210953Z AUTO 02009KT 10SM OVC005 12/12 A2996 RMK AO2 SLP144 T01220122 $KLFT2019-02-21T09:53:00Z30.2-92.012.212.220910.029.9586621014.4TRUETRUETRUEIFRMETAR11.02019-02-21 10:02:40[+)5     3KLGB 210953Z AUTO 34005KT 6SM BR CLR 08/06 A2966 RMK AO2 SLP043 T00780056KLGB2019-02-21T09:53:00Z33.82-118.157.85.634056.029.6604331004.3TRUETRUEBRVFRMETAR10.02019-02-21 10:02:40]*)!5    3KLHQ 210953Z AUTO 29010KT 10SM OVC026 03/00 A3007 RMK AO2 SLP186 T00280000KLHQ2019-02-21T09:53:00Z39.75-82.672.80.02901010.030.0708661018.6TRUETRUEMVFRMETAR260.02019-02-21 10:02:40 b%AbY1)5     3KMCI 210953Z 00000KT 6SM BR CLR M05/M06 A3008 RMK AO2 SLP195 T10501061 $KMCI2019-02-21T09:53:00Z39.3-94.73-5.0-6.1006.030.0797251019.5TRUETRUEBRVFRMETAR320.02019-02-21 10:02:40^0)5    3KMCK 210953Z AUTO 30003KT 10SM CLR M13/M14 A2992 RMK AO2 SLP167 T11281144KMCK2019-02-21T09:53:00Z40.2-100.58-12.8-14.4300310.029.9202751016.7TRUETRUEVFRMETAR782.02019-02-21 10:02:40e/)'5     3KMCN 210953Z AUTO 36003KT 1/2SM FG VV003 11/11 A3007 RMK AO2 SLP180 T01060106KMCN2019-02-21T09:53:00Z32.68-83.6510.610.636030.530.0708661018.0TRUETRUEFGLIFR300METAR109.02019-02-21 10:02:40j.)C5     3KMCO 210953Z 00000KT 8SM R35L/2600VP6000FT BCFG FEW012 19/19 A3010 RMK AO2 SLP190 T01940189KMCO2019-02-21T09:53:00Z28.42-81.3319.418.9008.030.1003931019.0TRUEBCFGVFRMETAR29.02019-02-21 10:02:40 c5)-5     3KMAI 210953Z AUTO 19005KT 2 1/2SM BR OVC002 21/21 A3002 RMK AO2 SLP165 T02110211KMAI2019-02-21T09:53:00Z30.83-85.1821.121.119052.530.020671016.5TRUETRUEBRLIFRMETAR32.02019-02-21 10:02:40t4)M5   3KMBS 210953Z AUTO 25019G24KT 10SM OVC031 02/M03 A2985 RMK AO2 PK WND 25026/0858 SLP116 T00171028KMBS2019-02-21T09:53:00Z43.53-84.081.7-2.8250192410.029.849411011.6TRUETRUEVFRMETAR202.02019-02-21 10:02:40{3)]5    3KMCB 210953Z AUTO 02004KT 10SM BKN004 OVC010 12/11 A2999 RMK AO2 LTG DSNT N CIG 003V008 SLP152 T01220106KMCB2019-02-21T09:53:00Z31.18-90.4712.210.620410.029.9911421015.2TRUETRUELIFRMETAR124.02019-02-21 10:02:40x2)Y5     3KMCE 210953Z AUTO 00000KT 10SM FEW060 SCT090 SCT120 04/03 A2969 RMK AO2 RAE0854 SLP053 P0000 T00440033KMCE2019-02-21T09:53:00Z37.28-120.54.43.30010.029.689961005.3TRUETRUEVFR0.005METAR47.02019-02-21 10:02:40 G 4+G^9)#5     3KLXT 210953Z AUTO 00000KT 5SM BR CLR M04/M04 A3007 RMK AO2 SLP193 T10391044KLXT2019-02-21T09:53:00Z38.97-94.37-3.9-4.4005.030.0708661019.3TRUETRUEBRMVFRMETAR306.02019-02-21 10:02:408)S5      3KLXV 210953Z AUTO 09003KT 2 1/2SM BR OVC028 M18/M20 A2955 RMK AO2 SNB37E46 SLP040 P0000 T11781200 $KLXV2019-02-21T09:53:00Z39.23-106.32-17.8-20.09032.529.5511821004.0TRUETRUETRUEBRIFR0.005METAR3028.02019-02-21 10:02:40f7);5    3KMAE 210953Z AUTO 27008KT 7SM FEW018 SCT026 OVC031 04/02 A2971 RMK AO2 SLP060 T00390017KMAE2019-02-21T09:53:00Z36.98-120.123.91.727087.029.710631006.0TRUETRUEVFRMETAR77.02019-02-21 10:02:40Z6)5    3KMAF 210953Z AUTO 18005KT 10SM CLR 07/M03 A2983 RMK AO2 SLP079 T00671028KMAF2019-02-21T09:53:00Z31.95-102.26.7-2.8180510.029.8287411007.9TRUETRUEVFRSPECI874.02019-02-21 10:02:40 J9TJ=)O5      3KLVM 210953Z AUTO 25006KT 10SM OVC055 M10/M12 A2984 RMK AO2 SNE0858 SLP161 P0000 T11001122 TSNO $KLVM2019-02-21T09:53:00Z45.7-110.43-10.0-12.2250610.029.8405511016.1TRUETRUETRUETRUEVFR0.005SPECI1418.02019-02-21 10:02:40_<)5    3KLVS 210953Z AUTO 17011KT 10SM CLR M08/M13 A2969 RMK AO2 SLP051 T10781133KLVS2019-02-21T09:53:00Z35.65-105.13-7.8-13.31701110.029.689961005.1TRUETRUEVFRSPECI2091.02019-02-21 10:02:40\;)5    3KLWD 210953Z AUTO 20005KT 10SM CLR M09/M12 A3006 RMK AO2 SLP196 T10891117KLWD2019-02-21T09:53:00Z40.63-93.9-8.9-11.7200510.030.0590551019.6TRUETRUEVFRMETAR346.02019-02-21 10:02:40_:)!5    3KLWV 210953Z AUTO 23003KT 10SM CLR 00/M02 A3012 RMK AO2 SLP203 T00001022 $KLWV2019-02-21T09:53:00Z38.77-87.60.0-2.2230310.030.1210631020.3TRUETRUETRUEVFRMETAR131.02019-02-21 10:02:40 _#A_\A)5    3KLSE 210953Z AUTO 22010KT 8SM CLR M09/M13 A2994 RMK AO2 SLP156 T10941128KLSE2019-02-21T09:53:00Z43.88-91.25-9.4-12.8220108.029.9409451015.6TRUETRUEVFRMETAR199.02019-02-21 10:02:40\@)#5    3KLUK 210953Z AUTO 31003KT 10SM FEW027 03/M01 A3011 RMK AO2 SLP198 T00331011KLUK2019-02-21T09:53:00Z39.1-84.423.3-1.1310310.030.1092531019.8TRUETRUEVFRMETAR155.02019-02-21 10:02:40o?)?5     3KLVJ 210953Z AUTO 06008KT 10SM OVC031 13/11 A2993 RMK AO2 RAB03E25 SLP134 P0000 T01280106KLVJ2019-02-21T09:53:00Z29.52-95.2512.810.660810.029.9291341013.4TRUETRUEVFR0.005SPECI12.02019-02-21 10:02:40b>)/5    3KLVK 210953Z AUTO 25004KT 10SM BKN047 OVC110 04/02 A2970 RMK AO2 SLP058 T00440017KLVK2019-02-21T09:53:00Z37.7-121.824.41.7250410.029.6988181005.8TRUETRUEVFRSPECI117.02019-02-21 10:02:40 q 0Tq]E)5    3KLOL 210953Z AUTO 05003KT 10SM CLR M07/M09 A2963 RMK AO2 SLP055 T10671089KLOL2019-02-21T09:53:00Z40.07-118.57-6.7-8.950310.029.6309051005.5TRUETRUEVFRMETAR1189.02019-02-21 10:02:40VD)5    3KLOU 210953Z AUTO 31003KT 7SM CLR 01/00 A3012 RMK AO2 SLP201 T00060000KLOU2019-02-21T09:53:00Z38.22-85.670.60.031037.030.1210631020.1TRUETRUEVFRMETAR164.02019-02-21 10:02:40SC)5     3KLOZ 210953Z AUTO 33007KT 10SM OVC022 07/ A3008 RMK AO2 SLP184 T0067KLOZ2019-02-21T09:53:00Z37.08-84.076.7330710.030.0797251018.4TRUETRUEMVFRMETAR362.02019-02-21 10:02:40qB)M5   3KLPR 210953Z AUTO 27013G22KT 10SM OVC024 02/M04 A3000 RMK AO2 PK WND 30027/0855 SLP166 T00171039KLPR2019-02-21T09:53:00Z41.35-82.181.7-3.9270132210.030.01016.6TRUETRUEMVFRMETAR241.02019-02-21 10:02:40 z,MzMI)5    3KLIT 210953Z 00000KT 7SM BKN250 02/02 A3009 RMK AO2 SLP192 T00170017KLIT2019-02-21T09:53:00Z34.73-92.231.71.7007.030.0885831019.2TRUEVFRMETAR79.02019-02-21 10:02:40YH)5    3KLLQ 210953Z AUTO 00000KT 9SM CLR 01/01 A3007 RMK AO2 SLP183 T00110006 $KLLQ2019-02-21T09:53:00Z33.63-91.751.10.6009.030.0708661018.3TRUETRUETRUEVFRMETAR83.02019-02-21 10:02:40dG)#5    3KLMT 210953Z AUTO 30005KT 10SM CLR M07/M09 A2973 RMK AO2 SLP086 T10671094 $KLMT2019-02-21T09:53:00Z42.15-121.72-6.7-9.4300510.029.7312981008.6TRUETRUETRUEVFRMETAR1246.02019-02-21 10:02:40dF)15     3KLNS 210953Z AUTO 31005KT 2SM BR OVC002 01/00 A2994 RMK AO2 SLP142 I1000 T00110000KLNS2019-02-21T09:53:00Z40.12-76.31.10.031052.029.9409451014.2TRUETRUEBRLIFRMETAR125.02019-02-21 10:02:40 {=_{^M)#5    3KMGY 210953Z AUTO 28010KT 10SM OVC025 03/M02 A3007 RMK AO2 SLP187 T00281022KMGY2019-02-21T09:53:00Z39.6-84.232.8-2.22801010.030.0708661018.7TRUETRUEMVFRMETAR289.02019-02-21 10:02:40XL)5   3KMDW 210953Z 27014G21KT 10SM CLR M02/M07 A3002 RMK AO2 SLP177 T10171072KMDW2019-02-21T09:53:00Z41.78-87.75-1.7-7.2270142110.030.020671017.7TRUEVFRMETAR188.02019-02-21 10:02:40\K)!5    3KMFE 210953Z AUTO 36003KT 10SM OVC016 16/09 A2988 RMK AO2 SLP117 T01610089KMFE2019-02-21T09:53:00Z26.18-98.2516.18.9360310.029.8789371011.7TRUETRUEMVFRMETAR38.02019-02-21 10:02:40[J)5    3KMFR 210953Z AUTO 32004KT 10SM CLR 00/M02 A2986 RMK AO2 SLP118 T00001017KMFR2019-02-21T09:53:00Z42.38-122.870.0-1.7320410.029.8612211011.8TRUETRUEVFRMETAR396.02019-02-21 10:02:40 5:5YQ)5    3KMHE 210953Z AUTO 27007KT 10SM CLR M16/M18 A3000 RMK AO2 SLP186 T11611183KMHE2019-02-21T09:53:00Z43.77-98.02-16.1-18.3270710.030.01018.6TRUETRUEVFRMETAR397.02019-02-21 10:02:40 P)5      3KMHT 210953Z 03005KT 1 1/2SM -FZDZ BR SCT005 OVC018 M04/M06 A2995 RMK AO2 SFC VIS 1 3/4 FZRAE52FZDZB52SNE44 SLP161 P0004 I1000 T10391056KMHT2019-02-21T09:53:00Z42.93-71.43-3.9-5.63051.529.9498021016.1TRUE-FZDZ BRIFR0.04METAR81.02019-02-21 10:02:40^O))5     3KMGM 210953Z AUTO 00000KT 1/2SM FG OVC014 18/18 A3001 RMK AO2 SLP159 T01830178KMGM2019-02-21T09:53:00Z32.3-86.418.317.8000.530.0088581015.9TRUETRUEFGLIFRMETAR63.02019-02-21 10:02:40\N)!5    3KMGW 210953Z AUTO 30006KT 10SM OVC020 10/08 A2998 RMK AO2 SLP154 T01000078KMGW2019-02-21T09:53:00Z39.65-79.9210.07.8300610.029.979331015.4TRUETRUEMVFRMETAR378.02019-02-21 10:02:40 C!++CbU)/5    3KTMB 210953Z AUTO 14007KT 10SM FEW020 FEW028 25/21 A3007 RMK AO2 SLP181 T02500211KTMB2019-02-21T09:53:00Z25.65-80.4325.021.1140710.030.0708661018.1TRUETRUEVFRSPECI2.02019-02-21 10:02:40zT)Y5     3KTOI 210953Z AUTO 18003KT 5SM BR BKN007 BKN017 OVC065 20/20 A3003 RMK AO2 CIG 005V009 SLP164 T02000200KTOI2019-02-21T09:53:00Z31.85-86.0220.020.018035.030.0295281016.4TRUETRUEBRIFRMETAR118.02019-02-21 10:02:40pS);5     3KTOP 210953Z AUTO 00000KT 1/4SM FZFG VV004 M07/M09 A3008 RMK AO2 SLP193 I1001 T10721089KTOP2019-02-21T09:53:00Z39.07-95.63-7.2-8.9000.2530.0797251019.3TRUETRUEFZFGLIFR400SPECI268.02019-02-21 10:02:40YR)5    3KMIE 210953Z AUTO 26008KT 10SM CLR 01/M03 A3005 RMK AO2 SLP180 T00111028KMIE2019-02-21T09:53:00Z40.23-85.41.1-2.8260810.030.0501981018.0TRUETRUEVFRMETAR285.02019-02-21 10:02:40 x9[x]Y)5    3KMKO 210953Z AUTO 03003KT 10SM CLR 03/02 A3008 RMK AO2 SLP186 T00280017 $KMKO2019-02-21T09:53:00Z35.65-95.372.81.730310.030.0797251018.6TRUETRUETRUEVFRSPECI185.02019-02-21 10:02:40XX)5    3KMLB 210953Z AUTO 15009KT 10SM CLR 23/20 A3009 RMK AO2 SLP187 T02280200KMLB2019-02-21T09:53:00Z28.1-80.6522.820.0150910.030.0885831018.7TRUETRUEVFRSPECI11.02019-02-21 10:02:40ZW)!5    3KMLC 210953Z AUTO 01003KT 10SM FEW075 03/01 A3004 RMK AO2 SLP172 T00330011KMLC2019-02-21T09:53:00Z34.88-95.783.31.110310.030.0413381017.2TRUETRUEVFRSPECI232.02019-02-21 10:02:40aV)%5    3KMLP 210953Z AUTO VRB03KT 10SM SCT085 M13/M16 A2972 RMK AO2 SLP144 T11331156KMLP2019-02-21T09:53:00Z47.45-115.67-13.3-15.60310.029.7194881014.4TRUETRUEVFRSPECI1837.02019-02-21 10:02:40 g$Nga])5    3KTOR 210953Z AUTO 36010KT 10SM CLR M11/M15 A2979 RMK AO2 SLP129 T11061150KTOR2019-02-21T09:53:00Z42.07-104.15-10.6-15.03601010.029.7903541012.9TRUETRUEVFRSPECI1277.02019-02-21 10:02:40P\)5    3KTPA 210953Z 12004KT 10SM CLR 22/19 A3008 RMK AO2 SLP185 T02170189KTPA2019-02-21T09:53:00Z27.97-82.5321.718.9120410.030.0797251018.5TRUEVFRSPECI11.02019-02-21 10:02:40g[)/5     3KMIW 210953Z AUTO 26007KT 4SM BR CLR M13/M14 A3002 RMK AO2 SLP181 I1000 T11331139KMIW2019-02-21T09:53:00Z42.12-92.92-13.3-13.926074.030.020671018.1TRUETRUEBRMVFRMETAR296.02019-02-21 10:02:40iZ)55     3KMKL 210953Z AUTO 00000KT 1/4SM FG VV001 00/M01 A3012 RMK AO2 SLP202 I1001 T00001006KMKL2019-02-21T09:53:00Z35.6-88.920.0-0.6000.2530.1210631020.2TRUETRUEFGLIFR100SPECI128.02019-02-21 10:02:40 }:d}aa)-5     3KTTN 210953Z AUTO 29005KT 2 1/2SM BR OVC005 02/00 A2993 RMK AO2 SLP131 T00170000KTTN2019-02-21T09:53:00Z40.28-74.821.70.029052.529.9291341013.1TRUETRUEBRIFRMETAR59.02019-02-21 10:02:40P`)5    3KTUL 210953Z 05003KT 7SM OVC250 02/M02 A3006 RMK AO2 SLP180 T00171017KTUL2019-02-21T09:53:00Z36.2-95.881.7-1.75037.030.0590551018.0TRUEVFRSPECI207.02019-02-21 10:02:40X_)5    3KTTD 210953Z AUTO 05005KT 10SM CLR 01/M02 A3002 RMK AO2 SLP165 T00061017KTTD2019-02-21T09:53:00Z45.55-122.420.6-1.750510.030.020671016.5TRUETRUEVFRMETAR14.02019-02-21 10:02:40b^)35      3KTRI 210953Z 00000KT 3SM BR OVC005 07/07 A3003 RMK AO2 RAE25 SLP159 P0001 T00720072KTRI2019-02-21T09:53:00Z36.48-82.47.27.2003.030.0295281015.9TRUEBRIFR0.01METAR474.02019-02-21 10:02:40 t#>Zt`e)%5    3KRWL 210953Z AUTO 00000KT 10SM OVC080 M13/M16 A2966 RMK AO2 SLP108 T11331161KRWL2019-02-21T09:53:00Z41.78-107.2-13.3-16.10010.029.6604331010.8TRUETRUEVFRMETAR2077.02019-02-21 10:02:40^d)5    3KRXE 210953Z AUTO 05004KT 10SM CLR M15/M17 A2974 RMK AO2 SLP136 T11501167KRXE2019-02-21T09:53:00Z43.83-111.8-15.0-16.750410.029.7401581013.6TRUETRUEVFRMETAR1480.02019-02-21 10:02:40_c)35    3KMIA 210953Z 13009KT 10SM SCT019 SCT046 BKN070 24/22 A3008 RMK AO2 SLP185 T02440217KMIA2019-02-21T09:53:00Z25.8-80.2824.421.7130910.030.0797251018.5TRUEVFRSPECI3.02019-02-21 10:02:40Wb)5    3KMIC 210953Z 23008KT 8SM OVC012 M12/M14 A2988 RMK AO2 SLP133 T11221144KMIC2019-02-21T09:53:00Z45.07-93.35-12.2-14.423088.029.8789371013.3TRUEMVFRMETAR265.02019-02-21 10:02:40 :^Yi)5    3KRUE 210953Z AUTO 00000KT 10SM CLR M01/M02 A3006 RMK AO2 SLP176 T10111017KRUE2019-02-21T09:53:00Z35.25-93.1-1.1-1.70010.030.0590551017.6TRUETRUEVFRSPECI115.02019-02-21 10:02:40Vh)5    3KRVS 210953Z AUTO 00000KT 7SM CLR 02/M02 A3006 RMK AO2 SLP186 T00171017KRVS2019-02-21T09:53:00Z36.05-95.981.7-1.7007.030.0590551018.6TRUETRUEVFRSPECI200.02019-02-21 10:02:40_g)5    3KRWF 210953Z AUTO 26012KT 10SM CLR M14/M17 A2992 RMK AO2 SLP152 T11441167KRWF2019-02-21T09:53:00Z44.55-95.08-14.4-16.72601210.029.9202751015.2TRUETRUEVFRMETAR311.02019-02-21 10:02:40[f)%5     3KRWI 210953Z AUTO 00000KT 4SM BR OVC003 04/04 A3006 RMK AO2 SLP180 T00390039KRWI2019-02-21T09:53:00Z35.85-77.93.93.9004.030.0590551018.0TRUETRUEBRLIFRSPECI47.02019-02-21 10:02:40 Z0SZsm)I5      3KTYS 210953Z 00000KT 1SM -RA BR BKN004 OVC011 09/09 A3003 RMK AO2 SLP167 P0004 T00940089 RVRNOKTYS2019-02-21T09:53:00Z35.82-83.989.48.9001.030.0295281016.7TRUE-RA BRLIFR0.04METAR302.02019-02-21 10:02:40Wl)5    3KTRL 210953Z AUTO 09006KT 10SM CLR 07/02 A3001 RMK AO2 SLP159 T00670017KTRL2019-02-21T09:53:00Z32.72-96.276.71.790610.030.0088581015.9TRUETRUEVFRMETAR145.02019-02-21 10:02:40dk)+5    3KTVL 210953Z AUTO 19003KT 10SM CLR M14/M14 A2953 RMK AO2 SLP040 I1000 T11391144KTVL2019-02-21T09:53:00Z38.9-120.0-13.9-14.4190310.029.5305121004.0TRUETRUEVFRSPECI1924.02019-02-21 10:02:40`j)%5    3KTUP 210953Z AUTO 01008KT 10SM OVC110 07/05 A3009 RMK AO2 SLP187 T00670050 $KTUP2019-02-21T09:53:00Z34.27-88.776.75.010810.030.0885831018.7TRUETRUETRUEVFRMETAR105.02019-02-21 10:02:40 I#G:Ikq)E5    3KTVR 210953Z AUTO 03007KT 10SM OVC110 09/07 A3004 RMK AO2 LTG DSNT SE AND S SLP180 T00940072KTVR2019-02-21T09:53:00Z32.35-91.039.47.230710.030.0413381018.0TRUETRUEVFRSPECI26.02019-02-21 10:02:40p)]5      3KTWF 210953Z AUTO 08015KT 6SM -SN BR FEW019 OVC038 M08/M10 A2969 RMK AO2 SNE18B45 SLP068 P0000 T10781100KTWF2019-02-21T09:53:00Z42.48-114.48-7.8-10.080156.029.689961006.8TRUETRUE-SN BRVFR0.005METAR1266.02019-02-21 10:02:40Vo)5    3KTXK 210953Z AUTO 00000KT 10SM CLR 05/03 A3007 RMK AO2 SLP181 T00500028KTXK2019-02-21T09:53:00Z33.45-93.985.02.80010.030.0708661018.1TRUETRUEVFRSPECI111.02019-02-21 10:02:40Wn)5    3KTYR 210953Z AUTO 10005KT 10SM CLR 05/03 A3001 RMK AO2 SLP161 T00500033KTYR2019-02-21T09:53:00Z32.37-95.45.03.3100510.030.0088581016.1TRUETRUEVFRMETAR165.02019-02-21 10:02:40 U;^Uu)_5      3KUUU 210953Z AUTO 12007KT 2SM -RA BR OVC003 02/02 A2984 RMK AO2 UPB30E36RAB36SNE30 SLP106 P0003 T00220022KUUU2019-02-21T09:53:00Z41.53-71.282.22.212072.029.8405511010.6TRUETRUE-RA BRLIFR0.03SPECI51.02019-02-21 10:02:40Wt)5    3KUNO 210953Z AUTO 35004KT 8SM CLR 00/M02 A3009 RMK AO2 SLP194 T00001017KUNO2019-02-21T09:53:00Z36.88-91.90.0-1.735048.030.0885831019.4TRUETRUEVFRSPECI372.02019-02-21 10:02:40Xs)5    3KUAO 210953Z AUTO 36007KT 10SM CLR 01/00 A3001 RMK AO2 SLP161 T00110000KUAO2019-02-21T09:53:00Z45.25-122.771.10.0360710.030.0088581016.1TRUETRUEVFRSPECI59.02019-02-21 10:02:40ar)#5    3KUIL 210953Z AUTO 02003KT 10SM CLR M02/M03 A3006 RMK AO2 SLP181 T10221028 $KUIL2019-02-21T09:53:00Z47.93-124.55-2.2-2.820310.030.0590551018.1TRUETRUETRUEVFRSPECI54.02019-02-21 10:02:40 J"#9Jiy)-5   3KTVC 210953Z AUTO 24011G20KT 10SM OVC038 01/M06 A2978 RMK AO2 SLP092 T00111056 $KTVC2019-02-21T09:53:00Z44.73-85.571.1-5.6240112010.029.7785431009.2TRUETRUETRUEVFRSPECI190.02019-02-21 10:02:40dx)-5     3KVLD 210953Z AUTO 18006KT 2 1/2SM BR OVC002 19/19 A3006 RMK AO2 SLP186 T01940194KVLD2019-02-21T09:53:00Z30.78-83.2719.419.418062.530.0590551018.6TRUETRUEBRLIFRSPECI62.02019-02-21 10:02:40yw)=5      3KVEL 210953Z AUTO 33005KT 3SM -SN BR OVC028 M08/M10 A2965 RMK AO2 SLP086 P0000 T10781100KVEL2019-02-21T09:53:00Z40.45-109.52-7.8-10.033053.029.6486231008.6TRUETRUE-SN BRMVFR0.005SPECI1604.02019-02-21 10:02:40Xv)5    3KVCB 210953Z AUTO 35006KT 10SM CLR 04/02 A2974 RMK AO2 SLP071 T00390017KVCB2019-02-21T09:53:00Z38.38-121.953.91.7350610.029.7401581007.1TRUETRUEVFRMETAR33.02019-02-21 10:02:40 ='IH=})]5   !   3KVPC 210953Z AUTO 00000KT 5SM VCTS RA BR OVC012 07/07 A3007 RMK AO2 LTG DSNT NW-E SLP179 P0016 T00720067KVPC2019-02-21T09:53:00Z34.13-84.857.26.7005.030.0708661017.9TRUETRUEVCTS RA BRMVFR0.16SPECI222.02019-02-21 10:02:40{|)M5      3KVGT 210953Z AUTO 15004KT 3SM -SN BR OVC003 01/00 A2960 RMK AO2 TWR VIS 6 SLP049 P0001 T00060000KVGT2019-02-21T09:53:00Z36.22-115.20.60.015043.029.6013771004.9TRUETRUE-SN BRLIFR0.01METAR671.02019-02-21 10:02:40X{)5    3KVIH 210953Z AUTO 00000KT 8SM CLR M04/M06 A3010 RMK AO2 SLP204 T10391056KVIH2019-02-21T09:53:00Z38.13-91.77-3.9-5.6008.030.1003931020.4TRUETRUEVFRSPECI333.02019-02-21 10:02:40Sz)5    3KTUS 210953Z 23007KT 10SM CLR 08/M11 A2977 RMK AO2 SLP065 T00781106KTUS2019-02-21T09:53:00Z32.13-110.957.8-10.6230710.029.7696861006.5TRUEVFRSPECI776.02019-02-21 10:02:40 X!<SXu)G5      3KWST 210953Z AUTO 08006KT 4SM -RA BR OVC004 04/04 A2984 RMK AO2 PRESFR SLP105 P0003 T00440044KWST2019-02-21T09:53:00Z41.35-71.84.44.48064.029.8405511010.5TRUETRUE-RA BRLIFR0.03SPECI21.02019-02-21 10:02:40c)%5    3KWRL 210953Z AUTO 32004KT 10SM OVC048 M10/M12 A2981 RMK AO2 SLP145 T11001122KWRL2019-02-21T09:53:00Z43.97-107.95-10.0-12.2320410.029.8110241014.5TRUETRUEVFRMETAR1271.02019-02-21 10:02:40_)/5    3KVUO 210953Z AUTO 00000KT 10SM FEW007 OVC013 01/00 A3002 RMK AO2 SLP167 T00110000KVUO2019-02-21T09:53:00Z45.62-122.651.10.00010.030.020671016.7TRUETRUEMVFRSPECI8.02019-02-21 10:02:40Y~)5    3KVRB 210953Z AUTO 14007KT 10SM CLR 22/21 A3009 RMK AO2 SLP189 T02170206KVRB2019-02-21T09:53:00Z27.65-80.4221.720.6140710.030.0885831018.9TRUETRUEVFRSPECI10.02019-02-21 10:02:40 "Fk`))5     3KYKM 210953Z AUTO 25003KT 4SM BR BKN055 M08/M10 A3000 RMK AO2 SLP174 T10831100KYKM2019-02-21T09:53:00Z46.57-120.53-8.3-10.025034.030.01017.4TRUETRUEBRMVFRSPECI324.02019-02-21 10:02:40U)5    3KYIP 210953Z 25013KT 10SM OVC031 03/M03 A2992 RMK AO2 SLP136 T00331028KYIP2019-02-21T09:53:00Z42.23-83.533.3-2.82501310.029.9202751013.6TRUEVFRSPECI215.02019-02-21 10:02:40V)5    3KXNA 210953Z AUTO 02004KT 7SM CLR 01/M02 A3005 RMK AO2 SLP178 T00061022KXNA2019-02-21T09:53:00Z36.28-94.30.6-2.22047.030.0501981017.8TRUETRUEVFRSPECI392.02019-02-21 10:02:40X)5    3KWVI 210953Z AUTO 31004KT 10SM CLR 02/01 A2972 RMK AO2 SLP065 T00220011KWVI2019-02-21T09:53:00Z36.93-121.782.21.1310410.029.7194881006.5TRUETRUEVFRMETAR43.02019-02-21 10:02:40 2e )+5     3PHNL 210953Z 36004KT 10SM FEW025 20/17 A2999 RMK AO2 SLP156 T02000167 402560167PHNL2019-02-21T09:53:00Z21.33-157.9220.016.7360410.029.9911421015.6TRUEVFR25.616.7METAR4.02019-02-21 10:02:40$)5      3PAPB 210953Z AUTO 24023G28KT 10SM -SN FEW028 BKN033 OVC055 01/M02 A3010 RMK AO2 PK WND 26032/0922 SNB52 SLP181 P0000 T00111022 TSNOPAPB2019-02-21T09:53:00Z56.58-169.671.1-2.2240232810.030.1003931018.1TRUETRUETRUE-SNVFR0.005SPECI35.02019-02-21 10:02:40e)15 -  3KMWN 210953Z 23050G62KT 1/16SM -SGSN FZFG BLSN VV000 M10/M10 RMK SGB25 VRY LGT ICGKMWN2019-02-21T09:53:00Z44.27-71.3-10.0-10.023050620.06-SG -SN FZFG BLSLIFR0METAR1910.02019-02-21 10:02:40])#5    3KZZV 210953Z AUTO 28007KT 10SM OVC027 04/M01 A3004 RMK AO2 SLP177 T00391011KZZV2019-02-21T09:53:00Z39.95-81.93.9-1.1280710.030.0413381017.7TRUETRUEMVFRMETAR268.02019-02-21 10:02:40 ?Y; );5      3PASN 210953Z AUTO 27016G28KT 6SM -SN BR FEW025 BKN036 OVC047 M02/M04 A3007 RMK AO2 PK WND 26034/0934 UPB05E35SNE05B30E31B35 SLP183 P0000 T10221044 TSNOPASN2019-02-21T09:53:00Z57.15-170.22-2.2-4.427016286.030.0708661018.3TRUETRUETRUE-SN BRVFR0.005METAR29.02019-02-21 10:02:40` )'5      3PASI 210953Z 12011KT 6SM BR OVC020 03/01 A3007 RMK AO2 SLP181 P0002 T00280011PASI2019-02-21T09:53:00Z57.07-135.352.81.1120116.030.0708661018.1TRUEBRMVFR0.02SPECI5.02019-02-21 10:02:40V )5    3PASC 210953Z 22007KT 10SM SCT150 M24/M28 A3002 RMK AO2 SLP168 T12441283PASC2019-02-21T09:53:00Z70.2-148.47-24.4-28.3220710.030.020671016.8TRUEVFRMETAR15.02019-02-21 10:02:40_ )'5     3PAQT 210953Z AUTO 13005KT 10SM CLR M26/M29 A3004 RMK AO2 SLPNO T12611289 TSNOPAQT2019-02-21T09:53:00Z70.22-151.0-26.1-28.9130510.030.041338TRUETRUETRUEVFRMETAR12.02019-02-21 10:02:40 y)?5      3PHTO 210953Z AUTO 22003KT 10SM OVC028 23/17 A2997 RMK AO2 SLP148 T02280172 402890183 TSNOPHTO2019-02-21T09:53:00Z19.72-155.0522.817.2220310.029.9704721014.8TRUETRUETRUEMVFR28.918.3METAR12.02019-02-21 10:02:40u)95      3PHKO 210953Z AUTO 33006KT 10SM CLR 22/20 A2997 RMK AO2 SLP151 T02220200 402610200 TSNOPHKO2019-02-21T09:53:00Z19.73-156.0522.220.0330610.029.9704721015.1TRUETRUETRUEVFR26.120.0METAR27.02019-02-21 10:02:40)I5       3PASO 210953Z AUTO VRB03KT 3/4SM -SN BR VV011 M01/M02 A2971 RMK AO2 SLP060 P0005 T10061017 TSNOPASO2019-02-21T09:53:00Z59.45-151.7-0.6-1.7030.7529.710631006.0TRUETRUETRUE-SN BRLIFR0.051100SPECI9.02019-02-21 10:02:40  h)/5     3PATK 210953Z AUTO 35005KT 10SM FEW060 M07/M12 A2982 RMK AO2 SLP107 T10721117 TSNOPATK2019-02-21T09:53:00Z62.3-150.1-7.2-11.7350510.029.8198811010.7TRUETRUETRUEVFRMETAR109.02019-02-21 10:02:40x)?5      3PHLI 210953Z AUTO 24007KT 10SM FEW060 19/16 A3001 RMK AO2 SLP160 T01890161 402610178 TSNOPHLI2019-02-21T09:53:00Z21.97-159.3318.916.1240710.030.0088581016.0TRUETRUETRUEVFR26.117.8METAR45.02019-02-21 10:02:40)Q5       3PAYA 210953Z AUTO 09007KT 1SM -SN BR OVC007 01/M01 A2991 RMK AO2 SLP129 P0003 T00061006 TSNO RVRNOPAYA2019-02-21T09:53:00Z59.52-139.670.6-0.69071.029.9114171012.9TRUETRUETRUE-SN BRIFR0.03METAR11.02019-02-21 10:02:40o)95      3PHJR 210953Z AUTO 04004KT 10SM CLR 18/16 A3000 RMK AO2 SLP166 T01780161 402560156 TSNOPHJR2019-02-21T09:53:00Z21.32-158.0717.816.140410.030.01016.6TRUETRUETRUEVFR25.615.6METAR15.02019-02-21 10:02:40 gggz)G5       3PAGY 210953Z AUTO 07004KT 3SM -SN BR OVC010 M01/M03 A2998 RMK AO2 SLP151 P0002 T10111028 TSNOPAGY2019-02-21T09:53:00Z59.47-135.3-1.1-2.87043.029.979331015.1TRUETRUETRUE-SN BRMVFR0.02SPECI5.02019-02-21 10:02:40)([5   3FASB 210953Z 11005KT CAVOK 30/M00 Q1020FASB2019-02-21T09:53:00Z-29.6817.9330.00.011056.2130.11811VFRMETAR813.02019-02-21 10:02:40w)W5   3TIST 210953Z AUTO 07015G25KT 7SM BKN050 BKN065 23/19 A3007 RMK AO2 PK WND 05026/0942 SLP183 T02280194TIST2019-02-21T09:53:00Z18.33-64.9822.819.47015257.030.0708661018.3TRUETRUEVFRMETAR7.02019-02-21 10:02:40g)+5     3TISX 210953Z AUTO 07010KT 10SM CLR 25/17 A3007 RMK AO2 SLP181 T02500172 PWINO $TISX2019-02-21T09:53:00Z17.7-64.825.017.2701010.030.0708661018.1TRUETRUETRUETRUEVFRMETAR19.02019-02-21 10:02:40 H:JH|)I5      3KBDE 210953Z AUTO 33006KT 5SM -SN BR OVC030 M08/M09 A2981 RMK AO2 SNB13 SLP115 P0000 T10831094KBDE2019-02-21T09:53:00Z48.73-94.62-8.3-9.433065.029.8110241011.5TRUETRUE-SN BRMVFR0.005METAR329.02019-02-21 10:02:40j)C5    3KBEH 210953Z AUTO 24014KT 10SM CLR M01/M06 A3000 RMK AO2 PK WND 25027/0915 SLP164 T10061056KBEH2019-02-21T09:53:00Z42.13-86.42-0.6-5.62401410.030.01016.4TRUETRUEVFRSPECI191.02019-02-21 10:02:40X)5    3KFPR 210953Z AUTO 14007KT 10SM CLR 23/20 A3009 RMK AO2 SLP189 T02280200KFPR2019-02-21T09:53:00Z27.5-80.3822.820.0140710.030.0885831018.9TRUETRUEVFRMETAR13.02019-02-21 10:02:40b)15    3PAFA 210953Z 03003KT 10SM BKN085 OVC110 M15/M18 A2992 RMK AO2 SLP145 T11501178 PNOPAFA2019-02-21T09:53:00Z64.8-147.85-15.0-17.830310.029.9202751014.5TRUEVFRMETAR132.02019-02-21 10:02:40 y*E^y_ )#5     3KDMO 210953Z AUTO 22004KT 6SM BR CLR M02/M02 A3010 RMK AO2 SLP202 T10171022KDMO2019-02-21T09:53:00Z38.72-93.17-1.7-2.222046.030.1003931020.2TRUETRUEBRVFRMETAR274.02019-02-21 10:02:40a)5    3KLND 210953Z AUTO 25011KT 10SM CLR M12/M21 A2970 RMK AO2 SLP117 T11221206KLND2019-02-21T09:53:00Z42.82-108.73-12.2-20.62501110.029.6988181011.7TRUETRUEVFRMETAR1694.02019-02-21 10:02:40_)5    3KNQX 210953Z AUTO 14011KT 10SM CLR 26/22 A3004 RMK AO2 SLP170 T02560217 $KNQX2019-02-21T09:53:00Z24.57-81.6725.621.71401110.030.0413381017.0TRUETRUETRUEVFRMETAR2.02019-02-21 10:02:40P) 5     3KBJC 210953Z AUTO 35009KT 10SM CLR M08/M16 A2972 RMK AO2 PWINOKBJC2019-02-21T09:53:00Z39.9-105.1-8.0-16.0350910.029.719488TRUETRUETRUEVFRMETAR1724.02019-02-21 10:02:40 <<U$)5     3K5SM 210953Z AUTO 12005KT 1 1/2SM -SN OVC009 M15/M17 A2955 RMK AO2K5SM2019-02-21T09:53:00Z39.43-107.38-15.0-17.012051.529.551182TRUETRUE-SNIFRMETAR3232.02019-02-21 10:02:40#)W5      3KGTF 210953Z 35011KT 1 1/2SM -SN BR OVC026 M10/M11 A2997 RMK AO2 SFC VIS 2 1/2 SLP215 P0001 T11001106KGTF2019-02-21T09:53:00Z47.47-111.38-10.0-10.6350111.529.9704721021.5TRUE-SN BRIFR0.01METAR1119.02019-02-21 10:02:40_")#5     3KFNB 210953Z AUTO 00000KT 6SM BR CLR M13/M14 A3008 RMK AO2 SLP199 T11281144KFNB2019-02-21T09:53:00Z40.07-95.58-12.8-14.4006.030.0797251019.9TRUETRUEBRVFRMETAR300.02019-02-21 10:02:40v!)Q5   3KELY 210953Z AUTO 18011KT SCT041 OVC050 M16/M18 A2952 RMK AO2 PK WND 32027/0943 SLP042 T11561178 $KELY2019-02-21T09:53:00Z39.3-114.85-15.6-17.81801129.5187021004.2TRUETRUETRUEMETAR1906.02019-02-21 10:02:40Y88@HPX`hpx (08@HPX`hpx (08@HPX`hpx:;<=!>%?)@-A1B5C9D=EA:;<=!>%?)@-A1B5C9D=EAFEGIHMIQJUKYL]MaNeOiPmQqRuSyT}UVW X YZ[\] ^$`(a,b0c4d8e<f@gDhHiLjPkTlXm\n`ocpgqkrosstwu{vwxy z{|}~#'+/48=AFKPUZ^chmrw| ,\xk()?5    3KCZZ 210952Z AUTO 25020G31KT 04/02 A2960 RMK AO1 PK WND 26031/0949 SLP017 P0004 T00390017KCZZ2019-02-21T09:52:00Z32.63-116.473.91.7250203129.6013771001.7TRUETRUE0.04METAR807.02019-02-21 10:02:40^')#5     3KCFV 210952Z AUTO 00000KT 4SM BR CLR M01/M02 A3007 RMK AO2 SLP188 T10111022KCFV2019-02-21T09:52:00Z37.08-95.57-1.1-2.2004.030.0708661018.8TRUETRUEBRMVFRSPECI225.02019-02-21 10:02:40J&)5    3PADL 210953Z VRB03KT 6SM -SN BR SCT006 BKN011 OVC032 M02/M03 A2986PADL2019-02-21T09:53:00Z59.05-158.5-2.0-3.0036.029.861221-SN BRMVFRMETAR26.02019-02-21 10:02:40N%) 5   3KP68 210953Z AUTO 22004KT M11/M12 A2953 RMK AO1 SLP019 T11061117KP682019-02-21T09:53:00Z39.6-116.0-10.6-11.7220429.5305121001.9TRUETRUEMETAR1809.02019-02-21 10:02:40 E<Eq,)75     3KBAN 210952Z AUTO 00000KT 10SM OVC048 M11/M16 A2950 RMK AO2 SLP978 T11061161 FZRANO $KBAN2019-02-21T09:52:00Z38.35-119.52-10.6-16.10010.029.500984997.8TRUETRUETRUETRUEVFRMETAR2057.02019-02-21 10:02:40L+) 5   3KREO 210952Z AUTO 02005KT M03/M05 A2967 RMK AO1 SLP068 T10331050KREO2019-02-21T09:52:00Z42.58-117.87-3.3-5.020529.669291006.8TRUETRUESPECI1235.02019-02-21 10:02:40 *)o5      3KORE 210952Z AUTO 00000KT 5SM BR FEW005 OVC011 M02/M04 A2992 RMK AO2 UPB37E45FZRAE37 SLP141 P0000 I1002 T10221044KORE2019-02-21T09:52:00Z42.57-72.28-2.2-4.4005.029.9202751014.1TRUETRUEBRMVFR0.005SPECI164.02019-02-21 10:02:40]))!5    3KHRL 210952Z AUTO 36005KT 10SM OVC021 14/12 A2986 RMK AO2 SLP111 T01440122KHRL2019-02-21T09:52:00Z26.23-97.6514.412.2360510.029.8612211011.1TRUETRUEMVFRSPECI10.02019-02-21 10:02:40 0B]R0)5    3KABI 210952Z 13012KT 10SM CLR 08/M02 A2988 RMK AO2 SLP111 T00781017KABI2019-02-21T09:52:00Z32.42-99.687.8-1.71301210.029.8789371011.1TRUEVFRSPECI548.02019-02-21 10:02:40_/)%5    3KNHK 210952Z AUTO 21004KT 10SM OVC005 03/03 A2999 RMK AO2 SLP156 T00280028 $KNHK2019-02-21T09:52:00Z38.27-76.42.82.8210410.029.9911421015.6TRUETRUETRUEIFRMETAR12.02019-02-21 10:02:40h.)=5    3KNZY 210952Z 28013KT 9SM SCT035 BKN046 BKN060 14/06 A2972 RMK AO2 SLP063 T01440056 PNO $KNZY2019-02-21T09:52:00Z32.7-117.2214.45.6280139.029.7194881006.3TRUETRUEVFRMETAR8.02019-02-21 10:02:40J-) 5   3KCDJ 210952Z AUTO 00000KT M07/M09 A3011 RMK AO1 SLP212 T10721089KCDJ2019-02-21T09:52:00Z39.82-93.58-7.2-8.90030.1092531021.2TRUETRUESPECI234.02019-02-21 10:02:40 S"'7S^4)%5    3KAQW 210952Z AUTO 08008KT 10SM OVC018 M01/M03 A2987 RMK AO2 SLP125 T10111033KAQW2019-02-21T09:52:00Z42.7-73.17-1.1-3.380810.029.8700791012.5TRUETRUEMVFRSPECI199.02019-02-21 10:02:40j3)35    3KALS 210952Z AUTO 32003KT 10SM BKN100 OVC110 M12/M15 A2966 RMK AO2 SLP092 T11171150KALS2019-02-21T09:52:00Z37.43-105.87-11.7-15.0320310.029.6604331009.2TRUETRUEVFRSPECI2299.02019-02-21 10:02:40u2)M5     3KAFN 210952Z AUTO 00000KT 3SM BR M03/M04 A2990 RMK AO2 FZRAB37E52 SLP144 P0002 I1/// T10331039 $KAFN2019-02-21T09:52:00Z42.8-72.0-3.3-3.9003.029.8996071014.4TRUETRUETRUEBR0.02SPECI313.02019-02-21 10:02:40X1)5    3KABQ 210952Z 11006KT 10SM BKN180 M03/M12 A2971 RMK AO2 SLP065 T10281117KABQ2019-02-21T09:52:00Z35.05-106.62-2.8-11.7110610.029.710631006.5TRUEVFRSPECI1618.02019-02-21 10:02:40 l8)75     3KBIS 210952Z AUTO 24005KT 6SM BR FEW020 OVC065 M16/M17 A2995 RMK AO2 SLP179 T11561172KBIS2019-02-21T09:52:00Z46.77-100.75-15.6-17.224056.029.9498021017.9TRUETRUEBRVFRSPECI505.02019-02-21 10:02:40Y7)!5    3KBDR 210952Z AUTO 36007KT 10SM OVC009 02/01 A2987 RMK AO2 SLP115 T00170011KBDR2019-02-21T09:52:00Z41.17-73.131.71.1360710.029.8700791011.5TRUETRUEIFRSPECI7.02019-02-21 10:02:40+6)55      3KATL 210952Z 12003KT 1/2SM R09R/P6000FT -RA BR OVC004 07/06 A3004 RMK AO2 SFC VIS 4 LTG DSNT NW SLP176 CIG 003V005 CB DSNT NW TWRINC P0003 T00670056KATL2019-02-21T09:52:00Z33.63-84.456.75.612030.530.0413381017.6TRUE-RA BRLIFR0.03METAR296.02019-02-21 10:02:40c5)'5     3KARR 210952Z AUTO 22008KT 7SM CLR M03/M07 A3001 RMK AO2 SLP171 T10331072 TSNOKARR2019-02-21T09:52:00Z41.77-88.48-3.3-7.222087.030.0088581017.1TRUETRUETRUEVFRSPECI215.02019-02-21 10:02:40 + +_<)%5    3KBLU 210952Z AUTO 06004KT 10SM FEW120 M06/M09 A2957 RMK AO2 SLP048 T10611094KBLU2019-02-21T09:52:00Z39.28-120.7-6.1-9.460410.029.5688971004.8TRUETRUEVFRSPECI1609.02019-02-21 10:02:40u;)=5      3KBML 210952Z AUTO 18004KT 4SM -SN BR OVC024 M05/M07 A2986 RMK AO2 SLP131 P0001 T10501072KBML2019-02-21T09:52:00Z44.58-71.18-5.0-7.218044.029.8612211013.1TRUETRUE-SN BRMVFR0.01SPECI345.02019-02-21 10:02:40t:)G5     3KBLH 210952Z AUTO 18006KT 10SM SCT090 BKN110 09/05 A2964 RMK AO2 RAE00 SLP034 P0000 T00940050KBLH2019-02-21T09:52:00Z33.62-114.729.45.0180610.029.6397631003.4TRUETRUEVFR0.005SPECI119.02019-02-21 10:02:40u9)E5      3KBLF 210952Z AUTO 25007KT 1/2SM FG VV003 10/09 A3001 RMK AO2 RAB07E21 SLP161 P0001 T01000094KBLF2019-02-21T09:52:00Z37.3-81.210.09.425070.530.0088581016.1TRUETRUEFGLIFR0.01300SPECI873.02019-02-21 10:02:40 q9BqK@) 5     3CYOY 210952Z AUTO 05005KT 3/8SM -SN OVC000 OVC010 M10/M11 A2985CYOY2019-02-21T09:52:00Z46.88-71.5-10.0-11.05050.3829.84941TRUE-SNLIFRSPECI168.02019-02-21 10:02:40q?)75     3PABA 210952Z AUTO 26008KT 10SM CLR M21/M23 A3004 RMK AO2 SLP157 T12111233 FZRANO TSNOPABA2019-02-21T09:52:00Z70.13-143.58-21.1-23.3260810.030.0413381015.7TRUETRUETRUETRUEVFRMETAR2.02019-02-21 10:02:40Z>)!5    3KCKV 210952Z AUTO 00000KT 10SM OVC011 06/04 A3010 RMK AO2 SLP193 T00560039KCKV2019-02-21T09:52:00Z36.62-87.425.63.90010.030.1003931019.3TRUETRUEMVFRMETAR165.02019-02-21 10:02:40a=)#5     3KCID 210952Z AUTO 26008KT 6SM BR CLR M11/M12 A3001 RMK AO2 SLP174 T11061117KCID2019-02-21T09:52:00Z41.88-91.72-10.6-11.726086.030.0088581017.4TRUETRUEBRVFRSPECI264.02019-02-21 10:02:40 m?TmaD)'5   3KOKB 210952Z AUTO 25014G23KT 10SM SCT039 11/06 A2968 RMK AO2 SLP051 T01060056KOKB2019-02-21T09:52:00Z33.22-117.3510.65.6250142310.029.6811031005.1TRUETRUEVFRSPECI8.02019-02-21 10:02:40eC)75    3KOKC 210952Z 10010KT 8SM SCT180 BKN200 BKN250 02/M01 A2998 RMK AO2 SLP157 T00171006 $KOKC2019-02-21T09:52:00Z35.38-97.61.7-0.6100108.029.979331015.7TRUETRUEVFRSPECI390.02019-02-21 10:02:40XB)5    3KOMA 210952Z 15005KT 7SM CLR M12/M14 A3007 RMK AO2 SLP199 I1001 T11221144KOMA2019-02-21T09:52:00Z41.32-95.9-12.2-14.415057.030.0708661019.9TRUEVFRSPECI312.02019-02-21 10:02:40]A)#5     3KPPF 210952Z AUTO 00000KT 4SM BR CLR M02/M02 A3008 RMK AO2 SLP192 T10171022KPPF2019-02-21T09:52:00Z37.33-95.5-1.7-2.2004.030.0797251019.2TRUETRUEBRMVFRSPECI274.02019-02-21 10:02:40 t<Vt\H)!5   3KMKE 210952Z 25012G23KT 10SM FEW200 M04/M10 A2994 RMK AO2 SLP148 T10391100KMKE2019-02-21T09:52:00Z42.95-87.9-3.9-10.0250122310.029.9409451014.8TRUEVFRSPECI206.02019-02-21 10:02:40`G)5    3KMLF 210952Z AUTO 28008KT 10SM CLR M11/M13 A2955 RMK AO2 SLP042 T11061128KMLF2019-02-21T09:52:00Z38.42-113.02-10.6-12.8280810.029.5511821004.2TRUETRUEVFRSPECI1534.02019-02-21 10:02:40ZF)5    3KMLI 210952Z AUTO 25007KT 9SM CLR M05/M08 A3004 RMK AO2 SLP178 T10501083KMLI2019-02-21T09:52:00Z41.45-90.52-5.0-8.325079.030.0413381017.8TRUETRUEVFRMETAR184.02019-02-21 10:02:40^E)%5    3KMWH 210952Z AUTO 02004KT 10SM FEW055 M08/M12 A2998 RMK AO2 SLP168 T10831117KMWH2019-02-21T09:52:00Z47.2-119.32-8.3-11.720410.029.979331016.8TRUETRUEVFRSPECI362.02019-02-21 10:02:40 V#<V`L)#5    3KMDH 210952Z AUTO 00000KT 10SM CLR M01/M02 A3013 RMK AO2 SLP203 T10111022 $KMDH2019-02-21T09:52:00Z37.78-89.25-1.1-2.20010.030.1299211020.3TRUETRUETRUEVFRSPECI130.02019-02-21 10:02:40aK))5     3KMEB 210952Z AUTO 31004KT 3/4SM BR OVC002 05/04 A3010 RMK AO2 SLP193 T00500044KMEB2019-02-21T09:52:00Z34.78-79.375.04.431040.7530.1003931019.3TRUETRUEBRLIFRSPECI67.02019-02-21 10:02:40lJ);5   3KMFD 210952Z AUTO 27012G24KT 10SM FEW013 OVC021 01/M02 A3000 RMK AO2 SLP170 T00111022 $KMFD2019-02-21T09:52:00Z40.82-82.521.1-2.2270122410.030.01017.0TRUETRUETRUEMVFRSPECI395.02019-02-21 10:02:40eI)/5     3KMHK 210952Z AUTO 00000KT 4SM BR CLR M09/M11 A3006 RMK AO2 SLP190 I1000 T10941111KMHK2019-02-21T09:52:00Z39.13-96.68-9.4-11.1004.030.0590551019.0TRUETRUEBRMVFRSPECI317.02019-02-21 10:02:40 n5MnYP)5    3KTOL 210952Z 25011KT 10SM OVC031 02/M03 A2998 RMK AO2 SLP157 T00221028 $KTOL2019-02-21T09:52:00Z41.58-83.82.2-2.82501110.029.979331015.7TRUETRUEVFRSPECI210.02019-02-21 10:02:40bO)/5    3KTRM 210952Z AUTO VRB03KT 10SM BKN075 OVC090 12/03 A2962 RMK AO2 SLP029 T01170028KTRM2019-02-21T09:52:00Z33.63-116.1711.72.80310.029.6190951002.9TRUETRUEVFRSPECI-35.02019-02-21 10:02:40]N)5    3KVTN 210952Z AUTO 31003KT 8SM CLR M21/M23 A2992 RMK AO2 SLP184 T12061233KVTN2019-02-21T09:52:00Z42.87-100.55-20.6-23.331038.029.9202751018.4TRUETRUEVFRSPECI788.02019-02-21 10:02:40bM)%5    3KMBG 210952Z AUTO 31004KT 10SM BKN055 M18/M21 A2990 RMK AO2 SLP166 T11781206KMBG2019-02-21T09:52:00Z45.55-100.42-17.8-20.6310410.029.8996071016.6TRUETRUEVFRSPECI510.02019-02-21 10:02:40 L.L\T)%5   3KPWK 210952Z AUTO 25010G18KT 10SM CLR M02/M08 A3000 RMK AO2 SLP167 T10171083KPWK2019-02-21T09:52:00Z42.12-87.9-1.7-8.3250101810.030.01016.7TRUETRUEVFRSPECI203.02019-02-21 10:02:40ZS)5    3KPQL 210952Z AUTO 00000KT 1/4SM FG 21/19 A2998 RMK AO2 SLP152 T02060194 $KPQL2019-02-21T09:52:00Z30.47-88.5320.619.4000.2529.979331015.2TRUETRUETRUEFGSPECI6.02019-02-21 10:02:40`R)#5     3KCNU 210952Z AUTO 14003KT 4SM BR CLR M03/M05 A3007 RMK AO2 SLP189 T10331050KCNU2019-02-21T09:52:00Z37.67-95.48-3.3-5.014034.030.0708661018.9TRUETRUEBRMVFRSPECI297.02019-02-21 10:02:40Q)m5      3KTAN 210952Z AUTO 00000KT 3SM -RA BR OVC006 01/00 A2988 RMK AO2 RAB15FZRAE15 PRESFR SLP118 P0001 I1000 T00110000KTAN2019-02-21T09:52:00Z41.88-71.021.10.0003.029.8789371011.8TRUETRUE-RA BRIFR0.01SPECI7.02019-02-21 10:02:40 a 5aNX)5    3KSPS 210952Z 15007KT 10SM CLR 04/02 A2994 RMK AO2 SLP139 T00390017KSPS2019-02-21T09:52:00Z33.98-98.53.91.7150710.029.9409451013.9TRUEVFRSPECI308.02019-02-21 10:02:40PW) 5   3KN60 210952Z AUTO 31011KT M16/M18 A2991 RMK AO1 SLP171 T11561178KN602019-02-21T09:52:00Z47.65-101.43-15.6-17.83101129.9114171017.1TRUETRUEMETAR582.02019-02-21 10:02:40_V)5    3KRAP 210952Z AUTO 31007KT 10SM CLR M16/M19 A2987 RMK AO2 SLP176 T11561189KRAP2019-02-21T09:52:00Z44.05-103.05-15.6-18.9310710.029.8700791017.6TRUETRUEVFRMETAR965.02019-02-21 10:02:40 U)q5      3KPYM 210952Z AUTO VRB03KT 3SM -RA BR OVC006 01/M01 A2989 RMK AO2 UPB28E37RAB39FZRAE06 SLP124 P0001 I1001 T00061006KPYM2019-02-21T09:52:00Z41.92-70.730.6-0.6033.029.8907471012.4TRUETRUE-RA BRIFR0.01SPECI43.02019-02-21 10:02:40 i?IiZ\)5    3KSUX 210952Z AUTO 00000KT 7SM CLR M18/M19 A3003 RMK AO2 SLP191 T11781189KSUX2019-02-21T09:52:00Z42.38-96.38-17.8-18.9007.030.0295281019.1TRUETRUEVFRSPECI338.02019-02-21 10:02:40p[)55     3PATA 210952Z AUTO 07010KT 10SM CLR M14/M18 A2999 RMK AO2 SLP163 T11441183 TSNO PNO $PATA2019-02-21T09:52:00Z65.17-152.1-14.4-18.3701010.029.9911421016.3TRUETRUETRUETRUEVFRSPECI67.02019-02-21 10:02:40WZ)5     3KSGF 210952Z 15003KT 5SM BR CLR M02/M03 A3007 RMK AO2 SLP190 T10171033KSGF2019-02-21T09:52:00Z37.23-93.38-1.7-3.315035.030.0708661019.0TRUEBRMVFRSPECI390.02019-02-21 10:02:40^Y)5    3KSPI 210952Z AUTO 25008KT 9SM CLR 00/M02 A3009 RMK AO2 SLP195 T00001017 $KSPI2019-02-21T09:52:00Z39.85-89.680.0-1.725089.030.0885831019.5TRUETRUETRUEVFRSPECI181.02019-02-21 10:02:40 N<Nh`)E5     3KIAD 210952Z 00000KT 6SM BR SCT002 BKN009 OVC075 00/M01 A2999 RMK AO2 SLP157 I1001 T00001006KIAD2019-02-21T09:52:00Z38.93-77.450.0-0.6006.029.9911421015.7TRUEBRIFRSPECI93.02019-02-21 10:02:40W_)5   3KIEN 210952Z AUTO 00000KT CLR M19/M22 A2987 RMK AO2 SLP171 T11891217 $KIEN2019-02-21T09:52:00Z43.03-102.52-18.9-21.70029.8700791017.1TRUETRUETRUESPECI998.02019-02-21 10:02:40[^)5    3KIOW 210952Z AUTO 23003KT 9SM CLR M09/M11 A3006 RMK AO2 SLP188 T10891111KIOW2019-02-21T09:52:00Z41.63-91.55-8.9-11.123039.030.0590551018.8TRUETRUEVFRSPECI198.02019-02-21 10:02:40])Q5      3KISN 210952Z AUTO 21004KT 5SM -SN BKN050 OVC075 M17/M21 A2995 RMK AO2 SNB39 SLP191 P0000 T11721211KISN2019-02-21T09:52:00Z48.17-103.63-17.2-21.121045.029.9498021019.1TRUETRUE-SNMVFR0.005SPECI579.02019-02-21 10:02:40 !!`c)'5   3KGLS 210952Z AUTO 05011G18KT 10SM OVC019 13/09 A2991 RMK AO2 SLP127 T01330094KGLS2019-02-21T09:52:00Z29.27-94.8713.39.450111810.029.9114171012.7TRUETRUEMVFRSPECI6.02019-02-21 10:02:40b)a5      3KHIE 210952Z AUTO 00000KT 4SM UP BR OVC032 M07/M09 A2987 RMK AO2 UPB47SNE0859B25E47 SLP133 P0001 T10671089KHIE2019-02-21T09:52:00Z44.37-71.55-6.7-8.9004.029.8700791013.3TRUETRUEBR UPMVFR0.01SPECI318.02019-02-21 10:02:40ia)35    3KHUT 210952Z AUTO 11003KT 1 1/4SM BR M07/M08 A2999 RMK AO2 SLP166 I1000 T10721078 $KHUT2019-02-21T09:52:00Z38.07-97.87-7.2-7.811031.2529.9911421016.6TRUETRUETRUEBRMETAR467.02019-02-21 10:02:40 R'ROg)5   3KDPA 210952Z 25010KT CLR M03/M08 A3000 RMK AO2 SLP168 T10281078 RVRNO $KDPA2019-02-21T09:52:00Z41.92-88.25-2.8-7.82501030.01016.8TRUETRUESPECI231.02019-02-21 10:02:40Zf)5    3KDVN 210952Z AUTO 25009KT 9SM CLR M06/M09 A3005 RMK AO2 SLP181 T10561094KDVN2019-02-21T09:52:00Z41.62-90.58-5.6-9.425099.030.0501981018.1TRUETRUEVFRSPECI230.02019-02-21 10:02:40\e)5    3KEST 210952Z AUTO 26011KT 9SM CLR M13/M16 A2995 RMK AO2 SLP166 T11331156KEST2019-02-21T09:52:00Z43.4-94.75-13.3-15.6260119.029.9498021016.6TRUETRUEVFRMETAR401.02019-02-21 10:02:40d)s5      3KFIT 210952Z AUTO 34004KT 4SM -FZRA BR OVC006 M03/M04 A2995 RMK AO2 UPB12E13FZRAE12B13 SLP147 P0001 I1002 T10331044KFIT2019-02-21T09:52:00Z42.55-71.75-3.3-4.434044.029.9498021014.7TRUETRUE-FZRA BRIFR0.01SPECI103.02019-02-21 10:02:40 @A`@k) 5     3KCQX 210952Z AUTO 16010G22KT 110V190 4SM -RA BR OVC009 02/01 A2989 RMK AO2 PK WND 16026/0916 CIG 006V011 SLP123 P0002 T00220011KCQX2019-02-21T09:52:00Z41.68-70.02.21.116010224.029.8907471012.3TRUETRUE-RA BRIFR0.02METAR19.02019-02-21 10:02:40[j)'5    3KCVG 210952Z 28004KT 10SM FEW021 BKN250 01/M01 A3009 RMK AO2 SLP191 T00111011KCVG2019-02-21T09:52:00Z39.05-84.671.1-1.1280410.030.0885831019.1TRUEVFRMETAR269.02019-02-21 10:02:40Xi)15    3KDCA 210952Z 21004KT 8SM FEW005 SCT075 OVC220 02/00 A3000 RMK AO2 SLP159 T00170000KDCA2019-02-21T09:52:00Z38.85-77.031.70.021048.030.01015.9TRUEVFRMETAR18.02019-02-21 10:02:40[h)5    3KDDC 210952Z AUTO 12005KT 9SM CLR M06/M11 A2989 RMK AO2 SLP139 T10611111KDDC2019-02-21T09:52:00Z37.77-99.97-6.1-11.112059.029.8907471013.9TRUETRUEVFRMETAR789.02019-02-21 10:02:40 3so)K5   3KAVX 210951Z AUTO 28023G30KT 10SM FEW022 07/03 A2965 RMK AO2 PK WND 29032/0934 SLP045 T00670028KAVX2019-02-21T09:51:00Z33.4-118.426.72.8280233010.029.6486231004.5TRUETRUEVFRSPECI482.02019-02-21 10:02:40,n(_5   3MUCM 210952Z 06008KT 9000 NSC 21/19 Q1017MUCM2019-02-21T09:52:00Z21.42-77.8521.019.06085.5930.029528VFRMETAR122.02019-02-21 10:02:40[m)5     3CZSJ 210952Z AUTO 34004KT 9SM -SN BKN046 OVC055 M22/M23 A2990 RMK SLP155CZSJ2019-02-21T09:52:00Z53.07-93.35-22.0-23.034049.029.8996071015.5TRUE-SNVFRSPECI290.02019-02-21 10:02:40fl)/5    3KNFW 210952Z AUTO 16003KT 10SM CLR 06/02 A2999 RMK AO2 SLP139 T00610022 VISNO N $KNFW2019-02-21T09:52:00Z32.78-97.436.12.2160310.029.9911421013.9TRUETRUETRUEVFRMETAR198.02019-02-21 10:02:40 o?Zoes)+5    3KBHK 210951Z AUTO 27003KT 10SM CLR M22/M24 A2988 RMK AO2 SLP183 I1000 T12221244KBHK2019-02-21T09:51:00Z46.35-104.25-22.2-24.4270310.029.8789371018.3TRUETRUEVFRSPECI902.02019-02-21 10:02:40_r)35     3KBKW 210951Z AUTO 27003KT 4SM BR BKN006 OVC014 09/09 A3000 RMK AO2 SLP169 T00940094KBKW2019-02-21T09:51:00Z37.8-81.129.49.427034.030.01016.9TRUETRUEBRIFRSPECI764.02019-02-21 10:02:40Zq)5    3KBGD 210951Z AUTO 04005KT 10SM CLR M02/M08 A2981 RMK AO2 SLP096 T10171078KBGD2019-02-21T09:51:00Z35.7-101.4-1.7-7.840510.029.8110241009.6TRUETRUEVFRSPECI927.02019-02-21 10:02:40[p)!5    3KBAZ 210951Z AUTO 02004KT 10SM OVC060 10/04 A2994 RMK AO2 SLP133 T01000039KBAZ2019-02-21T09:51:00Z29.72-98.0510.03.920410.029.9409451013.3TRUETRUEVFRSPECI195.02019-02-21 10:02:40 D%1QDw)g5      3KCON 210951Z AUTO 02005KT 1 3/4SM -SN BR OVC025 M06/M07 A2997 RMK AO2 UPB04E37SNE04B42 SLP156 P0003 T10561067KCON2019-02-21T09:51:00Z43.2-71.5-5.6-6.72051.7529.9704721015.6TRUETRUE-SN BRIFR0.03SPECI103.02019-02-21 10:02:40Zv)5    3KCAK 210951Z 28012KT 8SM OVC017 02/M01 A2999 RMK AO2 SLP165 T00221011 $KCAK2019-02-21T09:51:00Z40.92-81.452.2-1.1280128.029.9911421016.5TRUETRUEMVFRSPECI377.02019-02-21 10:02:40nu)A5    3KCLE 210951Z 26016KT 10SM OVC024 03/M02 A3001 RMK AO2 PK WND 26028/0928 SLP167 T00281017 $KCLE2019-02-21T09:51:00Z41.42-81.852.8-1.72601610.030.0088581016.7TRUETRUEMVFRSPECI233.02019-02-21 10:02:40Ut)5    3KCMH 210951Z 27011KT 10SM OVC023 02/M02 A3006 RMK AO2 SLP184 T00221017KCMH2019-02-21T09:51:00Z40.0-82.882.2-1.72701110.030.0590551018.4TRUEMVFRSPECI247.02019-02-21 10:02:40 dHKOde{)15     3KEWR 210951Z 32004KT 7SM OVC005 01/01 A2992 RMK AO2 DZE39 SLP130 P0000 T00110006 $KEWR2019-02-21T09:51:00Z40.68-74.171.10.632047.029.9202751013.0TRUETRUEIFR0.005SPECI7.02019-02-21 10:02:40vz)=5       3KEKN 210951Z AUTO 24006KT 7SM -RA OVC018 11/08 A2997 RMK AO2 SLP156 P0000 T01110083 TSNOKEKN2019-02-21T09:51:00Z38.88-79.8511.18.324067.029.9704721015.6TRUETRUETRUE-RAMVFR0.005SPECI603.02019-02-21 10:02:40wy);5      3KDAW 210951Z AUTO 36005KT 1SM -SN BR VV013 M06/M06 A2998 RMK AO2 SLP152 P0005 T10561061KDAW2019-02-21T09:51:00Z43.28-70.92-5.6-6.136051.029.979331015.2TRUETRUE-SN BRLIFR0.051300SPECI100.02019-02-21 10:02:402x(s5   3EKSB 210951Z 25010KT 6000 SCT007 BKN009 08/07 Q1019EKSB2019-02-21T09:51:00Z54.979.88.07.0250103.7330.088583IFRMETAR23.02019-02-21 10:02:40 f"/Mfa)%5    3KHDO 210951Z AUTO 08006KT 10SM OVC060 11/04 A2992 RMK AO2 SLP122 T01110039 $KHDO2019-02-21T09:51:00Z29.37-99.1711.13.980610.029.9202751012.2TRUETRUETRUEVFRSPECI282.02019-02-21 10:02:40\~)'5    3KELP 210951Z 00000KT 10SM SCT150 BKN220 02/M12 A2976 RMK AO2 SLP056 T00221117KELP2019-02-21T09:51:00Z31.82-106.382.2-11.70010.029.7608261005.6TRUEVFRSPECI1197.02019-02-21 10:02:40m})35    3KERI 210951Z AUTO 26016G23KT 10SM OVC022 03/M01 A2995 RMK AO2 SLP148 T00281011 TSNOKERI2019-02-21T09:51:00Z42.08-80.182.8-1.1260162310.029.9498021014.8TRUETRUETRUEMVFRSPECI222.02019-02-21 10:02:40X|)5     3KEVM 210951Z AUTO 00000KT 1 3/4SM -SN BKN025 OVC085 M11/M13 A2976 RMK AO2KEVM2019-02-21T09:51:00Z47.42-92.5-11.0-13.0001.7529.760826TRUETRUE-SNIFRSPECI421.02019-02-21 10:02:40 Z(FZf)+5    3KLGU 210951Z AUTO 23005KT 10SM CLR M12/M13 A2968 RMK AO2 SLP090 I1001 T11171133KLGU2019-02-21T09:51:00Z41.78-111.85-11.7-13.3230510.029.6811031009.0TRUETRUEVFRSPECI1355.02019-02-21 10:02:40\)%5     3KILG 210951Z AUTO 25004KT 5SM BR BKN009 01/01 A2996 RMK AO2 SLP147 T00060006KILG2019-02-21T09:51:00Z39.67-75.60.60.625045.029.9586621014.7TRUETRUEBRIFRSPECI28.02019-02-21 10:02:40i)35    3KHTS 210951Z AUTO 30009KT 10SM BKN020 OVC050 07/03 A3007 RMK AO2 SLP182 T00720028 $KHTS2019-02-21T09:51:00Z38.37-82.557.22.8300910.030.0708661018.2TRUETRUETRUEMVFRSPECI254.02019-02-21 10:02:40c)'5     3KHSE 210951Z AUTO 29004KT 1/2SM FG VV002 14/12 A3009 RMK AO2 SLP187 T01390122KHSE2019-02-21T09:51:00Z35.23-75.6213.912.229040.530.0885831018.7TRUETRUEFGLIFR200SPECI3.02019-02-21 10:02:40 ^ /R^n)95      3KORF 210951Z AUTO 22010KT 5SM -RA BR OVC002 06/06 A3002 RMK AO2 SLP165 P0002 T00610056KORF2019-02-21T09:51:00Z36.9-76.26.15.6220105.030.020671016.5TRUETRUE-RA BRLIFR0.02SPECI14.02019-02-21 10:02:40W)!5   3KORD 210951Z 24011G18KT 10SM FEW250 M03/M07 A3000 RMK AO2 SLP165 T10281072KORD2019-02-21T09:51:00Z41.98-87.93-2.8-7.2240111810.030.01016.5TRUEVFRSPECI200.02019-02-21 10:02:40X)!5    3KJCT 210951Z AUTO 00000KT 10SM SCT055 08/00 A2991 RMK AO2 SLP106 T00830000KJCT2019-02-21T09:51:00Z30.5-99.778.30.00010.029.9114171010.6TRUETRUEVFRSPECI522.02019-02-21 10:02:40m)=5     3KLGA 210951Z 32007KT 10SM OVC006 01/00 A2990 RMK AO2 DZB0857E37 SLP126 P0000 T00110000 $KLGA2019-02-21T09:51:00Z40.78-73.881.10.0320710.029.8996071012.6TRUETRUEIFR0.005SPECI11.02019-02-21 10:02:40 &&[ )5    3KROW 210951Z AUTO 20004KT 10SM CLR 03/M14 A2976 RMK AO2 SLP055 T00331139KROW2019-02-21T09:51:00Z33.3-104.53.3-13.9200410.029.7608261005.5TRUETRUEVFRSPECI1112.02019-02-21 10:02:40o )G5      3KRDU 210951Z 27004KT 2SM BR OVC003 03/03 A3006 RMK AO2 SFC VIS 5 RAE07 SLP180 P0001 T00280028KRDU2019-02-21T09:51:00Z35.9-78.782.82.827042.030.0590551018.0TRUEBRLIFR0.01SPECI130.02019-02-21 10:02:40 )5      3KPVD 210951Z AUTO 03005KT 2SM -RA BR OVC005 01/00 A2988 RMK AO2 TWR VIS 2 1/2 RAB0858FZRAE0858 SLP118 P0004 I1000 T00060000KPVD2019-02-21T09:51:00Z41.72-71.430.60.03052.029.8789371011.8TRUETRUE-RA BRIFR0.04SPECI16.02019-02-21 10:02:40e)15      3KPWM 210951Z VRB04KT 1SM -SN BR VV009 M04/M06 A3000 RMK AO2 SLP161 P0007 T10441056KPWM2019-02-21T09:51:00Z43.65-70.3-4.4-5.6041.030.01016.1TRUE-SN BRLIFR0.07900SPECI15.02019-02-21 10:02:40 y</WyX)5    3KSJT 210951Z AUTO 00000KT 10SM CLR 03/M02 A2988 RMK AO2 SLP116 T00331022KSJT2019-02-21T09:51:00Z31.37-100.53.3-2.20010.029.8789371011.6TRUETRUEVFRSPECI576.02019-02-21 10:02:40R)5    3KSAT 210951Z 07003KT 10SM OVC060 11/03 A2993 RMK AO2 SLP124 T01060033KSAT2019-02-21T09:51:00Z29.53-98.4710.63.370310.029.9291341012.4TRUEVFRSPECI243.02019-02-21 10:02:40 )c5     3KSAN 210951Z 27011KT 10SM FEW035 FEW055 BKN080 BKN150 12/05 A2974 RMK AO2 RAE03 SLP070 VCSH P0000 T01170050KSAN2019-02-21T09:51:00Z32.73-117.1811.75.02701110.029.7401581007.0TRUEBKN15000VFR0.005SPECI12.02019-02-21 10:02:40> (}5     3KSAD 210951Z AUTO 00000KT 10SM CLR A2971 RMK AO2 SLPNO $KSAD2019-02-21T09:51:00Z32.85-109.630010.029.71063TRUETRUETRUEVFRSPECI962.02019-02-21 10:02:40 m;Vmc)55    3KPHX 210951Z 17006KT 10SM SCT070 BKN080 OVC100 11/M05 A2969 RMK AO2 SLP048 T01061050KPHX2019-02-21T09:51:00Z33.43-112.0210.6-5.0170610.029.689961004.8TRUEVFRSPECI336.02019-02-21 10:02:40_))5    3KPIT 210951Z 24006KT 10SM FEW009 BKN018 04/02 A2997 RMK AO2 SLP167 T00440017 $KPIT2019-02-21T09:51:00Z40.5-80.274.41.7240610.029.9704721016.7TRUETRUEMVFRSPECI357.02019-02-21 10:02:40Z)!5    3KSMX 210951Z AUTO 20006KT 10SM BKN110 04/03 A2972 RMK AO2 SLP067 T00440033KSMX2019-02-21T09:51:00Z34.9-120.454.43.3200610.029.7194881006.7TRUETRUEVFRSPECI74.02019-02-21 10:02:40_)%5    3KSMO 210951Z AUTO 00000KT 10SM FEW085 08/06 A2965 RMK AO2 SLP041 T00780056 $KSMO2019-02-21T09:51:00Z34.02-118.457.85.60010.029.6486231004.1TRUETRUETRUEVFRSPECI57.02019-02-21 10:02:40 H/Ha))5     3KNYC 210951Z AUTO 3SM BR OVC003 01/M01 A2993 RMK AO2 PRESRR SLP127 T00061006 $KNYC2019-02-21T09:51:00Z40.78-73.970.6-0.63.029.9291341012.7TRUETRUETRUEBRLIFRSPECI11.02019-02-21 10:02:40J) 5   3KP59 210951Z AUTO VRB06KT M04/M06 A2966 RMK AO1 SLP059 T10391061KP592019-02-21T09:51:00Z47.47-87.88-3.9-6.10629.6604331005.9TRUETRUESPECI190.02019-02-21 10:02:40)5     3YSSY 210951Z 20015KT 6000 SHRA FEW010 BKN022 BKN030 20/19 Q1018 FM1000 20015KT 9999 -SHRA FEW010 BKN020 INTER 1000/1300 5000 SHRA BKN010YSSY2019-02-21T09:51:00Z-33.95151.1720.019.0200153.7330.059055SHRAMVFR1.5SPECI3.02019-02-21 10:02:40`)'5     3KOXR 210951Z AUTO 31006KT 10SM CLR 08/04 A2966 RMK AO2 SLP044 T00830039 PWINOKOXR2019-02-21T09:51:00Z34.2-119.28.33.9310610.029.6604331004.4TRUETRUETRUEVFRSPECI20.02019-02-21 10:02:40 U8QUv)A5      3KSSC 210951Z AUTO 00000KT 5/8SM R04/3000V4000FT BR VV001 06/06 A3009 RMK AO2 SLP192 TSNO $KSSC2019-02-21T09:51:00Z33.97-80.476.06.0000.6330.0885831019.2TRUETRUETRUETRUEBRLIFR100SPECI74.02019-02-21 10:02:40a)'5     3KBVE 210951Z AUTO 00000KT 1/4SM FG VV002 16/15 A2997 RMK AO2 SLP148 T01560150KBVE2019-02-21T09:51:00Z29.32-89.415.615.0000.2529.9704721014.8TRUETRUEFGLIFR200SPECI1.02019-02-21 10:02:40a)/5    3KVNY 210951Z AUTO 00000KT 10SM BKN060 BKN085 08/04 A2963 RMK AO2 SLP031 T00830044KVNY2019-02-21T09:51:00Z34.22-118.488.34.40010.029.6309051003.1TRUETRUEVFRSPECI245.02019-02-21 10:02:40[)5   3KYNG 210951Z 27017G23KT 10SM OVC024 03/M01 A2996 RMK AO2 SLP156 T00281011KYNG2019-02-21T09:51:00Z41.25-80.672.8-1.1270172310.029.9586621015.6TRUEMVFRSPECI360.02019-02-21 10:02:40 BBV)5    3KSTL 210951Z 24004KT 10SM SCT180 M02/M04 A3011 RMK AO2 SLP205 T10171039KSTL2019-02-21T09:51:00Z38.75-90.37-1.7-3.9240410.030.1092531020.5TRUEVFRSPECI171.02019-02-21 10:02:40r)E5     3KTEB 210951Z 03009G17KT 350V060 2SM -RA BR OVC008 01/00 A2991 RMK AO2 SLP128 P0000 T00060000KTEB2019-02-21T09:51:00Z40.87-74.050.60.0309172.029.9114171012.8TRUE-RA BRIFR0.005SPECI7.02019-02-21 10:02:40Q)5   3NSTU 210951Z VRB02KT 10SM FEW019 SCT200 27/25 A2975 RMK SLP076 T02740252NSTU2019-02-21T09:51:00Z-14.33-170.7227.425.20210.029.7490161007.6VFRMETAR3.02019-02-21 10:02:40 )y5      3KMPV 210951Z AUTO 16007KT 4SM BR OVC009 M06/M07 A2989 RMK AO2 FZRAB34E48SNE03 CIG 007V013 SLP141 P0001 I1002 T10611072KMPV2019-02-21T09:51:00Z44.2-72.57-6.1-7.216074.029.8907471014.1TRUETRUEBRIFR0.01SPECI343.02019-02-21 10:02:40 e4Nec#)-5     3KABE 210951Z 23004KT 4SM BR OVC007 01/M01 A2993 RMK AO2 SLP141 I1001 T00111006 $KABE2019-02-21T09:51:00Z40.65-75.451.1-0.623044.029.9291341014.1TRUETRUEBRIFRSPECI114.02019-02-21 10:02:40`")#5    3KGDP 210951Z AUTO 24006KT 10SM FEW120 06/M10 A2979 RMK AO2 SLP060 T00611100KGDP2019-02-21T09:51:00Z31.83-104.826.1-10.0240610.029.7903541006.0TRUETRUEVFRMETAR1692.02019-02-21 10:02:40a!)/5    3K4BM 210951Z AUTO 20007KT 140V210 10SM SCT060 BKN075 OVC100 M16/M18 A2956 RMK AO2K4BM2019-02-21T09:51:00Z39.05-105.52-16.0-18.0200710.029.56004TRUETRUEVFRMETAR3438.02019-02-21 10:02:40_ )%5    3KMYL 210951Z AUTO 00000KT 10SM SCT065 M17/M19 A2965 RMK AO2 SLP105 T11721194KMYL2019-02-21T09:51:00Z44.9-116.1-17.2-19.40010.029.6486231010.5TRUETRUEVFRSPECI1533.02019-02-21 10:02:40 $te')55     3KCRP 210951Z 03008KT 10SM OVC027 14/08 A2990 RMK AO2 RAB03E23 SLP124 P0000 T01440078KCRP2019-02-21T09:51:00Z27.77-97.514.47.830810.029.8996071012.4TRUEMVFR0.005SPECI14.02019-02-21 10:02:40n&)?5     3KVCT 210951Z AUTO 01005KT 10SM OVC037 12/09 A2992 RMK AO2 RAB01E22 SLP130 P0000 T01220089KVCT2019-02-21T09:51:00Z28.87-96.9312.28.910510.029.9202751013.0TRUETRUEVFR0.005SPECI31.02019-02-21 10:02:40*%(e5   3MUCU 210951Z 35006KT 9000 FEW020 21/18 Q1016MUCU2019-02-21T09:51:00Z19.97-75.8321.018.035065.5930.0VFRMETAR76.02019-02-21 10:02:40V$)5    3KACT 210951Z AUTO 00000KT 10SM CLR 06/04 A2997 RMK AO2 SLP146 T00560039KACT2019-02-21T09:51:00Z31.62-97.235.63.90010.029.9704721014.6TRUETRUEVFRSPECI151.02019-02-21 10:02:40 wOwR+)%5    3LTBJ 210950Z VRB02KT 6000 FEW030 15/08 Q1021 NOSIG RMK RWY16 35007KT 320V020LTBJ2019-02-21T09:50:00Z38.2827.1515.08.0023.7330.147638TRUEMVFRMETAR120.02019-02-21 10:02:40>*) 5   3LTFC 210950Z VRB02KT 9999 FEW035 10/02 Q1020 RMK RWY23 VRB01KTLTFC2019-02-21T09:50:00Z37.8730.3810.02.0026.2130.11811VFRMETAR864.02019-02-21 10:02:40|))S5      3KAHN 210951Z AUTO 00000KT 1 1/2SM -RA BR OVC003 04/04 A3006 RMK AO2 RAE34B50 SLP185 P0001 T00440039KAHN2019-02-21T09:51:00Z33.95-83.334.43.9001.530.0590551018.5TRUETRUE-RA BRLIFR0.01SPECI244.02019-02-21 10:02:40e()?5    3KALB 210951Z 17008KT 10SM BKN008 OVC030 00/M03 A2988 RMK AO2 CIG 006V012 SLP122 T00001028KALB2019-02-21T09:51:00Z42.75-73.80.0-2.8170810.029.8789371012.2TRUEIFRSPECI92.02019-02-21 10:02:40 &>oQ/)'5    3LCEN 210950Z 15004KT 9999 FEW025CB SCT030 16/08 Q1020 NOSIG RMK RWY11 13004KTLCEN2019-02-21T09:50:00Z35.1333.516.08.015046.2130.11811TRUEVFRMETAR91.02019-02-21 10:02:40I.)5    3LTAP 210950Z VRB01KT 9999 SCT040 11/00 Q1018 NOSIG RMK RWY23 00000KTLTAP2019-02-21T09:50:00Z40.8335.5211.00.0016.2130.059055TRUEVFRMETAR535.02019-02-21 10:02:40b-)E5    3LTAT 210950Z 02004KT 310V090 9999 SCT035 BKN100 09/M02 Q1021 NOSIG RMK RWY03 06005KT 350V110LTAT2019-02-21T09:50:00Z38.4238.079.0-2.02046.2130.147638TRUEVFRMETAR849.02019-02-21 10:02:40T,)'5    3LTAU 210950Z VRB02KT 9999 FEW040 10/M04 Q1019 NOSIG RMK RWY07 27005KT 220V320LTAU2019-02-21T09:50:00Z38.7735.4710.0-4.0026.2130.088583TRUEVFRMETAR1054.02019-02-21 10:02:40 $<$C4)5   3EGUW 210950Z 26012KT 9999 OVC007 09/08 Q1024 GRN TEMPO BKN006 YLO1EGUW2019-02-21T09:50:00Z52.120.979.08.0260126.2130.236221IFRMETAR87.02019-02-21 10:02:4023(m5   3EGOP 210950Z 17014KT 9999 OVC018 10/09 Q1024 WHTEGOP2019-02-21T09:50:00Z51.72-4.3210.09.0170146.2130.236221MVFRMETAR6.02019-02-21 10:02:40Z2)35    3EGDR 210950Z 17010KT 8000 HZ FEW002 SCT005 11/10 Q1024 YLO1 BECMG FEW005 SCT007 GRNEGDR2019-02-21T09:50:00Z50.08-5.2511.010.0170104.9730.236221HZMVFRMETAR82.02019-02-21 10:02:4011(m5   3EGDX 210950Z 21002KT 9999 OVC017 11/09 Q1025 WHTEGDX2019-02-21T09:50:00Z51.4-3.4311.09.021026.2130.265747MVFRMETAR50.02019-02-21 10:02:40>0(5    3EGOM 210950Z 27020KT 6000 2000W BR OVC002 09/09 Q1019 AMBEGOM2019-02-21T09:50:00Z55.05-2.559.09.0270203.7330.088583BRLIFRMETAR325.02019-02-21 10:02:40 6mL8)5    3EGXU 210950Z 26013KT 9999 SCT017 SCT100 BKN250 13/10 Q1021 WHT NOSIGEGXU2019-02-21T09:50:00Z54.05-1.2513.010.0260136.2130.147638TRUEVFRMETAR16.02019-02-21 10:02:40E7)5    3EGVO 210950Z 23010KT 9999 FEW006 OVC008 10/08 Q1025 GRN NOSIGEGVO2019-02-21T09:50:00Z51.23-0.9510.08.0230106.2130.265747TRUEIFRMETAR123.02019-02-21 10:02:40C6)5    3EGVP 210950Z 24007KT 9999 BKN007 OVC008 10/09 Q1025 GRN NOSIGEGVP2019-02-21T09:50:00Z51.13-1.5710.09.024076.2130.265747TRUEIFRMETAR91.02019-02-21 10:02:40D5)5   3EGUB 210950Z 22008KT 9999 BKN011 10/08 Q1025 GRN BECMG BKN015 WHTEGUB2019-02-21T09:50:00Z51.62-1.0710.08.022086.2130.265747MVFRMETAR63.02019-02-21 10:02:40 1A1<=(5   3EGWU 210950Z 26010KT 9999 BKN011 10/08 Q1025 BECMG BKN015EGWU2019-02-21T09:50:00Z51.55-0.4210.08.0260106.2130.265747MVFRMETAR40.02019-02-21 10:02:40I<)5   3EGXC 210950Z 25012KT 9999 FEW016 BKN090 12/09 Q1022 BLU TEMPO SCT016 WHTEGXC2019-02-21T09:50:00Z53.1-0.1712.09.0250126.2130.177166VFRMETAR7.02019-02-21 10:02:40J;)5  3EGXE 210950Z 25014G24KT 9999 BKN015 12/09 Q1021 WHT TEMPO FEW015 BLUEGXE2019-02-21T09:50:00Z54.28-1.5212.09.025014246.2130.147638MVFRMETAR40.02019-02-21 10:02:40):(a5   3EGXS 210950Z 22009KT CAVOK 11/09 Q1022 BLUEGXS2019-02-21T09:50:00Z53.480.1511.09.022096.2130.177166VFRMETAR3.02019-02-21 10:02:4099({5   3EGXT 210950Z 25015KT 9999 FEW012 BKN070 11/09 Q1022 BLUEGXT2019-02-21T09:50:00Z52.62-0.4711.09.0250156.2130.177166VFRMETAR84.02019-02-21 10:02:40 5dQA)+5   3EGYM 210950Z 23016KT 9999 FEW014 SCT050 BKN100 12/09 Q1023 BLU TEMPO BKN014 GRNEGYM2019-02-21T09:50:00Z52.630.5712.09.0230166.2130.206694VFRMETAR23.02019-02-21 10:02:40J@)5   3EGYD 210950Z 25021KT 9999 FEW012 BKN090 11/09 Q1022 BLU TEMPO SCT012 GRNEGYD2019-02-21T09:50:00Z53.03-0.511.09.0250216.2130.177166VFRMETAR67.02019-02-21 10:02:40K?)5   3EGXW 210950Z 25013KT 9999 FEW012 BKN090 11/09 Q1022 BLU TEMPO SCT012 GRNEGXW2019-02-21T09:50:00Z53.18-0.5211.09.0250136.2130.177166VFRMETAR70.02019-02-21 10:02:40E>) 5    3EGXV 210950Z AUTO 26004KT 9999 BKN020/// BKN090/// 13/10 Q1021EGXV2019-02-21T09:50:00Z53.87-0.4513.010.026046.2130.147638TRUEMVFRMETAR6.02019-02-21 10:02:40 81y87F({5   3LLSD 210950Z 25006KT 9999 FEW030 17/09 Q1020 RMK SCT089LLSD2019-02-21T09:50:00Z32.1234.7817.09.025066.2130.11811VFRMETAR14.02019-02-21 10:02:40>E(y5     3EDDB 210950Z 25010KT 9999 -RA FEW042 07/05 Q1023 NOSIGEDDB2019-02-21T09:50:00Z52.3813.537.05.0250106.2130.206694TRUE-RAVFRMETAR48.02019-02-21 10:02:40:D(u5    3EDDC 210950Z 27011KT 230V300 CAVOK 08/04 Q1025 NOSIGEDDC2019-02-21T09:50:00Z51.1313.758.04.0270116.2130.265747TRUEVFRMETAR226.02019-02-21 10:02:402C(e5    3EDDP 210950Z 24013KT CAVOK 08/03 Q1025 NOSIGEDDP2019-02-21T09:50:00Z51.4312.238.03.0240136.2130.265747TRUEVFRMETAR149.02019-02-21 10:02:40IB)5   3LXGB 210950Z 08019KT 9999 SCT018 SCT021 OVC035 15/11 Q1027 TEMPO FEW018LXGB2019-02-21T09:50:00Z36.13-5.3315.011.080196.2130.324802VFRMETAR5.02019-02-21 10:02:40 b?b3K(q5    3EDDS 210950Z VRB02KT 9999 FEW034 08/03 Q1028 NOSIGEDDS2019-02-21T09:50:00Z48.679.228.03.0026.2130.35433TRUEVFRMETAR419.02019-02-21 10:02:402J(o5   3LLET 210950Z 03013KT CAVOK 19/06 Q1019 RMK FEW080LLET2019-02-21T09:50:00Z29.5534.9519.06.030136.2130.088583VFRMETAR13.02019-02-21 10:02:40+I(e5   3LLHA 210950Z 33008KT 9999 SCT025 16/08 Q1020LLHA2019-02-21T09:50:00Z32.7835.0216.08.033086.2130.11811VFRMETAR8.02019-02-21 10:02:405H(u5   3LLIB 210950Z 16004KT 100V220 9999 FEW030 14/07 Q1020LLIB2019-02-21T09:50:00Z32.9835.5714.07.016046.2130.11811VFRMETAR282.02019-02-21 10:02:40;G(5   3LLOV 210950Z 36007KT 310V050 CAVOK 15/03 Q1019 RMK FEW070LLOV2019-02-21T09:50:00Z29.9334.9315.03.036076.2130.088583VFRMETAR432.02019-02-21 10:02:40 D<wD=P(5    3EDDH 210950Z 24010KT 9999 SCT013 BKN032 09/05 Q1022 NOSIGEDDH2019-02-21T09:50:00Z53.6310.09.05.0240106.2130.177166TRUEVFRMETAR16.02019-02-21 10:02:405O(q5    3EDDK 210950Z 15005KT 9999 FEW029 09/04 Q1027 NOSIGEDDK2019-02-21T09:50:00Z50.877.159.04.015056.2130.324802TRUEVFRMETAR99.02019-02-21 10:02:40/N(e5    3EDDL 210950Z 21008KT CAVOK 10/05 Q1027 NOSIGEDDL2019-02-21T09:50:00Z51.36.7710.05.021086.2130.324802TRUEVFRMETAR44.02019-02-21 10:02:40?M)5    3EDDM 210950Z 26006KT 230V290 9999 FEW037 08/03 Q1028 NOSIGEDDM2019-02-21T09:50:00Z48.3511.828.03.026066.2130.35433TRUEVFRMETAR447.02019-02-21 10:02:40>L)5    3EDDN 210950Z 13004KT 100V180 9999 FEW030 07/03 Q1028 NOSIGEDDN2019-02-21T09:50:00Z49.511.087.03.013046.2130.35433TRUEVFRMETAR312.02019-02-21 10:02:40 96|9.U(k5    3ESTA 210950Z 25010KT 2800 DZ OVC002 05/05 Q1016ESTA2019-02-21T09:50:00Z56.2812.835.05.0250101.7430.0DZLIFRMETAR47.02019-02-21 10:02:40LT)#5     3ESTL 210950Z AUTO 29008KT 3300 DZ FEW004/// SCT007/// BKN008/// 07/07 Q1016ESTL2019-02-21T09:50:00Z56.0713.27.07.029082.0530.0TRUEDZIFRMETAR43.02019-02-21 10:02:407S(q5    3EDDE 210950Z 23008KT 9999 BKN038 07/03 Q1026 NOSIGEDDE2019-02-21T09:50:00Z50.9810.977.03.023086.2130.295275TRUEVFRMETAR323.02019-02-21 10:02:404R(q5    3EDDF 210950Z 20005KT 9999 SCT047 06/03 Q1028 NOSIGEDDF2019-02-21T09:50:00Z50.058.66.03.020056.2130.35433TRUEVFRMETAR113.02019-02-21 10:02:40DQ) 5     3EDDG 210950Z 22005KT 180V240 9999 -RA BKN037 08/05 Q1026 NOSIGEDDG2019-02-21T09:50:00Z52.137.78.05.022056.2130.295275TRUE-RAVFRMETAR52.02019-02-21 10:02:40 ?E?0Z(k5    3ESMK 210950Z 05007KT 3600 -RA VV002 04/04 Q1016ESMK2019-02-21T09:50:00Z55.9214.074.04.05072.2430.0-RALIFR200METAR23.02019-02-21 10:02:40HY)5    3ESMQ 210950Z 12005KT 090V150 1800 -SN FEW002 BKN005 OVC007 00/00 Q1020ESMQ2019-02-21T09:50:00Z56.6816.30.00.012051.1230.11811-SNIFRMETAR16.02019-02-21 10:02:40BX)5    3ESMS 210950Z 26012KT 2500 -RA OVC003 06/06 Q1017 R17/29//95ESMS2019-02-21T09:50:00Z55.5313.376.06.0260121.5530.029528-RALIFRSPECI106.02019-02-21 10:02:404W(m5    3ESMT 210950Z 25009KT 1500 -RA OVC002 05/05 Q1015ESMT2019-02-21T09:50:00Z56.6712.825.05.025090.9329.970472-RALIFRMETAR30.02019-02-21 10:02:405V(i5    3ESMX 210950Z 12007KT 1800 SN VV004 00/00 Q1017ESMX2019-02-21T09:50:00Z56.9214.720.00.012071.1230.029528SNLIFR400METAR186.02019-02-21 10:02:40 6oB^({5     3EGLL 210950Z AUTO 24010KT 9999 OVC010 10/08 Q1026 NOSIGEGLL2019-02-21T09:50:00Z51.48-0.4510.08.0240106.2130.295275TRUETRUEMVFRMETAR24.02019-02-21 10:02:40[])-5    3ESGG 210950Z 24006KT 0400 R03/0500N R21/1000N -RADZ VV002 05/05 Q1014 R21/29//95ESGG2019-02-21T09:50:00Z57.6712.35.05.024060.2529.940945-RA DZLIFR200SPECI169.02019-02-21 10:02:40A\)5    3ESGJ 210950Z 14011KT 9999 SG BKN006 M00/M00 Q1015 R19/590143ESGJ2019-02-21T09:50:00Z57.7714.070.00.0140116.2129.970472SGIFRSPECI232.02019-02-21 10:02:40D[) 5    3ESGT 210950Z 10004KT 050V130 6000 -DZ BKN003 BKN006 04/03 Q1014ESGT2019-02-21T09:50:00Z58.3212.334.03.010043.7329.940945-DZLIFRMETAR41.02019-02-21 10:02:40 1)m1?c(}5    3EGPF 210950Z AUTO 20010KT 9999 BKN011 OVC015 12/11 Q1018EGPF2019-02-21T09:50:00Z55.87-4.4212.011.0200106.2130.059055TRUEMVFRMETAR8.02019-02-21 10:02:406b(s5   3EGPH 210950Z 23012KT 9999 SCT012 SCT020 12/11 Q1018EGPH2019-02-21T09:50:00Z55.95-3.3512.011.0230126.2130.059055VFRMETAR41.02019-02-21 10:02:405a(s5   3EGPK 210950Z 19007KT 9999 SCT010 BKN028 12/11 Q1018EGPK2019-02-21T09:50:00Z55.5-4.5712.011.019076.2130.059055MVFRMETAR20.02019-02-21 10:02:406`(o5    3EGSS 210950Z AUTO 24009KT 9999 OVC008 10/08 Q1025EGSS2019-02-21T09:50:00Z51.880.2210.08.024096.2130.265747TRUEIFRMETAR106.02019-02-21 10:02:40Q_)5     3EGCC 210950Z AUTO 20006KT 140V220 9999 FEW013 BKN021 12/09 Q1022 NOSIGEGCC2019-02-21T09:50:00Z53.35-2.2712.09.020066.2130.177166TRUETRUEMVFRMETAR78.02019-02-21 10:02:40 uN)u.h(e5   3EGPE 210950Z 21010KT 9999 FEW020 12/10 Q1014EGPE2019-02-21T09:50:00Z57.52-4.0312.010.0210106.2129.940945VFRMETAR9.02019-02-21 10:02:402g(u5   3EGPI 210950Z 13017KT 090V160 9999 SCT018 12/10 Q1016EGPI2019-02-21T09:50:00Z55.68-6.2512.010.0130176.2130.0VFRMETAR18.02019-02-21 10:02:40+f(e5   3EGPN 210950Z VRB03KT 9000 OVC010 10/09 Q1017EGPN2019-02-21T09:50:00Z56.45-3.0210.09.0035.5930.029528MVFRMETAR4.02019-02-21 10:02:406e(u5   3EGBB 210950Z 24007KT 200V270 9999 BKN010 11/09 Q1024EGBB2019-02-21T09:50:00Z52.47-1.7511.09.024076.2130.236221MVFRMETAR99.02019-02-21 10:02:40,d(e5   3EGKK 210950Z 23007KT 8000 BKN007 09/08 Q1026EGKK2019-02-21T09:50:00Z51.13-0.179.08.023074.9730.295275IFRMETAR62.02019-02-21 10:02:40 pL/p9m(q5    3ESNZ 210950Z 13014KT 9999 -SN OVC048 M07/M10 Q1019ESNZ2019-02-21T09:50:00Z63.1714.5-7.0-10.0130146.2130.088583-SNVFRMETAR370.02019-02-21 10:02:40/l(e5   3EGAE 210950Z 21012KT 9999 BKN020 14/10 Q1015EGAE2019-02-21T09:50:00Z55.03-7.1514.010.0210126.2129.970472MVFRMETAR9.02019-02-21 10:02:40-k(e5   3EGNH 210950Z 26006KT 9999 BKN018 09/09 Q1022EGNH2019-02-21T09:50:00Z53.77-3.029.09.026066.2130.177166MVFRMETAR10.02019-02-21 10:02:40/j(e5   3EGNJ 210950Z 23012KT 9999 FEW020 12/10 Q1021EGNJ2019-02-21T09:50:00Z53.57-0.3512.010.0230126.2130.147638VFRMETAR31.02019-02-21 10:02:40.i(e5   3EGNR 210950Z 22018KT 9999 SCT022 13/09 Q1022EGNR2019-02-21T09:50:00Z53.17-2.9713.09.0220186.2130.177166VFRMETAR10.02019-02-21 10:02:40 eCe4r(s5   3ESNN 210950Z 00000KT CAVOK M07/M11 Q1025 R16/71//81ESNN2019-02-21T09:50:00Z62.5217.43-7.0-11.0006.2130.265747VFRSPECI10.02019-02-21 10:02:409q(m5    3ESNO 210950Z AUTO 33003KT 9999 NCD M11/M18 Q1025ESNO2019-02-21T09:50:00Z63.3818.97-11.0-18.033036.2130.265747TRUEVFRMETAR103.02019-02-21 10:02:40-p(]5   3ESNQ 210950Z 23009KT CAVOK M20/M24 Q1019ESNQ2019-02-21T09:50:00Z67.8220.32-20.0-24.023096.2130.088583VFRMETAR452.02019-02-21 10:02:40,o(]5   3ESNS 210950Z 25002KT CAVOK M14/M18 Q1026ESNS2019-02-21T09:50:00Z64.6221.07-14.0-18.025026.2130.295275VFRMETAR49.02019-02-21 10:02:407n(s5   3ESNU 210950Z 33002KT CAVOK M13/M18 Q1026 R14/71//60ESNU2019-02-21T09:50:00Z63.7820.27-13.0-18.033026.2130.295275VFRSPECI14.02019-02-21 10:02:40 j>j(w(Y5   3EGCN 210950Z 24011KT CAVOK 14/10 Q1022EGCN2019-02-21T09:50:00Z53.48-1.014.010.0240116.2130.177166VFRMETAR17.02019-02-21 10:02:40-v(e5   3EGSC 210950Z 24013KT 9999 BKN012 11/08 Q1024EGSC2019-02-21T09:50:00Z52.20.1711.08.0240136.2130.236221MVFRMETAR15.02019-02-21 10:02:40:u(5   3EGSH 210950Z 25010KT 9999 SCT012 11/09 Q1023 BECMG BKN012EGSH2019-02-21T09:50:00Z52.681.2811.09.0250106.2130.206694VFRMETAR36.02019-02-21 10:02:40-t(]5   3ESNG 210950Z 30004KT CAVOK M21/M25 Q1021ESNG2019-02-21T09:50:00Z67.1320.82-21.0-25.030046.2130.147638VFRMETAR310.02019-02-21 10:02:40(}5    3EGPL 210950Z 18021KT 9999 VCSH SCT009 BKN014 12/10 Q1012EGPL2019-02-21T09:50:00Z57.47-7.3712.010.0180216.2129.88189VCSHMVFRMETAR6.02019-02-21 10:02:40/(e5   3EGAA 210950Z 19012KT 9999 BKN012 12/09 Q1017EGAA2019-02-21T09:50:00Z54.63-6.2212.09.0190126.2130.029528MVFRMETAR81.02019-02-21 10:02:40;(u5    3EGAC 210950Z AUTO 19013KT 9999 OVC017/// 13/10 Q1017EGAC2019-02-21T09:50:00Z54.62-5.8713.010.0190136.2130.029528TRUEMVFRMETAR5.02019-02-21 10:02:405 (o5    3EGFF 210950Z AUTO VRB03KT 9999 BKN021 11/09 Q1025EGFF2019-02-21T09:50:00Z51.38-3.3511.09.0036.2130.265747TRUEMVFRMETAR67.02019-02-21 10:02:40/ (e5   3EGGW 210950Z 24010KT 9999 OVC008 10/09 Q1024EGGW2019-02-21T09:50:00Z51.87-0.3710.09.0240106.2130.236221IFRMETAR160.02019-02-21 10:02:40 OH O5(s5   3ESSV 210950Z 10011KT CAVOK M00/M06 Q1021 R21/09//85ESSV2019-02-21T09:50:00Z57.6718.350.0-6.0100116.2130.147638VFRSPECI47.02019-02-21 10:02:40I)5    3ESKN 210950Z 11009KT 9999 -SN FEW023 BKN055 M02/M03 Q1022 R26/490150ESKN2019-02-21T09:50:00Z58.7816.9-2.0-3.011096.2130.177166-SNVFRSPECI43.02019-02-21 10:02:40/(e5   3EGEC 210950Z 14015KT 9999 BKN006 10/10 Q1017EGEC2019-02-21T09:50:00Z55.43-5.6810.010.0140156.2130.029528IFRMETAR13.02019-02-21 10:02:404(s5   3EGPA 210950Z 18005KT 9999 FEW012 BKN027 09/07 Q1013EGPA2019-02-21T09:50:00Z58.95-2.889.07.018056.2129.911417MVFRMETAR21.02019-02-21 10:02:402(q5   3EGPC 210950Z 20006KT 9999 WXNIL SCT032 08/07 Q1013EGPC2019-02-21T09:50:00Z58.45-3.078.07.020066.2129.911417VFRSPECI39.02019-02-21 10:02:40 7u;(5   3ESOW 210950Z 11008KT 9999 BKN044 M01/M08 Q1023 R19/910195ESOW2019-02-21T09:50:00Z59.5716.62-1.0-8.011086.2130.206694VFRSPECI31.02019-02-21 10:02:40W)/5    3ESSA 210950Z 09009KT CAVOK M01/M08 Q1023 R01L/19//95 R08/19//95 R01R/19//95 NOSIGESSA2019-02-21T09:50:00Z59.6317.93-1.0-8.09096.2130.206694TRUEVFRMETAR61.02019-02-21 10:02:40<(5   3ESSB 210950Z 10010KT 9999 BKN037 M01/M08 Q1023 R12/09//75ESSB2019-02-21T09:50:00Z59.3517.93-1.0-8.0100106.2130.206694VFRSPECI11.02019-02-21 10:02:40<) 5     3ESSD 210950Z 10008KT 8000 BR SCT010 BKN012 OVC029 M04/// Q1021ESSD2019-02-21T09:50:00Z60.4215.510084.9730.147638BRMVFRSPECI161.02019-02-21 10:02:40C)5    3ESSP 210950Z 11013KT 2800 -SN BKN010 M01/M02 Q1021 R09/490195ESSP2019-02-21T09:50:00Z58.5716.25-1.0-2.0110131.7430.147638-SNIFRSPECI8.02019-02-21 10:02:40 _B_-(]5   3ESPE 210950Z 30003KT CAVOK M21/M24 Q1024ESPE2019-02-21T09:50:00Z65.8820.15-21.0-24.030036.2130.236221VFRMETAR182.02019-02-21 10:02:407(s5   3EGNM 210950Z 25012KT 9999 FEW010 BKN016 12/09 Q1021EGNM2019-02-21T09:50:00Z53.87-1.6312.09.0250126.2130.147638MVFRMETAR208.02019-02-21 10:02:40.(e5   3EGNX 210950Z 23012KT 9999 SCT012 11/09 Q1023EGNX2019-02-21T09:50:00Z52.82-1.3211.09.0230126.2130.206694VFRMETAR94.02019-02-21 10:02:409(o5    3ESOE 210950Z 09011KT 1600 -SN VV007 M02/M03 Q1020ESOE2019-02-21T09:50:00Z59.2215.05-2.0-3.090110.9930.11811-SNLIFR700METAR57.02019-02-21 10:02:408(q5    3ESOK 210950Z 08010KT 2500 -SN OVC006 M02/M03 Q1017ESOK2019-02-21T09:50:00Z59.4513.33-2.0-3.080101.5530.029528-SNIFRMETAR107.02019-02-21 10:02:40 INI4$(s5   3EGPU 210950Z 15017KT 9000 FEW021 BKN049 10/09 Q1013EGPU2019-02-21T09:50:00Z56.5-6.8710.09.0150175.5929.911417VFRMETAR12.02019-02-21 10:02:40T#)5    3ESCF 210950Z 10007KT 1000 R01/1100V1500U R19/1500N SN VV012 M01/M02 Q1019ESCF2019-02-21T09:50:00Z58.3815.52-1.0-2.010070.6230.088583SNLIFR1200METAR117.02019-02-21 10:02:403"(k5    3ESDF 210950Z 11010KT 2000 SN OVC004 00/00 Q1018ESDF2019-02-21T09:50:00Z56.2715.270.00.0110101.2430.059055SNLIFRMETAR74.02019-02-21 10:02:402!(k5    3ESIB 210950Z 12011KT 9000 RA BKN005 02/02 Q1014ESIB2019-02-21T09:50:00Z58.4212.682.02.0120115.5929.940945RAIFRMETAR74.02019-02-21 10:02:40, (]5   3ESPA 210950Z 31004KT CAVOK M16/M20 Q1025ESPA2019-02-21T09:50:00Z65.5322.12-16.0-20.031046.2130.265747VFRMETAR34.02019-02-21 10:02:40 >k?)(5    3ESIA 210950Z 10010KT 1100 -SN BKN005 OVC012 M01/M02 Q1018ESIA2019-02-21T09:50:00Z58.5214.5-1.0-2.0100100.6830.059055-SNLIFRMETAR94.02019-02-21 10:02:40:(({5    3EKAH 210950Z 25007KT 210V280 2000 BR OVC003 08/08 Q1017EKAH2019-02-21T09:50:00Z56.2810.628.08.025071.2430.029528BRLIFRMETAR25.02019-02-21 10:02:40L')5    3EKCH 210950Z 26012KT 3000 -DZ BR FEW004 BKN007 07/07 Q1017 TEMPO 4000EKCH2019-02-21T09:50:00Z55.6212.677.07.0260121.8630.029528-DZ BRIFRMETAR5.02019-02-21 10:02:40M&)5    3EGPM 210950Z 22016KT 3000 DZ BR FEW012 BKN020 09/08 Q1012 TEMPO 6000 NSWEGPM2019-02-21T09:50:00Z60.42-1.39.08.0220161.8629.88189DZ BRIFRSPECI22.02019-02-21 10:02:40<%({5    3EGPO 210950Z 20021KT 8000 -DZ SCT006 BKN009 11/10 Q1012EGPO2019-02-21T09:50:00Z58.22-6.3211.010.0200214.9729.88189-DZIFRMETAR13.02019-02-21 10:02:40 fQ f4.(g5    3EFSA 210950Z AUTO 32008KT CAVOK M09/M15 Q1019EFSA2019-02-21T09:50:00Z61.9528.93-9.0-15.032086.2130.088583TRUEVFRMETAR95.02019-02-21 10:02:403-(g5    3EFSI 210950Z AUTO 30003KT CAVOK M09/M13 Q1024EFSI2019-02-21T09:50:00Z62.722.83-9.0-13.030036.2130.236221TRUEVFRMETAR91.02019-02-21 10:02:403,(m5   3EFUT 210950Z 34007KT 300V040 CAVOK M08/M15 Q1020EFUT2019-02-21T09:50:00Z60.8826.92-8.0-15.034076.2130.11811VFRMETAR100.02019-02-21 10:02:409+(m5    3ESSL 210950Z 12010KT 1500 SN VV015 M01/M01 Q1020ESSL2019-02-21T09:50:00Z58.3815.67-1.0-1.0120100.9330.11811SNLIFR1500METAR52.02019-02-21 10:02:40)*(]5   3ESCM 210950Z 11009KT CAVOK M01/M08 Q1023ESCM2019-02-21T09:50:00Z59.8717.6-1.0-8.011096.2130.206694VFRMETAR41.02019-02-21 10:02:40 P>{ P33(m5   3EFKK 210950Z 27003KT 240V300 CAVOK M08/M11 Q1025EFKK2019-02-21T09:50:00Z63.7223.13-8.0-11.027036.2130.265747VFRMETAR25.02019-02-21 10:02:4012(g5    3EFPO 210950Z AUTO VRB03KT CAVOK M07/M14 Q1025EFPO2019-02-21T09:50:00Z61.4721.8-7.0-14.0036.2130.265747TRUEVFRMETAR17.02019-02-21 10:02:4051(m5   3EFJO 210950Z 33008KT 290V010 CAVOK M10/M15 Q1019EFJO2019-02-21T09:50:00Z62.6729.62-10.0-15.033086.2130.088583VFRMETAR117.02019-02-21 10:02:40=0(w5    3EFLP 210950Z AUTO 34008KT 300V010 CAVOK M08/M14 Q1019EFLP2019-02-21T09:50:00Z61.0728.13-8.0-14.034086.2130.088583TRUEVFRMETAR106.02019-02-21 10:02:40)15    3EKRK 210950Z AUTO 27012KT 2100NDV +DZ BR SCT004/// BKN006/// OVC008/// 07/06 Q1017EKRK2019-02-21T09:50:00Z55.5712.127.06.02701230.029528TRUE+DZ BRMETAR44.02019-02-21 10:02:40 2=2=G(5    3LOWL 210950Z VRB01KT 8000 FEW038 BKN080 07/04 Q1029 NOSIGLOWL2019-02-21T09:50:00Z48.2214.187.04.0014.9730.383858TRUEMVFRMETAR313.02019-02-21 10:02:40FF)5    3LOWS 210950Z 15007KT 110V180 9999 FEW050 BKN090 09/02 Q1028 NOSIGLOWS2019-02-21T09:50:00Z47.7813.029.02.015076.2130.35433TRUEVFRMETAR430.02019-02-21 10:02:40BE)5    3LOWI 210950Z 24003KT 200V280 9999 FEW100 06/M01 Q1029 NOSIGLOWI2019-02-21T09:50:00Z47.2711.336.0-1.024036.2130.383858TRUEVFRMETAR581.02019-02-21 10:02:40.D(e5    3LOWG 210950Z VRB02KT CAVOK 08/02 Q1027 NOSIGLOWG2019-02-21T09:50:00Z47.015.428.02.0026.2130.324802TRUEVFRMETAR347.02019-02-21 10:02:40=C)5    3LOWK 210950Z VRB02KT 9999 FEW100 SCT300 06/M00 Q1028 NOSIGLOWK2019-02-21T09:50:00Z46.6514.326.00.0026.2130.35433TRUEVFRMETAR441.02019-02-21 10:02:40 =5y=8L(o5    3EGGD 210950Z AUTO 21008KT 9999 OVC013 10/08 Q1025EGGD2019-02-21T09:50:00Z51.37-2.7210.08.021086.2130.265747TRUEMVFRMETAR189.02019-02-21 10:02:40,K(]5   3EFKE 210950Z 35004KT CAVOK M15/M19 Q1025EFKE2019-02-21T09:50:00Z65.7724.57-15.0-19.035046.2130.265747VFRMETAR15.02019-02-21 10:02:40FJ) 5    3EEEI 210950Z 36009KT 9999 FEW029 M04/M10 Q1022 R06/090095 NOSIGEEEI2019-02-21T09:50:00Z59.2724.2-4.0-10.036096.2130.177166TRUEVFRMETAR20.02019-02-21 10:02:406I(y5   3OAMS 210950Z 06015KT 9999 FEW030 07/M02 Q1029 BLU+BLU+OAMS2019-02-21T09:50:00Z36.767.27.0-2.060156.2130.383858VFRMETAR378.02019-02-21 10:02:40EH) 5    3LOWW 210950Z VRB03KT 9999 FEW040 SCT200 BKN300 11/04 Q1027 NOSIGLOWW2019-02-21T09:50:00Z48.1216.5711.04.0036.2130.324802TRUEVFRMETAR190.02019-02-21 10:02:40 Y-P(]5   3ESNV 210950Z 27003KT CAVOK M23/M25 Q1023ESNV2019-02-21T09:50:00Z64.5816.83-23.0-25.027036.2130.206694VFRMETAR348.02019-02-21 10:02:40QO)5     3ESST 210950Z AUTO 07004KT 020V090 2500 -SN OVC019/// M02/M04 Q1019 RESGESST2019-02-21T09:50:00Z60.1512.98-2.0-4.07041.5530.088583TRUE-SNIFRMETAR120.02019-02-21 10:02:409N(m5    3ESUP 210950Z AUTO 26003KT 9999 NCD M21/M24 Q1023ESUP2019-02-21T09:50:00Z67.2523.07-21.0-24.026036.2130.206694TRUEVFRMETAR165.02019-02-21 10:02:40bM)95     3ESND 210950Z AUTO 12008KT 090V150 9999 -SN FEW003/// SCT006/// OVC017/// M06/M08 Q1019ESND2019-02-21T09:50:00Z62.0514.42-6.0-8.012086.2130.088583TRUE-SNMVFRMETAR359.02019-02-21 10:02:40 %?bAT) 5   3EGPB 210950Z 23010KT 9999 SCT017 BKN021 09/07 Q1014 TEMPO BKN012EGPB2019-02-21T09:50:00Z59.87-1.39.07.0230106.2129.940945MVFRMETAR5.02019-02-21 10:02:40WS)+5   3PTYA 210950Z 03008KT 12SM FEW016 SCT130 OVC300 27/24 A2987 RMK SLP117 T02670236PTYA2019-02-21T09:50:00Z9.48138.0826.723.630812.029.8700791011.7VFRMETAR17.02019-02-21 10:02:40`R)15     3ESGR 210950Z AUTO 12007KT 080V140 1100 R01/1300U R19/1300U -SN VV011 M00/M00 Q1017ESGR2019-02-21T09:50:00Z58.4513.970.00.012070.6830.029528TRUE-SNLIFR1100METAR105.02019-02-21 10:02:40UQ)!5     3ESKM 210950Z AUTO 11010KT 4000 BR BKN008/// OVC013/// M05/M06 Q1021 RESHUPESKM2019-02-21T09:50:00Z60.9714.52-5.0-6.0110102.4930.147638TRUEBRIFRMETAR193.02019-02-21 10:02:40 vM+v/Y(e5   3EGTC 210950Z 24009KT 9999 BKN010 11/09 Q1024EGTC2019-02-21T09:50:00Z52.07-0.6211.09.024096.2130.236221MVFRMETAR111.02019-02-21 10:02:40.X(e5   3EGGP 210950Z 22013KT 9999 FEW025 13/09 Q1022EGGP2019-02-21T09:50:00Z53.32-2.8513.09.0220136.2130.177166VFRMETAR26.02019-02-21 10:02:405W(u5   3EGHI 210950Z 21008KT 190V250 9999 BKN008 10/08 Q1026EGHI2019-02-21T09:50:00Z50.95-1.3510.08.021086.2130.295275IFRMETAR14.02019-02-21 10:02:40-V(e5   3EGNT 210950Z 26010KT 9999 FEW015 12/09 Q1019EGNT2019-02-21T09:50:00Z55.02-1.712.09.0260106.2130.088583VFRMETAR81.02019-02-21 10:02:40-U(e5   3EGNV 210950Z 24012KT 9999 FEW018 12/09 Q1020EGNV2019-02-21T09:50:00Z54.52-1.4212.09.0240126.2130.11811VFRMETAR37.02019-02-21 10:02:40 sO&s-^(e5   3EGHH 210950Z 24005KT 9999 BKN009 11/09 Q1026EGHH2019-02-21T09:50:00Z50.78-1.8311.09.024056.2130.295275IFRMETAR11.02019-02-21 10:02:40/](k5    3EGKA 210950Z 23008KT 5000 BR BKN006 09/08 Q1026EGKA2019-02-21T09:50:00Z50.83-0.39.08.023083.1130.295275BRIFRMETAR2.02019-02-21 10:02:409\({5    3EGKB 210950Z 22009KT 190V260 4000 BR BKN005 09/08 Q1026EGKB2019-02-21T09:50:00Z51.320.029.08.022092.4930.295275BRIFRMETAR183.02019-02-21 10:02:40/[(e5   3EGLF 210950Z 24010KT 9999 BKN011 10/08 Q1026EGLF2019-02-21T09:50:00Z51.28-0.7710.08.0240106.2130.295275MVFRMETAR65.02019-02-21 10:02:40+Z(e5   3EGMD 210950Z 24010KT 8000 BKN005 09/09 Q1027EGMD2019-02-21T09:50:00Z50.950.929.09.0240104.9730.324802IFRMETAR3.02019-02-21 10:02:40 yN-y.c(e5    3EBBR 210950Z 24004KT CAVOK 10/08 Q1027 NOSIGEBBR2019-02-21T09:50:00Z50.94.510.08.024046.2130.324802TRUEVFRMETAR58.02019-02-21 10:02:40-b(]5   3EFET 210950Z 21003KT CAVOK M24/M26 Q1021EFET2019-02-21T09:50:00Z68.3723.43-24.0-26.021036.2130.147638VFRMETAR306.02019-02-21 10:02:406a(g5    3EFKI 210950Z AUTO 27006KT CAVOK M17/M20 Q1022EFKI2019-02-21T09:50:00Z64.2727.67-17.0-20.027066.2130.177166TRUEVFRMETAR136.02019-02-21 10:02:40,`(]5   3EFKS 210950Z 32007KT CAVOK M15/M17 Q1019EFKS2019-02-21T09:50:00Z66.029.23-15.0-17.032076.2130.088583VFRMETAR263.02019-02-21 10:02:40,_(]5   3EFKT 210950Z 16002KT CAVOK M19/M23 Q1022EFKT2019-02-21T09:50:00Z67.724.85-19.0-23.016026.2130.177166VFRMETAR643.02019-02-21 10:02:40 iDi'h([5   3ENRS 210950Z 12009KT CAVOK 02/M06 Q1019ENRS2019-02-21T09:50:00Z67.5212.082.0-6.012096.2130.088583VFRMETAR4.02019-02-21 10:02:409g({5    3ELLX 210950Z 21004KT 150V270 9000 NSC 08/05 Q1028 NOSIGELLX2019-02-21T09:50:00Z49.636.28.05.021045.5930.35433TRUEVFRMETAR379.02019-02-21 10:02:401f(k5    3EBOS 210950Z 21007KT 7000 NSC 08/06 Q1027 NOSIGEBOS2019-02-21T09:50:00Z51.22.878.06.021074.3530.324802TRUEMVFRMETAR5.02019-02-21 10:02:402e(e5    3EBLG 210950Z 22010KT CAVOK 10/06 Q1027 NOSIGEBLG2019-02-21T09:50:00Z50.635.4510.06.0220106.2130.324802TRUEVFRMETAR178.02019-02-21 10:02:406d(q5    3EBCI 210950Z 22009KT 9999 FEW036 09/05 Q1027 NOSIGEBCI2019-02-21T09:50:00Z50.474.459.05.022096.2130.324802TRUEVFRMETAR192.02019-02-21 10:02:40 ,p_l)=5  3ENST 210950Z 35011G26KT CAVOK M02/M15 Q1017 RMK WIND 300FT 34007G20KT TURB WRNG-SEE IPPCENST2019-02-21T09:50:00Z65.9712.47-2.0-15.035011266.2130.029528VFRSPECI17.02019-02-21 10:02:40Gk)5    3ENSO 210950Z 27006KT 240V330 4500 -DZ BR SCT003 BKN005 07/07 Q1015ENSO2019-02-21T09:50:00Z59.785.337.07.027062.829.970472-DZ BRIFRMETAR49.02019-02-21 10:02:406j(w5   3ENSK 210950Z 13014KT 9999 SCT038 BKN050 M02/M08 Q1020ENSK2019-02-21T09:50:00Z68.5715.02-2.0-8.0130146.2130.11811VFRMETAR3.02019-02-21 10:02:40Ni)!5    3ENMS 210950Z VRB06KT CAVOK M05/M16 Q1020 RMK WIND 412FT 20009G19KT 140V280ENMS2019-02-21T09:50:00Z65.7813.22-5.0-16.0066.2130.11811VFR0.9SPECI70.02019-02-21 10:02:40 zN,z,q(i5   3ENMH 210950Z 21020KT 9999 SCT023 M06/M09 Q1016ENMH2019-02-21T09:50:00Z71.0227.82-6.0-9.0210206.2130.0VFRMETAR13.02019-02-21 10:02:408p(w5   3ENHV 210950Z 22018KT 9999 FEW025 BKN065 M03/M08 Q1017ENHV2019-02-21T09:50:00Z71.0225.97-3.0-8.0220186.2130.029528VFRMETAR14.02019-02-21 10:02:40+o(]5   3ENHK 210950Z 17012KT CAVOK M03/M09 Q1018ENHK2019-02-21T09:50:00Z70.4722.13-3.0-9.0170126.2130.059055VFRMETAR10.02019-02-21 10:02:40-n(i5   3ENBS 210950Z 25020KT 9999 FEW045 M08/M13 Q1016ENBS2019-02-21T09:50:00Z70.6229.72-8.0-13.0250206.2130.0VFRMETAR10.02019-02-21 10:02:40,m(]5   3ENVD 210950Z 29008KT CAVOK M11/M16 Q1019ENVD2019-02-21T09:50:00Z70.0729.85-11.0-16.029086.2130.088583VFRMETAR39.02019-02-21 10:02:40 ND+v(e5   3LGLM 210950Z 04009KT 9999 FEW015 14/06 Q1023LGLM2019-02-21T09:50:00Z39.9225.2314.06.04096.2130.206694VFRMETAR5.02019-02-21 10:02:40)u(e5   3LGKO 210950Z /////KT 9999 FEW025 15/09 Q1021LGKO2019-02-21T09:50:00Z36.827.0815.09.06.2130.147638VFRMETAR125.02019-02-21 10:02:40(t(e5   3LGKL 210950Z /////KT 9999 FEW025 16/04 Q1023LGKL2019-02-21T09:50:00Z37.0722.0216.04.06.2130.206694VFRMETAR8.02019-02-21 10:02:40's(Y5   3LGAD 210950Z 35005KT CAVOK 15/08 Q1023LGAD2019-02-21T09:50:00Z37.9221.2715.08.035056.2130.206694VFRMETAR12.02019-02-21 10:02:40,r(s5   3ENNO 210950Z 00000KT 9999 FEW003 BKN017 01/01 Q1016ENNO2019-02-21T09:50:00Z59.579.221.01.0006.2130.0MVFRMETAR19.02019-02-21 10:02:40 \K\2{(m5   3ENBN 210950Z 09019KT 060V130 CAVOK M01/M14 Q1017ENBN2019-02-21T09:50:00Z65.4712.22-1.0-14.090196.2130.029528VFRMETAR9.02019-02-21 10:02:40,z(e5   3EGMC 210950Z 24011KT 9000 BKN011 09/06 Q1025EGMC2019-02-21T09:50:00Z51.570.79.06.0240115.5930.265747MVFRMETAR15.02019-02-21 10:02:40Cy) 5    3LOXZ 210950Z VRB01KT 30KM FEW060CU BKN300CI 06/M01 Q1027 NOSIGLOXZ2019-02-21T09:50:00Z47.214.756.0-1.00118.6430.324802TRUEVFRMETAR682.02019-02-21 10:02:406x(k5   3LGTS 210950Z 34013G23KT CAVOK 15/01 Q1024 NOSIGLGTS2019-02-21T09:50:00Z40.5222.9715.01.034013236.2130.236221TRUEVFRMETAR7.02019-02-21 10:02:40/w(e5   3LGSA 210950Z 31006KT 9999 FEW020 16/11 Q1021LGSA2019-02-21T09:50:00Z35.5324.1316.011.031066.2130.147638VFRMETAR135.02019-02-21 10:02:40 AfA) 5   3ENAT 210950Z VRB02KT CAVOK M12/M17 Q1022 RMK WIND 700FT 15011KTENAT2019-02-21T09:50:00Z69.9723.37-12.0-17.0026.2130.177166VFRSPECI3.02019-02-21 10:02:40M)%5   3ENSH 210950Z 05010KT 9999 FEW035 BKN060 M02/M08 Q1020 RMK WIND 150FT 06014KTENSH2019-02-21T09:50:00Z68.2514.67-2.0-8.050106.2130.11811VFRSPECI9.02019-02-21 10:02:40)~(]5   3ENRA 210950Z 08008KT CAVOK M07/M15 Q1021ENRA2019-02-21T09:50:00Z66.3714.3-7.0-15.08086.2130.147638VFRMETAR70.02019-02-21 10:02:40U}))5    3ENHF 210950Z 20009KT 160V220 9999 SCT046 M04/M09 Q1017 RMK WIND 1254FT 21018KTENHF2019-02-21T09:50:00Z70.6723.67-4.0-9.020096.2130.029528VFR-1.8SPECI81.02019-02-21 10:02:409|(w5   3ENBV 210950Z 24018KT 9999 FEW031 SCT070 M06/M11 Q1017ENBV2019-02-21T09:50:00Z70.8729.02-6.0-11.0240186.2130.029528VFRMETAR13.02019-02-21 10:02:40 7uZ)?5   3ENKB 210950Z 10005KT 060V130 9999 FEW006 SCT017 BKN022 05/02 Q1010 RMK WIND 745FT 14009KTENKB2019-02-21T09:50:00Z63.127.825.02.010056.2129.822834MVFRSPECI62.02019-02-21 10:02:40@) 5    3ENFL 210950Z 17009KT 9999 -DZ FEW003 SCT004 BKN006 06/06 Q1013ENFL2019-02-21T09:50:00Z61.575.026.06.017096.2129.911417-DZIFRMETAR9.02019-02-21 10:02:40<(s5    3ENBL 210950Z 25002KT 1000 DZ BCFG VV005 03/03 Q1012ENBL2019-02-21T09:50:00Z61.45.773.03.025020.6229.88189DZ BCFGLIFR500METAR150.02019-02-21 10:02:40C) 5    3ENGK 210950Z 04003KT 360V060 9999 VCFG FEW002 BKN066 03/02 Q1015ENGK2019-02-21T09:50:00Z58.528.73.02.04036.2129.970472VCFGVFRMETAR119.02019-02-21 10:02:40 %0e%5 (s5   3LGEL 210950Z 33013KT 9999 FEW025 SCT070 16/03 Q1022LGEL2019-02-21T09:50:00Z38.0723.5516.03.0330136.2130.177166VFRMETAR31.02019-02-21 10:02:40.(g5   3LGAL 210950Z 05010KT 9999 FEW025 15/M01 Q1023LGAL2019-02-21T09:50:00Z40.8525.9515.0-1.050106.2130.206694VFRMETAR3.02019-02-21 10:02:40K)5   3ENNA 210950Z 15008KT 110V170 CAVOK M13/M17 Q1020 RMK WIND 1800FT 26019KTENNA2019-02-21T09:50:00Z70.0724.97-13.0-17.015086.2130.11811VFRSPECI8.02019-02-21 10:02:40E) 5   3ENKR 210950Z 24012KT CAVOK M13/M17 Q1019 RMK WIND 731FT 24013KTENKR2019-02-21T09:50:00Z69.7229.88-13.0-17.0240126.2130.088583VFRMETAR91.02019-02-21 10:02:40J)5   3ENEV 210950Z 15006KT 9999 BKN055 M06/M11 Q1021 RMK WIND 1400FT 14010KTENEV2019-02-21T09:50:00Z68.5216.67-6.0-11.015066.2130.147638VFRSPECI26.02019-02-21 10:02:40 nO!n-(e5   3LGSK 210950Z 36010KT 9999 FEW030 15/07 Q1023LGSK2019-02-21T09:50:00Z39.1823.515.07.0360106.2130.206694VFRMETAR15.02019-02-21 10:02:404 (w5   3LGRX 210950Z 00000KT CAVOK 16/08 Q1023 RMK FEW180 BLULGRX2019-02-21T09:50:00Z38.1721.4216.08.0006.2130.206694VFRMETAR15.02019-02-21 10:02:40; )5   3LGPZ 210950Z 00000KT CAVOK 14/07 Q1025 RMK FEW080 SCT180 BLULGPZ2019-02-21T09:50:00Z38.9220.7714.07.0006.2130.265747VFRMETAR4.02019-02-21 10:02:40- (e5   3LGMT 210950Z 36004KT 9999 SCT020 14/10 Q1022LGMT2019-02-21T09:50:00Z39.0526.614.010.036046.2130.177166VFRMETAR17.02019-02-21 10:02:40+ (e5   3LGKV 210950Z 09005KT 9999 FEW025 13/07 Q1023LGKV2019-02-21T09:50:00Z40.9224.6213.07.09056.2130.206694VFRMETAR5.02019-02-21 10:02:40 MI)#5   3ENSD 210950Z 07006KT 9999 FEW025 BKN035 04/03 Q1012 RMK WIND 1138FT 27004KTENSD2019-02-21T09:50:00Z61.826.124.03.07066.2129.88189VFRSPECI60.02019-02-21 10:02:40[)95     3ENOV 210950Z VRB02KT 9999 -DZ FEW007 SCT020 BKN026 06/05 Q1012 RMK WIND 2175FT 21018KTENOV2019-02-21T09:50:00Z62.176.076.05.0026.2129.88189-DZMVFR-1.8SPECI74.02019-02-21 10:02:40,(e5   3LGZA 210950Z 04004KT 9999 FEW020 15/11 Q1023LGZA2019-02-21T09:50:00Z37.7520.8715.011.04046.2130.206694VFRMETAR3.02019-02-21 10:02:40-(e5   3LGSR 210950Z 35007KT 9999 FEW025 16/10 Q1022LGSR2019-02-21T09:50:00Z36.425.4816.010.035076.2130.177166VFRMETAR40.02019-02-21 10:02:40 #XB)5   3ENSE 210950Z AUTO 28015KT //// FEW020/// OVC023/// 08/05 Q1012 W///S5ENSE2019-02-21T09:50:00Z61.452.158.05.02801529.88189TRUEMETAR10.02019-02-21 10:02:40<) 5   3ENQR 210950Z AUTO 26015KT 9999NDV OVC021/// 08/05 Q1011 W///S5ENQR2019-02-21T09:50:00Z61.352.228.05.02601529.852362TRUEMETAR10.02019-02-21 10:02:40/(i5   3ENNE 210950Z 11028KT CAVOK 02/M05 Q1015 W///S5ENNE2019-02-21T09:50:00Z66.038.082.0-5.0110286.2129.970472VFRMETAR10.02019-02-21 10:02:40E) 5   3ENSR 210950Z 15015KT CAVOK M10/M17 Q1021 RMK WIND 1119FT 12012KTENSR2019-02-21T09:50:00Z69.7720.97-10.0-17.0150156.2130.147638VFRSPECI6.02019-02-21 10:02:40W)15    3ENSG 210950Z 08003KT 9999 FEW/// SCT020 BKN030 00/00 Q1013 RMK WIND 3806FT 21012KTENSG2019-02-21T09:50:00Z61.137.120.00.08036.2129.911417MVFR-1.2SPECI497.02019-02-21 10:02:40 N>rN'([5   3LGBL 210950Z 31007KT CAVOK 17/M00 Q1024LGBL2019-02-21T09:50:00Z39.2222.817.00.031076.2130.236221VFRMETAR26.02019-02-21 10:02:407)5   3ENLA 210950Z AUTO 26018KT //// SCT011/// 09/08 Q1017 W///S4ENLA2019-02-21T09:50:00Z57.12.839.08.02601830.029528TRUEMETAR4.02019-02-21 10:02:404(s5   3ENHM 210950Z 25014KT 9999 BKN025 08/06 Q1015 W08/S4ENHM2019-02-21T09:50:00Z59.572.238.06.0250146.2129.970472MVFRMETAR10.02019-02-21 10:02:40F)5   3ENQA 210950Z AUTO 26014KT 9999NDV FEW007/// BKN021/// 08/06 Q1014 W04/S5ENQA2019-02-21T09:50:00Z60.653.728.06.02601429.940945TRUEMETAR20.02019-02-21 10:02:40<) 5   3ENQC 210950Z AUTO 23012KT 9999NDV BKN017/// 08/06 Q1013 W///S5ENQC2019-02-21T09:50:00Z60.883.628.06.02301229.911417TRUEMETAR20.02019-02-21 10:02:40 ~M3~/!(e5   3LGMK 210950Z 36011KT 9999 SCT018 15/07 Q1022LGMK2019-02-21T09:50:00Z37.4325.3515.07.0360116.2130.177166VFRMETAR123.02019-02-21 10:02:40- (e5   3LGKP 210950Z 10005KT 9999 SCT030 17/09 Q1021LGKP2019-02-21T09:50:00Z35.4227.1517.09.010056.2130.147638VFRMETAR20.02019-02-21 10:02:400(g5   3LGKZ 210950Z 32007KT 9999 FEW070 12/M01 Q1025LGKZ2019-02-21T09:50:00Z40.2821.8312.0-1.032076.2130.265747VFRMETAR628.02019-02-21 10:02:40+(e5   3LGHI 210950Z VRB02KT 9999 FEW020 15/11 Q1021LGHI2019-02-21T09:50:00Z38.3226.1215.011.0026.2130.147638VFRMETAR4.02019-02-21 10:02:40-(e5   3LGKF 210950Z 17005KT 9999 FEW016 16/11 Q1024LGKF2019-02-21T09:50:00Z38.1220.516.011.017056.2130.236221VFRMETAR18.02019-02-21 10:02:40 ]C%]B&)5    3ENGC 210950Z 29015KT 1500 -DZ BR OVC015 07/06 Q1013 W07/S5ENGC2019-02-21T09:50:00Z61.022.027.06.0290150.9329.911417-DZ BRLIFRSPECI10.02019-02-21 10:02:402%(s5   3ENLE 210950Z 26025KT 9999 SCT030 09/07 Q1018 W07/S4ENLE2019-02-21T09:50:00Z56.533.229.07.0260256.2130.059055VFRMETAR3.02019-02-21 10:02:40-$(e5   3LGSO 210950Z 01011KT 9999 FEW018 16/09 Q1022LGSO2019-02-21T09:50:00Z37.4224.9516.09.010116.2130.177166VFRMETAR72.02019-02-21 10:02:40-#(e5   3LGNX 210950Z 36006KT 9999 FEW020 15/12 Q1022LGNX2019-02-21T09:50:00Z37.0825.3715.012.036066.2130.177166VFRMETAR4.02019-02-21 10:02:407"(q5    3LGPA 210950Z 36010KT 9999 SCT018 15/09 Q1022 NOSIGLGPA2019-02-21T09:50:00Z37.025.1315.09.0360106.2130.177166TRUEVFRMETAR36.02019-02-21 10:02:40 x?0x2+(k5    3LIMW 210950Z AUTO VRB02KT 9999 NCD 08/M04 Q1029LIMW2019-02-21T09:50:00Z45.737.378.0-4.0026.2130.383858TRUEVFRMETAR546.02019-02-21 10:02:40**(e5   3LIEA 210950Z VRB01KT 9999 FEW040 12/09 Q1030LIEA2019-02-21T09:50:00Z40.628.2712.09.0016.2130.413385VFRMETAR23.02019-02-21 10:02:40-)(i5   3LIEE 210950Z 34006KT 300V010 CAVOK 13/09 Q1029LIEE2019-02-21T09:50:00Z39.259.0713.09.034066.2130.383858VFRMETAR4.02019-02-21 10:02:40&((Y5   3LIEO 210950Z 23007KT CAVOK 14/08 Q1029LIEO2019-02-21T09:50:00Z40.889.5214.08.023076.2130.383858VFRMETAR13.02019-02-21 10:02:40;')5   3ENHE 210950Z 13023KT 9999 SCT025 BKN085 04/M02 Q1012 W///S5ENHE2019-02-21T09:50:00Z65.332.334.0-2.0130236.2129.88189VFRMETAR1.02019-02-21 10:02:40 D,&0(Y5   3LIRA 210950Z 31003KT CAVOK 10/04 Q1028LIRA2019-02-21T09:50:00Z41.812.5810.04.031036.2130.35433VFRMETAR101.02019-02-21 10:02:40-/(i5   3LIMJ 210950Z 20003KT 160V240 CAVOK 13/07 Q1029LIMJ2019-02-21T09:50:00Z44.428.8313.07.020036.2130.383858VFRMETAR3.02019-02-21 10:02:40'.(_5   3LIMF 210950Z VRB02KT 6000 NSC 09/05 Q1028LIMF2019-02-21T09:50:00Z45.227.659.05.0023.7330.35433MVFRMETAR287.02019-02-21 10:02:402-(k5    3LIME 210950Z VRB02KT 6000 NSC 10/03 Q1028 NOSIGLIME2019-02-21T09:50:00Z45.679.6810.03.0023.7330.35433TRUEMVFRMETAR237.02019-02-21 10:02:406,(q5     3LIMC 210950Z 23004KT 4500 BR NSC 09/05 Q1028 NOSIGLIMC2019-02-21T09:50:00Z45.628.729.05.023042.830.35433TRUEBRIFRMETAR211.02019-02-21 10:02:40 ZDZ35(o5   3LIBD 210950Z 35006KT 310V030 6000 NSC 12/06 Q1027LIBD2019-02-21T09:50:00Z41.1216.7712.06.035063.7330.324802MVFRMETAR44.02019-02-21 10:02:40,4(e5   3LIRQ 210950Z VRB01KT 8000 FEW010 10/06 Q1029LIRQ2019-02-21T09:50:00Z43.7811.1810.06.0014.9730.383858MVFRMETAR38.02019-02-21 10:02:4083(q5     3LIML 210950Z 25004KT 3000 BR NSC 09/06 Q1029 NOSIGLIML2019-02-21T09:50:00Z45.479.279.06.025041.8630.383858TRUEBRIFRMETAR103.02019-02-21 10:02:40;2)5    3LIRN 210950Z VRB01KT 5000 BR FEW030 13/07 Q1028 BECMG 6000LIRN2019-02-21T09:50:00Z40.8814.313.07.0013.1130.35433BRMVFRMETAR72.02019-02-21 10:02:4061(u5    3LIRF 210950Z 05004KT 010V080 CAVOK 12/05 Q1028 NOSIGLIRF2019-02-21T09:50:00Z41.7812.2212.05.05046.2130.35433TRUEVFRMETAR3.02019-02-21 10:02:40 F61:(o5   3LIPE 210950Z 27004KT 240V320 6000 NSC 09/04 Q1029LIPE2019-02-21T09:50:00Z44.5211.39.04.027043.7330.383858MVFRMETAR42.02019-02-21 10:02:40,9(e5   3LICJ 210950Z 08011KT 9999 SCT035 13/05 Q1028LICJ2019-02-21T09:50:00Z38.1713.0813.05.080116.2130.35433VFRMETAR34.02019-02-21 10:02:40'8([5   3LIPB 210950Z VRB02KT CAVOK 08/M01 Q1029LIPB2019-02-21T09:50:00Z46.4711.328.0-1.0026.2130.383858VFRMETAR241.02019-02-21 10:02:40+7(e5   3LICC 210950Z VRB04KT 9999 FEW025 14/08 Q1027LICC2019-02-21T09:50:00Z37.4715.0514.08.0046.2130.324802VFRMETAR17.02019-02-21 10:02:4046(k5    3LIBR 210950Z 31015KT 5000 BR FEW030 13/09 Q1026LIBR2019-02-21T09:50:00Z40.6517.9513.09.0310153.1130.295275BRMVFRMETAR10.02019-02-21 10:02:40Y88@HPX`hpx (08@HPX`hpx (08@HPX`hpx $).38=B $).38=BGLPTY^chlqv{ !&+05:?DINRVZ¡^ácġhšmơrǡvȡ{ɡʡˡ ̡͡ΡϡС"ѡ'ҡ,ӡ1ԡ6ա;֡@סEءI١NڡSۡXܡ\ݡaޡeߡi࡯mᡯp⡯t㡯x䡯|塯桯硯衯 顯ꡯ롯졯"& {N/{.?(e5    3LIPR 210950Z 02004KT 5000 BR NSC 09/04 Q1029LIPR2019-02-21T09:50:00Z44.0212.629.04.02043.1130.383858BRMVFRMETAR13.02019-02-21 10:02:409>(}5    3LIPX 210950Z VRB02KT 0300 R04/0400 FG BKN001 04/04 Q1029LIPX2019-02-21T09:50:00Z45.3810.874.04.0020.1930.383858FGLIFRSPECI68.02019-02-21 10:02:40'=(_5   3LIPK 210950Z VRB01KT 6000 NSC 10/04 Q1028LIPK2019-02-21T09:50:00Z44.212.0710.04.0013.7330.35433MVFRMETAR32.02019-02-21 10:02:40-<(e5    3LIPQ 210950Z VRB02KT 5000 BR NSC 10/04 Q1028LIPQ2019-02-21T09:50:00Z45.8213.4710.04.0023.1130.35433BRMVFRMETAR12.02019-02-21 10:02:40,;(e5    3LIPH 210950Z VRB02KT 4000 BR NSC 10/04 Q1028LIPH2019-02-21T09:50:00Z45.6312.1710.04.0022.4930.35433BRIFRMETAR23.02019-02-21 10:02:40 \D\6D(q5     3LIPZ 210950Z 20004KT 1500 BR NSC 08/05 Q1028 NOSIGLIPZ2019-02-21T09:50:00Z45.512.358.05.020040.9330.35433TRUEBRLIFRMETAR6.02019-02-21 10:02:403C(m5   3EEPU 210950Z 36008KT 330V030 CAVOK M03/M12 Q1021EEPU2019-02-21T09:50:00Z58.4224.47-3.0-12.036086.2130.147638VFRMETAR14.02019-02-21 10:02:402B(i5   3EETU 210950Z 34013KT 9999 FEW045 M05/M10 Q1018EETU2019-02-21T09:50:00Z58.3226.68-5.0-10.0340136.2130.059055VFRMETAR67.02019-02-21 10:02:405A(s5   3EEKE 210950Z 03010KT CAVOK M02/M11 Q1022 R17/0///95EEKE2019-02-21T09:50:00Z58.2322.52-2.0-11.030106.2130.177166VFRMETAR4.02019-02-21 10:02:406@({5    3ENML 210950Z 07006KT 9999 -RA FEW005 BKN035 04/02 Q1012ENML2019-02-21T09:50:00Z62.757.274.02.07066.2129.88189-RAVFRMETAR3.02019-02-21 10:02:40 :G:>I(5    3LTFH 210950Z 32012KT 9999 SCT036 BKN100 10/07 Q1022 NOSIGLTFH2019-02-21T09:50:00Z41.2736.5510.07.0320126.2130.177166TRUEVFRMETAR5.02019-02-21 10:02:40>H(y5    3KO32 210950Z AUTO 00000KT 10SM CLR 04/04 A2969 RMK AO2KO322019-02-21T09:50:00Z36.67-119.454.04.00010.029.68996TRUETRUEVFRMETAR117.02019-02-21 10:02:40CG(5    3K6I2 210950Z AUTO 34005KT 10SM SCT026 03/03 A3010 RMK AO2K6I22019-02-21T09:50:00Z37.63-85.253.03.0340510.030.100393TRUETRUEVFRMETAR264.02019-02-21 10:02:406F(u5    3EDDR 210950Z 19004KT 160V230 CAVOK 08/04 Q1028 NOSIGEDDR2019-02-21T09:50:00Z49.227.18.04.019046.2130.35433TRUEVFRMETAR320.02019-02-21 10:02:403E(q5    3EDDW 210950Z 23009KT 9999 FEW041 08/06 Q1023 NOSIGEDDW2019-02-21T09:50:00Z53.038.88.06.023096.2130.206694TRUEVFRMETAR5.02019-02-21 10:02:40 *Ev*GN)5    3LTCA 210950Z 07005KT 020V110 9999 FEW035 BKN100 08/M06 Q1021 NOSIGLTCA2019-02-21T09:50:00Z38.639.278.0-6.07056.2130.147638TRUEVFRMETAR882.02019-02-21 10:02:40>M)5    3LTCD 210950Z VRB03KT 9999 FEW045 SCT100 06/M09 Q1020 NOSIGLTCD2019-02-21T09:50:00Z39.7239.56.0-9.0036.2130.11811TRUEVFRMETAR1215.02019-02-21 10:02:405L(m5   3LTCF 210950Z 25003KT 220V280 CAVOK M05/M10 Q1018LTCF2019-02-21T09:50:00Z40.5743.12-5.0-10.025036.2130.059055VFRMETAR1795.02019-02-21 10:02:40IK)5    3LTCI 210950Z 27007KT 240V300 9999 SCT035 SCT180 02/M07 Q1020 NOSIGLTCI2019-02-21T09:50:00Z38.4543.322.0-7.027076.2130.11811TRUEVFRMETAR1661.02019-02-21 10:02:405J(q5    3LTDA 210950Z VRB02KT 9999 SCT035 14/08 Q1021 NOSIGLTDA2019-02-21T09:50:00Z36.3736.2814.08.0026.2130.147638TRUEVFRMETAR82.02019-02-21 10:02:40 HfR)U5   3LTFM 210950Z 01012KT 9000 SCT007 BKN015 08/06 Q1024 RMK RWY17L 01009KT RWY34L 36012KT RWY16R 01009KTLTFM2019-02-21T09:50:00Z41.2728.758.06.010125.5930.236221MVFRMETAR99.02019-02-21 10:02:40-Q(g5   3LTAR 210950Z 09003KT 9999 SCT040 02/M03 Q1019LTAR2019-02-21T09:50:00Z39.836.92.0-3.09036.2130.088583VFRMETAR1271.02019-02-21 10:02:405P(u5   3LTAY 210950Z 08004KT 030V130 9999 FEW035 10/03 Q1021LTAY2019-02-21T09:50:00Z37.7729.6810.03.08046.2130.147638VFRMETAR849.02019-02-21 10:02:402O(k5   3LTBY 210950Z 27004KT 210V310 CAVOK 11/M01 Q1021LTBY2019-02-21T09:50:00Z39.8230.5211.0-1.027046.2130.147638VFRMETAR789.02019-02-21 10:02:40 ?tOV)%5    3LTCG 210950Z 32006KT 290V020 9999 SCT100 11/04 Q1020 NOSIG RMK RWY29 31008KTLTCG2019-02-21T09:50:00Z41.039.811.04.032066.2130.11811TRUEVFRMETAR30.02019-02-21 10:02:40EU)5   3LTCS 210950Z VRB02KT 9999 FEW040 BKN100 11/02 Q1021 RMK RWY22 VRB03KTLTCS2019-02-21T09:50:00Z37.4538.911.02.0026.2130.147638VFRMETAR825.02019-02-21 10:02:40RT)%5    3LTFE 210950Z 28004KT 210V350 9999 FEW035 16/11 Q1021 NOSIG RMK RWY10 27007KTLTFE2019-02-21T09:50:00Z37.2527.6716.011.028046.2130.147638TRUEVFRMETAR6.02019-02-21 10:02:40cS)C5     3LTFJ 210950Z 17004KT 120V210 6000 FEW017 BKN100 10/06 Q1023 NOSIG RMK RWY24 20004KT 160V240LTFJ2019-02-21T09:50:00Z40.929.310.06.017043.7330.206694TRUEMVFR0.4METAR98.02019-02-21 10:02:40 m,D>mKZ)5   3LTAZ 210950Z 30006KT 270V330 9999 FEW040 11/M01 Q1019 RMK RWY29 31007KTLTAZ2019-02-21T09:50:00Z38.7734.5511.0-1.030066.2130.088583VFRMETAR945.02019-02-21 10:02:40Y)5    3LTBA 210950Z 34008KT 310V020 6000 BKN015 11/07 Q1024 NOSIG RMK RWY17L 34007KT 320V020 RWY05 33008KT 300V360 RWY23 34008KTLTBA2019-02-21T09:50:00Z40.9728.8211.07.034083.7330.236221TRUEMVFRMETAR37.02019-02-21 10:02:40bX)C5    3LTBR 210950Z 17003KT 130V220 9999 FEW035 SCT200 12/03 Q1022 NOSIG RMK RWY07 22004KT 180V250LTBR2019-02-21T09:50:00Z40.2529.5712.03.017036.2130.177166TRUEVFRMETAR232.02019-02-21 10:02:40NW)#5    3LTBS 210950Z 24008KT 9999 FEW025 SCT200 16/09 Q1020 NOSIG RMK RWY19 22007KTLTBS2019-02-21T09:50:00Z36.728.7716.09.024086.2130.11811TRUEVFRMETAR2.02019-02-21 10:02:40 ]"U]r^)e5    3LTAC 210950Z VRB03KT 9999 FEW040 10/M04 Q1019 NOSIG RMK RWY21L VRB04KT RWY03L 04003KT 320V130 RWY21R VRB04KTLTAC2019-02-21T09:50:00Z40.1232.9710.0-4.0036.2130.088583TRUEVFRMETAR949.02019-02-21 10:02:40G])5    3LTAF 210950Z VRB02KT 9999 SCT035 17/08 Q1020 NOSIG RMK RWY23 VRB04KTLTAF2019-02-21T09:50:00Z36.9735.2817.08.0026.2130.11811TRUEVFRMETAR20.02019-02-21 10:02:40w\)s5    3LTAI 210950Z 18008KT 9999 SCT030 17/09 Q1019 NOSIG RMK RWY18C 16007KT 130V200 RWY36R 18009KT RWY18L 18007KT 150V230LTAI2019-02-21T09:50:00Z36.930.817.09.018086.2130.088583TRUEVFRMETAR54.02019-02-21 10:02:40[[)35    3LTAJ 210950Z 03012KT 9999 4000E -TSRA FEW023CB BKN030 09/04 Q1019 BECMG VRB02KT NSWLTAJ2019-02-21T09:50:00Z36.9537.489.04.030126.2130.088583-TSRAMVFRMETAR855.02019-02-21 10:02:40 ^H^5c(u5   3LTCV 210950Z 11004KT 040V190 9999 SCT035 13/02 Q1020LTCV2019-02-21T09:50:00Z37.3742.0713.02.011046.2130.11811VFRMETAR621.02019-02-21 10:02:404b(o5    3LTCW 210950Z 00000KT 3500 BR SCT010 M08/M09 Q1020LTCW2019-02-21T09:50:00Z37.5544.23-8.0-9.0002.1730.11811BRIFRMETAR1856.02019-02-21 10:02:406a(s5   3LTFD 210950Z 11012KT 8000 FEW035 BKN200 16/01 Q1022LTFD2019-02-21T09:50:00Z39.5527.0216.01.0110124.9730.177166MVFRMETAR16.02019-02-21 10:02:403`(u5   3LTFG 210950Z 23007KT 200V260 9999 SCT035 19/10 Q1020LTFG2019-02-21T09:50:00Z36.332.319.010.023076.2130.11811VFRMETAR95.02019-02-21 10:02:402_(s5   3LTFK 210950Z 03007KT 9999 FEW030 SCT100 15/04 Q1023LTFK2019-02-21T09:50:00Z40.225.8815.04.03076.2130.206694VFRMETAR21.02019-02-21 10:02:40 9:9=h(y5    3LTCO 210950Z 31004KT 280V340 2200 BR NSC M08/M11 Q1021LTCO2019-02-21T09:50:00Z39.6543.03-8.0-11.031041.3730.147638BRIFRMETAR1665.02019-02-21 10:02:40?g)5   3LTCP 210950Z 13006KT 090V160 9999 SCT040 BKN100 12/M01 Q1020LTCP2019-02-21T09:50:00Z37.7338.4712.0-1.013066.2130.11811VFRMETAR676.02019-02-21 10:02:40=f)5   3LTCR 210950Z 21004KT 170V280 9999 FEW040 SCT100 14/04 Q1020LTCR2019-02-21T09:50:00Z37.2240.6314.04.021046.2130.11811VFRMETAR527.02019-02-21 10:02:400e(k5   3LTCT 210950Z 14005KT 110V170 CAVOK 08/M09 Q1020LTCT2019-02-21T09:50:00Z39.9843.878.0-9.014056.2130.11811VFRMETAR946.02019-02-21 10:02:40@d)5   3LTCU 210950Z 25003KT 180V350 9999 SCT035 BKN100 03/M06 Q1022LTCU2019-02-21T09:50:00Z38.8740.583.0-6.025036.2130.177166VFRMETAR1061.02019-02-21 10:02:40 D2xD*m(e5   3LTCB 210950Z VRB02KT 9999 SCT090 12/02 Q1021LTCB2019-02-21T09:50:00Z40.9738.0712.02.0026.2130.147638VFRMETAR5.02019-02-21 10:02:40Dl)5    3LTCK 210950Z 00000KT 5000 BR FEW009 BKN030 M06/M10 Q1024 RESGLTCK2019-02-21T09:50:00Z38.7541.67-6.0-10.0003.1130.236221BRMVFRMETAR1266.02019-02-21 10:02:404k(s5   3LTCL 210950Z 25003KT 9999 SCT040 BKN100 09/01 Q1021LTCL2019-02-21T09:50:00Z37.9841.839.01.025036.2130.147638VFRMETAR610.02019-02-21 10:02:404j(s5   3LTCM 210950Z 29012KT 9999 SCT013 BKN025 09/05 Q1022LTCM2019-02-21T09:50:00Z42.0235.079.05.0290126.2130.177166MVFRMETAR8.02019-02-21 10:02:40Hi)5    3LTCN 210950Z 31004KT 250V030 9999 FEW040 SCT100 13/05 Q1019 NOSIGLTCN2019-02-21T09:50:00Z37.5336.9513.05.031046.2130.088583TRUEVFRMETAR526.02019-02-21 10:02:40 hL$h6r(u5   3LTAS 210950Z 36008KT 330V030 9999 FEW035 12/05 Q1022LTAS2019-02-21T09:50:00Z41.5232.0812.05.036086.2130.177166VFRMETAR136.02019-02-21 10:02:40-q(g5   3LTAW 210950Z VRB04KT 9999 SCT040 11/M00 Q1019LTAW2019-02-21T09:50:00Z40.2836.3711.00.0046.2130.088583VFRMETAR608.02019-02-21 10:02:40;p({5    3LTBD 210950Z 12003KT 090V170 5000 HZ FEW040 15/08 Q1021LTBD2019-02-21T09:50:00Z37.8227.8815.08.012033.1130.147638HZMVFRMETAR57.02019-02-21 10:02:40.o(i5   3LTBH 210950Z 03010KT 350V050 CAVOK 14/02 Q1024LTBH2019-02-21T09:50:00Z40.1326.4214.02.030106.2130.236221VFRMETAR3.02019-02-21 10:02:40.n(g5   3LTBO 210950Z VRB04KT 9999 SCT037 12/M01 Q1021LTBO2019-02-21T09:50:00Z38.6729.4712.0-1.0046.2130.147638VFRMETAR919.02019-02-21 10:02:40 DmmJv)5    3LTCC 210950Z 08005KT 360V130 CAVOK 12/00 Q1020 NOSIG RMK RWY16 35002KTLTCC2019-02-21T09:50:00Z37.8740.212.00.08056.2130.11811TRUEVFRMETAR677.02019-02-21 10:02:40zu)q5    3LTCE 210950Z 08003KT 040V120 9000 NSC M08/M11 Q1020 NOSIG RMK RWY08R 00000KT RWY26R 04003KT 010V070 RWY08L VRB02KTLTCE2019-02-21T09:50:00Z39.9541.17-8.0-11.08035.5930.11811TRUEVFRMETAR1758.02019-02-21 10:02:40Qt)'5    3LTCJ 210950Z 08003KT 9999 FEW040 SCT100 11/01 Q1020 RMK RWY20 10003KT 020V190LTCJ2019-02-21T09:50:00Z37.9341.1211.01.08036.2130.11811VFR0.3METAR540.02019-02-21 10:02:406s(u5   3LTAL 210950Z 27005KT 9999 SCT030 BKN100 08/M02 Q1018LTAL2019-02-21T09:50:00Z41.3233.88.0-2.027056.2130.059055VFRMETAR1066.02019-02-21 10:02:40 -:l-5{(q5    3LTAG 210950Z 20003KT 9999 SCT035 16/08 Q1020 NOSIGLTAG2019-02-21T09:50:00Z37.035.4216.08.020036.2130.11811TRUEVFRMETAR66.02019-02-21 10:02:40:z(s5    3LTAN 210950Z 01014KT 9999 SCT040 11/M04 Q1020 NOSIGLTAN2019-02-21T09:50:00Z37.9732.5311.0-4.010146.2130.11811TRUEVFRMETAR1006.02019-02-21 10:02:40>y(5    3LTBF 210950Z 00000KT 6000 FEW035 SCT200 12/07 Q1023 NOSIGLTBF2019-02-21T09:50:00Z39.6227.9212.07.0003.7330.206694TRUEMVFRMETAR102.02019-02-21 10:02:40Hx)5    3LTBQ 210950Z 26008KT 220V290 7000 FEW040 SCT120 11/04 Q1023 NOSIGLTBQ2019-02-21T09:50:00Z40.7230.0711.04.026084.3530.206694TRUEMVFRMETAR50.02019-02-21 10:02:40@w)5   3LTBU 210950Z 35010KT 6000 NSC 12/05 Q1023 RMK RWY22 01010KTLTBU2019-02-21T09:50:00Z41.1227.9212.05.0350103.7330.206694MVFRMETAR173.02019-02-21 10:02:40 12s1+(e5   3LGSM 210950Z 02008KT 9999 SCT025 16/08 Q1021LGSM2019-02-21T09:50:00Z37.6826.9216.08.02086.2130.147638VFRMETAR6.02019-02-21 10:02:40H)5   3ENSS 210950Z 25021KT 9999 NSC M10/M16 Q1017 RMK WIND 500FT 25025KTENSS2019-02-21T09:50:00Z70.3331.05-10.0-16.0250216.2130.029528VFRMETAR12.02019-02-21 10:02:40=~(w5     3OOMS 210950Z 35009KT 5000 DU SCT025 25/13 Q1019 NOSIGOOMS2019-02-21T09:50:00Z23.5758.2725.013.035093.1130.088583TRUEDUMVFRMETAR8.02019-02-21 10:02:409}(u5    3OOSA 210950Z 33007KT 260V050 CAVOK 30/03 Q1018 NOSIGOOSA2019-02-21T09:50:00Z17.0254.0730.03.033076.2130.059055TRUEVFRMETAR20.02019-02-21 10:02:40H|) 5     3OODQ 210950Z AUTO 36009KT 330V040 9999 SCT030 25/06 Q1019 NOSIGOODQ2019-02-21T09:50:00Z19.5257.6525.06.036096.2130.088583TRUETRUEVFRMETAR0.02019-02-21 10:02:40 9?99(u5     3EGPD 210950Z AUTO VRB02KT 9999 NCD 07/06 Q1015 NOSIGEGPD2019-02-21T09:50:00Z57.2-2.227.06.0026.2129.970472TRUETRUEVFRSPECI65.02019-02-21 10:02:40T))5  3EGYP 210950Z 19025G35KT 9999 SCT015 05/03 Q0992 WHT TEMPO 7000 SHRA BKN012 GRNEGYP2019-02-21T09:50:00Z-51.82-58.455.03.019025356.2129.291338VFRMETAR74.02019-02-21 10:02:402(s5   3ENOA 210950Z 26016KT 9999 BKN023 08/05 Q1014 W///S4ENOA2019-02-21T09:50:00Z60.52.838.05.0260166.2129.940945MVFRSPECI5.02019-02-21 10:02:40/(w5   3ENSL 210950Z 23010KT 190V260 CAVOK 08/07 Q1016 W04/S4ENSL2019-02-21T09:50:00Z58.371.98.07.0230106.2130.0VFRMETAR50.02019-02-21 10:02:40;) 5   3ENFB 210950Z AUTO 26020KT 9999NDV OVC010/// 08/07 Q1013 W///S5ENFB2019-02-21T09:50:00Z61.21.838.07.02602029.911417TRUEMETAR10.02019-02-21 10:02:40 1qD )5   3EGOS 210950Z 23016KT 9999 BKN018 12/09 Q1022 WHT BECMG FEW020 BLUEGOS2019-02-21T09:50:00Z52.8-2.6712.09.0230166.2130.177166MVFRMETAR76.02019-02-21 10:02:40J ) 5     3EGOV 210950Z 17018KT 8000 BR FEW008 OVC012 10/09 Q1022 GRN NOSIGEGOV2019-02-21T09:50:00Z53.25-4.5310.09.0170184.9730.177166TRUEBRMVFRSPECI11.02019-02-21 10:02:404(m5   3EGQL 210950Z 27012KT 9999 OVC011 12/11 Q1017 GRNEGQL2019-02-21T09:50:00Z56.38-2.8712.011.0270126.2130.029528MVFRSPECI12.02019-02-21 10:02:40:(u5    3EGQM 210950Z AUTO 24012KT 9999 FEW015/// 13/10 Q1018EGQM2019-02-21T09:50:00Z55.42-1.613.010.0240126.2130.059055TRUEVFRSPECI23.02019-02-21 10:02:40I)5    3EGQS 210950Z 20003KT 9999 FEW020 SCT160 BKN250 08/07 Q1014 BLU NOSIGEGQS2019-02-21T09:50:00Z57.72-3.328.07.020036.2129.940945TRUEVFRSPECI13.02019-02-21 10:02:40 M0eM2(s5   3EDGS 210950Z 27008KT 9999 SCT013 SCT024 07/04 Q1026EDGS2019-02-21T09:50:00Z50.78.087.04.027086.2130.295275VFRMETAR602.02019-02-21 10:02:40,(e5   3KEFD 210950Z 04006KT 10SM OVC050 12/08 A2994KEFD2019-02-21T09:50:00Z29.6-95.1712.08.040610.029.940945VFRMETAR10.02019-02-21 10:02:40( (e5   3LGIO 210950Z /////KT 9999 FEW002 07/06 Q1023LGIO2019-02-21T09:50:00Z39.720.827.06.06.2130.206694VFRMETAR476.02019-02-21 10:02:40E )5    3EGDM 210950Z 22010KT 9999 BKN008 OVC010 10/09 Q1025 GRN NOSIGEGDM2019-02-21T09:50:00Z51.17-1.7510.09.0220106.2130.265747TRUEIFRSPECI124.02019-02-21 10:02:40J )5   3EGDY 210950Z 20009KT 9999 FEW012 BKN018 11/09 Q1026 WHT TEMPO SCT010 GRNEGDY2019-02-21T09:50:00Z51.0-2.6211.09.020096.2130.295275MVFRMETAR23.02019-02-21 10:02:40 SI.(i5   3EDLP 210950Z 25009KT 220V280 CAVOK 09/04 Q1026EDLP2019-02-21T09:50:00Z51.628.629.04.025096.2130.295275VFRMETAR213.02019-02-21 10:02:40&(Y5   3EDLW 210950Z 23008KT CAVOK 09/05 Q1026EDLW2019-02-21T09:50:00Z51.527.629.05.023086.2130.295275VFRMETAR127.02019-02-21 10:02:404(u5   3EDMA 210950Z 23005KT 180V250 9999 BKN036 09/03 Q1028EDMA2019-02-21T09:50:00Z48.4210.929.03.023056.2130.35433VFRMETAR463.02019-02-21 10:02:40(_5   3EDLN 210950Z /////KT 6000 NSC ///// Q1027EDLN2019-02-21T09:50:00Z51.236.53.7330.324802MVFRMETAR38.02019-02-21 10:02:40'(Y5   3EDAC 210950Z 24010KT CAVOK 08/03 Q1026EDAC2019-02-21T09:50:00Z50.9812.58.03.0240106.2130.295275VFRMETAR195.02019-02-21 10:02:40 V93(s5   3EDHI 210950Z 24011KT 9999 SCT015 BKN039 09/05 Q1022EDHI2019-02-21T09:50:00Z53.539.839.05.0240116.2130.177166VFRMETAR13.02019-02-21 10:02:408(s5    3EDAH 210950Z 25010KT 3700 -RA BR BKN013 07/06 Q1020EDAH2019-02-21T09:50:00Z53.8714.157.06.0250102.330.11811-RA BRIFRMETAR28.02019-02-21 10:02:40&(Y5   3EDSB 210950Z 24005KT CAVOK 07/04 Q1029EDSB2019-02-21T09:50:00Z48.788.087.04.024056.2130.383858VFRMETAR124.02019-02-21 10:02:40-(e5   3EDQM 210950Z 26006KT 9999 BKN021 05/02 Q1026EDQM2019-02-21T09:50:00Z50.311.855.02.026066.2130.295275MVFRMETAR568.02019-02-21 10:02:40$(Y5   3EDNY 210950Z VRB02KT CAVOK 07/02 Q1030EDNY2019-02-21T09:50:00Z47.679.527.02.0026.2130.413385VFRMETAR424.02019-02-21 10:02:40 rN.r6(s5   3MUVR 210950Z 07004KT 8000 FEW020 SCT060 21/21 Q1017MUVR2019-02-21T09:50:00Z23.03-81.4321.021.07044.9730.029528MVFRMETAR65.02019-02-21 10:02:40/(e5   3MUSC 210950Z 12004KT 9000 FEW020 21/19 Q1017MUSC2019-02-21T09:50:00Z22.5-79.9521.019.012045.5930.029528VFRMETAR103.02019-02-21 10:02:40.(e5   3MUCC 210950Z 11007KT 9000 SCT018 24/21 Q1017MUCC2019-02-21T09:50:00Z22.47-78.3324.021.011075.5930.029528VFRMETAR4.02019-02-21 10:02:401(e5   3MUHG 210950Z 12005KT 8000 FEW020 21/20 Q1017MUHG2019-02-21T09:50:00Z20.77-76.3221.020.012054.9730.029528MVFRMETAR106.02019-02-21 10:02:40,(e5   3EDHK 210950Z 24015KT 8000 BKN008 08/06 Q1020EDHK2019-02-21T09:50:00Z54.3810.158.06.0240154.9730.11811IFRMETAR31.02019-02-21 10:02:40 OS")5    3KGNB 210950Z AUTO 13003KT 10SM CLR M20/M23 A2965 RMK AO2 T12051235KGNB2019-02-21T09:50:00Z40.08-105.92-20.5-23.5130310.029.648623TRUETRUEVFRMETAR2500.02019-02-21 10:02:40r!)[5    3PTKK 210950Z 13008KT 6SM -SHRA SCT008CB OVC080 27/25 A2969 RMK SHRAB30 CB ALQDS MOV NW SLP057 T02670252PTKK2019-02-21T09:50:00Z7.47151.8526.725.213086.029.689961005.7-SHRAVFRMETAR2.02019-02-21 10:02:40- (s5   3ENHD 210950Z 28008KT 9999 FEW012 BKN033 07/06 Q1016ENHD2019-02-21T09:50:00Z59.355.227.06.028086.2130.0VFRMETAR24.02019-02-21 10:02:40+(_5   3GMMC 210950Z 10004KT 5000 NSC 16/09 Q1023GMMC2019-02-21T09:50:00Z33.57-7.6716.09.010043.1130.206694MVFRSPECI62.02019-02-21 10:02:40 UE U.'(e5   3EGTK 210950Z 23008KT 9999 OVC012 11/09 Q1025EGTK2019-02-21T09:50:00Z51.83-1.3211.09.023086.2130.265747MVFRMETAR82.02019-02-21 10:02:40@&)5    3LGAV 210950Z 04010KT 360V070 9999 FEW030 16/04 Q1023 NOSIGLGAV2019-02-21T09:50:00Z37.9323.9516.04.040106.2130.206694TRUEVFRMETAR94.02019-02-21 10:02:409%(q5    3LGIR 210950Z 31010KT 9999 FEW020 15/10 Q1021 NOSIGLGIR2019-02-21T09:50:00Z35.3225.1715.010.0310106.2130.147638TRUEVFRMETAR39.02019-02-21 10:02:401$(e5    3LGKR 210950Z 15005KT CAVOK 16/11 Q1023 NOSIGLGKR2019-02-21T09:50:00Z39.6219.9216.011.015056.2130.206694TRUEVFRMETAR2.02019-02-21 10:02:405#(q5    3LGRP 210950Z 27006KT 9999 FEW018 17/11 Q1020 NOSIGLGRP2019-02-21T09:50:00Z36.428.0817.011.027066.2130.11811TRUEVFRMETAR5.02019-02-21 10:02:40 U,jU-,(e5   3EDFH 210950Z 27003KT 9999 BKN020 06/04 Q1027EDFH2019-02-21T09:50:00Z49.957.276.04.027036.2130.324802MVFRMETAR498.02019-02-21 10:02:40.+(i5   3EDFM 210950Z 15004KT 120V180 CAVOK 08/05 Q1029EDFM2019-02-21T09:50:00Z49.478.528.05.015046.2130.383858VFRMETAR100.02019-02-21 10:02:40(*(_5   3EDLV 210950Z 23008KT 7000 NSC 09/06 Q1026EDLV2019-02-21T09:50:00Z51.66.159.06.023084.3530.295275MVFRMETAR32.02019-02-21 10:02:40<))5   3EDVK 210950Z 16003KT 120V210 9999 FEW033 SCT160 07/03 Q1026EDVK2019-02-21T09:50:00Z51.389.377.03.016036.2130.295275VFRMETAR285.02019-02-21 10:02:40N()5    3EGNS 210950Z 22013KT 8000 -DZ FEW006 OVC009 10/09 Q1020 BECMG 9999 BKN015EGNS2019-02-21T09:50:00Z54.08-4.6310.09.0220134.9730.11811-DZIFRSPECI17.02019-02-21 10:02:40 o;o&1(Y5   3EDMO 210950Z 24006KT CAVOK 09/02 Q1028EDMO2019-02-21T09:50:00Z48.0711.279.02.024066.2130.35433VFRMETAR600.02019-02-21 10:02:40.0(i5   3EDTL 210950Z 20003KT 160V250 CAVOK 09/04 Q1029EDTL2019-02-21T09:50:00Z48.377.839.04.020036.2130.383858VFRMETAR156.02019-02-21 10:02:403/(u5   3EDTY 210950Z 22004KT 180V250 9999 SCT045 08/04 Q1028EDTY2019-02-21T09:50:00Z49.129.788.04.022046.2130.35433VFRMETAR400.02019-02-21 10:02:40-.(e5   3EDVE 210950Z 26011KT 9999 BKN037 09/04 Q1024EDVE2019-02-21T09:50:00Z52.3210.559.04.0260116.2130.236221VFRMETAR88.02019-02-21 10:02:40?-)5    3EDXW 210950Z 25014KT 4300 BR FEW006 SCT008 BKN010 06/06 Q1020EDXW2019-02-21T09:50:00Z54.928.336.06.0250142.6730.11811BRIFRMETAR20.02019-02-21 10:02:40 TK6)5   3EGVN 210950Z 24007KT 9999 SCT013 BKN018 11/09 Q1024 GRN TEMPO SCT020 WHTEGVN2019-02-21T09:50:00Z51.77-1.5811.09.024076.2130.236221MVFRMETAR88.02019-02-21 10:02:40J5)5    3LCRA 210950Z 10007KT 9999 FEW040CB FEW045TCU BKN090 17/09 Q1020 NOSIGLCRA2019-02-21T09:50:00Z34.5732.9717.09.010076.2130.11811TRUEVFRMETAR23.02019-02-21 10:02:40E4(}5    3KHEQ 210950Z AUTO 00000KT 10SM CLR M15/M18 A2985 RMK AO2KHEQ2019-02-21T09:50:00Z40.57-102.28-15.0-18.00010.029.84941TRUETRUEVFRMETAR1137.02019-02-21 10:02:40G3(}5    3KSTK 210950Z AUTO 04004KT 10SM CLR M11/M16 A2980 RMK AO2KSTK2019-02-21T09:50:00Z40.62-103.27-11.0-16.040410.029.799213TRUETRUEVFRMETAR1231.02019-02-21 10:02:40&2(Y5   3EDJA 210950Z 22008KT CAVOK 08/00 Q1028EDJA2019-02-21T09:50:00Z47.9810.238.00.022086.2130.35433VFRMETAR633.02019-02-21 10:02:40 A[;)#5     3K7BM 210948Z AUTO 00000KT 4SM BR SCT024 BKN035 OVC050 M13/M15 A2958 RMK AO2K7BM2019-02-21T09:48:00Z38.78-106.22-13.0-15.0004.029.58071TRUETRUEBRMVFRMETAR2995.02019-02-21 10:02:40G:)5     3KC07 210948Z AUTO 17004KT 10SM SCT047 SCT080 BKN100 A2951 RMK AO2KC072019-02-21T09:48:00Z40.35-106.7170410.029.509842TRUETRUEVFRMETAR3224.02019-02-21 10:02:40H9(}5    3KMNH 210948Z AUTO 23007KT 10SM CLR M12/M16 A2966 RMK AO2KMNH2019-02-21T09:48:00Z39.22-104.65-12.0-16.0230710.029.660433TRUETRUEVFRMETAR2152.02019-02-21 10:02:40*8(_5   3MMLO 210948Z 00000KT 8SM SKC 08/M01 A3014MMLO2019-02-21T09:48:00Z21.0-101.478.0-1.0008.030.138779VFRMETAR1819.02019-02-21 10:02:4097(y5   3MMMY 210949Z 29003KT 15SM SCT250 07/03 A2987 RMK 8/008MMMY2019-02-21T09:49:00Z25.77-100.087.03.0290315.029.870079VFRMETAR387.02019-02-21 10:02:40 )P)*@(_5   3MMTO 210946Z 00000KT 7SM SKC 03/M02 A3024MMTO2019-02-21T09:46:00Z19.35-99.573.0-2.0007.030.239174VFRMETAR2576.02019-02-21 10:02:40_?)%5     3KCPW 210947Z AUTO 20018G28KT BKN003 OVC008 M16/M17 A2956 RMK AO2 P0001 PWINOKCPW2019-02-21T09:47:00Z37.45-106.8-16.0-17.0200182829.56004TRUETRUETRUE0.01METAR3584.02019-02-21 10:02:40B>)5   3MMPR 210947Z 31002KT 12SM BKN020 OVC070 20/18 A2990 RMK 8/57/MMPR2019-02-21T09:47:00Z20.67-105.2520.018.0310212.029.899607MVFRMETAR6.02019-02-21 10:02:40D=)5   3MMMZ 210947Z 00000KT 10SM BKN080 OVC230 16/12 A2990 RMK 8/077 HZYMMMZ2019-02-21T09:47:00Z23.17-106.2716.012.00010.029.899607VFRMETAR10.02019-02-21 10:02:40*<(]5   3MMMD 210947Z 10008KT 7SM SKC 22/20 A2989MMMD2019-02-21T09:47:00Z20.95-89.6522.020.010087.029.890747VFRMETAR10.02019-02-21 10:02:40 EME8E(w5   3MMUN 210943Z 11012KT 7SM SCT015 26/22 A2992 RMK 8/500MMUN2019-02-21T09:43:00Z21.02-86.8526.022.0110127.029.920275VFRMETAR10.02019-02-21 10:02:407D(k5    3MMMX 210945Z 18004KT 15SM SKC 14/00 A3017 NOSIGMMMX2019-02-21T09:45:00Z19.42-99.0814.00.0180415.030.171259TRUEVFRMETAR2238.02019-02-21 10:02:40CC)5    3LHSN 210945Z 27006KT 220V320 CAVOK 09/M04 Q1027 NOSIG RMK BLULHSN2019-02-21T09:45:00Z47.1220.239.0-4.027066.2130.324802TRUEVFRMETAR98.02019-02-21 10:02:40>B)5    3LIRP 210945Z 12003KT 080V150 8000 BKN020 07/07 Q1028 NOSIGLIRP2019-02-21T09:45:00Z43.6710.377.07.012034.9730.35433TRUEMVFRMETAR2.02019-02-21 10:02:40-A(_5   3MMQT 210946Z 30004KT 8SM SKC 07/M01 A3014MMQT2019-02-21T09:46:00Z20.62-100.187.0-1.030048.030.138779VFRMETAR1919.02019-02-21 10:02:40 ,q_I)5    3KMIB 210941Z AUTO 29008KT 10SM BKN018 M16/M18 A2990 RMK AO2 SLP171 $KMIB2019-02-21T09:41:00Z48.42-101.33-16.0-18.0290810.029.8996071017.1TRUETRUETRUEMVFRSPECI508.02019-02-21 10:02:40HH(}5    3KC99 210942Z AUTO 21004KT 10SM CLR M17/M21 A2953 RMK AO2KC992019-02-21T09:42:00Z29.87-105.55-17.0-21.0210410.029.530512TRUETRUEVFRMETAR3320.02019-02-21 10:02:405G(w5   3MMCM 210942Z 11009KT 7SM SCT020 26/23 A2985 RMK 8/500MMCM2019-02-21T09:42:00Z18.5-88.3326.023.011097.029.84941VFRMETAR12.02019-02-21 10:02:40NF)5     3MMTJ 210943Z 00000KT 4SM RA BKN020 09/08 A2976 RMK 60245 8/700 RA OCNLMMTJ2019-02-21T09:43:00Z32.53-116.979.08.0004.029.760826RAMVFR2.45METAR152.02019-02-21 10:02:40 ?A?RN)5   3KJSL 210940Z AUTO 14017G23KT 10SM SCT055 SCT065 24/22 A2988 RMK A01KJSL2019-02-21T09:40:00Z26.23-95.2524.022.0140172310.029.878937TRUETRUEVFRMETAR10.02019-02-21 10:02:40BM({5    3KGZN 210940Z AUTO 13005KT 10SM CLR 04/M01 A2992 RMK AO2KGZN2019-02-21T09:40:00Z32.37-99.024.0-1.0130510.029.920275TRUETRUEVFRMETAR522.02019-02-21 10:02:40-L(_5   3MMGL 210941Z 19003KT 10SM SKC 12/00 A3002MMGL2019-02-21T09:41:00Z20.52-103.3212.00.0190310.030.02067VFRMETAR1528.02019-02-21 10:02:40)K(]5   3MMMM 210941Z 00000KT 7SM SKC 09/02 A3008MMMM2019-02-21T09:41:00Z19.85-101.029.02.0007.030.079725VFRMETAR1833.02019-02-21 10:02:409J(}5   3MMCZ 210941Z 12008KT 7SM FEW015 25/22 A2989 RMK 8/500 ACMMCZ2019-02-21T09:41:00Z20.52-86.9225.022.012087.029.890747VFRMETAR5.02019-02-21 10:02:40 5g55S(q5   3MMHO 210940Z 06004KT 10SM SKC 07/M02 A2986 RMK HZYMMHO2019-02-21T09:40:00Z29.08-111.057.0-2.060410.029.861221VFRMETAR184.02019-02-21 10:02:407R(y5   3MMTP 210940Z 00000KT 10SM SCT150 25/22 A2984 RMK 8/050MMTP2019-02-21T09:40:00Z14.77-92.3725.022.00010.029.840551VFRMETAR29.02019-02-21 10:02:404Q(s5   3MMAA 210940Z 35002KT 6SM SKC 22/20 A2986 RMK HZY CUMMAA2019-02-21T09:40:00Z16.75-99.7522.020.035026.029.861221VFRMETAR5.02019-02-21 10:02:402P(m5   3MMIO 210940Z 00000KT 10SM SKC 05/00 A2994 RMK SCMMIO2019-02-21T09:40:00Z25.55-100.935.00.00010.029.940945VFRMETAR1790.02019-02-21 10:02:40[O)#5   3KMHV 210940Z AUTO 29018G24KT 10SM FEW030 SCT048 OVC075 02/M02 A2957 RMK A01KMHV2019-02-21T09:40:00Z35.07-118.152.0-2.0290182410.029.568897TRUETRUEVFRMETAR849.02019-02-21 10:02:40 `M`9X(q5    3VEGK 210930Z 27004KT 6000 FEW250 27/14 Q1015 NOSIGVEGK2019-02-21T09:30:00Z26.7583.3727.014.027043.7329.970472TRUEMVFRMETAR77.02019-02-21 10:02:41AW(5    3VIAG 210930Z 16003KT 6000 FEW100 BKN250 30/16 Q1014 NOSIGVIAG2019-02-21T09:30:00Z27.1377.9730.016.016033.7329.940945TRUEMVFRMETAR169.02019-02-21 10:02:41.V(e5   3WIBB 210930Z 04008KT 8000 BKN013 31/24 Q1008WIBB2019-02-21T09:30:00Z0.47101.4531.024.04084.9729.763779MVFRMETAR31.02019-02-21 10:02:40-U(_5   3MMSP 210940Z 09005KT 7SM SKC 10/M02 A3004MMSP2019-02-21T09:40:00Z22.25-100.9310.0-2.09057.030.041338VFRMETAR1903.02019-02-21 10:02:40-T(_5   3MMZC 210940Z 18010KT 10SM SKC 09/00 A3006MMZC2019-02-21T09:40:00Z22.9-102.689.00.01801010.030.059055VFRMETAR2177.02019-02-21 10:02:40 8LC\)5   3VIJU 210930Z 06004KT 6000 SCT014 SCT020 OVC080 18/15 Q1016 TEMPO -RAVIJU2019-02-21T09:30:00Z32.6874.8318.015.06043.7330.0MVFRMETAR314.02019-02-21 10:02:414[(y5     3VILH 210930Z 17003KT 0800 SN SKY OBS -2/-2 Q1017 NOSIGVILH2019-02-21T09:30:00Z34.1377.5517030.530.029528TRUESNMETAR3256.02019-02-21 10:02:41fZ)75   3VISR 210930Z 31008KT 5000 BR-RA SCT005 BKN010 FEW020TCU BKN080 04/04 Q1018 TEMPO TSRAVISR2019-02-21T09:30:00Z33.9774.774.04.031083.1130.059055-RA BRBKN8000MVFRMETAR1666.02019-02-21 10:02:41BY) 5   3VEBD 210930Z 08005KT 6000 SCT080 BKN250 25/14 Q1015 BECMG 5000VEBD2019-02-21T09:30:00Z26.6888.3325.014.08053.7329.970472MVFRMETAR126.02019-02-21 10:02:41 (9(Ja)5    3KSVE 210855Z AUTO 31004KT 10SM SCT030 M05/M08 A2966 RMK AO2KSVE2019-02-21T08:55:00Z40.37-120.57-5.0-8.0310410.029.660433TRUETRUEVFRMETAR1263.02019-02-21 10:02:41<`(}5    3CWEE 210900Z AUTO M19/M21 RMK AO1 SLP115 T11881211 58036CWEE2019-02-21T09:00:00Z49.27-73.33-18.8-21.11011.5TRUETRUE-3.6METAR305.02019-02-21 10:02:41H_) 5    3CWKD 210900Z AUTO 04002KT M22/M24 RMK AO1 SLP159 T12201242 58022CWKD2019-02-21T09:00:00Z50.73-71.02-22.0-24.24021015.9TRUETRUE-2.2METAR497.02019-02-21 10:02:41+^(e5   3HSSJ 210900Z 09002KT 9999 FEW040 32/10 Q1012HSSJ2019-02-21T09:00:00Z4.8731.632.010.09026.2129.88189VFRMETAR457.02019-02-21 10:02:41A](5    3VIGR 210930Z 01012KT 8000 FEW100 SCT250 30/18 Q1014 NOSIGVIGR2019-02-21T09:30:00Z26.2878.2230.018.010124.9729.940945TRUEMVFRMETAR189.02019-02-21 10:02:41 !Ap[e)5     3CYYB 211003Z AUTO 14007KT 080V180 9SM -SN OVC004 M06/M06 A2959 RMK SLP042CYYB2019-02-21T10:03:00Z46.35-79.42-6.0-6.014079.029.5895671004.2TRUE-SNLIFRSPECI371.02019-02-21 10:06:23Kd)5    3YLHI 211003Z AUTO 09019KT 9999 // SCT017 BKN028 OVC064 25/21 Q1010YLHI2019-02-21T10:03:00Z-31.53159.0725.021.090196.2129.822834TRUEMVFRSPECI2.02019-02-21 10:06:23Zc)5     3CYLL 211003Z AUTO 32006KT 6SM -SN OVC028 M15/M18 A3010 RMK ICG SLP249CYLL2019-02-21T10:03:00Z53.32-110.07-15.0-18.032066.030.1003931024.9TRUE-SNMVFRSPECI669.02019-02-21 10:06:23Yb)5     3CYXS 211004Z AUTO 00000KT 1/8SM FZFG VV001 M22/M24 A3015 RMK SLP270CYXS2019-02-21T10:04:00Z53.9-122.68-22.0-24.0000.1330.150591027.0TRUEFZFGLIFR100SPECI691.02019-02-21 10:06:23 B "BZi)5     3CYTL 211003Z AUTO 03006KT 9SM -SN SCT045 OVC090 M15/M16 A2989 RMK SLP145CYTL2019-02-21T10:03:00Z53.82-89.88-15.0-16.03069.029.8907471014.5TRUE-SNVFRSPECI224.02019-02-21 10:06:23eh)15     3PAMD 211003Z AUTO 18011G17KT 9SM RA SCT010 SCT015 OVC022 03/02 A2966 RMK AO2 P0001PAMD2019-02-21T10:03:00Z59.43-146.33.02.018011179.029.660433TRUETRUERAMVFR0.01SPECI14.02019-02-21 10:06:23pg)K5      3KHEZ 211003Z AUTO 01007KT 2 1/2SM BR SCT017 BKN028 OVC042 09/09 A3003 RMK AO2 TSE03 P0023 PWINOKHEZ2019-02-21T10:03:00Z31.62-91.39.09.01072.530.029528TRUETRUETRUEBRIFR0.23SPECI83.02019-02-21 10:06:23wf)?5       3KCOD 211003Z AUTO 01005KT 2 1/2SM -SN BR BKN020 BKN049 M11/M12 A2980 RMK AO2 P0000 FZRANOKCOD2019-02-21T10:03:00Z44.52-109.02-11.0-12.01052.529.799213TRUETRUETRUE-SN BRIFR0.005SPECI1553.02019-02-21 10:06:23 $=_Jm)5     3KJES 211002Z AUTO 00000KT 1/4SM FG OVC003 18/17 A3007 RMK AO2KJES2019-02-21T10:02:00Z31.55-81.8818.017.0000.2530.070866TRUETRUEFGLIFRSPECI33.02019-02-21 10:06:23Xl)5      3KAWO 211002Z AUTO 36004KT 1 3/4SM BR CLR M04/M04 A3007 RMK AO2 FZRANOKAWO2019-02-21T10:02:00Z48.17-122.17-4.0-4.036041.7530.070866TRUETRUETRUEBRIFRSPECI42.02019-02-21 10:06:23ak)-5     3CYPO 211003Z AUTO 03005KT 360V070 6SM -SN BKN006 OVC018 M18/M20 A2995 RMK SLP152CYPO2019-02-21T10:03:00Z54.98-85.43-18.0-20.03056.029.9498021015.2TRUE-SNIFRSPECI53.02019-02-21 10:06:23Vj)5     3CYWE 211003Z AUTO 26004KT 5SM -SN OVC026 M20/M22 A3001 RMK SLP213CYWE2019-02-21T10:03:00Z64.18-114.08-20.0-22.026045.030.0088581021.3TRUE-SNMVFRSPECI371.02019-02-21 10:06:23  7  p)q5     3PAMO 211002Z AUTO 19016G21KT 10SM FEW050 BKN070 OVC090 M04/M04 A2970 RMK AO2 SNE0937 SLP062 P0000 T10391044 FZRANOPAMO2019-02-21T10:02:00Z62.1-163.68-3.9-4.4190162110.029.6988181006.2TRUETRUETRUEVFR0.005SPECI103.02019-02-21 10:06:23o)u5      3PADM 211002Z AUTO 19013KT 10SM FEW025 BKN046 OVC055 M02/M04 A2981 RMK AO2 SNB0935E0955 SLP104 P0000 T10221039 FZRANOPADM2019-02-21T10:02:00Z61.87-162.03-2.2-3.91901310.029.8110241010.4TRUETRUETRUEVFR0.005SPECI31.02019-02-21 10:06:23Cn(}5     3CYOY 211002Z AUTO 05003KT 1/2SM -SN BKN010 M10/M11 A2984CYOY2019-02-21T10:02:00Z46.88-71.5-10.0-11.05030.529.840551TRUE-SNLIFRSPECI168.02019-02-21 10:06:23 p2`pjt)55    3CYTZ 211002Z AUTO 22013KT 8SM -RA SCT021 BKN025 BKN030 OVC043 02/01 A2983 RMK SLP105CYTZ2019-02-21T10:02:00Z43.63-79.42.01.0220138.029.8287411010.5TRUE-RAOVC4300MVFRSPECI77.02019-02-21 10:06:23Ls) 5     3CYOO 211002Z AUTO 23007KT 3SM BR OVC036 01/01 A2978 RMK SLP093CYOO2019-02-21T10:02:00Z43.92-78.91.01.023073.029.7785431009.3TRUEBRMVFRSPECI139.02019-02-21 10:06:23Ir)5     3KRSP 211002Z AUTO 5SM BR BKN012 OVC021 01/01 A2991 RMK AO2 $KRSP2019-02-21T10:02:00Z39.65-77.471.01.05.029.911417TRUETRUETRUEBRMVFRSPECI561.02019-02-21 10:06:23yq)S5      3PASM 211002Z AUTO 18013KT 10SM SCT007 BKN065 OVC090 M04/M04 A2973 RMK AO2 SNB0915E0941 P0000 FZRANOPASM2019-02-21T10:02:00Z62.07-163.3-4.0-4.01801310.029.731298TRUETRUETRUEVFR0.005SPECI92.02019-02-21 10:06:23 Y#%=Y^x))5     3KAXN 211002Z AUTO 26007KT 6SM HZ BKN003 OVC010 M10/M13 A2984 RMK AO2 T11001133KAXN2019-02-21T10:02:00Z45.87-95.4-10.0-13.326076.029.840551TRUETRUEHZLIFRSPECI433.02019-02-21 10:06:23bw)35      3KAND 211002Z AUTO 00000KT 4SM BR OVC003 05/05 A3005 RMK AO2 RAE0957 P0000 T00500050KAND2019-02-21T10:02:00Z34.5-82.725.05.0004.030.050198TRUETRUEBRLIFR0.005SPECI239.02019-02-21 10:06:23xv)Q5     3KAFN 211002Z AUTO 00000KT 2 1/2SM -FZRA BR M03/M04 A2989 RMK AO2 FZRAB0956 P0000 I1001 T10331039 $KAFN2019-02-21T10:02:00Z42.8-72.0-3.3-3.9002.529.890747TRUETRUETRUE-FZRA BR0.005SPECI313.02019-02-21 10:06:23Wu)5   3CYKF 211002Z AUTO 27018G24KT 9SM SCT022 OVC030 02/M02 A2982 RMK SLP113CYKF2019-02-21T10:02:00Z43.47-80.382.0-2.027018249.029.8198811011.3TRUEMVFRSPECI317.02019-02-21 10:06:23 |6U|S|)5    3KLFT 211002Z AUTO 04006KT 10SM OVC004 12/12 A2996 RMK AO2 T01220117 $KLFT2019-02-21T10:02:00Z30.2-92.012.211.740610.029.958662TRUETRUETRUELIFRSPECI11.02019-02-21 10:06:23[{)#5    3KHVR 211002Z AUTO 35007KT 9SM BKN027 OVC075 M13/M14 A3003 RMK AO2 T11281144KHVR2019-02-21T10:02:00Z48.55-109.77-12.8-14.435079.030.029528TRUETRUEMVFRSPECI787.02019-02-21 10:06:23Uz)5     3KGIF 211002Z AUTO 00000KT 1 3/4SM BR FEW007 20/18 A3010 RMK AO2 T02000183KGIF2019-02-21T10:02:00Z28.07-81.7520.018.3001.7530.100393TRUETRUEBRIFRSPECI43.02019-02-21 10:06:23iy)75      3KBDE 211002Z AUTO 33006KT 6SM BR OVC028 M08/M09 A2981 RMK AO2 SNE0959 P0000 T10831094KBDE2019-02-21T10:02:00Z48.73-94.62-8.3-9.433066.029.811024TRUETRUEBRMVFR0.005SPECI329.02019-02-21 10:06:23 r)?5       3KBHB 211001Z AUTO 00000KT 1 1/4SM -SN BR SCT007 OVC014 M05/M06 A3004 RMK AO2 P0000 FZRANOKBHB2019-02-21T10:01:00Z44.45-68.37-5.0-6.0001.2530.041338TRUETRUETRUE-SN BRIFR0.005SPECI26.02019-02-21 10:06:23z)K5      3PAJC 211001Z AUTO 25018G32KT 1 1/4SM -SN SCT009 BKN014 OVC040 01/M02 A3006 RMK AO2 P0000 FZRANOPAJC2019-02-21T10:01:00Z56.32-158.371.0-2.025018321.2530.059055TRUETRUETRUE-SNIFR0.005SPECI15.02019-02-21 10:06:23q~)95       3PAEN 211002Z AUTO 01013KT 2SM -SN BR OVC028 M05/M07 A2979 RMK AO2 P0000 T10501067 TSNOPAEN2019-02-21T10:02:00Z60.57-151.25-5.0-6.710132.029.790354TRUETRUETRUE-SN BRIFR0.005SPECI27.02019-02-21 10:06:23r})95       3PAGK 211002Z AUTO 00000KT 2SM -SN BR OVC027 M12/M14 A2983 RMK AO2 P0000 T11221139 TSNOPAGK2019-02-21T10:02:00Z62.15-145.45-12.2-13.9002.029.828741TRUETRUETRUE-SN BRIFR0.005SPECI481.02019-02-21 10:06:23 _;_V)5     3KASD 211001Z AUTO 02005KT 3/4SM BR VV002 16/15 A2997 RMK AO2 T01560150KASD2019-02-21T10:01:00Z30.35-89.8215.615.02050.7529.970472TRUETRUEBRLIFR200SPECI9.02019-02-21 10:06:23M)5    3KALB 211001Z 18009KT 10SM SCT009 OVC029 00/M03 A2988 RMK AO2 T00001028KALB2019-02-21T10:01:00Z42.75-73.80.0-2.8180910.029.878937TRUEMVFRSPECI92.02019-02-21 10:06:23`))5      3KAKQ 211001Z AUTO 25005KT 5SM RA BR OVC005 03/02 A3003 RMK AO2 P0000 T00280022KAKQ2019-02-21T10:01:00Z36.98-77.02.82.225055.030.029528TRUETRUERA BRIFR0.005SPECI34.02019-02-21 10:06:23)]5      3PAFS 211001Z AUTO 05005KT 10SM BKN020 OVC026 M09/M12 A2987 RMK AO2 SNE0908 SLP138 P0000 T10941117 FZRANOPAFS2019-02-21T10:01:00Z63.02-154.35-9.4-11.750510.029.8700791013.8TRUETRUETRUEMVFR0.005SPECI126.02019-02-21 10:06:23 ,':,)m5   #   3KGVL 211001Z AUTO 06005KT 2SM VCTS +RA BR BKN003 OVC007 06/06 A3006 RMK AO2 LTG DSNT W-N RAB0955 P0010 T00560056KGVL2019-02-21T10:01:00Z34.27-83.835.65.66052.030.059055TRUETRUEVCTS +RA BRLIFR0.1SPECI386.02019-02-21 10:06:23g)75      3KFTY 211001Z 36003KT 4SM -RA BR OVC004 07/07 A3006 RMK AO2 LTG DSNT N P0000 T00670067KFTY2019-02-21T10:01:00Z33.78-84.526.76.736034.030.059055TRUE-RA BRLIFR0.005SPECI263.02019-02-21 10:06:23a)%5      3KFAR 211001Z 32008KT 3SM -SN BR OVC050 M09/M11 A2988 RMK AO2 P0000 T10941106KFAR2019-02-21T10:01:00Z46.93-96.82-9.4-10.632083.029.878937TRUE-SN BRMVFR0.005SPECI277.02019-02-21 10:06:23l)75      3KCEZ 211001Z AUTO 00000KT 1 1/4SM -SN BR OVC016 M05/M07 A2965 RMK AO2 P0000 T10501072KCEZ2019-02-21T10:01:00Z37.3-108.63-5.0-7.2001.2529.648623TRUETRUE-SN BRIFR0.005SPECI1797.02019-02-21 10:06:23 e1He] )/5     3PAKN 211001Z 29007KT 1/2SM R12/3000V4000FT FG VV003 01/00 A2980 RMK AO2 T00060000PAKN2019-02-21T10:01:00Z58.68-156.650.60.029070.529.799213TRUEFGLIFR300SPECI17.02019-02-21 10:06:23c )35      3KTAN 211001Z AUTO 00000KT 2 1/2SM -RA BR OVC007 01/00 A2987 RMK AO2 P0001 T00110000KTAN2019-02-21T10:01:00Z41.88-71.021.10.0002.529.870079TRUETRUE-RA BRIFR0.01SPECI7.02019-02-21 10:06:23g )-5      3KIWI 211001Z AUTO 00000KT 1SM -SN BR VV009 M04/M04 A3001 RMK AO2 P0001 T10391044KIWI2019-02-21T10:01:00Z43.97-69.72-3.9-4.4001.030.008858TRUETRUE-SN BRLIFR0.01900SPECI20.02019-02-21 10:06:23\ )!5     3KIXD 211001Z AUTO 00000KT 1/2SM FZFG VV002 M08/M08 A3007 RMK AO2 T10781078KIXD2019-02-21T10:01:00Z38.82-94.88-7.8-7.8000.530.070866TRUETRUEFZFGLIFR200SPECI342.02019-02-21 10:06:23 %%c)15     3KORL 211001Z AUTO 00000KT 3/4SM R07/P6000FT BR VV011 19/19 A3010 RMK AO2 T01940189KORL2019-02-21T10:01:00Z28.55-81.3319.418.9000.7530.100393TRUETRUEBRLIFR1100SPECI37.02019-02-21 10:06:23z)E5       3PAYA 211001Z AUTO 09008KT 3/4SM -SN BR VV008 01/M01 A2991 RMK AO2 P0000 T00061006 TSNO RVRNOPAYA2019-02-21T10:01:00Z59.52-139.670.6-0.69080.7529.911417TRUETRUETRUE-SN BRLIFR0.005800SPECI11.02019-02-21 10:06:23 )k5       3PAOM 211001Z AUTO 13017KT 2SM -SN BR FEW011 SCT025 OVC031 M04/M04 A2956 RMK AO2 CIG 024 NE P0000 T10391039 TSNOPAOM2019-02-21T10:01:00Z64.5-165.43-3.9-3.9130172.029.56004TRUETRUETRUE-SN BRIFR0.005SPECI11.02019-02-21 10:06:23] )'5      3PANC 211001Z 35011KT 2 1/2SM -SN OVC033 M05/M08 A2980 RMK AO2 P0000 T10501078PANC2019-02-21T10:01:00Z61.17-150.0-5.0-7.8350112.529.799213TRUE-SNIFR0.005SPECI38.02019-02-21 10:06:23 'MxG)5    3KCOQ 211001Z AUTO 27004KT 10SM OVC018 M07/M09 A2976 RMK AO2KCOQ2019-02-21T10:01:00Z46.7-92.5-7.0-9.0270410.029.760826TRUETRUEMVFRMETAR390.02019-02-21 10:06:23O)5     3CYDQ 211001Z AUTO VRB02KT 5SM BR CLR M24/M26 A3011 RMK SLP261CYDQ2019-02-21T10:01:00Z55.75-120.17-24.0-26.0025.030.1092531026.1TRUEBRMVFRSPECI655.02019-02-21 10:06:23T)5    3CYHK 211001Z AUTO 25014KT 7SM BKN003 BKN050 M33/M36 A2998 RMK SLP164CYHK2019-02-21T10:01:00Z68.62-95.83-33.0-36.0250147.029.979331016.4TRUELIFRSPECI46.02019-02-21 10:06:23S)5    3CYEG 211001Z 33006KT 20SM -SN OVC016 M16/M19 A3017 RMK SC8 SLP277CYEG2019-02-21T10:01:00Z53.28-113.57-16.0-19.0330620.030.1712591027.7-SNMVFRSPECI723.02019-02-21 10:06:23 t,Oito)95     3KPAM 211001Z AUTO 16010KT 5/8SM R14/3000V4000FT BR OVC002 20/20 A3001 RMK AO2 SLP165 $KPAM2019-02-21T10:01:00Z30.07-85.5720.020.0160100.6330.0088581016.5TRUETRUETRUEBRLIFRSPECI5.02019-02-21 10:06:23`)5     3KEGI 211001Z AUTO 20003KT 1 3/8SM BR OVC002 20/20 A3002 RMK AO2 SLP166 $KEGI2019-02-21T10:01:00Z30.63-86.5220.020.020031.3830.020671016.6TRUETRUETRUEBRLIFRSPECI59.02019-02-21 10:06:23W)5    3KCBM 211001Z AUTO 33005KT 10SM OVC010 09/07 A3008 RMK AO2 SLP189 $KCBM2019-02-21T10:01:00Z33.63-88.459.07.0330510.030.0797251018.9TRUETRUETRUEMVFRSPECI67.02019-02-21 10:06:23N)%5   3ETNT 211001Z 26012KT 9999 FEW010 BKN015 BKN040 09/06 Q1023 WHT WHT TEMPO YLOETNT2019-02-21T10:01:00Z53.537.679.06.0260126.2130.206694MVFRSPECI12.02019-02-21 10:06:23 )[)<({5    3LFPG 211000Z 17007KT 110V210 6000 NSC 10/06 Q1028 NOSIGLFPG2019-02-21T10:00:00Z49.022.5210.06.017073.7330.35433TRUEMVFRMETAR109.02019-02-21 10:06:23)(Y5   3SAAR 211000Z 07002KT CAVOK 23/21 Q1009SAAR2019-02-21T10:00:00Z-32.92-60.7723.021.07026.2129.793306VFRMETAR25.02019-02-21 10:06:23;(y5    3OPPS 211000Z 36006KT 6000 HZ FEW070 BKN030 15/07 Q1018OPPS2019-02-21T10:00:00Z34.0271.5215.07.036063.7330.059055HZMVFRMETAR360.02019-02-21 10:06:23>(5    3OPKC 211000Z 05005KT 8000 SCT020 BKN030 26/06 Q1017 NOSIGOPKC2019-02-21T10:00:00Z24.8867.1726.06.05054.9730.029528TRUEMVFRMETAR22.02019-02-21 10:06:23[)75    3OPRN 211000Z 27006KT 5000 HZ SCT015 BKN025 BKN065 13/09 Q1018 TEMPO 1000 RA RMK A3006OPRN2019-02-21T10:00:00Z33.6273.0813.09.027063.1130.059055HZMVFRSPECI508.02019-02-21 10:06:23 E<E0"(s5     3OPSK 211000Z 00000KT 5000 HZ NSC 21/12 Q.1016 NOSIGOPSK2019-02-21T10:00:00Z27.7268.821.012.0003.11TRUEHZMVFRSPECI58.02019-02-21 10:06:23@!(5     3LFBD 211000Z AUTO 12004KT 070V190 CAVOK 11/06 Q1028 NOSIGLFBD2019-02-21T10:00:00Z44.82-0.711.06.012046.2130.35433TRUETRUEVFRMETAR61.02019-02-21 10:06:23> ({5     3LFBH 211000Z AUTO 10005KT 7000 FEW003 08/08 Q1028 NOSIGLFBH2019-02-21T10:00:00Z46.18-1.28.08.010054.3530.35433TRUETRUEMVFRMETAR10.02019-02-21 10:06:231(k5    3LFLL 211000Z 00000KT 9000 NSC 09/03 Q1029 NOSIGLFLL2019-02-21T10:00:00Z45.725.079.03.0005.5930.383858TRUEVFRMETAR240.02019-02-21 10:06:23>)5    3LFMN 211000Z 31004KT 270V350 9999 FEW023 13/06 Q1029 NOSIGLFMN2019-02-21T10:00:00Z43.637.213.06.031046.2130.383858TRUEVFRMETAR10.02019-02-21 10:06:23 :NhO&)5    3KRBG 211000Z AUTO 33004KT 10SM OVC009 02/01 A2994 RMK AO2 T00220006KRBG2019-02-21T10:00:00Z43.23-123.352.20.6330410.029.940945TRUETRUEIFRSPECI154.02019-02-21 10:06:23`%)55     3KSSI 211000Z AUTO 15004KT 2SM BR BKN008 BKN100 18/17 A3007 RMK AO2 VIS 1V4 T01780172KSSI2019-02-21T10:00:00Z31.15-81.3817.817.215042.030.070866TRUETRUEBRIFRSPECI6.02019-02-21 10:06:23f$))5      3KVEL 211000Z AUTO 33004KT 4SM -SN OVC032 M08/M11 A2966 RMK AO2 P0000 T10781106KVEL2019-02-21T10:00:00Z40.45-109.52-7.8-10.633044.029.660433TRUETRUE-SNMVFR0.005SPECI1604.02019-02-21 10:06:23@#(5    3OPNH 211000Z 31504KT 6000 FEW020 FEW035 23/12 Q1017 NOSIGOPNH2019-02-21T10:00:00Z26.2268.3723.012.031543.7330.029528TRUEMVFRMETAR38.02019-02-21 10:06:23 V0VT*)5     3KHOT 211000Z AUTO 00000KT 1/4SM FG VV001 01/01 A3008 RMK AO2 T00060006KHOT2019-02-21T10:00:00Z34.48-93.10.60.6000.2530.079725TRUETRUEFGLIFR100SPECI162.02019-02-21 10:06:23^))/5    3KOPF 211000Z AUTO 14014KT 10SM FEW022 SCT040 SCT060 24/21 A3008 RMK AO2 T02440206KOPF2019-02-21T10:00:00Z25.92-80.2824.420.61401410.030.079725TRUETRUEVFRSPECI16.02019-02-21 10:06:23()a5      3KORE 211000Z AUTO VRB03KT 4SM -FZRA BR SCT005 OVC013 M02/M04 A2992 RMK AO2 FZRAB0954 P0000 I1000 T10221044KORE2019-02-21T10:00:00Z42.57-72.28-2.2-4.4034.029.920275TRUETRUE-FZRA BRMVFR0.005SPECI164.02019-02-21 10:06:23^')#5      3KPWM 211000Z VRB04KT 1SM -SN BR VV011 M04/M06 A2999 RMK AO2 P0001 T10441056KPWM2019-02-21T10:00:00Z43.65-70.3-4.4-5.6041.029.991142TRUE-SN BRLIFR0.011100SPECI15.02019-02-21 10:06:23 s=HsO.)5    3KCSV 211000Z AUTO 35007KT 10SM OVC004 08/08 A3005 RMK AO2 T00830078KCSV2019-02-21T10:00:00Z35.95-85.088.37.8350710.030.050198TRUETRUELIFRSPECI570.02019-02-21 10:06:23o-)75      3KDRO 211000Z AUTO 10007KT 1 3/4SM -SN BR OVC018 M08/M08 A2966 RMK AO2 P0000 T10781083KDRO2019-02-21T10:00:00Z37.15-107.77-7.8-8.310071.7529.660433TRUETRUE-SN BRIFR0.005SPECI2035.02019-02-21 10:06:23V,)%5     3KGNV 211000Z AUTO 00000KT 1SM BR BKN006 OVC065 19/17 A3011 RMK AO2 T01890172KGNV2019-02-21T10:00:00Z29.7-82.2818.917.2001.030.109253TRUETRUEBRIFRSPECI45.02019-02-21 10:06:23a+)55     3KHGR 211000Z AUTO 14003KT 3SM BR SCT024 SCT029 OVC043 01/M01 A2996 RMK AO2 T00111011KHGR2019-02-21T10:00:00Z39.7-77.731.1-1.114033.029.958662TRUETRUEBRMVFRSPECI224.02019-02-21 10:06:23 "CdY2)-5    3NCRG 211000Z AUTO 12004KT 060V200 9999 FEW019/// BKN026/// BKN032/// 25/23 Q1007NCRG2019-02-21T10:00:00Z-21.2-159.8225.023.012046.2129.734253TRUEMVFRMETAR7.02019-02-21 10:06:23Y1)-5    3KBWG 211000Z AUTO 00000KT 9SM BKN012 BKN017 OVC025 04/03 A3011 RMK AO2 T00440033KBWG2019-02-21T10:00:00Z36.97-86.424.43.3009.030.109253TRUETRUEMVFRSPECI168.02019-02-21 10:06:23Y0)5     3KCHO 211000Z AUTO 17005KT 10SM BR SCT003 02/00 A2995 RMK AO2 T00170000 $KCHO2019-02-21T10:00:00Z38.13-78.451.70.0170510.029.949802TRUETRUETRUEBRVFRSPECI192.02019-02-21 10:06:23X/)%5     3KCNO 211000Z AUTO 00000KT 5SM BR BKN013 OVC044 07/07 A2965 RMK AO2 T00670067KCNO2019-02-21T10:00:00Z33.98-117.626.76.7005.029.648623TRUETRUEBRMVFRSPECI207.02019-02-21 10:06:23 WIW67(k5    3GMFM 211000Z 10905KT 6000 NSC 15/06 Q1024 NOSIGGMFM2019-02-21T10:00:00Z33.87-5.5215.06.010953.7330.236221TRUEMVFRMETAR549.02019-02-21 10:06:23I6)5    3GMMB 211000Z AUTO VRB02KT //// R32/P2000N ////// 19/12 Q1024 NOSIGGMMB2019-02-21T10:00:00Z33.65-7.2219.012.0021.2430.236221TRUETRUEMETAR191.02019-02-21 10:06:23+5(_5   3GMMC 211000Z 10004KT 5000 NSC 16/09 Q1023GMMC2019-02-21T10:00:00Z33.57-7.6716.09.010043.1130.206694MVFRMETAR62.02019-02-21 10:06:2304(e5    3GMMD 211000Z 02003KT CAVOK 16/05 Q1023 NOSIGGMMD2019-02-21T10:00:00Z32.4-6.3216.05.02036.2130.206694TRUEVFRMETAR509.02019-02-21 10:06:2313(e5    3GMMH 211000Z 07006KT CAVOK 17/06 Q1018 NOSIGGMMH2019-02-21T10:00:00Z23.72-15.9317.06.07066.2130.059055TRUEVFRMETAR11.02019-02-21 10:06:23 XIX8<(q5    3GMMW 211000Z 08009KT 8000 BKN016 14/08 Q1027 NOSIGGMMW2019-02-21T10:00:00Z34.98-3.0214.08.08094.9730.324802TRUEMVFRMETAR175.02019-02-21 10:06:235;(g5    3GMAG 211000Z 09010KT CAVOK 20/M02 Q1022 NOSIGGMAG2019-02-21T10:00:00Z29.03-10.0520.0-2.090106.2130.177166TRUEVFRMETAR333.02019-02-21 10:06:233:(e5    3GMAT 211000Z 08006KT CAVOK 16/10 Q1022 NOSIGGMAT2019-02-21T10:00:00Z28.43-11.1516.010.08066.2130.177166TRUEVFRMETAR200.02019-02-21 10:06:2399(u5    3GMFF 211000Z 03005KT 330V090 CAVOK 13/08 Q1025 NOSIGGMFF2019-02-21T10:00:00Z33.92-4.9713.08.03056.2130.265747TRUEVFRMETAR579.02019-02-21 10:06:2318(g5    3GMFK 211000Z VRB02KT CAVOK 15/M03 Q1028 NOSIGGMFK2019-02-21T10:00:00Z31.95-4.415.0-3.0026.2130.35433TRUEVFRMETAR1045.02019-02-21 10:06:23 -H-jA)W5   3NTAA 211000Z 04016KT 9999 SCT023 BKN230 29/24 Q1011 TEMPO 34020G35KT 2000 SHRA FEW014CB BKN017 BKN035NTAA2019-02-21T10:00:00Z-17.55-149.6229.024.040166.2129.852362VFRMETAR2.02019-02-21 10:06:230@(e5    3VOBL 211000Z 09013KT CAVOK 30/08 Q1019 NOSIGVOBL2019-02-21T10:00:00Z13.277.730.08.090136.2130.088583TRUEVFRMETAR915.02019-02-21 10:06:234?(k5    3GMMZ 211000Z VRB01KT 6000 NSC 11/02 Q1027 NOSIGGMMZ2019-02-21T10:00:00Z30.92-6.911.02.0013.7330.324802TRUEMVFRMETAR1140.02019-02-21 10:06:235>(q5    3GMMI 211000Z VRB02KT 6000 SCT008 16/15 Q1022 NOSIGGMMI2019-02-21T10:00:00Z31.4-9.6816.015.0023.7330.177166TRUEMVFRMETAR8.02019-02-21 10:06:232=(e5    3GMML 211000Z 12009KT CAVOK 17/10 Q1021 NOSIGGMML2019-02-21T10:00:00Z27.13-13.2317.010.012096.2130.147638TRUEVFRMETAR6.02019-02-21 10:06:23 9{PE)#5   3UKHH 211000Z 31006MPS 9999 BKN019 00/M04 Q1007 R25/290062 TEMPO 30009G16MPSUKHH2019-02-21T10:00:00Z49.9236.280.0-4.0310126.2129.734253MVFRMETAR155.02019-02-21 10:06:23FD) 5    3UKOO 211000Z 30011MPS 9999 FEW040 09/M03 Q1019 R34/090060 NOSIGUKOO2019-02-21T10:00:00Z46.4230.689.0-3.0300216.2130.088583TRUEVFRMETAR35.02019-02-21 10:06:238C(q5    3GMTA 211000Z 32002KT 9999 FEW030 17/10 Q1027 NOSIGGMTA2019-02-21T10:00:00Z35.17-3.8517.010.032026.2130.324802TRUEVFRMETAR14.02019-02-21 10:06:23AB(5    3GMTN 211000Z 10011KT 8000 BKN016 SCT033 15/11 Q1026 NOSIGGMTN2019-02-21T10:00:00Z35.57-5.3215.011.0100114.9730.295275TRUEMVFRMETAR10.02019-02-21 10:06:23 3,[3;J({5    3EPLL 211000Z 25013KT 6000 -RA BKN007 OVC025 05/04 Q1021EPLL2019-02-21T10:00:00Z51.7219.45.04.0250133.7330.147638-RAIFRMETAR184.02019-02-21 10:06:234I(m5    3EPPO 211000Z 25009KT 7000 -RA OVC028 06/05 Q1022EPPO2019-02-21T10:00:00Z52.4216.826.05.025094.3530.177166-RAMVFRMETAR92.02019-02-21 10:06:23'H(Y5   3EPRZ 211000Z 26014KT CAVOK 06/02 Q1022EPRZ2019-02-21T10:00:00Z50.122.056.02.0260146.2130.177166VFRMETAR202.02019-02-21 10:06:23KG)5     3EPWA 211000Z 27007KT 240V300 4500 -RA BR BKN006 06/05 Q1020 NOSIGEPWA2019-02-21T10:00:00Z52.1720.976.05.027072.830.11811TRUE-RA BRIFRMETAR107.02019-02-21 10:06:23NF)#5   3UKBB 211000Z 30006MPS 9999 SCT040 02/M06 Q1014 R88/CLRD// TEMPO 31010G15MPSUKBB2019-02-21T10:00:00Z50.3330.92.0-6.0300126.2129.940945VFRMETAR119.02019-02-21 10:06:23 )M)IO)5   3UKDR 211000Z 31012MPS CAVOK 07/M05 Q1013 R36/09//70 TEMPO 32010G16MPSUKDR2019-02-21T10:00:00Z48.0533.227.0-5.0310236.2129.911417VFRMETAR124.02019-02-21 10:06:23?N(5    3UKDE 211000Z 27007MPS CAVOK 07/01 Q1011 R20L/090070 NOSIGUKDE2019-02-21T10:00:00Z47.8735.327.01.0270146.2129.852362TRUEVFRMETAR113.02019-02-21 10:06:23HM)5   3UKDD 211000Z 31012MPS CAVOK 04/M04 Q1011 R26/190060 TEMPO 32011G16MPSUKDD2019-02-21T10:00:00Z48.3735.14.0-4.0310236.2129.852362VFRMETAR149.02019-02-21 10:06:23Q)5    3EPBY 211000Z 25009KT 4300 -RA BR FEW003 BKN005 06/05 Q1020EPBY2019-02-21T10:00:00Z53.118.06.05.025092.6730.11811-RA BRIFRMETAR71.02019-02-21 10:06:23OP)5    3UKLL 211000Z 28006MPS 9999 SCT020CB BKN020 05/02 Q1021 R31/290055 NOSIGUKLL2019-02-21T10:00:00Z49.8223.935.02.0280126.2130.147638TRUEMVFRMETAR325.02019-02-21 10:06:23 *]?Y)5    3FSIA 211000Z 06005KT 010V110 9999 FEW025 31/25 Q1011 NOSIGFSIA2019-02-21T10:00:00Z-4.6755.5231.025.06056.2129.852362TRUEVFRMETAR3.02019-02-21 10:06:23;X({5    3EPZG 211000Z 24010KT 6000 -RA SCT039 OVC049 07/06 Q1023EPZG2019-02-21T10:00:00Z52.1315.87.06.0240103.7330.206694-RAMVFRMETAR59.02019-02-21 10:06:234W(m5    3EPWR 211000Z 28011KT 9999 -RA OVC037 08/03 Q1024EPWR2019-02-21T10:00:00Z51.116.878.03.0280116.2130.236221-RAVFRMETAR121.02019-02-21 10:06:23GV)5    3EPSC 211000Z 23007KT 210V270 2500 -RA BR BKN005 OVC006 06/06 Q1020EPSC2019-02-21T10:00:00Z53.5814.96.06.023071.5530.11811-RA BRIFRMETAR47.02019-02-21 10:06:23PU)5    3EPSY 211000Z 07004KT 040V100 9999 -RASN BKN007 OVC014 01/M00 Q1020 RERASNEPSY2019-02-21T10:00:00Z53.4720.931.00.07046.2130.11811-RA -SNIFRMETAR141.02019-02-21 10:06:23 fR)f=^({5    3GMMX 211000Z 08004KT 040V100 8000 NSC 15/07 Q1022 NOSIGGMMX2019-02-21T10:00:00Z31.62-8.0215.07.08044.9730.177166TRUEMVFRMETAR466.02019-02-21 10:06:234](k5    3GMME 211000Z VRB02KT 5000 NSC 17/12 Q1022 NOSIGGMME2019-02-21T10:00:00Z34.03-6.7717.012.0023.1130.177166TRUEMVFRMETAR75.02019-02-21 10:06:233\(e5    3GMMN 211000Z 14002KT CAVOK 15/12 Q1023 NOSIGGMMN2019-02-21T10:00:00Z33.37-7.5715.012.014026.2130.206694TRUEVFRMETAR206.02019-02-21 10:06:230[(e5    3GMAD 211000Z 05009KT CAVOK 18/02 Q1022 NOSIGGMAD2019-02-21T10:00:00Z30.32-9.4218.02.05096.2130.177166TRUEVFRMETAR74.02019-02-21 10:06:23(Z(Y5   3EPKT 211000Z 26011KT CAVOK 08/01 Q1023EPKT2019-02-21T10:00:00Z50.4719.088.01.0260116.2130.206694VFRMETAR284.02019-02-21 10:06:23 <=<9c(q5    3VOBZ 211000Z 11003KT 6000 FEW020 33/22 Q1014 NOSIGVOBZ2019-02-21T10:00:00Z16.5280.7833.022.011033.7329.940945TRUEMVFRMETAR24.02019-02-21 10:06:23;b(q5     3VANP 211000Z 19008KT 4000 HZ NSC 35/15 Q1015 NOSIGVANP2019-02-21T10:00:00Z21.0879.0535.015.019082.4929.970472TRUEHZIFRMETAR310.02019-02-21 10:06:23@a(5     3FMCZ 211000Z AUTO 08005KT 040V110 CAVOK 32/26 Q1012 NOSIGFMCZ2019-02-21T10:00:00Z-12.845.2732.026.08056.2129.88189TRUETRUEVFRMETAR7.02019-02-21 10:06:235`(k5    3VERC 211000Z 03004KT 6000 NSC 31/09 Q1017 NOSIGVERC2019-02-21T10:00:00Z23.3285.3231.09.03043.7330.029528TRUEMVFRMETAR652.02019-02-21 10:06:23=_(w5   3GMTT 211000Z 10018G29KT 9999 FEW016 17/10 Q1025 NOSIGGMTT2019-02-21T10:00:00Z35.72-5.917.010.010018296.2130.265747TRUEVFRMETAR21.02019-02-21 10:06:23 iDi*h(Y5   3FYGF 211000Z 12010KT CAVOK 31/07 Q1024FYGF2019-02-21T10:00:00Z-19.618.1231.07.0120106.2130.236221VFRMETAR1400.02019-02-21 10:06:239g(q5    3FQMA 211000Z 10004KT 9999 SCT020 32/20 Q1017 NOSIGFQMA2019-02-21T10:00:00Z-25.9232.5732.020.010046.2130.029528TRUEVFRMETAR44.02019-02-21 10:06:235f(s5   3WSAP 211000Z 04014KT 9999 FEW020 BKN300 31/23 Q1010WSAP2019-02-21T10:00:00Z1.37103.9231.023.040146.2129.822834VFRMETAR32.02019-02-21 10:06:23+e(_5   3VASU 211000Z 30006KT 6000 NSC 31/19 Q1014VASU2019-02-21T10:00:00Z21.1272.7331.019.030063.7329.940945MVFRMETAR5.02019-02-21 10:06:236d(k5    3VABO 211000Z 26007KT 6000 NSC 34/12 Q1014 NOSIGVABO2019-02-21T10:00:00Z22.3373.2234.012.026073.7329.940945TRUEMVFRMETAR39.02019-02-21 10:06:23 1A1=m(u5    3YMAV 211000Z AUTO 18010KT 9999 // BKN029 16/10 Q1022YMAV2019-02-21T10:00:00Z-38.03144.4816.010.0180106.2130.177166TRUEMVFRMETAR8.02019-02-21 10:06:239l(o5    3YMAY 211000Z AUTO 20004KT 9999 // NCD 26/09 Q1014YMAY2019-02-21T10:00:00Z-36.07146.9326.09.020046.2129.940945TRUEVFRMETAR171.02019-02-21 10:06:23Fk)5    3YMDG 211000Z AUTO 13011KT 9999 // SCT026 OVC032 21/15 Q1017YMDG2019-02-21T10:00:00Z-32.57149.6221.015.0130116.2130.029528TRUEVFRMETAR471.02019-02-21 10:06:23wD9 (u5    3LKTB 211000Z 18005KT 160V220 CAVOK 08/02 Q1026 NOSIGLKTB2019-02-21T10:00:00Z49.1316.688.02.018056.2130.295275TRUEVFRMETAR246.02019-02-21 10:06:23: (w5    3LYBE 211000Z 29009KT 260V320 CAVOK 11/M01 Q1028 NOSIGLYBE2019-02-21T10:00:00Z44.8220.2811.0-1.029096.2130.35433TRUEVFRMETAR99.02019-02-21 10:06:23. (e5    3LYBT 211000Z VRB01KT CAVOK 11/00 Q1028 NOSIGLYBT2019-02-21T10:00:00Z44.9320.2511.00.0016.2130.35433TRUEVFRMETAR80.02019-02-21 10:06:23A)5    3LYKV 211000Z 27006KT 200V310 9999 FEW040 11/M00 Q1028 NOSIGLYKV2019-02-21T10:00:00Z43.8220.5811.00.027066.2130.35433TRUEVFRMETAR209.02019-02-21 10:06:23<(w5    3LYNI 211000Z 31010KT 260V340 CAVOK 10/M02 Q1028 NOSIGLYNI2019-02-21T10:00:00Z43.3221.8810.0-2.0310106.2130.35433TRUEVFRMETAR202.02019-02-21 10:06:23 uI(u-(g5   3LZSL 211000Z VRB01KT 9999 SCT049 04/M02 Q1026LZSL2019-02-21T10:00:00Z48.6319.134.0-2.0016.2130.295275VFRMETAR313.02019-02-21 10:06:237(w5   3LZZI 211000Z 26003KT 210V300 9999 FEW028 05/M01 Q1026LZZI2019-02-21T10:00:00Z49.2318.625.0-1.026036.2130.295275VFRMETAR311.02019-02-21 10:06:23&(Y5   3LKKV 211000Z 26009KT CAVOK 04/01 Q1026LKKV2019-02-21T10:00:00Z50.212.924.01.026096.2130.295275VFRMETAR604.02019-02-21 10:06:232 (e5    3LKMT 211000Z 22013KT CAVOK 07/01 Q1025 NOSIGLKMT2019-02-21T10:00:00Z49.6718.127.01.0220136.2130.265747TRUEVFRMETAR256.02019-02-21 10:06:231 (e5    3LKPR 211000Z 22012KT CAVOK 07/02 Q1025 NOSIGLKPR2019-02-21T10:00:00Z50.114.277.02.0220126.2130.265747TRUEVFRMETAR365.02019-02-21 10:06:23 rK'r/(e5    3LQBK 211000Z VRB02KT CAVOK 11/02 Q1029 NOSIGLQBK2019-02-21T10:00:00Z44.9317.311.02.0026.2130.383858TRUEVFRMETAR122.02019-02-21 10:06:239(}5   3LQMO 211000Z 12004KT 090V160 9999 4000SE NSC 13/03 Q1025LQMO2019-02-21T10:00:00Z43.2817.8313.03.012046.2130.265747VFRMETAR48.02019-02-21 10:06:235(q5    3LQSA 211000Z VRB02KT 7000 FEW050 07/03 Q1028 NOSIGLQSA2019-02-21T10:00:00Z43.8218.327.03.0024.3530.35433TRUEMVFRMETAR511.02019-02-21 10:06:23$(Y5   3LQTZ 211000Z VRB02KT CAVOK 09/04 Q1028LQTZ2019-02-21T10:00:00Z44.4718.739.04.0026.2130.35433VFRMETAR306.02019-02-21 10:06:23/(i5   3LZPP 211000Z 19003KT 080V250 CAVOK 08/00 Q1027LZPP2019-02-21T10:00:00Z48.6217.838.00.019036.2130.324802VFRMETAR161.02019-02-21 10:06:23 4x;(o5    3YCBB 211000Z AUTO 15013KT 9999 // NCD 21/15 Q1015YCBB2019-02-21T10:00:00Z-31.33149.2721.015.0150136.2129.970472TRUEVFRMETAR645.02019-02-21 10:06:23T)5   3BIVM 211000Z 15022G32KT 100V180 7000 VCSH SCT018 09/07 Q0987 RMK MISVINDABIVM2019-02-21T10:00:00Z63.42-20.279.07.015022324.3529.143702VCSHMVFRMETAR124.02019-02-21 10:06:236(u5   3NVVV 211000Z 02002KT 9999 SCT020 27/25 Q1007 RMK NILNVVV2019-02-21T10:00:00Z-17.68168.327.025.02026.2129.734253VFRMETAR21.02019-02-21 10:06:23F)5    3LDZD 211000Z 31005KT 260V010 5000 BR FEW015 12/07 Q1028 BECMG CAVOKLDZD2019-02-21T10:00:00Z44.115.3712.07.031053.1130.35433BRMVFRMETAR84.02019-02-21 10:06:23 4mD) 5    3NGTA 211000Z 28009KT 8000 -RA FEW018 SCT040 OVC100 27/26 Q1010NGTA2019-02-21T10:00:00Z1.37173.1327.026.028094.9729.822834-RAMVFRMETAR2.02019-02-21 10:06:236({5   3LCPH 211000Z 14005KT 110V170 9999 FEW020TCU 17/08 Q1020LCPH2019-02-21T10:00:00Z34.7232.4717.08.014056.2130.11811VFRMETAR8.02019-02-21 10:06:23K)5    3LCLK 211000Z 14005KT 100V180 9999 FEW028TCU FEW032CB 18/11 Q1020 NOSIGLCLK2019-02-21T10:00:00Z34.8733.6218.011.014056.2130.11811TRUEVFRMETAR2.02019-02-21 10:06:23A(5    3EICK 211000Z 18014KT 9999 BKN011 BKN021 11/09 Q1018 NOSIGEICK2019-02-21T10:00:00Z51.85-8.4711.09.0180146.2130.059055TRUEMVFRMETAR162.02019-02-21 10:06:23F)5   3EIKN 211000Z 17019G29KT 9999 BKN012 BKN022 11/09 Q1014 NOSIGEIKN2019-02-21T10:00:00Z53.92-8.8211.09.017019296.2129.940945TRUEMVFRMETAR64.02019-02-21 10:06:23 ICI9#(o5    3YCAR 211000Z AUTO 21017KT 9999 // NCD 25/20 Q1011YCAR2019-02-21T10:00:00Z-24.88113.6725.020.0210176.2129.852362TRUEVFRMETAR8.02019-02-21 10:06:234"(u5   3YBWX 211000Z AUTO 30011KT //// // ////// 31/22 Q1008YBWX2019-02-21T10:00:00Z-20.88115.431.022.03001129.763779TRUEMETAR6.02019-02-21 10:06:23(e5    3YPAD 211000Z 15012KT CAVOK 19/10 Q1019 NOSIGYPAD2019-02-21T10:00:00Z-34.95138.5219.010.0150126.2130.088583TRUEVFRMETAR4.02019-02-21 10:06:23C=)5    3YPCC 211000Z AUTO 13015KT 9999 // SCT025 BKN032 29/24 Q1011YPCC2019-02-21T10:00:00Z-12.1796.8229.024.0130156.2129.852362TRUEVFRMETAR3.02019-02-21 10:06:23 D;D1F(g5   3OICK 211000Z 21006KT 9999 SCT040 12/M02 Q1019OICK2019-02-21T10:00:00Z33.4348.2812.0-2.021066.2130.088583VFRMETAR1155.02019-02-21 10:06:23FE) 5    3OIII 211000Z 16006KT 9999 FEW040 SCT200 09/M08 Q1020 A3014 NOSIGOIII2019-02-21T10:00:00Z35.6851.39.0-8.016066.2130.11811TRUEVFRMETAR1191.02019-02-21 10:06:232D(g5   3OIFM 211000Z 12010KT CAVOK 10/M09 Q1019 A3012OIFM2019-02-21T10:00:00Z32.7551.8710.0-9.0120106.2130.088583VFRMETAR1542.02019-02-21 10:06:236C(q5    3OIAW 211000Z 28006KT 9999 FEW040 20/06 Q1020 NOSIGOIAW2019-02-21T10:00:00Z31.3248.7720.06.028066.2130.11811TRUEVFRMETAR22.02019-02-21 10:06:23?B)5   3OICS 211000Z 20010KT 9999 FEW040 SCT200 09/M05 Q1018 A3008OICS2019-02-21T10:00:00Z35.2547.029.0-5.0200106.2130.059055VFRMETAR1373.02019-02-21 10:06:23 G50K(g5   3OISF 211000Z 11006KT 9999 FEW040 14/M03 Q1019OISF2019-02-21T10:00:00Z28.953.7214.0-3.011066.2130.088583VFRMETAR1383.02019-02-21 10:06:23,J(e5   3OISR 211000Z 11006KT 9999 FEW035 21/05 Q1020OISR2019-02-21T10:00:00Z27.3753.221.05.011066.2130.11811VFRMETAR408.02019-02-21 10:06:23&I(Y5   3OITP 211000Z 27002KT CAVOK 11/02 Q1019OITP2019-02-21T10:00:00Z39.647.8811.02.027026.2130.088583VFRMETAR77.02019-02-21 10:06:23.H(e5   3OIBB 211000Z 30008KT CAVOK 18/10 Q1021 A3015OIBB2019-02-21T10:00:00Z28.9750.8218.010.030086.2130.147638VFRMETAR19.02019-02-21 10:06:233G(q5   3OIBP 211000Z 18008KT 9999 FEW030 23/13 Q1019 A3009OIBP2019-02-21T10:00:00Z27.3852.7323.013.018086.2130.088583VFRMETAR9.02019-02-21 10:06:23 TD+P([5   3OIIE 211000Z 15008KT CAVOK 10/M06 Q1021OIIE2019-02-21T10:00:00Z35.4251.1510.0-6.015086.2130.147638VFRMETAR1008.02019-02-21 10:06:23&O(Y5   3OINZ 211000Z 36008KT CAVOK 13/04 Q1019OINZ2019-02-21T10:00:00Z36.6353.213.04.036086.2130.088583VFRMETAR11.02019-02-21 10:06:23/N(g5   3OITR 211000Z 06006KT 9999 FEW035 09/M05 Q1017OITR2019-02-21T10:00:00Z37.6745.079.0-5.06066.2130.029528VFRMETAR1312.02019-02-21 10:06:23)M([5   3OIYY 211000Z 13006KT CAVOK 14/M08 Q1020OIYY2019-02-21T10:00:00Z31.954.2814.0-8.013066.2130.11811VFRMETAR1236.02019-02-21 10:06:23&L(Y5   3OIAH 211000Z 00000KT CAVOK 18/05 Q1021OIAH2019-02-21T10:00:00Z30.3350.8318.05.0006.2130.147638VFRMETAR738.02019-02-21 10:06:23 WHW:U(s5    3OITT 211000Z 27008KT CAVOK 06/M07 Q1019 A3011 NOSIGOITT2019-02-21T10:00:00Z38.1346.236.0-7.027086.2130.088583TRUEVFRMETAR1361.02019-02-21 10:06:23-T(e5   3OIAA 211000Z 16002KT 8000 SCT040 22/03 Q1020OIAA2019-02-21T10:00:00Z30.3748.2522.03.016024.9730.11811MVFRMETAR11.02019-02-21 10:06:231S(k5   3OIBK 211000Z 20006KT 9999 SCT030TCU 22/12 Q1019OIBK2019-02-21T10:00:00Z26.5353.9822.012.020066.2130.088583VFRMETAR30.02019-02-21 10:06:23AR(5    3OICC 211000Z 21008KT 9999 SCT040 11/M04 Q1019 A3011 NOSIGOICC2019-02-21T10:00:00Z34.3547.1711.0-4.021086.2130.088583TRUEVFRMETAR1322.02019-02-21 10:06:232Q(s5   3OIGG 211000Z VRB02KT 9999 FEW020 BKN160 12/04 Q1018OIGG2019-02-21T10:00:00Z37.3349.612.04.0026.2130.059055VFRMETAR-13.02019-02-21 10:06:23 SF S0Z(g5   3SAWG 211000Z 25009KT 9999 FEW035 01/M02 Q1007SAWG2019-02-21T10:00:00Z-51.62-69.321.0-2.025096.2129.734253VFRMETAR19.02019-02-21 10:06:23@Y)5   3SAZM 211000Z 32014KT 9999 FEW030 BKN100 OVC200 21/17 Q1008SAZM2019-02-21T10:00:00Z-37.92-57.5721.017.0320146.2129.763779VFRMETAR21.02019-02-21 10:06:236X(u5   3SAZS 211000Z 26004KT 210V310 9999 FEW045 08/03 Q1012SAZS2019-02-21T10:00:00Z-41.13-71.178.03.026046.2129.88189VFRMETAR840.02019-02-21 10:06:235W(q5    3OIKB 211000Z 15008KT 4000 HZ NSC 25/06 Q1019 A3011OIKB2019-02-21T10:00:00Z27.2256.3725.06.015082.4930.088583HZIFRMETAR10.02019-02-21 10:06:234V(s5   3OIMM 211000Z 02004KT 9999 FEW030 04/M03 Q1023 A3021OIMM2019-02-21T10:00:00Z36.2359.624.0-3.02046.2130.206694VFRMETAR980.02019-02-21 10:06:23 RQ R1_(k5   3OIBL 211000Z 10004KT 9999 FEW025TCU 22/12 Q1019OIBL2019-02-21T10:00:00Z26.5354.8222.012.010046.2130.088583VFRMETAR14.02019-02-21 10:06:23@^(5    3OIZH 211000Z 06004KT 9999 FEW035 11/M07 Q1022 A3020 NOSIGOIZH2019-02-21T10:00:00Z29.4760.9211.0-7.06046.2130.177166TRUEVFRMETAR1370.02019-02-21 10:06:23@])5   3OIKK 211000Z 22008KT 9999 FEW040 SCT200 13/M18 Q1021 A3016OIKK2019-02-21T10:00:00Z30.2556.9713.0-18.022086.2130.147638VFRMETAR1754.02019-02-21 10:06:236\(s5   3OISS 211000Z 12006KT 9999 FEW040 13/M05 Q1020 A3014OISS2019-02-21T10:00:00Z29.5252.5713.0-5.012066.2130.11811VFRMETAR1491.02019-02-21 10:06:23)[([5   3SAWE 211000Z 25006KT CAVOK 00/M01 Q1004SAWE2019-02-21T10:00:00Z-53.78-67.750.0-1.025066.2129.64567VFRMETAR22.02019-02-21 10:06:23Y8J8@HPX`hpx (08@HPX`hpx (08@HPX`hpx.27<AEJOTY^c.27<AEJOTY^chmrw| # ( - 2 7 <AFKPUZ_dinsx}  !"#$$)%.&3'8(=)B*F+K,P-U.Z/_0d1i2m3r4w5|678 9:;<=">'?,@0A4B8C;D>EBFFGJHNIR v;,v0d(g5   3OIMQ 211000Z 22004KT 9999 FEW035 05/M04 Q1023OIMQ2019-02-21T10:00:00Z35.2358.475.0-4.022046.2130.206694VFRMETAR1140.02019-02-21 10:06:23&c(Y5   3OIBQ 211000Z 30006KT CAVOK 19/10 Q1020OIBQ2019-02-21T10:00:00Z29.2750.3219.010.030066.2130.11811VFRMETAR6.02019-02-21 10:06:23+b([5   3OIIK 211000Z 15012KT CAVOK 08/M05 Q1019OIIK2019-02-21T10:00:00Z36.2550.058.0-5.0150126.2130.088583VFRMETAR1278.02019-02-21 10:06:23,a(e5   3OIMC 211000Z 14008KT 9999 FEW030 10/01 Q1028OIMC2019-02-21T10:00:00Z36.561.0710.01.014086.2130.35433VFRMETAR288.02019-02-21 10:06:23?`(5    3EINN 211000Z 16022KT 9999 FEW012 BKN018 12/09 Q1015 NOSIGEINN2019-02-21T10:00:00Z52.7-8.9212.09.0160226.2129.970472TRUEMVFRMETAR20.02019-02-21 10:06:23 {L,{+i(_5   3OIBA 211000Z 26006KT 6000 NSC 23/13 Q1019OIBA2019-02-21T10:00:00Z25.8855.0323.013.026063.7330.088583MVFRMETAR7.02019-02-21 10:06:230h(g5   3OITK 211000Z 06002KT 9999 FEW035 10/M04 Q1017OITK2019-02-21T10:00:00Z38.4244.9810.0-4.06026.2130.029528VFRMETAR1107.02019-02-21 10:06:237g(u5   3OITM 211000Z 22006KT 9999 FEW035 BKN180 09/M05 Q1018OITM2019-02-21T10:00:00Z37.3546.159.0-5.022066.2130.059055VFRMETAR1340.02019-02-21 10:06:23'f(Y5   3OINE 211000Z 07006KT CAVOK 17/00 Q1017OINE2019-02-21T10:00:00Z37.3855.4517.00.07066.2130.029528VFRMETAR130.02019-02-21 10:06:23.e(g5   3OIMD 211000Z 00000KT 9999 FEW025 06/M01 Q1021OIMD2019-02-21T10:00:00Z34.3858.636.0-1.0006.2130.147638VFRMETAR1100.02019-02-21 10:06:23 xL(x*n([5   3OIMB 211000Z 27006KT CAVOK 08/M18 Q1022OIMB2019-02-21T10:00:00Z32.959.288.0-18.027066.2130.177166VFRMETAR1491.02019-02-21 10:06:23(m([5   3OIMN 211000Z 12008KT CAVOK 08/M08 Q1020OIMN2019-02-21T10:00:00Z37.4857.38.0-8.012086.2130.11811VFRMETAR1074.02019-02-21 10:06:231l(g5   3OIFS 211000Z 23012KT 9999 FEW040 09/M11 Q1020OIFS2019-02-21T10:00:00Z32.3250.859.0-11.0230126.2130.11811VFRMETAR2078.02019-02-21 10:06:239k(u5   3OIIP 211000Z 15010KT 8000 FEW035 BKN200 09/M12 Q1020OIIP2019-02-21T10:00:00Z35.7850.839.0-12.0150104.9730.11811MVFRMETAR1271.02019-02-21 10:06:23.j(e5   3OIBV 211000Z 19008KT 9999 FEW030 23/14 Q1019OIBV2019-02-21T10:00:00Z26.8253.3523.014.019086.2130.088583VFRMETAR24.02019-02-21 10:06:23 W@ W0s(i5    3LFPM 211000Z AUTO 18002KT 9000 NSC 09/06 Q1028LFPM2019-02-21T10:00:00Z48.622.679.06.018025.5930.35433TRUEVFRMETAR92.02019-02-21 10:06:23;r(u5     3LFLN 211000Z AUTO 00000KT 7000 NSC 07/06 Q1029 NOSIGLFLN2019-02-21T10:00:00Z46.424.027.06.0004.3530.383858TRUETRUEMVFRMETAR244.02019-02-21 10:06:238q(q5    3VORY 211000Z 18008KT 6000 FEW020 33/20 Q1014 NOSIGVORY2019-02-21T10:00:00Z17.181.8233.020.018083.7329.940945TRUEMVFRMETAR46.02019-02-21 10:06:23.p(e5    3OIZJ 211000Z 21006KT 5000 HZ NSC 24/09 Q1019OIZJ2019-02-21T10:00:00Z25.6557.824.09.021063.1130.088583HZMVFRMETAR4.02019-02-21 10:06:23:o(q5    3VOHY 211000Z 13005KT 6000 FEW020 35/15 Q1018 NOSIGVOHY2019-02-21T10:00:00Z17.4578.4535.015.013053.7330.059055TRUEMVFRMETAR545.02019-02-21 10:06:23 0Gt0-x(c5    3LFSD 211000Z AUTO VRB03KT CAVOK 08/04 Q1029LFSD2019-02-21T10:00:00Z47.275.078.04.0036.2130.383858TRUEVFRMETAR227.02019-02-21 10:06:23@w(5    3LFRT 211000Z AUTO 20005KT 160V280 9999 OVC014 10/07 Q1027LFRT2019-02-21T10:00:00Z48.52-2.8510.07.020056.2130.324802TRUEMVFRMETAR136.02019-02-21 10:06:23Ev)5      3LFRH 211000Z AUTO 14007KT 5000 BR OVC004 09/09 Q1028 NOSIGLFRH2019-02-21T10:00:00Z47.77-3.459.09.014073.1130.35433TRUETRUEBRLIFRMETAR44.02019-02-21 10:06:23Mu)5    3LFRQ 211000Z AUTO 16007KT 120V200 9999 OVC007 10/10 Q1027 BECMG BKN010LFRQ2019-02-21T10:00:00Z47.97-4.1710.010.016076.2130.324802TRUEIFRMETAR94.02019-02-21 10:06:233t(o5     3LFPT 211000Z AUTO 00000KT 4900 BR NSC 07/07 Q1028LFPT2019-02-21T10:00:00Z49.12.037.07.0003.0430.35433TRUEBRMVFRMETAR99.02019-02-21 10:06:23 #CP#6}(k5    3VAAH 211000Z 27004KT 6000 NSC 31/14 Q1014 NOSIGVAAH2019-02-21T10:00:00Z23.0772.6231.014.027043.7329.940945TRUEMVFRMETAR55.02019-02-21 10:06:236|(k5    3VAJJ 211000Z 31016KT 6000 NSC 27/22 Q1013 NOSIGVAJJ2019-02-21T10:00:00Z19.1272.8227.022.0310163.7329.911417TRUEMVFRMETAR4.02019-02-21 10:06:23/{(e5   3VOTP 211000Z 06008KT 7000 FEW020 32/19 Q1015VOTP2019-02-21T10:00:00Z13.6379.5532.019.06084.3529.970472MVFRMETAR107.02019-02-21 10:06:23mz)G5      3PABR 211000Z AUTO 04008KT 3/4SM BR OVC004 M14/M15 A3005 RMK T11441150 TSNO RVRNO VIA AUTODIALPABR2019-02-21T10:00:00Z71.28-156.77-14.4-15.04080.7530.050198TRUETRUEBRLIFRSPECI7.02019-02-21 10:06:237y(q5    3VOTV 211000Z 30007KT 6000 SCT015 33/23 Q1011 NOSIGVOTV2019-02-21T10:00:00Z8.4776.9533.023.030073.7329.852362TRUEMVFRMETAR8.02019-02-21 10:06:23 .;.Q)5     3LFRC 211000Z AUTO 20009KT 2100 BR VV/// 07/07 Q1027 BECMG 9999 NSW BKN006LFRC2019-02-21T10:00:00Z49.63-1.477.07.020091.330.324802TRUEBRLIFRMETAR138.02019-02-21 10:06:23@)5    3LFRK 211000Z AUTO 18005KT 9000 OVC004 07/07 Q1028 BECMG NSCLFRK2019-02-21T10:00:00Z49.17-0.457.07.018055.5930.35433TRUELIFRMETAR67.02019-02-21 10:06:237(s5    3LFRU 211000Z AUTO 19008KT 150V220 CAVOK 12/08 Q1026LFRU2019-02-21T10:00:00Z48.6-3.8212.08.019086.2130.295275TRUEVFRMETAR86.02019-02-21 10:06:23-(e5   3OIBJ 211000Z 07004KT 9999 FEW025 18/08 Q1021OIBJ2019-02-21T10:00:00Z27.8252.3518.08.07046.2130.147638VFRMETAR663.02019-02-21 10:06:23?~(w5     3VOVZ 211000Z 20007KT 4000 HZ FU NSC 33/21 Q1014 NOSIGVOVZ2019-02-21T10:00:00Z17.7583.2233.021.020072.4929.940945TRUEHZ FUIFRMETAR5.02019-02-21 10:06:23 ?]B(5     3LFBU 211000Z AUTO 16006KT 130V190 CAVOK 12/06 Q1029 NOSIGLFBU2019-02-21T10:00:00Z45.720.2212.06.016066.2130.383858TRUETRUEVFRMETAR133.02019-02-21 10:06:23/(c5    3LFGA 211000Z AUTO 18006KT CAVOK 10/04 Q1029LFGA2019-02-21T10:00:00Z48.17.3510.04.018066.2130.383858TRUEVFRMETAR191.02019-02-21 10:06:23\);5     3LFJR 211000Z AUTO 00000KT 0350 0250 R26/0550U FG VV/// 04/04 Q1029 BECMG 4000 BR OVC003LFJR2019-02-21T10:00:00Z47.57-0.34.04.0000.2230.383858TRUEFGLIFRMETAR60.02019-02-21 10:06:23;(u5     3LFPN 211000Z AUTO VRB03KT 8000 NSC 12/07 Q1028 NOSIGLFPN2019-02-21T10:00:00Z48.752.1212.07.0034.9730.35433TRUETRUEMVFRMETAR164.02019-02-21 10:06:23 T(bT% (Y5   3OING 211000Z 29004KT CAVOK 13/02 Q1020OING2019-02-21T10:00:00Z36.954.413.02.029046.2130.11811VFRMETAR155.02019-02-21 10:06:23* ([5   3OIZB 211000Z 33012KT CAVOK 12/M05 Q1026OIZB2019-02-21T10:00:00Z31.161.5512.0-5.0330126.2130.295275VFRMETAR489.02019-02-21 10:06:23- (e5   3OIBS 211000Z 20004KT 9999 FEW030 23/11 Q1019OIBS2019-02-21T10:00:00Z25.954.5523.011.020046.2130.088583VFRMETAR14.02019-02-21 10:06:23@({5      3LFAQ 211000Z AUTO 18005KT 5000 BR NSC 08/06 Q1028 NOSIGLFAQ2019-02-21T10:00:00Z49.972.78.06.018053.1130.35433TRUETRUEBRMVFRMETAR111.02019-02-21 10:06:23R))5    3LFAT 211000Z AUTO 23007KT 200V260 6000 SCT007 09/08 Q1028 TEMPO 4000 BR BKN008LFAT2019-02-21T10:00:00Z50.521.629.08.023073.7330.35433TRUEMVFRMETAR14.02019-02-21 10:06:23 TET>)5    3LEBL 211000Z 31005KT 260V340 9000 FEW022 11/05 Q1030 NOSIGLEBL2019-02-21T10:00:00Z41.272.0711.05.031055.5930.413385TRUEVFRMETAR6.02019-02-21 10:06:232(q5    3TLPC 211000Z 11004KT 9999 FEW020 23/21 Q1016 NOSIGTLPC2019-02-21T10:00:00Z14.02-61.023.021.011046.2130.0TRUEVFRMETAR2.02019-02-21 10:06:23=(5    3LEAL 211000Z 07001KT 9999 FEW022 SCT035 14/08 Q1030 NOSIGLEAL2019-02-21T10:00:00Z38.27-0.5514.08.07016.2130.413385TRUEVFRMETAR31.02019-02-21 10:06:23, (a5   3OIZI 211000Z 00000KT 7000 NSC 20/M01 Q1021OIZI2019-02-21T10:00:00Z27.2360.7220.0-1.0004.3530.147638MVFRMETAR591.02019-02-21 10:06:235 (k5    3HECA 211000Z 29005KT 6000 NSC 18/05 Q1021 NOSIGHECA2019-02-21T10:00:00Z30.1231.3818.05.029053.7330.147638TRUEMVFRMETAR74.02019-02-21 10:06:23 XJX;(5    3LEMG 211000Z 09008KT 9999 FEW020 BKN040 15/09 Q1029 NOSIGLEMG2019-02-21T10:00:00Z36.67-4.515.09.09086.2130.383858TRUEVFRMETAR7.02019-02-21 10:06:233(q5    3LEPA 211000Z 00000KT 9999 FEW025 14/08 Q1030 NOSIGLEPA2019-02-21T10:00:00Z39.532.7214.08.0006.2130.413385TRUEVFRMETAR8.02019-02-21 10:06:238(u5    3LEVC 211000Z 30003KT 260V340 CAVOK 12/06 Q1030 NOSIGLEVC2019-02-21T10:00:00Z39.5-0.4712.06.030036.2130.413385TRUEVFRMETAR62.02019-02-21 10:06:234(q5    3LEIB 211000Z VRB02KT 9999 SCT025 15/08 Q1030 NOSIGLEIB2019-02-21T10:00:00Z38.871.3715.08.0026.2130.413385TRUEVFRMETAR12.02019-02-21 10:06:230(e5    3LEMD 211000Z 31002KT CAVOK 08/04 Q1028 NOSIGLEMD2019-02-21T10:00:00Z40.48-3.578.04.031026.2130.35433TRUEVFRMETAR582.02019-02-21 10:06:23 K<*(_5   3LEDA 211000Z 24001KT 9000 NSC 10/06 Q1030LEDA2019-02-21T10:00:00Z41.730.5310.06.024015.5930.413385VFRMETAR350.02019-02-21 10:06:23$(Y5   3LESA 211000Z 00000KT CAVOK 07/02 Q1027LESA2019-02-21T10:00:00Z40.95-5.57.02.0006.2130.324802VFRMETAR795.02019-02-21 10:06:23'(Y5   3LEVD 211000Z 10005KT CAVOK 07/03 Q1027LEVD2019-02-21T10:00:00Z41.72-4.837.03.010056.2130.324802VFRMETAR854.02019-02-21 10:06:232(e5    3LEVX 211000Z 23007KT CAVOK 11/06 Q1023 NOSIGLEVX2019-02-21T10:00:00Z42.22-8.6211.06.023076.2130.206694TRUEVFRMETAR256.02019-02-21 10:06:23/(e5    3LEZL 211000Z 05007KT CAVOK 14/09 Q1026 NOSIGLEZL2019-02-21T10:00:00Z37.42-5.914.09.05076.2130.295275TRUEVFRMETAR31.02019-02-21 10:06:23 G6)(_5   3LEPP 211000Z VRB02KT 7000 NSC 07/04 Q1029LEPP2019-02-21T10:00:00Z42.77-1.657.04.0024.3530.383858MVFRMETAR459.02019-02-21 10:06:232(o5   3LEZG 211000Z 07003KT 360V100 7000 NSC 08/04 Q1030LEZG2019-02-21T10:00:00Z41.67-1.028.04.07034.3530.413385MVFRMETAR258.02019-02-21 10:06:23%(Y5   3LEJR 211000Z VRB02KT CAVOK 16/07 Q1025LEJR2019-02-21T10:00:00Z36.75-6.0716.07.0026.2130.265747VFRMETAR30.02019-02-21 10:06:23((_5   3LEVT 211000Z 00000KT 8000 NSC 08/05 Q1028LEVT2019-02-21T10:00:00Z42.87-2.728.05.0004.9730.35433MVFRMETAR509.02019-02-21 10:06:233(e5    3LEST 211000Z 14012KT CAVOK 12/06 Q1023 NOSIGLEST2019-02-21T10:00:00Z42.88-8.4212.06.0140126.2130.206694TRUEVFRMETAR367.02019-02-21 10:06:23 ^V^8$(s5   3LPAZ 211000Z 26019KT 9999 FEW022 SCT030 14/11 Q1001LPAZ2019-02-21T10:00:00Z36.97-25.1714.011.0260196.2129.557087VFRMETAR100.02019-02-21 10:06:23<#)5   3GEML 211000Z 09008KT 060V140 9999 FEW012 SCT032 16/11 Q1028GEML2019-02-21T10:00:00Z35.27-2.9516.011.09086.2130.35433VFRMETAR55.02019-02-21 10:06:23/"(i5   3LELN 211000Z 10004KT 040V140 CAVOK 07/03 Q1027LELN2019-02-21T10:00:00Z42.57-5.657.03.010046.2130.324802VFRMETAR914.02019-02-21 10:06:23=!)5    3LELC 211000Z 05006KT 010V100 9000 FEW039 15/09 Q1030 NOSIGLELC2019-02-21T10:00:00Z37.77-0.815.09.05065.5930.413385TRUEVFRMETAR3.02019-02-21 10:06:23$ (Y5   3LEXJ 211000Z VRB01KT CAVOK 12/08 Q1025LEXJ2019-02-21T10:00:00Z43.42-3.8212.08.0016.2130.265747VFRMETAR6.02019-02-21 10:06:23 J9))(Y5   3OINN 211000Z 10010KT CAVOK 11/02 Q1019OINN2019-02-21T10:00:00Z36.6751.4711.02.0100106.2130.088583VFRMETAR-19.02019-02-21 10:06:235((s5   3OICI 211000Z 19002KT 9999 SCT040 09/M02 Q1021 A3017OICI2019-02-21T10:00:00Z33.5846.49.0-2.019026.2130.147638VFRMETAR1343.02019-02-21 10:06:23#'(Y5   3OIAM 211000Z 00000KT CAVOK 20/05 Q1020OIAM2019-02-21T10:00:00Z30.5549.1520.05.0006.2130.11811VFRMETAR4.02019-02-21 10:06:23'&(Y5   3OIAG 211000Z 28004KT CAVOK 21/03 Q1021OIAG2019-02-21T10:00:00Z30.7749.6721.03.028046.2130.147638VFRMETAR29.02019-02-21 10:06:230%(e5   3LPPD 211000Z 24020KT 9999 FEW020 14/10 Q0998LPPD2019-02-21T10:00:00Z37.72-25.6814.010.0240206.2129.468504VFRMETAR72.02019-02-21 10:06:23 hI&h8.(u5   3OITZ 211000Z 16008KT 9999 FEW035 BKN190 07/M12 Q1018OITZ2019-02-21T10:00:00Z36.7748.377.0-12.016086.2130.059055VFRMETAR1663.02019-02-21 10:06:23--(e5   3OISL 211000Z 09008KT 9999 FEW040 18/04 Q1019OISL2019-02-21T10:00:00Z27.6754.3718.04.09086.2130.088583VFRMETAR805.02019-02-21 10:06:230,(g5   3OISY 211000Z 18008KT 9999 FEW035 10/M09 Q1022OISY2019-02-21T10:00:00Z30.751.5510.0-9.018086.2130.177166VFRMETAR1811.02019-02-21 10:06:234+(s5   3OINR 211000Z 09006KT 9999 FEW100 BKN180 10/07 Q1018OINR2019-02-21T10:00:00Z36.8850.6710.07.09066.2130.059055VFRMETAR-20.02019-02-21 10:06:231*(i5   3OIKQ 211000Z 21010KT 8000 FEW025CB 23/15 Q1019OIKQ2019-02-21T10:00:00Z26.7555.923.015.0210104.9730.088583MVFRMETAR12.02019-02-21 10:06:23 AQA73(q5    3VOMM 211000Z 05008KT 8000 SCT020 31/22 Q1015 NOSIGVOMM2019-02-21T10:00:00Z13.080.1731.022.05084.9729.970472TRUEMVFRMETAR16.02019-02-21 10:06:2352(k5    3VOHS 211000Z 12005KT 6000 NSC 34/13 Q1017 NOSIGVOHS2019-02-21T10:00:00Z17.2378.4334.013.012053.7330.029528TRUEMVFRMETAR1.02019-02-21 10:06:23@1)5   3LPFL 211000Z 25008KT 200V320 9999 BKN014 SCT017CB 09/05 Q0989LPFL2019-02-21T10:00:00Z39.45-31.129.05.025086.2129.202755MVFRMETAR29.02019-02-21 10:06:23L0)5    3LPHR 211000Z 22014KT 8000 -TSRA SCT014 SCT016CB BKN030 13/07 Q0993LPHR2019-02-21T10:00:00Z38.52-28.7213.07.0220144.9729.320866-TSRAMVFRMETAR41.02019-02-21 10:06:23)/(e5   3LPLA 211000Z /////KT 9999 FEW024 12/07 Q0994LPLA2019-02-21T10:00:00Z38.77-27.112.07.06.2129.350393VFRMETAR55.02019-02-21 10:06:23 PAP/8(i5   3LEAM 211000Z 07012KT 030V100 CAVOK 16/06 Q1029LEAM2019-02-21T10:00:00Z36.85-2.3716.06.070126.2130.383858VFRMETAR21.02019-02-21 10:06:23(7(Y5   3VOHB 211000Z 16003KT CAVOK 35/09 Q1018VOHB2019-02-21T10:00:00Z15.3775.0835.09.016036.2130.059055VFRMETAR661.02019-02-21 10:06:23F6)5     3VIDP 211000Z 13008KT 4000 HZ SCT040 BKN100 27/14 Q1014 NOSIGVIDP2019-02-21T10:00:00Z28.5777.1227.014.013082.4929.940945TRUEHZIFRMETAR233.02019-02-21 10:06:23<5(w5   3VOTR 211000Z 07010G20KT 9999 SCT016 35/20 Q1012 NOSIGVOTR2019-02-21T10:00:00Z10.7778.7235.020.07010206.2129.88189TRUEVFRMETAR88.02019-02-21 10:06:2394(q5    3VOMD 211000Z 06011KT 8000 SCT020 36/17 Q1013 NOSIGVOMD2019-02-21T10:00:00Z9.8278.0736.017.060114.9729.911417TRUEMVFRMETAR131.02019-02-21 10:06:23 kHk-=(i5   3LESO 211000Z 13004KT 070V170 CAVOK 17/06 Q1027LESO2019-02-21T10:00:00Z43.35-1.817.06.013046.2130.324802VFRMETAR8.02019-02-21 10:06:23%<(Y5   3LEGR 211000Z 00000KT CAVOK 10/05 Q1028LEGR2019-02-21T10:00:00Z37.17-3.7710.05.0006.2130.35433VFRMETAR559.02019-02-21 10:06:239;(u5    3LEBB 211000Z 17006KT 130V230 CAVOK 17/06 Q1026 NOSIGLEBB2019-02-21T10:00:00Z43.28-2.9217.06.017066.2130.295275TRUEVFRMETAR34.02019-02-21 10:06:23::(u5    3LECO 211000Z 16009KT 120V200 CAVOK 14/07 Q1022 NOSIGLECO2019-02-21T10:00:00Z43.28-8.3714.07.016096.2130.177166TRUEVFRMETAR103.02019-02-21 10:06:2329(e5    3LEAS 211000Z 23007KT CAVOK 13/04 Q1025 NOSIGLEAS2019-02-21T10:00:00Z43.53-6.0213.04.023076.2130.265747TRUEVFRMETAR134.02019-02-21 10:06:23 uV5u:B(y5    3LECH 211000Z AUTO 24003KT 200V280 9999 NCD 11/07 Q1030LECH2019-02-21T10:00:00Z40.20.0711.07.024036.2130.413385TRUEVFRMETAR337.02019-02-21 10:06:23.A(e5   3GCLA 211000Z 19011KT 9999 FEW040 19/09 Q1020GCLA2019-02-21T10:00:00Z28.62-17.7519.09.0190116.2130.11811VFRMETAR31.02019-02-21 10:06:23*@(e5   3LEMH 211000Z VRB02KT 9999 FEW025 13/05 Q1030LEMH2019-02-21T10:00:00Z39.874.2213.05.0026.2130.413385VFRMETAR82.02019-02-21 10:06:237?(u5   3GCFV 211000Z 12004KT 070V160 9999 FEW020 18/14 Q1022GCFV2019-02-21T10:00:00Z28.43-13.8718.014.012046.2130.177166VFRMETAR23.02019-02-21 10:06:23$>(Y5   3LERS 211000Z VRB02KT CAVOK 13/08 Q1030LERS2019-02-21T10:00:00Z41.131.1713.08.0026.2130.413385VFRMETAR76.02019-02-21 10:06:23 Ur7F(u5   3GCHI 211000Z 17010KT 140V200 9999 FEW030 18/10 Q1020GCHI2019-02-21T10:00:00Z27.82-17.8718.010.0170106.2130.11811VFRMETAR30.02019-02-21 10:06:23@E)5   3SBSJ 211000Z 08002KT 6000 SCT008 BKN020 BKN080 21/21 Q1017SBSJ2019-02-21T10:00:00Z-23.22-45.8721.021.08023.7330.029528MVFRMETAR646.02019-02-21 10:06:23]D)#5    3KLOR 211000Z AUTO 20005KT 10SM OVC005 21/21 A3003 RMK AO2 LTG DSNT N SLP151KLOR2019-02-21T10:00:00Z31.35-85.7521.021.0200510.030.0295281015.1TRUETRUEIFRSPECI74.02019-02-21 10:06:23%C(Y5   3LEBG 211000Z 00000KT CAVOK 10/03 Q1028LEBG2019-02-21T10:00:00Z42.37-3.6210.03.0006.2130.35433VFRMETAR891.02019-02-21 10:06:23 VAK(5    3GCLP 211000Z 14009KT 9999 SCT020 BKN030 19/14 Q1021 NOSIGGCLP2019-02-21T10:00:00Z27.92-15.3719.014.014096.2130.147638TRUEMVFRMETAR25.02019-02-21 10:06:23.J(e5   3GCRR 211000Z 09005KT 9999 FEW025 18/15 Q1022GCRR2019-02-21T10:00:00Z28.93-13.5818.015.09056.2130.177166VFRMETAR40.02019-02-21 10:06:236I(q5    3GCTS 211000Z VRB02KT 9999 FEW030 19/09 Q1021 NOSIGGCTS2019-02-21T10:00:00Z28.05-16.5719.09.0026.2130.147638TRUEVFRMETAR72.02019-02-21 10:06:23BH)5    3GCXO 211000Z 13007KT 080V170 9999 SCT012 13/09 Q1021 NOSIGGCXO2019-02-21T10:00:00Z28.48-16.3513.09.013076.2130.147638TRUEVFRMETAR632.02019-02-21 10:06:23\G)=5   3GCGM 211000Z 09004KT 010V120 9999 FEW025 17/11 Q1021 RMK R09/VRB05KT ARP/10006KT 060V150GCGM2019-02-21T10:00:00Z28.03-17.2217.011.09046.2130.147638VFRMETAR219.02019-02-21 10:06:23 XQX5P(u5   3LPCS 211000Z 11008KT 080V140 9999 SCT025 12/09 Q1024LPCS2019-02-21T10:00:00Z38.73-9.3512.09.011086.2130.236221VFRMETAR99.02019-02-21 10:06:23)O(_5   3LEGE 211000Z VRB02KT 8000 NSC 10/05 Q1030LEGE2019-02-21T10:00:00Z41.882.7710.05.0024.9730.413385MVFRMETAR129.02019-02-21 10:06:23h(}5    3LFRO 211000Z AUTO 17010KT CAVOK 12/08 Q1026 TEMPO BKN010LFRO2019-02-21T10:00:00Z48.75-3.4712.08.0170106.2130.295275TRUEVFRMETAR89.02019-02-21 10:06:23,g(i5   3LJCE 211000Z VRB01KT CAVOK 09/02 Q1029 RMK BLULJCE2019-02-21T10:00:00Z45.915.529.02.0016.2130.383858VFRMETAR155.02019-02-21 10:06:239f(q5     3VEAT 211000Z 00000KT 5000 HZ NSC 30/13 Q1014 NOSIGVEAT2019-02-21T10:00:00Z23.8791.2530.013.0003.1129.940945TRUEHZMVFRMETAR16.02019-02-21 10:06:23De)5     3VIAR 211000Z 20004KT 4000 HZ SCT035 SCT080 20/14 Q1015 NOSIGVIAR2019-02-21T10:00:00Z31.774.820.014.020042.4929.970472TRUEHZIFRMETAR234.02019-02-21 10:06:23 APm)5     3LFOC 211000Z AUTO 19003KT 4700 BR VV/// 07/07 Q1028 BECMG 7000 NSW FEW015LFOC2019-02-21T10:00:00Z48.031.377.07.019032.9230.35433TRUEBRLIFRMETAR127.02019-02-21 10:06:23Ul)-5     3LFOE 211000Z AUTO VRB03KT 0150 R22/0225N FG VV/// 05/05 Q1028 BECMG 6000 NSW NSCLFOE2019-02-21T10:00:00Z49.021.225.05.0030.0930.35433TRUEFGLIFRMETAR146.02019-02-21 10:06:239k(o5     3LFOJ 211000Z AUTO 19004KT CAVOK 10/07 Q1028 NOSIGLFOJ2019-02-21T10:00:00Z47.971.7510.07.019046.2130.35433TRUETRUEVFRMETAR125.02019-02-21 10:06:239j(o5    3LFRJ 211000Z AUTO 18010KT 9999 BKN010 11/09 Q1026LFRJ2019-02-21T10:00:00Z48.52-4.1511.09.0180106.2130.295275TRUEMVFRMETAR115.02019-02-21 10:06:23 A?A6r(o5     3LFMD 211000Z AUTO VRB02KT CAVOK 14/07 Q1029 NOSIGLFMD2019-02-21T10:00:00Z43.536.9514.07.0026.2130.383858TRUETRUEVFRMETAR9.02019-02-21 10:06:23Aq(5     3LFGJ 211000Z AUTO 23003KT 170V270 CAVOK 07/03 Q1030 NOSIGLFGJ2019-02-21T10:00:00Z47.055.437.03.023036.2130.413385TRUETRUEVFRMETAR196.02019-02-21 10:06:237p(o5     3LFYR 211000Z AUTO VRB03KT CAVOK 11/06 Q1029 NOSIGLFYR2019-02-21T10:00:00Z47.321.6711.06.0036.2130.383858TRUETRUEVFRMETAR86.02019-02-21 10:06:238o(o5     3LFOA 211000Z AUTO 00000KT CAVOK 10/06 Q1029 NOSIGLFOA2019-02-21T10:00:00Z47.032.6310.06.0006.2130.383858TRUETRUEVFRMETAR179.02019-02-21 10:06:23;n(u5     3LFPV 211000Z AUTO 23003KT 9000 NSC 10/07 Q1028 NOSIGLFPV2019-02-21T10:00:00Z48.772.210.07.023035.5930.35433TRUETRUEVFRMETAR179.02019-02-21 10:06:23 .Af.5w(o5     3LFTH 211000Z AUTO VRB02KT CAVOK 14/07 Q1029 NOSIGLFTH2019-02-21T10:00:00Z43.16.1514.07.0026.2130.383858TRUETRUEVFRMETAR4.02019-02-21 10:06:237v(o5     3LFST 211000Z AUTO VRB03KT CAVOK 08/04 Q1029 NOSIGLFST2019-02-21T10:00:00Z48.537.628.04.0036.2130.383858TRUETRUEVFRMETAR154.02019-02-21 10:06:23:u(u5     3LFOT 211000Z AUTO VRB02KT 7000 NSC 09/06 Q1028 NOSIGLFOT2019-02-21T10:00:00Z47.430.729.06.0024.3530.35433TRUETRUEMVFRMETAR108.02019-02-21 10:06:23Ut))5     3LFRG 211000Z AUTO 20007KT 0250 0200 R30/0375N FG VV/// 05/05 Q1028 BECMG CAVOKLFRG2019-02-21T10:00:00Z49.370.155.05.020070.1630.35433TRUEFGLIFRMETAR146.02019-02-21 10:06:239s(o5     3LFMH 211000Z AUTO 31005KT CAVOK 08/02 Q1029 NOSIGLFMH2019-02-21T10:00:00Z45.524.288.02.031056.2130.383858TRUETRUEVFRMETAR402.02019-02-21 10:06:23 787F|) 5    3LFRB 211000Z AUTO 17011KT 9999 OVC008 10/09 Q1026 BECMG SCT020LFRB2019-02-21T10:00:00Z48.45-4.4210.09.0170116.2130.295275TRUEIFRMETAR103.02019-02-21 10:06:237{(o5     3LFBE 211000Z AUTO 05006KT CAVOK 09/05 Q1029 NOSIGLFBE2019-02-21T10:00:00Z44.820.529.05.05066.2130.383858TRUETRUEVFRMETAR52.02019-02-21 10:06:23;z(u5     3LFQQ 211000Z AUTO 18006KT 8000 NSC 10/07 Q1028 NOSIGLFQQ2019-02-21T10:00:00Z50.573.110.07.018064.9730.35433TRUETRUEMVFRMETAR52.02019-02-21 10:06:231y(k5    3LFPO 211000Z 17004KT 9000 NSC 09/07 Q1028 NOSIGLFPO2019-02-21T10:00:00Z48.722.389.07.017045.5930.35433TRUEVFRMETAR96.02019-02-21 10:06:23Bx) 5    3LFTW 211000Z AUTO VRB02KT CAVOK 10/06 Q1029 TEMPO 0200 FG VV///LFTW2019-02-21T10:00:00Z43.754.4210.06.0026.2130.383858TRUEVFRMETAR96.02019-02-21 10:06:23 V6(o5     3LFKC 211000Z AUTO VRB02KT CAVOK 14/07 Q1029 NOSIGLFKC2019-02-21T10:00:00Z42.528.814.07.0026.2130.383858TRUETRUEVFRMETAR58.02019-02-21 10:06:23E)5     3LFJL 211000Z AUTO 20005KT 170V230 8000 NSC 09/05 Q1028 NOSIGLFJL2019-02-21T10:00:00Z48.976.259.05.020054.9730.35433TRUETRUEMVFRMETAR264.02019-02-21 10:06:238~(o5     3LFCR 211000Z AUTO VRB03KT CAVOK 11/02 Q1029 NOSIGLFCR2019-02-21T10:00:00Z44.382.4711.02.0036.2130.383858TRUETRUEVFRMETAR580.02019-02-21 10:06:23f})O5     3LFRS 211000Z AUTO 08005KT 0350 0300 R03/0500D R21/0550N FG VV/// 06/06 Q1028 BECMG 4000 BR BKN005LFRS2019-02-21T10:00:00Z47.17-1.66.06.08050.2230.35433TRUEFGLIFRMETAR27.02019-02-21 10:06:23 /:u/C) 5    3LFMP 211000Z AUTO VRB01KT CAVOK 12/07 Q1029 TEMPO 08012KT BKN010LFMP2019-02-21T10:00:00Z42.722.8712.07.0016.2130.383858TRUEVFRMETAR48.02019-02-21 10:06:239(o5     3LFLS 211000Z AUTO 07008KT CAVOK 10/01 Q1029 NOSIGLFLS2019-02-21T10:00:00Z45.375.3210.01.07086.2130.383858TRUETRUEVFRMETAR386.02019-02-21 10:06:238(o5     3LFLC 211000Z AUTO VRB02KT CAVOK 11/00 Q1029 NOSIGLFLC2019-02-21T10:00:00Z45.773.1711.00.0026.2130.383858TRUETRUEVFRMETAR330.02019-02-21 10:06:23?(5     3LFKJ 211000Z AUTO 22004KT 190V250 CAVOK 13/07 Q1030 NOSIGLFKJ2019-02-21T10:00:00Z41.928.813.07.022046.2130.413385TRUETRUEVFRMETAR9.02019-02-21 10:06:23@(5     3LFKF 211000Z AUTO 21005KT 160V250 CAVOK 16/07 Q1029 NOSIGLFKF2019-02-21T10:00:00Z41.59.0816.07.021056.2130.383858TRUETRUEVFRMETAR23.02019-02-21 10:06:23 ;ta )C5     3LFRI 211000Z AUTO 11004KT 080V140 0300 R28/0400N FG VV/// 05/05 Q1028 BECMG 9999 NSW FEW005LFRI2019-02-21T10:00:00Z46.7-1.375.05.011040.1930.35433TRUEFGLIFRMETAR91.02019-02-21 10:06:23L)5     3LFRM 211000Z AUTO VRB03KT 0250 FG VV/// 04/04 Q1029 BECMG 4000 BR OVC003LFRM2019-02-21T10:00:00Z47.950.24.04.0030.1630.383858TRUEFGLIFRMETAR52.02019-02-21 10:06:23A(5     3LFSL 211000Z AUTO 14005KT 100V170 CAVOK 11/02 Q1028 NOSIGLFSL2019-02-21T10:00:00Z45.031.4811.02.014056.2130.35433TRUETRUEVFRMETAR310.02019-02-21 10:06:23?) 5    3LFMV 211000Z AUTO VRB02KT 8000 FEW006 09/05 Q1030 BECMG BKN006LFMV2019-02-21T10:00:00Z43.94.99.05.0024.9730.413385TRUEMVFRMETAR38.02019-02-21 10:06:23 PBP2(i5    3LFQB 211000Z AUTO VRB01KT 7000 NSC 10/06 Q1029LFQB2019-02-21T10:00:00Z48.324.0210.06.0014.3530.383858TRUEMVFRMETAR118.02019-02-21 10:06:231 (i5    3LFSN 211000Z AUTO VRB01KT 6000 NSC 06/04 Q1029LFSN2019-02-21T10:00:00Z48.676.226.04.0013.7330.383858TRUEMVFRMETAR217.02019-02-21 10:06:23: (u5     3LFBA 211000Z AUTO 12008KT 7000 NSC 09/06 Q1028 NOSIGLFBA2019-02-21T10:00:00Z44.170.69.06.012084.3530.35433TRUETRUEMVFRMETAR60.02019-02-21 10:06:23= ({5     3LFMI 211000Z AUTO 00000KT 9999 FEW013 14/08 Q1029 NOSIGLFMI2019-02-21T10:00:00Z43.524.9214.08.0006.2130.383858TRUETRUEVFRMETAR24.02019-02-21 10:06:238 (s5     3LFOV 211000Z AUTO 00000KT 0250 FG VV/// 05/05 Q1028LFOV2019-02-21T10:00:00Z48.03-0.755.05.0000.1630.35433TRUEFGLIFRMETAR101.02019-02-21 10:06:23 Ls6(s5    3LFLU 211000Z AUTO 01004KT 340V040 CAVOK 09/03 Q1029LFLU2019-02-21T10:00:00Z44.924.989.03.01046.2130.383858TRUEVFRMETAR160.02019-02-21 10:06:238(o5     3LFLX 211000Z AUTO VRB02KT CAVOK 11/06 Q1029 NOSIGLFLX2019-02-21T10:00:00Z46.851.7211.06.0026.2130.383858TRUETRUEVFRMETAR157.02019-02-21 10:06:23_)=5     3LFOH 211000Z AUTO 22005KT 190V250 0250 R22/0325N FG VV/// 06/05 Q1028 BECMG 6000 NSW NSCLFOH2019-02-21T10:00:00Z49.520.076.05.022050.1630.35433TRUEFGLIFRMETAR103.02019-02-21 10:06:23S))5     3LFOP 211000Z AUTO VRB01KT 0350 0250 R22/0325N FG VV/// 06/06 Q1028 BECMG CAVOKLFOP2019-02-21T10:00:00Z49.371.176.06.0010.2230.35433TRUEFGLIFRMETAR157.02019-02-21 10:06:23.(u5   3LFQA 211000Z AUTO 11005KT //// // ////// 05/05 Q1028LFQA2019-02-21T10:00:00Z49.24.155.05.0110530.35433TRUEMETAR95.02019-02-21 10:06:23 fBf0(e5    3LJLJ 211000Z 11002KT CAVOK 09/01 Q1028 NOSIGLJLJ2019-02-21T10:00:00Z46.2214.479.01.011026.2130.35433TRUEVFRMETAR385.02019-02-21 10:06:23'(Y5   3LJMB 211000Z 17008KT CAVOK 11/02 Q1028LJMB2019-02-21T10:00:00Z46.4715.6711.02.017086.2130.35433VFRMETAR265.02019-02-21 10:06:235(u5    3LJPZ 211000Z 32004KT 280V020 4000 BR NSC 10/05 Q1028LJPZ2019-02-21T10:00:00Z45.4713.6210.05.032042.4930.35433BRIFRMETAR2.02019-02-21 10:06:238(o5     3LFCK 211000Z AUTO VRB02KT CAVOK 10/01 Q1029 NOSIGLFCK2019-02-21T10:00:00Z43.552.2810.01.0026.2130.383858TRUETRUEVFRMETAR240.02019-02-21 10:06:238(q5     3LFLP 211000Z AUTO VRB02KT CAVOK 09/M00 Q1029 NOSIGLFLP2019-02-21T10:00:00Z45.926.089.00.0026.2130.383858TRUETRUEVFRMETAR463.02019-02-21 10:06:23  U A(5     3LFMK 211000Z AUTO 09004KT 060V130 CAVOK 10/05 Q1029 NOSIGLFMK2019-02-21T10:00:00Z43.222.3210.05.09046.2130.383858TRUETRUEVFRMETAR130.02019-02-21 10:06:236(o5     3LFMT 211000Z AUTO VRB03KT CAVOK 10/06 Q1030 NOSIGLFMT2019-02-21T10:00:00Z43.573.9710.06.0036.2130.413385TRUETRUEVFRMETAR6.02019-02-21 10:06:23,(c5    3LFSG 211000Z AUTO VRB02KT CAVOK 09/06 Q1028LFSG2019-02-21T10:00:00Z48.336.079.06.0026.2130.35433TRUEVFRMETAR330.02019-02-21 10:06:23:(s5     3LFRV 211000Z AUTO 16005KT 0250 FG VV/// 07/07 Q1028LFRV2019-02-21T10:00:00Z47.72-2.727.07.016050.1630.35433TRUEFGLIFRMETAR133.02019-02-21 10:06:23e)M5     3LFRZ 211000Z AUTO 13004KT 090V170 0650 0550 R25/1000D FG VV/// 06/06 Q1028 BECMG 9999 NSW FEW005LFRZ2019-02-21T10:00:00Z47.32-2.176.06.013040.430.35433TRUEFGLIFRMETAR4.02019-02-21 10:06:23 1B1E")5     3LFPB 211000Z AUTO 16004KT 120V190 6000 NSC 11/07 Q1028 NOSIGLFPB2019-02-21T10:00:00Z48.972.4511.07.016043.7330.35433TRUETRUEMVFRMETAR65.02019-02-21 10:06:23?!({5      3LFOB 211000Z AUTO VRB01KT 5000 BR NSC 08/08 Q1028 NOSIGLFOB2019-02-21T10:00:00Z49.472.128.08.0013.1130.35433TRUETRUEBRMVFRMETAR111.02019-02-21 10:06:23: (o5     3LFOK 211000Z AUTO 21006KT CAVOK 10/07 Q1029 NOSIGLFOK2019-02-21T10:00:00Z48.784.1810.07.021066.2130.383858TRUETRUEVFRMETAR162.02019-02-21 10:06:23;(5    3LFMU 211000Z AUTO VRB01KT CAVOK 11/08 Q1030 TEMPO 18012KTLFMU2019-02-21T10:00:00Z43.323.3511.08.0016.2130.413385TRUEVFRMETAR17.02019-02-21 10:06:238(o5     3LFLY 211000Z AUTO 00000KT CAVOK 11/02 Q1029 NOSIGLFLY2019-02-21T10:00:00Z45.724.9511.02.0006.2130.383858TRUETRUEVFRMETAR201.02019-02-21 10:06:23 6xA'(5     3LFBL 211000Z AUTO 11004KT 050V140 CAVOK 11/03 Q1028 NOSIGLFBL2019-02-21T10:00:00Z45.871.1711.03.011046.2130.35433TRUETRUEVFRMETAR402.02019-02-21 10:06:23A&(5     3LFBI 211000Z AUTO 18005KT 140V220 CAVOK 11/06 Q1028 NOSIGLFBI2019-02-21T10:00:00Z46.570.3211.06.018056.2130.35433TRUETRUEVFRMETAR120.02019-02-21 10:06:23G%)5     3LFRN 211000Z AUTO VRB01KT 5000 BR OVC004 07/07 Q1029 BECMG BKN008LFRN2019-02-21T10:00:00Z48.07-1.727.07.0013.1130.383858TRUEBRLIFRMETAR37.02019-02-21 10:06:238$(u5    3LFSB 211000Z 16007KT 130V190 CAVOK 10/04 Q1029 NOSIGLFSB2019-02-21T10:00:00Z47.67.5210.04.016076.2130.383858TRUEVFRMETAR271.02019-02-21 10:06:23D#) 5    3LFRD 211000Z AUTO 20006KT 9999 BKN014 10/07 Q1028 TEMPO BKN005LFRD2019-02-21T10:00:00Z48.58-2.0710.07.020066.2130.35433TRUEMVFRMETAR59.02019-02-21 10:06:23 />s/7,(o5     3LFKB 211000Z AUTO VRB03KT CAVOK 14/07 Q1029 NOSIGLFKB2019-02-21T10:00:00Z42.539.4714.07.0036.2130.383858TRUETRUEVFRMETAR12.02019-02-21 10:06:23B+(5     3LFBZ 211000Z AUTO 20006KT 140V260 CAVOK 17/06 Q1027 NOSIGLFBZ2019-02-21T10:00:00Z43.47-1.5217.06.020066.2130.324802TRUETRUEVFRMETAR71.02019-02-21 10:06:239*(q5     3LFBT 211000Z AUTO VRB01KT CAVOK 17/M01 Q1027 NOSIGLFBT2019-02-21T10:00:00Z43.170.017.0-1.0016.2130.324802TRUETRUEVFRMETAR363.02019-02-21 10:06:23E))5     3LFBO 211000Z AUTO 14003KT 080V250 9000 NSC 09/07 Q1029 NOSIGLFBO2019-02-21T10:00:00Z43.621.379.07.014035.5930.383858TRUETRUEVFRMETAR153.02019-02-21 10:06:23<((u5     3LFBP 211000Z AUTO VRB02KT 9000 NSC 15/04 Q1027 NOSIGLFBP2019-02-21T10:00:00Z43.37-0.4215.04.0025.5930.324802TRUETRUEVFRMETAR185.02019-02-21 10:06:23 Cq0)o5   3KVBG 211000Z AUTO 36018G27KT 7SM -RA FEW023 SCT032 SCT039 BKN046 BKN055 OVC100 08/04 A2972 RMK AO2 RAB00 SLP068 $KVBG2019-02-21T10:00:00Z34.73-120.588.04.036018277.029.7194881006.8TRUETRUETRUE-RABKN4600VFRSPECI112.02019-02-21 10:06:23>/({5     3LFML 211000Z AUTO VRB03KT 9999 BKN015 11/07 Q1029 NOSIGLFML2019-02-21T10:00:00Z43.455.2211.07.0036.2130.383858TRUETRUEMVFRMETAR36.02019-02-21 10:06:23L.)5     3EHVL 211000Z AUTO 23014KT 7000 BR BKN005 BKN006 OVC021 08/08 Q1023 YLOEHVL2019-02-21T10:00:00Z53.234.928.08.0230144.3530.206694TRUEBRIFRSPECI5.02019-02-21 10:06:237-(o5     3LFLB 211000Z AUTO VRB02KT CAVOK 09/03 Q1030 NOSIGLFLB2019-02-21T10:00:00Z45.635.879.03.0026.2130.413385TRUETRUEVFRMETAR239.02019-02-21 10:06:23 yKgyh4))5    3K1BW 210958Z AUTO 20008KT 10SM FEW160 M10/M16 A2978 RMK AO2 SLP139 T11001162 $K1BW2019-02-21T09:58:00Z41.52-104.0-10.0-16.2200810.029.7785431013.9TRUETRUETRUEVFRSPECI1607.02019-02-21 10:06:23^3)5    3KFEW 210958Z 30003KT 10SM CLR M15/M18 A2974 RMK AO2A SLP143 T11481176 $KFEW2019-02-21T09:58:00Z41.13-104.87-14.8-17.6300310.029.7401581014.3TRUETRUEVFRMETAR1878.02019-02-21 10:06:23I2)5   3KGGP 210958Z AUTO 27010G16KT 10SM CLR 00/M03 A3006 RMK AO2KGGP2019-02-21T09:58:00Z40.72-86.370.0-3.0270101610.030.059055TRUETRUEVFRSPECI225.02019-02-21 10:06:23`1)-5     3KHZR 210958Z AUTO 01003KT 10SM VCTS OVC011 11/11 A2999 RMK AO2 LTG DSNT N AND NWKHZR2019-02-21T09:58:00Z30.72-91.4811.011.010310.029.991142TRUETRUEVCTSMVFRSPECI12.02019-02-21 10:06:23 n CnO8)5    3KOXD 210956Z AUTO 29004KT 10SM OVC024 02/00 A3008 RMK AO2 T00161005KOXD2019-02-21T09:56:00Z39.5-84.781.6-0.5290410.030.079725TRUETRUEMVFRSPECI317.02019-02-21 10:06:23K7) 5    3KSME 210956Z AUTO 35003KT 10SM SCT015 OVC041 06/05 A3011 RMK AO2KSME2019-02-21T09:56:00Z37.05-84.626.05.0350310.030.109253TRUETRUEVFRSPECI283.02019-02-21 10:06:23q6)E5     3KCEF 210957Z AUTO 34005KT 10SM FZDZ BKN005 OVC009 M02/M03 A2991 RMK AO2 CIG 004 RWY05 SLP138KCEF2019-02-21T09:57:00Z42.2-72.52-2.0-3.0340510.029.9114171013.8TRUETRUEFZDZIFRSPECI75.02019-02-21 10:06:23o5)I5      3KLSV 210957Z 00000KT 4SM SN BKN009 BKN013 01/00 A2963 RMK CIG 009V011 SLP045 P0005 T00070004 $KLSV2019-02-21T09:57:00Z36.22-115.020.70.4004.029.6309051004.5TRUESNIFR0.05METAR570.02019-02-21 10:06:23 4&;)5     3PASY 210956Z 17040G50KT 7SM -RASN BKN015 BKN021 BKN026 03/02 A2899 RMK AO2 PK WND 15054/0901 SNE0928B0934E0944B0946 SLP823 RVRNO FZRANO $PASY2019-02-21T09:56:00Z52.72174.123.02.017040507.028.990158982.3TRUETRUETRUE-RA -SNMVFRMETAR31.02019-02-21 10:06:23^:))5    3KVAD 210956Z 18008KT 8SM SCT003 OVC006 20/20 A3005 RMK AO2A SLP177 T02010201 $KVAD2019-02-21T09:56:00Z30.97-83.220.120.118088.030.0501981017.7TRUETRUEIFRSPECI71.02019-02-21 10:06:23b9)35    3KNYG 210956Z AUTO 00000KT 10SM SCT008 OVC085 02/01 A3002 RMK AO2 SLP165 T00170011 $KNYG2019-02-21T09:56:00Z38.5-77.281.71.10010.030.020671016.5TRUETRUETRUEVFRMETAR4.02019-02-21 10:06:23 q>)35     3PHHI 210956Z AUTO 00000KT 10SM CLR 17/17 A2999 RMK AO2 SLP148 T01680165 402480133 $PHHI2019-02-21T09:56:00Z21.48-158.0516.816.50010.029.9911421014.8TRUETRUETRUEVFR24.813.3METAR255.02019-02-21 10:06:23=)5   #   3KPSM 210956Z 36008KT 3/4SM R16/P6000FT -FZRAPL BR SCT003 OVC007 M04/M05 A2996 RMK AO2A SNE31FZRAB31 SLP149 P0005 T10431054KPSM2019-02-21T09:56:00Z43.07-70.82-4.3-5.436080.7529.9586621014.9TRUE-FZRA PL BRLIFR0.05METAR31.02019-02-21 10:06:23<)_5      3KRDR 210956Z 35009KT 3SM -SN BKN014 OVC045 M09/M11 A2989 RMK AO2A SNE0856SNB0859 SLP144 P0000 T10951111 $KRDR2019-02-21T09:56:00Z47.97-97.4-9.5-11.135093.029.8907471014.4TRUETRUE-SNMVFR0.005METAR278.02019-02-21 10:06:23 ?eJB)5    3KTRK 210955Z AUTO 00000KT 10SM OVC005 M12/M13 A2957 RMK AO2KTRK2019-02-21T09:55:00Z39.32-120.12-12.0-13.00010.029.568897TRUETRUEIFRSPECI1798.02019-02-21 10:06:23TA)5     3K05U 210955Z AUTO 21003KT 5SM BR BKN031 OVC041 M10/M12 A2954 RMK A01K05U2019-02-21T09:55:00Z39.6-116.0-10.0-12.021035.029.53937TRUETRUEBRMVFRSPECI1816.02019-02-21 10:06:236@(}5   3OPIS 210955Z 29006KT 6000 SCT025 BKN080 14/09 Q1016 RH70OPIS2019-02-21T09:55:00Z33.5572.8314.09.029063.7330.0MVFRMETAR537.02019-02-21 10:06:23?)U5      3KSSC 210956Z AUTO 00000KT 1/2SM R04/3000V3500FT FG VV001 06/06 A3009 RMK AO2 SLP192 T00600059 TSNO $KSSC2019-02-21T09:56:00Z33.97-80.476.05.9000.530.0885831019.2TRUETRUETRUETRUEFGLIFR100METAR74.02019-02-21 10:06:23 0UIF(5     3KEHY 210955Z AUTO 10SM SCT100 M13/M18 A2960 RMK AO2 PWINOKEHY2019-02-21T09:55:00Z41.73-106.47-13.0-18.010.029.601377TRUETRUETRUEVFRSPECI2225.02019-02-21 10:06:23IE)5   3KOXI 210955Z AUTO 26013G17KT 10SM CLR 00/M05 A3003 RMK AO1KOXI2019-02-21T09:55:00Z41.33-86.670.0-5.0260131710.030.029528TRUETRUEVFRSPECI209.02019-02-21 10:06:23UD)5     3KSBO 210955Z AUTO 10003KT 2SM BR OVC003 11/11 A3008 RMK AO2 LTG DSNT EKSBO2019-02-21T09:55:00Z32.62-82.3711.011.010032.030.079725TRUETRUEBRLIFRSPECI100.02019-02-21 10:06:23JC) 5    3KSHD 210955Z AUTO 19004KT 10SM CLR 03/03 A2996 RMK AO2 T00270025KSHD2019-02-21T09:55:00Z38.27-78.92.72.5190410.029.958662TRUETRUEVFRSPECI366.02019-02-21 10:06:23 3XaJJ) 5    3K6P9 210955Z AUTO 13004KT 10SM CLR 06/00 A2993 RMK AO2 T00570004K6P92019-02-21T09:55:00Z32.43-98.65.70.4130410.029.929134TRUETRUEVFRSPECI449.02019-02-21 10:06:23qI)O5      3KD73 210955Z AUTO 06004KT 1 1/4SM BR OVC002 05/05 A3006 RMK AO2 LTG DSNT N AND NW P0002 T00470047KD732019-02-21T09:55:00Z33.78-83.74.74.76041.2530.059055TRUETRUEBRLIFR0.02SPECI267.02019-02-21 10:06:23UH)5    3KDWX 210955Z AUTO 06010KT 10SM BKN110 M11/M15 A2966 RMK AO2 T11111152KDWX2019-02-21T09:55:00Z41.03-107.5-11.1-15.2601010.029.660433TRUETRUEVFRSPECI1996.02019-02-21 10:06:23GG)5    3KEAN 210955Z AUTO 10SM CLR M10/M16 A2977 RMK AO2 T11001156KEAN2019-02-21T09:55:00Z42.05-104.93-10.0-15.610.029.769686TRUETRUEVFRMETAR1456.02019-02-21 10:06:23 )hDN(}5    3KMRJ 210955Z AUTO 24009KT 10SM CLR M07/M08 A2994 RMK AO2KMRJ2019-02-21T09:55:00Z42.88-90.23-7.0-8.0240910.029.940945TRUETRUEVFRSPECI359.02019-02-21 10:06:23BM(5    3KFYG 210955Z AUTO 15004KT 8SM FEW060 00/M01 A3012 RMK AO2KFYG2019-02-21T09:55:00Z38.58-91.00.0-1.015048.030.121063TRUETRUEVFRSPECI149.02019-02-21 10:06:23;L({5    3EHFS 210955Z AUTO 24013KT 7000 NSC 08/07 Q1026 W///H///EHFS2019-02-21T09:55:00Z51.453.68.07.0240134.3530.295275TRUEMVFRMETAR32.02019-02-21 10:06:23QK)5     3K3J7 210955Z AUTO 00000KT 1SM BR OVC003 07/07 A3004 RMK AO2 LTG DSNT NWK3J72019-02-21T09:55:00Z33.6-83.137.07.0001.030.041338TRUETRUEBRLIFRSPECI206.02019-02-21 10:06:23 5jsVR)15     3OPLA 210955Z 28005KT 4000 FU SCT040 SCT100 20/14 Q1016 NOSIG RMK QFE990 RMK A30.00OPLA2019-02-21T09:55:00Z31.5274.420.014.028052.4930.0TRUEFUIFRSPECI217.02019-02-21 10:06:23qQ)95     3PATL 210955Z AUTO 00000KT 10SM OVC008 M10/M10 A2986 RMK AO2 SLP139 T10971102 410931122PATL2019-02-21T09:55:00Z62.9-155.97-9.7-10.20010.029.8612211013.9TRUETRUEIFR-9.3-12.2METAR294.02019-02-21 10:06:23EP)5   3TNCE 210955Z AUTO 05015KT 020V090 //// // ///////// 24/18 Q1018 RE//TNCE2019-02-21T09:55:00Z17.47-62.9724.018.0501530.059055TRUEMETAR39.02019-02-21 10:06:23EO) 5    3TNCB 210955Z AUTO 09011KT 9999 SCT017/// SCT022/// 25/21 Q1014TNCB2019-02-21T09:55:00Z12.13-68.2825.021.090116.2129.940945TRUEVFRMETAR6.02019-02-21 10:06:23 T/^TV)Y5       3PAKV 210953Z AUTO 04005KT 5SM -SN BR OVC027 M08/M11 A2991 RMK SLP132 P0000 T10831106 TSNO VIA AUTODIALPAKV2019-02-21T09:53:00Z64.33-158.75-8.3-10.64055.029.9114171013.2TRUETRUE-SN BRMVFR0.005METAR61.02019-02-21 10:06:23KU) 5   3K6R6 210953Z AUTO 01006KT 07/M02 A2982 RMK AO1 SLP083 T00721017 K6R62019-02-21T09:53:00Z30.05-102.227.2-1.710629.8198811008.3TRUETRUEMETAR701.02019-02-21 10:06:23aT)35     3KNAK 210954Z AUTO 00000KT 6SM BR BKN008 OVC090 02/00 A2999 RMK AO2 SLP157 T00220000KNAK2019-02-21T09:54:00Z38.98-76.482.20.0006.029.9911421015.7TRUETRUEBRIFRSPECI2.02019-02-21 10:06:23dS);5     3KEMV 210954Z AUTO 18003KT 7SM SCT005 BKN009 OVC120 03/03 A3006 RMK AO2 LTG DSNT E P0007KEMV2019-02-21T09:54:00Z36.68-77.483.03.018037.030.059055TRUETRUEIFR0.07SPECI39.02019-02-21 10:06:23 "  "kZ)-5    3KMIB 210951Z AUTO 29008KT 10SM BKN013 M15/M18 A2990 RMK AO2 CIG 013V018 SLP169 $KMIB2019-02-21T09:51:00Z48.42-101.33-15.0-18.0290810.029.8996071016.9TRUETRUETRUEMVFRSPECI508.02019-02-21 10:06:23sY)O5     3PANT 210953Z AUTO 00000KT 10SM BKN020 OVC034 M02/M02 A3018 RMK SLP221 T10171022 TSNO VIA AUTODIALPANT2019-02-21T09:53:00Z55.03-131.57-1.7-2.20010.030.1801191022.1TRUETRUEMVFRMETAR36.02019-02-21 10:06:23wX)G5      3PAWI 210953Z AUTO 02011KT 3/4SM BR VV002 M20/M22 A3002 RMK SLP167 T12001222 TSNO VIA AUTODIALPAWI2019-02-21T09:53:00Z70.62-159.85-20.0-22.220110.7530.020671016.7TRUETRUEBRLIFR200METAR27.02019-02-21 10:06:23qW)E5    3PAWD 210953Z AUTO 36011G17KT 10SM OVC065 00/M02 A2970 RMK SLP056 T00001022 TSNO VIA AUTODIALPAWD2019-02-21T09:53:00Z60.12-149.420.0-2.2360111710.029.6988181005.6TRUETRUEVFRMETAR23.02019-02-21 10:06:23 .cI^) 5    3KNOW 210950Z AUTO 18004KT 10SM CLR 03/00 A3011 RMK AO2 T00260004KNOW2019-02-21T09:50:00Z48.13-123.42.60.4180410.030.109253TRUETRUEVFRSPECI4.02019-02-21 10:06:23N]) 5     3KOMH 210950Z AUTO 19003KT 10SM OVC006 00/00 A2997 RMK AO2 P0002KOMH2019-02-21T09:50:00Z38.25-78.050.00.0190310.029.970472TRUETRUEIFR0.02SPECI142.02019-02-21 10:06:23E\)5    3KRQO 210950Z AUTO 11009KT 01/00 A2999 RMK AO2 PWINO T00121003KRQO2019-02-21T09:50:00Z35.47-98.01.2-0.3110929.991142TRUETRUETRUESPECI432.02019-02-21 10:06:23L[)5   3KVES 210950Z AUTO 27012G17KT 10SM OVC025 01/M01 A3005 RMK AO2KVES2019-02-21T09:50:00Z40.2-84.531.0-1.0270121710.030.050198TRUETRUEMVFRSPECI307.02019-02-21 10:06:23 #<kLb)5   3KHII 210950Z AUTO 18012G16KT 10SM OVC040 10/02 A2962 RMK AO2KHII2019-02-21T09:50:00Z34.57-114.3710.02.0180121610.029.619095TRUETRUEVFRSPECI238.02019-02-21 10:06:23Ka)5     3KI16 210950Z AUTO 4SM BR BKN008 OVC014 09/09 A3005 RMK AO2 T00930090KI162019-02-21T09:50:00Z37.6-81.579.39.04.030.050198TRUETRUEBRIFRSPECI544.02019-02-21 10:06:23a`)95    3KIYA 210950Z AUTO 34004KT 7SM OVC004 12/12 A2996 RMK AO2 LTG DSNT NW THRU NE T01150115KIYA2019-02-21T09:50:00Z29.98-92.0811.511.534047.029.958662TRUETRUELIFRSPECI5.02019-02-21 10:06:23W_)5     3KMTV 210950Z AUTO 00000KT 10SM BKN014 03/03 A3005 RMK AO2 P0001 T00310030KMTV2019-02-21T09:50:00Z36.63-80.023.13.00010.030.050198TRUETRUEMVFR0.01SPECI287.02019-02-21 10:06:23 ;iJf)5    3KBWP 210950Z AUTO 31006KT 10SM OVC008 M10/M11 A2988 RMK AO1KBWP2019-02-21T09:50:00Z46.25-96.62-10.0-11.0310610.029.878937TRUETRUEIFRSPECI295.02019-02-21 10:06:23Qe)5    3KCPU 210950Z AUTO 32007KT 10SM BKN120 03/M01 A2968 RMK AO2 T00251008KCPU2019-02-21T09:50:00Z38.15-120.652.5-0.8320710.029.681103TRUETRUEVFRMETAR404.02019-02-21 10:06:23Ld)5    3KGVE 210950Z AUTO 00000KT 10SM BKN005 01/01 A2997 RMK AO1 T00060006KGVE2019-02-21T09:50:00Z38.15-78.170.60.60010.029.970472TRUETRUEIFRSPECI138.02019-02-21 10:06:23?c(y5    3KGVT 210950Z AUTO 09005KT 10SM CLR 06/03 A3001 RMK AO2KGVT2019-02-21T09:50:00Z33.07-96.076.03.090510.030.008858TRUETRUEVFRSPECI163.02019-02-21 10:06:23 *<k*,k(a5   3EGXP 210950Z 25015KT CAVOK 11/10 Q1021 BLUEGXP2019-02-21T09:50:00Z53.3-0.5511.010.0250156.2130.147638VFRMETAR61.02019-02-21 10:06:23,j(e5   3EKVD 210950Z 27011KT 6000 BKN007 07/06 Q1019EKVD2019-02-21T09:50:00Z55.429.327.06.0270113.7330.088583IFRMETAR45.02019-02-21 10:06:23Wi)5     3K49A 210950Z AUTO 16004KT 10SM -RA OVC006 11/10 A3006 RMK AO2 T01080100K49A2019-02-21T09:50:00Z34.63-84.5310.810.0160410.030.059055TRUETRUE-RAIFRSPECI453.02019-02-21 10:06:23Kh)5     3KACJ 210950Z AUTO 00000KT 1/4SM FG OVC002 18/16 A3007 RMK AO2KACJ2019-02-21T09:50:00Z32.12-84.1818.016.0000.2530.070866TRUETRUEFGLIFRSPECI143.02019-02-21 10:06:23>g(y5    3KAQO 210950Z AUTO 00000KT 10SM CLR 06/02 A2996 RMK AO2KAQO2019-02-21T09:50:00Z30.78-98.676.02.00010.029.958662TRUETRUEVFRSPECI336.02019-02-21 10:06:23 L-o L8p(y5   3LHPR 210945Z 27008KT 220V290 CAVOK 10/03 Q1027 RMK BLULHPR2019-02-21T09:45:00Z47.6317.8210.03.027086.2130.324802VFRMETAR129.02019-02-21 10:06:230o(e5    3LHSM 210945Z 20002KT CAVOK 09/03 Q1028 NOSIGLHSM2019-02-21T09:45:00Z46.6817.179.03.020026.2130.35433TRUEVFRMETAR125.02019-02-21 10:06:23)n([5   3LHPP 210945Z 27006KT CAVOK 10/M00 Q1029LHPP2019-02-21T09:45:00Z45.9818.2310.00.027066.2130.383858VFRMETAR305.02019-02-21 10:06:238m(y5   3LHDC 210945Z 24006KT 7000 NSC 06/M00 Q1027 BECMG CAVOKLHDC2019-02-21T09:45:00Z47.4721.626.00.024064.3530.324802MVFRMETAR112.02019-02-21 10:06:23Ml)5    3LHPA 210945Z 24008KT 200V260 9999 SCT047 BKN200 09/02 Q1028 NOSIG RMK BLULHPA2019-02-21T09:45:00Z47.3517.59.02.024086.2130.35433TRUEVFRMETAR148.02019-02-21 10:06:23 %S%Pu) 5     3CYAH 211006Z AUTO 07003KT 9SM -SN CLR M29/M31 A2981 RMK SLP135CYAH2019-02-21T10:06:00Z53.75-73.67-29.0-31.07039.029.8110241013.5TRUE-SNVFRSPECI306.02019-02-21 10:08:53=t) 5    3EKYT 211007Z AUTO 28011KT 7000 BKN003/// OVC005/// 08/08 Q1016EKYT2019-02-21T10:07:00Z57.19.878.08.0280114.3530.0TRUELIFRSPECI3.02019-02-21 10:08:53Ds)5  3CXBW 210900Z AUTO 33016KT M12/M16 RMK AO1 PK WND 34023/0840 T11241156CXBW2019-02-21T09:00:00Z49.8-112.3-12.4-15.633016TRUETRUEMETAR824.02019-02-21 10:06:23Er)5  3CPRY 210900Z AUTO 34009KT M13/M15 RMK AO1 PK WND 35023/0800 T11281146CPRY2019-02-21T09:00:00Z49.48-112.68-12.8-14.63409TRUETRUEMETAR937.02019-02-21 10:06:23'q([5   3LHUD 210945Z 32006KT CAVOK 10/M02 Q1028LHUD2019-02-21T09:45:00Z46.2520.110.0-2.032066.2130.35433VFRMETAR84.02019-02-21 10:06:23 dAdWy)5    3K0J4 211006Z AUTO 20004KT 10SM OVC002 21/20 A3004 RMK AO2 T02110200 $ K0J42019-02-21T10:06:00Z31.05-86.3221.120.0200410.030.041338TRUETRUETRUELIFRSPECI96.02019-02-21 10:08:53Ux)5     3CYXS 211006Z AUTO 00000KT 1/8SM HZ VV001 M21/M24 A3015 RMK SLP269CYXS2019-02-21T10:06:00Z53.9-122.68-21.0-24.0000.1330.150591026.9TRUEHZLIFR100SPECI691.02019-02-21 10:08:53}w)K5      3PAEM 211006Z AUTO 18018G23KT 3SM -SN BR FEW007 BKN012 OVC026 M03/M04 A2964 RMK AO2 P0000 FZRANOPAEM2019-02-21T10:06:00Z62.78-164.48-3.0-4.018018233.029.639763TRUETRUETRUE-SN BRMVFR0.005SPECI3.02019-02-21 10:08:53[v)'5    3KNQI 211006Z AUTO 02006KT 10SM BKN029 OVC033 15/08 A2989 RMK AO2 T01500083 $ KNQI2019-02-21T10:06:00Z27.5-97.8215.08.320610.029.890747TRUETRUETRUEMVFRSPECI15.02019-02-21 10:08:53 2. 2U})5      3KMJX 211005Z AUTO 28004KT 1 1/2SM BR OVC002 02/02 A2992 RMK AO2 FZRANOKMJX2019-02-21T10:05:00Z39.93-74.32.02.028041.529.920275TRUETRUETRUEBRLIFRSPECI25.02019-02-21 10:08:53u|)K5       3PAGN 211006Z AUTO 07004KT 2SM -SN BR BKN019 OVC030 01/00 A3008 RMK AO2 VIS 1 1/4V5 P0000 FZRANOPAGN2019-02-21T10:06:00Z57.5-134.581.00.07042.030.079725TRUETRUETRUE-SN BRIFR0.005SPECI2.02019-02-21 10:08:53 {)5      3PAJC 211006Z AUTO 25024G31KT 1SM -SN BR BKN007 BKN014 OVC040 01/M01 A3007 RMK AO2 PK WND 24031/1005 CIG 005V011 PRESRR P0000 FZRANOPAJC2019-02-21T10:06:00Z56.32-158.371.0-1.025024311.030.070866TRUETRUETRUE-SN BRIFR0.005SPECI15.02019-02-21 10:08:53Lz)5    3K0CO 211006Z AUTO 15010G17KT CLR M18/M25 A2948 RMK AO2 PWINOK0CO2019-02-21T10:06:00Z39.8-105.77-18.0-25.0150101729.480314TRUETRUETRUEMETAR3807.02019-02-21 10:08:53 +Lu\)-5     3KBKB 211004Z AUTO VRB03KT 10SM VCTS BKN060 OVC080 10/08 A2995 RMK AO2 T01000078 KBKB2019-02-21T10:04:00Z31.0-92.9210.07.80310.029.949802TRUETRUEVCTSVFRSPECI94.02019-02-21 10:08:53Q)5     3KASJ 211005Z AUTO 19004KT 5SM RA OVC003 03/03 A3005 RMK AO2 T00340034KASJ2019-02-21T10:05:00Z36.28-77.173.43.419045.030.050198TRUETRUERALIFRMETAR21.02019-02-21 10:08:53Y)'5     3KEHO 211005Z AUTO 24004KT 4SM -RA SCT001 OVC006 04/04 A3008 RMK AO2 T00370037KEHO2019-02-21T10:05:00Z35.25-81.63.73.724044.030.079725TRUETRUE-RAIFRMETAR258.02019-02-21 10:08:53O~)5     3KTTA 211005Z AUTO 27003KT 5SM BR OVC006 03/03 A3007 RMK AO2 T00330032KTTA2019-02-21T10:05:00Z35.58-79.13.33.227035.030.070866TRUETRUEBRIFRMETAR75.02019-02-21 10:08:53 #'.$#{)Q5       3PAYA 211004Z AUTO 09008KT 1SM -SN BR SCT006 OVC010 01/M01 A2990 RMK AO2 P0000 T00061006 TSNO RVRNOPAYA2019-02-21T10:04:00Z59.52-139.670.6-0.69081.029.899607TRUETRUETRUE-SN BRIFR0.005SPECI11.02019-02-21 10:08:53)a5      3KGVQ 211004Z AUTO 27020G30KT 10SM UP OVC010 02/01 A2982 RMK AO2 PK WND 27030/1002 CIG 006V014 P0000 FZRANOKGVQ2019-02-21T10:04:00Z43.03-78.172.01.0270203010.029.819881TRUETRUETRUEUPMVFR0.005METAR278.02019-02-21 10:08:53s)E5      3KJER 211004Z AUTO 05018KT 6SM -SN SCT037 SCT046 OVC055 M07/M10 A2970 RMK AO2 P0000 T10721100KJER2019-02-21T10:04:00Z42.72-114.45-7.2-10.050186.029.698818TRUETRUE-SNVFR0.005SPECI1222.02019-02-21 10:08:53S)5     3KVLD 211004Z AUTO 18006KT 3SM BR OVC002 19/19 A3006 RMK AO2 T01940194KVLD2019-02-21T10:04:00Z30.78-83.2719.419.418063.030.059055TRUETRUEBRLIFRSPECI62.02019-02-21 10:08:53 w4X|w )e5      3KMEI 211004Z AUTO 01006KT 10SM -RA FEW008 OVC019 12/10 A3004 RMK AO2 LTG DSNT N AND NW P0001 I1000 T01220100KMEI2019-02-21T10:04:00Z32.33-88.7512.210.010610.030.041338TRUETRUE-RAMVFR0.01SPECI89.02019-02-21 10:08:53V)%5    3KMMK 211004Z AUTO 00000KT 10SM BKN007 OVC013 M01/M02 A2989 RMK AO2 T10061017KMMK2019-02-21T10:04:00Z41.52-72.83-0.6-1.70010.029.890747TRUETRUEIFRSPECI31.02019-02-21 10:08:53V)5     3KMPO 211004Z AUTO 26008KT 2 1/2SM BR OVC003 00/00 A2984 RMK AO2 T00000000KMPO2019-02-21T10:04:00Z41.13-75.380.00.026082.529.840551TRUETRUEBRLIFRSPECI577.02019-02-21 10:08:53F)5   3CYHM 211004Z 24013KT 15SM OVC013 02/01 A2984 RMK SC8 SLP116CYHM2019-02-21T10:04:00Z43.17-79.932.01.02401315.029.8405511011.6MVFRSPECI238.02019-02-21 10:08:53 E+-NE )c5      3KTCL 211004Z AUTO 32005KT 1 1/4SM +TSRA BR FEW008 OVC019 12/11 A3006 RMK AO2 LTG DSNT ALQDS P0015 T01170106KTCL2019-02-21T10:04:00Z33.22-87.6211.710.632051.2530.059055TRUETRUE+TSRA BRIFR0.15SPECI49.02019-02-21 10:08:53Y )5     3KHSV 211004Z AUTO 33008KT 3SM BR OVC003 10/09 A3006 RMK AO2 T01000094 $KHSV2019-02-21T10:04:00Z34.65-86.7810.09.433083.030.059055TRUETRUETRUEBRLIFRSPECI191.02019-02-21 10:08:53x )O5      3KIGM 211004Z AUTO 20009KT 1 3/4SM -SN BR FEW004 FEW010 OVC017 01/00 A2957 RMK AO2 P0002 T00060000KIGM2019-02-21T10:04:00Z35.25-113.930.60.020091.7529.568897TRUETRUE-SN BRIFR0.02SPECI1032.02019-02-21 10:08:53O )5    3KLVJ 211004Z AUTO 05007KT 10SM OVC029 13/11 A2992 RMK AO2 T01280106KLVJ2019-02-21T10:04:00Z29.52-95.2512.810.650710.029.920275TRUETRUEMVFRSPECI12.02019-02-21 10:08:53 #AdO)5     3KFLO 211004Z AUTO 00000KT 2SM BR OVC003 06/06 A3010 RMK AO2 T00610061KFLO2019-02-21T10:04:00Z34.18-79.736.16.1002.030.100393TRUETRUEBRLIFRSPECI44.02019-02-21 10:08:53W)!5     3KFOE 211004Z AUTO 00000KT 1SM BR CLR M09/M12 A3006 RMK AO2 T10941117 RVRNOKFOE2019-02-21T10:04:00Z38.93-95.65-9.4-11.7001.030.059055TRUETRUEBRIFRSPECI320.02019-02-21 10:08:53\)!5     3KFYV 211004Z AUTO 00000KT 1/2SM FZFG VV002 M02/M03 A3006 RMK AO2 T10221028KFYV2019-02-21T10:04:00Z36.02-94.17-2.2-2.8000.530.059055TRUETRUEFZFGLIFR200SPECI379.02019-02-21 10:08:53W)%5     3KGNV 211004Z AUTO 00000KT 3SM BR SCT006 OVC065 19/17 A3011 RMK AO2 T01890172KGNV2019-02-21T10:04:00Z29.7-82.2818.917.2003.030.109253TRUETRUEBRMVFRSPECI45.02019-02-21 10:08:53 q*5QqZ))5     3KVSF 211003Z AUTO 00000KT 3SM BR BKN005 OVC013 M05/M06 A2993 RMK AO2 T10501056KVSF2019-02-21T10:03:00Z43.35-72.52-5.0-5.6003.029.929134TRUETRUEBRIFRMETAR175.02019-02-21 10:08:53^)%5      3PAHY 211004Z AUTO 00000KT 3SM BR SCT024 OVC100 00/M01 A3016 RMK AO2 FZRANO $PAHY2019-02-21T10:04:00Z55.2-132.830.0-1.0003.030.159449TRUETRUETRUETRUEBRMVFRMETAR1.02019-02-21 10:08:53o)=5      3KALW 211004Z AUTO 16003KT 2SM -SN BR SCT017 OVC026 M03/M04 A2996 RMK AO2 P0000 T10281044KALW2019-02-21T10:04:00Z46.1-118.28-2.8-4.416032.029.958662TRUETRUE-SN BRIFR0.005SPECI363.02019-02-21 10:08:53P)5     3KEWN 211004Z AUTO 30003KT 2SM BR OVC002 09/09 A3011 RMK AO2 T00890089KEWN2019-02-21T10:04:00Z35.07-77.058.98.930032.030.109253TRUETRUEBRLIFRSPECI3.02019-02-21 10:08:53 S (SO)5     3KPBF 211003Z AUTO 00000KT 6SM BR BKN001 01/00 A3010 RMK AO2 T00110000KPBF2019-02-21T10:03:00Z34.18-91.931.10.0006.030.100393TRUETRUEBRLIFRMETAR62.02019-02-21 10:08:53c)35    3KCKB 211003Z AUTO 29010KT 10SM BKN017 BKN024 OVC055 11/08 A2998 RMK AO2 T01060078 $KCKB2019-02-21T10:03:00Z39.3-80.2210.67.82901010.029.97933TRUETRUETRUEMVFRMETAR360.02019-02-21 10:08:53t)[5    3OAKN 211003Z 23008KT 9999 CLR 09/M01 A3022 RMK AO2A SLP222 WND DATA ESTMD Q1024 PA3020 DA3009 T00881008OAKN2019-02-21T10:03:00Z31.565.838.8-0.823086.2130.2214571022.2TRUEVFRMETAR1010.02019-02-21 10:08:53o)E5      3KVPC 211003Z AUTO 09004KT 4SM RA BR OVC012 07/06 A3006 RMK AO2 LTG DSNT NW-E P0003 T00670061KVPC2019-02-21T10:03:00Z34.13-84.856.76.19044.030.059055TRUETRUERA BRMVFR0.03METAR222.02019-02-21 10:08:53 Y(KMYn)=5      3KGSP 211003Z AUTO 00000KT 3SM -RA BR SCT002 OVC012 04/04 A3004 RMK AO2 P0002 T00440039 $KGSP2019-02-21T10:03:00Z34.9-82.224.43.9003.030.041338TRUETRUETRUE-RA BRMVFR0.02METAR287.02019-02-21 10:08:53x)K5      3KGCN 211003Z AUTO 18009KT 6SM -SN BR BKN009 BKN025 OVC036 M06/M08 A2955 RMK AO2 P0000 T10611078KGCN2019-02-21T10:03:00Z35.95-112.15-6.1-7.818096.029.551182TRUETRUE-SN BRIFR0.005SPECI2016.02019-02-21 10:08:53W)#5    3KSTP 211003Z AUTO 00000KT 7SM FEW008 SCT014 M12/M14 A2992 RMK AO2 T11171144KSTP2019-02-21T10:03:00Z44.93-93.05-11.7-14.4007.029.920275TRUETRUEVFRMETAR219.02019-02-21 10:08:53R)5     3KSSI 211003Z AUTO 19003KT 3SM BR SCT008 18/17 A3007 RMK AO2 T01780172KSSI2019-02-21T10:03:00Z31.15-81.3817.817.219033.030.070866TRUETRUEBRMVFRMETAR6.02019-02-21 10:08:53 **?2!(g5    3DATM 211000Z 36010KT 3500 HZ NSC 19/M05 Q1018DATM2019-02-21T10:00:00Z21.380.9219.0-5.0360102.1730.059055HZIFRSPECI396.02019-02-21 10:08:53e )-5     3KGSB 211002Z 17003KT 1SM R26/4500VP6000FT BR VV002 06/05 A3005 RMK AO2A SLP180 $KGSB2019-02-21T10:02:00Z35.32-77.976.05.017031.030.0501981018.0TRUETRUEBRLIFR200SPECI33.02019-02-21 10:08:53z)S5    3PGUA 211002Z 05016G25KT 10SM BKN015 25/23 A2989 RMK DZB0856 CIG 009 RWY24L SLP112 P0000 T02500225 $PGUA2019-02-21T10:02:00Z13.57144.9225.022.550162510.029.8907471011.2TRUEMVFR0.005METAR187.02019-02-21 10:08:53P)5    3KMSP 211003Z 25007KT 7SM SCT017 BKN200 M13/M14 A2990 RMK AO2 T11281144KMSP2019-02-21T10:03:00Z44.88-93.23-12.8-14.425077.029.899607TRUEVFRSPECI265.02019-02-21 10:08:53 yK;y<&(u5    3YBCG 211000Z AUTO 18011KT 9999 // BKN023 26/21 Q1009YBCG2019-02-21T10:00:00Z-28.17153.526.021.0180116.2129.793306TRUEMVFRMETAR6.02019-02-21 10:08:53(%(Y5   3DAFH 211000Z 10022KT CAVOK 12/00 Q1027DAFH2019-02-21T10:00:00Z32.933.3212.00.0100226.2130.324802VFRSPECI774.02019-02-21 10:08:53-$(e5   3DAOL 211000Z 08008KT 6000 FEW016 14/09 Q1028DAOL2019-02-21T10:00:00Z35.53-0.5214.09.08083.7330.35433MVFRSPECI112.02019-02-21 10:08:53)#([5   3DAOR 211000Z 09008KT CAVOK 15/M06 Q1027DAOR2019-02-21T10:00:00Z31.65-2.2715.0-6.09086.2130.324802VFRSPECI773.02019-02-21 10:08:53/"(k5    3DAOV 211000Z 07002KT 4000 BR FEW016 11/06 Q1028DAOV2019-02-21T10:00:00Z35.20.1511.06.07022.4930.35433BRIFRSPECI514.02019-02-21 10:08:53 I/(+(Y5   3LPMR 211000Z 14012KT CAVOK 13/09 Q1024LPMR2019-02-21T10:00:00Z39.82-8.8713.09.0140126.2130.236221VFRMETAR54.02019-02-21 10:08:53,*(e5   3LPMT 211000Z 13009KT 9999 FEW030 13/09 Q1024LPMT2019-02-21T10:00:00Z38.7-9.0513.09.013096.2130.236221VFRMETAR11.02019-02-21 10:08:530)(e5   3LPST 211000Z 12010KT 9999 BKN022 12/09 Q1024LPST2019-02-21T10:00:00Z38.82-9.3212.09.0120106.2130.236221MVFRMETAR130.02019-02-21 10:08:53,((e5   3LPAR 211000Z 15004KT 9999 FEW020 11/09 Q1025LPAR2019-02-21T10:00:00Z38.88-9.0311.09.015046.2130.265747VFRMETAR3.02019-02-21 10:08:531'(e5   3YAMB 211000Z 14013KT 9999 SCT046 29/17 Q1008YAMB2019-02-21T10:00:00Z-27.63152.7229.017.0140136.2129.763779VFRMETAR28.02019-02-21 10:08:53 vU%v)0(Y5   3SUSO 211000Z 06005KT CAVOK 23/20 Q1011SUSO2019-02-21T10:00:00Z-31.43-57.9823.020.06056.2129.852362VFRMETAR34.02019-02-21 10:08:535/(s5   3SULS 211000Z 30002KT 9999 SCT026 BKN200 24/21 Q1012SULS2019-02-21T10:00:00Z-34.87-55.124.021.030026.2129.88189VFRMETAR30.02019-02-21 10:08:538.(s5   3SUAA 211000Z 18012KT 9999 FEW040 BKN200 25/21 Q1013SUAA2019-02-21T10:00:00Z-34.77-56.2525.021.0180126.2129.911417VFRMETAR54.02019-02-21 10:08:531-(e5   3VOCP 211000Z 10014KT 6000 FEW020 36/16 Q1013VOCP2019-02-21T10:00:00Z14.4778.8236.016.0100143.7329.911417MVFRMETAR130.02019-02-21 10:08:53%,(Y5   3LPOV 211000Z VRB01KT CAVOK 13/09 Q1023LPOV2019-02-21T10:00:00Z40.92-8.6513.09.0016.2130.206694VFRMETAR17.02019-02-21 10:08:53 xM0x25(k5   3LRCV 211000Z 23004KT 200V280 CAVOK 10/M02 Q1025LRCV2019-02-21T10:00:00Z44.3223.8810.0-2.023046.2130.265747VFRMETAR191.02019-02-21 10:08:53*4([5   3LRIA 211000Z 31016KT CAVOK 08/M03 Q1022LRIA2019-02-21T10:00:00Z47.1727.628.0-3.0310166.2130.177166VFRMETAR104.02019-02-21 10:08:53/3(g5   3LRTC 211000Z 33011KT 9999 FEW049 12/M03 Q1023LRTC2019-02-21T10:00:00Z45.0728.7212.0-3.0330116.2130.206694VFRMETAR6.02019-02-21 10:08:5322(k5   3LRSV 211000Z 30013KT 270V330 CAVOK 07/M03 Q1021LRSV2019-02-21T10:00:00Z47.6826.357.0-3.0300136.2130.147638VFRMETAR351.02019-02-21 10:08:53-1(e5   3SUDU 211000Z 06005KT 9999 FEW030 21/20 Q1012SUDU2019-02-21T10:00:00Z-33.35-56.521.020.06056.2129.88189VFRMETAR93.02019-02-21 10:08:53 oMo&:(Y5   3LRSM 211000Z 27005KT CAVOK 07/01 Q1026LRSM2019-02-21T10:00:00Z47.722.887.01.027056.2130.295275VFRMETAR124.02019-02-21 10:08:53)9([5   3LRTM 211000Z 24009KT CAVOK 07/M01 Q1025LRTM2019-02-21T10:00:00Z46.4724.427.0-1.024096.2130.265747VFRMETAR309.02019-02-21 10:08:5398(q5     3VECC 211000Z 32005KT 4000 HZ NSC 33/14 Q1013 NOSIGVECC2019-02-21T10:00:00Z22.6588.4333.014.032052.4929.911417TRUEHZIFRMETAR6.02019-02-21 10:08:53>7(5    3TGPY 211000Z 08016KT 9999 FEW017 25/20 Q1014 ADJ SHRA-ENETGPY2019-02-21T10:00:00Z12.0-61.7825.020.080166.2129.940945SHRAVFRMETAR7.02019-02-21 10:08:53-6(g5   3LRBC 211000Z VRB03KT 9999 BKN060 09/M01 Q1023LRBC2019-02-21T10:00:00Z46.5226.929.0-1.0036.2130.206694VFRMETAR185.02019-02-21 10:08:53 K61?(k5    3LRTR 211000Z VRB02KT 8000 NSC 06/00 Q1028 NOSIGLRTR2019-02-21T10:00:00Z45.8221.336.00.0024.9730.35433TRUEMVFRMETAR88.02019-02-21 10:08:53%>(Y5   3LRAR 211000Z VRB03KT CAVOK 07/01 Q1027LRAR2019-02-21T10:00:00Z46.1821.277.01.0036.2130.324802VFRMETAR118.02019-02-21 10:08:53/=(g5   3LRBM 211000Z 26007KT 9999 BKN040 05/M01 Q1026LRBM2019-02-21T10:00:00Z47.6723.475.0-1.026076.2130.295275VFRMETAR185.02019-02-21 10:08:53/<(g5   3LRCL 211000Z 29009KT 9999 OVC065 08/M04 Q1025LRCL2019-02-21T10:00:00Z46.7823.688.0-4.029096.2130.265747VFRMETAR413.02019-02-21 10:08:53/;(i5   3LROD 211000Z 23003KT 190V260 CAVOK 07/01 Q1027LROD2019-02-21T10:00:00Z47.0321.927.01.023036.2130.324802VFRMETAR140.02019-02-21 10:08:53 48s4/D(e5   3MKJP 211000Z 12016KT 9999 FEW022 26/16 Q1015MKJP2019-02-21T10:00:00Z17.92-76.7826.016.0120166.2129.970472VFRMETAR3.02019-02-21 10:08:53:C(w5    3LRBS 211000Z 20008KT 150V230 CAVOK 11/M01 Q1025 NOSIGLRBS2019-02-21T10:00:00Z44.526.0811.0-1.020086.2130.265747TRUEVFRMETAR91.02019-02-21 10:08:53DB)5    3LRCK 211000Z 27010KT 240V310 9999 FEW045 11/M01 Q1023 NOSIGLRCK2019-02-21T10:00:00Z44.3728.4811.0-1.0270106.2130.206694TRUEVFRMETAR108.02019-02-21 10:08:53?A)5    3LROP 211000Z 23009KT 200V260 9999 FEW042 12/02 Q1024 NOSIGLROP2019-02-21T10:00:00Z44.5726.112.02.023096.2130.236221TRUEVFRMETAR95.02019-02-21 10:08:53B@)5    3LRSB 211000Z 36005KT 340V040 9999 SCT053 06/M03 Q1026 NOSIGLRSB2019-02-21T10:00:00Z45.7824.086.0-3.036056.2130.295275TRUEVFRMETAR444.02019-02-21 10:08:53 H6*I([5   3OIIS 211000Z 13004KT CAVOK 08/M08 Q1023OIIS2019-02-21T10:00:00Z35.3853.678.0-8.013046.2130.206694VFRMETAR1115.02019-02-21 10:08:53,H(e5   3OIKO 211000Z 32004KT CAVOK 25/00 Q1019 A3012OIKO2019-02-21T10:00:00Z27.1357.125.00.032046.2130.088583VFRMETAR27.02019-02-21 10:08:53(G(Y5   3OINB 211000Z 08010KT CAVOK 10/03 Q1019OINB2019-02-21T10:00:00Z36.7252.6510.03.080106.2130.088583VFRMETAR-15.02019-02-21 10:08:53,F(e5   3OINK 211000Z 16004KT CAVOK 17/02 Q1017 A3004OINK2019-02-21T10:00:00Z37.2555.117.02.016046.2130.029528VFRMETAR33.02019-02-21 10:08:532E(g5   3OISA 211000Z 21016KT CAVOK 10/M12 Q1020 A3013OISA2019-02-21T10:00:00Z31.0352.7810.0-12.0210166.2130.11811VFRMETAR2004.02019-02-21 10:08:53 bI(b@N)5   3RJOT 211000Z 36003KT 320V040 9999 FEW025 BKN050 07/M01 Q1023RJOT2019-02-21T10:00:00Z34.22134.027.0-1.036036.2130.206694VFRMETAR188.02019-02-21 10:08:532M(i5    3OJAQ 211000Z 01010KT 4000 HZ 18/07 Q1017 NOSIGOJAQ2019-02-21T10:00:00Z29.6235.0218.07.010102.4930.029528TRUEHZMETAR51.02019-02-21 10:08:536L(s5   3OICJ 211000Z 19018KT 9999 BKN040 09/M05 Q1019 A3011OICJ2019-02-21T10:00:00Z33.948.759.0-5.0190186.2130.088583VFRMETAR1600.02019-02-21 10:08:53'K([5   3OIFK 211000Z 00000KT CAVOK 11/M08 Q1021OIFK2019-02-21T10:00:00Z33.951.5811.0-8.0006.2130.147638VFRMETAR982.02019-02-21 10:08:531J(g5   3OIHM 211000Z 20010KT 9999 FEW040 09/M09 Q1019OIHM2019-02-21T10:00:00Z34.2848.829.0-9.0200106.2130.088583VFRMETAR1726.02019-02-21 10:08:53 SES/S(i5   3RJFT 211000Z 06004KT 010V090 CAVOK 10/04 Q1020RJFT2019-02-21T10:00:00Z32.82130.8310.04.06046.2130.11811VFRMETAR196.02019-02-21 10:08:53(R(Y5   3RJFU 211000Z 36014KT CAVOK 11/03 Q1021RJFU2019-02-21T10:00:00Z32.92129.9211.03.0360146.2130.147638VFRMETAR5.02019-02-21 10:08:53FQ) 5    3RJNK 211000Z 07004KT 9999 -SHRA FEW010 BKN030 BKN050 06/02 Q1024RJNK2019-02-21T10:00:00Z36.37136.426.02.07046.2130.236221-SHRAMVFRMETAR9.02019-02-21 10:08:53=P)5   3RJOA 211000Z 07003KT 040V110 9999 FEW020 BKN045 05/M01 Q1022RJOA2019-02-21T10:00:00Z34.42132.925.0-1.07036.2130.177166VFRMETAR6.02019-02-21 10:08:535O(u5   3RJOB 211000Z VRB02KT 9999 FEW025 BKN040 06/M01 Q1022RJOB2019-02-21T10:00:00Z34.75133.836.0-1.0026.2130.177166VFRMETAR242.02019-02-21 10:08:53 ?_GW)5    3RJFF 211000Z 03005KT 350V070 9999 FEW040 BKN/// 10/01 Q1022 NOSIGRJFF2019-02-21T10:00:00Z33.57130.4310.01.03056.2130.177166TRUEVFRMETAR12.02019-02-21 10:08:53>V) 5   3RJCC 211000Z 23002KT 9999 FEW020 M01/M05 Q1016 RMK 1CU020 A3001RJCC2019-02-21T10:00:00Z42.77141.67-1.0-5.023026.2130.0VFRMETAR30.02019-02-21 10:08:53ZU)?5   3RJFK 211000Z 03005KT 9999 FEW030 SCT120 BKN170 10/03 Q1020 RMK 1CU030 3AC120 7AC170 A3013RJFK2019-02-21T10:00:00Z31.8130.7210.03.03056.2130.11811VFRMETAR275.02019-02-21 10:08:53;T)5   3RJSN 211000Z 19008KT 9999 FEW020 SCT030 BKN045 05/03 Q1022RJSN2019-02-21T10:00:00Z37.95139.125.03.019086.2130.177166VFRMETAR4.02019-02-21 10:08:53 SC~S5\(q5    3RJGG 211000Z 32022KT 9999 FEW025 08/02 Q1020 NOSIGRJGG2019-02-21T10:00:00Z34.87136.88.02.0320226.2130.11811TRUEVFRMETAR5.02019-02-21 10:08:53/[(g5   3RJCH 211000Z 28009KT 9999 FEW040 01/M05 Q1017RJCH2019-02-21T10:00:00Z41.77140.821.0-5.028096.2130.029528VFRMETAR36.02019-02-21 10:08:535Z(w5   3RJSS 211000Z 01005KT 310V080 9999 FEW030 05/M02 Q1019RJSS2019-02-21T10:00:00Z38.12140.925.0-2.01056.2130.088583VFRMETAR5.02019-02-21 10:08:53?Y(5    3TTPP 211000Z 09009KT 9999 FEW014 BKN040 25/20 Q1014 NOSIGTTPP2019-02-21T10:00:00Z10.58-61.3525.020.09096.2129.940945TRUEVFRMETAR15.02019-02-21 10:08:537X(q5    3TTCP 211000Z 09004KT 9999 FEW016 24/19 Q1014 NOSIGTTCP2019-02-21T10:00:00Z11.15-60.8524.019.09046.2129.940945TRUEVFRMETAR8.02019-02-21 10:08:53 6V@`)5    3RJBB 211000Z 35015KT 9999 FEW025 BKN050 08/M00 Q1023 NOSIGRJBB2019-02-21T10:00:00Z34.42135.258.00.0350156.2130.206694TRUEVFRMETAR8.02019-02-21 10:08:53Z_)15    3RJTT 211000Z 31011KT 9999 FEW030 BKN080 12/M03 Q1019 NOSIG RMK 1CU030 7AC080 A3009RJTT2019-02-21T10:00:00Z35.53139.7712.0-3.0310116.2130.088583TRUEVFRMETAR8.02019-02-21 10:08:53W^)55   3RJOO 211000Z 34006KT 310V020 9999 FEW025 BKN040 08/M01 Q1023 RMK 1CU025 6CU040 A3022RJOO2019-02-21T10:00:00Z34.77135.438.0-1.034066.2130.206694VFRMETAR15.02019-02-21 10:08:53g])Y5    3ROAH 211000Z 09007KT 050V120 9999 VCSH FEW015 SCT025 BKN045 23/19 Q1016 RMK 1CU015 3CU025 6SC045 A3002ROAH2019-02-21T10:00:00Z26.17127.6523.019.09076.2130.0VCSHVFRMETAR8.02019-02-21 10:08:53 Z9uZ0e(s5   3ROIG 211000Z 22009KT 9999 FEW017 SCT043 24/20 Q1016ROIG2019-02-21T10:00:00Z24.32124.1724.020.022096.2130.0VFRMETAR7.02019-02-21 10:08:53&d(Y5   3RJFS 211000Z 36009KT CAVOK 10/02 Q1021RJFS2019-02-21T10:00:00Z33.15130.310.02.036096.2130.147638VFRMETAR5.02019-02-21 10:08:533c(s5   3RJFO 211000Z 28002KT 9999 FEW035 BKN/// 08/04 Q1022RJFO2019-02-21T10:00:00Z33.47131.728.04.028026.2130.177166VFRMETAR8.02019-02-21 10:08:53>b(5    3RJNT 211000Z VRB01KT 9999 -SHRA FEW015 BKN025 06/03 Q1023RJNT2019-02-21T10:00:00Z36.63137.176.03.0016.2130.206694-SHRAMVFRMETAR27.02019-02-21 10:08:53Aa)5   3RJAA 211000Z VRB02KT 9999 FEW030 SCT070 06/01 Q1019 BECMG 02005KTRJAA2019-02-21T10:00:00Z35.77140.376.01.0026.2130.088583VFRMETAR44.02019-02-21 10:08:53 2F2Hj)5   3RJCK 211000Z 22005KT 190V250 9999 FEW005 SCT006 BKN008 M02/M03 Q1014RJCK2019-02-21T10:00:00Z43.02144.18-2.0-3.022056.2129.940945IFRMETAR98.02019-02-21 10:08:538i(w5   3RJCM 211000Z 15003KT 9999 FEW020 SCT050 M05/M08 Q1014RJCM2019-02-21T10:00:00Z43.88144.17-5.0-8.015036.2129.940945VFRMETAR36.02019-02-21 10:08:53Bh)5   3RJCB 211000Z 23003KT 190V300 9999 FEW008 SCT050 M05/M05 Q1013RJCB2019-02-21T10:00:00Z42.72143.22-5.0-5.023036.2129.911417VFRMETAR152.02019-02-21 10:08:53:g)5   3RJOC 211000Z 07007KT 9999 FEW030 SCT040 BKN050 08/02 Q1024RJOC2019-02-21T10:00:00Z35.42132.878.02.07076.2130.236221VFRMETAR5.02019-02-21 10:08:534f(u5   3RJOH 211000Z 04008KT 9999 FEW035 BKN050 08/M03 Q1024RJOH2019-02-21T10:00:00Z35.47133.258.0-3.04086.2130.236221VFRMETAR9.02019-02-21 10:08:53 6E6l)5   3RJSK 211000Z 29011KT 9999 FEW015 SCT030 BKN040 04/M02 Q1020RJSK2019-02-21T10:00:00Z39.62140.224.0-2.0290116.2130.11811VFRMETAR96.02019-02-21 10:08:535k(u5   3RJAH 211000Z 02006KT 9999 FEW030 SCT070 07/M02 Q1018RJAH2019-02-21T10:00:00Z36.17140.427.0-2.02066.2130.059055VFRMETAR35.02019-02-21 10:08:53 \@\/t(u5   3FDBB 211000Z AUTO 17008KT //// // ////// 31/21 Q1016FDBB2019-02-21T10:00:00Z-26.8531.9231.021.0170830.0TRUEMETAR94.02019-02-21 10:08:534s(u5   3FDMY 211000Z AUTO 06003KT //// // ////// 29/21 Q1029FDMY2019-02-21T10:00:00Z-25.8731.5229.021.060330.383858TRUEMETAR480.02019-02-21 10:08:536r(u5   3FDPP 211000Z AUTO 18004KT //// // ////// 22/18 Q1026FDPP2019-02-21T10:00:00Z-25.9731.2522.018.0180430.295275TRUEMETAR1099.02019-02-21 10:08:533q(u5   3FDST 211000Z AUTO 00000KT //// // ////// 25/21 Q1021FDST2019-02-21T10:00:00Z-26.4331.9525.021.00030.147638TRUEMETAR667.02019-02-21 10:08:53:p(u5    3FABL 211000Z 30009KT 250V340 CAVOK 30/06 Q1022 NOSIGFABL2019-02-21T10:00:00Z-29.126.330.06.030096.2130.177166TRUEVFRMETAR1348.02019-02-21 10:08:53 &DsWx)!5    3CYYU 211000Z 02003KT 3SM -SN SCT023 OVC036 M07/M09 A2961 RMK SC4SC4 SLP043CYYU2019-02-21T10:00:00Z49.42-82.47-7.0-9.02033.029.6102371004.3-SNMVFRMETAR227.02019-02-21 10:08:53Kw)5    3CYYW 211000Z AUTO 32003KT 9SM OVC065 M14/M16 A2974 RMK SLP107CYYW2019-02-21T10:00:00Z50.3-88.9-14.0-16.032039.029.7401581010.7TRUEVFRMETAR351.02019-02-21 10:08:53\v)5     3CZMD 211000Z AUTO 35003KT 320V030 9SM -SN OVC060 M17/M19 A2990 RMK SLP152CZMD2019-02-21T10:00:00Z53.43-91.77-17.0-19.035039.029.8996071015.2TRUE-SNVFRMETAR278.02019-02-21 10:08:53Tu)5     3CZSJ 211000Z AUTO 34004KT 9SM -SN OVC048 M20/M21 A2990 RMK SLP156CZSJ2019-02-21T10:00:00Z53.07-93.35-20.0-21.034049.029.8996071015.6TRUE-SNVFRMETAR290.02019-02-21 10:08:53 n(Pn\|)/5   3CYVQ 211000Z 06003KT 30SM FEW015 SCT070 BKN140 M27/M30 A3015 RMK SC1AC3AC1 SLP220CYVQ2019-02-21T10:00:00Z65.27-126.78-27.0-30.060330.030.150591022.0VFRMETAR74.02019-02-21 10:08:53R{)5    3CYXL 211000Z 34002KT 3SM -SN OVC040 M10/M11 A2978 RMK SN4SC4 SLP115CYXL2019-02-21T10:00:00Z50.12-91.9-10.0-11.034023.029.7785431011.5-SNMVFRMETAR390.02019-02-21 10:08:53Wz)5  3CYXU 211000Z 26011G17KT 15SM SCT011 OVC028 01/M01 A2987 RMK SC4SC4 SLP126CYXU2019-02-21T10:00:00Z43.02-81.151.0-1.0260111715.029.8700791012.6MVFRMETAR278.02019-02-21 10:08:53uy)K5   3CYYH 211000Z 17003KT 10SM -SN FEW012 BKN040 BKN050 OVC060 M25/M28 A2990 RMK SC2SC3SC2SC1 SLP130CYYH2019-02-21T10:00:00Z69.53-93.57-25.0-28.0170310.029.8996071013.0-SNOVC6000VFRMETAR28.02019-02-21 10:08:53Y88@HPX`hpx (08@HPX`hpx (08@HPX`hpxKZL^MbNfOkPpQuRyS}TUV KZL^MbNfOkPpQuRyS}TUV W XYZ[\!]&^+_0`5a:b?cDdIeNfSgWh\i`jekjlomtnxo|qrst uvwxy z${(|-}1~59=AEIMQUY]aeimquy}   %*/49=AFKOSW 'L{Y)5     3CYRQ 211000Z AUTO 05010KT 3/4SM -SN VV010 M09/M10 A2983 RMK SLP106CYRQ2019-02-21T10:00:00Z46.35-72.68-9.0-10.050100.7529.8287411010.6TRUE-SNLIFR1000METAR61.02019-02-21 10:08:53K) 5    3CYSB 211000Z 20004KT 3SM -SN OVC007 M07/M09 A2958 RMK SF8 SLP041CYSB2019-02-21T10:00:00Z46.63-80.8-7.0-9.020043.029.580711004.1-SNIFRMETAR348.02019-02-21 10:08:53U~) 5     3CYSC 211000Z AUTO 11005KT 1SM -SN VV005 M06/M07 A2982 RMK SLP114CYSC2019-02-21T10:00:00Z45.43-71.68-6.0-7.011051.029.8198811011.4TRUE-SNLIFR500METAR241.02019-02-21 10:08:53S})5     3CYVO 211000Z AUTO 15008KT 3SM -SN OVC032 M09/M09 A2959 RMK SLP046CYVO2019-02-21T10:00:00Z48.07-77.77-9.0-9.015083.029.5895671004.6TRUE-SNMVFRMETAR337.02019-02-21 10:08:53 )QdS)5    3CYLH 211000Z AUTO 33002KT 9SM BKN150 BKN170 M23/M25 A2979 RMK SLP114CYLH2019-02-21T10:00:00Z52.2-87.93-23.0-25.033029.029.7903541011.4TRUEVFRMETAR254.02019-02-21 10:08:53g);5   3CYQA 211000Z AUTO 26014G22KT 210V290 9SM SCT008 OVC014 01/M01 A2969 RMK ICG MISG SLP069CYQA2019-02-21T10:00:00Z44.97-79.281.0-1.026014229.029.689961006.9TRUEMVFRMETAR282.02019-02-21 10:08:53R) 5    3CYQK 211000Z 36004KT 3SM -SN VV024 M09/M10 A2981 RMK SN8 SLP125CYQK2019-02-21T10:00:00Z49.77-94.37-9.0-10.036043.029.8110241012.5-SNLIFR2400METAR411.02019-02-21 10:08:53Q)5    3CYRB 211000Z 32015KT 12SM -SN FEW040 M31/M35 A2976 RMK SC2 SLP093CYRB2019-02-21T10:00:00Z74.72-94.97-31.0-35.03201512.029.7608261009.3-SNVFRMETAR67.02019-02-21 10:08:53 &V{L)5    3CYER 211000Z AUTO 36007KT 9SM OVC006 M23/M25 A3007 RMK SLP185CYER2019-02-21T10:00:00Z56.02-87.68-23.0-25.036079.030.0708661018.5TRUEIFRMETAR16.02019-02-21 10:08:53U)5    3CYGQ 211000Z 35005KT 2 1/2SM -SN OVC042 M08/M10 A2968 RMK SN4NS4 SLP075CYGQ2019-02-21T10:00:00Z49.77-86.92-8.0-10.035052.529.6811031007.5-SNIFRMETAR351.02019-02-21 10:08:53J)5    3CYKL 211000Z AUTO 11006KT 9SM CLR M29/M32 A2978 RMK SLP154CYKL2019-02-21T10:00:00Z54.78-66.82-29.0-32.011069.029.7785431015.4TRUEVFRMETAR521.02019-02-21 10:08:53T)5    3CYKP 211000Z AUTO 03004KT 9SM BKN170 M15/M18 A2976 RMK ICG MISG SLP098CYKP2019-02-21T10:00:00Z51.67-85.9-15.0-18.03049.029.7608261009.8TRUEVFRMETAR179.02019-02-21 10:08:53 *:cK )5    3CYAT 211000Z AUTO 04004KT 9SM OVC001 M23/M25 A2986 RMK SLP112CYAT2019-02-21T10:00:00Z52.93-82.43-23.0-25.04049.029.8612211011.2TRUELIFRMETAR9.02019-02-21 10:08:53Q )5     3CYBC 211000Z AUTO 06007KT 3SM -SN OVC008 M10/M12 A3004 RMK SLP175CYBC2019-02-21T10:00:00Z49.12-68.2-10.0-12.06073.030.0413381017.5TRUE-SNIFRMETAR22.02019-02-21 10:08:53j )A5   3CYBN 211000Z AUTO 29008G15KT 250V330 9SM OVC026 02/M01 A2975 RMK PCPN 0.5MM PAST HR SLP085CYBN2019-02-21T10:00:00Z44.27-79.922.0-1.02908159.029.7490161008.5TRUEMVFRMETAR223.02019-02-21 10:08:53P )5    3CYCK 211000Z AUTO 26012KT 9SM SCT025 OVC034 02/M01 A2992 RMK SLP141CYCK2019-02-21T10:00:00Z42.3-82.082.0-1.0260129.029.9202751014.1TRUEVFRMETAR198.02019-02-21 10:08:53 3dZ)!5    3CYHY 211000Z 24002KT 9SM -SN BKN065 BKN088 M18/M20 A3019 RMK SC5AC2 SLP245CYHY2019-02-21T10:00:00Z60.82-115.77-18.0-20.024029.030.1889761024.5-SNVFRMETAR166.02019-02-21 10:08:53M)5   3CYRT 211000Z 32018G23KT 15SM IC SKC M34/M38 A3014 RMK SLP216CYRT2019-02-21T10:00:00Z62.82-92.12-34.0-38.0320182315.030.1387791021.6ICVFRMETAR32.02019-02-21 10:08:53I)5    3CYTE 211000Z AUTO 27004KT 9SM CLR M30/M33 A2964 RMK SLP047CYTE2019-02-21T10:00:00Z64.22-76.52-30.0-33.027049.029.6397631004.7TRUEVFRMETAR47.02019-02-21 10:08:53G )5    3CYVM 211000Z AUTO 21009KT 9SM CLR M32/M35 A2950 RMK SLP993CYVM2019-02-21T10:00:00Z67.53-64.02-32.0-35.021099.029.500984999.3TRUEVFRMETAR6.02019-02-21 10:08:53 <p?)5   3CZCP 211000Z AUTO 23010KT ////SM //// OVC006 M22/M25 A3009CZCP2019-02-21T10:00:00Z70.17-124.72-22.0-25.02301030.088583TRUEMETAR93.02019-02-21 10:08:53F(}5    3CYCB 211000Z 27013KT 8SM IC SKC M33/M37 A3007 RMK SLP189CYCB2019-02-21T10:00:00Z69.08-105.12-33.0-37.0270138.030.0708661018.9ICVFRMETAR27.02019-02-21 10:08:53])#5    3CYCO 211000Z 23011KT 1SM IC BR OVC006 M24/M27 A3017 RMK IC6ST2 FROIN SLP221CYCO2019-02-21T10:00:00Z67.82-115.15-24.0-27.0230111.030.1712591022.1IC BRIFRMETAR22.02019-02-21 10:08:53[)#5    3CYFS 211000Z 09002KT 12SM -SN SCT050 OVC078 M12/M14 A3010 RMK SC3AC5 SLP213CYFS2019-02-21T10:00:00Z61.75-121.22-12.0-14.090212.030.1003931021.3-SNVFRMETAR169.02019-02-21 10:08:53 "D}5(q5   3CWUW 211000Z AUTO 33009KT ////SM NCD M33/M36 A2928CWUW2019-02-21T10:00:00Z68.65-71.17-33.0-36.0330929.279528TRUEMETAR527.02019-02-21 10:08:53A)5   3CWZZ 211000Z AUTO ///// ////SM SCT044 SCT050 BKN065 M23/M25 A2939CWZZ2019-02-21T10:00:00Z58.32-62.57-23.0-25.029.388779TRUEMETAR483.02019-02-21 10:08:53X)5     3CYCA 211000Z AUTO 20005KT 180V240 9SM -SN CLR M23/M28 A2976 RMK SLP080CYCA2019-02-21T10:00:00Z53.68-57.03-23.0-28.020059.029.7608261008.0TRUE-SNVFRMETAR12.02019-02-21 10:08:53X)#5    3CZBF 211000Z AUTO VRB02KT 9SM SCT140 BKN160 BKN180 M23/M26 A3011 RMK SLP205CZBF2019-02-21T10:00:00Z47.62-65.75-23.0-26.0029.030.1092531020.5TRUEVFRMETAR59.02019-02-21 10:08:53 =xa)35    3CWLY 211000Z AUTO 01003KT 310V060 9SM SCT047 BKN065 BKN077 M01/M06 A3017 RMK SLP227CWLY2019-02-21T10:00:00Z50.22-121.58-1.0-6.01039.030.1712591022.7TRUEVFRMETAR229.02019-02-21 10:08:53F)5   3CWOB 211000Z AUTO 25005KT 210V270 ////SM //// OVC004 M25/M27 A2926CWOB2019-02-21T10:00:00Z63.32-64.15-25.0-27.0250529.258858TRUEMETAR367.02019-02-21 10:08:53?)5   3CWPX 211000Z AUTO 27006KT ////SM //// OVC003 M24/M28 A2999CWPX2019-02-21T10:00:00Z69.02-107.82-24.0-28.0270629.991142TRUEMETAR165.02019-02-21 10:08:53=)5   3CWRX 211000Z AUTO 31011KT ////SM //// ////// M34/M38 A2967CWRX2019-02-21T10:00:00Z69.07-79.02-34.0-38.03101129.66929TRUEMETAR41.02019-02-21 10:08:53 DpyV )5    3CYQI 211000Z 13008KT 1SM -SN VV011 M06/M07 A3010 RMK SN8 /S01/ SLP196CYQI2019-02-21T10:00:00Z43.83-66.08-6.0-7.013081.030.1003931019.6-SNLIFR1100METAR43.02019-02-21 10:08:53q)U5    3CYUY 211000Z 13003KT 2SM -SN SCT006 OVC014 M08/M10 A2959 RMK SF4SC4 /S03/ VIS VRB 1 1/2-2 1/2 SLP043CYUY2019-02-21T10:00:00Z48.2-78.82-8.0-10.013032.029.5895671004.3-SNIFRMETAR301.02019-02-21 10:08:53N) 5    3CYWK 211000Z 17007KT 12SM FC SKC M37/M41 A2983 RMK FROIN SLP179CYWK2019-02-21T10:00:00Z52.92-66.87-37.0-41.0170712.029.8287411017.9FCVFRMETAR551.02019-02-21 10:08:536)5  3CWLI 211000Z AUTO 21012KT ////SM //// OVC004 M18/M20 A////CWLI2019-02-21T10:00:00Z69.58-130.9-18.0-20.021012TRUEMETAR102.02019-02-21 10:08:53 1ct\$)5     3CYMT 211000Z AUTO 11008KT 3SM -SN BKN044 OVC065 M12/M14 A2970 RMK SLP087CYMT2019-02-21T10:00:00Z49.77-74.52-12.0-14.011083.029.6988181008.7TRUE-SNMVFRMETAR387.02019-02-21 10:08:53i#)15     3CYNM 211000Z AUTO 09003KT 1SM -SN VV013 M10/M11 A2966 RMK VIS VRB 3/4-1 3/4 SLP067CYNM2019-02-21T10:00:00Z49.77-77.82-10.0-11.09031.029.6604331006.7TRUE-SNLIFR1300METAR281.02019-02-21 10:08:53H")5    3CYPH 211000Z AUTO 27005KT 7SM CLR M29/M32 A2993 RMK SLP140CYPH2019-02-21T10:00:00Z58.45-78.08-29.0-32.027057.029.9291341014.0TRUEVFRMETAR3.02019-02-21 10:08:53I!)5    3CYPX 211000Z AUTO 25009KT 9SM CLR M32/M36 A2986 RMK SLP117CYPX2019-02-21T10:00:00Z60.03-77.27-32.0-36.025099.029.8612211011.7TRUEVFRMETAR23.02019-02-21 10:08:53 ,ZA((u5     3NZCH 211000Z AUTO 35012KT 9999 NCD 23/11 Q1007 NOSIGNZCH2019-02-21T10:00:00Z-43.47172.5523.011.0350126.2129.734253TRUETRUEVFRMETAR34.02019-02-21 10:08:53A'(y5   3CYBX 211000Z 30008KT 15SM SKC M24/M29 A2984 RMK SLP113CYBX2019-02-21T10:00:00Z51.45-57.17-24.0-29.0300815.029.8405511011.3VFRMETAR35.02019-02-21 10:08:53L&)5    3CYGV 211000Z AUTO 34005KT 9SM FEW240 M23/M28 A3009 RMK SLP197CYGV2019-02-21T10:00:00Z50.27-63.62-23.0-28.034059.030.0885831019.7TRUEVFRMETAR33.02019-02-21 10:08:53N%)5   3CYMH 211000Z AUTO 28009G15KT 9SM CLR M23/M29 A2976 RMK SLP082CYMH2019-02-21T10:00:00Z52.28-55.85-23.0-29.02809159.029.7608261008.2TRUEVFRMETAR11.02019-02-21 10:08:53 %*_%9-(q5    3YAYE 211000Z AUTO 07008KT 9999 // NCD 36/M01 Q1012YAYE2019-02-21T10:00:00Z-25.18130.9836.0-1.07086.2129.88189TRUEVFRMETAR496.02019-02-21 10:08:53;,(q5    3YBCV 211000Z AUTO 19005KT 9999 // NCD 30/M01 Q1009YBCV2019-02-21T10:00:00Z-26.38146.2730.0-1.019056.2129.793306TRUEVFRMETAR304.02019-02-21 10:08:534+(u5   3YBDV 211000Z AUTO 18011KT //// // ////// 31/08 Q1011YBDV2019-02-21T10:00:00Z-25.9139.3531.08.01801129.852362TRUEMETAR47.02019-02-21 10:08:53E*)5     3NZAA 211000Z AUTO 02010KT 9999 SCT018/// 22/20 Q1017 NOSIGNZAA2019-02-21T10:00:00Z-37.02174.822.020.020106.2130.029528TRUETRUEVFRMETAR6.02019-02-21 10:08:53P))5    3NZWN 211000Z AUTO 01015KT 9999 BKN020/// 20/17 Q1014 BECMG FM1000 BKN014NZWN2019-02-21T10:00:00Z-41.32174.820.017.010156.2129.940945TRUEMVFRMETAR7.02019-02-21 10:08:53 4rg1)15     3CYXH 211000Z AUTO 34006KT 3SM -SN FEW011 OVC017 M11/M12 A3006 RMK ICG INTMT SLP225CYXH2019-02-21T10:00:00Z50.02-110.72-11.0-12.034063.030.0590551022.5TRUE-SNMVFRMETAR716.02019-02-21 10:08:53!0(m5   3CWIL 211000Z AUTO 25016KT ////SM NCD ///// A////CWIL2019-02-21T10:00:00Z68.32-100.0725016TRUEMETAR36.02019-02-21 10:08:53)5    3CYED 211000Z AUTO 29003KT 9SM OVC018 M15/M17 A3017 RMK SLP271CYED2019-02-21T10:00:00Z53.67-113.47-15.0-17.029039.030.1712591027.1TRUEMVFRMETAR688.02019-02-21 10:08:53 +PRE)5    3CYXY 211000Z 18013KT 15SM -SN OVC060 M09/M13 A2979 RMK SC8 SLP144CYXY2019-02-21T10:00:00Z60.72-135.07-9.0-13.01801315.029.7903541014.4-SNVFRMETAR703.02019-02-21 10:08:53KD)5    3CYYD 211000Z AUTO 16005KT 9SM CLR M11/M13 A3014 RMK SLP237CYYD2019-02-21T10:00:00Z54.82-127.18-11.0-13.016059.030.1387791023.7TRUEVFRMETAR523.02019-02-21 10:08:53UC)5   3CYYE 211000Z 17004KT 15SM FEW067 BKN200 M18/M20 A3004 RMK AC2CI3 SLP208CYYE2019-02-21T10:00:00Z58.82-122.57-18.0-20.0170415.030.0413381020.8VFRMETAR382.02019-02-21 10:08:53OB)5   3CYYF 211000Z 33006KT 15SM OVC055 M02/M06 A3010 RMK SC8 VIRGA SLP211CYYF2019-02-21T10:00:00Z49.47-119.58-2.0-6.0330615.030.1003931021.1VFRMETAR344.02019-02-21 10:08:53 -d^I)-5   3CYQU 211000Z 32002KT 15SM FEW240 M25/M28 A3016 RMK CI1 VIS NE-E 3 FG BANK SLP277CYQU2019-02-21T10:00:00Z55.18-118.88-25.0-28.0320215.030.1594491027.7VFRMETAR669.02019-02-21 10:08:53CH(y5   3CYWL 211000Z 27008KT 15SM SKC M12/M14 A3007 RMK SLP245CYWL2019-02-21T10:00:00Z52.18-122.07-12.0-14.0270815.030.0708661024.5VFRMETAR940.02019-02-21 10:08:53CG(y5   3CYXJ 211000Z 13006KT 15SM SKC M17/M20 A3007 RMK SLP245CYXJ2019-02-21T10:00:00Z56.25-120.73-17.0-20.0130615.030.0708661024.5VFRMETAR695.02019-02-21 10:08:53MF) 5    3CYXT 211000Z 00000KT 3SM BR VV004 M05/M06 A3020 RMK FG8 SLP240CYXT2019-02-21T10:00:00Z54.47-128.57-5.0-6.0003.030.2007871024.0BRLIFR400METAR217.02019-02-21 10:08:53 1VoNM) 5  3CYKA 211000Z 27017G27KT 40SM OVC054 M01/M08 A3014 RMK SC8 SLP226CYKA2019-02-21T10:00:00Z50.7-120.45-1.0-8.0270172740.030.1387791022.6VFRMETAR346.02019-02-21 10:08:53aL)-5     3CYLW 211000Z AUTO 04003KT 340V070 9SM -SN BKN049 OVC065 M04/M05 A3010 RMK SLP215CYLW2019-02-21T10:00:00Z49.95-119.37-4.0-5.04039.030.1003931021.5TRUE-SNVFRMETAR430.02019-02-21 10:08:53UK)5   3CYMA 211000Z 12003KT 20SM BKN039 OVC100 M19/M21 A2993 RMK SC6AS2 SLP191CYMA2019-02-21T10:00:00Z63.62-135.87-19.0-21.0120320.029.9291341019.1VFRMETAR504.02019-02-21 10:08:53IJ)5   3CYQH 211000Z VRB02KT 15SM OVC055 M20/M23 A2991 RMK SC8 SLP190CYQH2019-02-21T10:00:00Z60.12-128.82-20.0-23.00215.029.9114171019.0VFRMETAR690.02019-02-21 10:08:53 %L@Q)5   3FNCA 211000Z 35008KT 9999 FEW010 BKN020 FEW023CB 27/23 Q1013FNCA2019-02-21T10:00:00Z-5.5812.1827.023.035086.2129.911417MVFRMETAR20.02019-02-21 10:08:53FP)5    3CBBC 211000Z AUTO 00000KT 9SM CLR M01/M02 A3017 RMK SLP221CBBC2019-02-21T10:00:00Z52.18-128.15-1.0-2.0009.030.1712591022.1TRUEVFRMETAR43.02019-02-21 10:08:53SO)5    3CYDL 211000Z AUTO 00000KT 9SM FEW120 SCT140 M14/M16 A2994 RMK SLP185CYDL2019-02-21T10:00:00Z58.42-130.02-14.0-16.0009.029.9409451018.5TRUEVFRMETAR816.02019-02-21 10:08:53UN)5     3CYIN 211000Z AUTO 28008KT 9SM -SN OVC033 M08/M13 A3003 RMK SLP222CYIN2019-02-21T10:00:00Z51.27-121.68-8.0-13.028089.030.0295281022.2TRUE-SNVFRMETAR1128.02019-02-21 10:08:53 1SfU)55   3CYDP 211000Z 29031G37KT 15SM DRSN FEW110 M22/M28 A2973 RMK AC1 AC TR VIA CYQX SLP069CYDP2019-02-21T10:00:00Z56.53-61.67-22.0-28.0290313715.029.7312981006.9DRSNVFRMETAR7.02019-02-21 10:08:53LT)5    3CYGW 211000Z AUTO 09007KT 9SM OVC014 M18/M20 A2994 RMK SLP140CYGW2019-02-21T10:00:00Z55.27-77.77-18.0-20.09079.029.9409451014.0TRUEMVFRMETAR12.02019-02-21 10:08:53XS)!5    3CYSJ 211000Z 01002KT 2SM -SN BKN012 OVC025 M10/M13 A3008 RMK SC5SC3 SLP196CYSJ2019-02-21T10:00:00Z45.32-65.87-10.0-13.01022.030.0797251019.6-SNIFRMETAR109.02019-02-21 10:08:53IR)5   3CYYG 211000Z 17002KT 15SM BKN180 M13/M17 A3014 RMK CI5 SLP211CYYG2019-02-21T10:00:00Z46.27-63.12-13.0-17.0170215.030.1387791021.1VFRMETAR54.02019-02-21 10:08:53 2Cn/Y(e5   3FNUE 211000Z 08008KT 9999 BKN025 26/17 Q1020FNUE2019-02-21T10:00:00Z-11.7719.926.017.08086.2130.11811MVFRMETAR1329.02019-02-21 10:08:53OX)5   3CYAY 211000Z AUTO 27014G20KT 9SM CLR M21/M25 A2980 RMK SLP096CYAY2019-02-21T10:00:00Z51.38-56.07-21.0-25.027014209.029.7992131009.6TRUEVFRMETAR28.02019-02-21 10:08:53iW)?5    3CYCX 211000Z 00000KT 1 1/2SM -SN VV009 M13/M16 A3009 RMK SN8 DA-3555FT VIS VRB 1-2 SLP194CYCX2019-02-21T10:00:00Z45.82-66.42-13.0-16.0001.530.0885831019.4-SNLIFR900METAR51.02019-02-21 10:08:53HV)5   3CYDF 211000Z 23007KT 15SM FEW015 M18/M23 A2996 RMK SF1 SLP150CYDF2019-02-21T10:00:00Z49.22-57.4-18.0-23.0230715.029.9586621015.0VFRMETAR22.02019-02-21 10:08:53 -HpV])5     3CYXR 211000Z AUTO 13005KT 3SM -SN OVC019 M09/M09 A2959 RMK ICG SLP038CYXR2019-02-21T10:00:00Z47.7-79.83-9.0-9.013053.029.5895671003.8TRUE-SNMVFRMETAR243.02019-02-21 10:08:53R\)5   3CYYY 211000Z 15010KT 15SM FEW050 OVC150 M13/M18 A3002 RMK SC2AC6 SLP171CYYY2019-02-21T10:00:00Z48.6-68.22-13.0-18.01501015.030.020671017.1VFRMETAR52.02019-02-21 10:08:53_[)#5    3CYZE 211000Z AUTO 26026G32KT 4SM -SN FEW019 OVC038 M00/M02 A2966 RMK SLP055CYZE2019-02-21T10:00:00Z45.87-82.570.0-2.026026324.029.6604331005.5TRUE-SNMVFRMETAR193.02019-02-21 10:08:53MZ) 5   3CYZR 211000Z AUTO 25014G20KT 9SM OVC035 03/M03 A2987 RMK SLP125CYZR2019-02-21T10:00:00Z43.0-82.33.0-3.025014209.029.8700791012.5TRUEVFRMETAR181.02019-02-21 10:08:53 -PUa)5    3CYTS 211000Z 12003KT 2SM -SN OVC025 M08/M09 A2956 RMK SN7SC1 /S07/ SLP032CYTS2019-02-21T10:00:00Z48.57-81.37-8.0-9.012032.029.560041003.2-SNIFRMETAR295.02019-02-21 10:08:53A`(y5   3CYVP 211000Z 22007KT 15SM SKC M29/M32 A2987 RMK SLP122CYVP2019-02-21T10:00:00Z58.12-68.42-29.0-32.0220715.029.8700791012.2VFRMETAR60.02019-02-21 10:08:53W_)5  3CYVV 211000Z 24018G24KT 15SM FEW008 OVC026 01/M01 A2975 RMK SF1SC7 SLP086CYVV2019-02-21T10:00:00Z44.75-81.081.0-1.0240182415.029.7490161008.6MVFRMETAR222.02019-02-21 10:08:53M^)5    3CYWA 211000Z AUTO 13003KT 9SM OVC029 M07/M10 A2970 RMK SLP067CYWA2019-02-21T10:00:00Z45.95-77.32-7.0-10.013039.029.6988181006.7TRUEMVFRMETAR130.02019-02-21 10:08:53 $>^Ge)5    3CYPQ 211000Z AUTO 23006KT 9SM OVC034 02/01 A2974 RMK SLP081CYPQ2019-02-21T10:00:00Z44.22-78.372.01.023069.029.7401581008.1TRUEVFRMETAR191.02019-02-21 10:08:53Zd)+5   3CYQT 211000Z 29004KT 260V330 15SM SCT080 BKN110 M06/M08 A2972 RMK AC3AC3 SLP079CYQT2019-02-21T10:00:00Z48.37-89.32-6.0-8.0290415.029.7194881007.9VFRMETAR199.02019-02-21 10:08:53`c)15    3CYRJ 211000Z 07003KT 030V100 2SM -SN OVC026 M15/M17 A2982 RMK SN3NS5 PRESFR SLP115CYRJ2019-02-21T10:00:00Z48.52-72.27-15.0-17.07032.029.8198811011.5-SNIFRMETAR179.02019-02-21 10:08:53Vb)5    3CYRL 211000Z 33003KT 2 1/2SM -SN OVC030 M10/M11 A2982 RMK SN2SC6 SLP127CYRL2019-02-21T10:00:00Z51.07-93.78-10.0-11.033032.529.8198811012.7-SNIFRMETAR383.02019-02-21 10:08:53 1_vTi)5     3CYHD 211000Z AUTO 34004KT 4SM -SN OVC060 M09/M10 A2978 RMK SLP117CYHD2019-02-21T10:00:00Z49.82-92.75-9.0-10.034044.029.7785431011.7TRUE-SNMVFRMETAR413.02019-02-21 10:08:53ch)+5     3CYHU 211000Z AUTO 01003KT 1SM R24R/P6000FT/N -SN VV014 M06/M07 A2978 RMK SLP086CYHU2019-02-21T10:00:00Z45.52-73.42-6.0-7.01031.029.7785431008.6TRUE-SNLIFR1400METAR27.02019-02-21 10:08:53Lg)5    3CYMO 211000Z AUTO 35004KT 9SM OVC110 M14/M17 A2976 RMK SLP080CYMO2019-02-21T10:00:00Z51.28-80.62-14.0-17.035049.029.7608261008.0TRUEVFRMETAR10.02019-02-21 10:08:53If)5    3CYNA 211000Z AUTO 30009KT 9SM CLR M24/M29 A3007 RMK SLP187CYNA2019-02-21T10:00:00Z50.17-61.82-24.0-29.030099.030.0708661018.7TRUEVFRMETAR11.02019-02-21 10:08:53 +^fm)35   3CYAM 211000Z 28014G21KT 15SM DRSN OVC016 M03/M05 A2966 RMK SC8 CIG VRB 12-20 SLP056CYAM2019-02-21T10:00:00Z46.47-84.52-3.0-5.0280142115.029.6604331005.6DRSNMVFRMETAR192.02019-02-21 10:08:53Gl(5  3CYFT 211000Z 25017G23KT 15SM SKC M23/M29 A2973 RMK SLP080CYFT2019-02-21T10:00:00Z55.07-59.17-23.0-29.0250172315.029.7312981008.0VFRMETAR71.02019-02-21 10:08:53Gk)5   3CYGP 211000Z 00000KT 15SM FEW100 M24/M26 A3012 RMK AC2 SLP204CYGP2019-02-21T10:00:00Z48.77-64.47-24.0-26.00015.030.1210631020.4VFRMETAR33.02019-02-21 10:08:53Oj)5   3CYGR 211000Z 25007KT 15SM FEW080 M15/M18 A3012 RMK AC1 AC TR SLP203CYGR2019-02-21T10:00:00Z47.42-61.77-15.0-18.0250715.030.1210631020.3VFRMETAR10.02019-02-21 10:08:53 )cTq)5  3CYYZ 211000Z 25013G22KT 15SM SCT020 BKN040 02/00 A2980 RMK SF3SC4 SLP101CYYZ2019-02-21T10:00:00Z43.67-79.622.00.0250132215.029.7992131010.1VFRMETAR173.02019-02-21 10:08:53Sp)5    3CYZF 211000Z 19003KT 15SM -SN OVC020 M20/M22 A3014 RMK SC8 SLP236CYZF2019-02-21T10:00:00Z62.47-114.45-20.0-22.0190315.030.1387791023.6-SNMVFRMETAR206.02019-02-21 10:08:53@o(y5   3CYZV 211000Z 04007KT 15SM SKC M24/M29 A3010 RMK SLP201CYZV2019-02-21T10:00:00Z50.22-66.27-24.0-29.040715.030.1003931020.1VFRMETAR55.02019-02-21 10:08:53Qn)5   3CYZX 211000Z 05004KT 15SM SCT040 OVC090 M09/M15 A3013 RMK SC4AC4 SLP205CYZX2019-02-21T10:00:00Z44.98-64.92-9.0-15.050415.030.1299211020.5VFRMETAR28.02019-02-21 10:08:53 *bHu) 5   3CYYJ 211000Z 27006KT 20SM SKC 00/M01 A3010 RMK WND ESTD SLP193CYYJ2019-02-21T10:00:00Z48.63-123.420.0-1.0270620.030.1003931019.3VFRMETAR19.02019-02-21 10:08:53Qt)5    3CYYQ 211000Z 29007KT 10SM -SN BKN004 M31/M34 A3024 RMK SF7 SLP247CYYQ2019-02-21T10:00:00Z58.75-94.07-31.0-34.0290710.030.2391741024.7-SNLIFRMETAR29.02019-02-21 10:08:53Bs(y5   3CYYR 211000Z 27019KT 15SM SKC M22/M29 A2990 RMK SLP133CYYR2019-02-21T10:00:00Z53.32-60.42-22.0-29.02701915.029.8996071013.3VFRMETAR49.02019-02-21 10:08:53Pr) 5  3CYYT 211000Z 29019G25KT 15SM SCT013 M16/M19 A2978 RMK SC4 SLP100CYYT2019-02-21T10:00:00Z47.62-52.72-16.0-19.0290192515.029.7785431010.0VFRMETAR140.02019-02-21 10:08:53 (Lwz7:*(o5    3YPGV 211000Z AUTO 35010KT 9999 // NCD 30/26 Q1008YPGV2019-02-21T10:00:00Z-12.27136.8230.026.0350106.2129.763779TRUEVFRMETAR55.02019-02-21 10:08:539)(o5    3YPKG 211000Z AUTO 28006KT 9999 // NCD 39/00 Q1008YPKG2019-02-21T10:00:00Z-30.77121.4539.00.028066.2129.763779TRUEVFRMETAR360.02019-02-21 10:08:53>((u5    3YPEA 211000Z AUTO 25010KT 9999 // BKN027 22/15 Q1013YPEA2019-02-21T10:00:00Z-31.67116.0222.015.0250106.2129.911417TRUEMVFRMETAR49.02019-02-21 10:08:53>')5   3YMHB 211000Z 28009KT 9999 FEW040 SCT060 BKN300 16/06 Q1019YMHB2019-02-21T10:00:00Z-42.82147.5216.06.028096.2130.088583VFRMETAR27.02019-02-21 10:08:53<&(u5    3YMLT 211000Z AUTO 23007KT 9999 // SCT060 16/05 Q1018YMLT2019-02-21T10:00:00Z-41.52147.1816.05.023076.2130.059055TRUEVFRMETAR178.02019-02-21 10:08:53 ^P^8/(u5   3RJSA 211000Z 26012KT 9999 FEW020 SCT030 00/M04 Q1018RJSA2019-02-21T10:00:00Z40.72140.680.0-4.0260126.2130.059055VFRMETAR201.02019-02-21 10:08:53P.)5    3KUKF 211000Z AUTO 00000KT 10SM BKN011 BKN026 BKN090 02/02 A3007 RMK AO2KUKF2019-02-21T10:00:00Z36.22-81.12.02.00010.030.070866TRUETRUEMVFRMETAR396.02019-02-21 10:08:53%-(Y5   3DAUO 211000Z 09010KT CAVOK 16/04 Q1027DAUO2019-02-21T10:00:00Z33.56.7816.04.090106.2130.324802VFRSPECI63.02019-02-21 10:08:53-,(a5   3DAUT 211000Z 06018KT 6000 NSC 16/M01 Q1021DAUT2019-02-21T10:00:00Z29.250.2716.0-1.060183.7330.147638MVFRSPECI312.02019-02-21 10:08:53*+(_5   3DAUU 211000Z 04014KT 7000 NSC 16/04 Q1024DAUU2019-02-21T10:00:00Z31.925.416.04.040144.3530.236221MVFRSPECI141.02019-02-21 10:08:53 :]G4) 5     3ZBSJ 211000Z 13002MPS 1400 R15/1900U HZ NSC 04/M01 Q1026 NOSIGZBSJ2019-02-21T10:00:00Z38.28114.74.0-1.013040.8730.295275TRUEHZLIFRMETAR71.02019-02-21 10:08:53;3(u5     3ZBTJ 211000Z 19001MPS 4000 HZ NSC 06/M05 Q1026 NOSIGZBTJ2019-02-21T10:00:00Z39.12117.356.0-5.019022.4930.295275TRUEHZIFRMETAR3.02019-02-21 10:08:5362(i5    3ZBYN 211000Z 24001MPS CAVOK 07/M17 Q1022 NOSIGZBYN2019-02-21T10:00:00Z37.77112.637.0-17.024026.2130.177166TRUEVFRMETAR779.02019-02-21 10:08:53W1)-5     3ZGGG 211000Z 34008MPS 9999 -SHRA SCT013 FEW033CB BKN033 14/12 Q1016 RETSRA NOSIGZGGG2019-02-21T10:00:00Z23.4113.314.012.0340166.2130.0TRUE-SHRAVFRMETAR15.02019-02-21 10:08:53@0)5   3RJNS 211000Z 25004KT 200V300 9999 FEW020 BKN040 10/M01 Q1018RJNS2019-02-21T10:00:00Z34.8138.1810.0-1.025046.2130.059055VFRMETAR135.02019-02-21 10:08:53 I5 I:9(q5    3FAMM 211000Z 28005KT 9999 FEW040 33/11 Q1023 NOSIGFAMM2019-02-21T10:00:00Z-25.825.5233.011.028056.2130.206694TRUEVFRMETAR1277.02019-02-21 10:08:53:8(q5    3FAPP 211000Z 07008KT 9999 FEW038 33/12 Q1021 NOSIGFAPP2019-02-21T10:00:00Z-23.8329.4533.012.07086.2130.147638TRUEVFRMETAR1242.02019-02-21 10:08:5307(e5   3FAUT 211000Z 12004KT 9999 OVC035 22/15 Q1023FAUT2019-02-21T10:00:00Z-31.5228.6722.015.012046.2130.206694VFRMETAR732.02019-02-21 10:08:5306(e5    3GMFO 211000Z VRB02KT CAVOK 13/08 Q1027 NOSIGGMFO2019-02-21T10:00:00Z34.77-1.9213.08.0026.2130.324802TRUEVFRMETAR470.02019-02-21 10:08:53E5)5     3ZBAA 211000Z 19003MPS 170V230 4500 HZ NSC 09/M10 Q1025 NOSIGZBAA2019-02-21T10:00:00Z40.07116.589.0-10.019062.830.265747TRUEHZIFRMETAR30.02019-02-21 10:08:53 2q9=(o5    3YPPD 211000Z AUTO 33015KT 9999 // NCD 30/25 Q1008YPPD2019-02-21T10:00:00Z-20.37118.6230.025.0330156.2129.763779TRUEVFRMETAR6.02019-02-21 10:08:53K<)5    3YSCB 211000Z AUTO 13009KT 9999 // SCT019 SCT044 BKN056 17/13 Q1020YSCB2019-02-21T10:00:00Z-35.28149.1717.013.013096.2130.11811TRUEVFRMETAR577.02019-02-21 10:08:53;;(o5    3YSDU 211000Z AUTO 10015KT 9999 // NCD 25/14 Q1014YSDU2019-02-21T10:00:00Z-32.22148.5725.014.0100156.2129.940945TRUEVFRMETAR275.02019-02-21 10:08:53H:)5    3YSRI 211000Z AUTO 00000KT 9999 // SCT021 BKN036 BKN054 20/19 Q1018YSRI2019-02-21T10:00:00Z-33.6150.7720.019.0006.2130.059055TRUEVFRMETAR21.02019-02-21 10:08:53 .jEA)5    3ZWSH 211000Z 20003MPS 170V250 8000 BKN040 05/M09 Q1018 NOSIGZWSH2019-02-21T10:00:00Z39.5576.025.0-9.020064.9730.059055TRUEMVFRMETAR1380.02019-02-21 10:08:53H@)5    3ZSSS 211000Z 04004MPS 6000 -RA BKN016 06/04 Q1025 BECMG TL1150 BKN011ZSSS2019-02-21T10:00:00Z31.2121.336.04.04083.7330.265747-RAMVFRMETAR7.02019-02-21 10:08:53>?({5     3ZSPD 211000Z 02006MPS 7000 -RA FEW020 07/05 Q1025 NOSIGZSPD2019-02-21T10:00:00Z31.15121.87.05.020124.3530.265747TRUE-RAMVFRMETAR4.02019-02-21 10:08:53L>)5     3ZSHC 211000Z 05004MPS 3500 -RA BR BKN006 BKN023 06/06 Q1025 NOSIGZSHC2019-02-21T10:00:00Z30.22120.436.06.05082.1730.265747TRUE-RA BRIFRMETAR43.02019-02-21 10:08:53 W? W0F(e5   3FAEL 211000Z 20009KT 9999 FEW049 24/18 Q1022FAEL2019-02-21T10:00:00Z-33.0227.8224.018.020096.2130.177166VFRMETAR125.02019-02-21 10:08:533E(e5    3FACT 211000Z 19018KT CAVOK 26/16 Q1018 NOSIGFACT2019-02-21T10:00:00Z-33.9718.626.016.0190186.2130.059055TRUEVFRMETAR42.02019-02-21 10:08:535D(i5    3ZYTX 211000Z 23002MPS CAVOK 03/M12 Q1025 NOSIGZYTX2019-02-21T10:00:00Z41.63123.483.0-12.023046.2130.265747TRUEVFRMETAR35.02019-02-21 10:08:538C(o5    3ZYTL 211000Z 27002MPS 7000 NSC 03/M08 Q1027 NOSIGZYTL2019-02-21T10:00:00Z38.97121.533.0-8.027044.3530.324802TRUEMVFRMETAR97.02019-02-21 10:08:53;B(q5    3ZWWW 211000Z 27001MPS 6000 NSC M04/M12 Q1029 NOSIGZWWW2019-02-21T10:00:00Z43.8887.47-4.0-12.027023.7330.383858TRUEMVFRMETAR654.02019-02-21 10:08:53 ]D]5K(e5    3FALE 211000Z 16013KT CAVOK 26/20 Q1019 NOSIGFALE2019-02-21T10:00:00Z-29.6231.1226.020.0160136.2130.088583TRUEVFRMETAR109.02019-02-21 10:08:53:J(q5    3FAKN 211000Z 18003KT 9999 BKN020 25/19 Q1023 NOSIGFAKN2019-02-21T10:00:00Z-25.3831.125.019.018036.2130.206694TRUEMVFRMETAR862.02019-02-21 10:08:53)I(Y5   3FAKM 211000Z 28004KT CAVOK 32/03 Q1021FAKM2019-02-21T10:00:00Z-28.824.7732.03.028046.2130.147638VFRMETAR1192.02019-02-21 10:08:537H(u5   3FAGG 211000Z 14008KT 100V180 9999 FEW020 23/17 Q1021FAGG2019-02-21T10:00:00Z-34.022.3723.017.014086.2130.147638VFRMETAR193.02019-02-21 10:08:536G(u5   3FAHS 211000Z AUTO 17010KT //// // ////// 29/18 Q1019FAHS2019-02-21T10:00:00Z-24.3731.0229.018.01701030.088583TRUEMETAR500.02019-02-21 10:08:53 7tVO)5     3CYYN 211000Z AUTO 33007KT 3SM -SN BKN034 M18/M21 A2997 RMK SLP212CYYN2019-02-21T10:00:00Z50.27-107.67-18.0-21.033073.029.9704721021.2TRUE-SNMVFRMETAR818.02019-02-21 10:08:53KN)5    3CYZH 211000Z AUTO 26004KT 9SM CLR M22/M23 A3020 RMK SLP286CYZH2019-02-21T10:00:00Z55.28-114.77-22.0-23.026049.030.2007871028.6TRUEVFRMETAR581.02019-02-21 10:08:53=M(}5    3LKCV 211000Z 25006KT CAVOK 08/03 Q1026 NOSIG RMK BLU BLULKCV2019-02-21T10:00:00Z49.9315.388.03.025066.2130.295275TRUEVFRSPECI242.02019-02-21 10:08:53CL)5    3FAOR 211000Z 02007KT 320V070 9999 FEW049 27/14 Q1026 NOSIGFAOR2019-02-21T10:00:00Z-26.1228.2227.014.02076.2130.295275TRUEVFRMETAR1700.02019-02-21 10:08:53 -\RS)5    3CYQR 211000Z 35006KT 12SM -SN OVC047 M15/M18 A2996 RMK SC8 SLP201CYQR2019-02-21T10:00:00Z50.43-104.67-15.0-18.0350612.029.9586621020.1-SNVFRMETAR577.02019-02-21 10:08:53UR)5     3CYQW 211000Z AUTO 33006KT 9SM -SN OVC080 M15/M18 A3012 RMK SLP245CYQW2019-02-21T10:00:00Z52.77-108.25-15.0-18.033069.030.1210631024.5TRUE-SNVFRMETAR548.02019-02-21 10:08:53KQ)5   3CYVC 211000Z 32002KT 15SM SCT110 M26/M28 A3017 RMK AC4 SLP259CYVC2019-02-21T10:00:00Z55.15-105.27-26.0-28.0320215.030.1712591025.9VFRMETAR379.02019-02-21 10:08:53MP)5    3CYYL 211000Z AUTO 02003KT 9SM BKN140 M27/M29 A3014 RMK SLP254CYYL2019-02-21T10:00:00Z56.87-101.07-27.0-29.02039.030.1387791025.4TRUEVFRMETAR357.02019-02-21 10:08:53 >dZW)!5    3CYPA 211000Z 04002KT 5SM -SN SCT017 OVC069 M18/M20 A3012 RMK SC4AC4 SLP240CYPA2019-02-21T10:00:00Z53.22-105.67-18.0-20.04025.030.1210631024.0-SNMVFRMETAR428.02019-02-21 10:08:53TV)5     3CYPY 211000Z AUTO 00000KT 9SM -SN OVC014 M21/M24 A3023 RMK SLP268CYPY2019-02-21T10:00:00Z58.77-111.12-21.0-24.0009.030.2303141026.8TRUE-SNMVFRMETAR232.02019-02-21 10:08:53SU)5    3CYQF 211000Z 36010KT 12SM -SN OVC018 M14/M18 A3012 RMK SC8 SLP265CYQF2019-02-21T10:00:00Z52.17-113.9-14.0-18.03601012.030.1210631026.5-SNMVFRMETAR905.02019-02-21 10:08:53cT)+5     3CYQL 211000Z AUTO 35006KT 9SM -SN BKN016 BKN022 OVC075 M13/M15 A3011 RMK SLP258CYQL2019-02-21T10:00:00Z49.63-112.8-13.0-15.035069.030.1092531025.8TRUE-SNMVFRMETAR929.02019-02-21 10:08:53 .TyK[)5    3CYKJ 211000Z AUTO 26004KT 9SM CLR M34/M37 A3010 RMK SLP261CYKJ2019-02-21T10:00:00Z57.25-105.62-34.0-37.026049.030.1003931026.1TRUEVFRMETAR509.02019-02-21 10:08:53UZ)5     3CYMM 211000Z AUTO 25003KT 9SM -SN FEW240 M23/M26 A3024 RMK SLP283CYMM2019-02-21T10:00:00Z56.65-111.22-23.0-26.025039.030.2391741028.3TRUE-SNVFRMETAR369.02019-02-21 10:08:53TY)5     3CYNE 211000Z AUTO 36004KT 9SM -SN OVC037 M17/M19 A3004 RMK SLP197CYNE2019-02-21T10:00:00Z53.97-97.82-17.0-19.036049.030.0413381019.7TRUE-SNVFRMETAR223.02019-02-21 10:08:53LX)5    3CYOJ 211000Z AUTO 00000KT 9SM OVC085 M26/M28 A3016 RMK SLP254CYOJ2019-02-21T10:00:00Z58.62-117.17-26.0-28.0009.030.1594491025.4TRUEVFRMETAR338.02019-02-21 10:08:53 Ju[_)#5    3CYXE 211000Z 33009KT 12SM -SN SCT022 BKN075 M19/M21 A3010 RMK SC3AC4 SLP242CYXE2019-02-21T10:00:00Z52.17-106.7-19.0-21.0330912.030.1003931024.2-SNVFRMETAR504.02019-02-21 10:08:53O^)5    3CYZP 211000Z AUTO 22003KT 9SM BKN220 BKN240 00/M01 A3020 RMK SLP227CYZP2019-02-21T10:00:00Z53.25-131.820.0-1.022039.030.2007871022.7TRUEVFRMETAR6.02019-02-21 10:08:53I])5    3CYET 211000Z AUTO VRB02KT 9SM CLR M22/M23 A3012 RMK SLP282CYET2019-02-21T10:00:00Z53.57-116.47-22.0-23.0029.030.1210631028.2TRUEVFRMETAR925.02019-02-21 10:08:53a\)+5    3CYGX 211000Z 03009KT 8SM -SN DRSN FEW035 BKN070 M23/M26 A3014 RMK SC1AC6 SLP227CYGX2019-02-21T10:00:00Z56.35-94.7-23.0-26.03098.030.1387791022.7-SN DRSNVFRMETAR145.02019-02-21 10:08:53 @Hc)5    3CYRV 211000Z AUTO VRB02KT 9SM CLR M09/M10 A3009 RMK SLP218CYRV2019-02-21T10:00:00Z50.97-118.17-9.0-10.0029.030.0885831021.8TRUEVFRMETAR443.02019-02-21 10:08:531b(q5   3CYUA 211000Z AUTO 21016KT ////SM NCD M17/M20 A3000CYUA2019-02-21T10:00:00Z68.95-137.28-17.0-20.02101630.0TRUEMETAR38.02019-02-21 10:08:53Va)5     3CYVL 211000Z AUTO 25004KT 9SM -SN OVC014 M22/M24 A3004 RMK SLP214CYVL2019-02-21T10:00:00Z67.02-126.13-22.0-24.025049.030.0413381021.4TRUE-SNMVFRMETAR259.02019-02-21 10:08:53^`)/5   3CYXC 211000Z 23002KT 20SM FEW030 SCT070 BKN150 M13/M14 A2999 RMK SC2AC2AC3 SLP212CYXC2019-02-21T10:00:00Z49.6-115.77-13.0-14.0230220.029.9911421021.2VFRMETAR939.02019-02-21 10:08:53 1VyXg)5   3CYKY 211000Z 32010G16KT 10SM -SN OVC080 M15/M17 A3006 RMK AS8 SLP233CYKY2019-02-21T10:00:00Z51.52-109.17-15.0-17.0320101610.030.0590551023.3-SNVFRMETAR694.02019-02-21 10:08:53Wf)#5    3CYPR 211000Z AUTO VRB02KT 9SM SCT160 BKN180 BKN200 M01/M01 A3018 RMK SLP223CYPR2019-02-21T10:00:00Z54.28-130.42-1.0-1.0029.030.1801191022.3TRUEVFRMETAR34.02019-02-21 10:08:53Ue)5    3CYQD 211000Z AUTO 35006KT 9SM SCT140 BKN200 M21/M24 A3010 RMK SLP222CYQD2019-02-21T10:00:00Z53.97-101.08-21.0-24.035069.030.1003931022.2TRUEVFRMETAR271.02019-02-21 10:08:53Id)5    3CYQZ 211000Z AUTO 00000KT 9SM CLR M18/M20 A3020 RMK SLP270CYQZ2019-02-21T10:00:00Z53.02-122.52-18.0-20.0009.030.2007871027.0TRUEVFRMETAR545.02019-02-21 10:08:53 )]Lk)5    3CYDB 211000Z AUTO VRB02KT 9SM BKN150 M18/M20 A2976 RMK SLP152CYDB2019-02-21T10:00:00Z61.37-139.05-18.0-20.0029.029.7608261015.2TRUEVFRMETAR801.02019-02-21 10:08:53Nj)5    3CYEV 211000Z 00000KT 15SM -SN SCT027 M16/M19 A3008 RMK SC4 SLP195CYEV2019-02-21T10:00:00Z68.32-133.5-16.0-19.00015.030.0797251019.5-SNVFRMETAR68.02019-02-21 10:08:53Fi)5    3CYHE 211000Z AUTO VRB02KT 9SM OVC080 00/M02 A3014 RMK SLP210CYHE2019-02-21T10:00:00Z49.37-121.50.0-2.0029.030.1387791021.0TRUEVFRMETAR39.02019-02-21 10:08:53Qh)5    3CYIV 211000Z 36006KT 12SM -SN BKN030 M18/M20 A2998 RMK SC7 SLP178CYIV2019-02-21T10:00:00Z53.85-94.65-18.0-20.0360612.029.979331017.8-SNMVFRMETAR237.02019-02-21 10:08:53 <+s<>p(}5    3LKNA 211000Z 28012KT CAVOK 07/01 Q1025 NOSIG RMK BLU BLULKNA2019-02-21T10:00:00Z49.1716.127.01.0280126.2130.265747TRUEVFRSPECI472.02019-02-21 10:08:53;o(}5    3LKPD 211000Z VRB02KT CAVOK 07/02 Q1026 NOSIG RMK BLU BLULKPD2019-02-21T10:00:00Z50.0215.737.02.0026.2130.295275TRUEVFRSPECI226.02019-02-21 10:08:53,n(a5   3LKLN 211000Z AUTO 21008KT 9999 08/03 Q1027LKLN2019-02-21T10:00:00Z49.6813.278.03.021086.2130.324802TRUEMETAR362.02019-02-21 10:08:532m(e5    3LKKB 211000Z 22010KT CAVOK 07/01 Q1025 NOSIGLKKB2019-02-21T10:00:00Z50.1214.537.01.0220106.2130.265747TRUEVFRMETAR286.02019-02-21 10:08:53Ol)5    3CZVL 211000Z AUTO 28005KT 9SM OVC019 M16/M18 A3018 RMK SLP277CZVL2019-02-21T10:00:00Z53.67-113.85-16.0-18.028059.030.1801191027.7TRUEMVFRMETAR686.02019-02-21 10:08:53 ZC|Z%u(Y5   3FBSP 211000Z /////KT CAVOK 31/17 Q1020FBSP2019-02-21T10:00:00Z-22.0527.8231.017.06.2130.11811VFRMETAR892.02019-02-21 10:08:538t(u5   3FBKE 211000Z 13006KT 070V180 9999 SCT030 30/15 Q1020FBKE2019-02-21T10:00:00Z-17.8225.1730.015.013066.2130.11811VFRMETAR1000.02019-02-21 10:08:533s(e5    3FAUP 211000Z 27004KT CAVOK 35/04 Q1019 NOSIGFAUP2019-02-21T10:00:00Z-28.3821.2735.04.027046.2130.088583TRUEVFRMETAR836.02019-02-21 10:08:53Ar)5    3FAPE 211000Z 19007KT 130V270 9999 SCT023 25/18 Q1021 NOSIGFAPE2019-02-21T10:00:00Z-33.9725.625.018.019076.2130.147638TRUEVFRMETAR60.02019-02-21 10:08:537q(q5    3FBSK 211000Z VRB03KT 9999 FEW030 34/09 Q1020 NOSIGFBSK2019-02-21T10:00:00Z-24.5525.9234.09.0036.2130.11811TRUEVFRMETAR1005.02019-02-21 10:08:53 2nry)Q5   3UMII 211000Z 32006G11MPS 1700 SHSN BLSN BKN007 BKN019CB M06/M08 Q1011 R23/710350 TEMPO 1400 BKN005UMII2019-02-21T10:00:00Z55.1330.35-6.0-8.032012211.0629.852362SHSN BLSNIFRSPECI208.02019-02-21 10:08:53[x)#5    3UMGG 211000Z 34008G11MPS 9999 -SHSN BKN028CB M02/M07 Q1012 R28/CLRD// NOSIGUMGG2019-02-21T10:00:00Z52.5331.02-2.0-7.034016216.2129.88189TRUE-SHSNMVFRSPECI144.02019-02-21 10:08:53>w(w5     3VEBS 211000Z 23006KT 5000 HZ FEW020 35/22 Q1013 NOSIGVEBS2019-02-21T10:00:00Z20.2585.8235.022.023063.1129.911417TRUEHZMVFRMETAR46.02019-02-21 10:08:53Hv)5    3UMBB 211000Z 31003MPS 6000 OVC014CB 03/M01 Q1019 R29/CLRD// NOSIGUMBB2019-02-21T10:00:00Z52.1223.93.0-1.031063.7330.088583TRUEMVFRSPECI143.02019-02-21 10:08:53  P`7}(u5   3FYWE 211000Z 04008KT 340V110 9999 FEW050 30/03 Q1027FYWE2019-02-21T10:00:00Z-22.6217.0830.03.04086.2130.324802VFRMETAR1700.02019-02-21 10:08:53j|);5  !  3UMOO 211000Z 32010G13MPS 3100 -SHSN BLSN BKN023CB BKN/// M05/M08 Q1012 R31/990325 NOSIGUMOO2019-02-21T10:00:00Z53.9530.1-5.0-8.032019251.9329.88189TRUE-SHSN BLSNIFRMETAR194.02019-02-21 10:08:53J{) 5    3UMMS 211000Z 34008MPS 9999 BKN031 M03/M10 Q1015 R31/190050 NOSIGUMMS2019-02-21T10:00:00Z53.8828.03-3.0-10.0340166.2129.970472TRUEVFRSPECI205.02019-02-21 10:08:53Zz)/5   3UMMG 211000Z 34005G08MPS 9999 FEW010 BKN066 BKN200 M01/M06 Q1020 R35/CLRD// NOSIGUMMG2019-02-21T10:00:00Z53.624.05-1.0-6.034010166.2130.11811TRUEVFRSPECI135.02019-02-21 10:08:53 _A_9(s5    3ZGKL 211000Z 05003MPS 9999 BKN030 08/04 Q1022 NOSIGZGKL2019-02-21T10:00:00Z25.22110.038.04.05066.2130.177166TRUEMVFRMETAR166.02019-02-21 10:08:53-(c5    3LFHP 211000Z AUTO 00000KT CAVOK 07/00 Q1029LFHP2019-02-21T10:00:00Z45.073.777.00.0006.2130.383858TRUEVFRMETAR833.02019-02-21 10:08:53+(c5    3LFQG 211000Z AUTO VRB03KT CAVOK 09/05 Q1029LFQG2019-02-21T10:00:00Z47.03.19.05.0036.2130.383858TRUEVFRMETAR181.02019-02-21 10:08:539(q5     3LFLW 211000Z AUTO VRB02KT CAVOK 12/M01 Q1028 NOSIGLFLW2019-02-21T10:00:00Z44.882.4212.0-1.0026.2130.35433TRUETRUEVFRMETAR639.02019-02-21 10:08:539~(q5     3LDPL 211000Z 28006KT 5000 HZ NSC 12/06 Q1028 NOSIGLDPL2019-02-21T10:00:00Z44.8813.9212.06.028063.1130.35433TRUEHZMVFRMETAR63.02019-02-21 10:08:53 8q6(i5    3ZPPP 211000Z 22007MPS CAVOK 18/M00 Q1019 NOSIGZPPP2019-02-21T10:00:00Z25.0102.7518.00.0220146.2130.088583TRUEVFRMETAR1892.02019-02-21 10:08:53=(u5     3ZLXY 211000Z 20003MPS 4000 HZ NSC 05/M03 Q1025 NOSIGZLXY2019-02-21T10:00:00Z34.43108.755.0-3.020062.4930.265747TRUEHZIFRMETAR479.02019-02-21 10:08:53A)5    3ZGOW 211000Z 13002MPS 6000 SCT015 BKN033 21/18 Q1017 NOSIGZGOW2019-02-21T10:00:00Z23.55116.521.018.013043.7330.029528TRUEMVFRMETAR3.02019-02-21 10:08:53B)5    3ZGNN 211000Z 01005MPS 9999 SCT013 OVC033 13/10 Q1018 NOSIGZGNN2019-02-21T10:00:00Z22.62108.1713.010.010106.2130.059055TRUEVFRMETAR73.02019-02-21 10:08:53 S= (u5     3ZSQD 211000Z 20003MPS 5000 HZ NSC 04/M04 Q1027 NOSIGZSQD2019-02-21T10:00:00Z36.27120.384.0-4.020063.1130.324802TRUEHZMVFRMETAR77.02019-02-21 10:08:53L )5     3ZSNB 211000Z 35002MPS 3800 -RA BR SCT006 OVC026 06/06 Q1024 NOSIGZSNB2019-02-21T10:00:00Z29.83121.476.06.035042.3630.236221TRUE-RA BRIFRMETAR4.02019-02-21 10:08:53@)5    3ZSFZ 211000Z VRB01MPS 9000 SCT009 OVC027 12/12 Q1020 NOSIGZSFZ2019-02-21T10:00:00Z25.93119.6712.012.0025.5930.11811TRUEMVFRMETAR85.02019-02-21 10:08:53a)A5    3ZSAM 211000Z 12004MPS 090V150 5000 BR SCT011 OVC030 17/15 Q1018 BECMG TL1150 BKN011 OVC030ZSAM2019-02-21T10:00:00Z24.53118.1317.015.012083.1130.059055BRMVFRMETAR18.02019-02-21 10:08:53 H@H4(g5    3UGTB 211000Z 29009KT CAVOK 11/M05 Q1019 NOSIGUGTB2019-02-21T10:00:00Z41.6744.9511.0-5.029096.2130.088583TRUEVFRMETAR495.02019-02-21 10:08:539(q5     3VGHS 211000Z 33005KT 3500 HZ NSC 30/13 Q1014 NOSIGVGHS2019-02-21T10:00:00Z23.8590.430.013.033052.1729.940945TRUEHZIFRMETAR10.02019-02-21 10:08:53< )5    3KNEL 211000Z AUTO 27005KT OVC003 A2990 RMK AO2 SLPNO PNO $ KNEL2019-02-21T10:00:00Z40.02-74.33270529.899607TRUETRUETRUEMETAR31.02019-02-21 10:08:537 (s5    3ZUUU 211000Z VRB01MPS 9999 SCT050 14/03 Q1020 NOSIGZUUU2019-02-21T10:00:00Z30.58103.9514.03.0026.2130.11811TRUEVFRMETAR508.02019-02-21 10:08:53: (s5    3ZUGY 211000Z 01005MPS 9999 FEW030 10/03 Q1019 NOSIGZUGY2019-02-21T10:00:00Z26.53106.810.03.010106.2130.088583TRUEVFRMETAR1074.02019-02-21 10:08:53 ;~G) 5    3UAAH 211000Z 28005MPS CAVOK M08/M11 Q1033 NOSIG RMK QFE737/0982UAAH2019-02-21T10:00:00Z46.975.0-8.0-11.0280106.2130.501968TRUEVFRMETAR441.02019-02-21 10:08:53Z))5     3UAAA 211000Z 05003MPS 2500 -SN BR BKN010 OVC025 M02/M03 Q1032 R88/2/0150 NOSIGUAAA2019-02-21T10:00:00Z43.3577.03-2.0-3.05061.5530.47244TRUE-SN BRIFRSPECI681.02019-02-21 10:08:537(s5    3UGKO 211000Z VRB01KT 9999 SCT046 15/M05 Q1018 NOSIGUGKO2019-02-21T10:00:00Z42.1842.4815.0-5.0016.2130.059055TRUEVFRMETAR68.02019-02-21 10:08:53?)5    3UGSB 211000Z 31006KT 270V360 9999 BKN110 11/04 Q1019 NOSIGUGSB2019-02-21T10:00:00Z41.6241.611.04.031066.2130.088583TRUEVFRMETAR32.02019-02-21 10:08:53 [&5[T)!5    3UACK 211000Z 21007MPS CAVOK M09/M11 Q1020 R20/490545 NOSIG RMK QFE741/0988UACK2019-02-21T10:00:00Z53.3269.58-9.0-11.0210146.2130.11811TRUEVFRMETAR2547.02019-02-21 10:08:53k)E5     3UACC 211000Z 23010MPS 9999 DRSN SCT013 BKN026 M09/M11 Q1026 R22/35//50 NOSIG RMK QFE738/0984UACC2019-02-21T10:00:00Z51.0271.47-9.0-11.0230196.2130.295275TRUEDRSNMVFRSPECI355.02019-02-21 10:08:53f)M5    3UADD 211000Z 32003MPS 290V350 9999 SCT038CB OVC100 01/M07 Q1031 R31/290056 NOSIG RMK QFE714/0952UADD2019-02-21T10:00:00Z42.8571.31.0-7.032066.2130.442913TRUEVFRMETAR665.02019-02-21 10:08:53h)O5    3UAAT 211000Z 21002MPS 180V240 9999 SCT017CB OVC100 M01/M03 Q1032 R02/11//60 NOSIG RMK QFE722/0962UAAT2019-02-21T10:00:00Z45.1278.45-1.0-3.021046.2130.47244TRUEVFRMETAR591.02019-02-21 10:08:53 s%4Vs])=5    3UAOO 211000Z 20004MPS 170V240 9999 SCT026 M00/M06 Q1034 R23/CLRD70 NOSIG RMK QFE763/1018UAOO2019-02-21T10:00:00Z44.765.60.0-6.020086.2130.531496TRUEVFRSPECI129.02019-02-21 10:08:53X)/5    3UAII 211000Z 16002MPS 120V190 CAVOK 01/M04 Q1033 R10/0///70 NOSIG RMK QFE739/0985UAII2019-02-21T10:00:00Z42.3769.481.0-4.016046.2130.501968TRUEVFRMETAR422.02019-02-21 10:08:53k)E5     3UAKK 211000Z 24010MPS 5000 BLSN SCT009 BKN018 M09/M12 Q1027 R23/920555 NOSIG RMK QFE723/0964UAKK2019-02-21T10:00:00Z49.6773.33-9.0-12.0240193.1130.324802TRUEBLSNMVFRMETAR538.02019-02-21 10:08:53U)!5    3UACP 211000Z 18006MPS CAVOK M10/M14 Q1018 R23/3/0247 NOSIG RMK QFE751/1002UACP2019-02-21T10:00:00Z54.7869.18-10.0-14.0180126.2130.059055TRUEVFRMETAR142.02019-02-21 10:08:53 6cV))5    3UKLI 211000Z 28008MPS 250V330 9999 SCT046 BKN100 08/M03 Q1021 R28/090070 NOSIGUKLI2019-02-21T10:00:00Z48.8824.688.0-3.0280166.2130.147638TRUEVFRMETAR280.02019-02-21 10:08:53M)5   3UKON 211000Z 31010G16MPS 280V340 CAVOK 08/M04 Q1017 R22/090068 NOSIGUKON2019-02-21T10:00:00Z47.0531.928.0-4.031019316.2130.029528TRUEVFRMETAR56.02019-02-21 10:08:53Y)-5    3UASP 211000Z 24007MPS 9999 SCT019 M07/M10 Q1027 R21/0///60 NOSIG RMK QFE759/1012UASP2019-02-21T10:00:00Z52.277.07-7.0-10.0240146.2130.324802TRUEVFRMETAR125.02019-02-21 10:08:53e)K5    3UASK 211000Z 18002MPS 110V220 9999 SCT040 BKN230 M03/M07 Q1032 R12/450342 NOSIG RMK QFE748/0998UASK2019-02-21T10:00:00Z50.0382.5-3.0-7.018046.2130.47244TRUEVFRMETAR286.02019-02-21 10:08:53 B3tB9$(q5    3VOKN 211000Z 22008KT 7000 FEW020 32/23 Q1012 NOSIGVOKN2019-02-21T10:00:00Z11.9275.5532.023.022084.3529.88189TRUEMVFRMETAR105.02019-02-21 10:08:53(#(Y5   3VOBG 211000Z 07013KT CAVOK 31/08 Q1018VOBG2019-02-21T10:00:00Z12.9577.6331.08.070136.2130.059055VFRMETAR897.02019-02-21 10:08:53?"(w5     3VIJP 211000Z 28007KT 5000 HZ FEW100 30/11 Q1014 NOSIGVIJP2019-02-21T10:00:00Z26.8275.7830.011.028073.1129.940945TRUEHZMVFRMETAR390.02019-02-21 10:08:539!(q5    3VOND 211000Z 18004KT 7000 FEW025 38/10 Q1015 NOSIGVOND2019-02-21T10:00:00Z19.1877.3238.010.018044.3529.970472TRUEMVFRMETAR86.02019-02-21 10:08:53G ) 5    3UKLR 211000Z 29007MPS 9999 BKN027 04/M02 Q1019 R29/090070 NOSIGUKLR2019-02-21T10:00:00Z50.626.134.0-2.0290146.2130.088583TRUEMVFRMETAR230.02019-02-21 10:08:53 .1{.2)(e5   3SLVR 211000Z 33012KT 9999 BKN008 23/23 Q1011SLVR2019-02-21T10:00:00Z-17.63-63.1223.023.0330126.2129.852362IFRMETAR373.02019-02-21 10:08:53D()5    3FMMT 211000Z 05010KT 020V090 9999 FEW017TCU 33/25 Q1011 NOSIGFMMT2019-02-21T10:00:00Z-18.1249.3833.025.050106.2129.852362TRUEVFRMETAR6.02019-02-21 10:08:53E') 5    3SYCJ 211000Z 05008KT 9999 FEW016 SCT037 BKN090 24/24 Q1013 NOSIGSYCJ2019-02-21T10:00:00Z6.5-58.2524.024.05086.2129.911417TRUEVFRMETAR30.02019-02-21 10:08:530&(e5    3DTTR 211000Z 07017KT CAVOK 18/06 Q1025 NOSIGDTTR2019-02-21T10:00:00Z31.79.2718.06.070176.2130.265747TRUEVFRMETAR259.02019-02-21 10:08:53I%) 5    3YSSY 211000Z 21015KT 8000 SHRA FEW010 BKN022 BKN035 20/19 Q1018YSSY2019-02-21T10:00:00Z-33.95151.1720.019.0210154.9730.059055SHRAMVFRSPECI3.02019-02-21 10:08:53 JDJ(.(Y5   3SGES 211000Z 00000KT CAVOK 21/20 Q1012SGES2019-02-21T10:00:00Z-25.45-54.8521.020.0006.2129.88189VFRMETAR849.02019-02-21 10:08:53B-)5   3SLCB 211000Z 25003KT 8000 FEW008 BKN070 BKN200 14/12 Q1026SLCB2019-02-21T10:00:00Z-17.42-66.1814.012.025034.9730.295275MVFRMETAR2548.02019-02-21 10:08:53H,) 5    3SLLP 211000Z 09007KT 4000E VCFG FEW002 SCT012 BKN070 06/05 Q1037SLLP2019-02-21T10:00:00Z-16.52-68.176.05.09072.4930.620079VCFGIFRMETAR4014.02019-02-21 10:08:530+(e5   3SLTJ 211000Z 00000KT 9999 FEW080 15/13 Q1019SLTJ2019-02-21T10:00:00Z-21.55-64.7215.013.0006.2130.088583VFRMETAR1858.02019-02-21 10:08:536*(s5   3SLTR 211000Z 00000KT 9999 SCT005 BKN080 24/23 Q1011SLTR2019-02-21T10:00:00Z-14.83-64.9224.023.0006.2129.852362VFRMETAR157.02019-02-21 10:08:53 iJ$i53(s5   3SLCO 211000Z 00000KT 9999 BKN005 BKN080 24/23 Q1012SLCO2019-02-21T10:00:00Z-11.03-68.7824.023.0006.2129.88189IFRMETAR272.02019-02-21 10:08:53/2(e5   3SLPS 211000Z 00000KT 9999 SCT020 25/24 Q1010SLPS2019-02-21T10:00:00Z-18.98-57.8225.024.0006.2129.822834VFRMETAR135.02019-02-21 10:08:5371(w5   3PLCH 211000Z 11005KT 9999 FEW017CB SCT019 27/24 Q1011PLCH2019-02-21T10:00:00Z1.98-157.3527.024.011056.2129.852362VFRMETAR3.02019-02-21 10:08:53.0(e5   3SBBE 211000Z 08004KT 9999 FEW017 25/24 Q1011SBBE2019-02-21T10:00:00Z-1.37-48.4725.024.08046.2129.852362VFRMETAR16.02019-02-21 10:08:530/(i5   3SBSG 211000Z 21006KT 180V240 CAVOK 26/26 Q1012SBSG2019-02-21T10:00:00Z-5.77-35.3726.026.021066.2129.88189VFRMETAR83.02019-02-21 10:08:53 I:} I=8(w5     3VEPT 211000Z 26006KT 5000 HZ FEW250 29/12 Q1014 NOSIGVEPT2019-02-21T10:00:00Z25.685.0829.012.026063.1129.940945TRUEHZMVFRMETAR60.02019-02-21 10:08:53*7(Y5   3SARF 211000Z 11003KT CAVOK 24/22 Q1010SARF2019-02-21T10:00:00Z-26.22-58.2224.022.011036.2129.822834VFRMETAR60.02019-02-21 10:08:53;6(y5  3SKSP 211000Z 09013G23KT 9999 FEW014 SCT080 26/23 A2984SKSP2019-02-21T10:00:00Z12.57-81.7226.023.09013236.2129.840551VFRMETAR-2.02019-02-21 10:08:5375(q5    3DIAP 211000Z 28005KT 8000 FEW015 29/25 Q1013 NOSIGDIAP2019-02-21T10:00:00Z5.25-3.9229.025.028054.9729.911417TRUEMVFRMETAR8.02019-02-21 10:08:53@4(5    3TAPA 211000Z 07015KT 9999 FEW018 BKN036 24/19 Q1018 NOSIGTAPA2019-02-21T10:00:00Z17.12-61.7824.019.070156.2130.059055TRUEVFRMETAR14.02019-02-21 10:08:53 VJV;=(5    3DTTA 211000Z VRB03KT 9999 FEW020 SCT040 15/08 Q1029 NOSIGDTTA2019-02-21T10:00:00Z36.8510.2215.08.0036.2130.383858TRUEVFRMETAR4.02019-02-21 10:08:537<(q5    3DTTF 211000Z 05012KT 9999 FEW033 13/02 Q1027 NOSIGDTTF2019-02-21T10:00:00Z34.428.8213.02.050126.2130.324802TRUEVFRMETAR314.02019-02-21 10:08:53=;(5    3DTTJ 211000Z 02015KT 9999 SCT026 SCT033 15/09 Q1027 NOSIGDTTJ2019-02-21T10:00:00Z33.8710.7715.09.020156.2130.324802TRUEVFRMETAR4.02019-02-21 10:08:53-:(e5   3DTTX 211000Z 02012KT 9999 FEW020 16/07 Q1027DTTX2019-02-21T10:00:00Z34.7210.6716.07.020126.2130.324802VFRMETAR23.02019-02-21 10:08:5309(e5    3DTTZ 211000Z 07011KT CAVOK 16/01 Q1027 NOSIGDTTZ2019-02-21T10:00:00Z33.928.0816.01.070116.2130.324802TRUEVFRMETAR93.02019-02-21 10:08:53 tP!t'B(Y5   3DAUG 211000Z 06017KT CAVOK 14/02 Q1027DAUG2019-02-21T10:00:00Z32.373.8214.02.060176.2130.324802VFRMETAR450.02019-02-21 10:08:530A(k5    3DAOI 211000Z 07006KT 4000 BR SCT020 11/07 Q1028DAOI2019-02-21T10:00:00Z36.221.3211.07.07062.4930.35433BRIFRMETAR143.02019-02-21 10:08:537@(q5    3DTKA 211000Z 31006KT 9999 SCT020 13/11 Q1029 NOSIGDTKA2019-02-21T10:00:00Z36.988.8813.011.031066.2130.383858TRUEVFRMETAR21.02019-02-21 10:08:536?(q5    3DTMB 211000Z 34009KT 9999 SCT020 15/10 Q1028 NOSIGDTMB2019-02-21T10:00:00Z35.7710.7515.010.034096.2130.35433TRUEVFRMETAR2.02019-02-21 10:08:53*>(e5   3DTNH 211000Z 03009KT 9999 FEW030 15/06 Q1028DTNH2019-02-21T10:00:00Z36.0710.4315.06.03096.2130.35433VFRMETAR2.02019-02-21 10:08:53 H1(G(_5   3DAAS 211000Z VRB02KT 8000 NSC 08/04 Q1028DAAS2019-02-21T10:00:00Z36.185.338.04.0024.9730.35433MVFRMETAR1038.02019-02-21 10:08:533F(s5   3DABS 211000Z 27004KT 8000 FEW040 SCT100 08/03 Q1028DABS2019-02-21T10:00:00Z35.438.128.03.027044.9730.35433MVFRMETAR813.02019-02-21 10:08:53&E([5   3DAOB 211000Z 09003KT CAVOK 10/M00 Q1028DAOB2019-02-21T10:00:00Z35.331.4710.00.09036.2130.35433VFRMETAR989.02019-02-21 10:08:53,D(_5   3DAUA 211000Z 02016KT 8000 NSC 14/02 Q1021DAUA2019-02-21T10:00:00Z27.83-0.1814.02.020164.9730.147638MVFRMETAR263.02019-02-21 10:08:532C(s5   3DAUB 211000Z 31007KT 9999 SCT040 BKN100 16/00 Q1028DAUB2019-02-21T10:00:00Z34.785.7216.00.031076.2130.35433VFRMETAR87.02019-02-21 10:08:53 &<&LL)5    3UDSG 211000Z 23003KT 190V260 9000 NSC 02/M10 Q1018 R02/CLRD70 NOSIGUDSG2019-02-21T10:00:00Z40.7543.872.0-10.023035.5930.059055TRUEVFRMETAR1524.02019-02-21 10:08:53@K(5    3UTAK 211000Z 13012KT CAVOK 10/M10 Q1022 R16L/CLRD70 NOSIGUTAK2019-02-21T10:00:00Z40.0553.010.0-10.0130126.2130.177166TRUEVFRSPECI85.02019-02-21 10:08:53?J(}5    3UTAV 211000Z 12010KT CAVOK 06/M06 Q1030 R13/CLRD70 NOSIGUTAV2019-02-21T10:00:00Z39.0863.626.0-6.0120106.2130.413385TRUEVFRSPECI192.02019-02-21 10:08:533I(g5    3UTAM 211000Z 12014KT CAVOK 10/M01 Q1028 NOSIGUTAM2019-02-21T10:00:00Z37.6261.910.0-1.0120146.2130.35433TRUEVFRMETAR222.02019-02-21 10:08:53>H(}5    3UTAT 211000Z 15014KT CAVOK 04/M05 Q1029 R08/CLRD70 NOSIGUTAT2019-02-21T10:00:00Z41.7759.834.0-5.0150146.2130.383858TRUEVFRSPECI83.02019-02-21 10:08:53 b;b)Q([5   3DAAJ 211000Z 12013KT CAVOK 21/M01 Q1020DAAJ2019-02-21T10:00:00Z24.289.4721.0-1.0120136.2130.11811VFRMETAR968.02019-02-21 10:08:530P(s5   3DAAV 211000Z 00000KT 9999 FEW020 BKN200 15/09 Q1029DAAV2019-02-21T10:00:00Z36.85.8815.09.0006.2130.383858VFRMETAR11.02019-02-21 10:08:533O(s5   3DABT 211000Z 25003KT 5000 FEW020 BKN200 07/04 Q1028DABT2019-02-21T10:00:00Z35.756.327.04.025033.1130.35433MVFRMETAR823.02019-02-21 10:08:535N(k5    3DAUZ 211000Z 09021KT 2000 BLSA NSC 17/M08 Q1019DAUZ2019-02-21T10:00:00Z28.059.6217.0-8.090211.2430.088583BLSAIFRMETAR562.02019-02-21 10:08:53?M)5    3UDYZ 211000Z VRB01KT 9999 NSC 09/M09 Q1019 R09/010070 NOSIGUDYZ2019-02-21T10:00:00Z40.1544.49.0-9.0016.2130.088583TRUEVFRMETAR865.02019-02-21 10:08:53 >7$V(Y5   3DTTN 211000Z 00000KT CAVOK 12/07 Q1029DTTN2019-02-21T10:00:00Z36.478.812.07.0006.2130.383858VFRMETAR144.02019-02-21 10:08:53#U(g5    3HSPN 211000Z 01015KT 9999 FEW030 26/163 Q1016HSPN2019-02-21T10:00:00Z19.4237.2210156.2130.0VFRMETAR138.02019-02-21 10:08:53)T([5   3HSOB 211000Z 02009KT CAVOK 28/M01 Q1015HSOB2019-02-21T10:00:00Z13.1730.2228.0-1.02096.2129.970472VFRMETAR574.02019-02-21 10:08:53)S([5   3HSNN 211000Z 04008KT CAVOK 28/M08 Q1015HSNN2019-02-21T10:00:00Z12.0524.9728.0-8.04086.2129.970472VFRMETAR658.02019-02-21 10:08:53)5    3VTSE 211000Z 09007KT 060V130 9999 SCT020 30/23 Q1012 NOSIGVTSE2019-02-21T10:00:00Z10.7299.3730.023.09076.2129.88189TRUEVFRMETAR5.02019-02-21 10:08:53>)5    3VTSF 211000Z 09009KT 050V120 9999 SCT018 30/24 Q1011 NOSIGVTSF2019-02-21T10:00:00Z8.5399.9530.024.09096.2129.852362TRUEVFRMETAR4.02019-02-21 10:08:535(q5    3VTSH 211000Z 06006KT 9999 FEW020 30/24 Q1010 NOSIGVTSH2019-02-21T10:00:00Z7.2100.5830.024.06066.2129.822834TRUEVFRMETAR5.02019-02-21 10:08:53Y88@HPX`hpx (08@HPX`hpx (08@HPX`hpx_cgkpuy} _cgkpuy} $).38=BGLQV[¡_ádġišmơqǡuȡyɡ~ʡ̡͡ ΡϡСѡ ҡ$ӡ(ԡ-ա2֡7ס<ءA١FڡKۡPܡTݡYޡ^ߡc࡯gᡯk⡯o㡯t䡯y塯~桯硯衯 顯ꡯ롯졯"&*.26:>BFJNRUY]aei B;B;(q5     3VTCP 211000Z VRB02KT 5000 HZ NSC 36/15 Q1010 NOSIGVTCP2019-02-21T10:00:00Z18.13100.1736.015.0023.1129.822834TRUEHZMVFRMETAR162.02019-02-21 10:08:538(q5    3VTPB 211000Z VRB02KT 7000 FEW030 34/18 Q1010 NOSIGVTPB2019-02-21T10:00:00Z16.67101.234.018.0024.3529.822834TRUEMVFRMETAR137.02019-02-21 10:08:538(q5    3VTPH 211000Z 15010KT 9999 FEW030 30/23 Q1011 NOSIGVTPH2019-02-21T10:00:00Z12.6399.9530.023.0150106.2129.852362TRUEVFRMETAR6.02019-02-21 10:08:536(k5    3VTPO 211000Z 16006KT 7000 NSC 35/17 Q1010 NOSIGVTPO2019-02-21T10:00:00Z17.2399.8235.017.016064.3529.822834TRUEMVFRMETAR54.02019-02-21 10:08:53?({5    3VTPP 211000Z 26003KT 210V290 8000 NSC 34/16 Q1010 NOSIGVTPP2019-02-21T10:00:00Z16.78100.2834.016.026034.9729.822834TRUEMVFRMETAR44.02019-02-21 10:08:53 7D7] )75    3FMEP 211000Z AUTO 22008KT 9999 FEW035 32/24 Q1013 TEMPO VRB20G30KT 4500 SHRA SCT020CBFMEP2019-02-21T10:00:00Z-21.3255.4232.024.022086.2129.911417TRUEVFRMETAR18.02019-02-21 10:08:53. (e5   3VTBO 211000Z 22009KT 9999 FEW020 30/24 Q1012VTBO2019-02-21T10:00:00Z12.28102.3230.024.022096.2129.88189VFRMETAR32.02019-02-21 10:08:535 (k5    3VTCH 211000Z 25003KT 9000 NSC 34/15 Q1009 NOSIGVTCH2019-02-21T10:00:00Z19.397.9834.015.025035.5929.793306TRUEVFRMETAR269.02019-02-21 10:08:535 (k5    3VTCL 211000Z 00000KT 7000 NSC 36/13 Q1011 NOSIGVTCL2019-02-21T10:00:00Z18.2799.5236.013.0004.3529.852362TRUEMVFRMETAR242.02019-02-21 10:08:536 (k5    3VTCN 211000Z VRB02KT 8000 NSC 34/12 Q1010 NOSIGVTCN2019-02-21T10:00:00Z18.82100.7734.012.0024.9729.822834TRUEMVFRMETAR201.02019-02-21 10:08:53 $.g$3(k5    3VTCT 211000Z VRB02KT 9000 NSC 31/15 Q1012 NOSIGVTCT2019-02-21T10:00:00Z19.9599.8831.015.0025.5929.88189TRUEVFRMETAR390.02019-02-21 10:08:53>)5    3VTSG 211000Z 08003KT 040V120 9999 SCT020 34/20 Q1010 NOSIGVTSG2019-02-21T10:00:00Z8.198.9834.020.08036.2129.822834TRUEVFRMETAR25.02019-02-21 10:08:53@)5    3VTSP 211000Z 30010KT 260V330 9999 FEW020 31/21 Q1012 NOSIGVTSP2019-02-21T10:00:00Z8.1298.3231.021.0300106.2129.88189TRUEVFRMETAR10.02019-02-21 10:08:53A)5    3VTSS 211000Z 06011KT 030V100 9999 FEW020 31/22 Q1010 NOSIGVTSS2019-02-21T10:00:00Z6.92100.3831.022.060116.2129.822834TRUEVFRMETAR35.02019-02-21 10:08:53L)5    3FMEE 211000Z AUTO 04005KT CAVOK 32/25 Q1014 TEMPO 4500 SHRA FEW015TCUFMEE2019-02-21T10:00:00Z-20.8755.5232.025.04056.2129.940945TRUEVFRMETAR25.02019-02-21 10:08:53 CG)5   3VVTS 211000Z 17009G20KT 120V290 9999 FEW020 31/24 Q1010 NOSIGVVTS2019-02-21T10:00:00Z10.82106.6731.024.01709206.2129.822834TRUEVFRMETAR19.02019-02-21 10:08:53A)5    3VVPQ 211000Z 14005KT 100V190 9999 FEW017 31/21 Q1011 NOSIGVVPQ2019-02-21T10:00:00Z10.23103.9731.021.014056.2129.852362TRUEVFRMETAR4.02019-02-21 10:08:53R) 5     3KMDS 211000Z AUTO 30009KT 10SM -SN OVC002 M17/M17 A2993 RMK AO2KMDS2019-02-21T10:00:00Z44.02-97.08-17.0-17.0300910.029.929134TRUETRUE-SNLIFRMETAR524.02019-02-21 10:08:532(s5   3RJOM 211000Z 08008KT 9999 FEW040 BKN/// 09/01 Q1022RJOM2019-02-21T10:00:00Z33.82132.689.01.08086.2130.177166VFRMETAR7.02019-02-21 10:08:537(u5   3RJOK 211000Z 36013KT 9999 FEW050 BKN/// 09/M03 Q1021RJOK2019-02-21T10:00:00Z33.52133.679.0-3.0360136.2130.147638VFRMETAR10.02019-02-21 10:08:53 3I3O)5     3KOCW 211000Z AUTO 00000KT 2SM BR OVC003 07/06 A3008 RMK AO2 T00660063KOCW2019-02-21T10:00:00Z35.57-77.056.66.3002.030.079725TRUETRUEBRLIFRMETAR12.02019-02-21 10:08:537(q5    3VTST 211000Z 06015KT 9999 FEW020 32/22 Q1009 NOSIGVTST2019-02-21T10:00:00Z7.5299.6232.022.060156.2129.793306TRUEVFRMETAR16.02019-02-21 10:08:53?(w5     3TNCC 211000Z AUTO 11011KT 9999 NSC 25/21 Q1014 NOSIG TNCC2019-02-21T10:00:00Z12.2-68.9725.021.0110116.2129.940945TRUETRUEVFRMETAR9.02019-02-21 10:08:539(q5    3VLLB 211000Z 27002KT 9999 FEW018 34/20 Q1010 NOSIGVLLB2019-02-21T10:00:00Z19.9102.1734.020.027026.2129.822834TRUEVFRMETAR291.02019-02-21 10:08:531(g5   3RJSF 211000Z 35010KT 9999 FEW030 02/M02 Q1019RJSF2019-02-21T10:00:00Z37.22140.422.0-2.0350106.2130.088583VFRMETAR375.02019-02-21 10:08:53 2LpY )%5     3KRUQ 211000Z AUTO 19003KT 4SM RA BKN003 OVC007 03/03 A3005 RMK AO2 T00310030KRUQ2019-02-21T10:00:00Z35.65-80.523.13.019034.030.050198TRUETRUERALIFRMETAR236.02019-02-21 10:08:53V)!5     3KSCR 211000Z AUTO 21003KT 1 1/2SM -RA OVC003 03/03 A3007 RMK AO2 T00270027KSCR2019-02-21T10:00:00Z35.7-79.52.72.721031.530.070866TRUETRUE-RALIFRMETAR188.02019-02-21 10:08:53`)55     3KSVH 211000Z AUTO 00000KT 5SM -RA SCT003 BKN010 OVC016 04/03 A3004 RMK AO2 T00350030KSVH2019-02-21T10:00:00Z35.75-80.953.53.0005.030.041338TRUETRUE-RAMVFRMETAR294.02019-02-21 10:08:53H) 5    3KLHZ 211000Z AUTO 00000KT 7SM BKN003 OVC006 03/03 A3008 RMK AO2KLHZ2019-02-21T10:00:00Z36.02-78.333.03.0007.030.079725TRUETRUELIFRMETAR113.02019-02-21 10:08:53 >M$)5     3KFQD 211000Z AUTO 00000KT 5SM RA BKN004 OVC021 03/03 A3007 RMK AO2KFQD2019-02-21T10:00:00Z35.42-81.933.03.0005.030.070866TRUETRUERALIFRMETAR329.02019-02-21 10:08:53S#)5     3KGWW 211000Z AUTO 17003KT 1/2SM FG OVC001 05/05 A3008 RMK AO2 T00460046KGWW2019-02-21T10:00:00Z35.47-77.974.64.617030.530.079725TRUETRUEFGLIFRMETAR41.02019-02-21 10:08:536"(q5    3VTBU 211000Z 21009KT 9999 FEW020 30/21 Q1012 NOSIGVTBU2019-02-21T10:00:00Z12.68101.030.021.021096.2129.88189TRUEVFRMETAR5.02019-02-21 10:08:53(Y5   3LEGA 211000Z 02003KT CAVOK 10/03 Q1027LEGA2019-02-21T10:00:00Z37.12-3.6210.03.02036.2130.324802VFRMETAR686.02019-02-21 10:08:53-=(i5   3LEAO 211000Z 06004KT 030V110 CAVOK 05/01 Q1028LEAO2019-02-21T10:00:00Z38.95-3.735.01.06046.2130.35433VFRMETAR629.02019-02-21 10:08:53 OE1F(s5   3DAAD 211000Z 00000KT 6000 FEW033 BKN100 09/04 Q1029DAAD2019-02-21T10:00:00Z35.324.29.04.0003.7330.383858MVFRSPECI461.02019-02-21 10:08:53.E(a5   3DAAP 211000Z 28012KT 6000 NSC 21/M09 Q1018DAAP2019-02-21T10:00:00Z26.728.6221.0-9.0280123.7330.059055MVFRSPECI558.02019-02-21 10:08:53'D(Y5   3DAAY 211000Z 00000KT CAVOK 11/02 Q1030DAAY2019-02-21T10:00:00Z33.53-0.2511.02.0006.2130.413385VFRSPECI1149.02019-02-21 10:08:53#C(Y5   3LEEC 211000Z VRB03KT CAVOK 12/07 Q1026LEEC2019-02-21T10:00:00Z37.32-6.012.07.0036.2130.295275VFRMETAR7.02019-02-21 10:08:53+B(e5   3LECV 211000Z VRB02KT 9999 FEW035 13/03 Q1028LECV2019-02-21T10:00:00Z40.63-3.7213.03.0026.2130.35433VFRMETAR710.02019-02-21 10:08:53 68r64K(e5    3VLPS 211000Z 27002KT CAVOK 36/19 Q1011 NOSIGVLPS2019-02-21T10:00:00Z15.13105.7836.019.027026.2129.852362TRUEVFRMETAR107.02019-02-21 10:08:53OJ)5    3ZSOF 211000Z 10003MPS 4000 -SN BR OVC043 03/M00 Q1026 BECMG AT1100 2500ZSOF2019-02-21T10:00:00Z31.98116.973.00.010062.4930.295275-SN BRIFRMETAR63.02019-02-21 10:08:53'I(Y5   3LEBZ 211000Z 08008KT CAVOK 12/08 Q1026LEBZ2019-02-21T10:00:00Z38.87-6.8212.08.08086.2130.295275VFRMETAR192.02019-02-21 10:08:53@H)5    3LEAB 211000Z 14006KT 110V180 9999 FEW004 08/04 Q1029 NOSIGLEAB2019-02-21T10:00:00Z38.95-1.858.04.014066.2130.383858TRUEVFRMETAR704.02019-02-21 10:08:53BG(5    3VLSK 211000Z 30002KT 7000 SCT020 SCT100 35/19 Q1010 NOSIGVLSK2019-02-21T10:00:00Z16.55104.7535.019.030024.3529.822834TRUEMVFRMETAR155.02019-02-21 10:08:53 3Ft3CP)5    3ZJHK 211000Z 03003MPS 330V070 9999 BKN026 28/21 Q1013 NOSIGZJHK2019-02-21T10:00:00Z19.93110.4728.021.03066.2129.911417TRUEMVFRMETAR23.02019-02-21 10:08:53;O(w5    3ZJSY 211000Z 16003MPS 120V230 CAVOK 27/22 Q1014 NOSIGZJSY2019-02-21T10:00:00Z18.3109.4227.022.016066.2129.940945TRUEVFRMETAR27.02019-02-21 10:08:531N(i5    3ZLLL 211000Z 12004MPS CAVOK 07/M06 Q1016 NOSIGZLLL2019-02-21T10:00:00Z36.52103.627.0-6.012086.2130.0TRUEVFRMETAR1947.02019-02-21 10:08:53LM)5     3ZSNJ 211000Z VRB01MPS 1500 -RA BR SCT015 OVC040 05/04 Q1026 NOSIGZSNJ2019-02-21T10:00:00Z31.75118.875.04.0020.9330.295275TRUE-RA BRLIFRMETAR33.02019-02-21 10:08:534L(e5    3VLLN 211000Z 22012KT CAVOK 30/13 Q1014 NOSIGVLLN2019-02-21T10:00:00Z20.97101.430.013.0220126.2129.940945TRUEVFRMETAR600.02019-02-21 10:08:53 $d9T(o5    3ZBHH 211000Z VRB01MPS 8000 NSC 03/M14 Q1022 NOSIGZBHH2019-02-21T10:00:00Z40.85111.823.0-14.0024.9730.177166TRUEMVFRMETAR1065.02019-02-21 10:08:53US)'5    3ZGHA 211000Z 32003MPS 2800 -DZ BR BKN006 OVC050 04/04 Q1025 BECMG TL1100 3100ZGHA2019-02-21T10:00:00Z28.18113.224.04.032061.7430.265747-DZ BRIFRMETAR66.02019-02-21 10:08:53:R(s5     3ZHCC 211000Z VRB01MPS 1500 HZ NSC 05/01 Q1026 NOSIGZHCC2019-02-21T10:00:00Z34.52113.835.01.0020.9330.295275TRUEHZLIFRMETAR151.02019-02-21 10:08:53VQ)5     3ZHHH 211000Z 36003MPS 330V030 1600 -RA BR SCT005 OVC040 03/03 Q1025 NOSIGZHHH2019-02-21T10:00:00Z30.78114.223.03.036060.9930.265747TRUE-RA BRLIFRMETAR33.02019-02-21 10:08:53 *;x*CY)5    3VTUK 211000Z 26003KT 200V310 9000 FEW030 36/16 Q1010 NOSIGVTUK2019-02-21T10:00:00Z16.47102.7836.016.026035.5929.822834TRUEVFRMETAR204.02019-02-21 10:08:53CX)5    3VTUD 211000Z 31005KT 270V360 9000 FEW035 35/15 Q1010 NOSIGVTUD2019-02-21T10:00:00Z17.37102.7835.015.031055.5929.822834TRUEVFRMETAR182.02019-02-21 10:08:536W(i5    3ZYHB 211000Z 27003MPS CAVOK 01/M16 Q1021 NOSIGZYHB2019-02-21T10:00:00Z45.62126.251.0-16.027066.2130.147638TRUEVFRMETAR140.02019-02-21 10:08:53=V(w5    3ZYCC 211000Z 25003MPS 9999 FEW033 M00/M13 Q1023 NOSIGZYCC2019-02-21T10:00:00Z43.98125.680.0-13.025066.2130.206694TRUEVFRMETAR238.02019-02-21 10:08:53?U(y5     3ZUCK 211000Z 10003MPS 5000 HZ FEW033 13/05 Q1020 NOSIGZUCK2019-02-21T10:00:00Z29.72106.6313.05.010063.1130.11811TRUEHZMVFRMETAR416.02019-02-21 10:08:53 7}D^)5    3VTUV 211000Z 31005KT 280V350 8000 FEW030 35/16 Q1010 NOSIGVTUV2019-02-21T10:00:00Z16.12103.7835.016.031054.9729.822834TRUEMVFRMETAR138.02019-02-21 10:08:53@]({5    3VTUU 211000Z 22003KT 160V260 8000 NSC 36/18 Q1010 NOSIGVTUU2019-02-21T10:00:00Z15.25104.8736.018.022034.9729.822834TRUEMVFRMETAR127.02019-02-21 10:08:53H\) 5    3VTUQ 211000Z 06005KT 360V110 9000 SCT030 37/19 Q1011 A2987 NOSIGVTUQ2019-02-21T10:00:00Z14.95102.3237.019.06055.5929.852362TRUEVFRMETAR234.02019-02-21 10:08:534[(e5    3VTUL 211000Z 20005KT CAVOK 35/16 Q1011 NOSIGVTUL2019-02-21T10:00:00Z17.43101.7235.016.020056.2129.852362TRUEVFRMETAR254.02019-02-21 10:08:53CZ)5    3VTUO 211000Z 27003KT 210V360 9000 SCT035 36/19 Q1011 NOSIGVTUO2019-02-21T10:00:00Z15.23103.2536.019.027035.5929.852362TRUEVFRMETAR183.02019-02-21 10:08:53 L8}L6c(u5   3EISG 211000Z 14013KT 110V180 9999 OVC019 12/10 Q1014EISG2019-02-21T10:00:00Z54.28-8.612.010.0140136.2129.940945MVFRMETAR3.02019-02-21 10:08:535b(s5   3EIME 211000Z 20016KT 9999 FEW010 BKN012 11/09 Q1018EIME2019-02-21T10:00:00Z53.3-6.4511.09.0200166.2130.059055MVFRMETAR93.02019-02-21 10:08:534a(k5  3EIKY 211000Z 18020G30KT 9999 BKN017 12/09 Q1014EIKY2019-02-21T10:00:00Z52.18-9.5212.09.018020306.2129.940945MVFRMETAR34.02019-02-21 10:08:535`(s5   3EIDL 211000Z 19018KT 9999 FEW020 SCT024 13/10 Q1013EIDL2019-02-21T10:00:00Z55.05-8.3313.010.0190186.2129.911417VFRMETAR9.02019-02-21 10:08:53B_)5    3VTUW 211000Z 06005KT 040V110 9999 BKN045 35/19 Q1010 NOSIGVTUW2019-02-21T10:00:00Z17.38104.6335.019.06056.2129.822834TRUEVFRMETAR184.02019-02-21 10:08:53 9lDg(}5    3KSFY 210959Z AUTO 22006KT 10SM CLR M07/M09 A3003 RMK AO2KSFY2019-02-21T09:59:00Z42.05-90.12-7.0-9.0220610.030.029528TRUETRUEVFRMETAR188.02019-02-21 10:08:53Bf)5    3VTBS 211000Z 21010KT 180V240 9000 FEW025 31/23 Q1011 NOSIGVTBS2019-02-21T10:00:00Z13.68100.7531.023.0210105.5929.852362TRUEVFRMETAR2.02019-02-21 10:08:53Ge)5    3VTBD 211000Z 22007KT 170V260 9999 FEW020 SCT035 34/24 Q1011 NOSIGVTBD2019-02-21T10:00:00Z13.92100.634.024.022076.2129.852362TRUEVFRMETAR3.02019-02-21 10:08:53Ad) 5   3EIWF 211000Z 22017KT 9999 SCT017 BKN020 10/09 Q1020 R21/1/////EIWF2019-02-21T10:00:00Z52.18-7.0810.09.0220176.2130.11811MVFRMETAR36.02019-02-21 10:08:53 Q#3Q\k)#5     3OTBH 210956Z 30008KT 9000 HZ FEW250 22/01 A3015 RMK AO2A SLP212 T02220012 $OTBH2019-02-21T09:56:00Z25.1251.3222.21.230085.5930.150591021.2TRUETRUEHZVFRMETAR40.02019-02-21 10:08:53jj)15    3KSMP 210956Z AUTO 00000KT 10SM CLR M06/M10 A2987 RMK AO2 SLP152 I1000 T10611100 $ KSMP2019-02-21T09:56:00Z47.28-121.33-6.1-10.00010.029.8700791015.2TRUETRUETRUEVFRMETAR1208.02019-02-21 10:08:53[i)!5    3KNYL 210957Z AUTO 18004KT 10SM OVC090 10/03 A2967 RMK AO2 SLP047 T01000033KNYL2019-02-21T09:57:00Z32.63-114.6210.03.3180410.029.669291004.7TRUETRUEVFRMETAR65.02019-02-21 10:08:53vh)E5       3KMUO 210958Z AUTO 13006KT 7SM -UP FEW037 OVC055 M03/ A2974 RMK AO2 UPE08UPB39 SLP093 P0000 $KMUO2019-02-21T09:58:00Z43.03-115.87-3.013067.029.7401581009.3TRUETRUETRUEUPVFR0.005METAR913.02019-02-21 10:08:53 9J*o(e5   3LICT 210955Z 36005KT 9999 FEW025 14/07 Q1028LICT2019-02-21T09:55:00Z37.9212.514.07.036056.2130.35433VFRMETAR7.02019-02-21 10:08:53in);5    3EGUN 210956Z 24013KT 9999 OVC014 12/12 A3023 RMK AO2A SLP240 WND DATA ESTMD T01200120 $EGUN2019-02-21T09:56:00Z52.370.4712.012.0240136.2130.2303141024.0TRUETRUEMVFRMETAR10.02019-02-21 10:08:53_m)/5   3EGVA 210956Z AUTO 23010KT M M OVC015 11/09 A3026 RMK AO2 SLP252 T01080087 RVRNO $EGVA2019-02-21T09:56:00Z51.67-1.7710.88.72301030.2598421025.2TRUETRUETRUEMETAR87.02019-02-21 10:08:53\l)#5     3KHRT 210956Z 00000KT 1/4SM FG VV001 19/19 A3000 RMK AO2A SLP161 T01940191 $KHRT2019-02-21T09:56:00Z30.42-86.6719.419.1000.2530.01016.1TRUETRUEFGLIFR100METAR12.02019-02-21 10:08:53 ILI.t(k5    3LIPF 210955Z /////KT 0200 FG OVC001 04/03 Q1029LIPF2019-02-21T09:55:00Z44.8211.624.03.00.1230.383858FGLIFRMETAR10.02019-02-21 10:08:53,s(e5    3LIPC 210955Z 29002KT 4200 BR NSC 09/05 Q1028LIPC2019-02-21T09:55:00Z44.2212.39.05.029022.6130.35433BRIFRMETAR10.02019-02-21 10:08:53Jr) 5    3KPVF 210955Z AUTO 00000KT 10SM FEW018 SCT110 00/00 A2965 RMK AO1KPVF2019-02-21T09:55:00Z38.72-120.750.00.00010.029.648623TRUETRUEVFRMETAR789.02019-02-21 10:08:53Gq)5     3KEBS 210955Z AUTO 24010KT 5SM BR CLR M15/M16 A3000 RMK AO2KEBS2019-02-21T09:55:00Z42.42-93.87-15.0-16.0240105.030.0TRUETRUEBRMVFRMETAR342.02019-02-21 10:08:53.p(e5   3LICG 210955Z 34009KT 9999 FEW025 12/09 Q1026LICG2019-02-21T09:55:00Z36.8211.9712.09.034096.2130.295275VFRMETAR191.02019-02-21 10:08:53 ~F(~$y(Y5   3LIRV 210955Z /////KT CAVOK 10/04 Q1027LIRV2019-02-21T09:55:00Z42.4212.0710.04.06.2130.324802VFRMETAR300.02019-02-21 10:08:53-x(e5   3LIRL 210955Z 20003KT 6000 FEW018 13/08 Q1027LIRL2019-02-21T09:55:00Z41.5312.913.08.020033.7330.324802MVFRMETAR26.02019-02-21 10:08:53.w(e5    3LIRM 210955Z 06002KT 4000 BR NSC 12/06 Q1027LIRM2019-02-21T09:55:00Z41.0314.0712.06.06022.4930.324802BRIFRMETAR10.02019-02-21 10:08:531v(k5    3LIRH 210955Z 16002KT 4000 BR FEW010 10/04 Q1028LIRH2019-02-21T09:55:00Z41.6513.310.04.016022.4930.35433BRIFRMETAR181.02019-02-21 10:08:534u(u5   3LIRG 210955Z 26003KT 210V320 7000 FEW003 12/04 Q1028LIRG2019-02-21T09:55:00Z42.012.7212.04.026034.3530.35433MVFRMETAR89.02019-02-21 10:08:53 VC(~([5   3AZUH 210952Z 00000KT CAVOK 10/M07 Q1019AZUH2019-02-21T09:52:00Z39.1845.4510.0-7.0006.2130.088583VFRMETAR855.02019-02-21 10:08:54'}(Y5   3OIAI 210952Z 22006KT CAVOK 19/02 Q1019OIAI2019-02-21T09:52:00Z32.049.2719.02.022066.2130.088583VFRMETAR372.02019-02-21 10:08:54/|(g5   3OITU 210952Z 02006KT 9999 FEW035 06/M09 Q1018OITU2019-02-21T09:52:00Z39.3344.436.0-9.02066.2130.059055VFRMETAR1364.02019-02-21 10:08:54+{(_5   3LIMS 210955Z 33004KT 7000 NSC 11/07 Q1027LIMS2019-02-21T09:55:00Z44.929.7211.07.033044.3530.324802MVFRMETAR138.02019-02-21 10:08:53$z(Y5   3LIRS 210955Z 08003KT CAVOK 11/05 Q1028LIRS2019-02-21T09:55:00Z42.7511.0711.05.08036.2130.35433VFRMETAR7.02019-02-21 10:08:53 VI"(Y5   3LIRZ 210950Z VRB02KT CAVOK 07/02 Q1028LIRZ2019-02-21T09:50:00Z43.112.57.02.0026.2130.35433VFRMETAR205.02019-02-21 10:08:54)(_5   3LIQN 210950Z VRB02KT 6000 NSC 05/03 Q1027LIQN2019-02-21T09:50:00Z42.4212.835.03.0023.7330.324802MVFRMETAR389.02019-02-21 10:08:54((Y5   3LICR 210950Z 34012KT CAVOK 15/05 Q1027LICR2019-02-21T09:50:00Z38.0715.6515.05.0340126.2130.324802VFRMETAR21.02019-02-21 10:08:54*(a5   3EGYH 210950Z 25014KT CAVOK 11/09 Q1023 BLUEGYH2019-02-21T09:50:00Z52.870.1511.09.0250146.2130.206694VFRSPECI3.02019-02-21 10:08:54$(Y5   3LIMZ 210950Z 05003KT CAVOK 09/04 Q1028LIMZ2019-02-21T09:50:00Z44.537.629.04.05036.2130.35433VFRMETAR380.02019-02-21 10:08:54 ["o[3(o5   3LIBF 210950Z 31011KT 280V340 9000 NSC 12/07 Q1027LIBF2019-02-21T09:50:00Z41.4215.5212.07.0310115.5930.324802VFRMETAR80.02019-02-21 10:08:54*(_5   3LIRI 210950Z 19003KT 6000 NSC 13/07 Q1028LIRI2019-02-21T09:50:00Z40.6214.9213.07.019033.7330.35433MVFRMETAR40.02019-02-21 10:08:54%(Y5   3LIBP 210950Z VRB02KT CAVOK 12/05 Q1029LIBP2019-02-21T09:50:00Z42.4214.1812.05.0026.2130.383858VFRMETAR11.02019-02-21 10:08:54-(e5   3LIBG 210950Z 35009KT 9999 FEW015 13/07 Q1026LIBG2019-02-21T09:50:00Z40.5217.3813.07.035096.2130.295275VFRMETAR69.02019-02-21 10:08:54X)5     3KHQU 210950Z AUTO 00000KT 1SM -DZ BR OVC004 06/06 A3013 RMK AO2 T00650064KHQU2019-02-21T09:50:00Z33.53-82.526.56.4001.030.129921TRUETRUE-DZ BRLIFRMETAR152.02019-02-21 10:08:54 MC, (e5   3LICD 210950Z 03009KT 9999 FEW030 15/11 Q1027LICD2019-02-21T09:50:00Z35.512.6215.011.03096.2130.324802VFRMETAR20.02019-02-21 10:08:54# (Y5   3LIRU 210950Z 00000KT CAVOK 12/06 Q1028LIRU2019-02-21T09:50:00Z41.9512.512.06.0006.2130.35433VFRMETAR24.02019-02-21 10:08:54) (_5   3LIPO 210950Z 26005KT 3000 NSC 09/06 Q1028LIPO2019-02-21T09:50:00Z45.4210.339.06.026051.8630.35433IFRMETAR109.02019-02-21 10:08:54, (e5    3LIPY 210950Z VRB01KT 3000 BR NSC 09/07 Q1029LIPY2019-02-21T09:50:00Z43.6213.379.07.0011.8630.383858BRIFRMETAR10.02019-02-21 10:08:54- (e5   3LIBC 210950Z 36007KT 9999 SCT050 12/07 Q1027LIBC2019-02-21T09:50:00Z39.017.0712.07.036076.2130.324802VFRMETAR161.02019-02-21 10:08:54 M9+(e5    3LIMA 210950Z 00000KT 5000 BR NSC 09/09 Q1028LIMA2019-02-21T09:50:00Z45.087.69.09.0003.1130.35433BRMVFRMETAR287.02019-02-21 10:08:54$(Y5   3LIMG 210950Z VRB02KT CAVOK 12/06 Q1029LIMG2019-02-21T09:50:00Z44.038.1212.06.0026.2130.383858VFRMETAR49.02019-02-21 10:08:54)(_5   3LIMP 210950Z 30003KT 6000 NSC 09/04 Q1029LIMP2019-02-21T09:50:00Z44.8210.39.04.030033.7330.383858MVFRMETAR50.02019-02-21 10:08:545(u5   3LICA 210950Z 23007KT 190V250 9999 BKN020 13/07 Q1028LICA2019-02-21T09:50:00Z38.8816.2513.07.023076.2130.35433MVFRMETAR15.02019-02-21 10:08:54-(e5   3LICB 210950Z 28005KT 9999 SCT030 13/09 Q1027LICB2019-02-21T09:50:00Z37.014.6213.09.028056.2130.324802VFRMETAR220.02019-02-21 10:08:54 9i^)%5     3CYSC 211011Z AUTO 12005KT 1 3/4SM -SN FEW003 OVC009 M06/M07 A2981 RMK SLP112CYSC2019-02-21T10:11:00Z45.43-71.68-6.0-7.012051.7529.8110241011.2TRUE-SNIFRSPECI241.02019-02-21 10:12:39H) 5   3YBCG 211011Z AUTO 17015G25KT 9999 // SCT025 SCT028 26/21 Q1009YBCG2019-02-21T10:11:00Z-28.17153.526.021.017015256.2129.793306TRUEVFRSPECI6.02019-02-21 10:12:39J)5    3HBBA 210900Z 18002KT 9000 -RA FEW020TCU FEW025CB BKN100 25/20 Q1015HBBA2019-02-21T09:00:00Z-3.3229.3225.020.018025.5929.970472-RAVFRMETAR783.02019-02-21 10:08:54A)5    3HKMO 210900Z 09009KT 9999 FEW025CB SCT026 34/24 Q1013 NOSIGHKMO2019-02-21T09:00:00Z-4.0239.6234.024.09096.2129.911417TRUEVFRMETAR55.02019-02-21 10:08:54 ,]`O) 5    3CYXT 211010Z 20002KT 1SM BR VV002 M05/M05 A3020 RMK FG8 SLP240CYXT2019-02-21T10:10:00Z54.47-128.57-5.0-5.020021.030.2007871024.0BRLIFR200SPECI217.02019-02-21 10:12:39w)U5    3PAVC 211010Z AUTO 26025G30KT 10SM FEW026 SCT031 BKN048 01/M04 A3022 RMK AO2 PK WND 27033/0959 FZRANOPAVC2019-02-21T10:10:00Z55.12-162.271.0-4.0260253010.030.221457TRUETRUETRUEVFRSPECI47.02019-02-21 10:12:39I) 5    3YSSY 211010Z 21015KT 5000 SHRA SCT010 BKN020 BKN030 20/19 Q1018YSSY2019-02-21T10:10:00Z-33.95151.1720.019.0210153.1130.059055SHRAMVFRSPECI3.02019-02-21 10:12:39N)5    3K1M4 211010Z AUTO 01004KT 10SM OVC005 07/06 A3008 RMK AO2 CIG 003V009K1M42019-02-21T10:10:00Z34.28-87.67.06.010410.030.079725TRUETRUEIFRSPECI284.02019-02-21 10:12:39 U)UN)5     3KAVP 211009Z 22005KT 1 3/4SM BR OVC002 01/00 A2989 RMK AO2 T00060000KAVP2019-02-21T10:09:00Z41.33-75.720.60.022051.7529.890747TRUEBRLIFRMETAR291.02019-02-21 10:12:39Q)5    3KSIF 211010Z AUTO 10SM SCT010 BKN019 BKN026 03/03 A3004 RMK AO2 T00300025KSIF2019-02-21T10:10:00Z36.43-79.853.02.510.030.041338TRUETRUEMVFRMETAR211.02019-02-21 10:12:39)5       3PACM 211010Z AUTO 21023KT 2 1/2SM -SN BR FEW022 BKN029 OVC036 M03/M05 A2967 RMK AO2 PK WND 21026/1009 UPE09SNB09 P0000 FZRANOPACM2019-02-21T10:10:00Z61.85-165.57-3.0-5.0210232.529.66929TRUETRUETRUE-SN BRIFR0.005SPECI4.02019-02-21 10:12:39])'5    3KSDB 211010Z AUTO 33010KT 10SM FEW009 BKN038 M02/M04 A2957 RMK AO2 T10171039 KSDB2019-02-21T10:10:00Z34.75-118.72-1.7-3.93301010.029.568897TRUETRUEVFRSPECI1377.02019-02-21 10:12:39 'KKA"({5     3PHNY 211009Z AUTO 11003KT 10SM OVC018 18/ A3005 RMK AO2PHNY2019-02-21T10:09:00Z20.77-156.9318.0110310.030.050198TRUETRUEMVFRMETAR399.02019-02-21 10:12:39z!)S5      3PASM 211009Z AUTO 18014KT 10SM FEW007 BKN022 OVC095 M04/M04 A2973 RMK AO2 SNB0915E0941 P0000 FZRANOPASM2019-02-21T10:09:00Z62.07-163.3-4.0-4.01801410.029.731298TRUETRUETRUEMVFR0.005SPECI92.02019-02-21 10:12:39V )5     3CYWE 211009Z AUTO 26003KT 6SM -SN OVC026 M20/M22 A3001 RMK SLP213CYWE2019-02-21T10:09:00Z64.18-114.08-20.0-22.026036.030.0088581021.3TRUE-SNMVFRSPECI371.02019-02-21 10:12:39S)5     3CYBQ 211009Z AUTO 30004KT 6SM -SN OVC016 M29/M31 A3017 RMK SLP258CYBQ2019-02-21T10:09:00Z58.7-98.5-29.0-31.030046.030.1712591025.8TRUE-SNMVFRSPECI262.02019-02-21 10:12:39 J;Jk&)-5      3KIZG 211009Z AUTO 31003KT 1SM -SN BR VV010 M08/M08 A2999 RMK AO2 P0001 T10781083KIZG2019-02-21T10:09:00Z43.98-70.95-7.8-8.331031.029.991142TRUETRUE-SN BRLIFR0.011000SPECI135.02019-02-21 10:12:39[%))5     3KTHV 211009Z AUTO 00000KT 5SM BR SCT005 OVC024 M01/M01 A2996 RMK AO2 T10061011KTHV2019-02-21T10:09:00Z39.92-76.88-0.6-1.1005.029.958662TRUETRUEBRMVFRSPECI144.02019-02-21 10:12:39d$)75     3KWMC 211009Z AUTO 36004KT 1SM BR SCT001 SCT024 BKN050 M09/M10 A2964 RMK AO2 T10891100KWMC2019-02-21T10:09:00Z40.9-117.8-8.9-10.036041.029.639763TRUETRUEBRIFRMETAR1310.02019-02-21 10:12:39t#)75       3PAZK 211009Z AUTO 03003KT 4SM -SN BR FEW030 OVC039 M14/M16 A2965 RMK AO2 P0000 FZRANOPAZK2019-02-21T10:09:00Z61.93-147.17-14.0-16.03034.029.648623TRUETRUETRUE-SN BRMVFR0.005SPECI1003.02019-02-21 10:12:39 0620|*)Y5       3PAOM 211009Z AUTO 12016KT 6SM BR FEW010 BKN033 OVC095 M04/M04 A2956 RMK AO2 SNE06 P0000 T10391039 TSNOPAOM2019-02-21T10:09:00Z64.5-165.43-3.9-3.9120166.029.56004TRUETRUETRUEBRVFR0.005METAR11.02019-02-21 10:12:39~))[5      3KBED 211009Z AUTO 34007KT 3SM -FZRA BR FEW005 BKN012 OVC018 M01/M02 A2993 RMK AO2 P0001 I1001 T10061022KBED2019-02-21T10:09:00Z42.47-71.3-0.6-2.234073.029.929134TRUETRUE-FZRA BRMVFR0.01SPECI50.02019-02-21 10:12:39W()5     3KCSG 211009Z AUTO 10005KT 2 1/2SM BR OVC005 17/16 A3004 RMK AO2 T01670156KCSG2019-02-21T10:09:00Z32.52-84.9516.715.610052.530.041338TRUETRUEBRIFRSPECI135.02019-02-21 10:12:39g')15      3KFVE 211009Z AUTO 13007KT 1 1/2SM -SN OVC022 M13/M17 A2995 RMK AO2 P0000 T11281172KFVE2019-02-21T10:09:00Z47.28-68.3-12.8-17.213071.529.949802TRUETRUE-SNIFR0.005SPECI301.02019-02-21 10:12:39  O|L.) 5   3YMDG 211008Z AUTO 13015G26KT 9999 // SCT026 OVC030 21/15 Q1017YMDG2019-02-21T10:08:00Z-32.57149.6221.015.013015266.2130.029528TRUEMVFRSPECI471.02019-02-21 10:12:39M-)5    3CYIN 211008Z AUTO 29007KT 9SM OVC033 M09/M13 A3002 RMK SLP221CYIN2019-02-21T10:08:00Z51.27-121.68-9.0-13.029079.030.020671022.1TRUEVFRSPECI1128.02019-02-21 10:12:39K,) 5     3CYOO 211008Z AUTO 24009KT 6SM BR OVC034 01/01 A2979 RMK SLP095CYOO2019-02-21T10:08:00Z43.92-78.91.01.024096.029.7903541009.5TRUEBRVFRSPECI139.02019-02-21 10:12:39Z+)5     3CYVO 211008Z AUTO 16010KT 3SM -SN BKN024 OVC032 M09/M09 A2958 RMK SLP045CYVO2019-02-21T10:08:00Z48.07-77.77-9.0-9.0160103.029.580711004.5TRUE-SNMVFRSPECI337.02019-02-21 10:12:39 \.`\~2)[5       3KBHB 211008Z AUTO 00000KT 1SM -SN BR BKN009 OVC014 M05/M06 A3004 RMK AO2 CIG 006V012 P0002 FZRANO RVRNOKBHB2019-02-21T10:08:00Z44.45-68.37-5.0-6.0001.030.041338TRUETRUETRUE-SN BRIFR0.02SPECI26.02019-02-21 10:12:39H1)5     3K7N0 211008Z AUTO 36003KT 3SM BR OVC003 17/17 A2997 RMK AO2K7N02019-02-21T10:08:00Z29.95-90.0717.017.036033.029.970472TRUETRUEBRLIFRMETAR0.02019-02-21 10:12:39`0)%5     3KNJM 211008Z AUTO 32005KT 1/2SM FG VV002 12/12 A3010 RMK AO2 T01170117 PNO $KNJM2019-02-21T10:08:00Z34.67-77.0211.711.732050.530.100393TRUETRUETRUEFGLIFR200METAR7.02019-02-21 10:12:39f/)/5     3CZPC 211008Z AUTO 16012KT 2 1/2SM -SN OVC014 M14/M16 A3006 RMK VIS VRB 2-3 SLP256CZPC2019-02-21T10:08:00Z49.52-114.0-14.0-16.0160122.530.0590551025.6TRUE-SNIFRSPECI1190.02019-02-21 10:12:39  $6)e5      3KCTB 211008Z AUTO 35023KT 3SM BR FEW012 OVC075 M14/M17 A3001 RMK AO2 PK WND 34026/1008 UPE02 P0000 T11441167KCTB2019-02-21T10:08:00Z48.6-112.37-14.4-16.7350233.030.008858TRUETRUEBRMVFR0.005SPECI1175.02019-02-21 10:12:39_5))5      3KDNL 211008Z AUTO 08003KT 1 3/4SM BR OVC002 08/07 A3008 RMK AO2 T00780067 TSNOKDNL2019-02-21T10:08:00Z33.47-82.037.86.78031.7530.079725TRUETRUETRUEBRLIFRSPECI130.02019-02-21 10:12:39n4)75      3KDRO 211008Z AUTO 11006KT 2 1/2SM -SN BR OVC024 M08/M08 A2966 RMK AO2 P0000 T10781083KDRO2019-02-21T10:08:00Z37.15-107.77-7.8-8.311062.529.660433TRUETRUE-SN BRIFR0.005SPECI2035.02019-02-21 10:12:39}3)O5       3KEEN 211008Z AUTO 00000KT 2SM UP BR FEW003 OVC013 M04/M05 A2993 RMK AO2 UPB06SNE06 P0000 FZRANO $KEEN2019-02-21T10:08:00Z42.88-72.27-4.0-5.0002.029.929134TRUETRUETRUETRUEBR UPIFR0.005METAR149.02019-02-21 10:12:39 M ;Mh:)-5      3KIWI 211008Z AUTO 00000KT 1SM -SN BR VV011 M04/M04 A3001 RMK AO2 P0001 T10391044KIWI2019-02-21T10:08:00Z43.97-69.72-3.9-4.4001.030.008858TRUETRUE-SN BRLIFR0.011100SPECI20.02019-02-21 10:12:39_9)5     3KLXV 211008Z AUTO 08003KT 3SM BR OVC030 M18/M20 A2955 RMK AO2 T11781200 $KLXV2019-02-21T10:08:00Z39.23-106.32-17.8-20.08033.029.551182TRUETRUETRUEBRMVFRMETAR3028.02019-02-21 10:12:39T8)5     3KPBF 211008Z AUTO 00000KT 1 3/4SM BR BKN001 01/01 A3010 RMK AO2 T00110006KPBF2019-02-21T10:08:00Z34.18-91.931.10.6001.7530.100393TRUETRUEBRLIFRSPECI62.02019-02-21 10:12:397)]5     3KACK 211008Z AUTO 14021G27KT 1 3/4SM -SN BR OVC007 03/03 A2984 RMK AO2 PK WND 15030/0955 P0000 T00330028KACK2019-02-21T10:08:00Z41.25-70.073.32.814021271.7529.840551TRUETRUE-SN BRIFR0.005SPECI16.02019-02-21 10:12:39 ''r>)A5     3KINS 211008Z AUTO 09005KT 9SM -RA OVC010 00/00 A2955 RMK AO2 UPE0958RAB0958 SLP003 RVRNO $KINS2019-02-21T10:08:00Z36.58-115.670.00.09059.029.5511821000.3TRUETRUETRUE-RAMVFRSPECI955.02019-02-21 10:12:39q=)?5     3KHUA 211008Z AUTO 04008KT 3SM -RA BR OVC004 10/10 A3005 RMK AO2 LTG DSNT SE AND SW SLP177KHUA2019-02-21T10:08:00Z34.68-86.6810.010.04083.030.0501981017.7TRUETRUE-RA BRLIFRSPECI209.02019-02-21 10:12:39k<)?5    3KGPI 211008Z AUTO 04016KT 10SM FEW055 SCT065 M09/M13 A2998 RMK AO2 WSHFT 0948 T10891133 $KGPI2019-02-21T10:08:00Z48.32-114.25-8.9-13.3401610.029.97933TRUETRUETRUEVFRMETAR908.02019-02-21 10:12:39s;)G5      3KIGM 211008Z AUTO 21007KT 1SM -SN BR FEW004 SCT010 OVC017 01/00 A2957 RMK AO2 P0004 T00060000KIGM2019-02-21T10:08:00Z35.25-113.930.60.021071.029.568897TRUETRUE-SN BRIFR0.04METAR1032.02019-02-21 10:12:39 tdKWt]B)5    3PASV 211007Z AUTO 25002KT 10SM BKN018 BKN140 M04/M05 A2973 RMK AO2 SLP096PASV2019-02-21T10:07:00Z61.1-155.57-4.0-5.0250210.029.7312981009.6TRUETRUEMVFRMETAR484.02019-02-21 10:12:39nA)75       3PABV 211007Z AUTO 00000KT 4SM -SN BR BKN008 OVC026 M06/M07 A2981 RMK AO2 P0000 FZRANOPABV2019-02-21T10:07:00Z61.42-149.52-6.0-7.0004.029.811024TRUETRUETRUE-SN BRIFR0.005METAR29.02019-02-21 10:12:39@)w5      3PAWM 211007Z AUTO 12019G27KT 1 1/4SM -SN BR SCT011 BKN019 OVC050 M04/M06 A2967 RMK AO2 PK WND 13027/0959 P0000 FZRANOPAWM2019-02-21T10:07:00Z64.68-163.42-4.0-6.012019271.2529.66929TRUETRUETRUE-SN BRIFR0.005SPECI82.02019-02-21 10:12:39?(Y5 3CWND M01/M01 RMK SOG 03 8023 T10091007CWND2019-02-21T10:08:00Z69.63-135.43-0.9-0.7METAR12.02019-02-21 10:12:39 O *OUF)-5    3KBKW 211007Z AUTO 31003KT 9SM SCT006 SCT012 OVC017 09/09 A3000 RMK AO2 T00940094KBKW2019-02-21T10:07:00Z37.8-81.129.49.431039.030.0TRUETRUEMVFRSPECI764.02019-02-21 10:12:39NE) 5     3KISM 211007Z AUTO 00000KT 3SM BR CLR 19/19 A3011 RMK AO2 PNO $KISM2019-02-21T10:07:00Z28.28-81.4319.019.0003.030.109253TRUETRUETRUEBRMVFRSPECI25.02019-02-21 10:12:39D)m5      3KHEZ 211007Z AUTO 03007KT 3SM TS BR SCT017 BKN028 OVC042 09/09 A3003 RMK AO2 LTG DSNT ALQDS TSE03B04 P0024 PWINOKHEZ2019-02-21T10:07:00Z31.62-91.39.09.03073.030.029528TRUETRUETRUETS BRMVFR0.24METAR83.02019-02-21 10:12:39qC)75       3PAWS 211007Z AUTO 33004KT 6SM -SN BR SCT027 OVC033 M06/M07 A2980 RMK AO2 P0000 FZRANOPAWS2019-02-21T10:07:00Z61.57-149.53-6.0-7.033046.029.799213TRUETRUETRUE-SN BRVFR0.005METAR107.02019-02-21 10:12:39 S$01SXJ)%5    3KMGJ 211007Z AUTO 00000KT 10SM FEW006 OVC011 M01/M01 A2989 RMK AO2 T10111011KMGJ2019-02-21T10:07:00Z41.52-74.27-1.1-1.10010.029.890747TRUETRUEMVFRMETAR108.02019-02-21 10:12:39yI)a5     3KINT 211007Z AUTO 25004KT 9SM FEW005 BKN009 OVC014 03/02 A3007 RMK AO2 RAE0956UPB0956E0959 P0000 T00280022KINT2019-02-21T10:07:00Z36.13-80.222.82.225049.030.070866TRUETRUEIFR0.005SPECI291.02019-02-21 10:12:39nH)A5    3KGKJ 211007Z AUTO 28011G17KT 10SM FEW010 BKN026 OVC031 01/M01 A2994 RMK AO2 T00111006 TSNOKGKJ2019-02-21T10:07:00Z41.63-80.221.1-0.6280111710.029.940945TRUETRUETRUEMVFRMETAR428.02019-02-21 10:12:39VG)!5    3KDAN 211007Z AUTO 24004KT 10SM FEW013 BKN024 03/03 A3004 RMK AO2 T00280028KDAN2019-02-21T10:07:00Z36.57-79.332.82.8240410.030.041338TRUETRUEMVFRSPECI175.02019-02-21 10:12:39 y+O]y^N)'5   3CYKF 211007Z AUTO 26016G24KT 9SM BKN022 OVC030 02/M02 A2983 RMK PRESRR SLP115CYKF2019-02-21T10:07:00Z43.47-80.382.0-2.026016249.029.8287411011.5TRUEMVFRSPECI317.02019-02-21 10:12:39lM);5     3KSXS 211007Z AUTO 20003KT 8SM -RA OVC002 21/20 A3002 RMK AO2 LTG DSNT W-NW RAB07 SLP165KSXS2019-02-21T10:07:00Z31.37-85.8521.020.020038.030.020671016.5TRUETRUE-RALIFRSPECI122.02019-02-21 10:12:39VL)%5     3KPRN 211007Z AUTO 21004KT 4SM BR BKN004 BKN095 21/19 A3000 RMK AO2 T02110189KPRN2019-02-21T10:07:00Z31.85-86.6221.118.921044.030.0TRUETRUEBRLIFRMETAR138.02019-02-21 10:12:39OK)5    3KSCK 211007Z AUTO 35003KT 10SM BKN025 06/02 A2970 RMK AO2 T00610022KSCK2019-02-21T10:07:00Z37.88-121.226.12.2350310.029.698818TRUETRUEMVFRSPECI10.02019-02-21 10:12:39 b!ETblR)E5     3KDAA 211006Z AUTO 00000KT 2 1/4SM BR SCT180 SCT200 00/M01 A3000 RMK AO2 VIS 2 1/4V4 SLP163 $KDAA2019-02-21T10:06:00Z38.72-77.170.0-1.0002.2530.01016.3TRUETRUETRUEBRIFRSPECI21.02019-02-21 10:12:39kQ);5     3KMXF 211006Z AUTO 31003KT 7/8SM R15/4000VP6000FT BR BKN007 17/17 A3000 RMK AO2 SLP161 $KMXF2019-02-21T10:06:00Z32.37-86.3717.017.031030.8830.01016.1TRUETRUETRUEBRLIFRSPECI51.02019-02-21 10:12:39VP)5     3KOZR 211006Z AUTO 22005KT 4SM BR OVC002 21/21 A3003 RMK AO2 SLP169KOZR2019-02-21T10:06:00Z31.28-85.7221.021.022054.030.0295281016.9TRUETRUEBRLIFRSPECI93.02019-02-21 10:12:39YO)5     3CYXS 211007Z AUTO 00000KT 1/8SM FZFG VV001 M21/M23 A3015 RMK SLP269CYXS2019-02-21T10:07:00Z53.9-122.68-21.0-23.0000.1330.150591026.9TRUEFZFGLIFR100SPECI691.02019-02-21 10:12:39 U)5      3KANB 211006Z AUTO 16003KT 3SM TSRA BR BKN009 BKN033 OVC085 12/11 A3006 RMK AO2 LTG DSNT SW AND W TSE0956B00 PRESRR P0006 T01170111KANB2019-02-21T10:06:00Z33.58-85.8511.711.116033.030.059055TRUETRUETSRA BRIFR0.06SPECI183.02019-02-21 10:12:39^T)75   3EGDR 211006Z 17010G20KT 8000 HZ FEW003 SCT300 11/10 Q1024 BLU TEMPO FEW005 SCT013 GRNEGDR2019-02-21T10:06:00Z50.08-5.2511.010.017010204.9730.236221HZMVFRMETAR82.02019-02-21 10:12:39xS)o5     3EHKD 211006Z AUTO 24013KT 4200 DZ BKN005 OVC007 08/08 Q1024 YLO 22010KT 6000 BKN012 TEMPO 3000 RADZ SCT004 BKN007EHKD2019-02-21T10:06:00Z52.924.778.08.0240132.6130.236221TRUEDZIFRSPECI14.02019-02-21 10:12:39  uY)I5     3KHYA 211006Z AUTO 15010G17KT 2SM -RA BR OVC006 03/01 A2984 RMK AO2 CIG 005V010 P0000 T00280011KHYA2019-02-21T10:06:00Z41.67-70.272.81.115010172.029.840551TRUETRUE-RA BRIFR0.005SPECI22.02019-02-21 10:12:39}X)i5      3KCXO 211006Z AUTO VRB04KT 7SM TSRA OVC055 09/09 A2997 RMK AO2 LTG DSNT SE AND SW RAB0955 TSB00 P0002 T00940089KCXO2019-02-21T10:06:00Z30.35-95.429.48.9047.029.970472TRUETRUETSRAVFR0.02SPECI75.02019-02-21 10:12:39mW)?5     3KCDC 211006Z AUTO 00000KT 9SM BKN017 OVC046 M06/M07 A2951 RMK AO2 SNE03 P0000 T10561072 $KCDC2019-02-21T10:06:00Z37.7-113.1-5.6-7.2009.029.509842TRUETRUETRUEMVFR0.005SPECI1714.02019-02-21 10:12:39yV)W5      3KBOS 211006Z 34008KT 2 1/2SM -DZ BR FEW006 OVC014 01/M01 A2993 RMK AO2 DZB05FZDZE05 P0000 T00061011 $KBOS2019-02-21T10:06:00Z42.37-71.020.6-1.134082.529.929134TRUETRUE-DZ BRIFR0.005SPECI6.02019-02-21 10:12:39 - -f])+5      3KAWO 211006Z AUTO 35005KT 3/4SM BR VV001 M04/M04 A3007 RMK AO2 VIS 1/4V4 FZRANOKAWO2019-02-21T10:06:00Z48.17-122.17-4.0-4.035050.7530.070866TRUETRUETRUEBRLIFR100SPECI42.02019-02-21 10:12:39y\)M5      3KMSS 211006Z AUTO 35003KT 2SM -FZRA BR BKN004 OVC009 M03/M03 A2975 RMK AO2 P0000 I1000 T10331033KMSS2019-02-21T10:06:00Z44.93-74.85-3.3-3.335032.029.749016TRUETRUE-FZRA BRLIFR0.005SPECI66.02019-02-21 10:12:39n[)M5     3KSGR 211006Z AUTO 05007KT 10SM OVC038 14/09 A2992 RMK AO2 LTG DSNT N AND W RAE00 P0000 T01390089KSGR2019-02-21T10:06:00Z29.62-95.6513.98.950710.029.920275TRUETRUEVFR0.005SPECI2.02019-02-21 10:12:39nZ)E5      3KORF 211006Z AUTO 21014KT 5SM RA BR BKN003 BKN048 OVC075 06/06 A3001 RMK AO2 P0003 T00610061KORF2019-02-21T10:06:00Z36.9-76.26.16.1210145.030.008858TRUETRUERA BRLIFR0.03SPECI14.02019-02-21 10:12:39 |),_|]a)5     3KXNO 211006Z AUTO 00000KT 1 3/8SM BR OVC002 07/07 A3009 RMK AO2 SLP193 $KXNO2019-02-21T10:06:00Z33.62-81.077.07.0001.3830.0885831019.3TRUETRUETRUEBRLIFRSPECI98.02019-02-21 10:12:39G`)5   3ETNL 211006Z 25012KT 9000 BKN014 BKN100 08/06 Q1020 GRN BLU TEMPO GRNETNL2019-02-21T10:06:00Z53.9212.278.06.0250125.5930.11811MVFRSPECI40.02019-02-21 10:12:39w_)U5     3KWRI 211006Z AUTO 28004KT 1 3/4SM BR OVC002 01/01 A2990 RMK AO2 VIS 1 3/4V2 1/2 CIG 001 RWY18 SLP126KWRI2019-02-21T10:06:00Z40.02-74.581.01.028041.7529.8996071012.6TRUETRUEBRLIFRSPECI41.02019-02-21 10:12:39Q^)5      3KCVO 211006Z AUTO 00000KT 1SM BR OVC002 01/01 A3000 RMK AO2 FZRANO RVRNOKCVO2019-02-21T10:06:00Z44.5-123.271.01.0001.030.0TRUETRUETRUEBRLIFRSPECI75.02019-02-21 10:12:39  Goie)+5      3KCAR 211005Z AUTO 09004KT 3/4SM -SN VV014 M13/M17 A2999 RMK AO2 P0001 T11331167KCAR2019-02-21T10:05:00Z46.87-68.02-13.3-16.79040.7529.991142TRUETRUE-SNLIFR0.011400SPECI191.02019-02-21 10:12:39Rd)5    3KHTS 211005Z 30007KT 10SM FEW020 OVC050 07/03 A3007 RMK AO2 T00720028 $KHTS2019-02-21T10:05:00Z38.37-82.557.22.8300710.030.070866TRUETRUEVFRSPECI254.02019-02-21 10:12:39?c) 5   3ETMN 211005Z 24014KT 9000 BKN009 08/05 Q1022 GRN BLU TEMPO GRNETMN2019-02-21T10:05:00Z53.778.678.05.0240145.5930.177166IFRSPECI31.02019-02-21 10:12:39nb)15     3KEGI 211005Z AUTO 17003KT 1 1/4SM -DZ BR OVC002 20/20 A3002 RMK AO2 DZB05 SLP166 $KEGI2019-02-21T10:05:00Z30.63-86.5220.020.017031.2530.020671016.6TRUETRUETRUE-DZ BRLIFRSPECI59.02019-02-21 10:12:39 46ZOi)5     3KHBI 211005Z AUTO 00000KT 2SM BR OVC004 03/03 A3008 RMK AO2 T00270027KHBI2019-02-21T10:05:00Z35.65-79.92.72.7002.030.079725TRUETRUEBRLIFRMETAR205.02019-02-21 10:12:39Vh)5     3KHNZ 211005Z AUTO 22004KT 10SM -RA OVC004 01/01 A3003 RMK AO2 T00130010KHNZ2019-02-21T10:05:00Z36.37-78.531.31.0220410.030.029528TRUETRUE-RALIFRMETAR161.02019-02-21 10:12:39xg)U5      3KORH 211005Z AUTO 34007KT 4SM BR BKN002 OVC010 M03/M04 A2987 RMK AO2 FZRAE0959 P0000 I1001 T10331044KORH2019-02-21T10:05:00Z42.27-71.87-3.3-4.434074.029.870079TRUETRUEBRLIFR0.005SPECI304.02019-02-21 10:12:39Ff) 5     3KTRI 211005Z 00000KT 3SM BR OVC004 07/07 A3004 RMK AO2 T00720072KTRI2019-02-21T10:05:00Z36.48-82.47.27.2003.030.041338TRUEBRLIFRSPECI474.02019-02-21 10:12:39 )PfSm)5     3KAGS 211005Z AUTO 00000KT 1 3/4SM BR OVC006 08/08 A3008 RMK AO2 T00830078KAGS2019-02-21T10:05:00Z33.37-81.978.37.8001.7530.079725TRUETRUEBRIFRSPECI44.02019-02-21 10:12:39dl)75     3K1A5 211005Z AUTO 00000KT 10SM -DZ BKN021 BKN027 OVC048 11/11 A3006 RMK AO2 T01070107K1A52019-02-21T10:05:00Z35.22-83.4210.710.70010.030.059055TRUETRUE-DZMVFRMETAR616.02019-02-21 10:12:39Sk)5   3K2G4 211005Z AUTO 27012G19KT 232V302 10SM OVC001 05/05 A2992 RMK AO1K2G42019-02-21T10:05:00Z39.58-79.335.05.0270121910.029.920275TRUETRUELIFRMETAR894.02019-02-21 10:12:39Qj)5     3KFDK 211005Z AUTO 20004KT 4SM BR OVC004 00/00 A3002 RMK AO2 LTG DSNT EKFDK2019-02-21T10:05:00Z39.42-77.370.00.020044.030.02067TRUETRUEBRLIFRMETAR92.02019-02-21 10:12:39